Weather

Current METAR: AGGH 210800Z 29003KT 9999 FEW016 SCT300 27/24 Q1009 AYMH 210800Z 25020KT 9999 BKN060 OVC100 N/A Q1017 RMK AYNZ 210800Z 07015KT 9999 FEW035 SCT050 BKN090 27/21 Q1008 RMK AYPY 210800Z 15011KT 9999 FEW025 SCT050 28/24 Q1008 RMKS/ BUILD UPS TO NW BGBW 210450Z AUTO 04011KT 9999NDV NCD M07/M16 Q1013 BGGH 210750Z AUTO 07015KT 9999NDV FEW200/// M08/M15 Q1013 BGJN 210750Z AUTO 11017KT 9999NDV -SHSN FEW029/// SCT065/// BKN095/// BKN110/// M08/M12 Q1012 BGKK 210750Z AUTO 33013KT 9999NDV NCD M03/M10 Q0988 BGSF 210750Z AUTO 05006KT 9999NDV -SG FEW043/// BKN050/// OVC070/// M10/M11 Q1015 BGTL 210756Z AUTO 00000KT 9999 OVC046 M12/M14 A2972 RMK AO2 SLP054 T11161145 TSNO $ BIAR 210800Z 18025G35KT 9999 OVC055 05/M00 Q0985 BIEG 210800Z 19015G25KT 9999 FEW065 SCT100 05/M06 Q0989 BIKF 210830Z 24023KT 9999 VCSH FEW010 SCT036 BKN075 04/M00 Q0993 BIRK 210800Z 23025KT 9999 SHRA FEW032CB BKN039 BKN056 05/M01 Q0993 BKPR 210830Z 34005KT 5000 BR SCT020 BKN050 11/07 Q1021 NOSIG CAHR 210800Z AUTO 28002KT 07/05 RMK AO1 SLP991 T00710054 51013 CBBC 210800Z AUTO 00000KT 1/8SM FG VV002 07/07 A3014 RMK SLP208 CMFM 210800Z AUTO 28006KT M02/M05 RMK AO1 SOG 01 3010 PK WND 28021/0728 SLP005 T10231053 50002 CMGB 210830Z AUTO 31001KT M00/M02 RMK AO1 SLP062 T10031019 53016 CPBT 210800Z AUTO 36004KT M02/M03 RMK AO1 T10161029 CPEH 210800Z AUTO 25004KT M00/M02 RMK AO1 T10021015 CPFI 210800Z AUTO 20003KT 01/M02 RMK AO1 T00051021 CPIR 210800Z AUTO 00000KT 05/01 RMK AO1 T00540005 CPRO 210800Z AUTO 24004KT M03/M04 RMK AO1 T10291042 CPRY 210800Z AUTO 18001KT 01/M03 RMK AO1 T00141030 CPST 210800Z AUTO 11005KT 04/M01 RMK AO1 T00421007 CPSV 210800Z AUTO 00000KT 05/M00 RMK AO1 T00501003 CPXL 210800Z AUTO 13005KT 04/M01 RMK AO1 T00381006 CTCK 210800Z AUTO 28004KT 01/M02 RMK AO1 SLP093 T00101016 CTNK 210800Z AUTO 31003KT M02/M07 RMK AO1 SLP138 T10211071 53022 CWAF 210800Z AUTO 31015KT 03/M00 RMK AO1 PK WND 31022/0739 T00311004 CWAJ 210800Z AUTO RMK AO1 51029 CWAQ 210800Z AUTO 32008KT 02/M04 RMK AO1 SLP185 T00171040 51020 CWAV 210800Z AUTO 25003KT M03/M05 RMK AO1 SLP219 T10321054 51014 CWBA 210800Z AUTO 32010G16KT M01/M05 RMK AO1 T10101049 CWBE 210800Z AUTO 33009KT 00/M06 RMK AO1 SLP203 T00001062 51018 CWBK 210800Z AUTO 29012KT 10/09 RMK AO1 SLP989 T01030091 50007 CWBO 210800Z AUTO 00000KT M02/M04 RMK AO1 SLP196 T10201035 51006 CWBS 210800Z AUTO 25016KT 04/M02 RMK AO1 PK WND 26019/0741 T00381020 CWBT 210800Z AUTO 23007G15KT 03/02 RMK AO1 PK WND 23017/0715 SLP939 T00340024 53003 CWBU 210800Z AUTO 26006KT 01/M04 RMK AO1 SLP133 T00061036 51012 CWBV 210800Z AUTO 25007KT 08/08 RMK AO1 SLP990 T00770075 50001 CWBY 210500Z AUTO 26014G20KT 05/02 RMK AO1 PK WND 26020/0457 SLP938 T00460020 51002 CWBZ 210800Z AUTO 30008G16KT 02/M03 RMK AO1 SLP086 T00151026 53022 CWCF 210800Z AUTO 19008G15KT 01/M04 RMK AO1 SLP136 T00101039 58024 CWCJ 210800Z AUTO 02002KT M01/M05 RMK AO1 SOG 04 0001 SLP220 T10111053 CWCO 210800Z AUTO 35020G28KT 02/M00 RMK AO1 1025 PK WND 00031/0743 SLP167 T00151004 50002 CWCT 210800Z AUTO 30008KT M02/M05 RMK AO1 SLP213 T10191047 51013 CWDA 210800Z AUTO 25008KT 09/09 RMK AO1 PK WND 13019/0713 SLP958 T00940094 56036 CWDC 210800Z AUTO 28004KT 03/M00 RMK AO1 SLP028 T00321002 53008 CWDJ 210800Z AUTO 27007KT M03/M05 RMK AO1 SLP182 T10261047 53022 CWDK 210800Z AUTO 28002KT 02/M02 RMK AO1 SLP196 T00181018 50007 CWDM 210800Z AUTO 20006KT 07/07 RMK AO1 SLP945 T00720070 56012 CWDO 210800Z AUTO 19020G33KT 14/11 RMK AO1 SOG 02 6031 PK WND 24036/0733 SLP010 T01390110 CWDQ 210800Z AUTO 30007KT 01/M03 RMK AO1 PK WND 30017/0743 SLP043 T00101033 51016 CWDT 210800Z AUTO 28008KT M03/M05 RMK AO1 20 3019 SLP986 T10281050 CWDV 210800Z AUTO 23003KT M04/M07 RMK AO1 SLP228 T10421072 56019 CWDZ 210800Z AUTO 17001KT M01/M03 RMK AO1 T10091029 CWEB 210800Z AUTO 09002KT 08/07 RMK AO1 T00780072 CWEF 210800Z AUTO 10/10 RMK AO1 SLP974 T00950095 58006 CWEH 210800Z AUTO 05010KT 05/M05 RMK AO1 SLP194 T00531048 50014 CWEK 210800Z AUTO 06020KT 08/08 RMK AO1 PK WND 06024/0743 SLP219 T00830076 58013 CWEL 210800Z AUTO 34018KT 12/09 RMK AO1 PK WND 34023/0705 SLP180 T01240093 58002 CWEQ 210800Z AUTO 23009KT 01/M07 RMK AO1 SLP122 T00051067 58007 CWER 210800Z AUTO 24013G18KT RMK AO1 PK WND 24020/0720 CWEU 210800Z 10003KT 15SM -SN SCT032 M22/M25 A2990 RMK SC3 SLP127 CWEW 210800Z AUTO 25004KT 02/M01 RMK AO1 SLP076 T00241014 53015 CWEZ 210800Z AUTO 31006G16KT 12/11 RMK AO1 SLP173 T01170107 56005 CWFD 210811Z AUTO 01006KT ////SM //// BKN004 BKN008 OVC030 ///// A//// CWFF 210800Z AUTO 27008KT 03/M02 RMK AO1 SOG 17 1012 SLP144 T00301015 CWFJ 210800Z AUTO 22007KT 03/M04 RMK AO1 T00341044 CWFQ 210800Z AUTO 31005KT 01/M02 RMK AO1 SLP058 T00131015 52015 CWGB 210800Z AUTO 26014KT 12/09 RMK AO1 PK WND 28018/0700 SLP182 T01190093 58003 CWGD 210800Z AUTO 35017G25KT 03/M04 RMK AO1 PK WND 34027/0708 SLP189 T00281036 51028 CWGL 210800Z AUTO 33015G21KT M00/M06 RMK AO1 PK WND 33021/0752 SLP151 T10031055 53029 CWGM 210800Z AUTO 22007KT 11/M07 RMK AO1 PK WND 24020/0716 T01081068 CWGR 210800Z AUTO 24007KT 08/06 RMK AO1 SLP975 T00790055 51005 CWGW 210800Z AUTO 35004KT M02/M04 RMK AO1 SLP239 T10201035 51013 CWGX 210800Z AUTO 17009KT M04/M05 RMK AO1 5PAST HR SOG 05 8036 SLP097 P0002 T10401051 50005 CWGY 210800Z AUTO 23009KT 02/M03 RMK AO1 SLP207 T00161030 51013 CWHI 210800Z AUTO 26005KT M02/M04 RMK AO1 T10201040 CWHL 210800Z AUTO 06008KT 09/08 RMK AO1 SLP212 T00870080 58016 CWHN 210800Z AUTO 28006KT 250V310 9SM CLR 07/M04 A2989 RMK SLP142 CWHO 210800Z AUTO 22004KT 01/01 RMK AO1 SOG 01 3001 SLP915 T00070006 50003 CWHP 210800Z AUTO 26005KT 05/04 RMK AO1 SLP957 T00490041 53005 CWHQ 210800Z AUTO 26002KT M00/M02 RMK AO1 T10041017 CWHT 210800Z AUTO 01007KT 05/M02 RMK AO1 SLP125 T00521015 55002 CWHV 210800Z AUTO 28005KT M00/M02 RMK AO1 SLP024 T10041023 53007 CWID 210800Z AUTO 33008G16KT 02/M04 RMK AO1 PK WND 33019/0701 SLP094 T00211037 53047 CWIG 210800Z AUTO 24019G25KT RMK AO1 PK WND 23025/0735 CWII 210800Z AUTO 17010G18KT 02/M06 RMK AO1 PK WND 17020/0725 SLP158 T00171055 56038 CWIJ 210800Z AUTO 01016KT M09/M10 RMK AO1 SOG 20 3040 PK WND 02023/0705 SLP041 T10871101 CWIK 210800Z AUTO 30007KT 03/M04 RMK AO1 SLP155 T00311036 51017 CWIL 210817Z AUTO 11015KT ////SM BKN009 BKN016 OVC055 M10/M11 A2978 CWIP 210800Z AUTO 21012G19KT 05/ RMK AO1 PK WND 20020/0736 T0048 CWIS 210800Z AUTO 29003KT M02/M04 RMK AO1 SOG 08 1007 SLP993 T10181042 CWIT 210800Z AUTO 29007KT 03/M02 RMK AO1 SLP070 T00281020 52013 CWIW 210800Z AUTO 29009KT 04/M02 RMK AO1 SOG 03 3015 SLP171 T00391021 CWIX 210800Z AUTO 29015KT 01/M03 RMK AO1 25 3022 SLP012 T00071032 CWIZ 210800Z AUTO 30006KT 03/M02 RMK AO1 T00301024 CWJB 210800Z AUTO 22009KT 02/M02 RMK AO1 T00211018 CWJC 210800Z AUTO 16009KT M05/M06 RMK AO1 PK WND 17017/0731 SLP989 T10531064 58012 CWJD 210800Z AUTO 21006KT 00/M02 RMK AO1 6025 SLP110 T00001020 50006 CWJH 210800Z AUTO 25003KT 02/01 RMK AO1 SOG 05 6006 SLP063 T00220005 CWJI 210800Z AUTO 29009KT 03/M04 RMK AO1 SLP197 T00261035 51023 CWJO 210800Z AUTO 30009G15KT 01/01 RMK AO1 3016 SLP017 T00090005 50009 CWJR 210800Z AUTO 11001KT 05/02 RMK AO1 SLP229 T00460019 52001 CWJT 210800Z AUTO 00/ RMK AO1 SLP080 T0000 53018 CWJV 210800Z AUTO 10003KT 05/02 RMK AO1 SLP223 T00490024 51003 CWJW 210800Z AUTO 21004KT M03/M06 RMK AO1 SLP227 T10261056 51010 CWJX 210800Z AUTO 22001KT M02/M05 RMK AO1 SLP202 T10211048 53011 CWKG 210800Z AUTO 33001KT 08/07 RMK AO1 SLP999 T00820074 50004 CWKH 210800Z AUTO 09/07 RMK AO1 SLP168 T00910071 57005 CWKK 210800Z AUTO 30009KT 01/M04 RMK AO1 SLP213 T00051035 58008 CWKO 210800Z AUTO 35014G19KT 07/M04 RMK AO1 PK WND 34020/0720 SLP187 T00711042 50013 CWKX 210800Z AUTO 05002KT M02/M03 RMK AO1 SLP236 T10211034 50005 CWLB 210800Z AUTO 27011KT 05/M04 RMK AO1 SOG 03 1004 SLP156 T00451041 CWLC 210800Z AUTO 33002KT 09/08 RMK AO1 T00880084 CWLE 210800Z AUTO 27011KT 03/M02 RMK AO1 SLP190 T00311018 51017 CWLI 210800Z AUTO 04007KT ////SM //// OVC003 M07/M07 A2990 CWLM 210800Z AUTO 00000KT 10/09 RMK AO1 SLP179 T01030088 56004 CWLP 210800Z AUTO 06003KT 09/08 RMK AO1 SLP202 T00870075 57005 CWLS 210800Z AUTO 33008KT M00/M05 RMK AO1 PK WND 33018/0732 SLP172 T10031053 51027 CWLY 210800Z AUTO VRB02KT 8SM CLR 03/02 A3018 RMK SLP225 CWME 210800Z AUTO 04022KT 09/07 RMK AO1 PK WND 03026/0758 SLP211 T00890072 57008 CWMJ 210800Z AUTO 31009KT 01/M05 RMK AO1 SLP102 T00051052 53016 CWMM 210800Z AUTO 00000KT 05/04 RMK AO1 SLP180 T00470043 58003 CWMQ 210800Z AUTO 20002KT M00/M02 RMK AO1 0004 SLP210 T10011022 50002 CWMT 210800Z AUTO 33011G17KT M01/M05 RMK AO1 PK WND 34020/0718 SLP088 T10131051 51051 CWMZ 210400Z AUTO 36028G34KT 02/M04 RMK AO1 PK WND 00035/0342 T00181035 CWNC 210800Z AUTO 33009G16KT 03/M06 RMK AO1 PK WND 34018/0733 SLP137 T00251057 51039 CWND 210800Z AUTO 06008KT M08/M09 RMK AO1 SLP117 T10771087 53011 CWNE 210800Z AUTO 26015KT 09/04 RMK AO1 PK WND 25019/0714 SLP976 T00920038 53008 CWNH 210800Z AUTO 25006KT 04/M02 RMK AO1 SLP994 T00391020 53007 CWNK 210800Z AUTO 15013KT M00/M06 RMK AO1 PK WND 15017/0758 T10031055 CWNM 210800Z AUTO 20003KT 03/03 RMK AO1 SLP227 T00340026 50000 CWNP 210800Z AUTO 33002KT 04/04 RMK AO1 SLP241 T00420037 53007 CWNQ 210800Z AUTO 27012G17KT 04/M03 RMK AO1 PK WND 28018/0713 SLP051 T00361034 51015 CWNZ 210800Z AUTO 30008G16KT M03/M04 RMK AO1 SOG 03 3009 SLP204 T10281041 CWOC 210800Z AUTO 27007KT 05/01 RMK AO1 SLP971 T00460006 51008 CWOD 210800Z AUTO 29012G17KT M00/M04 RMK AO1 PK WND 31020/0742 SLP005 T10031039 51023 CWOE 210700Z AUTO 09009KT 04/M02 RMK AO1 SLP198 T00371016 51018 CWOY 210800Z AUTO 27007KT 04/M02 RMK AO1 SLP160 T00381024 53013 CWPC 210800Z AUTO 36014G20KT 04/M03 RMK AO1 PK WND 35023/0704 SLP163 T00361034 51044 CWPD 210800Z AUTO 13003KT M04/M06 RMK AO1 SLP995 T10371055 53009 CWPE 210800Z AUTO 32003KT 02/02 RMK AO1 SLP000 T00240016 51007 CWPF 210830Z AUTO 02003KT 08/07 RMK AO1 T00780068 CWPK 210800Z AUTO 29008KT M03/M04 RMK AO1 3PAST HR 3018 SLP057 P0001 T10261039 50005 CWPO 210800Z AUTO 20014KT M00/M06 RMK AO1 PK WND 18021/0705 SLP157 T10011057 56038 CWPR 210800Z AUTO 00000KT 01/M02 RMK AO1 SLP228 T00051018 51005 CWPX 210800Z AUTO ///// ////SM //// OVC003 M12/M14 A2970 CWPZ 210800Z AUTO 32001KT M05/M06 RMK AO1 SLP251 T10461056 50003 CWQH 210800Z AUTO 31004KT 01/M02 RMK AO1 T00051020 CWQK 210800Z AUTO 04006KT 11/09 RMK AO1 SLP180 T01070091 56002 CWQO 210800Z AUTO 23023KT 03/00 RMK AO1 PK WND 24029/0710 T00330000 CWQP 210800Z AUTO 35010G16KT 03/M04 RMK AO1 PK WND 35018/0744 SLP128 T00281040 51038 CWQR 210800Z AUTO 24026KT 04/01 RMK AO1 PK WND 24030/0756 T00420009 CWQS 210800Z AUTO 11006KT 11/08 RMK AO1 SLP212 T01080076 56011 CWQV 210800Z AUTO 28020G25KT 02/M00 RMK AO1 PK WND 27030/0722 T00231001 CWRA 210800Z AUTO 18029G35KT RMK AO1 PK WND 18037/0736 56021 CWRF 210800Z AUTO 08003KT M17/ A2978 RMK SLP131 CWRJ 210800Z AUTO 25006KT M03/M05 RMK AO1 SOG 02 2015 SLP189 T10281046 CWRK 210800Z AUTO 34007KT M02/M07 RMK AO1 SOG 03 2025 PK WND 35018/0746 SLP131 T10151068 CWRM 210800Z AUTO 22001KT M03/M04 RMK AO1 SOG 01 1014 SLP215 T10281041 CWRN 210800Z AUTO 24005KT 12/12 RMK AO1 SLP983 T01150117 53002 CWRT 210800Z AUTO 00000KT M03/M04 RMK AO1 T10251040 CWRU 210800Z AUTO 35019KT 11/08 RMK AO1 PK WND 35022/0706 SLP169 T01060075 58005 CWRX 210800Z AUTO 29011KT ////SM //// OVC017 M10/M13 A2987 CWRY 210800Z AUTO 30004KT M00/M04 RMK AO1 SLP190 T10021040 50007 CWRZ 210800Z AUTO 26006KT 04/02 RMK AO1 SLP961 T00380018 51013 CWSA 210843Z AUTO 19023G34KT 1SM +RA BR SCT015 BKN025 BKN045 OVC070 16/15 A2955 RMK SLP009 DENSITY ALT 400FT CWSD 210800Z AUTO 27005KT 06/04 RMK AO1 SLP993 T00560044 51015 CWSF 210800Z AUTO 20003KT 02/M03 RMK AO1 SLP950 T00241026 53010 CWSG 210800Z AUTO 23020G30KT 04/01 RMK AO1 PK WND 23031/0732 SLP961 T00360009 53012 CWSK 210800Z AUTO 36002KT 06/06 RMK AO1 SLP183 T00610055 58001 CWSL 210700Z AUTO 22003KT 03/03 RMK AO1 SLP234 T00310031 53005 CWSR 210800Z AUTO 28010KT 05/M05 RMK AO1 SOG 02 1009 SLP148 T00541046 CWSS 210800Z AUTO 00000KT M01/M02 RMK AO1 SLP009 T10051019 53006 CWST 210800Z AUTO 22015KT 03/01 RMK AO1 PK WND 23020/0741 SLP999 T00330011 53008 CWTA 210800Z AUTO 36002KT 03/M04 RMK AO1 SLP073 T00311042 53015 CWTG 210800Z AUTO 25027KT 03/M00 RMK AO1 PK WND 25033/0730 SLP948 T00311001 51012 CWTN 210800Z AUTO 28004KT 02/M00 RMK AO1 SLP018 T00241004 51013 CWTT 210800Z AUTO 30010KT 02/M01 RMK AO1 T00231012 CWTY 210800Z AUTO 25005KT 03/M02 RMK AO1 SLP049 T00261020 51015 CWUS 210800Z AUTO 28007KT 05/01 RMK AO1 SLP217 T00490005 58001 CWUW 210800Z AUTO 19004KT ////SM //// OVC003 M15/M16 A2972 CWUX 210800Z AUTO 28010G16KT M00/M02 RMK AO1 PK WND 28025/0730 SLP004 T10031015 53016 CWVF 210800Z AUTO 32014KT 12/12 RMK AO1 T01210115 CWVI 210800Z AUTO 23009KT M00/M05 RMK AO1 SLP185 T10031051 52012 CWVN 210800Z AUTO 35002KT M00/M04 RMK AO1 SLP206 T10041042 51017 CWVP 210800Z AUTO 06005KT 05/M06 RMK AO1 SLP197 T00521063 50008 CWVQ 210800Z AUTO 26006KT 03/M02 RMK AO1 SLP079 T00261015 51018 CWVT 210800Z AUTO 28006KT 08/M03 RMK AO1 SLP117 T00771028 53007 CWVU 210800Z AUTO 35015KT 11/07 RMK AO1 PK WND 35019/0751 SLP014 T01120071 52005 CWWA 210800Z AUTO 00000KT 09/06 RMK AO1 SLP178 T00870061 58004 CWWB 210800Z AUTO 33009KT 04/M03 RMK AO1 PK WND 31024/0712 SLP166 T00361027 51040 CWWE 210800Z AUTO 13001KT 07/ RMK AO1 5PAST HR 8006 SLP994 P0002 T0071 50005 CWWF 210800Z AUTO 31008KT 02/M03 RMK AO1 SOG 01 3024 SLP177 T00221027 CWWK 210800Z AUTO 03001KT 06/06 RMK AO1 SLP181 T00580055 58003 CWWL 210800Z AUTO 05005KT 09/ RMK AO1 SLP213 T0089 58016 CWWS 210800Z AUTO 21023KT 02/M00 RMK AO1 1PAST HR 6020 PK WND 21031/0701 SLP128 P0000 T00161002 50003 CWWX 210800Z AUTO 02018KT 02/M04 RMK AO1 PK WND 02022/0727 T00181038 51019 CWWZ 210800Z AUTO 34022G28KT 05/M00 RMK AO1 PK WND 32033/0725 SLP160 T00511003 51042 CWXA 210800Z AUTO 27012G18KT 07/M06 RMK AO1 PK WND 27019/0749 SLP181 T00701056 51002 CWXC 210800Z AUTO 00000KT M01/M03 RMK AO1 3017 SLP990 T10101027 50005 CWXI 210800Z AUTO 23004KT 08/07 RMK AO1 1PAST HR 8016 SLP953 P0012 T00790074 50060 CWXL 210800Z AUTO 12006KT 03/M00 RMK AO1 T00331004 CWYJ 210800Z AUTO 26001KT 06/06 RMK AO1 SLP179 T00630060 56004 CWYL 210800Z AUTO 08001KT M02/M04 RMK AO1 SLP233 T10181043 52004 CWYY 210800Z AUTO 11001KT 04/02 RMK AO1 SLP213 T00390019 58001 CWZA 210800Z AUTO 25002KT 10/06 RMK AO1 SLP175 T01030058 58004 CWZG 210800Z AUTO 22008KT 02/M05 RMK AO1 SOG 02 1004 SLP213 T00191046 CWZL 210800Z AUTO 25006KT 09/08 RMK AO1 SLP219 T00870078 57015 CWZO 210800Z AUTO 05003KT RMK AO1 CWZQ 210840Z AUTO 26009KT 11/11 RMK AO1 T01120112 CWZS 210700Z AUTO 24005KT 03/M03 RMK AO1 SLP967 T00261029 52007 CWZV 210800Z AUTO 03001KT 11/07 RMK AO1 SLP211 T01070066 58013 CWZW 210800Z AUTO 04003KT 01/M01 RMK AO1 SLP189 T00121014 51004 CXAF 210800Z AUTO 27005KT 02/M05 RMK AO1 T00181051 CXAG 210800Z AUTO 29011KT 05/M04 RMK AO1 T00511044 CXAJ 210800Z AUTO 23004KT M00/M05 RMK AO1 T10011053 CXAK 210800Z AUTO 25006KT 01/M02 RMK AO1 T00131024 CXAT 210800Z AUTO 09003KT M12/M15 RMK AO1 SOG 07 1016 SLP109 T11211149 CXBA 210800Z AUTO 26006KT 01/M04 RMK AO1 T00091036 CXBI 210800Z AUTO 34013G23KT M01/M09 RMK AO1 PK WND 32024/0702 SLP164 T10121092 52028 CXBK 210800Z AUTO 28012KT 01/M02 RMK AO1 SLP167 T00121019 51025 CXBO 210800Z AUTO 00025KT RMK AO1 CXBR 210800Z AUTO 05/M01 RMK AO1 T00461012 CXCA 210800Z AUTO 33003KT 00/M06 RMK AO1 SLP225 T00001055 58008 CXCD 210800Z AUTO 29009KT 05/M05 RMK AO1 T00511052 CXCH 210800Z AUTO 11/10 RMK AO1 T01050099 50045 CXCK 210800Z AUTO 18002KT M00/M03 RMK AO1 SLP128 T10011028 50005 CXCP 210800Z AUTO 36002KT 01/M01 RMK AO1 T00141006 CXCS 210800Z AUTO 30008KT 02/M04 RMK AO1 T00201036 CXDB 210800Z AUTO 11004KT 01/M06 RMK AO1 T00051063 CXDE 210800Z AUTO 31007KT M04/M04 RMK AO1 SOG 08 3027 SLP137 T10351043 CXDI 210800Z AUTO 34009KT 03/M02 RMK AO1 SLP172 T00261015 51039 CXDK 210800Z AUTO 35005KT 10/M03 RMK AO1 PK WND 35019/0718 SLP122 T01001030 51037 CXDP 210800Z AUTO 24007KT M00/M04 RMK AO1 T10031041 CXDW 210800Z AUTO 17012G17KT 02/M06 RMK AO1 PK WND 19018/0702 SLP146 T00201058 56049 CXEA 210800Z AUTO 16002KT M02/M05 RMK AO1 SLP195 T10161048 58025 CXEC 210800Z AUTO 23006KT 03/M07 RMK AO1 SOG 01 1014 SLP193 T00331067 CXEG 210800Z AUTO M03/M08 RMK AO1 T10251079 CXET 210800Z AUTO 35011G17KT M00/M08 RMK AO1 PK WND 34023/0738 SLP159 T10031077 51031 CXFM 210800Z AUTO 10005KT M01/M03 RMK AO1 T10071030 CXFR 210800Z AUTO 26008KT 04/M04 RMK AO1 T00371043 CXGH 210800Z AUTO 19015KT 01/M06 RMK AO1 PK WND 19021/0714 SLP150 T00131055 56038 CXHA 210800Z AUTO 32005KT 02/M04 RMK AO1 PK WND 31018/0700 SLP221 T00241036 53025 CXHD 210800Z AUTO 24009KT M00/M05 RMK AO1 4PAST HR M P0002 T10031050 50004 CXHF 210800Z AUTO 01/M02 RMK AO1 T00131019 CXHM 210800Z AUTO 31004KT 03/M02 RMK AO1 SLP166 T00321023 51040 CXHR 210800Z AUTO 20007KT 07/M01 RMK AO1 T00721009 CXIB 210800Z AUTO 00000KT 11/11 RMK AO1 2PAST HR 7004 SLP978 P0001 T01050110 50018 CXKA 210800Z AUTO 29008KT M03/M04 RMK AO1 SOG 03 1010 SLP179 T10281039 CXKE 210800Z AUTO 31004KT 01/M03 RMK AO1 SLP105 T00111032 52025 CXKI 210800Z AUTO M03/M04 RMK AO1 SOG 01 1016 SLP160 T10321043 CXKM 210800Z AUTO 26008KT 01/M06 RMK AO1 T00121058 CXKT 210800Z AUTO 23002KT 07/06 RMK AO1 SLP998 T00700063 50011 CXLB 210700Z AUTO 26004KT 10/10 RMK AO1 SLP992 T01000098 50003 CXLL 210800Z AUTO M02/M04 RMK AO1 SLP139 T10151042 51050 CXMD 210800Z AUTO 16009KT 01/M06 RMK AO1 SLP154 T00101063 56047 CXMG 210800Z AUTO 25009KT 04/M05 RMK AO1 T00441054 CXMI 210800Z AUTO 33002KT 11/11 RMK AO1 SLP998 T01090106 50004 CXMM 210800Z AUTO 23014KT 06/M04 RMK AO1 PK WND 23017/0755 SLP100 T00631038 51009 CXMO 210800Z AUTO 13002KT M03/M04 RMK AO1 T10261041 CXMY 210800Z AUTO 10/10 RMK AO1 T01020102 CXNM 210800Z AUTO 27010KT 08/08 RMK AO1 PK WND 27017/0739 T00810077 CXNP 210800Z AUTO 32004KT 07/03 RMK AO1 SLP002 T00700034 51014 CXOL 210800Z AUTO 04003KT 04/M01 RMK AO1 T00361006 CXOX 210800Z AUTO 24004KT 04/M02 RMK AO1 SOG 04 0005 SLP100 T00361015 CXOY 210800Z AUTO 28005KT 01/M03 RMK AO1 T00101033 CXPA 210800Z AUTO 30007KT 03/M04 RMK AO1 T00271040 CXPC 210800Z AUTO 00/M07 RMK AO1 SLP164 T00001066 51023 CXPL 210800Z AUTO 33006KT M02/M03 RMK AO1 T10171032 CXRB 210800Z AUTO 01002KT M15/M17 RMK AO1 SOG 04 2017 SLP127 T11531166 CXRH 210800Z AUTO 20001KT RMK AO1 CXRL 210800Z AUTO 25009KT 03/M03 RMK AO1 T00301031 CXSC 210800Z AUTO 19004KT 02/M01 RMK AO1 T00211009 CXSE 210800Z AUTO 23003KT M24/M26 RMK AO1 SOG 27 1018 SLP139 T12401264 CXSH 210800Z AUTO 27004KT 02/M03 RMK AO1 SLP045 T00161027 53014 CXSL 210800Z AUTO 28008KT 05/M05 RMK AO1 T00451050 CXSP 210800Z AUTO 25005KT 01/M04 RMK AO1 T00121040 CXTD 210800Z AUTO 24004KT 12/11 RMK AO1 3004 SLP995 T01200113 50004 CXTH 210800Z AUTO 24007KT 02/M05 RMK AO1 T00161050 CXTN 210800Z AUTO 21003KT M13/M16 RMK AO1 SOG 79 3021 SLP135 T11281155 CXTO 210800Z AUTO 02/M06 RMK AO1 SLP160 T00151059 51041 CXTP 210800Z AUTO 19015G30KT 13/11 RMK AO1 PK WND 18032/0735 SLP069 T01280110 56025 CXTV 210800Z AUTO 07002KT M05/M06 RMK AO1 SLP135 T10541061 53014 CXVM 210800Z AUTO 27008KT 03/M04 RMK AO1 T00301041 CXVN 210800Z AUTO 34016G24KT 04/M02 RMK AO1 PK WND 35028/0709 SLP157 T00411024 51043 CXVW 210800Z AUTO 25007KT 04/M05 RMK AO1 T00411046 CXWB 210800Z AUTO 05007KT M12/M14 RMK AO1 SLP134 T11171137 57004 CXWM 210800Z AUTO 14004KT 03/M01 RMK AO1 T00251012 CXWN 210800Z AUTO 21004KT 02/M07 RMK AO1 SLP162 T00221066 56045 CXYH 210800Z AUTO 35002KT 03/M02 RMK AO1 SLP118 T00271018 52051 CXZC 210800Z AUTO 29005KT M01/M03 RMK AO1 SOG 01 1016 SLP139 T10111029 CXZV 210800Z AUTO 25009G17KT 03/M01 RMK AO1 PK WND 25017/0725 SLP926 T00271006 53009 CYAH 210800Z AUTO 36010G20KT 9SM -SN OVC022 M07/M10 A2950 RMK SLP013 CYAM 210800Z 01009KT 20SM -SHSN SCT028 OVC041 M00/M04 A3015 RMK CU3SC5 SLP221 CYAT 210800Z AUTO /////KT 9SM CLR M03/M05 A2997 RMK WND MISG SLP151 CYAY 210800Z AUTO 28007KT 9SM -RA FEW008 SCT031 BKN048 OVC075 09/09 A2941 RMK SLP961 CYBC 210800Z AUTO 26012G17KT 9SM FEW075 02/M03 A2941 RMK SLP962 CYBG 210800Z 27013KT 10SM -SHSN FEW008 SCT027 OVC040 01/M01 A2954 RMK SF2SC2SC4 SLP011 CYBK 210800Z 14020KT 15SM -SN FEW013 BKN075 BKN090 OVC150 M10/M12 A2975 RMK SC2AC3AC2AC1 PCPN VRY LGT SLP078 CYBL 210400Z 28005KT 15SM BKN240 10/07 A3010 RMK CI7 LAST STFD OBS/NEXT 211300 UTC SLP197 CYBN 210819Z AUTO 34011G16KT 280V030 9SM OVC034 OVC066 01/M05 A3000 CYBQ 210800Z AUTO 18005KT 9SM OVC011 M04/M05 A2955 RMK SLP031 CYBR 210800Z 31004KT 15SM FEW110 M04/M08 A2990 RMK AC1 AC TR SLP149 CYBU 210800Z AUTO 24007KT 9SM CLR 01/M02 A2987 RMK SLP135 CYBW 210800Z AUTO 32006KT 9SM CLR M03/M05 A3009 RMK SLP213 CYBX 210800Z 00000KT 3/4SM -RA BR OVC003 07/07 A2941 RMK FG7SC1 SLP963 CYCA 210836Z AUTO 25006KT 9SM BKN019 OVC160 05/05 A2935 RMK SLP940 CYCB 210800Z 04011KT 2SM BR SCT003 M12/M14 A2977 RMK FG1ST2 FROIN SLP087 CYCD 210400Z 00000KT 20SM MIFG SKC 08/07 A3007 RMK LAST STFD OBS/NEXT 211300Z SLP185 CYCG 210400Z 01004KT 340V070 15SM SKC 07/05 A3017 RMK HZ LAST STFD OBS/NEXT 211300Z SLP231 CYCK 210819Z AUTO 32011G17KT 9SM SCT040 SCT050 01/M03 A3013 RMK SLP211 CYCO 210800Z 35012G18KT 15SM -SG OVC009 M08/M10 A2986 RMK ST8 PRESRR SLP114 CYCX 210800Z 27004KT 15SM SKC 02/00 A2954 RMK DA-855FT SLP006 CYCY 210800Z AUTO 28008KT 9SM -SN SCT030 OVC048 M12/M14 A2979 RMK SLP094 CYDB 210800Z AUTO 11014G19KT 070V140 9SM BKN220 OVC240 05/M03 A2970 RMK SLP086 CYDF 210816Z 20005KT 8SM -RA FEW015 BKN025 OVC050 12/12 A2946 RMK SF1SC4SC3 /R14/ SLP977 DENSITY ALT 300FT CYDL 210800Z AUTO 05003KT 020V090 9SM FEW080 M02/M03 A3012 RMK SLP222 CYDP 210800Z 03023G31KT 5SM -SN OVC022 00/M01 A2934 RMK SC8 /S05 AFT 201800Z/ SLP939 CYDQ 210800Z AUTO 26008KT 9SM CLR 06/M05 A3005 RMK SLP196 CYED 210800Z AUTO 25008KT 9SM CLR 03/M06 A3005 RMK SLP193 CYEG 210800Z 24006KT 20SM SCT240 M02/M08 A3008 RMK CI3 SLP207 CYEN 210800Z AUTO 33008KT CLR M06/M08 A2995 RMK WX MISG VIS MISG PCPN MISG SLP172 CYER 210807Z AUTO 26006KT 9SM OVC023 M08/M08 A3001 RMK SLP166 CYET 210800Z AUTO 29007KT 9SM CLR M02/M07 A3009 RMK SLP214 CYEV 210821Z 04002KT 2SM -SN BR OVC008 M05/M06 A2992 RMK FG3ST5 SLP138 CYFB 210800Z 03006KT 15SM -SN BKN008 OVC062 M09/M11 A2993 RMK SC6SC2 SLP141 CYFC 210800Z AUTO 26002KT 9SM CLR M00/M00 A2954 RMK SLP006 CYFS 210800Z 35007KT 15SM -RA FEW025 SCT085 BKN110 02/M03 A2989 RMK SC2AC2AC3 SLP133 CYGK 210300Z 01008G15KT 15SM BKN220 04/M02 A2972 RMK CI5 LAST STFD OBS/NEXT 211000 UTC SLP068 CYGL 210800Z 33013G19KT 15SM OVC028 M04/M10 A2971 RMK SC8 SLP078 CYGP 210800Z 33003KT 15SM SKC 01/M01 A2940 RMK SLP958 CYGQ 210800Z 30003KT 230V330 15SM OVC022 M03/M07 A3012 RMK SC8 SLP221 CYGT 210600Z 33012KT 10SM -SN OVC015 M11/M14 A2984 RMK SC8 CALL OUT SLP114 CYGV 210800Z AUTO 25011G18KT 9SM SCT240 03/00 A2935 RMK SLP940 CYGW 210800Z AUTO 36009G17KT 9SM BKN031 M03/M09 A2977 RMK SLP084 CYGX 210832Z 18010KT 1 1/4SM -SN VV011 M04/M05 A2976 RMK SN8 SLP092 CYHD 210800Z AUTO 21008KT 9SM FEW120 OVC140 M02/M06 A3008 RMK SLP214 CYHE 210800Z AUTO 07007KT 020V100 9SM CLR 10/04 A3009 RMK SLP193 CYHK 210843Z AUTO 11011KT 9SM SCT007 BKN043 BKN070 M13/M14 A2984 RMK SLP112 CYHM 210800Z 33012G18KT 15SM OVC038 02/M03 A3001 RMK SC8 SLP170 CYHU 210800Z AUTO 28008KT 9SM OVC041 03/M03 A2974 RMK SLP072 CYHY 210800Z 32017G26KT 15SM BKN080 02/M01 A2975 RMK AC5 PRESRR SLP083 CYHZ 210800Z 29006KT 15SM FEW001 BKN020 10/10 A2951 RMK SF2SC5 SLP998 DENSITY ALT 500FT CYIN 210800Z AUTO 00000KT 9SM CLR M03/M04 A3016 RMK SLP235 CYIO 210800Z AUTO 15008KT 9SM -SN OVC017 M14/M16 A2982 RMK SLP106 CYIV 210800Z 20009G15KT 12SM -SN OVC060 M00/M06 A2990 RMK SC8 SLP143 CYJT 210837Z VRB02KT 2SM -RA BR OVC005 10/09 A2947 RMK SF8 SLP980 CYKA 210800Z 08004KT 40SM FEW250 03/02 A3019 RMK CI2 SLP237 CYKF 210800Z AUTO 32014KT 9SM OVC041 01/M05 A3001 RMK SLP172 CYKJ 210800Z AUTO 26009KT 9SM BKN080 05/M02 A2964 RMK SLP062 CYKL 210841Z AUTO 36007KT 2SM -SN OVC015 M06/M06 A2918 RMK VIS VRB 1 3/4-3 SLP918 CYKP 210800Z AUTO 30008KT 9SM OVC016 M03/M06 A3008 RMK ICG SLP199 CYKY 210829Z 25010KT 200V280 15SM FEW260 M03/M05 A3008 RMK CI1 WSHFT 0815 SLP205 CYKZ 210800Z 33010G18KT 310V010 15SM OVC039 01/M06 A2998 RMK SC8 SLP158 CYLH 210800Z AUTO 28006KT 9SM OVC012 M04/M06 A3007 RMK SLP200 CYLL 210800Z AUTO 25010KT 9SM CLR 01/M04 A3000 RMK SLP184 CYLW 210800Z AUTO 02003KT 9SM CLR 01/01 A3017 RMK SLP228 CYMA 210800Z 25003KT 210V280 20SM FEW130 M01/M02 A2981 RMK AS1 SLP126 CYMH 210800Z AUTO 22006KT 9SM -RA OVC070 09/08 A2941 RMK SLP961 CYMM 210800Z AUTO 23014KT 9SM FEW100 07/M03 A2981 RMK SLP107 CYMO 210836Z AUTO 30008KT 6SM -SN SCT017 BKN028 OVC033 M01/M03 A2994 RMK SLP142 CYMT 210800Z AUTO 31014G21KT 9SM -SN BKN013 OVC020 M04/M05 A2958 RMK SLP038 CYMX 210800Z 26004KT 230V330 25SM OVC038 02/M03 A2975 RMK SC8 SLP079 CYNA 210800Z AUTO 28006KT 9SM SCT031 04/02 A2937 RMK SLP948 CYNE 210800Z AUTO 20009KT 9SM OVC005 00/00 A2981 RMK ICG PAST HR SLP110 CYNM 210800Z AUTO 31013G19KT 9SM -SN SCT014 BKN021 OVC027 M02/M03 A2978 RMK SLP104 CYOD 210800Z 23008KT 15SM SKC 02/M04 A2995 RMK SLP162 CYOJ 210800Z AUTO VRB07G16KT 9SM CLR 10/M05 A2981 RMK SLP106 CYOO 210800Z AUTO 34016G21KT 9SM OVC036 01/M05 A2997 RMK SLP153 CYOW 210800Z 30011KT 15SM FEW033 01/M04 A2983 RMK SC1 SLP107 CYOY 210800Z AUTO 23006KT 9SM 00/M02 A2960 RMK SLP031 CYPA 210800Z 27008KT 15SM SKC 02/M02 A2994 RMK SLP159 CYPD 210830Z AUTO 29005KT 9SM FEW005 SCT010 BKN016 OVC050 12/12 A2950 RMK SLP992 DENSITY ALT 500FT CYPE 210800Z 26010KT 15SM SKC 04/M04 A2998 RMK SLP172 CYPH 210800Z AUTO 03005KT 9SM CLR M11/M13 A2992 RMK SLP134 CYPO 210800Z AUTO 29008KT 9SM SCT010 BKN029 OVC035 M05/M07 A3000 RMK SLP166 CYPQ 210800Z AUTO 34010G15KT 9SM OVC040 01/M05 A2993 RMK SLP143 CYPR 210800Z AUTO 07006KT 9SM CLR 07/06 A3016 RMK SLP217 CYPX 210824Z AUTO 33004KT 9SM -SN OVC038 M11/M12 A2993 RMK SLP140 CYPY 210800Z AUTO 27010KT 9SM CLR 05/M03 A2965 RMK SLP052 CYQA 210800Z AUTO 32010G19KT 9SM OVC032 M01/M07 A2996 RMK SLP158 CYQB 210800Z 26009KT 15SM SCT038 01/M01 A2962 RMK SC4 SLP034 CYQD 210800Z AUTO 21004KT 170V240 9SM CLR M01/M06 A2978 RMK SLP102 CYQF 210800Z 21004KT 15SM SCT200 M03/M05 A3011 RMK CI4 SLP225 CYQG 210800Z AUTO 33011G23KT 9SM OVC035 03/M05 A3018 RMK SLP228 CYQH 210800Z 00000KT 15SM FEW073 M01/M05 A3003 RMK AC1 SLP199 CYQI 210800Z 35004KT 15SM MIFG SCT250 08/08 A2952 RMK CI3 SLP997 CYQK 210800Z 21011G19KT 20SM BKN120 00/M05 A3005 RMK AC7 PRESFR SLP199 CYQL 210800Z AUTO 19004KT 9SM CLR 00/M04 A3008 RMK SLP195 CYQM 210800Z 23006KT 15SM FEW100 05/04 A2952 RMK AC1 SLP000 CYQQ 210800Z 00000KT 20SM FEW230 BKN250 08/07 A3009 RMK CI2CS5 CONTRAILS SLP190 CYQR 210800Z 27008KT 15SM SKC M02/M04 A3001 RMK SLP187 CYQT 210800Z 24004KT 15SM OVC042 M01/M06 A3019 RMK SC8 SLP236 CYQU 210800Z 27009KT 25SM SKC 05/M04 A3006 RMK SLP199 CYQV 210800Z AUTO 29010KT 9SM FEW140 04/M02 A2990 RMK SLP147 CYQW 210800Z AUTO 24005KT 9SM CLR 00/M05 A3002 RMK SLP187 CYQX 210800Z 19033G54KT 12SM -RA BKN012 OVC020 14/12 A2966 RMK SC7SC1 SLP047 DENSITY ALT 800FT CYQY 210835Z 24004KT 10SM SCT035 OVC075 12/12 A2948 RMK SC3AC5 SLP986 DENSITY ALT 500FT CYQZ 210800Z AUTO 00000KT 9SM CLR M03/M04 A3022 RMK SLP254 CYRB 210800Z 01003KT 290V050 15SM -SN BKN015 M15/M17 A2990 RMK SC5 CIG ESTD SLP138 CYRJ 210800Z 30011G22KT 25SM -SN OVC027 M00/M05 A2957 RMK SC8 VIA CYQB SLP024 CYRQ 210800Z AUTO 24007KT 9SM OVC049 02/M02 A2968 RMK SLP053 CYRT 210800Z 16016KT 15SM OVC018 M06/M09 A2985 RMK SC8 SLP113 CYRV 210826Z AUTO VRB02KT 6SM BR OVC003 04/04 A3022 RMK SLP248 CYSB 210800Z 33010KT 15SM -SHSN BKN032 M02/M08 A3001 RMK SC5 SLP181 CYSC 210800Z AUTO 27008KT 9SM CLR M00/M02 A2966 RMK SLP052 CYSF 210800Z AUTO 28007KT 9SM FEW048 BKN055 BKN076 OVC098 M00/M01 A2952 RMK SLP015 CYSJ 210800Z 01003KT 15SM FEW008 04/02 A2953 RMK SF2 SLP004 CYSM 210830Z 22006KT 12SM -RA BKN060 BKN100 05/M02 A2961 RMK SC5AC2 SLP036 CYTE 210800Z AUTO 15002KT 9SM CLR M12/M16 A2989 RMK SLP129 CYTH 210800Z 20007KT 170V230 15SM FEW007 SCT020 BKN080 M01/M02 A2971 RMK SF2SC2AC2 SLP079 CYTL 210800Z AUTO 24006KT 9SM BKN150 OVC240 M04/M04 A3000 RMK SLP176 CYTR 210800Z 33009KT 15SM OVC034 03/M05 A2992 RMK SC8 SLP136 CYTS 210800Z 31008KT 10SM -FZDZ -SN DRSN FEW008 BKN012 OVC020 M04/M05 A3000 RMK SF1SC4SC3 SLP177 CYTZ 210800Z AUTO 32011G20KT 9SM BKN039 OVC049 03/M05 A3001 RMK SLP164 CYUB 210500Z 04006KT 10SM SCT005 OVC070 M07/M08 A2991 RMK ST3AS5 MUCH LOOSE/LAST OBS/NXT 211300UTC SLP131 CYUL 210800Z 27006KT 15SM OVC041 03/M03 A2975 RMK SC8 SLP077 CYUS 210842Z AUTO 10012G22KT ////SM //// FEW005 FEW010 OVC065 M15/M17 A2989 CYUX 210800Z AUTO 31011KT 9SM OVC022 M12/M14 A2989 RMK SLP125 CYUY 210800Z 30009KT 15SM BKN018 OVC043 M03/M05 A2990 RMK SC5SC3 SLP145 CYVC 210800Z 24008KT 15SM SKC 04/M01 A2979 RMK SLP108 CYVL 210834Z AUTO 13002KT 6SM BR OVC004 M06/M06 A2987 RMK SLP140 CYVM 210800Z AUTO 12003KT 100V190 9SM CLR M09/M17 A2988 RMK SLP119 CYVO 210815Z AUTO 33017G26KT 9SM -SN OVC019 M03/M04 A2984 RMK SLP127 CYVP 210800Z 03013G20KT 15SM BKN062 OVC120 M03/M08 A2965 RMK SC7AS1 SLP047 CYVQ 210819Z 05002KT 30SM BKN006 OVC075 M03/M04 A2993 RMK ST5AC3 SLP144 CYVR 210800Z 33002KT 20SM FEW240 06/05 A3006 RMK CS1 SLP179 CYVT 210400Z 27011KT 15SM SKC 09/M02 A2976 RMK LAST STFD OBS/NXT 211200 UTC SLP097 CYVV 210800Z 30008G17KT 280V340 15SM OVC030 01/M05 A3006 RMK SC8 SLP187 CYWA 210824Z AUTO 32011G17KT 9SM OVC023 M00/M05 A2991 CYWE 210843Z AUTO 34011G23KT 9SM OVC013 M06/M07 A2963 RMK ICG PAST HR SLP064 CYWG 210800Z 17017G22KT 15SM OVC110 01/M06 A2997 RMK AC8 PRESFR SLP162 CYWH 210400Z 00000KT 15SM SKC 10/08 A3007 RMK SLP185 CYWK 210843Z AUTO VRB02KT 1 1/4SM -SN BKN009 OVC014 M02/M03 A2909 RMK SLP879 CYWL 210800Z 02007KT 15SM SKC 01/M03 A3018 RMK SLP245 CYXC 210800Z 18006KT 25SM SKC M01/M02 A3016 RMK SLP236 CYXE 210800Z 26007KT 15SM SKC M02/M04 A3001 RMK SLP185 CYXH 210803Z AUTO 35002KT 9SM CLR 03/M01 A3008 RMK ICG SLP195 CYXJ 210800Z 24011KT 15SM FEW240 03/M06 A3004 RMK CI2 SLP196 CYXL 210800Z 21009KT 180V250 15SM BKN120 OVC160 M01/M07 A3009 RMK AC6AC2 SLP212 CYXR 210800Z AUTO 30011G16KT 9SM OVC034 M03/M04 A2997 RMK SLP164 CYXS 210800Z AUTO 00000KT 9SM CLR M04/M05 A3021 RMK SLP257 CYXT 210800Z 01010KT 15SM FEW004 FEW020 05/04 A3022 RMK SF1SC1 SLP243 CYXU 210800Z 33007KT 290V360 15SM OVC041 02/M02 A3005 RMK SC8 SLP186 CYXX 210815Z 00000KT 7SM R07/1000V1800FT/N SKC 05/05 A3006 RMK FG BANK DIST NE-SE 2 SLP180 CYXY 210800Z 16014G20KT 15SM FEW070 SCT120 BKN200 03/M02 A2991 RMK AC1AC3CI3 SLP155 CYYB 210800Z AUTO 33015G20KT 9SM OVC028 M03/M07 A2996 RMK SLP163 CYYC 210800Z VRB02KT 15SM FEW240 01/M03 A3010 RMK CI1 SLP213 CYYD 210837Z AUTO 26003KT 130V280 6SM BR CLR M01/M01 A3023 RMK SLP254 CYYE 210800Z 23009KT 15SM SKC 07/M07 A2995 RMK SLP156 CYYF 210800Z 35006KT 15SM FEW250 04/01 A3015 RMK CI2 SLP218 CYYG 210800Z 30004KT 15SM FEW090 08/07 A2950 RMK AC1 SLP993 CYYH 210817Z 09004KT 3SM -SN SCT008 OVC072 M14/M16 A2990 RMK SC3AC5 SLP131 CYYJ 210833Z 26003KT 1/2SM R27/P6000FT/D FG FEW004 05/05 A3005 RMK FG2SF1 SF TR SLP179 CYYL 210800Z AUTO 23006KT 9SM FEW080 M04/M05 A2960 RMK SLP049 CYYN 210800Z AUTO 25009KT 9SM CLR 03/M01 A3007 RMK SLP198 CYYQ 210800Z 17012G19KT 6SM -SN DRSN FEW032 OVC042 M07/M09 A2976 RMK SC2SC6 SLP080 CYYR 210800Z 20006KT 15SM FEW020 FEW065 FEW090 05/03 A2927 RMK SC2SC1AC1 SLP916 CYYT 210800Z 19031G43KT 15SM OVC006 11/10 A2993 RMK SF8 SLP140 CYYU 210800Z 29009KT 15SM -SN SCT012 OVC036 M03/M04 A3003 RMK SC3SC5 SLP186 CYYW 210800Z AUTO 25002KT 9SM FEW230 M05/M07 A3012 RMK SLP223 CYYY 210800Z 24013G21KT 30SM BKN063 03/M01 A2945 RMK SC6 SLP975 CYYZ 210831Z 34011KT 15SM FEW018 BKN045 00/M03 A3002 RMK SC2SC5 SLP171 CYZE 210800Z AUTO 01010G16KT 9SM OVC034 00/M05 A3010 RMK SLP203 CYZF 210800Z 30013G21KT 8SM -SHSN BKN012 BKN033 OVC060 00/M01 A2961 RMK SC5SC2SC1 CVCTV CLD EMBD SLP041 CYZH 210800Z AUTO 27019G26KT 9SM CLR 09/M03 A2997 RMK SLP165 CYZP 210800Z AUTO 28005KT 9SM CLR 09/08 A3016 RMK SLP216 CYZR 210800Z AUTO 32021G27KT 9SM BKN040 BKN049 02/M03 A3011 RMK SLP204 CYZS 210800Z 02007KT 15SM -SN OVC022 M09/M12 A2991 RMK SC8 SLP138 CYZT 210800Z 00000KT 15SM OVC004 08/08 A3013 RMK SC8 SLP205 CYZU 210400Z 30007KT 15SM SKC 06/M07 A3002 RMK LAST STFD OBS/NEXT 211200Z SLP190 CYZV 210800Z 24011G17KT 15SM BKN090 02/M01 A2931 RMK AC6 SLP930 CYZX 210830Z 00000KT 1/4SM FG BKN004 05/05 A2954 RMK FG5SF2 SLP005 CYZY 210800Z AUTO VRB02KT 9SM CLR M02/M04 A3018 RMK SLP249 CZBF 210800Z AUTO 00000KT 9SM CLR M02/M03 A2948 RMK SLP988 CZCP 210800Z AUTO 28004KT ////SM //// OVC003 M08/M09 A2995 CZCR 210800Z AUTO 27007KT 03/M01 RMK AO1 SLP980 T00321006 52015 CZDB 210800Z AUTO 01001KT 06/05 RMK AO1 SLP999 T00560049 50010 CZEL 210800Z AUTO 33012G18KT M00/M04 RMK AO1 PK WND 34023/0700 SLP170 T10031041 52032 CZEV 210800Z AUTO 00000KT M05/M06 RMK AO1 2PAST HR SOG 20 3011 SLP138 P0001 T10501058 50004 CZFS 210800Z AUTO 33008KT 02/M03 RMK AO1 SLP133 T00211030 52045 CZHY 210800Z AUTO 32016G23KT 02/M01 RMK AO1 PRESRR PK WND 33025/0705 SLP076 T00241011 53047 CZKD 210800Z AUTO 21006KT M01/M03 RMK AO1 SOG 02 6037 SLP073 T10081026 CZMD 210800Z AUTO 21008KT 9SM OVC085 M05/M06 A2997 RMK SLP170 CZMJ 210800Z AUTO 28009KT 02/M04 RMK AO1 SLP192 T00221037 51021 CZMU 210800Z AUTO 24008KT 02/M05 RMK AO1 T00171052 CZOL 210800Z AUTO 26004KT 05/M06 RMK AO1 T00541055 CZPC 210800Z AUTO 32007KT 9SM CLR 04/M04 A3010 RMK SLP197 CZPS 210800Z AUTO 01004KT 06/M09 RMK AO1 T00571086 CZRP 210800Z AUTO 32004KT M14/M15 RMK AO1 SOG 43 1017 SLP147 T11391151 CZSJ 210832Z AUTO 23006KT 180V280 5SM -SN SCT023 SCT033 BKN046 OVC065 M02/M05 A2995 RMK SLP161 CZSM 210800Z AUTO 08004KT 06/M01 RMK AO1 SLP029 T00621010 51012 CZSP 210800Z AUTO 26004KT 08/07 RMK AO1 SLP996 T00750066 51013 CZTB 210800Z AUTO 23004KT M00/M06 RMK AO1 SLP234 T10031064 58013 CZUM 210820Z AUTO 12005KT 100V160 6SM -RA BR SCT022 BKN030 OVC037 01/00 A2910 RMK SLP879 CZVL 210800Z AUTO 27006KT 9SM FEW210 BKN230 BKN250 06/M05 A3005 RMK SLP190 CZZJ 210800Z AUTO 28004KT M01/M08 RMK AO1 SOG 02 1014 SLP216 T10071079 DAAD 210800Z 36001KT 8000 NSC 17/15 Q1022 DAAE 210800Z 22009KT 9000 NSC 20/16 Q1019 DAAG 210830Z VRB02KT CAVOK 20/18 Q1019 DAAJ 210800Z 27003KT CAVOK 28/05 Q1020 DAAP 210800Z 29006KT CAVOK 27/04 Q1017 DAAS 210800Z 28003KT CAVOK 16/11 Q1024 DAAT 210830Z 10003KT 030V130 9999 FEW046 SCT100 30/03 Q1024 DAAV 210800Z 00000KT 9999 SCT020 22/18 Q1019 DAAY 210800Z 24010KT 8000 NSC 16/09 Q1025 DABB 210830Z 24004KT 6000 FEW020 SCT200 29/19 Q1018 DABC 210830Z VRB02KT CAVOK 17/15 Q1022 DABS 210800Z 16002KT CAVOK 15/14 Q1023 DABT 210800Z 00000KT CAVOK 14/13 Q1023 DAFH 210700Z 00000KT 9999 FEW030 15/12 Q1022 DAOB 210800Z 00000KT CAVOK 16/10 Q1022 DAOF 210800Z 06004KT CAVOK 18/09 Q1018 DAOI 210800Z 07005KT CAVOK 20/13 Q1019 DAOL 210800Z 09004KT CAVOK 21/17 Q1017 DAON 210830Z 00000KT CAVOK 18/14 Q1017 DAOO 210830Z 11005KT CAVOK 22/14 Q1016 DAOR 210800Z 09001KT CAVOK 18/05 Q1021 DAOV 210800Z 16010KT CAVOK 21/11 Q1019 DAUA 210800Z 15004KT 9999 SCT046 SCT133 23/03 Q1018 DAUB 210800Z 04004KT CAVOK 22/16 Q1021 DAUG 210800Z 03008KT CAVOK 20/12 Q1022 DAUH 210830Z 03005KT 9999 SCT040 SCT100 23/13 Q1019 DAUZ 210800Z 06010KT CAVOK 24/08 Q1018 DBBB 210800Z 29003KT 250V360 9999 FEW012 28/26 Q1010 NOSIG DFFD 210800Z 00000KT CAVOK 29/22 Q1010 NOSIG DFOO 210800Z 00000KT CAVOK 26/23 Q1012 DGAA 210800Z 24008KT 8000 FEW011 27/25 Q1010 NOSIG DIAP 210830Z 18007KT 150V210 9999 SCT012 29/25 Q1011 NOSIG DIBK 210800Z 22004KT 7000 BKN010 23/23 Q1014 REFG NOSIG DIYO 210800Z 00000KT 9999 BKN010 25/23 Q1012 NOSIG DNAA 210800Z VRB02KT 6000 FEW010 29/23 Q1012 TEMPO 5000 HZ DNEN 210700Z 16005KT 6000 BKN009 FEW019CB 26/25 Q1010 DNKN 210800Z 00000KT 7000 NSC 28/12 Q1015 NOSIG DNMM 210800Z 19003KT 8000 SCT011 27/25 Q1012 NOSIG DNMN 210700Z 08003KT CAVOK 26/24 Q1007 DNPO 210800Z 00000KT 3000 BR FEW007 26/25 Q1011 NOSIG DRRM 210800Z 12010KT CAVOK 31/07 Q1012 DRRN 210800Z VRB01KT 4500 DU NSC 31/16 Q1011 BECMG 08018KT BLDU DRRT 210800Z 12012KT CAVOK 33/00 Q1012 DRZA 210800Z 10012KT CAVOK 34/06 Q1014 DRZR 210800Z 04006KT CAVOK 31/05 Q1013 DTKA 210800Z 09003KT 9999 FEW020 23/18 Q1019 NOSIG DTMB 210830Z 30006KT 8000 SCT016 23/21 Q1019 DTNH 210830Z 27003KT 210V330 9999 SCT030 23/17 Q1019 NOSIG DTTA 210830Z 20004KT 160V250 8000 FEW040 22/19 Q1019 NOSIG DTTB 210800Z VRB02KT 4000 BR FEW020 21/// Q1019 DTTD 210800Z 00000KT 9999 FEW026 XX/XX Q//// DTTF 210800Z 02009KT 5000 SCT013 19/16 Q1019 TEMPO 8000 FEW023 DTTG 210800Z 01008KT 8000 SCT020 SCT030 22/18 Q1019 NOSIG DTTJ 210830Z 05008KT 8000 SCT020 25/20 Q1018 NOSIG DTTK 210800Z 00000KT 6000 NSC 24/18 Q1019 DTTL 210800Z VRB02KT 8000 FEW020 22/22 Q1019 DTTR 210700Z 04006KT 9999 SCT033 21/17 Q1020 DTTX 210800Z 34007KT 8000 SCT020 23/18 Q1018 NOSIG DTTZ 210800Z 00000KT 9999 FEW030 25/17?QM?19 NOSIG DXNG 210800Z 17004KT CAVOK 27/21 Q1013 NOSIG DXSK 210600Z 00000KT CAVOK 22/22 Q//// DXXX 210800Z 24004KT 9999 SCT012 28/25 Q1012 NOSIG EBAW 210820Z 14003KT 6000 NSC 10/08 Q1029 NOSIG EBBE 210825Z AUTO VRB02KT 4600 BR NCD 08/06 Q1029 GRN EBBL 210825Z AUTO VRB01KT 7000 NCD 10/07 Q1030 WHT EBBR 210820Z VRB01KT 4400 BR SCT046 09/07 Q1029 BECMG 6000 NSW EBCI 210820Z VRB01KT 6000 NSC 09/06 Q1029 NOSIG EBCV 210833Z AUTO VRB02KT 4600 NCD 08/07 Q1029 GRN EBDT 210825Z AUTO VRB01KT 4100 BR NCD 08/06 Q1029 GRN EBFN 210825Z AUTO 19004KT 5000 NCD 12/08 Q1029 WHT EBFS 210825Z AUTO VRB02KT 9000 BKN210/// 08/05 Q1028 BLU EBLB 210825Z AUTO VRB01KT 9000 NCD 06/05 Q1029 BLU EBLG 210820Z 13006KT 7000 NSC 07/05 Q1029 NOSIG EBOS 210820Z 17004KT 8000 NSC 11/07 Q1029 NOSIG EDAC 210820Z 29004KT 240V330 9999 FEW013 SCT023 10/06 Q1030 EDAH 210820Z 23003KT 0250 R28/M0350N FG BKN001 07/07 Q1029 EDDB 210820Z VRB01KT CAVOK 10/07 Q1029 NOSIG EDDC 210820Z 34003KT 300V030 9999 FEW012 09/05 Q1029 NOSIG EDDE 210820Z 21006KT 9999 BKN015 07/05 Q1030 NOSIG EDDF 210820Z VRB06KT CAVOK 09/04 Q1030 NOSIG EDDG 210820Z VRB02KT 9999 BKN031 07/05 Q1030 NOSIG EDDH 210820Z 20004KT 6000 FEW012 SCT025 BKN037 11/10 Q1028 TEMPO BKN009 EDDK 210820Z 14003KT 090V180 CAVOK 08/05 Q1030 NOSIG EDDL 210820Z 15006KT CAVOK 09/05 Q1030 NOSIG EDDM 210820Z 05005KT 020V090 CAVOK 10/05 Q1029 NOSIG EDDN 210820Z VRB02KT CAVOK 08/04 Q1029 NOSIG EDDP 210820Z 34004KT 310V020 9999 SCT027 11/07 Q1030 NOSIG EDDR 210820Z 05007KT CAVOK 09/05 Q1028 NOSIG EDDS 210820Z VRB01KT 2600 BR FEW001 SCT003 BKN120 06/06 Q1028 BECMG 3500 EDDT 210820Z VRB02KT 8000 FEW003 09/07 Q1029 NOSIG EDDV 210820Z 25005KT 210V290 9999 FEW042 11/08 Q1029 NOSIG EDDW 210820Z 21005KT 6000 BKN038 11/09 Q1029 BECMG 5000 EDFH 210820Z 11004KT 040V190 CAVOK 07/04 Q1029 EDFM 210820Z VRB02KT CAVOK 09/05 Q1029 EDGS 210820Z 13010KT CAVOK 08/06 Q1029 EDHI 210820Z AUTO 22003KT 190V250 3400 1400 R23/1500N // FEW015/// OVC040/// 11/10 Q1028 EDHK 210820Z 22005KT 4900 BR SCT004 BKN020 OVC035 11/10 Q1027 EDHL 210820Z 16003KT 130V190 1200 R25/1100N BR NSC 08/08 Q1028 EDJA 210820Z 04004KT 010V070 4000 BR NSC 07/06 Q1028 EDLN 210820Z 12005KT 5000 BR NSC 07/06 Q1030 EDLP 210820Z VRB02KT CAVOK ///// Q1030 EDLV 210820Z VRB02KT CAVOK 09/09 Q1030 EDLW 210820Z 16007KT CAVOK 09/06 Q1029 EDMA 210820Z 03003KT 310V100 CAVOK 09/05 Q1029 EDNY 210820Z 03004KT 7000 NSC 08/06 Q1027 EDQM 210820Z VRB03KT 6000 BKN019 07/05 Q1029 EDSB 210820Z 03009KT 8000 FEW005 08/06 Q1028 EDTY 210820Z 09005KT CAVOK 08/06 Q1029 EDVE 210820Z 25005KT 9999 OVC008 11/08 Q1029 EDVK 210820Z VRB01KT 9000 FEW008 06/05 Q1030 EDXW 210820Z 22008KT 9999 FEW011 SCT033 14/13 Q1026 EEEI 210452Z 18002KT 0500 R24/1200D FG VV002 01/01 Q1023 TEMPO 0800 EEKE 210750Z 21008KT 9999 FEW010 10/07 Q1023 EEPU 210750Z 16005KT 130V190 0600 FG VV001 07/07 Q1024 EETN 210820Z 18006KT 0400 R26/0600N FG VV001 04/04 Q1023 TEMPO 1200 BR EETU 210750Z AUTO 00000KT 6000 SCT001/// 03/03 Q1024 REUP EFET 210820Z AUTO 20012KT 170V230 9999 OVC007 03/02 Q0995 EFHA 210820Z AUTO 19010KT CAVOK 06/04 Q1017 EFHK 210820Z 19011KT 9999 FEW009 SCT200 09/08 Q1021 NOSIG EFIV 210820Z AUTO 20017KT 170V230 9999 -RA OVC014 05/03 Q0997 EFJO 210820Z 19008KT 160V230 9999 OVC008 06/04 Q1018 EFJY 210820Z AUTO 20009KT CAVOK 07/03 Q1016 EFKE 210820Z AUTO 19019G29KT 9999 BKN013 OVC032 08/06 Q1005 EFKI 210820Z 21012KT 180V240 9999 BKN010 05/03 Q1013 EFKK 210820Z AUTO 18013KT 140V210 9999 -RA FEW006 SCT011 BKN060 BKN075 06/05 Q1011 EFKS 210820Z AUTO 20012KT 170V240 9999 OVC005 03/03 Q1008 EFKT 210820Z AUTO 22012G23KT 200V270 9999 OVC011 05/03 Q0999 EFKU 210820Z AUTO 19009KT 9999 SCT015 BKN123 06/04 Q1017 EFLP 210820Z AUTO 19004KT 130V240 1400 BR VV002 04/04 Q1021 EFMA 210820Z AUTO 20010KT CAVOK 09/06 Q1018 EFMI 210820Z AUTO 20004KT 140V240 CAVOK 07/04 Q1019 EFOU 210820Z AUTO 20011KT 9999 FEW017 OVC061 07/04 Q1010 EFPO 210820Z AUTO 19009KT 9999 FEW015/// BKN080/// BKN092/// 08/06 Q1017 EFRO 210820Z AUTO 20020KT 9999 -RA FEW009 SCT011 BKN014 OVC023 06/04 Q1003 EFSA 210820Z AUTO 20006KT 140V250 9999 BKN010 06/04 Q1019 EFSI 210820Z AUTO 18009KT 130V230 9999 -RA BKN075 07/05 Q1013 EFTP 210820Z AUTO 19007KT CAVOK 07/04 Q1018 EFTU 210820Z AUTO 22011KT 9999 BKN015 09/07 Q1019 EFUT 210820Z AUTO 18005KT 150V210 5000 BR VV001 04/04 Q1021 EFVA 210820Z AUTO 18010KT 9999 -RA BKN076 OVC098 07/06 Q1012 EGAA 210820Z 33010KT 6000 -RA BKN004 11/11 Q1024 RERA EGAC 210820Z AUTO 34008KT 9999 FEW012/// SCT018/// BKN025/// 12/11 Q1024 RERA REDZ EGBB 210750Z VRB02KT CAVOK 09/09 Q1027 EGBJ 210820Z 23002KT 5000 BR SCT004 11/11 Q1028 EGCC 210820Z AUTO 18004KT 100V230 9999 SCT018 11/10 Q1026 TEMPO BKN014 EGCK 210820Z 20010KT 9999 OVC010 14/12 Q1026 EGCN 210820Z 23004KT CAVOK 12/11 Q1026 EGDM 210828Z 31002KT 0800 BCFG FEW001 07/07 Q1029 AMB EGDR 210750Z AUTO 29001KT 4100 // BKN010/// 10/10 Q1029 EGDX 210750Z 31004KT 9999 MIFG FEW008 11/11 Q1028 BLU EGDY 210750Z AUTO 30001KT 0150 FG VV/// 06/06 Q1029 EGEO 210820Z 27012KT 7000 -RA FEW004 SCT012 BKN022 OVC039 10/08 Q1022 EGFF 210820Z 30004KT 9999 VCFG FEW010 11/11 Q1029 EGGD 210820Z 27008KT 9999 6000NE FEW001 12/12 Q1028 EGGP 210820Z VRB03KT 9999 SCT033 11/09 Q1026 EGGW 210820Z AUTO 25007KT 9999 NCD 12/10 Q1027 EGHH 210820Z 00000KT 0350 R26/0400 R08/0650 FG OVC002 06/06 Q1029 EGHI 210820Z 00000KT 6000 2000E FEW003 07/06 Q1029 EGHQ 210820Z 22003KT 7000 NSC 11/10 Q1029 EGJA 210820Z 18004KT CAVOK 14/09 Q1029 EGJB 210820Z VRB01KT CAVOK 14/12 Q1028 EGJJ 210820Z VRB02KT CAVOK 15/13 Q1028 EGKB 210820Z 23007KT CAVOK 13/11 Q1028 EGKK 210820Z VRB01KT 4000 BCFG NSC 09/08 Q1028 EGLC 210820Z AUTO 24005KT 9000 NCD 12/11 Q1028 EGLF 210820Z VRB01KT CAVOK 07/07 Q1028 EGLL 210820Z VRB03KT 0500 R27R/P1500 R27L/1100 FG FEW001 09/09 Q1028 BECMG 6000 NSW EGMC 210820Z 23004KT 8000 NSC 11/10 Q1028 EGMD 210820Z 33002KT CAVOK 11/10 Q1029 EGNH 210820Z 16008KT 9999 FEW005 SCT012 BKN017 12/11 Q1026 EGNJ 210820Z 22008KT 5000 HZ FEW045 11/10 Q1025 EGNM 210820Z 27012KT 9999 SCT008 BKN011 12/11 Q1025 EGNR 210820Z 25008KT 210V290 9999 FEW015 SCT042 14/11 Q1026 EGNS 210820Z 22013KT 9999 FEW002 BKN004 OVC012 14/13 Q1024 TEMPO 4000 -DZ EGNT 210820Z 23012KT 190V260 9999 FEW020 15/11 Q1022 EGNV 210820Z 18005KT 150V240 9999 SCT020 13/11 Q1024 EGNX 210820Z 25013KT CAVOK 11/11 Q1026 EGOM 210750Z AUTO 22012KT 1000 -DZ OVC001/// 12/12 Q1022 EGOP 210750Z AUTO 06004KT 3200 // FEW005/// BKN014/// 06/05 Q1029 EGOS 210750Z AUTO 22010KT 9999 FEW060/// 11/10 Q1026 EGOV 210750Z AUTO 19022KT 7000 BR OVC003/// 13/13 Q1026 EGOW 210750Z 15004KT 9999 -RA SCT020 11/09 Q1026 WHT EGPA 210820Z 22013KT 9999 VCSH FEW010 BKN049 10/07 Q1016 EGPB 210820Z 24021KT 9999 FEW016 10/08 Q1014 NOSIG EGPC 210820Z AUTO 22005KT 190V260 9999 FEW037/// 08/06 Q1017 EGPD 210820Z 33010KT 3000 RADZ FEW006 OVC019 10/09 Q1019 RERA TEMPO 5000 -RADZ EGPE 210820Z 24011KT 9999 -RA FEW012 SCT048 09/08 Q1020 EGPF 210820Z AUTO 27011G23KT 9999 BKN029 OVC039 12/11 Q1021 EGPH 210820Z 22012KT 9999 BKN014 15/14 Q1019 EGPI 210820Z AUTO 31008KT 3800 -DZ BKN005/// 10/09 Q1023 EGPK 210820Z 31012KT 5000 -RADZ FEW006 SCT008 BKN025 12/11 Q1023 EGPL 210820Z AUTO 26021KT 9999 -RA SCT014/// BKN037/// 11/08 Q1019 EGPM 210820Z 23021KT 9999 FEW018 10/08 Q1012 NOSIG EGPN 210820Z 26013KT 9999 VCSH FEW008 SCT016 14/13 Q1018 EGPO 210820Z AUTO 27015KT 240V320 8000 -RA FEW005/// SCT012/// BKN026/// 09/08 Q1017 RERA EGPU 210820Z AUTO 23011KT 200V260 9999 FEW009/// 10/10 Q1022 RERA EGQK 210750Z AUTO 24010KT 9999 -RA BKN048/// 10/09 Q1019 EGQL 210750Z 26015KT 9999 BKN014 16/14 Q1018 GRN EGQM 210750Z AUTO 16007KT 9999 OVC012/// 14/13 Q1021 EGQS 210750Z 25005KT 9999 -RA SCT008 OVC030 09/09 Q1019 GRN EGSC 210820Z 22005KT 7000 NSC 11/10 Q1027 EGSH 210820Z 22006KT 8000 NSC 11/11 Q1027 NOSIG EGSS 210820Z 24005KT 0900 R22/P1500 BCFG FEW001 10/10 Q1028 EGTE 210820Z VRB02KT 2500 R26/1300 VCFG FEW003 05/05 Q1029 EGTK 210750Z 23004KT 0900 R19/1000 VV/// 08/08 Q1028 EGUB 210750Z AUTO 23001KT 3600 // NCD 09/09 Q1028 EGUL 210756Z AUTO 18003KT 9999 CLR 11/09 A3032 RMK AO2 SLP271 T01050091 $ EGUN 210756Z AUTO 00000KT 9999 CLR 10/10 A3032 RMK AO2 SLP271 T01040104 . EGUW 210750Z AUTO 22004KT 3400 NCD 10/10 Q1027 EGVA 210831Z AUTO 23003KT 6000 HZ OVC002 M A3037 RMK AO2 SLPNO ALSTG ESTMD $ EGVN 210836Z 25003KT 1200 BR BKN003 10/10 Q1028 AMB BECMG 4000 SCT007 GRN EGVO 210750Z AUTO 23004KT 1300 FEW002/// 08/08 Q1028 EGVP 210750Z AUTO 19001KT 0250 // OVC001/// 05/05 Q1028 EGWC 210750Z 19003KT CAVOK 09/08 Q1028 BLU EGWU 210750Z 26001KT 0300 FG SKC 08/08 Q1028 RED BECMG 3000 FEW005 YLO1 EGXC 210750Z 15002KT 4000 BR FEW250 08/08 Q1026 GRN EGXE 210750Z AUTO 08004KT 9999 BKN016/// SCT025/// BKN050/// 12/11 Q1024 EGXP 210750Z AUTO 24010KT 9999 // NCD 10/10 Q1025 EGXS 210750Z AUTO 22005KT 9999 // NCD 10/10 Q1025 EGXT 210750Z AUTO 24010KT 7000 HZ NCD 11/10 Q1026 EGXU 210750Z AUTO 22006KT 9999 // BKN013/// 13/11 Q1025 EGXV 210750Z AUTO 23006KT 9999 FEW050/// 13/11 Q1024 EGXW 210750Z 23010KT 6000 HZ SKC 10/09 Q1025 WHT EGXZ 210750Z AUTO 14003KT 9999 BKN016/// OVC050/// 12/12 Q1025 EGYD 210750Z 26016KT CAVOK 11/09 Q1026 BLU NOSIG EGYM 210750Z AUTO 17005KT 2700 FEW002/// 09/09 Q1027 EGYP 210750Z 21009KT 9999 BKN012 BKN018 04/04 Q1007 GRN EHAK 210825Z AUTO 23017KT 9999 OVC047/// 14/12 Q1023 W///H/// EHAM 210825Z 19008KT 9999 BKN042 13/09 Q1028 NOSIG EHBK 210825Z AUTO VRB02KT 9999 NCD 10/06 Q1029 NOSIG EHDL 210825Z AUTO 19004KT 140V240 8000 BR OVC040 11/08 Q1029 BLU EHDV 210825Z AUTO 24012KT 9999 OVC034/// 14/12 Q1025 W///H/// EHEH 210825Z AUTO VRB01KT 8000 BR BKN046 09/07 Q1029 BLU 18002KT 7000 BKN045 EHFD 210825Z AUTO 23016KT //// // BKN027/// 14/13 Q1024 RE// W///H/// EHFS 210825Z AUTO 21009KT 9999 OVC046 13/09 Q1029 W///H/// EHFZ 210825Z AUTO 22013KT 9999 NSC 15/13 Q1025 W///H/// EHGG 210825Z AUTO 21008KT 9999 OVC044 13/09 Q1028 NOSIG EHGR 210825Z AUTO 17004KT 090V210 8000 BR OVC041 10/07 Q1029 BLU EHHW 210825Z AUTO 23015KT 210V270 //// // SCT006/// SCT007/// BKN040/// 15/13 Q1026 RE// W///H/// EHJA 210825Z AUTO 22015KT 9999 NCD 14/12 Q1025 W///H/// EHJR 210825Z AUTO 23014KT //// // ///////// 15/12 Q1026 RE// W16/H6 EHKD 210831Z AUTO 19009KT 6000 BR BKN010 BKN014 13/11 Q1027 GRN 19007KT 7000 SCT012 BKN015 TEMPO 4500 BR EHKV 210825Z AUTO 21017KT 9999 NCD 15/12 Q1027 W///H/// EHLW 210834Z AUTO 20007KT 170V230 8000 BR NCD 13/11 Q1027 BLU EHMA 210825Z AUTO 21016KT 080V250 7000 NCD 13/11 Q1027 W///H/// EHMG 210825Z AUTO 22020KT 9999 NCD 15/13 Q1027 W///H/// EHPG 210825Z AUTO 20016KT 160V220 9999 FEW010 BKN013 BKN015 16/13 Q1027 W///H/// EHQE 210825Z AUTO 19017KT 9999 FEW012 16/13 Q1027 W///H/// EHRD 210825Z AUTO 19007KT 9999 SCT036 OVC042 13/08 Q1029 NOSIG EHSA 210825Z AUTO 20015KT 8000 ///////// 15/12 Q1028 W15/H6 EHSC 210825Z AUTO 22014KT 9999 ///////// 14/10 Q1028 W16/H6 EHVK 210835Z AUTO 15003KT 8000 BR OVC043 10/07 Q1030 BLU EHVL 210836Z AUTO 19010KT 5000 BR FEW009 BKN015 14/13 Q1027 WHT EHWO 210825Z AUTO VRB02KT 8000 BR OVC045 12/09 Q1029 BLU EICK 210830Z 23010KT 3000 BR BKN002 13/12 Q1028 BECMG 5000 BKN005 EIDW 210830Z 24008KT 200V280 9999 -RA SCT010 BKN030 BKN200 14/13 Q1025 NOSIG EIKN 210830Z 31007KT 270V330 0400 R26/P1400 FG VV002 09/09 Q1027 BECMG 3000 BKN007 EIKY 210800Z 31009KT 260V340 8000 BR BKN004 OVC013 12/11 Q1028 RERA EIME 210800Z 21013KT 9999 FEW008 BKN025 BKN110 14/13 Q1025 EINN 210830Z 31015KT 9999 FEW008 SCT012 BKN024 11/10 Q1028 NOSIG EISG 210830Z 29008KT 9000 FEW010 SCT017 OVC029 10/10 Q1026 EIWF 210830Z 25008KT 210V290 9999 BKN005 13/12 Q1027 EKAH 210820Z AUTO 23008KT 180V260 9999NDV BKN008/// 13/12 Q1025 EKBI 210820Z AUTO 20007KT 170V230 9000NDV OVC005/// 12/12 Q1025 EKCH 210820Z 23009KT CAVOK 11/10 Q1027 NOSIG EKEB 210820Z AUTO 22010KT 9999NDV OVC028/// 14/12 Q1025 EKKA 210820Z AUTO 19008KT 180V260 9999NDV BKN007/// BKN017/// 13/12 Q1023 EKOD 210750Z 20004KT 170V230 9999 SCT020 BKN022 11/10 Q1026 EKRK 210820Z AUTO 23007KT 9999NDV BKN085/// 11/10 Q1026 EKRN 210820Z AUTO 25007KT 9999NDV FEW014/// SCT016/// 12/09 Q1028 EKSB 210820Z AUTO 19005KT 140V220 9999NDV OVC027/// 12/11 Q1026 EKSP 210820Z 21008KT 180V240 9999 FEW014 BKN026 13/12 Q1026 EKVD 210820Z 21008KT 8000 FEW010 BKN015 13/11 Q1026 EKVG 210820Z AUTO 26016KT 230V300 9999NDV BKN027/// 07/02 Q1007 RMK BKN026/// WIND 850FT 28024G44KT EKYT 210820Z AUTO 22012KT 9999NDV FEW007/// BKN009/// BKN012/// 13/12 Q1022 ELLX 210820Z 06008KT 8000 NSC 08/05 Q1028 NOSIG ENAL 210820Z 23017KT 9999 -RA FEW022 BKN037CB 10/06 Q1010 RETS ENAN 210820Z 20012G26KT 9999 VCSH FEW031 SCT049 06/04 Q0988 RERA ENAT 210750Z 21008KT 150V260 CAVOK 06/01 Q0992 RMK WIND 700FT 19025KT ENBN 210820Z AUTO 22019KT 9999NDV FEW023/// BKN044/// 09/07 Q1003 ENBO 210820Z 22033G45KT 9999 4000E SHRA FEW010 SCT018TCU BKN030 07/06 Q0996 TEMPO 23040G55KT SHRAGS BKN020CB ENBR 210820Z 25007KT 210V270 6000 -RA SCT003 BKN005 12/11 Q1014 TEMPO 2000 DZRA BR BKN003 RMK WIND 1200FT 26015KT ENCN 210820Z 22006KT 6000 OVC002 12/12 Q1019 ENDR 210820Z AUTO 23034KT 10/07 Q1003 ENDU 210820Z 21009KT 140V260 9999 -SHRA FEW020TCU SCT040 08/03 Q0991 TEMPO 21015G25KT RMK WIND 1100FT 21025G39KT WIND 2200FT 20023KT ENEV 210750Z 20013G26KT 9999 SHRA SCT025 BKN037 09/03 Q0992 RMK WIND 1400FT 24023G36KT ENFB 210820Z AUTO 24030KT 9999NDV OVC071/// 10/07 Q1011 W///S5 ENFL 210820Z AUTO 21009KT 180V240 9999NDV BKN012/// OVC015/// 10/09 Q1013 ENGC 210820Z 25025KT 9999 OVC050 10/07 Q1012 W09/S5 ENGM 210820Z 17005KT 140V200 9999 BKN007 07/06 Q1014 NOSIG ENHD 210820Z 20014KT 4500 -RA BR BKN003 12/12 Q1016 ENHE 210820Z 25043KT 9999 FEW015 BKN025 09/03 Q0999 W///S6 ENHF 210820Z AUTO 19010KT 140V240 9999 NCD 05/01 Q0989 RMK WIND 1254FT 19016KT ENHM 210820Z 25012KT 9999 5000SE SCT007 BKN020 10/10 Q1015 W11/S4 ENKB 210820Z 22017G29KT 170V240 9999 SCT032 BKN055 10/04 Q1008 RMK WIND 745FT 22028KT ENKR 210820Z 17013KT 9999 -RA SCT008 BKN010 04/03 Q0997 RMK WIND 731FT 18026KT ENLA 210820Z AUTO 22029KT 9999NDV BKN084/// BKN140/// 12/11 Q1018 W///S4 ENLE 210820Z 22025KT 9999 FEW005 BKN055 12/11 Q1021 W12/S4 ENLK 210820Z 21015G25KT 9000 SHRA FEW020 SCT030 BKN045 08/05 Q0990 ENML 210820Z 26014KT 9999 VCSH FEW016 BKN068 11/05 Q1010 ENMS 210820Z 20013KT 9999 VCSH FEW032 BKN040 10/03 Q1002 RMK WIND 412FT 22016G28KT 190V270 ENNA 210820Z AUTO 17015KT 9999 BKN090/// 05/02 Q0993 RMK WIND 1800FT 21029KT ENNE 210820Z 23040G50KT 9999 7000N SHRA FEW020TCU SCT040 09/04 Q0996 W///S6 ENOA 210820Z 24020KT 9999 -SHRA SCT020 BKN085 10/08 Q1013 W///S4 ENOL 210820Z 24022KT 9999 -RA FEW015 SCT025 BKN050 11/07 Q1007 TEMPO 25030G40KT ENOV 210820Z 25006KT 200V330 9999 VCSH FEW025 SCT039 BKN074 09/06 Q1011 RMK WIND 2175FT 24023KT ENQA 210820Z AUTO 24020KT 9999NDV -SHRA BKN051/// 09/07 Q1014 W08/S4 ENQC 210820Z AUTO 22018KT 9999NDV OVC074/// 10/08 Q1013 W///S4 ENQR 210820Z AUTO 24023KT 8000NDV FEW042/// SCT050/// BKN073/// 10/08 Q1009 W///S6 ENRO 210820Z AUTO 34003KT 300V020 9999NDV OVC046/// 05/04 Q1009 ENRY 210820Z AUTO 20010KT 9999NDV SCT009/// OVC074/// 12/10 Q1017 ENSB 210750Z 12019KT 9999 FEW015 SCT030 BKN160 05/M00 Q0986 RMK WIND 1400FT 11026KT ENSE 210820Z AUTO 24026KT 9999NDV FEW038/// SCT045/// BKN076/// 11/08 Q1011 W///S5 ENSH 210820Z 22035G51KT 9999 -SHRA FEW020CB BKN030 09/05 Q0989 RMK WIND 150FT 20031G68KT 170V300 RETSGS ENSL 210820Z 27021KT 1000 FG BKN005 12/11 Q1016 W09/S4 ENST 210820Z 21024G34KT 9999 VCSH FEW018TCU SCT025 09/06 Q1001 RMK WIND 300FT 22020G31KT ENTC 210820Z 22016KT 9999 -SHRA FEW008 SCT022 BKN030 08/04 Q0989 TEMPO 22020G30KT SHRA SCT015CB RMK WIND 2600FT 20036G51KT ENTO 210820Z 22017KT 9999 FEW010 12/10 Q1016 ENUG 210820Z AUTO 22040G53KT 9999NDV BKN027/// 07/03 Q0985 W08/S5 ENVA 210820Z 10003KT 020V180 9999 -DZ FEW005 SCT012 BKN035 09/08 Q1008 BECMG 25012KT RMK WIND 670FT 24012KT ENVD 210750Z 19018KT 9999 -RA BKN015 05/03 Q0997 ENWV 210820Z AUTO 24027KT 9999NDV OVC055/// 12/11 Q1021 W///S3 ENZV 210820Z 18014KT 4000 -DZRA BR OVC002 12/12 Q1018 TEMPO 2500 BR EPBY 210830Z 24003KT 160V280 0300 0250W R26/0450N FG VV001 05/05 Q1029 EPGD 210830Z 23004KT 190V260 CAVOK 09/07 Q1027 EPKK 210830Z 04005KT 010V070 9999 FEW009 OVC033 08/07 Q1027 EPKT 210830Z 04005KT 010V070 9999 BKN006 07/06 Q1027 EPLB 210830Z 05005KT CAVOK 09/06 Q1026 EPLL 210830Z 29004KT 220V310 9999 SCT006 08/06 Q1028 EPMO 210830Z VRB01KT 9999 FEW005 10/07 Q1028 EPPO 210830Z 14003KT 3200 BR BKN001 OVC003 07/07 Q1029 EPRA 210830Z 35005KT 9000 BKN008 08/08 Q1028 EPRZ 210830Z 04005KT 010V070 9999 BKN048 08/06 Q1026 EPSC 210830Z VRB02KT 0100 R31/0200N FG VV001 06/06 Q1029 EPSY 210830Z 32004KT 280V350 CAVOK 09/07 Q1028 EPWA 210830Z 21004KT 9999 SCT006 08/07 Q1028 TEMPO 5000 BR EPWR 210830Z VRB02KT 9999 FEW011 BKN018 09/06 Q1029 EPZG 210830Z 04003KT 010V070 9999 FEW002 07/06 Q1030 EQYG 210757Z AUTO 09007KT 10SM BKN016 22/ A3006 RMK AO2 SLP173 T0217 $ ESCF 210820Z AUTO 22013KT 9999 FEW019/// BKN025/// OVC031/// 09/07 Q1020 ESCM 210820Z AUTO 21011KT 9999 BKN007/// BKN009/// OVC016/// 08/07 Q1017 ESDF 210750Z AUTO 00000KT 0900 0300// R01/1000N R19/0900VP2000D FG VV001 04/04 Q1026 ESGG 210820Z 22012KT 3000 -DZ VV003 10/10 Q1022 ESGJ 210820Z AUTO 22013KT 5000 BR OVC004/// 09/08 Q1022 ESGR 210820Z AUTO 20008KT 9999 OVC008/// 11/08 Q1020 ESGT 210820Z AUTO 22010KT 2600 DZ OVC004/// 11/11 Q1021 REDZ ESIA 210820Z AUTO 23010KT 9999 OVC009/// 10/08 Q1020 ESIB 210820Z AUTO 22015KT 4300 BR OVC005/// 11/11 Q1020 ESKM 210820Z AUTO 22006KT 180V250 9999 NCD 08/05 Q1013 ESKN 210820Z 25008KT CAVOK 07/07 Q1020 ESMK 210820Z AUTO 18005KT 9999 R01///// R19///// SCT071/// 09/09 Q//// ESMQ 210820Z 24004KT CAVOK 07/06 Q1025 ESMS 210820Z 22007KT CAVOK 10/10 Q1026 ESMT 210820Z AUTO 22012KT 9999 BKN006/// OVC011/// 12/10 Q1025 ESMX 210820Z AUTO 22007KT 6000 OVC001/// 08/07 Q1024 ESND 210820Z AUTO 25006KT 210V290 9999 FEW120/// SCT140/// 08/04 Q1010 ESNG 210820Z AUTO 21008KT 170V240 9999 FEW018/// 05/03 Q0998 ESNK 210820Z AUTO 16006KT 9999 DZ FEW043/// OVC061/// 06/05 Q1010 REDZ ESNL 210820Z AUTO 12002KT 9999 FEW041/// SCT047/// 06/03 Q1006 ESNN 210820Z AUTO 14003KT 9999 BKN046/// OVC110/// 07/05 Q1011 ESNO 210820Z AUTO 22006KT 170V250 9999 -RA BKN005/// OVC023/// 05/05 Q1009 REDZ ESNQ 210820Z AUTO 19009KT 9999 OVC010/// 04/02 Q0995 ESNS 210820Z 21010KT 9999 -DZ FEW011 BKN077 07/06 Q1007 ESNU 210820Z 21012KT 9999 -RA BKN007 OVC009 07/07 Q1009 ESNV 210820Z AUTO 20010KT 9999 -DZ OVC004/// 05/02 Q1006 REUP ESNX 210820Z AUTO 20008KT 170V250 9999 OVC009/// 05/04 Q1003 ESNZ 210820Z 18006KT 9999 BKN036 06/04 Q1008 ESOE 210820Z AUTO 21012KT 3700 BR BKN003/// OVC006/// 10/09 Q1018 ESOK 210820Z AUTO 19007KT 9999 FEW006/// OVC007/// 11/11 Q1017 ESOW 210820Z 21014KT 5000 BR BKN005 09/07 Q1018 ESPA 210820Z AUTO 22014KT 9999 -SHRA FEW015/// SCT066/// OVC110/// 06/05 Q1004 ESPE 210820Z AUTO 25008KT 190V290 9999 FEW230/// 06/04 Q1002 ESSA 210820Z 22011KT 9999 BKN008 08/06 Q1018 NOSIG ESSB 210820Z AUTO 21009KT 9999 BKN008/// 08/06 Q1019 ESSD 210820Z AUTO 23011KT 9999 OVC010/// 09/09 Q1015 ESSL 210820Z AUTO 22008KT 190V270 9999 FEW023/// SCT030/// BKN041/// 09/07 Q1020 ESSP 210820Z AUTO 24006KT 9999 FEW023/// SCT030/// BKN041/// 09/07 Q1021 ESST 210820Z AUTO 14005KT 6000 BR OVC003/// 08/08 Q1016 ESSV 210820Z 23013KT CAVOK 09/07 Q1023 ESTA 210820Z AUTO 20005KT 9999 OVC057/// 11/09 Q1025 ESTL 210820Z AUTO 22005KT 9999 NCD 11/10 Q1026 ESUP 210820Z AUTO 21012KT 170V240 9999 FEW009/// SCT011/// BKN017/// 03/01 Q0999 ESUT 210820Z AUTO 24006G19KT 170V320 9999 ///////// 06/03 Q1001 ETAD 210756Z AUTO 06006KT 9999 CLR 07/05 A3038 RMK AO2 SLP286 T00680045 $ ETAR 210756Z 05004KT 9999 CLR 04/04 A3039 RMK AO2A SLP303 $ ETEB 210756Z AUTO 07004KT 9999 CLR 08/05 A3040 RMK AO2 SLP317 T00780047 $ ETEK 210756Z AUTO 09003KT 9999 CLR 07/04 A3041 RMK AO2 SLP188 T00700044 $ ETGG 210820Z 20009KT 9000 BKN025 12/10 Q1026 BLU ETHB 210820Z AUTO 18003KT 9999 // ////// 11/08 Q1030 /// ETHC 210820Z AUTO 24005KT 6000 // ////// 11/08 Q1029 /// ETHF 210820Z VRB01KT 5000 BR 05/03 Q1031 WHT ETHL 210820Z 03004KT 6000 BKN110 07/05 Q1028 WHT ETHN 210820Z 09004KT 9999 FEW110 SCT340 10/04 Q1029 BLU+ ETHS 210820Z 26004KT 6000 FEW008 BKN040 10/08 Q1029 WHT ETIC 210756Z AUTO 00000KT 9999 CLR 07/06 A3039 RMK AO2 SLP304 T00700059 $ ETIH 210756Z AUTO 00000KT 9999 CLR 08/07 A3040 RMK AO2 SLP307 T00800066 $ ETIK 210756Z AUTO 00000KT 9999 CLR 06/06 A3042 RMK AO2 RAB55 SLP313 P0000 T00610061 $ ETMN 210831Z 23008KT 3800 BR BKN035 12/10 Q1028 GRN ETNH 210837Z 20004KT 2000 BR BKN006 BKN018 12/11 Q1027 YLO ETNL 210820Z 20004KT 9999 FEW006 SCT070 10/08 Q1028 BLU+ ETNN 210820Z AUTO 13004KT 6000 // ////// 06/04 Q1030 /// ETNS 210820Z AUTO 21005KT 2800 // ////// 12/11 Q1027 /// ETNT 210820Z 21005KT 6000 BKN036 12/10 Q1028 WHT ETNW 210820Z 23004KT 8000 BKN040 11/08 Q1029 BLU ETOU 210756Z AUTO 00000KT 9999 CLR 08/05 A3041 RMK AO2 SLP303 T00770048 $ ETSB 210820Z AUTO 08006KT 9999 // ////// 08/05 Q1029 /// ETSH 210820Z VRB02KT 9999 FEW240 08/06 Q1030 BLU+ ETSI 210820Z AUTO 09005KT 9000 // ////// 10/05 Q1029 /// ETSL 210820Z AUTO 04005KT 9000 // ////// 08/05 Q1028 /// ETSN 210820Z 06005KT 9999 FEW080 11/05 Q1029 BLU+ ETWM 210820Z AUTO ///05KT 6000 // ////// 11/08 Q1029 /// EVLA 210820Z AUTO VRB01KT 9999 NCD 08/08 Q1026 EVRA 210820Z 17006KT 0550 0450 R36/0600D FG VV002 03/03 Q1026 R36/190095 NOSIG EVVA 210820Z AUTO 20003KT 9999 FEW020 08/07 Q1025 EYKA 210820Z VRB01KT 0150 R26/0275N FG VV001 05/04 Q1027 EYPA 210820Z 18004KT 9999 SCT024 09/07 Q1026 EYSA 210820Z 22004KT 7000 1300NW R32R/P2000N SCT001 06/06 Q1027 RED TEMPO OVC002 AMB EYVI 210820Z VRB01KT CAVOK 07/05 Q1026 NOSIG FABL 210800Z 04009KT 010V080 CAVOK 17/04 Q1031 NOSIG FACT 210800Z 14012KT CAVOK 23/03 Q1022 NOSIG FACV 210753Z 09017KT CAVOK 19/M05 Q1026 FADY 210749Z 08012KT CAVOK 16/M05 Q1031 FAEL 210800Z 12009KT 090V160 9999 FEW048 18/05 Q1036 FAGG 210800Z 11014KT CAVOK 16/05 Q1031 FAGM 210800Z 11017KT CAVOK 17/M02 Q1031 FAHS 210800Z AUTO 18009KT //// // ////// 19/08 Q1030 FAIR 210700Z 08011KT 9999 BKN035 16/10 Q1032 FAJB 210800Z AUTO 08006KT //// // ////// 18/07 Q1031 FAKM 210800Z 04016KT CAVOK 22/06 Q1029 FAKN 210800Z 17007KT 9999 SCT015 18/07 Q1032 NOSIG FALA 210800Z 06013KT 030V090 9999 SCT030 18/08 Q1031 NOSIG FALE 210800Z 20017KT 9999 SCT040 BKN049 18/06 Q1033 NOSIG FALW 210800Z AUTO 12011KT //// // ////// 27/M06 Q1019 FAMM 210800Z 06010KT 9999 OVC030 16/10 Q1031 NOSIG FAOB 210800Z AUTO 13023G35KT //// // ////// 20/07 Q1030 FAOR 210830Z 09014KT 060V130 9999 FEW042 18/M04 Q1032 NOSIG FAPE 210800Z 07013KT 9999 FEW040 17/07 Q1035 NOSIG FAPN 210700Z AUTO 06013KT //// // ////// ///// Q1029 FAPP 210800Z 04009KT 9999 FEW015 OVC070 13/08 Q1030 NOSIG FAUP 210800Z 05013KT CAVOK 28/11 Q1022 NOSIG FAUT 210800Z 16003KT 9999 BKN030 13/02 Q1035 FAWB 210700Z AUTO 07005G19KT //// // ////// ///// Q1030 FBFT 210800Z 09015KT 040V110 9999 OVC015 17/11 Q1027 FBKE 210800Z 07015KT 9999 SCT035 30/15 Q1020 FBMN 210800Z 06015KT CAVOK 30/14 Q1019 FBSK 210800Z 06015KT 9999 OVC020 16/10 Q1029 NOSIG FBSP 210500Z 12011KT 9999 -DZ OVC020 15/13 Q1016 FCBB 210800Z 25007KT 9000 BKN020 27/23 Q1013 NOSIG FCPP 210800Z 18014KT 9999 SCT012 SCT024 26/24 Q1011 NOSIG FDBB 210500Z AUTO 19001KT //// // ////// 13/10 Q1030 FDLB 210500Z AUTO 13049G72KT //// // ////// 15/06 Q1033 FDMY 210500Z AUTO 02002KT //// // ////// 15/09 Q1040 FDPP 210500Z AUTO 20007KT //// // ////// 08/05 Q1034 FDSK 210800Z 19013KT 9999 SCT035 19/08 Q1031 NOSIG FDST 210500Z AUTO 00000KT //// // ////// 12/06 Q1030 FDUS 210500Z AUTO 15004KT //// // ////// 11/07 Q0992 FEFF 210800Z VRB02KT 9999 FEW016 29/22 Q1011 NOSIG FEFT 210800Z 36004KT CAVOK 24/22 Q1010 RETSRA FGBT 210700Z 16002KT 9999 SCT010 26/26 Q1010 FGSL 210800Z 21003KT 180V240 9999 SCT010 FEW020CB BKN040 27/25 Q1011 NOSIG FIMP 210800Z 02011KT 9999 VCSH FEW015TCU FEW015CB SCT016 29/22 Q1016 FIMR 210800Z 08013KT 9999 SCT018 SCT250 28/22 Q1017 FJDG 210755Z 12013KT 9999 FEW020 32/28 A2991 RMK SLP125 T03230275 FKKD 210800Z VRB02KT 7000 SCT013 FEW016CB 29/25 Q1010 RETS NOSIG FKKL 210800Z 16003KT 110V210 CAVOK 33/19 Q1012 FKKN 210700Z 08002KT CAVOK 23/19 Q1016 FKKR 210800Z 00000KT CAVOK 32/20 Q1011 NOSIG FKYS 210800Z /////KT 6000 BKN006 24/23 Q1016 BECMG BKN010 FMCH 210800Z 22011KT 9999 FEW020 SCT025 30/23 Q1016 NOSIG FMCZ 210830Z AUTO 18013KT CAVOK 30/24 Q1015 NOSIG FMEE 210830Z AUTO 32008KT 9999 SCT013 28/23 Q1015 NOSIG FMEP 210830Z AUTO 22005KT 180V260 9999 FEW043 28/20 Q1014 BECMG 10010KT FMMI 210830Z 30017KT 9999 BKN023 28/12 Q1019 NOSIG FMMS 210600Z 02006KT 9999 FEW020 27/23 Q1016 FMMT 210800Z 05010KT 020V080 9999 FEW017 29/24 Q1013 NOSIG FMNA 210800Z 16006KT 9999 SCT023 33/18 Q1014 FMNM 210800Z 34006KT 9999 FEW023 32/22 Q1014 NOSIG FMNN 210800Z 04006KT 9999 BKN020 28/24 Q1015 FMSD 210800Z 26018KT 9999 SCT020 SCT040 23/16 Q1013 FNBG 210800Z 27008KT 9999 FEW015 BKN100 26/21 Q1011 FNCA 210800Z 18005KT 9999 FEW010 BKN015 27/23 Q1012 FNCT 210800Z 26008KT 9999 SCT120 26/22 Q1011 FNDU 210800Z 00000KT CAVOK 23/17 Q1017 FNGI 210800Z 25004KT 9999 FEW019 31/13 Q1017 FNHU 210800Z 05004KT 9999 FEW012 25/15 Q1022 FNKU 210800Z 09005KT CAVOK 23/18 Q1022 FNLU 210800Z 31004KT 9999 SCT020 28/22 Q1010 NOSIG FNMA 210700Z 00000KT 5000 BR BKN020 18/17 Q1019 FNMO 210800Z 24013KT 9999 BKN022 20/16 Q1011 FNSA 210800Z 00000KT 9999 FEW030 SCT100 26/17 Q1017 FNSO 210800Z 18006KT 9000 BKN020 ///// Q//// FNSU 210800Z 23005KT 9999 BKN010 26/// Q1013 FNUB 210800Z 17008KT 9999 FEW030 SCT080 23/12 Q1024 FNUE 210800Z 12008KT CAVOK 27/17 Q1020 FNUG 210800Z 18006KT 9999 SCT015 23/21 Q1014 FOGM 210800Z /////KT 8000 SCT011 OVC023 24/23 Q//// FOGR 210800Z /////KT 9999 SCT008 OVC026 25/23 Q//// FOOG 210800Z 18012KT 9999 SCT010 BKN035 28/25 Q1011 FOOK 210800Z /////KT 9999 FEW010 26/21 Q//// FOOL 210830Z 17008KT 140V210 9000 TS SCT009 FEW018CB BKN025 27/25 Q1011 TEMPO NSW FOON 210800Z 18006KT 140V210 9999 OVC010 25/22 Q1014 FOOR 210800Z /////KT 9999 SCT004 25/22 Q//// FOOT 210800Z 00000KT 9999 SCT010 OVC023 26/23 Q//// FQBR 210800Z 24019KT 9999 SCT018 SCT030 25/17 Q1024 FQCH 210800Z 17020KT 9999 FEW009 BKN015 19/14 Q1028 FQIN 210800Z 17018KT 9999 BKN020 23/12 Q1027 FQLC 210800Z 13017KT 1000 RA BKN003 SCT015 FEW020CB BKN040 16/16 Q1025 RMK CB TO ISOLETED ALL/D FQMA 210800Z 22019KT 9999 SCT020 23/09 Q1030 NOSIG FQNP 210400Z 20012KT 9000 SHRA SCT010 BKN020 FEW025CB 20/18 Q1021 FQPB 210800Z 20015KT 9999 BKN020 SCT100 29/20 Q1018 FQQL 210800Z 14011KT 9999 BKN020 30/17 Q1022 FQTT 210800Z 16018KT 9999 BKN020 SCT100 27/16 Q1023 FQVL 210600Z 18016KT 140V220 9999 FEW020 24/09 Q1025 FSIA 210800Z 34007KT 9999 SCT018 30/23 Q1012 NOSIG FTTA 210800Z 14006KT CAVOK 32/22 Q1012 FTTC 210800Z 10010KT CAVOK 34/// Q1013 FTTD 210800Z 00000KT CAVOK 31/24 Q1012 FTTJ 210800Z 09005KT 090V170 3500 HZ NSC 34/16 Q1010 NOSIG FTTY 210800Z 00000KT CAVOK 35/05 Q1014 FVFA 210800Z 06016KT 040V100 9999 SCT040 28/06 Q1021 NOSIG FVKB 210800Z 14004KT CAVOK 31/14 Q1018 FVMV 210800Z 15015KT 9999 -DZ FEW007 OVC010 15/11 Q1029 FWCL 210400Z 14012KT 9999 FEW004 BKN010 OVC080 20/13 Q1024 NOSIG FWKI 210800Z 20010KT 9999 FEW025 SCT090 22/11 Q1024 NOSIG FYGB 210800Z AUTO 11007KT //// // ////// 31/05 Q1023 FYGF 210600Z 27009KT 9999 FEW040 25/11 Q1021 FYKT 210800Z 10014KT 9999 BKN090 27/06 Q1019 FYLZ 210800Z AUTO 31015KT //// // ////// 14/13 Q1013 FYML 210800Z AUTO 21003KT //// // ////// 31/01 Q1019 FYOA 210600Z 00000KT 9999 VCSH FEW035CB BKN040 26/13 Q1017 FYOO 210800Z AUTO 32005KT //// // ////// 28/11 Q1019 FYOW 210800Z AUTO 32005KT //// // ////// 27/09 Q1020 FYRN 210800Z 30005KT 9999 FEW040 29/14 Q1019 FYWB 210800Z 33010KT 9999 OVC016 16/13 Q1016 FYWE 210800Z 34009KT CAVOK 27/02 Q1023 FYWH 210800Z 34011KT 9999 FEW050 SCT090 25/05 Q1022 NOSIG FYWW 210800Z AUTO 35005KT //// // ////// 28/04 Q1022 FZAA 210800Z 23008KT 7000 SCT016 BKN100 27/22 Q1012 NOSIG FZIC 210800Z 12004KT 9999 FEW020 BKN320 29/23 Q1012 NOSIG FZNA 210800Z 24008KT 9000 SCT018 24/18 Q1020 NOSIG FZQA 210800Z 09011KT 9000 SCT020 BKN100 25/16 Q1020 NOSIG FZWA 210800Z 10004KT 9999 FEW018 26/21 Q1014 NOSIG GABS 210830Z 02005KT 9999 FEW020 27/18 Q1013 NOSIG GAKD 210600Z 24004KT CAVOK 22/21 Q1011 GAMB 210600Z 00000KT CAVOK 24/23 Q1009 GANR 210600Z 00000KT CAVOK 21/15 Q1012 GBYD 210800Z VRB03KT CAVOK 25/24 Q1011 GCFV 210830Z 30005KT 9999 FEW025 20/16 Q1016 GCGM 210830Z 00000KT 9999 FEW035 21/12 Q1016 RMK R09/00000KT ARP/VRB01KT GCHI 210830Z VRB01KT 9999 FEW030 22/17 Q1016 GCLA 210830Z VRB01KT CAVOK 22/15 Q1015 GCLP 210830Z 22005KT 200V260 9999 FEW035 21/15 Q1016 NOSIG GCRR 210830Z 32003KT 250V020 9999 FEW025 20/17 Q1016 GCTS 210830Z 03005KT 360V090 9999 FEW045 21/15 Q1016 NOSIG GCXO 210830Z 17004KT 120V210 9999 FEW007 SCT011 16/14 Q1017 NOSIG GEML 210830Z 26007KT 230V290 9999 FEW010 21/19 Q1017 GGOV 210800Z 04005KT CAVOK 25/24 Q1010 NOSIG GLRB 210830Z 00000KT 8000 BKN010 26/25 Q1011 BRVC GMAD 210830Z 04009KT CAVOK 20/13 Q1016 NOSIG GMAG 210800Z 10010KT CAVOK 17/09 Q1016 NOSIG GMAT 210800Z 12004KT CAVOK 18/13 Q1016 NOSIG GMFF 210830Z 31003KT 280V360 CAVOK 20/13 Q1019 NOSIG GMFK 210800Z 13002KT CAVOK 15/01 Q1021 NOSIG GMFM 210800Z 15003KT 6000 FEW016 16/14 Q1019 NOSIG GMFO 210800Z 20006KT CAVOK 20/07 Q1018 NOSIG GMMB 210800Z 11005KT 9999 FEW016 17/16 Q1018 NOSIG GMMC 210800Z 18007KT 9999 FEW016 17/14 Q1017 GMMD 210800Z 08002KT 9999 FEW100 SCT230 17/15 Q1018 NOSIG GMME 210830Z VRB03KT 8000 FEW011 SCT016 18/15 Q1016 NOSIG GMMH 210800Z 02007T 8000 NSC 19/18 Q1015 NOSIG GMMI 210800Z VRB02KT 8000 NSC 16/15 Q1016 NOSIG GMML 210800Z 10006KT CAVOK 19/14 Q1015 NOSIG GMMN 210830Z 09003KT 050V110 9999 FEW016 17/17 Q1017 NOSIG GMMW 210800Z 14001KT CAVOK 19/14 Q1016 NOSIG GMMX 210830Z 06004KT 010V090 CAVOK 18/13 Q1017 NOSIG GMMZ 210800Z VRB02KT CAVOK 15/02 Q1021 NOSIG GMTA 210800Z 16004KT 9999 FEW040 19/15 Q1016 NOSIG GMTN 210800Z 21006KT 4000 BR NSC 18/15 Q1016 NOSIG GMTT 210830Z VRB02KT 9999 FEW016 SCT100 19/15 Q1017 NOSIG GOBD 210830Z 02006KT CAVOK 26/22 Q1012 NOSIG GOGG 210800Z 02004KT CAVOK 26/25 Q1011 GOGK 210600Z 00000KT 8000 NSC 25/24 Q1010 GOGS 210700Z 00000KT CAVOK 25/25 Q1010 GOOD 210700Z 00000KT CAVOK 24/23 Q1011 GOOG 210800Z 00000KT CAVOK 23/21 Q//// GOOK 210600Z 00000KT CAVOK 25/23 Q1012 GOOY 210800Z 36004KT CAVOK 26/24 Q1011 GOSM 210800Z 02002KT CAVOK 24/21 Q1012 GOSP 210800Z 00000KT CAVOK 26/19 Q1012 GOSS 210800Z 04004KT CAVOK 25/21 Q1011 GOTK 210800Z 00000KT CAVOK 24/23 Q1011 GOTT 210800Z 04004KT CAVOK 24/21 Q1011 GQNO 210830Z 05007KT 8000 NSC 27/12 Q1012 NOSIG GQPP 210800Z 03014KT 8000 NSC 22/17 Q1014 NOSIG GVAC 210800Z 04009KT 9999 FEW014 SCT200 25/20 Q1012 NOSIG GVBA 210800Z 04006KT 9999 FEW014 BKN200 25/21 Q1013 NOSIG GVNP 210800Z 04009KT 9999 FEW014 BKN100 25/21 Q1013 NOSIG GVSV 210800Z 06011KT 9999 FEW018 BKN200 ///// Q1013 NOSIG HAAB 210800Z 09012KT 060V120 BKN025 20/09 Q1027 HADR 210700Z 29010KT 9999 SCT027 26/18 Q1022 HAMK 210700Z 11010KT 9999 FEW020 FEW058 19/13 Q1028 HCMF 210800Z 03017KT CAVOK 26/23 Q1013 HCMH 210800Z 07009KT 9999 BKN028 26/16 Q1022 HCMM 210800Z 14005KT 9999 BKN022 29/23 Q1013 HDAM 210800Z 08012KT 9999 SCT023 33/26 Q1014 HEAT 210800Z 09006KT CAVOK 26/08 Q1014 NOSIG HEAX 210800Z 06005KT 9999 SCT020 27/19 Q1013 NOSIG HEBA 210800Z 11008KT CAVOK 25/18 Q1013 NOSIG HECA 210830Z 08009KT 9999 SCT025 28/16 Q1013 NOSIG HEGN 210800Z 34005KT CAVOK 30/11 Q1013 NOSIG HEIS 210800Z 11007KT CAVOK 26/21 Q1014 HELX 210800Z 32003KT 8000 SCT020 29/14 Q1012 NOSIG HEMA 210800Z 02007KT CAVOK 30/13 Q1013 NOSIG HEMM 210800Z 07011KT 9999 SCT020 25/19 Q1014 NOSIG HEPS 210800Z 25003KT 6000 NSC 24/21 Q1014 NOSIG HESG 210800Z 10005KT CAVOK 30/09 Q1011 NOSIG HESH 210800Z 04007KT CAVOK 29/19 Q1012 NOSIG HETR 210800Z 27008KT CAVOK 28/20 Q1014 HKEL 210830Z 13011G21KT 9999 SCT022 23/07 Q1025 HKJK 210830Z 08010KT 9999 BKN024 25/12 Q1023 HKKI 210800Z 00000KT 9999 FEW024CB SCT270 27/16 Q1018 HKML 210500Z 00000KT 9999 BKN020TCU 28/23 Q1015 HKMO 210800Z 14008KT 9999 SCT025 30/23 Q1015 NOSIG HKNW 210800Z 06011KT 9999 BKN025 23/13 Q1023 HKWJ 210700Z 15008KT 9999 BKN030 31/20 Q1013 HRYR 210830Z 14007KT 110V180 9999  SCT024 SCT300  24/15 Q1021 NOSIG HSNN 210800Z 08005KT CAVOK 32/01 Q1014 HSOB 210800Z 14005KT CAVOK 31/17 Q1013 HSPN 210800Z 09008KT 9999 SCT030 33/23 Q1012 HSSS 210830Z 30005KT 6000 36/15 Q1012 NOSIG HTAR 210400Z 13011KT 9999 FEW006 OVC018 17/16 Q1018 NOSIG HTBU 210400Z 00000KT 9999 FEW014 FEW016CB SCT080 18/17 Q1017 HTDA 210700Z 12003KT 9999 FEW014 BKN017 29/24 Q1016 NOSIG HTDO 210400Z 09007KT 9999 FEW019 19/17 Q1018 NOSIG HTIR 210400Z 00000KT 9999 FEW018 18/13 Q1021 HTKA 210400Z 00000KT 9999 FEW018 FEW019CB SCT090 20/19 Q1017 HTKJ 210700Z 00000KT 9999 BKN026 24/17 Q1019 NOSIG HTMG 210400Z 00000KT 9999 BKN020 20/19 Q1017 HTMT 210400Z 18008KT 9999 FEW019 22/22 Q1016 HTMU 210400Z 00000KT 9999 FEW020CB BKN260 19/18 Q1018 HTMW 210700Z 08018KT 9999 FEW024 BKN270 27/17 Q1018 NOSIG HTSO 210400Z 12012KT 9999 BKN017 20/18 Q1022 HTSU 210400Z 09007KT 9999 FEW018 18/12 Q1021 HTTB 210400Z 00000KT CAVOK 20/14 Q1019 HTZA 210700Z 17010KT 9999 SCT020 28/24 Q1016 NOSIG HUEN 210800Z 16006KT 9999 FEW022 FEW024CB 25/18 Q1018 K04V 210836Z AUTO 00000KT 10SM CLR M01/M11 A3047 RMK AO2 K04W 210835Z AUTO 00000KT 10SM CLR M05/M06 A3024 RMK AO2 K05U 210835Z AUTO 16005KT 10SM CLR 03/M05 A3022 RMK A01 K06C 210835Z AUTO 00000KT 10SM CLR M03/M06 A3034 RMK AO2 T10281062 K06D 210835Z AUTO 22011G16KT 10SM CLR M01/M07 A2991 RMK AO2 K08D 210835Z AUTO 31009KT 10SM CLR 04/M01 A2997 RMK AO2 K0A9 210835Z AUTO VRB06G12KT 10SM CLR 03/M04 A3017 RMK AO2 K0CO 210842Z AUTO 31015G23KT 10SM CLR M02/M10 A3056 RMK AO2 K0E0 210835Z AUTO 01003KT 10SM BKN080 02/01 A3044 RMK AO2 T00170005 K0F2 210835Z AUTO 10SM CLR 09/08 A3034 RMK AO2 T00890075 K0J4 210758Z AUTO 36004KT 10SM CLR 15/12 A3015 RMK AO2 SLP206 T01500117 $ K0R0 210835Z AUTO 34003KT 10SM CLR 11/11 A3022 RMK AO2 K0R4 210835Z AUTO 00000KT 2SM BR BKN003 11/11 A3021 RMK AO2 T01100110 K0S9 210835Z AUTO 31003KT 10SM CLR 08/08 A3004 RMK AO2 K0V4 210835Z AUTO 29006KT CLR 07/M02 A3000 RMK AO1 T00731023 K11R 210835Z AUTO 02006KT 10SM CLR 16/15 A3024 RMK AO2 T01560150 K12N 210754Z AUTO VRB05KT 07/04 A2968 RMK AO1 SLP051 T00670039 K14Y 210836Z AUTO 00000KT M06/M07 A3020 RMK AO2 PWINO K18A 210835Z AUTO 01003KT 10SM CLR 09/02 A3005 RMK AO2 T00850020 TSNO K18H 210835Z AUTO VRB05KT 10SM FEW022 FEW028 SCT033 28/23 A2999 RMK A01 K19S 210835Z AUTO 20007KT 10SM CLR 08/02 A3032 RMK AO2 T00760017 K1A5 210820Z AUTO 32005KT 10SM CLR 06/M02 A3009 RMK AO2 T00591021 K1A6 210835Z AUTO 36005KT 10SM OVC034 04/M02 A3026 RMK AO2 T00351024 K1A9 210835Z AUTO 00000KT 10SM CLR 10/10 A3014 RMK AO2 T00950095 K1AM 210758Z AUTO 05003KT 10SM CLR 04/M06 A3012 RMK AO2 SLP148 T00441063 $ K1AN 210756Z AUTO 22011KT 10SM CLR 03/M04 A2990 RMK AO2 SLP160 T00311045 $ K1BN 210756Z AUTO 22019G28KT 10SM CLR 02/M05 A2993 RMK AO2 PK WND 21029/08 SLP156 T00221048 $ K1BW 210758Z AUTO 27009KT 10SM CLR 08/M02 A3024 RMK AO2 SLP205 T00751022 $ K1CN 210756Z AUTO 19007KT 10SM CLR M01/M05 A2997 RMK AO2 SLP172 T10151051 $ K1DN 210756Z AUTO 19008KT 10SM CLR 00/M04 A2995 RMK AO2 SLP167 T00001041 $ K1DW 210758Z AUTO 26008KT 10SM CLR 06/M02 A3025 RMK AO2 SLP212 T00591022 $ K1EM 210758Z AUTO 00000KT 10SM M 11/M10 A3011 RMK AO2 SLP192 T01141096 $ K1EN 210756Z AUTO 21006KT 10SM CLR 03/M02 A2993 RMK AO2 SLP163 T00331025 $ K1F0 210835Z AUTO 00000KT 08/07 A3034 RMK AO2 PWINO TSNO K1FM 210758Z AUTO 31007KT 10SM CLR 07/M11 A3011 RMK AO2 SLP186 T00741109 $ K1FN 210756Z AUTO 18004KT 10SM CLR 00/M04 A2985 RMK AO2 SLP165 T10041038 $ K1GN 210756Z AUTO 22006KT 10SM CLR 00/M04 A2993 RMK AO2 SLP166 T00011045 $ K1GW 210758Z AUTO 27006KT 10SM CLR 06/M01 A3020 RMK AO2 SLP209 T00581013 TSNO $ K1H2 210835Z AUTO 00000KT 10SM CLR M01/M04 A3040 RMK AO2 T10081045 K1HW 210758Z AUTO 23008KT 10SM CLR 01/M01 A3020 RMK AO2 SLP223 T00121007 $ K1IM 210758Z AUTO 13003KT 10SM CLR 06/M05 A3011 RMK AO2 SLP197 T00601049 $ K1IN 210756Z AUTO 26005KT 10SM CLR 02/M03 A2994 RMK AO2 SLP163 T00171033 $ K1J0 210758Z AUTO 35008KT 10SM CLR 17/12 A3012 RMK AO2 SLP156 T01670122 $ K1JN 210756Z AUTO 25013KT 10SM CLR 02/M04 A2992 RMK AO2 SLP156 T00181039 $ K1K1 210835Z AUTO 12004KT 10SM CLR 04/00 A3037 RMK AO2 T00401004 K1KM 210758Z AUTO 30013KT 10SM CLR 10/M04 A3013 RMK AO2 SLP188 T00951045 $ K1KN 210756Z AUTO 26013KT 10SM CLR 02/M03 A2993 RMK AO2 SLP159 T00191031 $ K1LM 210758Z AUTO 34009KT 10SM M 06/M05 A3014 RMK AO2 SLP199 T00551054 $ K1M4 210756Z AUTO VRB06G14KT 10SM CLR 08/M01 A3025 RMK AO2 SLP268 T00781006 K1M5 210835Z AUTO 34004KT 10SM CLR 01/M03 A3032 RMK A01 K1MM 210758Z AUTO 18008KT 10SM SCT140 03/M05 A3013 RMK AO2 SLP202 T00281050 $ K1MN 210756Z AUTO 27012KT 10SM CLR 05/M02 A2993 RMK AO2 SLP154 T00461025 $ K1MW 210758Z AUTO 00000KT 10SM CLR 00/M03 A3021 RMK AO2 SLP225 T00011029 $ K1NM 210758Z AUTO 13005KT 10SM CLR 06/M05 A3009 RMK AO2 SLP189 T00621047 $ K1OM 210758Z AUTO 30008KT 10SM CLR 07/M06 A3011 RMK AO2 SLP193 T00741064 $ K1ON 210756Z AUTO 17003KT 10SM CLR M03/ A2992 RMK AO2 SLP155 $ K1P1 210835Z AUTO 29008KT 10SM SCT110 06/M01 A2963 RMK AO2 T00601010 K1S5 210835Z AUTO 02003KT 5SM BR CLR 02/02 A3007 RMK AO2 T00200015 K1V4 210754Z AUTO 04/M01 A2965 RMK AO1 SLP042 T00391006 K1YT 210758Z AUTO 00000KT 10SM M 05/02 A3006 RMK AO2 SLPNO T00520015 401880007 $ K20U 210835Z AUTO 31008KT 10SM FEW037 03/M02 A3004 RMK AO2 K20V 210830Z AUTO 00000KT 10SM CLR M03/M06 A3045 RMK AO2 K21D 210835Z AUTO 00000KT 10SM CLR M04/M05 A3027 RMK AO2 K22N 210835Z AUTO 30003KT 10SM BKN026 BKN034 OVC050 07/03 A2976 RMK AO2 K24A 210820Z AUTO 33013G21KT 10SM CLR 04/M07 A3007 RMK AO2 T00361067 K24J 210835Z AUTO 33007KT 10SM BKN021 BKN060 18/16 A3004 RMK A01 K28J 210835Z AUTO 33006KT 10SM FEW014 SCT029 BKN036 21/21 A2998 RMK AO2 K2C8 210815Z AUTO 16013KT 10SM OVC100 00/M06 A3000 RMK AO2 K2D5 210835Z AUTO 18011KT 5SM HZ CLR M02/M05 A3006 RMK AO2 PWINO K2DP 210756Z AUTO 30010KT 10SM FEW080 13/ A2980 RMK AO2 SLPNO $ K2G4 210820Z AUTO 30012G18KT 3/4SM OVC002 M01/M01 A2992 RMK AO1 K2G9 210835Z AUTO 33007G19KT 10SM BKN011 OVC016 00/00 A2994 RMK AO2 K2I0 210835Z AUTO 34003KT 10SM CLR 01/M03 A3037 RMK AO2 T00081033 K2J3 210835Z AUTO 29005KT 10SM CLR 11/09 A3002 RMK AO2 T01080090 K2J9 210835Z AUTO 36006G15KT 10SM CLR 17/12 A3010 RMK AO2 K2LS 210835Z AUTO 03009G21KT 10SM OVC050 20/15 A3013 RMK AO2 K2M2 210835Z AUTO 02009KT 10SM CLR 03/M05 A3028 RMK A01 K2P2 210835Z AUTO 31009G16KT 10SM OVC035 02/M04 A3024 RMK AO2 T00151044 K2V5 210835Z AUTO 00000KT 10SM CLR 04/00 A3021 RMK AO2 K2V6 210834Z AUTO 22008KT 5SM HZ CLR 05/00 A3020 RMK AO2 K2W6 210823Z AUTO 28009G14KT 10SM OVC110 10/03 A2984 RMK AO1 K2WX 210756Z AUTO 00000KT 07/M02 A2999 RMK AO1 SLP156 T00671017 K33N 210835Z AUTO 29010G17KT 10SM OVC055 10/04 A2975 RMK A01 K33V 210815Z AUTO 13006KT 10SM CLR M04/M07 A3043 RMK AO1 K3AU 210835Z AUTO 10004KT 10SM CLR 03/00 A3037 RMK AO2 K3D2 210835Z AUTO 32007KT 10SM OVC034 01/M05 A3025 RMK AO2 T00061051 K3F3 210835Z AUTO 02003KT 10SM CLR 11/10 A3030 RMK AO2 T01060101 K3J7 210830Z AUTO 00000KT 10SM CLR 12/08 A3002 RMK AO2 K3K3 210835Z AUTO 24007G17KT 10SM CLR 09/02 A3028 RMK AO2 K3L4 210835Z AUTO 05019G25KT 10SM OVC070 19/15 A3014 RMK A01 K3LF 210835Z AUTO 02005KT 10SM CLR M01/M06 A3039 RMK AO2 T10101062 K3N8 210830Z AUTO 18008KT 10SM OVC110 00/M05 A3011 RMK AO2 T00001054 K3R7 210835Z AUTO 04012G16KT 10SM OVC075 17/14 A3018 RMK AO2 T01700135 K3S8 210835Z AUTO 00000KT 10SM OVC032 08/02 A3000 RMK AO2 K3T5 210835Z AUTO 01005KT 10SM CLR 16/15 A3021 RMK AO2 T01640151 K40B 210816Z AUTO 00000KT M02/M04 A2954 RMK AO1 SLP018 T10161035 53012 K40J 210835Z AUTO 35010G16KT 10SM CLR 19/16 A3005 RMK AO2 T01940161 K42J 210835Z AUTO 34010KT 10SM FEW013 SCT019 OVC042 20/19 A2999 RMK A01 TSNO K46D 210835Z AUTO 20013G20KT 10SM CLR 03/M05 A2998 RMK AO2 K46U 210820Z AUTO 00000KT 10SM CLR 02/M02 A3031 RMK A01 K49A 210835Z AUTO 34005KT 10SM CLR 07/M04 A3015 RMK AO2 T00671036 K4A6 210835Z AUTO 01010G17KT 10SM CLR 07/M03 A3023 RMK AO2 K4A9 210835Z AUTO 36009G14KT 10SM CLR 07/M02 A3018 RMK AO2 K4BM 210830Z AUTO 24008KT 10SM SCT110 01/M11 A3054 RMK AO2 K4I3 210839Z AUTO 31013G19KT 10SM OVC033 01/M03 A3020 RMK AO2 K4M9 210835Z AUTO 03005KT 10SM CLR 05/M01 A3040 RMK AO2 PWINO K4MR 210758Z AUTO 18004KT 10SM CLR 09/06 A3041 RMK AO2 SLP267 T00850055 $ K4O4 210835Z AUTO 00000KT 10SM CLR 07/06 A3032 RMK AO2 K4R5 210835Z AUTO 00000KT 10SM CLR M03/M04 A3023 RMK AO2 T10301041 K4S1 210835Z AUTO 05004KT 3/4SM -RA OVC003 A2999 RMK AO1 K4S2 210835Z AUTO 00000KT 10SM CLR 06/04 A3007 RMK AO2 K4V0 210835Z AUTO 00000KT 10SM BKN090 01/00 A3033 RMK AO2 T00110001 K54A 210835Z AUTO 00000KT 10SM CLR 23/23 A2998 RMK AO2 K54J 210435Z AUTO 35010KT 10SM OVC013 19/17 A3010 RMK AO2 T01880165 K57C 210835Z AUTO 27004KT 10SM CLR M04/M06 A3034 RMK AO2 T10411065 K5A6 210835Z AUTO 03007KT 10SM CLR 08/07 A3025 RMK AO2 T00800066 K5C1 210835Z AUTO 36005KT 10SM OVC110 15/09 A3028 RMK AO1 K5H4 210835Z AUTO 22009KT 10SM CLR 02/M06 A2996 RMK AO2 K5M9 210835Z AUTO 01004KT 7SM CLR 01/M06 A3036 RMK AO2 T00101057 K5R8 210835Z AUTO 36003KT 10SM SCT005 15/14 A3020 RMK AO2 T01450136 K5SM 210830Z AUTO 24005KT 10SM CLR 00/M07 A3057 RMK AO2 K5T9 210835Z AUTO 31004KT 10SM OVC044 15/12 A3026 RMK A01 K65S 210835Z AUTO 00000KT 8SM CLR 02/02 A3014 RMK AO2 K66R 210835Z AUTO 01005KT 10SM CLR 16/14 A3023 RMK AO2 T01600140 K6A1 210835Z AUTO 34006KT 10SM 12/07 A3008 RMK AO2 T01200074 K6A2 210835Z AUTO 35006KT 10SM CLR 11/04 A3008 RMK AO2 K6B0 210835Z AUTO 36012G16KT 10SM SCT027 BKN033 04/M01 A2972 RMK AO2 T00361011 K6B9 210835Z AUTO 34007G16KT 280V010 10SM BKN027 OVC038 04/M01 A2985 RMK AO2 K6I2 210835Z AUTO 32003KT 10SM CLR 01/M03 A3033 RMK AO2 K6P9 210835Z AUTO 36003KT 10SM CLR 10/08 A3034 RMK AO2 T01010075 K6R3 210835Z AUTO 01004KT 10SM CLR 15/14 A3022 RMK AO2 T01480140 K6R6 210753Z AUTO 02006KT 16/13 A3032 RMK AO1 SLP248 T01560128 K6S0 210835Z AUTO 04004KT 10SM CLR 07/M01 A3016 RMK A01 K6S2 210835Z AUTO 00000KT 1SM BR OVC001 05/04 A2998 RMK AO2 K74V 210835Z AUTO 29003KT 10SM BKN085 04/01 A3033 RMK AO2 K79J 210756Z AUTO 32003KT 10SM CLR 15/12 A3013 RMK AO2 SLP199 T01500122 $ K7BM 210831Z AUTO 15004KT 10SM CLR 05/M11 A3048 RMK AO2 K7L2 210835Z AUTO 13005KT 10SM 01/M06 A3002 RMK AO2 K7N0 210756Z AUTO 02009G17KT 350V050 10SM BKN060 OVC080 19/13 A3015 RMK AO2 SLP208 T01940128 K7W4 210835Z AUTO 27006KT 10SM CLR 07/M01 A2991 RMK AO1 T00701012 K82C 210835Z AUTO 00000KT 10SM CLR M05/M05 A3032 RMK AO2 T10461054 K8A0 210835Z AUTO 36007G16KT 10SM CLR 07/01 A3018 RMK AO2 K8A3 210835Z AUTO 02014KT 10SM CLR 02/M03 A3027 RMK A01 K8B0 210835Z AUTO 32007KT 10SM BKN020 BKN025 00/M02 A2961 RMK AO2 K8D3 210756Z AUTO 17008KT M03/M07 A3016 RMK AO1 SLP232 T10331072 K8W2 210830Z AUTO 00000KT 10SM SCT042 SCT048 BKN070 06/00 A2995 RMK AO1 T00601005 K96D 210835Z AUTO 15010KT 10SM M00/M00 A2995 RMK AO2 K9A5 210835Z AUTO 01011G21KT 10SM CLR 07/M03 A3021 RMK AO2 T00701030 K9D7 210835Z AUTO 18007KT 10SM CLR M01/M06 A2996 RMK AO2 K9L2 210758Z AUTO 32005KT 10SM CLR 14/M04 A2998 RMK AO2 SLP134 T01381040 402800049 K9MN 210835Z AUTO 00000KT 10SM CLR M02/M06 A3031 RMK AO1 T10201061 K9V9 210835Z AUTO 19011G15KT 10SM CLR 07/M01 A3010 RMK AO2 T00661011 KA08 210835Z AUTO 34007KT 10SM CLR 10/10 A3017 RMK AO2 T00970097 KA39 210835Z AUTO 10014KT 10SM CLR 24/10 A2998 RMK AO2 KAAA 210835Z AUTO 00000KT 10SM CLR M02/M05 A3039 RMK AO2 T10211052 KAAO 210754Z AUTO 12004KT 10SM CLR 04/01 A3037 RMK AO2 SLP283 T00440006 KAAS 210835Z AUTO 35003KT 10SM 02/M02 A3036 RMK AO1 KAAT 210755Z AUTO 00000KT 10SM CLR 01/M04 A3012 RMK AO2 SLP186 T00061039 402391044 KABE 210751Z 30005KT 10SM OVC048 08/03 A2971 RMK AO2 SLP062 T00780033 $ KABH 210356Z AUTO 16009KT A3036 RMK AO2 SLPNO $ KABI 210752Z 24005KT 7SM CLR 09/08 A3037 RMK AO2 SLP271 T00940083 $ KABQ 210752Z 04011KT 10SM FEW085 BKN250 12/00 A3038 RMK AO2 SLP233 T01220000 KABR 210753Z AUTO 17009KT 10SM CLR M01/M06 A3013 RMK AO2 SLP215 T10061056 KABY 210753Z AUTO 32005KT 10SM CLR 15/11 A3010 RMK AO2 SLP193 T01500111 KACB 210835Z AUTO 03004KT 10SM OVC034 01/M01 A3022 RMK AO2 T00121015 KACJ 210835Z AUTO 33004KT 10SM CLR 14/08 A3010 RMK AO2 KACK 210753Z AUTO 00000KT 10SM CLR 07/07 A2954 RMK AO2 SLP003 T00720067 KACP 210835Z AUTO 00000KT 10SM CLR 15/13 A3020 RMK AO2 T01450134 KACQ 210835Z AUTO 00000KT 10SM CLR M05/M07 A3031 RMK AO2 KACT 210751Z AUTO 35005KT 10SM CLR 12/09 A3030 RMK AO2 SLP258 T01170094 KACV 210820Z AUTO 00000KT 1/2SM R32/2200V2600FT FG VV002 09/09 A2999 RMK AO2 T00890089 KACY 210754Z 29011KT 10SM FEW120 10/06 A2967 RMK AO2 SLP045 T01000061 KADC 210835Z AUTO 17004KT 10SM SCT110 M05/M07 A3016 RMK AO2 KADF 210756Z AUTO 01004KT 10SM CLR 10/09 A3032 RMK AO2 SLP270 T01000094 TSNO KADG 210753Z AUTO 34009G16KT 10SM OVC037 02/M04 A3023 RMK AO2 SLP244 T00221044 TSNO KADH 210835Z AUTO 36004KT 10SM CLR 08/06 A3035 RMK AO2 KADM 210830Z AUTO 00000KT 10SM CLR 07/07 A3034 RMK AO2 T00730073 KADS 210835Z AUTO 36004KT 10SM CLR 11/08 A3034 RMK AO2 T01140082 KADU 210835Z AUTO 00000KT 10SM CLR M04/M06 A3035 RMK AO2 KADW 210756Z AUTO 30013G23KT 10SM FEW045 BKN120 10/01 A2981 RMK AO2 PK WND 31028/00 SLP101 T00960007 $ KAEG 210835Z AUTO 34006KT 10SM CLR 07/M01 A3040 RMK AO2 T00671014 KAEJ 210835Z AUTO 00000KT 10SM CLR 00/M07 A3044 RMK AO2 T10051067 KAEL 210835Z AUTO 21004KT 10SM CLR M02/M03 A3030 RMK AO2 KAEX 210753Z 33004KT 4SM BR CLR 11/11 A3021 RMK AO2 SLP232 T01110106 KAFF 210758Z AUTO 01008KT 10SM CLR 01/M06 A3032 RMK AO2 SLP230 T00111063 KAFJ 210808Z AUTO 31011G17KT 10SM FEW024 SCT029 OVC042 03/01 A3007 RMK AO2 KAFK 210835Z AUTO 16006KT 10SM CLR 00/M05 A3035 RMK AO2 T00021055 KAFN 210752Z AUTO VRB03KT 10SM OVC080 07/02 A2959 RMK AO2 SLP028 T00720022 KAFO 210835Z AUTO 00000KT 10SM CLR M02/M05 A3032 RMK AO2 KAFP 210820Z AUTO 32010KT 10SM CLR 12/03 A2999 RMK AO2 T01150032 KAFW 210753Z 32007KT 10SM SCT300 11/07 A3032 RMK AO2 SLP263 T01110072 $ KAGC 210805Z 32016G26KT 10SM FEW013 OVC019 03/02 A3001 RMK AO2 PK WND 32026/0804 RAE0758 P0000 T00280017 KAGS 210753Z AUTO 32004KT 10SM CLR 13/09 A3000 RMK AO2 SLP157 T01330094 KAHN 210751Z AUTO 31006KT 10SM CLR 12/03 A3003 RMK AO2 SLP168 T01170033 KAHQ 210835Z AUTO 18007KT 10SM BKN110 M01/M03 A3033 RMK AO2 T10091032 KAIA 210753Z AUTO 16004KT 10SM CLR 03/00 A3017 RMK AO2 SLP205 T00330000 KAIB 210835Z AUTO 07003KT 1 3/4SM HZ VV007 05/00 A3037 RMK AO2 VIS 3/4V5 KAID 210835Z AUTO 30004KT 10SM SCT042 00/M04 A3030 RMK AO2 T10051036 KAIG 210835Z AUTO 27004KT 10SM CLR M04/M07 A3025 RMK AO2 T10451070 KAIK 210835Z AUTO 31003KT 10SM CLR 08/07 A3003 RMK AO2 KAIO 210835Z AUTO 21004KT 10SM CLR M03/M03 A3036 RMK AO2 KAIT 210835Z AUTO 00000KT 10SM CLR M07/M08 A3020 RMK AO2 KAIZ 210756Z AUTO 00000KT 10SM CLR 01/M02 A3042 RMK AO2 SLP302 T00061022 FZRANO KAJG 210835Z AUTO 00000KT 10SM CLR 00/M06 A3038 RMK AO2 T10031057 KAJO 210756Z AUTO 00000KT 10SM CLR 13/07 A2992 RMK AO2 SLP138 T01330072 403280072 $ KAJR 210835Z AUTO 34008KT 10SM CLR 09/00 A3005 RMK AO2 T00870000 KAJZ 210835Z AUTO 07005KT 10SM CLR 07/M02 A3034 RMK AO2 T00701025 PWINO KAKH 210754Z AUTO 35008KT 10SM CLR 13/00 A3001 RMK AO2 SLP158 T01280000 KAKO 210753Z AUTO 21012KT 10SM CLR 11/M01 A3022 RMK AO2 SLP199 T01061011 KAKQ 210754Z AUTO VRB05KT 10SM FEW045 OVC090 11/04 A2988 RMK AO2 SLP119 T01110044 KAKR 210754Z AUTO 30012G19KT 10SM SCT031 OVC046 04/M02 A3009 RMK AO2 SLP193 T00391022 KALB 210751Z 33013KT 10SM FEW040 OVC100 08/01 A2968 RMK AO2 SLP050 SHRA DSNT E-SE T00830011 KALI 210820Z AUTO 02010KT 10SM BKN014 OVC026 18/16 A3016 RMK AO2 T01780156 KALK 210756Z AUTO 09014KT 10SM CLR 15/08 A3019 RMK AO2 SLP143 T01500078 $ KALM 210835Z AUTO 34004KT 10SM OVC060 13/08 A3036 RMK AO2 KALN 210835Z AUTO 00000KT 10SM CLR M02/M05 A3040 RMK AO2 T10231052 KALO 210754Z AUTO 00000KT 10SM CLR M05/M06 A3035 RMK AO2 SLP285 T10501056 KALS 210752Z AUTO 04003KT 10SM CLR M01/M07 A3044 RMK AO2 SLP275 T10111072 KALW 210753Z AUTO 13004KT 10SM CLR 07/04 A3005 RMK AO2 SLP178 T00720039 401830050 KALX 210835Z AUTO 36008G14KT 10SM CLR 11/09 A3013 RMK AO2 T01140091 KAMA 210753Z AUTO 18006KT 10SM CLR 06/03 A3040 RMK AO2 SLP271 T00610028 KAMG 210753Z AUTO 33008KT 10SM CLR 17/10 A3004 RMK AO2 SLP169 T01670100 KAMN 210838Z AUTO 29004KT 10SM SCT027 OVC043 01/M01 A3023 RMK AO2 T00101012 KAMW 210753Z AUTO 00000KT 10SM CLR M03/M06 A3036 RMK AO2 SLP288 T10331056 $ KANB 210753Z AUTO 35012G19KT 10SM CLR 12/04 A3016 RMK AO2 SLP213 T01220039 KAND 210756Z AUTO 29010KT 10SM CLR 12/02 A3001 RMK AO2 SLP156 T01220022 KANJ 210755Z AUTO 35007KT 10SM OVC035 01/M06 A3014 RMK AO2 SLP212 T00061061 KANK 210835Z AUTO 34009KT 10SM CLR 04/M07 A3049 RMK AO1 T00371066 KANQ 210835Z AUTO 32006KT 10SM OVC035 02/M03 A3026 RMK AO2 TSNO KANW 210835Z AUTO 20012G18KT 10SM CLR 05/M02 A3016 RMK AO2 T00501021 KAOO 210753Z AUTO 34015G23KT 10SM -RA SCT016 OVC024 04/01 A2987 RMK AO2 PK WND 30033/0706 PRESRR SLP120 P0001 T00440011 KAPA 210753Z 18008KT 10SM CLR 07/M06 A3026 RMK AO2 SLP214 T00721056 KAPC 210754Z AUTO 30004KT 8SM CLR 10/09 A2998 RMK AO2 SLP144 T01000089 402330056 KAPF 210753Z AUTO 00000KT 10SM SCT055 23/22 A2998 RMK AO2 SLP152 T02330222 KAPN 210754Z AUTO 34013G17KT 10SM OVC034 02/M05 A3016 RMK AO2 SLP219 T00171050 KAPS 210835Z AUTO 07013G19KT 10SM OVC065 19/11 A3015 RMK AO2 T01920109 KAPY 210835Z AUTO 34005KT 10SM OVC016 17/16 A3018 RMK AO2 T01800158 KAQO 210830Z AUTO 00000KT 10SM CLR 11/09 A3034 RMK AO2 KAQP 210838Z AUTO 15009KT 10SM CLR M02/M06 A3019 RMK AO2 KAQR 210835Z AUTO 00000KT 10SM CLR 07/07 A3035 RMK AO2 KAQV 210756Z AUTO 01004KT 10SM CLR 13/12 A3021 RMK AO2 SLP230 T01280117 KAQW 210752Z AUTO VRB06KT 10SM -RA SCT065 OVC090 07/03 A2963 RMK AO2 RAB52 SLP037 P0000 T00670028 KAQX 210835Z AUTO 00000KT 10SM CLR 13/10 A3000 RMK AO2 TSNO KARA 210753Z AUTO 03013G19KT 10SM BKN075 BKN090 18/13 A3017 RMK AO2 SLP214 T01780133 KARB 210753Z 29007KT 10SM OVC036 02/M03 A3020 RMK AO2 SLP232 T00171028 $ KARG 210756Z AUTO 04011KT 10SM CLR 06/M02 A3039 RMK AO2 SLP290 T00611017 KARM 210835Z AUTO 01004KT 10SM OVC060 17/14 A3019 RMK AO2 T01650143 KARR 210752Z AUTO 30003KT 10SM CLR M04/M07 A3036 RMK AO2 SLP287 T10441067 KART 210756Z AUTO 33009KT 10SM OVC036 02/M03 A2986 RMK AO2 SLP113 T00221028 KARV 210835Z AUTO 00000KT 10SM SCT120 M03/M05 A3022 RMK AO2 T10301049 KARW 210835Z AUTO 31010G15KT 7SM CLR 16/11 A2999 RMK AO2 KASD 210753Z AUTO 02013G18KT 10SM OVC075 18/12 A3015 RMK AO2 SLP209 T01780122 KASE 210753Z AUTO 21006KT 10SM CLR 02/M06 A3042 RMK AO2 SLP229 T00171056 KASH 210756Z AUTO 32009KT 10SM OVC080 08/02 A2959 RMK AO2 SLP031 T00830017 KASJ 210820Z AUTO 31004G15KT 10SM SCT048 SCT060 BKN070 11/05 A2990 RMK AO2 T01120048 KASL 210835Z AUTO 00000KT 10SM CLR 10/09 A3031 RMK AO1 T01000085 KASN 210835Z AUTO 36007KT 10SM CLR 11/02 A3019 RMK AO2 T01080016 KAST 210835Z AUTO 16003KT 1SM BR VV003 04/04 A2998 RMK AO2 VIS 1/4 RWY 08 T00440039 KASW 210835Z AUTO 34003KT 10SM OVC037 02/M01 A3028 RMK AO2 KASX 210753Z AUTO 20004KT 10SM FEW120 M03/M06 A3027 RMK AO2 SLP262 T10331056 KATL 210752Z 34016G27KT 10SM FEW250 12/02 A3008 RMK AO2 PK WND 34027/0744 SLP185 T01170022 KATP 210835Z AUTO 06010KT 10SM SCT034 SCT044 28/22 A3002 RMK A01 KATS 210835Z AUTO 13004KT 10SM BKN120 13/13 A3039 RMK AO2 KATT 210751Z AUTO 02005KT 10SM CLR 17/09 A3028 RMK AO2 SLP249 T01670094 KATW 210835Z AUTO 27006KT 10SM SCT037 M02/M07 A3029 RMK AO2 KATY 210753Z AUTO 16006KT 10SM CLR M02/M05 A3016 RMK AO2 SLP233 T10221050 KAUG 210753Z AUTO 33008KT 10SM OVC120 06/M02 A2958 RMK AO2 SLP018 T00561022 KAUH 210835Z AUTO 17007KT 10SM CLR 03/M04 A3030 RMK AO2 T00251036 KAUM 210835Z AUTO 00000KT 10SM CLR M04/M06 A3031 RMK AO2 KAUN 210835Z AUTO 11004KT 10SM CLR 17/01 A2999 RMK A01 KAUO 210756Z AUTO 33005KT 10SM CLR 11/09 A3012 RMK AO2 SLP220 T01060094 KAUS 210753Z 01011KT 10SM BKN200 17/11 A3026 RMK AO2 SLP242 T01670106 KAUW 210754Z AUTO 31004KT 10SM CLR M03/M07 A3029 RMK AO2 SLP277 T10331072 TSNO KAVC 210835Z AUTO 31007KT 10SM CLR 08/00 A3002 RMK AO2 T00821002 KAVK 210835Z AUTO 10005KT 10SM FEW042 BKN050 09/06 A3036 RMK AO2 KAVL 210754Z AUTO 35016G30KT 10SM CLR 06/M02 A3004 RMK AO2 PK WND 33035/0718 SLP163 T00611022 KAVP 210804Z 33009KT 10SM FEW012 SCT017 OVC080 06/04 A2973 KAVQ 210835Z AUTO 13017KT 10SM SCT090 24/07 A2997 RMK AO2 T02400070 KAVX 210751Z AUTO 27008KT 10SM CLR 21/M01 A2996 RMK AO2 SLP116 T02111011 402780211 $ KAWG 210835Z AUTO 00000KT 10SM CLR M04/M05 A3038 RMK AO2 KAWM 210353Z AUTO 35007KT 10SM CLR 13/06 A3024 RMK AO2 SLP240 T01330061 $ KAWO 210840Z AUTO 00000KT 1/4SM FG OVC003 04/04 A3006 RMK AO2 KAXA 210835Z AUTO 17004KT 10SM CLR M03/M05 A3030 RMK AO2 PWINO KAXH 210835Z AUTO 04009G14KT 10SM OVC060 18/15 A3018 RMK AO2 T01770149 KAXN 210753Z AUTO 18008KT 10SM CLR M01/M07 A3021 RMK AO2 SLP246 T10111067 KAXS 210835Z AUTO 36006KT 10SM CLR 08/06 A3039 RMK AO2 T00790059 KAXV 210835Z AUTO 30004KT 10SM OVC040 01/00 A3027 RMK AO2 KAXX 210835Z AUTO 00000KT 10SM CLR M06/M07 A3050 RMK AO2 T10601074 KAYS 210835Z AUTO 35006KT 10SM CLR 16/13 A3004 RMK AO2 T01570127 KAZC 210835Z AUTO 00000KT 10SM SCT070 SCT110 15/04 A3021 RMK AO2 LTG DSNT W KAZE 210830Z AUTO 00000KT 10SM CLR 15/11 A3004 RMK AO2 T01520105 KAZO 210753Z AUTO 35008KT 10SM OVC034 02/M03 A3026 RMK AO2 SLP253 T00221033 KBAB 210758Z AUTO 00000KT 10SM CLR 13/04 A2993 RMK AO2 SLP138 T01250037 402820072 $ KBAC 210835Z AUTO 18013KT 10SM CLR M01/M05 A3004 RMK AO2 KBAD 210756Z AUTO 00000KT 10SM CLR 11/11 A3026 RMK AO2 SLP250 T01070105 $ KBAF 210753Z AUTO 35010KT 10SM -RA OVC040 08/04 A2960 RMK AO2 RAB0656 SLP027 P0001 T00780039 KBAM 210835Z AUTO 16004KT 10SM CLR 01/M12 A3014 RMK AO1 KBAN 210752Z AUTO 00000KT 10SM CLR M02/M11 A3021 RMK AO2 SLP198 T10221106 401831072 $ KBAX 210835Z AUTO 31009G15KT 10SM OVC036 02/M04 A3016 RMK AO2 T00151042 KBAZ 210751Z AUTO 02012KT 10SM CLR 17/11 A3023 RMK AO2 SLP233 T01670111 $ KBBB 210835Z AUTO 19008KT 10SM CLR M03/M07 A3022 RMK AO2 KBBD 210835Z AUTO 01008KT 10SM CLR 10/08 A3033 RMK AO2 KBBG 210815Z AUTO 00000KT 10SM CLR 05/M02 A3039 RMK AO2 KBBP 210835Z AUTO 31004KT 10SM CLR 10/07 A2997 RMK AO2 KBBW 210753Z AUTO 17007KT 10SM CLR 04/M03 A3025 RMK AO2 SLP245 T00391028 KBCB 210835Z AUTO 30015G24KT 10SM OVC034 04/M03 A3008 RMK AO2 T00351026 KBCE 210753Z AUTO 26005KT 10SM FEW085 00/M01 A3035 RMK AO2 LTG DSNT W SLP216 T00001006 KBCK 210835Z AUTO 00000KT 10SM CLR M08/M08 A3032 RMK AO2 T10811081 KBCT 210247Z 2004KT 10SM FEW041 26/24 A3000 RMK RWY5/23 CLSD. LAST. KBDE 210753Z AUTO 18005KT 10SM OVC110 M01/M06 A3013 RMK AO2 SLP220 T10111056 $ KBDG 210835Z AUTO 07005KT 10SM 13/00 A3039 RMK AO1 T01290002 KBDH 210835Z AUTO 16003KT 10SM CLR M05/M07 A3025 RMK AO2 KBDL 210751Z 35010KT 10SM -RA FEW055 OVC070 08/04 A2960 RMK AO2 RAE23B44 SLP021 P0000 T00830044 KBDN 210835Z AUTO 21005KT 10SM CLR 06/M04 A3008 RMK AO2 KBDR 210752Z AUTO 34013G19KT 10SM SCT065 09/04 A2958 RMK AO2 SLP018 T00890039 KBDU 210830Z AUTO 00000KT 10SM CLR 07/M02 A3024 RMK AO2 KBEA 210835Z AUTO 03009KT 10SM OVC025 17/15 A3018 RMK AO2 T01730152 KBEC 210835Z AUTO 10003KT 10SM CLR 05/00 A3036 RMK AO2 T00470000 KBED 210756Z AUTO 36003KT 10SM OVC075 07/05 A2956 RMK AO2 SLP024 T00670050 KBEH 210753Z AUTO 33003KT 10SM OVC033 04/M03 A3028 RMK AO2 SLP258 T00441028 KBFD 210837Z AUTO 33010G18KT 10SM UP FEW018 BKN027 OVC033 01/M01 A2991 RMK AO2 UPB31 P0000 T00061006 KBFF 210753Z AUTO 03003KT 10SM CLR 04/01 A3018 RMK AO2 SLP205 T00440006 KBFI 210753Z 00000KT 1/8SM FG VV001 08/08 A3005 RMK AO2 SLP177 T00830078 401440061 KBFL 210754Z AUTO 00000KT 10SM FEW120 18/01 A2993 RMK AO2 SLP130 T01780006 403060128 KBFM 210753Z AUTO 36011KT 10SM FEW120 17/14 A3016 RMK AO2 SLP211 T01720144 KBFW 210826Z AUTO 00000KT 10SM CLR M04/M06 A3019 RMK AO2 KBGD 210751Z AUTO 21004KT 10SM CLR 09/03 A3038 RMK AO2 SLP266 T00940028 KBGE 210835Z AUTO 36006KT 10SM A3010 RMK AO2 KBGF 210835Z AUTO 01010KT 10SM CLR 04/M04 A3025 RMK A01 KBGM 210836Z AUTO 34009G19KT 10SM BKN024 OVC030 02/M01 A2978 RMK AO2 T00171011 KBGR 210753Z 00000KT 10SM FEW075 01/M01 A2958 RMK AO2 SLP016 T00061011 KBHB 210756Z AUTO 00000KT 10SM CLR 03/02 A2957 RMK AO2 SLP017 T00280022 KBHC 210835Z AUTO 33007KT 10SM CLR 14/10 A3004 RMK AO2 KBHK 210751Z AUTO 00000KT 10SM CLR 03/M01 A3002 RMK AO2 SLP166 T00281011 KBHM 210753Z 01010KT 10SM FEW250 10/06 A3020 RMK AO2 SLP224 T01000056 KBID 210756Z AUTO 33009KT 10SM -RA SCT060 OVC090 12/08 A2956 RMK AO2 RAB56 SLP012 P0000 T01170078 KBIE 210835Z AUTO 16005KT 10SM CLR 03/M02 A3035 RMK AO2 T00301020 KBIF 210758Z AUTO 19003KT 10SM OVC048 14/07 A3034 RMK AO2 SLP229 T01390069 $ KBIH 210756Z AUTO 32005KT 10SM CLR 03/M08 A3012 RMK AO2 SLP173 T00331083 402441006 KBIJ 210835Z AUTO 00000KT 10SM CLR 13/11 A3010 RMK AO2 KBIL 210753Z 23012KT 10SM CLR 13/M01 A3010 RMK AO2 SLP171 T01281011 KBIS 210752Z AUTO 18005KT 10SM CLR 02/M04 A3000 RMK AO2 SLP172 T00221039 KBIV 210753Z AUTO 35005KT 10SM OVC032 03/M03 A3027 RMK AO2 SLP257 T00331033 KBIX 210756Z AUTO 03014G20KT 10SM OVC075 18/13 A3014 RMK AO2 SLP209 T01750134 $ KBJC 210830Z AUTO 00000KT 10SM CLR 12/M05 A3025 RMK AO2 KBJI 210835Z AUTO 19006KT 10SM OVC110 M02/M06 A3014 RMK AO2 T10161060 KBJJ 210756Z AUTO 32011KT 10SM OVC040 02/M02 A3013 RMK AO2 SLP208 T00221022 KBKB 210654Z AUTO 00000KT 7SM FEW004 14/14 A3019 RMK AO2 SLP251 T01440144 $ KBKE 210753Z AUTO 00000KT 9SM CLR 02/M01 A3013 RMK AO2 SLP199 T00221011 402331033 KBKF 210758Z 19011KT 10SM CLR 09/M06 A3025 RMK AO2A SLP196 T00881062 KBKL 210753Z AUTO 33023G31KT 10SM -RA FEW031 BKN039 OVC055 06/M01 A3010 RMK AO2 PK WND 31034/0716 SLP195 P0000 T00561006 KBKN 210835Z AUTO 06004KT 10SM FEW047 07/04 A3040 RMK AO2 KBKS 210835Z AUTO 01010KT 10SM OVC011 18/16 A3015 RMK AO1 T01800160 KBKT 210835Z AUTO 29011G18KT 10SM CLR 08/M01 A2995 RMK AO1 T00771013 KBKV 210823Z AUTO 00000KT 8SM FEW023 SCT030 20/19 A2999 RMK AO2 T02000194 KBKW 210839Z AUTO 32009KT 1 3/4SM -SN BR BKN008 OVC015 01/M02 A3011 KBKX 210756Z AUTO 17011KT 10SM CLR M02/M06 A3021 RMK AO2 SLP262 T10171061 FZRANO KBLF 210752Z AUTO 32010G17KT 10SM OVC024 01/M03 A3008 RMK AO2 SLP187 T00061033 KBLH 210752Z AUTO 19005KT 10SM CLR 23/10 A2985 RMK AO2 SLP104 T02280100 403280172 KBLI 210833Z AUTO 00000KT 1/2SM R16/1800V2400FT FG VV001 06/04 A3005 RMK AO2 T00560039 KBLM 210756Z AUTO 29012KT 10SM FEW018 BKN120 08/06 A2965 RMK AO2 SLP044 T00830056 KBLU 210752Z AUTO 00000KT 10SM CLR 14/M04 A3016 RMK AO2 SLP135 T01441039 402000122 KBLV 210756Z AUTO 00000KT 10SM CLR 01/M06 A3039 RMK AO2 SLP295 T00081057 $ KBMC 210830Z AUTO 04003KT 10SM CLR 05/01 A3022 RMK AO1 T00520009 KBMG 210753Z AUTO 00000KT 10SM CLR M01/M04 A3034 RMK AO2 SLP275 T10111039 KBMI 210756Z AUTO 31004KT 10SM CLR M02/M06 A3038 RMK AO2 SLP314 T10171061 KBML 210752Z AUTO 00000KT 10SM BKN036 M01/M03 A2963 RMK AO2 SLP039 T10111028 KBMQ 210753Z AUTO 02009KT 10SM CLR 13/09 A3031 RMK AO2 SLP257 T01330089 KBMT 210835Z AUTO 02008G16KT 10SM OVC075 18/15 A3019 RMK AO2 T01800145 KBNA 210753Z 36008KT 10SM CLR 04/M05 A3033 RMK AO2 SLP270 T00391050 KBNL 210835Z AUTO 00000KT 10SM CLR 11/10 A3001 RMK AO2 KBNO 210753Z AUTO 26003KT 10SM CLR M01/M09 A3013 RMK AO2 SLP197 T10111089 402221050 KBNW 210835Z AUTO 23006KT 10SM CLR M02/M03 A3035 RMK AO2 KBOI 210753Z 00000KT 8SM CLR 08/03 A3010 RMK AO2 SLP182 T00780028 KBOK 210838Z AUTO 00000KT 1/4SM -RA FG OVC002 07/07 A3000 RMK AO2 P0000 KBOS 210754Z 32010KT 10SM BKN110 11/03 A2956 RMK AO2 SLP010 T01110033 KBOW 210835Z AUTO 30003KT 24/24 A2999 RMK AO2 KBPC 210835Z AUTO 24007KT 10SM CLR 05/03 A3037 RMK AO2 KBPG 210835Z AUTO 04006KT 10SM CLR 09/07 A3040 RMK AO2 T00900065 KBPI 210753Z AUTO 34003KT 10SM CLR M03/M08 A3034 RMK AO2 SLP238 T10281083 KBPK 210753Z AUTO 00000KT 10SM CLR 06/00 A3037 RMK AO2 SLP281 T00560000 KBPT 210753Z AUTO 02013KT 10SM OVC075 18/14 A3017 RMK AO2 SLP215 T01830144 KBQK 210835Z AUTO 32009G15KT 10SM CLR 16/12 A3000 RMK AO2 KBQP 210835Z AUTO 02003KT 10SM 11/07 A3026 RMK AO2 T01120070 KBQX 210835Z AUTO 05018G27KT 10SM OVC014 22/20 A3012 RMK A01 KBRD 210753Z AUTO 00000KT 10SM CLR M04/M08 A3022 RMK AO2 SLP250 T10441078 KBRL 210753Z AUTO 34003KT 10SM CLR M02/M06 A3039 RMK AO2 SLP296 T10171056 KBRO 210753Z AUTO 34012KT 10SM OVC006 21/20 A3008 RMK AO2 SLP186 T02060200 KBRY 210835Z AUTO 34003KT 10SM CLR 01/M03 A3033 RMK AO1 KBTA 210835Z AUTO 16007KT 10SM CLR 02/M04 A3032 RMK AO2 T00211036 KBTL 210753Z AUTO -RA RMK AO2 SLPNO PNO $ KBTM 210753Z AUTO 16004KT 10SM CLR 00/M04 A3021 RMK AO2 SLP209 T00001039 KBTP 210756Z AUTO 29008G19KT 10SM -RA OVC010 02/01 A3001 RMK AO2 RAB04 SLP175 P0000 T00220011 FZRANO KBTR 210753Z AUTO 04009KT 10SM OVC080 17/13 A3018 RMK AO2 SLP218 T01670128 KBTV 210754Z AUTO 32012KT 10SM OVC030 04/M02 A2974 RMK AO2 SLP071 T00441022 KBUF 210754Z 31007KT 10SM BKN035 BKN045 03/M02 A2995 RMK AO2 SLP147 T00331022 KBUR 210753Z 00000KT 10SM CLR 19/06 A2991 RMK AO2 SLP116 T01940056 403110144 $ KBUU 210835Z AUTO 00000KT 10SM CLR M04/M06 A3035 RMK AO2 T10401064 KBUY 210754Z AUTO 32010G16KT 10SM CLR 09/00 A3001 RMK AO2 PK WND 31029/0655 SLP160 T00940000 $ KBVE 210751Z AUTO 03011G25KT 10SM FEW021 OVC032 23/17 A3010 RMK AO2 PK WND 03026/0705 SLP192 T02280172 $ KBVN 210835Z AUTO 15005KT 10SM CLR 01/M03 A3028 RMK AO2 T00061032 KBVO 210753Z AUTO 00000KT 10SM CLR 02/01 A3040 RMK AO2 SLP290 T00220011 KBVS 210835Z AUTO 00000KT 4SM BR OVC005 05/05 A3005 RMK A01 KBVU 210835Z AUTO 00000KT 10SM FEW030 SCT070 OVC090 18/07 A2998 RMK AO2 LTG DSNT ALQDS KBVX 210756Z AUTO 05006KT 10SM CLR 08/01 A3038 RMK AO2 SLP288 T00830011 KBVY 210753Z AUTO 33009KT 10SM FEW080 SCT120 08/03 A2956 RMK AO2 SLP004 T00780033 KBWD 210835Z AUTO 32003KT 10SM CLR 10/09 A3034 RMK AO2 PWINO PNO KBWG 210753Z AUTO 01003KT 10SM CLR 03/M04 A3034 RMK AO2 SLP273 T00331039 KBWI 210754Z 28013G20KT 10SM FEW046 SCT110 BKN130 BKN150 BKN250 09/02 A2978 RMK AO2 PK WND 29028/0655 SLP085 T00890022 KBWP 210835Z AUTO 17012G16KT 10SM CLR M01/M07 A3014 RMK AO1 KBWW 210835Z AUTO 28005G10KT 10SM CLR 03/M01 A2990 RMK AO2 KBXA 210835Z AUTO 03004KT 10SM CLR 15/13 A3018 RMK AO2 T01510130 KBXK 210835Z AUTO 10010KT 10SM SCT100 25/10 A2992 RMK AO1 KBYG 210753Z AUTO 25006KT 8SM CLR 11/M01 A3014 RMK AO2 SLP167 T01111011 KBYI 210753Z AUTO 00000KT 10SM CLR 06/01 A3016 RMK AO2 SLP194 T00560011 KBYL 210835Z AUTO 33003KT 10SM OVC033 01/M02 A3029 RMK AO1 KBYS 210828Z AUTO 25007KT 10SM TSRA FEW036 SCT100 BKN150 20/05 A3000 RMK AO2 SLP131 WND DATA ESTMD KBYY 210835Z AUTO 03009KT 10SM CLR 17/16 A3016 RMK AO2 T01760160 KBZN 210756Z AUTO 15005KT 10SM CLR 02/M01 A3017 RMK AO2 SLP211 T00171011 KC07 210832Z AUTO 28007G15KT 240V360 10SM CLR 01/M03 A3051 RMK AO2 LTG DSNT SW KC09 210835Z AUTO 31004KT 10SM CLR M04/M06 A3037 RMK AO2 T10451065 KC29 210835Z AUTO 00000KT 10SM CLR M03/M05 A3035 RMK AO1 T10271049 KC35 210835Z AUTO 00000KT 10SM CLR M05/M05 A3034 RMK AO2 T10471050 KC62 210835Z AUTO 00000KT 10SM OVC035 01/M04 A3027 RMK AO2 T00151043 KC65 210835Z AUTO RMK A01 PNO KC75 210835Z AUTO 00000KT 10SM CLR M04/M06 A3038 RMK AO2 T10421060 KC83 210835Z AUTO 00000KT 6SM HZ CLR 12/06 A2994 RMK AO2 KCAD 210835Z AUTO 30006KT 10SM SCT034 OVC040 M01/M01 A3019 RMK AO2 T10101015 KCAE 210756Z 31009KT 10SM FEW250 16/06 A2998 RMK AO2 SLP149 T01610061 KCAG 210753Z AUTO 00000KT 10SM CLR M02/M04 A3037 RMK AO2 SLP268 T10221044 KCAK 210751Z 31015G20KT 10SM OVC045 03/M03 A3009 RMK AO2 SLP193 T00281028 KCAO 210755Z AUTO 25008KT 10SM CLR 06/02 A3037 RMK AO2 SLP255 T00560017 KCAR 210754Z AUTO 24005KT 10SM CLR 01/M03 A2952 RMK AO2 SLP002 T00111028 KCAV 210835Z AUTO 16003KT 10SM CLR M04/M06 A3034 RMK AO2 PWINO KCBE 210820Z AUTO 33016G23KT 10SM -DZ BKN029 BKN036 BKN060 05/01 A2999 RMK AO2 T00510010 KCBF 210835Z AUTO 16010KT 10SM CLR 01/M05 A3033 RMK AO2 KCBG 210835Z AUTO 16003KT 10SM CLR M04/M09 A3025 RMK AO2 KCBK 210835Z AUTO 17009KT 10SM CLR 06/01 A3027 RMK AO2 KCBM 210756Z AUTO 36009KT 10SM CLR 11/06 A3022 RMK AO2 SLP236 T01050059 $ KCCA 210835Z AUTO 00000KT 10SM CLR 06/03 A3036 RMK AO2 KCCB 210835Z AUTO 00000KT 10SM CLR 20/03 A2993 RMK AO2 KCCO 210835Z AUTO 36015G25KT 10SM CLR 12/01 A3011 RMK AO2 T01160011 KCCR 210753Z 00000KT 10SM CLR 12/09 A2997 RMK AO2 SLP135 T01220089 402830094 KCCU 210830Z AUTO 26009KT 10SM CLR 01/M09 A3057 RMK AO2 KCCY 210835Z AUTO 00000KT 10SM CLR M04/M06 A3034 RMK AO2 KCDA 210835Z AUTO 28005KT 10SM BKN029 OVC034 03/M01 A2968 RMK AO2 T00271015 KCDC 210753Z AUTO 17005KT 10SM SCT065 BKN095 12/05 A3021 RMK AO2 LTG DSNT E SLP182 T01220050 KCDD 210755Z AUTO 00000KT 10SM CLR M03/M06 A3018 RMK AO2 KCDH 210835Z AUTO 36003KT 10SM 08/07 A3030 RMK AO2 KCDI 210835Z AUTO 30003KT 10SM OVC037 03/M02 A3019 RMK AO2 T00301018 KCDJ 210752Z AUTO 00000KT M01/M03 A3043 RMK AO1 SLP312 T10111028 $ KCDN 210835Z AUTO 31005KT CLR 12/06 A3000 RMK AO2 KCDR 210753Z AUTO 21008KT 10SM CLR 11/M01 A3009 RMK AO2 SLP186 T01111006 KCDS 210753Z AUTO 34004KT 10SM CLR 09/06 A3038 RMK AO2 SLP279 T00940061 KCDW 210753Z AUTO 32007KT 10SM SCT029 OVC038 08/06 A2966 RMK AO2 SLP049 T00830061 KCEC 210756Z AUTO 17006KT 3/4SM BR VV002 09/09 A3000 RMK AO2 SLP159 T00890089 401170089 KCEF 210826Z AUTO 35007KT 10SM -RA FEW005 BKN023 BKN028 OVC060 07/04 A2960 RMK AO2 BKN023 V OVC SLP030 KCEU 210754Z AUTO 31006KT 10SM CLR 11/02 A3002 RMK AO2 SLP161 T01110017 KCEW 210753Z AUTO 01006KT 10SM CLR 16/12 A3013 RMK AO2 SLP201 T01560122 KCEY 210835Z AUTO 01005KT 10SM CLR 02/M05 A3035 RMK AO1 KCEZ 210753Z AUTO 00000KT 10SM CLR 07/M01 A3035 RMK AO2 SLP229 T00671011 KCFD 210835Z AUTO 36004KT 10SM CLR 13/12 A3028 RMK AO2 T01340120 KCFE 210835Z AUTO 00000KT 10SM CLR M04/M07 A3026 RMK AO2 T10421066 KCFJ 210835Z AUTO 30003KT 10SM CLR M04/M06 A3034 RMK AO2 T10371056 KCFS 210835Z AUTO 32010G14KT 10SM OVC036 02/M04 A3019 RMK AO2 T00181045 KCFV 210752Z AUTO 00000KT 10SM CLR 05/01 A3039 RMK AO2 SLP290 T00500011 KCGC 210835Z AUTO 34004KT 10SM CLR 22/20 A2999 RMK AO2 KCGE 210820Z AUTO 30014G25KT 10SM FEW042 SCT049 BKN075 11/02 A2980 RMK A01 KCGI 210753Z AUTO 02005KT 10SM CLR 03/M05 A3039 RMK AO2 SLP290 T00331050 KCGS 210822Z AUTO 28007KT 240V310 10SM CLR 09/01 A2982 RMK AO1 T00850011 KCGZ 210756Z AUTO 08013KT 10SM FEW110 24/10 A2995 RMK AO2 SLP129 T02440100 $ KCHA 210753Z AUTO 01014G24KT 10SM CLR 08/M03 A3022 RMK AO2 SLP231 T00781033 KCHD 210347Z 08012KT 10SM SCT100 27/10 A2991 RMK LAST KCHK 210835Z AUTO 00000KT 10SM CLR 07/06 A3034 RMK AO2 T00680064 KCHO 210753Z AUTO 30007KT 260V030 10SM FEW050 SCT065 08/M01 A2992 RMK AO2 SLP129 T00781011 KCHS 210756Z 32010KT 10SM FEW250 16/12 A2995 RMK AO2 SLP143 T01610117 $ KCIC 210835Z AUTO 01004KT 10SM CLR 15/00 A2995 RMK AO1 KCID 210752Z AUTO 00000KT 10SM CLR M04/M07 A3036 RMK AO2 SLP289 T10441067 KCIN 210835Z AUTO 00000KT 10SM CLR M03/M05 A3034 RMK AO2 KCIR 210835Z AUTO 00000KT 10SM CLR 02/M04 A3038 RMK AO2 T00161043 KCIU 210756Z AUTO 32006KT 10SM OVC028 M01/M03 A3015 RMK AO2 UPB36E49SNE21 SLP240 P0000 T10061033 FZRANO KCJR 210835Z AUTO 29010G15KT 10SM BKN044 OVC050 09/01 A2993 RMK AO2 T00890005 KCKB 210753Z AUTO 30009G15KT 10SM BKN019 OVC023 05/02 A3007 RMK AO2 SLP179 T00500017 KCKC 210835Z AUTO 00000KT 10SM SCT110 M04/M09 A3015 RMK AO2 KCKF 210835Z AUTO 00000KT 10SM CLR 13/10 A3009 RMK AO2 T01300100 KCKI 210835Z AUTO 29003KT 10SM CLR 11/11 A2997 RMK AO2 KCKM 210835Z AUTO 01010KT 10SM BKN016 09/07 A3031 RMK A01 KCKN 210835Z AUTO 18012KT 10SM OVC110 01/M06 A3008 RMK AO2 KCKP 210835Z AUTO 17005KT 10SM CLR M03/M05 A3031 RMK AO2 T10321050 KCKV 210752Z AUTO 01005KT 10SM CLR 02/M05 A3035 RMK AO2 SLP277 T00171050 KCKZ 210835Z AUTO 30005KT 10SM BKN041 BKN050 06/05 A2973 RMK AO2 KCLE 210751Z 30015G23KT 10SM SCT033 OVC041 04/M03 A3014 RMK AO2 SLP211 T00441033 $ KCLI 210835Z AUTO 27003KT 10SM SCT039 M02/M07 A3030 RMK AO2 T10221067 KCLK 210835Z AUTO 33004KT 10SM CLR 06/04 A3038 RMK AO2 KCLL 210753Z AUTO 02009KT 10SM CLR 15/13 A3024 RMK AO2 SLP238 T01500128 KCLM 210753Z AUTO 16003KT 10SM CLR 07/05 A3007 RMK AO2 SLP182 T00720050 401610028 KCLS 210835Z AUTO 00000KT M1/4SM FG 06/06 A3003 RMK AO2 KCLT 210752Z 34010G16KT 10SM CLR 12/02 A3000 RMK AO2 SLP155 T01170022 KCLW 210835Z AUTO 32007KT 10SM SCT023 SCT033 25/21 A2998 RMK AO2 KCMA 210755Z 00000KT 10SM CLR 16/08 A2988 RMK AO2 SLP126 T01560078 403440117 KCMD 210835Z AUTO 01009G17KT 10SM CLR 07/M03 A3024 RMK AO2 T00651034 KCMH 210751Z 31016G20KT 10SM BKN032 03/M04 A3021 RMK AO2 SLP232 T00281039 KCMI 210753Z AUTO 00000KT 10SM CLR M03/M07 A3037 RMK AO2 SLP290 T10331067 KCMR 210835Z AUTO 15011KT 10SM CLR 09/05 A3024 RMK AO2 KCMX 210753Z AUTO 24003KT 10SM OVC033 00/M06 A3020 RMK AO2 SLP239 T00001061 KCMY 210835Z AUTO 00000KT 10SM CLR M07/M07 A3034 RMK AO2 T10701075 KCNB 210835Z AUTO 10007KT 10SM CLR M01/M04 A3021 RMK AO2 T10131037 KCNC 210835Z AUTO 24006KT 10SM CLR M02/M04 A3038 RMK AO2 KCNI 210830Z AUTO 32009G17KT 290V350 10SM CLR 09/M03 A3010 RMK AO2 KCNK 210755Z AUTO 15006KT 10SM CLR 04/M02 A3034 RMK AO2 SLP275 T00391017 $ KCNM 210753Z AUTO 00000KT 10SM BKN110 12/11 A3037 RMK AO2 SLP250 T01220111 KCNO 210753Z 01003KT 7SM CLR 17/06 A2993 RMK AO2 SLP129 T01720056 403390106 KCNU 210752Z AUTO 09004KT 10SM CLR 05/00 A3040 RMK AO2 SLP290 T00500000 $ KCNW 210355Z 01005KT 10SM SKC 15/10 A3029 KCNY 210753Z AUTO 00000KT 10SM OVC095 07/06 A3026 RMK AO2 SLP221 T00720061 KCOD 210756Z AUTO 00000KT 10SM CLR 07/M01 A3018 RMK AO2 SLP199 T00721011 KCOE 210756Z AUTO 07009KT 10SM CLR 06/03 A3010 RMK AO2 SLP213 T00610028 402060006 PNO / KCOF 210756Z AUTO 30008KT 10SM CLR 25/25 A2995 RMK AO2 SLP146 T02470245 $ KCOM 210835Z AUTO 36005KT 10SM CLR 11/07 A3034 RMK AO2 T01060073 KCON 210751Z AUTO 32007KT 10SM BKN085 OVC110 06/02 A2960 RMK AO2 SLP024 T00560017 KCOQ 210835Z AUTO 22004KT 10SM CLR M03/M08 A3021 RMK AO2 KCOS 210754Z 01007KT 10SM FEW110 03/M04 A3031 RMK AO2 SLP228 T00281044 KCOT 210753Z AUTO 04007KT 10SM OVC035 18/16 A3022 RMK AO2 SLP228 T01830156 $ KCOU 210754Z AUTO 00000KT 10SM CLR 01/M05 A3041 RMK AO2 SLP299 T00111050 KCPC 210815Z AUTO 00000KT 10SM CLR 15/07 A2993 RMK AO2 T01460069 KCPK 210835Z AUTO 32010G15KT 10SM SCT075 BKN085 11/04 A2986 RMK AO2 T01120044 KCPR 210753Z AUTO 23010KT 10SM CLR 08/M02 A3020 RMK AO2 SLP187 T00831022 KCPS 210353Z AUTO 02008KT 10SM CLR 06/M05 A3039 RMK AO2 SLP290 T00561050 TSNO $ KCPT 210835Z AUTO 01007KT 10SM CLR 11/09 A3034 RMK AO2 KCPU 210830Z AUTO 00000KT 10SM CLR 12/00 A3000 RMK AO2 T01231002 KCPW 210830Z AUTO 23009KT 10SM CLR M02/M05 A3063 RMK AO2 LTG DSNT SW KCQB 210835Z AUTO 01003KT 10SM CLR 07/04 A3037 RMK AO2 T00680039 KCQC 210753Z AUTO 15005KT 10SM CLR 04/00 A3046 RMK AO2 SLP268 T00390000 KCQF 210835Z AUTO 01008KT 10SM BKN085 15/13 A3013 RMK AO2 KCQM 210835Z AUTO 20003KT 10SM CLR M03/M07 A3017 RMK AO2 KCQT 210747Z AUTO 00000KT 10SM CLR 21/08 A2990 RMK AO2 SLP120 T02110078 403220161 $ KCQX 210752Z AUTO 00000KT 10SM CLR 06/05 A2955 RMK AO2 SLP008 T00610050 KCRE 210753Z AUTO 34006KT 10SM CLR 17/08 A2991 RMK AO1 SLP129 T01670083 KCRG 210800Z AUTO 33016G22KT 10SM SCT014 SCT022 21/15 A2998 RMK AO2 T02110150 KCRP 210751Z 02015G19KT 10SM OVC012 18/16 A3015 RMK AO2 SLP208 T01830161 $ KCRQ 210753Z AUTO 00000KT 10SM CLR 17/08 A2991 RMK AO2 SLP124 T01670078 402780161 KCRS 210753Z AUTO CLR 11/09 A3030 RMK AO2 SLP260 T01060094 $ KCRW 210754Z 32012G25KT 9SM -DZ SCT017 BKN025 OVC033 04/01 A3018 RMK AO2 SLP219 P0000 T00440006 $ KCRX 210835Z AUTO 02008G13KT 10SM CLR 07/M02 A3030 RMK AO2 KCSG 210751Z AUTO 32003KT 10SM CLR 12/10 A3009 RMK AO2 SLP187 T01220100 $ KCSM 210753Z AUTO 25008KT 10SM CLR 10/05 A3038 RMK AO2 SLP278 T01000050 KCSQ 210835Z AUTO 19004KT 10SM CLR M03/M05 A3038 RMK AO2 KCSV 210753Z AUTO 35010KT 10SM CLR 01/M06 A3024 RMK AO2 SLP242 T00111056 KCTB 210756Z AUTO 03011KT 10SM CLR 03/M06 A3011 RMK AO2 SLP189 T00281061 KCTJ 210835Z AUTO 35004KT 10SM CLR 09/03 A3016 RMK AO2 T00880029 KCTY 210835Z AUTO 35010KT 10SM SCT015 BKN049 21/18 A3001 RMK AO2 T02060185 KCTZ 210820Z AUTO 31007KT 280V340 10SM CLR 13/08 A2992 RMK AO2 T01300078 KCUB 210753Z AUTO 33005KT 10SM CLR 16/06 A2999 RMK AO2 SLP152 T01560061 KCUH 210835Z AUTO 00000KT 10SM CLR 08/04 A3036 RMK AO2 T00800038 KCUL 210832Z AUTO 36003KT 10SM CLR M01/M06 A3038 RMK AO2 KCUT 210753Z AUTO 00000KT 10SM CLR 07/M03 A3018 RMK AO2 SLP187 T00721033 KCVB 210835Z AUTO 03008KT 10SM CLR 18/10 A3025 RMK AO2 T01750100 KCVC 210835Z AUTO 31006KT 10SM CLR 11/05 A3006 RMK AO2 PNO KCVG 210752Z 32007KT 10SM BKN036 02/M01 A3029 RMK AO2 SLP256 T00221006 KCVH 210835Z AUTO 00000KT 10SM CLR 10/08 A2998 RMK A01 KCVN 210756Z AUTO 15005KT 10SM CLR 06/04 A3041 RMK AO2 SLP287 T00610044 KCVO 210756Z AUTO 00000KT 10SM CLR 05/04 A2999 RMK AO2 SLP157 T00500039 402220017 KCVS 210758Z 00000KT 10SM CLR 07/04 A3042 RMK AO2A SLP277 T00700041 $ KCVW 210840Z AUTO 03015G22KT 10SM OVC050 18/15 A3014 RMK A01 KCVX 210835Z AUTO 31012G16KT 10SM OVC035 02/M03 A3023 RMK AO2 T00221029 KCWA 210835Z AUTO 25003KT 10SM CLR M03/M06 A3028 RMK AO2 KCWC 210835Z AUTO 28004KT 10SM CLR 10/08 A3037 RMK AO2 T00950084 KCWF 210835Z 04009G17KT 10SM OVC080 17/14 A3018 RMK AO2 T01750140 PWINO KCWI 210756Z AUTO 28004KT 10SM CLR M05/M06 A3039 RMK AO2 SLP321 T10501061 FZRANO KCWN 210758Z AUTO 00000KT 10SM CLR 09/M09 A3028 RMK AO2 LTG DSNT SW SLP108 T00901090 $ KCWV 210835Z AUTO 26005KT 10SM CLR 15/11 A3003 RMK AO2 T01510110 KCXE 210835Z AUTO 29006KT 10SM CLR 07/M02 A2999 RMK AO1 T00721019 KCXO 210753Z AUTO 01004KT 10SM CLR 16/16 A3023 RMK AO2 SLP233 T01560156 KCXP 210835Z AUTO 28003KT 10SM CLR 05/M08 A3014 RMK AO2 LTG DSNT SE KCXU 210835Z AUTO 00000KT 10SM CLR A3009 RMK AO1 KCXW 210835Z AUTO 03005KT 10SM FEW040 07/05 A3035 RMK A01 KCXY 210837Z AUTO 28011KT 10SM -RA BKN027 OVC039 08/04 A2981 RMK AO2 RAB15 PRESRR P0000 T00830039 KCYS 210753Z AUTO 28011KT 10SM CLR 06/M02 A3026 RMK AO2 SLP196 T00611022 KCZL 210835Z AUTO 01010G20KT 10SM CLR 08/M01 A3018 RMK AO2 KCZT 210835Z AUTO 01005KT 10SM OVC038 18/15 A3023 RMK AO2 KCZZ 210752Z AUTO 04005KT 10/02 A2996 RMK AO1 SLP120 T01000022 402720078 KD07 210756Z AUTO 17015KT 04/M01 A2999 RMK AO1 SLP170 T00391011 $ KD25 210835Z AUTO 00000KT 10SM SCT120 M05/M05 A3022 RMK AO2 T10481048 KD39 210835Z AUTO 17003KT 10SM CLR M05/M07 A3021 RMK AO2 T10501072 KD50 210835Z AUTO 31008G14KT 10SM CLR 05/M03 A3001 RMK AO2 KD55 210835Z AUTO 19019G24KT 10SM CLR M00/M06 A2992 RMK AO2 KD57 210835Z AUTO 25005KT 10SM CLR 01/M04 A2997 RMK AO2 PWINO KD60 210835Z AUTO 31009KT 10SM CLR 02/M02 A3000 RMK AO2 KD73 210830Z AUTO 34004KT 10SM CLR 11/04 A3007 RMK AO2 T01100043 KD95 210835Z AUTO 31007G15KT 10SM OVC038 02/M03 A3019 RMK AO2 T00151030 KDAA 210756Z AUTO 29014G24KT 10SM FEW130 10/03 A2983 RMK AO2 SLP105 T00980029 TSNO $ KDAB 210753Z 25004KT 10SM CLR 21/21 A2996 RMK AO2 SLP144 T02110211 KDAG 210750Z AUTO 24006KT 10SM CLR 18/07 A2996 RMK AO2 LTG DSNT NE SLP126 T01780067 402830089 KDAL 210753Z 35005KT 10SM FEW200 SCT250 12/09 A3031 RMK AO2 SLP262 T01170089 KDAN 210753Z AUTO 31010G19KT 10SM CLR 07/M03 A3003 RMK AO2 SLP161 T00721028 KDAW 210751Z AUTO 34003KT 10SM OVC100 06/03 A2957 RMK AO2 SLP011 T00610028 KDAY 210756Z COR 30007KT 10SM FEW050 00/M02 A3026 RMK AO2 SLP253 T00001022 KDBN 210835Z AUTO 31005KT 10SM CLR 11/09 A3007 RMK AO2 KDBQ 210753Z AUTO 00000KT 10SM CLR M04/M07 A3036 RMK AO2 SLP295 T10391072 KDCA 210752Z 30020G28KT 10SM FEW020 BKN110 BKN200 11/01 A2982 RMK AO2 PK WND 29028/0744 SLP098 T01060006 KDCM 210835Z AUTO 32006KT 10SM CLR 11/00 A3002 RMK AO2 KDCU 210753Z AUTO 01011G18KT 10SM -RA CLR 08/M02 A3025 RMK AO2 SLP240 P0000 T00781017 KDCY 210835Z AUTO 32003KT 10SM CLR M01/M06 A3036 RMK AO2 T10111061 KDDC 210752Z AUTO 17007KT 10SM CLR 08/02 A3033 RMK AO2 SLP260 T00780022 $ KDDH 210754Z AUTO 33007KT 10SM BKN039 OVC047 07/01 A2964 RMK AO2 SLP039 T00670006 KDEC 210754Z AUTO 00000KT 10SM CLR M01/M07 A3038 RMK AO2 SLP292 T10111067 KDED 210835Z AUTO 29005KT 10SM CLR 22/21 A2996 RMK AO2 KDEH 210835Z AUTO 00000KT 10SM CLR M03/M06 A3031 RMK AO2 KDEN 210753Z 23007KT 10SM CLR 07/M06 A3024 RMK AO2 SLP195 T00721056 $ KDEQ 210839Z AUTO 00000KT 3/4SM BR VV002 07/07 A3030 RMK AO2 T00670067 $ KDET 210753Z 33013G22KT 10SM OVC036 03/M06 A3018 RMK AO2 SLP224 T00281056 KDEW 210753Z AUTO 33003KT 10SM CLR 00/M01 A3009 RMK AO2 SLP198 T00001011 401891039 KDFI 210753Z AUTO 32010KT 10SM OVC044 02/M04 A3025 RMK AO2 SLP249 T00221044 KDFW 210753Z 33006KT 10SM SCT200 SCT250 11/09 A3030 RMK AO2 SLP257 T01110094 KDGW 210753Z AUTO 30003KT 10SM CLR M01/M02 A3018 RMK AO2 SLP204 T10061022 KDHN 210753Z AUTO 33005KT 10SM CLR 14/12 A3014 RMK AO2 SLP202 T01390117 KDHT 210753Z AUTO 24005KT 10SM CLR 04/02 A3038 RMK AO2 SLP265 T00440017 KDIJ 210756Z AUTO 08009KT 10SM CLR 02/M03 A3031 RMK AO2 SLP242 T00221033 KDIK 210756Z AUTO 29007KT 10SM CLR 04/M02 A2996 RMK AO2 SLP156 T00391017 KDKB 210835Z AUTO 28006KT 10SM CLR M04/M06 A3037 RMK AO2 T10371065 KDKK 210753Z AUTO 34019G25KT 10SM SCT028 BKN039 OVC049 04/M01 A2998 RMK AO2 PK WND 34027/0740 SLP158 T00391011 KDKR 210835Z AUTO 03003KT 10SM 12/10 A3029 RMK AO2 KDKX 210835Z AUTO 00000G10KT 10SM CLR 05/M04 A3026 RMK A01 KDLF 210756Z AUTO 31006KT 10SM OVC100 M A3030 RMK AO2 SLPNO ALSTG ESTMD $ KDLH 210755Z 27004KT 10SM FEW120 M02/M07 A3022 RMK AO2 SLP253 T10221072 KDLL 210835Z AUTO 00000KT 10SM CLR M05/M07 A3034 RMK AO2 T10491071 KDLN 210753Z AUTO 20010KT 10SM CLR 06/M03 A3019 RMK AO2 SLP197 T00561028 KDLO 210835Z AUTO 12003KT 10SM CLR 10/03 A2993 RMK AO2 T01020033 KDLP 210835Z AUTO 06020G33KT 10SM FEW022 OVC055 22/17 A3006 RMK A01 KDLS 210753Z AUTO 00000KT 8SM CLR 06/03 A3008 RMK AO2 SLP185 T00610033 402060017 KDLZ 210835Z AUTO 33011G17KT 10SM OVC034 01/M03 A3023 RMK AO2 KDMA 210758Z AUTO 12020KT 10SM CLR 21/09 A3003 RMK AO2 PK WND 12032/01 SLP130 T02140086 $ KDMH 210754Z AUTO 10/02 A2979 RMK AO1 SLP086 T01000022 KDMN 210753Z AUTO 08010KT 10SM OVC042 14/06 A3034 RMK AO2 SLP218 T01440061 $ KDMO 210753Z AUTO 00000KT 10SM CLR 01/M04 A3043 RMK AO2 SLP307 T00111044 KDMW 210820Z AUTO 28009KT 10SM BKN034 OVC045 08/02 A2980 RMK AO2 KDNA 210835Z AUTO 12007KT 10SM BKN048 OVC055 15/05 A3034 RMK AO2 KDNL 210753Z AUTO 30005KT 10SM CLR 14/08 A3000 RMK AO2 SLP156 T01390083 KDNN 210835Z AUTO 35018G26KT 10SM CLR 07/M01 A3019 RMK AO2 KDNS 210835Z AUTO 00000KT 10SM CLR M01/M06 A3035 RMK AO2 KDNV 210835Z AUTO 29006KT 10SM CLR M02/M05 A3034 RMK AO2 T10221055 KDOV 210756Z AUTO 26010KT 10SM FEW100 11/05 A2972 RMK AO2 SLP067 T01060054 $ KDPA 210752Z 29006KT 10SM CLR M03/M07 A3034 RMK AO2 SLP283 T10281067 KDPL 210820Z AUTO 30006KT 10SM CLR 13/06 A2991 RMK AO2 KDQH 210835Z AUTO 33006KT 10SM CLR 15/11 A3007 RMK AO2 KDRA 210756Z AUTO 32004KT 10SM CLR 16/02 A3004 RMK AO2 SLP138 T01560017 402610111 KDRI 210835Z AUTO 01004KT 10SM CLR 14/13 A3023 RMK AO2 T01350128 KDRM 210835Z AUTO 32006KT 10SM OVC036 00/M07 A3015 RMK AO2 T00001075 KDRO 210753Z AUTO VRB03KT 10SM CLR 04/M01 A3041 RMK AO2 SLP256 T00441006 KDRT 210753Z AUTO 00000KT 10SM BKN100 OVC120 17/17 A3029 RMK AO2 SLP246 T01720167 KDSF 210835Z AUTO 02007G14KT 350V070 1SM HZ SCT006 BKN015 OVC022 26/22 A3003 RMK A01 KDSM 210754Z 25003KT 10SM CLR M01/M03 A3038 RMK AO2 SLP293 T10061033 KDSV 210823Z AUTO 32017G21KT 10SM SCT026 BKN031 OVC044 04/M01 A2992 RMK AO2 T00391006 KDTA 210835Z AUTO 05006KT 10SM CLR 08/02 A3021 RMK AO1 KDTL 210835Z AUTO 16009KT 10SM CLR 00/M05 A3013 RMK AO2 KDTN 210753Z AUTO 36006KT 10SM CLR 13/10 A3027 RMK AO2 SLP249 T01280100 KDTO 210753Z AUTO 32005KT 10SM 09/08 A3032 RMK AO2 SLP264 T00940078 $ KDTS 210753Z AUTO 36015G23KT 10SM CLR 18/13 A3010 RMK AO2 SLP193 T01780128 KDTW 210753Z 32012KT 10SM OVC030 03/M04 A3019 RMK AO2 SLP228 T00281039 $ KDUB 210835Z AUTO 28004KT 10SM CLR 05/M06 A3029 RMK AO2 KDUC 210835Z AUTO 00000KT 10SM CLR 08/07 A3036 RMK AO2 T00790069 KDUG 210756Z AUTO 10013KT 10SM CLR 16/09 A3018 RMK AO2 SLP165 T01610094 KDUH 210835Z AUTO 31007KT 10SM OVC041 03/M03 A3023 RMK AO2 T00321033 KDUJ 210807Z AUTO 31010G22KT 10SM FEW013 SCT043 BKN055 01/M01 A2991 RMK AO2 T00111011 KDUX 210835Z AUTO 20008KT 10SM CLR 07/03 A3037 RMK AO2 T00670033 KDVK 210830Z AUTO 33005KT 10SM CLR 00/M02 A3032 RMK AO2 KDVL 210756Z AUTO 18012KT 10SM CLR 02/M06 A2997 RMK AO2 SLP180 T00171061 FZRANO KDVN 210752Z AUTO 00000KT 10SM CLR M04/M07 A3040 RMK AO2 SLP298 T10441067 KDVO 210835Z AUTO 33004KT 6SM BR CLR 08/07 A2998 RMK AO2 KDVP 210759Z AUTO 00000KT 10SM CLR M04/M12 A3026 RMK AO2 KDVT 210753Z 11008KT 10SM BKN120 25/09 A2995 RMK AO2 SLP117 T02500089 KDWH 210753Z AUTO 02006KT 10SM CLR 16/16 A3021 RMK AO2 SLP228 T01610156 KDWU 210822Z AUTO 32008KT 10SM SCT028 BKN034 04/01 A3025 KDWX 210835Z AUTO 12003KT 10SM CLR 02/M04 A3039 RMK AO2 T00191041 KDXR 210753Z AUTO 00000KT 10SM BKN046 OVC060 07/04 A2962 RMK AO2 SLP029 T00720039 KDXX 210835Z AUTO 16007KT 10SM CLR M02/M05 A3019 RMK AO2 KDYB 210835Z AUTO 31004KT 10SM CLR 13/11 A2999 RMK AO1 KDYL 210754Z AUTO VRB05KT 10SM CLR 07/04 A2968 RMK AO2 SLP052 T00720044 KDYR 210756Z AUTO 02008KT 10SM CLR 06/M03 A3037 RMK AO2 SLP300 T00561033 PNO $ KDYS 210756Z AUTO 23003KT 10SM FEW230 09/06 A3036 RMK AO2 SLP265 T00910064 KDYT 210835Z AUTO 22008KT 10SM CLR M01/M04 A3024 RMK AO2 KDZB 210835Z AUTO 00000KT 10SM CLR 14/09 A3031 RMK AO2 T01400093 KDZJ 210835Z AUTO 32009G19KT 260V350 10SM CLR 05/M03 A3011 RMK AO2 T00521029 KE11 210835Z AUTO 00000KT 10SM OVC100 10/07 A3039 RMK AO2 T00980072 KE16 210815Z AUTO 35004KT 10SM SCT019 12/10 A3000 RMK AO2 KE38 210835Z AUTO 00000KT 10SM BKN008 BKN015 OVC026 11/10 A3043 RMK AO2 P0002 T01050099 KE80 210835Z AUTO 14006KT 10SM SCT095 12/03 A3037 RMK AO2 T01200030 KEAN 210835Z AUTO 15008KT 10SM CLR 09/M01 A3018 RMK AO2 T00931013 KEAR 210757Z AUTO 18006KT 10SM CLR 02/M03 A3029 RMK AO2 SLP261 T00221033 FZRANO KEAT 210755Z AUTO 30007KT 10SM CLR 07/03 A3010 RMK AO2 SLP194 T00720028 401830022 KEAU 210756Z AUTO 00000KT 10SM CLR M04/M07 A3031 RMK AO2 SLP274 T10391067 KEBA 210835Z AUTO 29003KT 10SM CLR 10/05 A3006 RMK AO2 T00990053 KEBG 210835Z AUTO 35010KT 7SM -DZ OVC007 19/18 A3013 RMK AO2 P0004 T01880175 KEBS 210835Z AUTO 18004KT 10SM CLR M04/M05 A3033 RMK AO2 KECG 210754Z AUTO 32020G27KT 10SM CLR 13/07 A2982 RMK AO2 PK WND 33027/0749 SLP098 T01280072 KECP 210253Z 32009KT 10SM OVC110 23/21 A3004 KECS 210835Z AUTO 00000KT 10SM CLR 05/M01 A3014 RMK AO2 KECU 210835Z AUTO 05011G17KT 10SM SCT090 OVC110 14/10 A3035 RMK AO2 KEDC 210835Z AUTO 02011KT 10SM CLR 15/10 A3027 RMK AO2 KEDE 210820Z AUTO 34023G29KT 10SM CLR 14/08 A2985 RMK AO2 T01400075 KEDJ 210815Z AUTO 32007KT 10SM OVC033 00/M04 A3025 RMK AO1 KEDN 210835Z AUTO 32003KT 10SM CLR 13/13 A3012 RMK AO2 T01340133 KEDU 210835Z AUTO 00000KT 10SM CLR 11/07 A2994 RMK AO1 KEDW 210758Z AUTO 28003KT 4SM HZ SCT090 15/M03 A2997 RMK AO2 SLP131 T01541026 402790047 $ KEED 210756Z AUTO 13003KT 10SM SCT095 SCT110 25/08 A2990 RMK AO2 LTG DSNT N AND NW RAE0658 SLP094 P0000 T02500078 403280217 $ KEEN 210756Z AUTO 04005KT 10SM BKN075 OVC090 06/03 A2962 RMK AO2 SLP050 T00610028 $ KEEO 210753Z AUTO 07004KT 10SM CLR 01/M03 A3038 RMK AO2 SLP246 T00061028 KEET 210753Z AUTO 36008G14KT 10SM CLR 12/06 A3016 RMK AO2 SLP210 T01170056 KEFD 210550Z 02011KT 10SM SCT010 OVC050 18/16 A3020 KEFK 210835Z AUTO 33006KT 10SM SCT025 OVC036 02/M02 A2970 RMK AO2 T00171020 KEFT 210835Z AUTO 30003KT 10SM CLR M01/M08 A3035 RMK AO2 T10061084 KEGE 210756Z AUTO 00000KT 10SM CLR 00/M04 A3044 RMK AO2 SLP305 T00001044 FZRANO KEGI 210756Z AUTO 36011KT 10SM CLR 16/13 A3011 RMK AO2 SLP196 T01580125 $ KEGV 210835Z AUTO 00000KT 10SM CLR M02/M05 A3021 RMK AO2 T10241053 KEHA 210835Z AUTO 24011KT 10SM CLR 10/05 A3032 RMK AO2 T00970050 KEHO 210820Z AUTO 36010G17KT 330V030 10SM CLR 10/M05 A3004 RMK AO2 T00991053 KEHR 210756Z AUTO 02008KT 10SM CLR 03/M06 A3038 RMK AO2 SLP300 T00281056 KEHY 210835Z AUTO 35004KT 10SM CLR 07/M07 A3030 RMK AO2 PWINO KEIK 210830Z AUTO 00000KT 10SM CLR 01/M01 A3029 RMK AO2 T00141006 KEIR 210835Z AUTO 04028G34KT 10SM BKN017 BKN022 OVC055 23/20 A3008 RMK A01 KEKN 210800Z AUTO 31011KT 3SM -SN BR OVC014 01/M01 A3004 KEKO 210756Z AUTO 00000KT 10SM CLR 03/M05 A3019 RMK AO2 SLP203 T00281050 402281028 KEKQ 210756Z AUTO 02012KT 10SM BKN033 02/M03 A3032 RMK AO2 SLP299 T00221028 PNO $ KEKS 210835Z AUTO 14006KT 10SM CLR 04/M03 A3024 RMK AO2 KEKX 210835Z AUTO 36004KT 10SM CLR 01/M05 A3033 RMK AO2 T00121048 KEKY 210756Z AUTO 01011KT 10SM CLR 11/06 A3018 RMK AO2 SLP237 T01110061 KELA 210835Z AUTO 02008KT 10SM OVC060 17/16 A3020 RMK AO2 T01700158 KELD 210753Z AUTO 36006KT 10SM CLR 11/08 A3028 RMK AO2 SLP253 T01060083 KELK 210835Z AUTO 29003KT 10SM CLR 09/05 A3036 RMK AO2 T00860045 KELM 210835Z AUTO 10SM FEW026 BKN034 OVC046 04/00 A2986 RMK AO2 RAE29 P0001 T00390000 KELN 210753Z AUTO 00000KT 7SM CLR 06/02 A3009 RMK AO2 SLP191 T00560017 402061006 KELO 210835Z AUTO 00000KT 10SM CLR M03/M07 A3016 RMK AO2 KELP 210751Z 11003KT 10SM FEW044 SCT090 BKN190 14/06 A3034 RMK AO2 SLP226 T01390056 KELY 210753Z AUTO 00000KT 10SM FEW085 03/M02 A3025 RMK AO2 SLP194 T00281022 401831050 KELZ 210832Z AUTO 32015G23KT 10SM FEW014 OVC037 01/M01 A2990 RMK AO2 UPE19SNB03E15 P0001 T00111011 KEMK 210835Z AUTO 11026KT 10SM FEW017 SCT023 BKN033 26/22 A3006 RMK A01 KEMM 210835Z AUTO 35004KT 10SM CLR 00/M05 A3034 RMK AO2 KEMP 210753Z AUTO 11006KT 10SM CLR 03/M02 A3038 RMK AO2 SLP290 T00331017 KEMT 210257Z 18005KT 10SM CLR 24/03 A2988 KEMV 210817Z AUTO 29007G16KT 10SM SCT050 SCT060 SCT090 11/03 A2993 RMK AO2 KEND 210756Z AUTO 00000KT 10SM CLR 08/05 A3036 RMK AO2 SLP280 T00770050 VISNO RWY35C $ KENL 210835Z AUTO 00000KT 10SM CLR M01/M04 A3038 RMK AO2 T10111037 KENV 210756Z AUTO 00000KT 10SM CLR 08/00 A3020 RMK AO2 SLP218 T00780000 KENW 210753Z AUTO 29004KT 10SM CLR M03/M06 A3033 RMK AO2 SLP281 T10331056 KEOD 210758Z AUTO 01003KT 9SM CLR 03/M04 A3035 RMK AO2 SLP281 T00281045 KEOK 210835Z AUTO 00000KT 10SM CLR M03/M04 A3037 RMK AO2 KEPH 210753Z AUTO 33006KT 10SM CLR 10/02 A3007 RMK AO2 SLP182 T01000017 402000011 KEQA 210835Z AUTO 13005KT 10SM CLR 06/00 A3036 RMK AO2 KEQY 210753Z AUTO 33007KT 10SM CLR 12/03 A2998 RMK AO2 SLP157 T01170028 KERI 210751Z AUTO 35013G20KT 10SM FEW028 OVC060 06/M01 A3003 RMK AO2 PK WND 34026/0724 SLP172 T00561011 $ KERV 210835Z AUTO 02009G17KT 10SM OVC110 15/09 A3029 RMK AO2 T01480090 KERY 210835Z AUTO 30003KT 10SM OVC029 M01/M01 A3019 RMK AO2 T10081013 KESC 210756Z AUTO 28010G16KT 10SM OVC038 01/M06 A3026 RMK AO2 SLP272 T00111056 FZRANO KESF 210753Z AUTO VRB03KT 10SM CLR 13/13 A3022 RMK AO2 SLP231 T01280128 KESN 210836Z AUTO 31019G30KT 10SM SCT042 SCT048 OVC060 11/02 A2982 RMK AO2 T01110023 KEST 210752Z AUTO 17005KT 10SM CLR M06/M07 A3031 RMK AO2 SLP278 T10611072 KETB 210835Z AUTO 00000KT 10SM OVC034 00/M06 A3032 RMK AO2 KETC 210820Z AUTO 31014G20KT 10SM CLR 12/04 A2989 RMK AO2 T01250040 KETH 210834Z AUTO 14012KT 10SM CLR M02/M07 A3018 RMK AO2 KETN 210835Z AUTO 00000KT 10SM CLR 07/07 A3034 RMK AO2 T00710067 KEUF 210758Z AUTO 32004KT 10SM CLR 13/12 A3010 RMK AO2 SLP188 T01330122 $ KEUG 210754Z AUTO 24003KT 10SM CLR 07/03 A2999 RMK AO2 SLP154 T00720033 402220011 KEUL 210756Z AUTO 00000KT 5SM BR CLR 05/03 A3010 RMK AO2 SLP193 T00500028 KEVM 210835Z AUTO 20003KT 10SM CLR M07/M08 A3018 RMK AO2 T10681077 KEVU 210835Z AUTO 15006KT 10SM CLR 01/M09 A3038 RMK AO2 KEVV 210754Z AUTO 01008KT 10SM CLR 02/M06 A3037 RMK AO2 SLP286 T00221056 KEVW 210753Z AUTO 00000KT 10SM CLR 08/M04 A3033 RMK AO2 SLP207 T00781044 KEWB 210753Z AUTO 00000KT 10SM OVC110 06/06 A2954 RMK AO2 SLP001 T00610061 KEWK 210756Z AUTO 12009KT 10SM CLR 06/M01 A3037 RMK AO2 SLP280 T00611011 KEWN 210754Z AUTO 30007KT 10SM FEW075 14/09 A2987 RMK AO2 SLP113 T01440089 KEWR 210822Z 33015G21KT 10SM -RA FEW022 BKN030 OVC040 09/06 A2966 RMK AO2 RAB18 P0000 T00890056 $ KEXX 210815Z AUTO 10SM CLR 10/M03 A3003 RMK AO2 T00971026 KEYE 210753Z AUTO 31006KT 10SM CLR 01/M06 A3031 RMK AO2 SLP267 T00061056 KEYF 210820Z AUTO 31008KT 10SM CLR 14/06 A2993 RMK AO2 T01400063 KEYW 210753Z AUTO 00000KT 10SM CLR 26/22 A2998 RMK AO2 SLP153 T02560222 KEZF 210835Z AUTO 28014G21KT 10SM SCT060 09/01 A2988 RMK AO2 T00870013 KEZM 210835Z AUTO 00000KT 10SM CLR 12/10 A3008 RMK AO2 T01230100 KEZS 210835Z AUTO 26003KT 10SM OVC036 01/M05 A3029 RMK AO2 T00101048 KEZZ 210835Z AUTO 17003KT 10SM CLR 00/M04 A3041 RMK AO2 T00021041 KF00 210835Z AUTO 34004KT 10SM CLR 09/08 A3033 RMK AO2 T00890078 KF05 210835Z AUTO 00000KT 7SM CLR 10/08 A3037 RMK AO1 T01040075 KF44 210835Z AUTO 00000KT 2SM HZ CLR 12/08 A3028 RMK AO2 KF46 210835Z AUTO 34003KT 10SM CLR 12/09 A3032 RMK AO2 T01150090 KF70 210835Z AUTO 00000KT 10SM CLR 15/05 A2995 RMK AO1 KFAF 210756Z AUTO 32016G27KT 10SM BKN095 OVC110 12/05 A2983 RMK AO2 PK WND 31027/47 SLP105 T01150049 $ KFAM 210756Z AUTO 00000KT 10SM CLR 01/M04 A3039 RMK AO2 SLP290 T00111044 FZRANO KFAR 210753Z AUTO 17014KT 10SM CLR M01/M07 A3012 RMK AO2 SLP211 T10061067 KFAT 210753Z 01003KT 10SM CLR 17/06 A2994 RMK AO2 SLP137 T01670056 402940128 KFAY 210753Z 31011G20KT 10SM CLR 14/04 A2990 RMK AO2 SLP121 T01440039 KFBG 210832Z AUTO 34024G34KT 10SM CLR 13/04 A2996 RMK AO2 PRESRR SLP147 $ KFBR 210250Z AUTO 21004KT 10SM CLR 12/M06 A3036 RMK AO2 T01231060 KFCH 210835Z AUTO 00000KT 10SM CLR 16/07 A2993 RMK A01 KFCI 210756Z AUTO 29012G20KT 10SM SCT075 SCT110 09/02 A2990 RMK AO2 SLP143 T00890017 KFCM 210753Z AUTO 18005KT 10SM CLR M02/M06 A3028 RMK AO2 SLP264 T10171061 $ KFCS 210758Z AUTO 35009KT 10SM CLR 04/M06 A3029 RMK AO2 SLP242 T00391056 $ KFDK 210825Z AUTO 28013G19KT 10SM OVC035 08/03 A2987 RMK AO2 KFDR 210753Z AUTO 31005KT 5SM HZ CLR 11/08 A3033 RMK AO2 SLP264 T01060078 $ KFDW 210835Z AUTO 32008KT 10SM CLR 10/06 A2999 RMK AO1 KFDY 210753Z AUTO 32010KT 10SM OVC038 03/M04 A3022 RMK AO2 SLP234 T00281039 KFEP 210835Z AUTO 00000KT 10SM CLR M04/M07 A3038 RMK AO2 T10431072 KFET 210835Z AUTO 15008KT 10SM CLR 04/M03 A3032 RMK AO2 T00351030 KFEW 210758Z AUTO 31006KT 10SM CLR 04/M03 A3028 RMK AO2 SLP212 T00391031 $ KFFA 210820Z AUTO 32009G21KT 280V340 10SM CLR 15/07 A2979 RMK AO2 T01460074 KFFC 210753Z AUTO 34015G24KT 10SM CLR 13/05 A3010 RMK AO2 SLP192 T01280050 KFFL 210835Z AUTO 00000KT 10SM CLR M03/M06 A3036 RMK AO2 PWINO KFFM 210835Z AUTO 16010KT 10SM CLR M02/M06 A3018 RMK AO2 KFFO 210756Z AUTO 28007KT 10SM CLR 01/M03 A3026 RMK AO2 SLP254 T00071029 $ KFFT 210753Z AUTO 31005KT 10SM CLR 02/M02 A3030 RMK AO2 SLP263 T00221022 KFFX 210841Z AUTO 30006KT 10SM OVC033 03/M02 A3025 RMK AO2 T00261021 KFFZ 210754Z 10007KT 10SM SCT100 27/08 A2995 RMK AO2 SLP118 T02670078 $ KFGN 210835Z AUTO 19011KT 10SM BKN110 02/M04 A3004 RMK AO2 KFGX 210835Z AUTO 31006KT 10SM OVC033 02/M01 A3030 RMK AO2 T00151015 KFHR 210753Z AUTO VRB03KT 10SM CLR 10/08 A3006 RMK AO2 SLP181 T01000083 401500044 KFHU 210758Z AUTO 14009KT 10SM CLR 15/08 A3020 RMK AO2 SLP164 T01490082 KFIG 210754Z AUTO 31007G19KT 10SM BKN015 BKN023 OVC090 03/01 A2989 RMK AO2 PK WND 34028/0700 RAE53 SLP131 P0002 T00280006 KFIN 210835Z AUTO 31005KT 10SM CLR 22/21 A2996 RMK AO2 T02170208 KFIT 210752Z AUTO 33006KT 10SM OVC075 08/04 A2958 RMK AO2 SLP019 T00780039 KFKA 210835Z AUTO 23005KT 10SM CLR M04/M07 A3031 RMK AO2 T10381072 KFKL 210756Z AUTO 31005KT 10SM BKN023 BKN029 OVC041 02/M01 A2998 RMK AO2 RAB30E47 SLP160 P0000 T00221006 FZRANO KFKN 210835Z AUTO 31008G14KT 10SM SCT065 SCT070 BKN080 10/06 A2990 RMK AO2 T01000060 KFKR 210835Z AUTO 30005KT 10SM CLR M03/M06 A3034 RMK AO2 T10261057 KFKS 210835Z AUTO 32008KT 10SM OVC033 03/M03 A3024 RMK AO2 T00311032 KFLD 210753Z AUTO 27006KT 10SM CLR M02/M07 A3032 RMK AO2 SLP278 T10221067 KFLG 210757Z AUTO 03003KT 10SM CLR 03/01 A3029 RMK AO2 SLP200 T00280011 KFLL 210753Z 31004KT 10SM FEW031 26/24 A2996 RMK AO2 SLP143 T02560244 KFLO 210753Z AUTO 32007KT 10SM CLR 14/07 A2995 RMK AO2 SLP141 T01440072 KFLP 210756Z AUTO 00000KT 10SM CLR 07/00 A3040 RMK AO2 SLP290 T00670000 KFLY 210835Z AUTO 30003KT 10SM CLR 02/M06 A3034 RMK AO2 T00211065 KFME 210821Z AUTO 26011G15KT 10SM CLR 08/03 A2983 RMK AO1 KFMH 210445Z 00000KT 10SM SKC 04/04 A2959 KFMM 210835Z AUTO 25007KT 10SM 04/M03 A3022 RMK AO2 T00421028 KFMN 210753Z AUTO 07008KT 10SM FEW090 11/M02 A3033 RMK AO2 SLP234 T01111022 KFMY 210753Z AUTO 00000KT 10SM FEW018 23/23 A2998 RMK AO2 SLP152 T02330228 KFNB 210753Z AUTO 14005KT 10SM CLR 01/M03 A3039 RMK AO2 SLP292 T00061033 KFNL 210756Z AUTO 00000KT 10SM CLR 04/M02 A3024 RMK AO2 SLP213 T00441017 PNO $ KFNT 210811Z AUTO 31010KT 10SM FEW020 SCT028 OVC039 01/M02 A3020 KFOA 210830Z AUTO 00000KT 10SM CLR 01/M05 A3039 RMK AO2 T00111055 KFOD 210756Z AUTO 00000KT 10SM CLR M04/M06 A3034 RMK AO2 SLP317 T10391056 FZRANO KFOE 210753Z AUTO 16004KT 10SM CLR 02/M02 A3039 RMK AO2 SLP291 T00171022 TSNO KFOK 210753Z AUTO 34009KT 10SM FEW055 BKN075 10/06 RMK AO2 SLPNO T01000061 $ KFOT 210835Z AUTO 00000KT 1/4SM OVC002 09/09 A2999 RMK AO1 KFOZ 210745Z AUTO 00000KT 10SM CLR M03/M06 A3017 RMK AO2 KFPK 210836Z AUTO 29005KT 10SM SCT043 01/M03 A3022 RMK AO2 T00051030 KFPR 210837Z AUTO 00000KT 3/4SM BR CLR 21/19 A2996 RMK AO2 T02060194 KFRG 210833Z AUTO 34009G19KT 10SM SCT029 OVC034 09/03 A2964 RMK AO2 T00940033 KFRH 210835Z AUTO 00000KT 10SM CLR 00/M08 A3035 RMK AO1 KFRI 210756Z AUTO 03004KT 10SM CLR 01/M01 A3037 RMK AO2 SLP285 T00111011 KFRM 210756Z AUTO 19007KT 10SM CLR M05/M07 A3032 RMK AO2 SLP285 T10501067 FZRANO PNO $ KFRR 210835Z AUTO 31013G25KT 10SM OVC039 07/00 A2991 RMK AO1 KFSD 210756Z AUTO 18009KT 10SM CLR 01/M05 A3025 RMK AO2 SNE09 SLP255 P0000 T00111050 KFSE 210824Z AUTO 17012KT 10SM OVC110 M02/M06 A3011 RMK AO2 KFSI 210756Z AUTO 01004KT 10SM CLR 08/07 A3034 RMK AO2 SLP272 T00760073 KFSM 210753Z AUTO 03003KT 10SM CLR 08/06 A3035 RMK AO2 SLP274 T00780061 KFSO 210835Z AUTO 29004KT 10SM CLR 02/M02 A2975 RMK AO2 T00151020 KFST 210753Z AUTO 00000KT 10SM OVC085 13/12 A3037 RMK AO2 SLP258 T01330122 KFSW 210835Z AUTO 00000KT 10SM CLR M03/M05 A3038 RMK AO2 KFTG 210830Z AUTO 22014KT 10SM CLR 11/M05 A3024 RMK AO2 T01081050 KFTK 210756Z AUTO 33010KT 10SM CLR 02/M05 A3033 RMK AO2 SLP275 T00171046 KFTN 210835Z AUTO 35007G12KT 10SM OVC033 19/15 A3024 RMK A01 KFTW 210753Z 34006KT 10SM CLR 11/08 A3031 RMK AO2 SLP261 T01110083 KFTY 210753Z 34011G21KT 290V020 10SM CLR 11/02 A3009 RMK AO2 PK WND 32027/0717 SLP187 T01110022 KFUL 210753Z AUTO 00000KT 10SM CLR 19/09 A2990 RMK AO2 SLP122 T01940089 403390150 $ KFVE 210753Z AUTO 21007KT 10SM CLR 01/M03 A2949 RMK AO2 SLP990 T00111028 KFWA 210754Z 30005KT 10SM OVC039 03/M01 A3027 RMK AO2 SLP256 T00281006 KFWB 210835Z AUTO 00000KT 10SM CLR 03/00 A3039 RMK AO2 KFWC 210835Z AUTO 00000KT 10SM CLR 00/M05 A3038 RMK AO1 T00001049 KFWN 210753Z AUTO VRB05KT 10SM OVC050 08/03 A2967 RMK AO2 SLP046 T00780033 KFWS 210835Z AUTO 00000KT 10SM CLR 09/07 A3034 RMK AO2 T00890072 KFWZ 210835Z AUTO 26007G16KT 10SM CLR 08/M08 A3027 RMK AO2 KFXE 210753Z 30003KT 10SM CLR 25/25 A2996 RMK AO2 SLP148 T02500250 KFXY 210835Z AUTO 00000KT 10SM CLR M03/M04 A3033 RMK AO2 KFYG 210755Z AUTO 00000KT 10SM CLR 00/M03 A3041 RMK AO2 KFYJ 210835Z AUTO 28017G26KT 10SM SCT100 OVC120 10/03 A2989 RMK AO1 T01000026 KFYM 210835Z AUTO 02012G19KT 10SM CLR 04/M04 A3025 RMK A01 KFYV 210815Z AUTO 00000KT 5SM BR FEW002 02/01 A3037 RMK AO2 T00170006 KFZG 210835Z AUTO 32007KT 10SM CLR 15/11 A3009 RMK AO2 T01500112 KFZY 210833Z AUTO 34013G21KT 10SM SCT027 OVC045 04/M03 A2988 RMK AO2 T00441028 KGAD 210756Z AUTO 01010KT 10SM CLR 10/02 A3019 RMK AO2 SLP225 T01000022 KGAF 210835Z AUTO 17011KT 10SM CLR M01/M06 A3004 RMK AO2 PWINO KGAG 210753Z AUTO 21003KT 10SM CLR 06/03 A3036 RMK AO2 SLP272 T00610033 KGAI 210756Z AUTO 28013G16KT 10SM FEW044 07/02 A2981 RMK AO2 SLP124 T00720022 KGAO 210835Z AUTO 03017G24KT 10SM SCT021 SCT050 BKN055 20/14 A3011 RMK AO2 T01950136 KGBD 210756Z AUTO 17005KT 10SM CLR 05/02 A3035 RMK AO2 SLP275 T00500022 KGBG 210835Z AUTO 00000KT 10SM CLR M04/M05 A3040 RMK AO2 T10361050 KGBK 210835Z AUTO 04010KT 1/4SM FG OVC004 24/22 A3002 RMK A01 KGCC 210753Z AUTO 00000KT 10SM CLR 11/M01 A3010 RMK AO2 SLP166 T01111006 $ KGCD 210835Z AUTO 11009KT 10SM CLR 08/M03 A3010 RMK AO2 T00831026 KGCK 210754Z AUTO 15007KT 10SM CLR 05/02 A3031 RMK AO2 SLP255 T00500017 KGCM 210835Z AUTO 07006KT 10SM CLR 05/01 A3038 RMK AO2 TSNO KGCN 210754Z 04003KT 10SM CLR 04/02 A3029 RMK AO2 SLP204 T00390017 KGCY 210835Z AUTO 30005KT 10SM CLR 03/M05 A3019 RMK A01 KGDB 210835Z AUTO 14007KT 10SM CLR M02/M05 A3025 RMK AO2 T10201053 KGDJ 210835Z AUTO 25003KT 10SM CLR 10/08 A3034 RMK AO2 T01040083 KGDP 210751Z AUTO 05026KT 10SM OVC046 10/06 A3039 RMK AO2 PK WND 06034/0702 SLP250 T01000061 $ KGDV 210756Z AUTO 33014KT 10SM CLR 09/01 A3002 RMK AO2 SLP169 T00890006 KGED 210754Z AUTO 26005KT 10SM BKN095 OVC120 11/07 A2974 RMK AO2 SLP070 T01110072 KGEG 210753Z 02003KT 10SM CLR 06/01 A3009 RMK AO2 SLP189 T00610011 401940039 KGEV 210830Z AUTO 32025G36KT 10SM CLR 00/M06 A2997 RMK AO2 T00001060 KGEY 210753Z AUTO 27004KT 10SM CLR 03/M03 A3013 RMK AO2 SLP197 T00281033 $ KGEZ 210753Z AUTO 31006KT 10SM CLR 00/M05 A3030 RMK AO2 SLP265 T00001050 KGFA 210758Z AUTO 00000KT 10SM CLR 01/M05 A3010 RMK AO2 SLP201 T00061047 $ KGFK 210753Z 17012KT 10SM BKN110 00/M07 A3006 RMK AO2 SLP191 T00001072 KGFL 210753Z AUTO 33010KT 10SM SCT047 06/M02 A2969 RMK AO2 SLP057 T00611022 KGGE 210835Z AUTO 31004KT 10SM CLR 14/13 A2996 RMK AO2 KGGG 210753Z AUTO 35003KT 10SM CLR 11/11 A3027 RMK AO2 SLP250 T01110106 KGGI 210835Z AUTO 00000KT 10SM CLR M03/M05 A3036 RMK AO2 T10301055 KGGP 210835Z AUTO 29005KT 10SM CLR M01/M05 A3032 RMK AO2 KGGW 210753Z AUTO 01008KT 10SM CLR 08/M02 A3005 RMK AO2 SLP182 T00831022 KGHB 210835Z AUTO 07016KT 7SM FEW040 SCT049 OVC055 25/22 A3006 RMK A01 KGHG 210835Z AUTO 34007KT 310V040 10SM BKN060 BKN070 11/05 A2956 RMK AO2 KGHW 210835Z AUTO 18010KT 10SM CLR M03/M06 A3019 RMK AO2 KGIC 210835Z AUTO 22004KT 10SM CLR 04/00 A3010 RMK AO1 KGIF 210753Z AUTO 30005KT 10SM CLR 24/23 A2999 RMK AO2 SLP153 T02440228 KGJT 210753Z AUTO 10010KT 10SM CLR 08/00 A3029 RMK AO2 SLP221 T00830000 $ KGKJ 210838Z AUTO 28006KT 10SM -SN BKN026 OVC032 02/01 A3002 RMK AO2 SNB0759E12B38 P0000 T00170011 KGKT 210835Z AUTO 35004KT 10SM CLR 04/M03 A3023 RMK A01 KGKY 210753Z AUTO 00000KT 10SM CLR 12/10 A3032 RMK AO2 SLP261 T01170100 KGLD 210753Z AUTO 18009KT 10SM CLR 04/02 A3024 RMK AO2 SLP226 T00440017 KGLE 210835Z AUTO 00000KT 10SM CLR 08/07 A3035 RMK AO2 T00830067 KGLH 210753Z AUTO 02009KT 10SM CLR 11/06 A3025 RMK AO2 SLP251 T01060056 KGLR 210753Z AUTO VRB05KT 10SM BKN028 OVC038 M01/M04 A3015 RMK AO2 SLP224 T10111039 KGLS 210752Z AUTO 03020G26KT 10SM BKN037 OVC065 19/16 A3016 RMK AO2 PK WND 02026/0738 SLP213 T01940161 KGLW 210835Z AUTO 01005KT 10SM CLR 02/M03 A3033 RMK AO2 T00201032 KGLY 210835Z AUTO 00000KT 10SM CLR 00/M03 A3043 RMK AO2 KGMJ 210835Z AUTO 00000KT 10SM CLR 04/03 A3039 RMK AO2 KGMU 210753Z AUTO 02011G15KT 10SM CLR 11/01 A3002 RMK AO2 SLP160 T01110011 KGNA 210756Z AUTO 33003KT M02/M06 A3021 RMK AO1 SLP242 T10171061 KGNB 210830Z AUTO 00000KT 10SM CLR M03/M06 A3047 RMK AO2 T10321057 KGNC 210835Z AUTO 00000KT 10SM OVC110 10/09 A3043 RMK AO2 T01010086 KGNR 210756Z AUTO 31012G21KT 02/M02 A2954 RMK AO1 SLP011 T00171022 KGNT 210835Z AUTO 17008KT 10SM CLR 09/01 A3040 RMK AO2 T00850006 KGNV 210832Z AUTO 34006KT 10SM SCT010 BKN016 22/19 A3002 RMK AO2 T02170194 KGOK 210753Z AUTO 00000KT 10SM CLR 07/06 A3036 RMK AO2 SLP281 T00670056 KGON 210756Z AUTO 36009KT 10SM FEW047 SCT080 BKN095 09/07 A2955 RMK AO2 SLP007 T00940067 PNO $ KGOO 210840Z AUTO 00000KT 10SM CLR 15/M01 A3006 RMK AO1 KGOP 210835Z AUTO 00000KT 10SM CLR 11/08 A3032 RMK AO2 KGOV 210834Z AUTO 33005KT 10SM FEW015 SCT021 SCT027 OVC038 M01/M02 A3017 RMK AO2 UPE24 SLP235 KGPC 210835Z AUTO 00000KT 10SM CLR M01/M06 A3035 RMK AO2 KGPH 210835Z AUTO 00000KT 10SM CLR M01/M01 A3043 RMK AO2 KGPI 210755Z AUTO 00000KT 7SM CLR M04/M06 A3013 RMK AO2 SLP217 T10441056 KGPM 210835Z AUTO 00000KT 10SM CLR 13/09 A3034 RMK AO2 T01260085 KGPT 210753Z AUTO 01013G18KT 10SM OVC075 18/13 A3014 RMK AO2 SLP206 T01830128 TSNO KGPZ 210756Z AUTO 18006KT 10SM CLR M03/M07 A3021 RMK AO2 SLP250 T10331072 FZRANO KGRB 210753Z AUTO 31007KT 10SM OVC038 02/M05 A3031 RMK AO2 SLP271 T00171050 KGRD 210756Z AUTO 30003KT 10SM CLR 08/07 A3002 RMK AO2 SLP163 T00830067 KGRF 210758Z 14004KT 1/4SM R15/1400FT FG VV000 04/04 A3004 RMK AO2A SLP178 T00360036 401550028 $ KGRI 210753Z AUTO 17009KT 10SM CLR 04/M04 A3031 RMK AO2 SLP272 T00441044 KGRK 210758Z AUTO 02008KT 10SM CLR 11/09 A3029 RMK AO2 SLP255 T01120088 KGRN 210835Z AUTO 22015G20KT 10SM CLR 09/00 A3012 RMK AO2 T00850002 KGRR 210753Z AUTO 28007KT 10SM OVC040 03/M03 A3024 RMK AO2 SLP248 T00281028 KGRY 210835Z AUTO 04018KT 9SM SCT018 BKN027 BKN041 27/23 A3003 RMK A01 KGSB 210756Z AUTO 31017G24KT 10SM CLR 15/04 A2988 RMK AO2 PK WND 31027/53 SLP121 T01520043 $ KGSH 210753Z AUTO 34008KT 10SM OVC035 03/M02 A3027 RMK AO2 SLP258 T00281022 KGSO 210754Z 34009KT 10SM FEW065 09/M01 A3001 RMK AO2 SLP159 T00891006 KGSP 210753Z AUTO 36010G18KT 10SM CLR 11/00 A3003 RMK AO2 SLP162 T01110000 KGTB 210756Z AUTO 35006KT 10SM OVC034 01/M02 A2982 RMK AO2 SLP103 T00111020 KGTF 210753Z 00000KT 10SM CLR 05/M06 A3010 RMK AO2 SLP184 T00501056 KGTR 210756Z AUTO 01007KT 10SM CLR 09/07 A3023 RMK AO2 SLP240 T00940067 KGTU 210756Z 36008KT 10SM CLR 14/11 A3030 RMK AO2 SLP262 T01440106 KGUC 210756Z AUTO VRB03KT 10SM CLR M02/M08 A3047 RMK AO2 SLP298 T10221078 FZRANO KGUL 210835Z AUTO 06023KT 1SM BR BKN005 BKN011 OVC018 24/22 A3003 RMK A01 KGUP 210753Z AUTO 08006KT 10SM CLR 07/00 A3035 RMK AO2 SLP176 T00670000 KGUS 210756Z AUTO 29007KT 10SM CLR M01/M03 A3028 RMK AO2 SLP263 T10061030 $ KGUY 210753Z AUTO 21007KT 10SM CLR 06/02 A3033 RMK AO2 SLP252 T00610017 KGVE 210835Z AUTO 23005KT 10SM OVC050 07/00 A2994 RMK AO1 T00730000 KGVL 210753Z AUTO 33010KT 10SM CLR 10/M02 A3007 RMK AO2 SLP173 T01001017 KGVQ 210756Z AUTO 33015G24KT 10SM OVC037 02/M03 A2993 RMK AO2 SLP165 T00221033 FZRANO KGVT 210835Z AUTO 35004KT 10SM CLR 11/10 A3032 RMK AO2 KGWB 210835Z AUTO 30004KT 10SM OVC037 02/M02 A3027 RMK AO2 KGWO 210753Z AUTO 01005KT 10SM CLR 08/07 A3025 RMK AO2 SLP244 T00830072 KGWR 210835Z AUTO 00000KT 10SM M03/M05 A3008 RMK A01 KGWW 210820Z AUTO 32012G22KT 10SM CLR 13/03 A2993 RMK AO2 T01260026 KGXF 210758Z AUTO 15005KT 10SM SCT090 21/17 A2989 RMK AO2 SLP111 T02120167 KGXY 210756Z 31006KT 10SM CLR 01/M02 A3023 RMK AO2 SLP234 T00111022 FZRANO KGYB 210835Z AUTO 02007KT 10SM CLR 14/11 A3025 RMK AO2 T01380109 KGYH 210815Z AUTO 02007KT 10SM CLR 11/00 A3003 RMK AO2 KGYI 210835Z AUTO 00000KT 10SM CLR 10/09 A3034 RMK AO2 T00950090 TSNO KGYL 210835Z AUTO 19005KT 10SM CLR M02/M05 A3027 RMK AO2 T10251050 KGYR 210347Z 06005KT 10SM SCT100 27/12 A2989 RMK LAST KGYY 210835Z AUTO 27007KT 10SM SCT032 00/M05 A3035 RMK AO2 T00041054 KGZH 210753Z AUTO 34004KT 10SM CLR 13/12 A3015 RMK AO2 SLP208 T01330117 KGZL 210835Z AUTO 06007KT 10SM CLR 05/05 A3035 RMK AO2 KGZN 210820Z AUTO 00000KT 10SM CLR 12/08 A3035 RMK AO2 KGZS 210835Z AUTO 01007G14KT 10SM CLR 05/M04 A3029 RMK A01 KHAE 210835Z AUTO 00000KT 10SM CLR 00/M06 A3039 RMK AO2 KHAI 210837Z AUTO 32004KT 10SM SCT034 OVC039 02/M03 A3028 RMK AO2 T00231026 KHAO 210753Z AUTO 26003KT 10SM BKN049 01/M01 A3031 RMK AO2 SLP267 T00111011 KHBG 210753Z AUTO 00000KT 10SM CLR 13/13 A3019 RMK AO2 SLP222 T01330128 KHBI 210835Z AUTO 34011G17KT 10SM CLR 10/01 A3004 RMK AO2 T00960014 KHBR 210753Z AUTO 32006KT 10SM CLR 09/07 A3037 RMK AO2 SLP278 T00890067 KHBV 210830Z AUTO 04007KT 4SM BR OVC011 16/15 A3018 RMK AO2 T01610147 KHCD 210835Z AUTO 18005KT 10SM CLR M04/M06 A3027 RMK AO2 T10381057 KHCO 210835Z AUTO 17017G21KT 10SM OVC110 02/M06 A3001 RMK AO2 KHCR 210835Z AUTO 00000KT 10SM CLR 01/M02 A3028 RMK AO2 KHDC 210835Z AUTO 03005KT 10SM OVC075 16/13 A3017 RMK AO2 KHDE 210835Z AUTO 17006KT 10SM CLR 03/M01 A3027 RMK AO2 T00301012 KHDN 210756Z AUTO 10011KT 10SM CLR 03/M03 A3039 RMK AO2 SLP255 T00331033 KHDO 210751Z AUTO 04011KT 10SM OVC110 18/12 A3024 RMK AO2 SLP229 T01830117 KHEF 210756Z AUTO 28016G24KT 10SM FEW075 09/01 A2986 RMK AO2 PK WND 27029/0723 SLP121 T00890006 PNO $ KHEG 210835Z AUTO 33011G18KT 10SM FEW018 BKN023 20/17 A3001 RMK AO2 KHEI 210753Z AUTO 24003KT 10SM CLR 02/M02 A3000 RMK AO2 SLP171 T00221022 KHEQ 210830Z AUTO 20005KT 10SM CLR 03/01 A3021 RMK AO2 KHEY 210758Z AUTO 33003KT 10SM CLR 14/13 A3011 RMK AO2 SLP196 T01400128 $ KHEZ 210756Z AUTO 36003KT 1/4SM FG OVC001 11/11 A3022 RMK AO2 SLP236 T01060106 PNO $ KHFD 210753Z AUTO 35005KT 10SM OVC055 09/05 A2960 RMK AO2 SLP022 T00890050 KHFF 210838Z AUTO 35012G26KT 10SM CLR 12/03 A2999 RMK AO2 PRESRR SLP170 $ KHFJ 210835Z AUTO 00000KT 10SM CLR 03/00 A3038 RMK AO2 KHFY 210835Z AUTO 00000KT 10SM CLR 00/M05 A3032 RMK AO2 T10041055 KHGR 210830Z AUTO 32020G27KT 10SM OVC031 07/02 A2986 RMK AO2 PK WND 34027/0828 T00720017 KHHF 210835Z AUTO 00000KT 7SM CLR 06/04 A3036 RMK AO2 T00560040 KHHG 210835Z AUTO 31003KT 10SM OVC038 02/00 A3029 RMK AO2 T00231005 KHHR 210753Z AUTO 11004KT 10SM CLR 20/09 A2990 RMK AO2 SLP124 T02000094 403170156 KHHV 210830Z AUTO 06025KT 10SM SCT015 SCT021 BKN085 27/23 A3003 RMK A01 KHHW 210835Z AUTO 35004KT 10SM CLR 10/08 A3032 RMK AO2 T00970075 KHIB 210753Z AUTO 00000KT 10SM CLR M04/M07 A3019 RMK AO2 SLP246 T10441067 KHIE 210752Z AUTO 00000KT 10SM FEW065 M01/M03 A2964 RMK AO2 SLP044 T10111028 KHIF 210758Z AUTO 11013KT 10SM CLR 11/M02 A3021 RMK AO2 SLP197 T01131022 KHII 210830Z AUTO 00000KT 10SM FEW110 23/11 A2987 RMK AO2 KHIO 210839Z 00000KT 1 1/2SM BR CLR 04/03 A2998 RMK AO2 T00440033 $ KHJH 210835Z AUTO 14003KT 10SM CLR 04/M02 A3033 RMK AO2 T00361020 KHJO 210753Z AUTO 00000KT 5SM BR CLR 12/11 A2995 RMK AO2 SLP142 T01220106 403000072 KHKA 210753Z AUTO 03011KT 10SM CLR 06/M03 A3037 RMK AO2 SLP284 T00611033 $ KHKS 210753Z AUTO 35003KT 10SM CLR 10/09 A3021 RMK AO2 SLP225 T01000094 KHKY 210753Z AUTO 33013G22KT 10SM CLR 08/M06 A3003 RMK AO2 SLP155 T00831056 KHLC 210753Z AUTO 16004KT 10SM CLR 07/02 A3032 RMK AO2 SLP261 T00670017 KHLG 210753Z AUTO 28010KT 10SM BKN037 OVC048 03/00 A3006 RMK AO2 SLP187 T00330000 KHLN 210753Z AUTO 09003KT 10SM CLR 03/M02 A3014 RMK AO2 SLP221 T00331017 KHLR 210758Z AUTO 02008KT 10SM CLR 12/09 A3026 RMK AO2 SLP243 T01230091 KHLX 210835Z AUTO 32012G28KT 10SM BKN033 02/M04 A3002 RMK AO2 T00151045 KHMN 210758Z AUTO 00000KT 10SM BKN065 BKN075 12/08 A3038 RMK AO2 SLP241 T01240077 $ KHMP 210835Z AUTO 34007KT 10SM CLR 11/04 A3010 RMK AO2 T01130036 KHMZ 210835Z AUTO 34011G19KT 10SM OVC023 03/01 A2993 RMK AO2 T00330007 KHNB 210756Z AUTO 36006KT 10SM CLR 01/M05 A3036 RMK AO2 SLP283 T00111050 FZRANO KHND 210756Z AUTO 17006KT 10SM FEW085 16/04 A3002 RMK AO2 SLP149 T01610044 402670106 / KHNR 210835Z AUTO 00000KT 10SM CLR M04/M04 A3035 RMK AO2 KHNZ 210825Z AUTO 32012G20KT 290V350 10SM CLR 07/M02 A2999 RMK AO2 T00671021 KHOB 210835Z AUTO 09004KT 10SM SCT090 10/08 A3040 RMK AO2 KHOE 210830Z AUTO 33006KT 10SM CLR 16/11 A3005 RMK AO2 KHON 210755Z AUTO 16011KT 10SM CLR 01/M05 A3018 RMK AO2 SLP230 T00061050 KHOP 210756Z AUTO 01005KT 10SM CLR 02/M04 A3034 RMK AO2 SLP277 T00181045 FZRANO $ KHOT 210753Z AUTO 04010G17KT 10SM CLR 14/01 A3032 RMK AO2 SLP263 T01390011 KHOU 210753Z 04016G20KT 10SM FEW012 BKN060 19/14 A3018 RMK AO2 SLP225 T01890139 KHPN 210756Z 33009KT 10SM BKN041 07/04 A2961 RMK AO2 RAE53 SLP026 P0000 T00720044 KHPT 210835Z AUTO 24003KT 10SM CLR M04/M06 A3034 RMK AO2 KHQG 210835Z AUTO 22006KT 10SM CLR 07/03 A3032 RMK AO2 T00700027 KHQI 210835Z AUTO 02026KT 10SM SCT017 BKN025 OVC055 25/22 A3005 RMK A01 KHQM 210840Z AUTO 08005KT 2SM BR FEW003 06/06 A3003 RMK AO2 T00610061 KHQU 210835Z AUTO 35006KT 10SM CLR 12/08 A3008 RMK AO2 T01190079 KHQZ 210835Z AUTO 35004KT 10SM CLR 12/09 A3032 RMK AO1 T01180087 KHRI 210753Z AUTO A3006 RMK AO2 SLPNO 401941006 PWINO FZRANO $ KHRJ 210815Z AUTO 34007G23KT 300V010 10SM CLR 13/04 A2995 RMK AO2 T01260039 KHRL 210812Z AUTO 35011KT 4SM BR OVC004 19/18 A3010 RMK AO2 T01890178 KHRO 210753Z AUTO 00000KT 10SM CLR 04/01 A3038 RMK AO2 SLP286 T00440006 KHRT 210756Z 36014KT 10SM FEW080 17/13 A3009 RMK AO2A SLP191 T01670133 $ KHRX 210835Z AUTO 24004KT 7SM CLR 06/04 A3041 RMK AO2 T00600040 KHSB 210835Z AUTO 00000KT 10SM CLR M01/M03 A3040 RMK AO2 T10151030 KHSD 210840Z AUTO 00000KT 10SM CLR 07/05 A3037 RMK A01 KHSE 210751Z AUTO 31017G26KT 10SM CLR 18/09 A2979 RMK AO2 PK WND 32026/0748 SLP086 T01780094 KHSG 210835Z AUTO 32005KT 10SM CLR 03/M03 A3016 RMK AO2 T00291026 KHSI 210753Z AUTO 18008KT 10SM CLR 04/M03 A3031 RMK AO2 SLP266 T00441033 KHSP 210835Z AUTO 30017G30KT 10SM OVC009 00/00 A2993 RMK AO2 T00001002 KHST 210756Z AUTO 29006KT 10SM CLR 25/22 A2996 RMK AO2 SLP149 T02460217 FZRANO VISNO RWY24 $ KHSV 210753Z AUTO 01012KT 10SM CLR 08/M01 A3024 RMK AO2 SLP236 T00781011 $ KHTH 210835Z AUTO 00000KT 10SM CLR 10/M07 A3010 RMK A01 KHTL 210753Z AUTO 29006KT 10SM FEW019 BKN038 M01/M03 A3018 RMK AO2 SLP232 T10061028 KHTO 210835Z AUTO 34009G16KT 10SM SCT070 BKN080 BKN120 10/05 A2957 RMK AO2 T00960046 KHTS 210831Z 34010G15KT 10SM -RA OVC028 04/M01 A3023 KHUA 210758Z AUTO 03016G20KT 10SM CLR 07/M02 A3022 RMK AO2 SLP234 T00681023 KHUF 210753Z 30005KT 10SM CLR M01/M06 A3036 RMK AO2 SLP283 T10111056 KHUL 210753Z AUTO 00000KT 10SM CLR M01/M02 A2954 RMK AO2 SLP007 T10111022 KHUM 210835Z AUTO 03012KT 10SM OVC055 18/14 A3012 RMK AO2 T01820144 KHUT 210752Z AUTO 13003KT 10SM CLR 06/01 A3036 RMK AO2 SLP270 T00610011 KHVE 210835Z AUTO 00000KT 10SM SCT090 SCT110 07/06 A3029 RMK AO2 KHVN 210753Z AUTO 35011KT 10SM OVC065 09/04 A2958 RMK AO2 SLP015 T00940044 KHVR 210753Z AUTO 08009KT 10SM CLR 04/M01 A3011 RMK AO2 SLP197 T00391011 KHVS 210835Z AUTO 00000KT 10SM CLR 11/07 A2997 RMK AO2 KHWD 210754Z AUTO 03003KT 8SM CLR 13/10 A2998 RMK AO2 SLP162 T01280100 402390100 KHWO 210753Z AUTO 28004KT 10SM CLR 25/23 A2998 RMK AO2 SLP151 T02500233 KHWV 210756Z AUTO 36008KT 10SM BKN070 09/06 A2958 RMK AO2 SLP016 T00940061 KHWY 210835Z AUTO 29009G14KT 10SM -DZ OVC046 09/00 A2990 RMK AO2 T00870003 KHXD 210835Z AUTO VRB07G13KT 10SM CLR 16/10 A3000 RMK AO2 KHYA 210756Z AUTO 00000KT 10SM CLR 05/04 A2954 RMK AO2 SLP003 T00500039 KHYI 210756Z AUTO 10SM CLR 16/12 RMK AO2 SLPNO T01560117 $ KHYR 210753Z AUTO 00000KT 10SM FEW110 M03/M06 A3026 RMK AO2 SLP264 T10281056 KHYS 210756Z AUTO 16004KT 10SM CLR 06/02 A3033 RMK AO2 SLP272 T00560022 KHYW 210815Z AUTO 00000KT 7SM CLR 13/11 A2995 RMK AO2 KHYX 210835Z AUTO 29010KT 10SM OVC041 01/M02 A3020 RMK AO2 KHZD 210835Z AUTO 04007KT 10SM CLR 04/M04 A3034 RMK A01 KHZE 210835Z AUTO 25004KT 10SM CLR M02/M03 A2998 RMK AO2 TSNO KHZL 210835Z AUTO 29007KT 10SM OVC012 05/03 A2976 RMK AO2 KHZR 210837Z AUTO 01004KT 10SM CLR 14/13 A3019 RMK AO2 KHZX 210835Z AUTO 17003KT 10SM CLR M03/M06 A3021 RMK AO2 KHZY 210830Z AUTO VRB04KT 8SM -RA FEW016 BKN021 OVC032 03/01 A3007 RMK AO2 RAB0754 P0001 T00280011 KI16 210830Z AUTO 10SM BKN023 OVC032 04/M01 A3020 RMK AO2 T00381006 KI19 210835Z AUTO 32005KT 10SM CLR 01/M01 A3028 RMK AO2 T00071011 KI23 210835Z AUTO 29007KT 10SM BKN036 M00/M03 A3026 RMK AO1 KI35 210835Z AUTO 00000KT 10SM OVC032 03/M03 A3023 RMK AO2 T00271027 KI63 210835Z AUTO 00000KT 10SM CLR M03/M05 A3038 RMK AO2 T10281054 KI67 210835Z AUTO 00000KT 10SM BKN028 OVC041 02/00 A3031 RMK AO1 KI68 210835Z AUTO 29006KT 10SM SCT044 01/01 A3029 RMK AO1 T00070007 KI69 210837Z AUTO 30006KT 10SM CLR 01/M01 A3030 RMK AO2 T00131010 KI75 210835Z AUTO 20005KT 10SM CLR M02/M05 A3037 RMK AO2 T10191046 KIAB 210756Z AUTO 11005KT 10SM CLR 07/M01 A3036 RMK AO2 SLP282 T00701007 $ KIAD 210752Z 28012G19KT 10SM FEW045 SCT140 08/02 A2984 RMK AO2 SLP102 T00780017 KIAG 210753Z AUTO 34018G25KT 10SM OVC032 03/M04 A2997 RMK AO2 PK WND 32028/0727 RAB14E45 SLP158 P0000 T00281039 KIAH 210753Z 03008KT 10SM BKN065 BKN250 17/16 A3020 RMK AO2 SLP224 T01720156 KIBM 210835Z AUTO 26006KT 10SM CLR 04/M02 A3021 RMK AO2 T00371021 KICL 210835Z AUTO 00000KT 10SM CLR M04/M04 A3041 RMK AO2 KICR 210753Z AUTO 20022G30KT 10SM -RA CLR 08/M03 A3010 RMK AO2 PK WND 20033/0727 SLP196 P0000 T00781033 KICT 210753Z 13005KT 10SM CLR 07/00 A3037 RMK AO2 SLP279 T00720000 $ KIDA 210753Z AUTO 35004KT 10SM CLR 01/M02 A3024 RMK AO2 SLP233 T00111022 KIDI 210835Z AUTO 33010KT 10SM OVC055 03/01 A3001 RMK A01 KIDP 210835Z AUTO 00000KT 10SM CLR 02/00 A3039 RMK AO2 T00250001 KIEN 210752Z AUTO 22012KT 9SM CLR 10/01 A3010 RMK AO2 SLP184 T01000006 KIER 210835Z AUTO 35004KT 10SM CLR 11/11 A3025 RMK AO2 T01110105 KIFA 210835Z AUTO 00000KT 10SM CLR M04/M05 A3036 RMK AO2 T10401053 KIGM 210751Z AUTO 00000KT 10SM BKN110 16/08 A3005 RMK AO2 LTG DSNT W SLP115 T01610078 $ KIGQ 210835Z AUTO 30005KT 10SM CLR M01/M06 A3034 RMK AO2 T10081063 KIIB 210835Z AUTO 00000KT 10SM CLR M04/M05 A3034 RMK AO2 T10401050 KIJD 210752Z AUTO 01003KT 10SM OVC060 08/07 A2959 RMK AO2 RAE0654 SLP019 P0000 T00830072 KIJX 210835Z AUTO 00000KT 10SM CLR M02/M04 A3039 RMK AO2 T10251043 KIKG 210835Z AUTO 10SM OVC011 18/18 A3017 RMK AO2 T01810181 KIKK 210835Z AUTO 28006KT 10SM CLR M04/M07 A3037 RMK AO2 T10421068 KIKV 210835Z AUTO 10SM CLR M04/M04 A3038 RMK AO2 KIKW 210835Z AUTO 00000KT 10SM BKN037 01/M01 A3020 RMK AO2 T00091012 KILE 210756Z AUTO 01005KT 10SM CLR A3030 RMK AO2 SLPNO FZRANO $ KILG 210751Z AUTO 29013G21KT 10SM FEW044 SCT120 10/04 A2973 RMK AO2 SLP067 T01000044 KILM 210753Z AUTO 31007KT 10SM FEW060 15/08 A2989 RMK AO2 SLP122 T01500078 KILN 210754Z AUTO 31009KT 10SM CLR 01/M03 A3025 RMK AO2 SLP259 T00061033 KIML 210753Z AUTO 17008KT 10SM CLR 07/00 A3023 RMK AO2 SLP230 T00670000 KIMM 210835Z AUTO 00000KT 3SM BR FEW014 SCT060 21/20 A2998 RMK A01 KIMS 210835Z AUTO 28003KT 10SM CLR 01/M03 A3035 RMK AO1 KIMT 210754Z AUTO 31004KT 10SM OVC031 00/M05 A3024 RMK AO2 SLP255 T00001050 KIND 210754Z 32008KT 10SM CLR M01/M06 A3031 RMK AO2 SLP268 T10061061 KINJ 210835Z AUTO 35006KT 10SM CLR 11/10 A3030 RMK AO2 T01050100 KINK 210753Z AUTO 06004KT 10SM 14/11 A3036 RMK AO2 SLP255 T01390106 $ KINL 210755Z AUTO 20004KT 10SM CLR M02/M06 A3016 RMK AO2 SLP232 T10221061 KINS 210758Z AUTO 10003KT 10SM BKN100 14/08 A3004 RMK AO2 SLP139 T01380078 402520062 $ KINT 210754Z AUTO 33017G24KT 10SM CLR 09/M03 A3002 RMK AO2 SLP163 T00891028 KINW 210756Z AUTO 14003KT 10SM CLR 11/08 A3024 RMK AO2 SLP199 T01060078 KIOB 210835Z AUTO 31005KT 10SM CLR 01/M01 A3031 RMK AO2 KIOW 210752Z AUTO 00000KT 10SM CLR M02/M06 A3039 RMK AO2 SLP296 T10221056 KIPJ 210830Z AUTO 35006KT 10SM CLR 10/M05 A3005 RMK AO2 T00961047 KIPL 210753Z AUTO 25006KT 10SM CLR 22/07 A2983 RMK AO2 SLP103 T02170067 403280139 KIPT 210838Z AUTO 28010G18KT 10SM BKN028 OVC060 06/02 A2984 RMK AO2 PRESRR T00560017 KIRK 210755Z AUTO 00000KT 10SM CLR M02/M04 A3039 RMK AO2 SLP302 T10221044 KIRS 210835Z AUTO 31004KT 10SM OVC034 03/M03 A3026 RMK AO2 T00281031 KISM 210756Z AUTO 29004KT 10SM CLR 23/22 A2998 RMK AO2 SLP155 T02280222 KISN 210752Z AUTO 00000KT 10SM CLR 02/M02 A2999 RMK AO2 SLP171 T00171022 TSNO KISO 210820Z AUTO 33012G22KT 10SM CLR 14/05 A2991 RMK AO2 T01380052 KISP 210756Z AUTO 34008KT 10SM FEW065 09/06 A2959 RMK AO2 SLP018 T00890056 KISQ 210835Z AUTO 28004KT 10SM SCT034 BKN040 M02/M05 A3022 RMK AO2 T10201046 KISW 210754Z AUTO 00000KT 10SM CLR M04/M08 A3033 RMK AO2 SLP285 T10391078 TSNO KITH 210756Z AUTO 34011G16KT 9SM -RA BKN017 BKN021 OVC026 03/01 A2981 RMK AO2 RAB45 SLP101 P0000 T00280011 KITR 210753Z AUTO 22011KT 10SM CLR 09/01 A3025 RMK AO2 SLP214 T00890011 KIWA 210835Z AUTO 13011KT 10SM SCT110 24/09 A2996 RMK AO2 T02450090 KIWD 210756Z AUTO 26003KT 10SM CLR M03/M07 A3024 RMK AO2 SLP257 T10331067 FZRANO PNO / KIWI 210753Z AUTO 00000KT 10SM FEW120 02/02 A2959 RMK AO2 SLP021 T00220017 KIXA 210820Z AUTO 32010G23KT 10SM CLR 11/02 A2993 RMK AO2 KIXD 210753Z AUTO 08006KT 10SM CLR 03/M03 A3040 RMK AO2 SLP295 T00331028 KIYA 210835Z AUTO 02008G14KT 10SM OVC080 17/14 A3016 RMK AO2 T01700140 KIZA 210835Z AUTO 00000KT 10SM CLR 11/02 A2993 RMK AO2 LTG DSNT NE KIZG 210754Z AUTO 00000KT 10SM CLR M01/M02 A2959 RMK AO2 SLP025 I1000 T10111017 KJAC 210756Z AUTO 04005KT 10SM CLR M03/M06 A3033 RMK AO2 SLP274 T10281056 FZRANO KJAN 210754Z AUTO 00000KT 10SM CLR 10/09 A3021 RMK AO2 SLP227 T01000089 KJAQ 210835Z AUTO 12003KT 10SM CLR 16/00 A3000 RMK AO1 T01640000 KJAS 210835Z AUTO 35004KT 7SM CLR 08/08 A3025 RMK AO2 T00840082 KJAU 210835Z AUTO VRB04G11KT 10SM OVC035 03/M04 A3029 RMK A01 KJAX 210756Z 34008KT 10SM SCT150 BKN250 19/16 A2998 RMK AO2 RAB09E20 SLP154 P0000 T01940161 KJBR 210753Z AUTO 04010KT 10SM -RA CLR 08/M02 A3037 RMK AO2 SLP283 P0000 T00781022 KJCA 210835Z AUTO 31008KT 10SM CLR 10/00 A3006 RMK AO2 T00990001 KJDD 210835Z AUTO 00000KT 10SM CLR 09/09 A3030 RMK AO2 KJDN 210748Z AUTO VRB03KT 02/M02 A3008 RMK AO1 SLP193 T00221017 KJEF 210753Z AUTO 00000KT 10SM CLR 00/M03 A3042 RMK AO2 SLP295 T00001028 KJER 210753Z AUTO 06011KT 10SM CLR 10/M01 A3015 RMK AO2 SLP189 T01001006 KJES 210838Z AUTO 32003KT 10SM CLR 17/09 A3003 RMK AO2 KJFK 210751Z 32011KT 10SM BKN025 BKN045 BKN130 11/07 A2963 RMK AO2 SLP033 T01060072 VISNO W $ KJFX 210835Z AUTO 01008G14KT 340V040 10SM 09/01 A3023 RMK AO2 PWINO KJFZ 210835Z AUTO 33009G14KT 10SM OVC023 01/M04 A3014 RMK AO2 T00051037 KJGG 210835Z AUTO 30016G23KT BKN100 11/02 A2989 RMK AO1 KJHN 210835Z AUTO 22015KT 10SM CLR 10/02 A3029 RMK AO2 T00960023 KJHW 210756Z AUTO 33009KT 10SM -SN BKN019 BKN024 OVC032 01/00 A2994 RMK AO2 RAB30E49SNB49 SLP157 P0000 T00060000 FZRANO KJKA 210835Z AUTO 36010G17KT 300V040 10SM SCT090 SCT100 16/13 A3012 RMK AO2 T01570125 KJKJ 210835Z AUTO 16012KT 10SM CLR M01/M07 A3012 RMK AO2 KJKL 210753Z AUTO 33005KT 10SM OVC041 03/M02 A3023 RMK AO2 SLP237 T00281022 KJLN 210753Z AUTO 04003KT 10SM CLR 02/01 A3039 RMK AO2 SLP292 T00220006 KJMR 210837Z AUTO 00000KT 10SM CLR M06/M07 A3026 RMK AO2 KJMS 210756Z AUTO 18015KT 10SM CLR M01/M06 A3002 RMK AO2 SLP184 T10061061 KJNX 210820Z AUTO 32010G19KT 290V050 10SM CLR 12/03 A2995 RMK AO2 KJOT 210835Z AUTO 00000KT 10SM CLR M01/M05 A3038 RMK AO2 T10151053 KJQF 210830Z AUTO 34015G22KT 10SM CLR 11/M02 A3005 RMK AO2 KJRB 210842Z AUTO VRB03KT 10SM SCT020 OVC048 11/06 A2967 RMK AO2 KJSL 210820Z AUTO 00000KT 10SM FEW021 FEW029 FEW040 27/23 A3000 RMK A01 KJSO 210835Z AUTO 36003KT 10SM CLR 11/10 A3029 RMK AO2 T01150098 KJST 210837Z AUTO 32017G28KT 10SM SCT008 BKN015 OVC047 01/M01 A2993 RMK AO2 PK WND 32030/0756 UPB02E05RAB05E08SNE02 P0000 T00111006 KJSV 210835Z AUTO 00000KT 10SM CLR 04/02 A3036 RMK AO2 KJTC 210830Z AUTO 17012KT 10SM CLR 10/03 A3033 RMK AO2 KJVL 210835Z AUTO 30003KT 10SM CLR M03/M05 A3037 RMK AO2 KJVW 210835Z AUTO 00000KT 3/4SM BR VV005 08/08 A3022 RMK AO2 VIS 1/4V3 KJWG 210835Z AUTO 00000KT 10SM CLR 08/08 A3037 RMK AO2 T00810077 KJWN 210835Z AUTO 00000KT 10SM CLR 02/M03 A3032 RMK A01 KJWY 210835Z AUTO 30003KT 10SM CLR 10/08 A3034 RMK AO2 T01020076 KJXI 210835Z AUTO 00000KT 10SM OVC003 11/09 A3030 RMK AO2 T01120090 KJXN 210756Z AUTO 29006KT 10SM OVC042 02/M03 A3021 RMK AO2 SLP240 T00171033 KJYL 210835Z AUTO 30003KT 10SM CLR 13/11 A3002 RMK AO2 T01280105 KJYM 210835Z AUTO 31006KT 10SM OVC040 01/M03 A3022 RMK AO2 KJYO 210835Z AUTO 31018G28KT 10SM OVC030 07/04 A2988 RMK AO2 KJYR 210830Z AUTO 18007KT 10SM CLR 02/M03 A3032 RMK AO2 KJZI 210835Z AUTO 31009KT 7SM CLR 16/12 A2997 RMK AO2 PWINO KJZP 210835Z AUTO 02008G15KT 10SM CLR 07/M02 A3012 RMK AO2 T00671016 PNO KK88 210835Z AUTO 06004KT 10SM CLR 01/M01 A3041 RMK AO1 T00111011 KKLS 210756Z AUTO 00000KT 10SM CLR 06/05 A3002 RMK AO2 SLP171 T00560050 401390056 KKY8 210835Z AUTO 36005KT 10SM CLR 02/M05 A3036 RMK A01 KL08 210835Z AUTO 00000KT 10SM CLR 17/06 A2987 RMK AO2 KL18 210835Z AUTO 00000KT 10SM CLR 16/06 A2992 RMK AO2 KL35 210835Z AUTO 27005KT 10SM CLR 02/00 A3016 RMK AO2 KL52 210835Z AUTO 12003KT 9SM CLR 08/08 A2992 RMK A01 KLAA 210753Z AUTO 22008KT 10SM CLR 09/02 A3026 RMK AO2 SLP217 T00890022 KLAF 210754Z AUTO 31007KT 10SM CLR M01/M06 A3033 RMK AO2 SLP275 T10111061 KLAL 210835Z AUTO 00000KT 10SM CLR 21/21 A2999 RMK AO2 KLAM 210835Z AUTO 23006KT 10SM CLR 08/M01 A3047 RMK AO2 T00761012 KLAN 210753Z 31007KT 10SM OVC047 01/M03 A3022 RMK AO2 SLP243 T00061028 KLAR 210753Z AUTO 17005KT 10SM CLR M01/M04 A3032 RMK AO2 SLP215 T10111044 KLAS 210756Z 00000KT 10SM FEW090 FEW120 21/04 A2997 RMK AO2 SLP130 T02060044 402780150 KLAW 210753Z AUTO 00000KT 8SM CLR 07/07 A3035 RMK AO2 SLP275 T00670067 KLAX 210753Z 12004KT 10SM CLR 19/09 A2990 RMK AO2 SLP122 T01940094 403060167 $ KLBB 210753Z 00000KT 10SM FEW160 SCT250 07/04 A3039 RMK AO2 SLP270 T00670044 KLBE 210835Z AUTO 31013G19KT 3SM +RA 02/01 A3002 RMK AO2 KLBF 210753Z AUTO 18009KT 10SM CLR 08/00 A3023 RMK AO2 SLP229 T00830000 KLBL 210756Z AUTO 22006KT 10SM CLR 06/02 A3034 RMK AO2 SLP264 T00560022 KLBO 210835Z AUTO 00000KT 10SM CLR 00/M02 A3041 RMK AO2 KLBT 210754Z AUTO 31008KT 10SM CLR 13/07 A2992 RMK AO2 SLP132 T01330067 KLBX 210753Z AUTO 03009KT 10SM BKN030 18/15 A3016 RMK AO2 SLP212 T01830150 KLCG 210835Z AUTO 17008KT 10SM CLR 00/M05 A3028 RMK AO2 T10051053 KLCH 210753Z AUTO 03015KT 10SM OVC070 18/15 A3018 RMK AO2 SLP226 T01830150 KLCI 210756Z AUTO 29006KT 10SM OVC110 07/M01 A2961 RMK AO2 SLP044 T00721011 $ KLCK 210835Z AUTO 33010KT 10SM OVC035 02/M05 A3024 RMK AO2 T00221049 KLCQ 210835Z AUTO 34009KT 10SM SCT016 18/16 A3002 RMK AO2 KLDJ 210815Z AUTO 33012KT 10SM OVC032 09/05 A2966 RMK AO2 T00910050 KLDM 210835Z AUTO 32006KT 10SM OVC031 03/M03 A3025 RMK AO2 T00281026 KLEB 210753Z AUTO 01005KT 10SM OVC060 06/00 A2964 RMK AO2 SLP036 T00560000 KLEE 210753Z AUTO 32007KT 10SM CLR 23/21 A2998 RMK AO2 SLP152 T02280211 KLEW 210756Z AUTO VRB03KT 10SM OVC120 01/00 A2958 RMK AO2 SLP034 T00110000 FZRANO KLEX 210754Z 31006KT 10SM CLR 01/M02 A3030 RMK AO2 SLP260 T00111022 KLFI 210756Z AUTO 31012G20KT 10SM SCT080 OVC110 11/04 A2985 RMK AO2 PK WND 32036/02 RAB05E13 SLP115 P0000 T01120040 $ KLFK 210753Z AUTO 35003KT 10SM CLR 13/12 A3025 RMK AO2 SLP240 T01280117 KLFT 210753Z AUTO 04010KT 10SM OVC075 18/14 A3017 RMK AO2 SLP216 T01780139 $ KLGA 210751Z 36012KT 10SM SCT015 BKN022 OVC030 11/07 A2962 RMK AO2 SLP031 T01060067 KLGB 210753Z AUTO 00000KT 10SM CLR 19/16 A2990 RMK AO2 SLP124 T01890156 403330156 KLGC 210835Z AUTO 35003KT 10SM CLR 12/08 A3011 RMK AO2 T01180080 KLGD 210756Z AUTO 00000KT 10SM CLR 04/01 A3010 RMK AO2 SLP326 T00440006 402281028 KLGF 210758Z AUTO 00000KT 10SM CLR 22/12 A2985 RMK AO2 LTG DSNT N SLPNO T02240124 $ KLGU 210751Z AUTO 00000KT 10SM CLR 03/M01 A3023 RMK AO2 SLP224 T00331006 KLHB 210835Z AUTO 00000KT 10SM CLR 11/10 A3028 RMK AO2 T01130100 KLHM 210835Z AUTO 10008KT 10SM CLR 13/03 A2993 RMK AO1 KLHQ 210753Z AUTO 32010KT 10SM OVC035 02/M04 A3021 RMK AO2 SLP234 T00221039 $ KLHW 210756Z AUTO 31009KT 10SM CLR 17/10 A2999 RMK AO2 SLP158 T01650099 $ KLHX 210753Z AUTO 21010KT 10SM CLR 10/01 A3027 RMK AO2 SLP214 T01000011 KLHZ 210820Z AUTO 10SM CLR 08/00 A3000 RMK AO2 KLIC 210755Z AUTO 03004KT 10SM CLR M02/M03 A3029 RMK AO2 SLP232 T10171033 KLIT 210753Z 03007KT 10SM SCT250 10/03 A3034 RMK AO2 SLP274 T01000033 $ KLJF 210835Z AUTO 00000KT 10SM CLR M03/M04 A3024 RMK AO2 KLKR 210835Z AUTO 02003KT 10SM 11/02 A3001 RMK AO2 KLKU 210835Z AUTO 27007KT 10SM CLR 06/M01 A2997 RMK AO2 T00581005 KLKV 210753Z AUTO 33010KT 10SM CLR M01/M05 A3014 RMK AO2 SLP672 T10061050 402331033 FZRANO KLLJ 210755Z AUTO 00000KT 9SM -SN CLR 03/M04 A3023 RMK AO2 SNE08B50 SLP215 P0000 T00331039 KLLQ 210753Z AUTO VRB04KT 10SM CLR 11/07 A3028 RMK AO2 SLP252 T01110067 KLMO 210835Z AUTO 00000KT 10SM CLR 03/M01 A3025 RMK AO2 T00331009 KLMT 210753Z AUTO 04003KT 10SM CLR 01/M04 A3010 RMK AO2 SLP176 T00061039 402391022 KLNA 210835Z AUTO 29003KT 10SM CLR 24/23 A2997 RMK AO2 T02360230 KLNC 210835Z AUTO 33004KT 10SM CLR 11/08 A3032 RMK AO2 T01130077 KLND 210753Z AUTO 20003KT 10SM CLR 06/M02 A3020 RMK AO2 SLP194 T00611022 $ KLNK 210754Z AUTO 00000KT 10SM CLR 01/M03 A3035 RMK AO2 SLP283 T00111028 $ KLNL 210835Z AUTO 00000KT 10SM OVC027 M02/M03 A3022 RMK AO2 T10181035 KLNN 210835Z AUTO 34016G25KT 10SM BKN025 OVC031 04/M02 A3012 RMK AO1 T00401023 KLNP 210835Z AUTO 33009G14KT 10SM OVC020 01/M01 A3017 RMK AO2 KLNQ 210835Z AUTO 03020G28KT 10SM SCT042 OVC049 21/15 A3011 RMK AO2 T02100148 KLNR 210756Z AUTO 00000KT 10SM CLR M05/M06 A3037 RMK AO2 SLP288 T10501061 KLNS 210753Z AUTO 32015G20KT 10SM -RA OVC034 08/04 A2974 RMK AO2 RAB48 SLP072 P0000 T00830044 KLOL 210753Z AUTO 00000KT 10SM CLR 01/M06 A3010 RMK AO2 SLP185 T00061061 402171022 KLOM 210835Z AUTO 30003KT 10SM BKN040 07/05 A2974 RMK AO1 KLOR 210758Z AUTO 32003KT 10SM CLR 14/13 A3011 RMK AO2 SLP178 T01390127 $ KLOT 210835Z AUTO 29005KT 10SM CLR M03/M05 A3037 RMK AO2 T10271055 KLOU 210753Z AUTO 32005KT 10SM SCT041 04/M03 A3034 RMK AO2 SLP276 T00391028 KLOZ 210753Z AUTO 32004KT 10SM OVC033 02/M03 A3026 RMK AO2 SLP249 T00171028 $ KLPC 210756Z AUTO 00000KT 10SM CLR 10/08 A2993 RMK AO2 SLP138 T01000083 403280078 KLPR 210753Z AUTO 35011G23KT 10SM OVC037 03/M04 A3015 RMK AO2 SLP213 T00331044 KLQK 210835Z AUTO 04003KT 10SM CLR 10/03 A3002 RMK AO2 T00980027 KLRD 210756Z AUTO 02012KT 10SM OVC022 18/14 A3019 RMK AO2 SLP233 T01830144 KLRF 210756Z AUTO 02007KT 10SM CLR 10/03 A3032 RMK AO2 SLP269 T00970025 $ KLRJ 210835Z AUTO 16004KT 10SM CLR M02/M06 A3028 RMK AO2 KLRO 210815Z AUTO 32009KT 10SM CLR 16/12 A2996 RMK AO2 KLRU 210835Z AUTO 13010KT 10SM OVC050 13/07 A3036 RMK AO2 T01330065 KLRY 210835Z AUTO 09003KT 10SM CLR 03/M03 A3044 RMK AO2 KLSE 210753Z AUTO 15005KT 10SM CLR M02/M06 A3036 RMK AO2 SLP289 T10171056 KLSF 210756Z AUTO 00000KT 10SM CLR 11/11 A3009 RMK AO2 SLP194 T01050105 KLSV 210758Z 29003KT 10SM FEW120 18/11 A2997 RMK AO2A SLPNO ALSTG ESTMD 402760176 T01830117 $ KLTS 210816Z AUTO 31004KT 3/4SM R35R/4000V4500FT BR CLR M M RMK AO2 SLPNO VISNO RWY17L $ KLUA 210835Z AUTO 30015G22KT 10SM BKN043 07/00 A2995 RMK AO2 KLUD 210835Z AUTO 00000KT 10SM CLR 13/07 A3034 RMK AO2 T01260067 KLUF 210758Z AUTO 00000KT 10SM CLR 27/09 A2991 RMK AO2 SLP115 T02670091 $ KLUG 210835Z AUTO 01005KT 10SM CLR 03/M04 A3030 RMK A01 KLUK 210753Z AUTO 29005KT 10SM CLR 03/M01 A3032 RMK AO2 SLP267 T00281006 KLUL 210835Z AUTO 35003KT 10SM CLR 10/10 A3019 RMK AO2 T01010101 KLUM 210835Z AUTO 00000KT 10SM CLR M07/M09 A3030 RMK AO2 T10691086 KLUV 210835Z AUTO 04005KT 10SM BKN120 08/06 A3040 RMK AO2 KLUX 210835Z AUTO 36007KT 10SM CLR 10/02 A3003 RMK AO2 KLVJ 210753Z AUTO 03010KT 10SM OVC065 19/15 A3019 RMK AO2 SLP222 T01890150 KLVK 210753Z AUTO 09003KT 10SM CLR 12/04 A2996 RMK AO2 SLP143 T01170044 403000089 KLVL 210835Z AUTO 10SM CLR 09/M02 A2995 RMK AO1 T00901018 KLVM 210753Z AUTO 32015KT 10SM CLR 05/M01 A3015 RMK AO2 SLP186 T00501006 $ KLVN 210835Z AUTO 00000KT 10SM CLR M03/M05 A3027 RMK AO2 KLVS 210753Z AUTO 19007KT 10SM CLR 02/M02 A3045 RMK AO2 SLP262 T00171022 KLWA 210836Z AUTO 00000KT 10SM -SN BKN028 OVC034 02/00 A3030 RMK AO2 T00160000 KLWB 210835Z AUTO 32007G18KT 280V350 10SM BKN023 OVC029 02/M01 A3006 RMK AO2 T00221011 KLWC 210752Z AUTO 10004KT 10SM CLR 02/M03 A3040 RMK AO2 SLP296 T00171028 KLWD 210753Z AUTO 22003KT 10SM CLR M01/M05 A3039 RMK AO2 SLP297 T10061050 KLWM 210754Z AUTO 36006KT 10SM OVC080 09/02 A2958 RMK AO2 SLP015 T00890022 KLWS 210756Z AUTO 14003KT 10SM CLR 09/01 A3006 RMK AO2 SLP181 T00890006 402110033 KLWT 210754Z AUTO 23009KT 10SM CLR 06/M06 A3013 RMK AO2 SLP182 T00611061 KLWV 210753Z AUTO 35006KT 10SM CLR 01/M05 A3038 RMK AO2 SLP288 T00061050 KLXL 210835Z AUTO 00000KT 10SM CLR M04/M06 A3021 RMK AO2 KLXN 210835Z AUTO 15007KT 10SM CLR 07/M01 A3026 RMK AO2 T00651012 KLXT 210753Z AUTO 12005KT 10SM CLR 03/M02 A3042 RMK AO2 SLP303 T00281022 KLXV 210753Z AUTO 05005KT 10SM CLR M05/M09 A3049 RMK AO2 SLP240 T10501094 $ KLXY 210835Z AUTO 33006KT 10SM CLR 12/09 A3028 RMK AO2 T01170087 KLYH 210754Z AUTO VRB05KT 10SM CLR 06/M04 A2999 RMK AO2 SLP152 T00611039 KLYO 210835Z AUTO 17005KT 10SM CLR 05/01 A3035 RMK AO2 T00540010 KLYV 210835Z AUTO 00000KT 10SM CLR M04/M06 A3027 RMK AO2 KLZU 210756Z AUTO 00000KT 10SM CLR 10/06 A3007 RMK AO2 SLP189 T01000056 KLZZ 210835Z AUTO 36006KT 10SM CLR 12/08 A3029 RMK AO2 T01190084 KM02 210835Z AUTO 03008KT 10SM CLR 02/M04 A3031 RMK A01 KM04 210835Z AUTO 03007KT 10SM CLR 05/M02 A3036 RMK A01 KM08 210835Z AUTO VRB04KT 10SM CLR 06/M02 A3032 RMK A01 KM19 210756Z AUTO 02009KT 10SM CLR 06/02 A3038 RMK AO2 SLP293 T00560017 KM21 210835Z AUTO 00000KT 10SM CLR M01/M02 A3036 RMK AO2 T10071025 KM25 210835Z AUTO 00000KT 10SM CLR 02/M03 A3037 RMK AO2 KM30 210835Z AUTO 00000KT 10SM CLR 00/M03 A3039 RMK AO2 T00001026 KM40 210835Z AUTO 02008KT 10SM CLR 09/06 A3027 RMK AO2 KM54 210835Z AUTO 36003KT 10SM CLR 03/M03 A3031 RMK A01 KM63 210758Z AUTO 16004KT 10SM OVC050 14/04 A3031 RMK AO2 SLP257 WND DATA ESTMD T01440036 KM75 210835Z AUTO 00000KT 10SM CLR 02/M01 A3009 RMK A01 KM91 210835Z AUTO 36005KT 10SM CLR 02/M04 A3032 RMK A01 KMAE 210753Z AUTO 00000KT 10SM CLR 14/06 A2996 RMK AO2 SLP141 T01390061 403060106 KMAF 210753Z AUTO 04004KT 10SM BKN090 11/08 A3038 RMK AO2 SLP262 T01060083 KMAN 210835Z AUTO 00000KT 8SM 04/04 A3010 RMK A01 KMAO 210835Z AUTO 32005KT 10SM CLR 12/08 A2996 RMK AO2 KMAW 210835Z AUTO 03005KT 10SM CLR 04/M02 A3041 RMK AO2 KMBG 210752Z AUTO 16015G21KT 10SM CLR 06/M02 A2998 RMK AO2 SLP164 T00561017 $ KMBL 210756Z AUTO 32008KT 10SM OVC032 03/M03 A3024 RMK AO2 SLP265 T00331033 KMBO 210835Z AUTO 00000KT 7SM CLR 08/08 A3021 RMK AO2 PWINO KMBS 210753Z AUTO 29009KT 10SM OVC042 02/M02 A3022 RMK AO2 SLP238 T00171017 KMBT 210835Z AUTO 02007KT 10SM CLR 03/M04 A3031 RMK A01 KMBY 210835Z AUTO 00000KT 10SM CLR 00/M04 A3042 RMK AO2 KMCB 210753Z AUTO VRB04KT 10SM CLR 14/12 A3019 RMK AO2 SLP218 T01390117 KMCC 210835Z AUTO 12006KT 10SM CLR 15/05 A2996 RMK AO2 KMCD 210835Z AUTO 30010G14KT 10SM CLR 00/M08 A3018 RMK AO2 T10021077 KMCE 210753Z AUTO 00000KT 9SM CLR 14/07 A2994 RMK AO2 SLP137 T01390067 403000078 KMCF 210826Z AUTO 36004KT 10SM SCT023 26/22 A2998 RMK AO2 SLP155 FZRANO $ KMCI 210753Z 13007KT 10SM CLR 02/M04 A3040 RMK AO2 SLP297 T00221039 KMCJ 210835Z AUTO 02010G17KT 10SM OVC060 18/14 A3018 RMK A01 KMCK 210753Z AUTO 18005KT 10SM CLR 06/01 A3026 RMK AO2 SLP245 T00560006 KMCN 210753Z AUTO 29005KT 10SM CLR 11/10 A3006 RMK AO2 SLP176 T01110100 KMCO 210753Z 29006KT 10SM FEW030 24/22 A2997 RMK AO2 SLP147 T02390222 $ KMCW 210753Z AUTO 20004KT 10SM CLR M05/M06 A3035 RMK AO2 SLP285 T10501056 KMCX 210835Z AUTO 30005KT 10SM OVC038 M01/M06 A3032 RMK AO2 T10131061 KMDD 210835Z AUTO 00000KT 10SM 10/08 A3038 RMK AO2 T01010080 KMDH 210752Z AUTO 34003KT 10SM CLR 01/M03 A3039 RMK AO2 SLP294 T00061028 KMDJ 210835Z AUTO 03027KT 10SM OVC018 24/21 A3008 RMK A01 KMDQ 210830Z AUTO 36013G17KT 10SM CLR 05/M04 A3026 RMK A02 T00531036 KMDS 210835Z AUTO 18009KT 10SM CLR M02/M04 A3021 RMK AO2 KMDT 210838Z 30013KT 10SM -RA BKN028 OVC035 08/04 A2979 RMK AO2 RAB20 P0000 T00830044 KMDW 210753Z 29006KT 10SM FEW050 M01/M07 A3034 RMK AO2 SLP284 T10061067 KMDZ 210835Z AUTO 00000KT 10SM CLR M05/M08 A3025 RMK AO2 T10541077 KMEB 210752Z AUTO 33010KT 10SM CLR 13/05 A2994 RMK AO2 SLP136 T01330050 KMEH 210756Z AUTO 00000KT 6SM BR CLR 01/M02 A3009 RMK AO2 SLP186 T00061017 402221028 $ KMEI 210758Z AUTO 00000KT 10SM CLR 10/08 A3019 RMK AO2 SLP221 T01000083 TSNO KMEM 210754Z 04012G24KT 10SM CLR 09/M01 A3032 RMK AO2 SLP266 T00941006 KMER 210345Z 00000KT 10SM SKC 16/08 A2993 KMEV 210835Z AUTO 10004KT 10SM CLR 00/M08 A3014 RMK AO2 KMEZ 210835Z AUTO 03004KT 10SM CLR 06/06 A3033 RMK AO2 KMFD 210752Z AUTO 29010G18KT 10SM OVC031 01/M03 A3015 RMK AO2 SLP216 T00111033 KMFE 210753Z AUTO 35009KT 5SM -RA BR OVC006 19/18 A3014 RMK AO2 CIG 005V010 SLP204 P0001 T01940183 KMFI 210754Z AUTO 28003KT 10SM CLR M04/M07 A3029 RMK AO2 SLP277 T10441067 TSNO $ KMFR 210753Z AUTO 00000KT 10SM CLR 10/01 A2999 RMK AO2 SLP150 T01000011 402940033 KMFV 210835Z AUTO 30019G26KT 10SM OVC095 12/03 A2980 RMK AO2 T01200033 KMGC 210835Z AUTO 33005KT 10SM OVC032 03/M03 A3032 RMK AO2 KMGE 210756Z AUTO 32011G21KT 10SM CLR 11/01 A3008 RMK AO2 PK WND 30032/03 SLP184 T01070012 $ KMGG 210835Z AUTO 00000KT 10SM CLR M03/M04 A3025 RMK AO2 T10271041 KMGJ 210754Z AUTO 31008KT 10SM OVC060 08/04 A2964 RMK AO2 SLP037 T00780044 KMGM 210753Z AUTO 28005KT 10SM CLR 12/11 A3014 RMK AO2 SLP204 T01170111 TSNO KMGN 210835Z AUTO 30004KT 10SM SCT034 BKN039 00/M04 A3019 RMK AO2 T00081043 KMGR 210835Z AUTO 34005KT 10SM CLR 15/11 A3008 RMK AO2 KMGW 210753Z AUTO 32008KT 290V350 10SM OVC018 04/02 A3005 RMK AO2 SLP178 T00390017 KMGY 210753Z AUTO 29004KT 10SM CLR 01/M03 A3027 RMK AO2 SLP251 T00111028 KMHE 210753Z AUTO 10SM CLR 02/M03 A3021 RMK AO2 SLP240 T00221028 KMHK 210752Z AUTO 00000KT 5SM BR CLR 01/00 A3038 RMK AO2 SLP290 T00060000 KMHL 210835Z AUTO 00000KT 10SM CLR 00/M02 A3044 RMK AO2 KMHR 210345Z 00000KT 10SM SKC 16/05 A2991 KMHS 210756Z AUTO 00000KT 10SM CLR 05/M03 A3007 RMK AO2 SLP183 T00501033 402670017 KMHT 210753Z 34003KT 10SM OVC085 08/02 A2958 RMK AO2 SLP029 T00780022 KMHV 210820Z AUTO 34008KT 10SM SCT085 17/M01 A3000 RMK A01 LTG DSNT NE KMIA 210753Z 29003KT 10SM FEW035 24/23 A2997 RMK AO2 SLP149 T02440233 KMIB 210756Z AUTO 24012KT 10SM CLR 05/M03 A2989 RMK AO2 SLP140 T00531030 $ KMIC 210753Z AUTO 17003KT 10SM CLR M03/M06 A3028 RMK AO2 SLP263 T10331061 KMIE 210753Z AUTO 31006KT 10SM OVC040 02/M02 A3028 RMK AO2 SLP254 T00221017 KMIS 210835Z AUTO 06032KT 10SM SCT042 OVC050 22/15 A3008 RMK A01 KMIV 210754Z AUTO 29013G19KT 10SM BKN120 10/05 A2970 RMK AO2 SLP056 T01000050 KMIW 210753Z AUTO 20003KT 10SM CLR M04/M05 A3035 RMK AO2 SLP289 T10391050 KMJQ 210835Z 16006KT 10SM CLR M02/M06 A3027 RMK AO2 PWINO KMJX 210756Z AUTO 30012KT 10SM CLR 08/06 A2966 RMK AO2 SLP048 T00830056 KMKC 210754Z 08003KT 10SM CLR 05/M03 A3042 RMK AO2 SLP300 T00501033 KMKE 210752Z 26004KT 10SM FEW036 01/M06 A3033 RMK AO2 SLP277 T00111056 KMKG 210755Z AUTO 33011KT 10SM OVC033 04/M03 A3028 RMK AO2 SLP259 T00391033 KMKJ 210835Z AUTO 31021G29KT 10SM OVC031 03/M02 A3009 RMK AO2 T00281021 KMKL 210753Z AUTO 03009KT 10SM CLR 06/M03 A3034 RMK AO2 SLP272 T00561028 $ KMKN 210835Z 10SM CLR 10/10 A3034 RMK AO2 T01030098 KMKO 210753Z AUTO 36005KT 10SM CLR 06/06 A3037 RMK AO2 SLP283 T00610056 KMKS 210835Z AUTO 00000KT 10SM CLR 14/12 A2998 RMK AO2 KMKT 210756Z AUTO 17005KT 10SM CLR M03/M06 A3031 RMK AO2 SLP279 T10281056 FZRANO KMKY 210756Z AUTO 00000KT 10SM SCT022 23/22 A3000 RMK AO2 SLP157 T02280217 KMLB 210753Z AUTO 28005KT 9SM CLR 23/22 A2996 RMK AO2 SLP145 T02280217 KMLC 210753Z AUTO 00000KT 10SM FEW080 FEW110 06/06 A3035 RMK AO2 SLP273 T00610056 KMLE 210835Z AUTO 14003KT 10SM CLR 02/M02 A3034 RMK AO2 T00151020 KMLF 210752Z AUTO 33007KT 10SM SCT100 09/02 A3020 RMK AO2 SLP187 T00890022 KMLI 210752Z AUTO 00000KT 10SM CLR M01/M04 A3039 RMK AO2 SLP294 T10111044 KMLJ 210835Z AUTO 33005KT 10SM CLR 12/08 A3005 RMK AO2 KMLP 210753Z AUTO 19003KT 10SM CLR 11/M11 A3019 RMK AO2 SLP140 T01111111 401560089 KMLS 210753Z AUTO 29010KT 10SM CLR 06/02 A3003 RMK AO2 SLP171 T00560017 $ KMLT 210753Z AUTO 32004KT 10SM CLR 01/M02 A2958 RMK AO2 SLP025 T00111017 KMLU 210753Z AUTO 02006KT 10SM CLR 12/10 A3025 RMK AO2 SLP242 T01170100 KMMH 210835Z AUTO 35003KT 10SM CLR M01/M09 A3024 RMK AO2 T10111095 KMMI 210835Z AUTO 01004G10KT 10SM CLR 04/M02 A3025 RMK A01 KMMK 210753Z AUTO 01004KT 10SM OVC050 09/04 A2959 RMK AO2 SLP019 T00890039 $ KMML 210756Z AUTO 17009KT 10SM CLR M02/M06 A3025 RMK AO2 SLP260 T10221061 FZRANO KMMT 210756Z AUTO 31007KT 10SM CLR 10/08 A2997 RMK AO2 SLP151 T01040075 $ KMMU 210835Z AUTO 32007KT 10SM SCT041 OVC047 08/05 A2968 RMK AO2 KMMV 210841Z AUTO 00000KT 3/4SM BR CLR 04/04 A2998 RMK AO2 T00390039 $ KMNE 210835Z AUTO 36004KT 10SM CLR 12/09 A3028 RMK AO2 T01160090 KMNH 210824Z AUTO 18009KT 10SM CLR 03/M07 A3034 RMK AO2 KMNI 210835Z AUTO 33003KT 10SM CLR 11/09 A2998 RMK AO2 KMNM 210756Z AUTO 34008KT 10SM OVC034 01/M06 A3030 RMK AO2 SLP282 T00111056 FZRANO PNO $ KMNN 210753Z AUTO 32013G17KT 10SM OVC035 02/M04 A3021 RMK AO2 PK WND 34026/0658 SLP234 T00221039 $ KMNV 210835Z AUTO 03010G16KT 10SM CLR 04/M04 A3023 RMK A01 KMNZ 210835Z AUTO 02003KT 10SM CLR 10/08 A3033 RMK AO2 T01000076 KMOB 210756Z AUTO 01011KT 10SM CLR 16/13 A3016 RMK AO2 SLP209 T01560128 KMOD 210753Z AUTO 00000KT 9SM CLR 13/10 A2994 RMK AO2 SLP137 T01280100 402940078 KMOP 210835Z AUTO 28007KT 10SM SCT028 BKN034 OVC039 02/M03 A3021 RMK AO2 T00161030 KMOR 210800Z AUTO 36008KT 330V030 10SM CLR 04/M04 A3020 RMK A01 KMOT 210754Z AUTO 22014KT 10SM CLR 06/M03 RMK AO2 SLPNO T00561033 $ KMOX 210835Z AUTO 00000KT 10SM CLR M04/M07 A3018 RMK AO2 KMPO 210827Z AUTO 31014G21KT 10SM BKN010 OVC016 03/03 A2969 RMK AO2 T00330028 $ KMPV 210803Z AUTO 32006KT 10SM BKN027 03/M02 A2971 RMK AO2 T00281017 KMPZ 210835Z AUTO 00000KT 10SM CLR M02/M03 A3037 RMK AO2 KMQB 210835Z AUTO 00000KT 10SM CLR M03/M05 A3041 RMK AO2 T10331055 KMQE 210756Z AUTO 33010KT 08/05 A2954 RMK AO1 SLP014 T00780050 KMQI 210820Z AUTO 34019G30KT 10SM SCT041 SCT047 SCT090 15/07 A2982 RMK AO2 T01500073 KMQJ 210836Z AUTO 30006KT 10SM CLR M01/M03 A3031 RMK AO1 KMQS 210835Z AUTO 31013G20KT 5SM -RA 07/05 A2976 RMK AO2 KMQY 210756Z AUTO 36008KT 10SM CLR 04/M04 A3033 RMK AO2 SLP235 T00391039 KMRB 210753Z AUTO 30017G27KT 10SM -RA SCT026 OVC037 06/03 A2985 RMK AO2 PK WND 29031/0732 RAB0659 SLP109 P0000 T00610028 KMRC 210835Z AUTO 01004KT 10SM CLR 04/M05 A3030 RMK A01 KMRF 210756Z AUTO 05007KT 10SM 11/09 A3040 RMK AO2 SLP268 T01110094 $ KMRH 210758Z AUTO 31012KT 10SM CLR 16/10 A2985 RMK AO2 SLP108 T01610100 $ KMRJ 210835Z AUTO 00000KT 10SM CLR M01/M05 A3033 RMK AO2 KMRN 210820Z AUTO 35008KT 10SM CLR 07/M05 A3009 RMK AO2 T00741053 KMRT 210835Z AUTO 34012G19KT 10SM OVC035 02/M05 A3024 RMK AO2 T00151050 KMRY 210754Z AUTO 10005KT 5SM BR OVC002 12/11 A2998 RMK AO2 SLP165 T01170106 401890089 KMSL 210753Z AUTO 02007G20KT 340V060 10SM CLR 08/M01 A3028 RMK AO2 SLP252 T00831006 KMSN 210753Z AUTO 30003KT 10SM CLR M03/M07 A3035 RMK AO2 SLP287 T10281067 KMSO 210753Z AUTO 26003KT 10SM CLR 03/M02 A3016 RMK AO2 SLP222 T00281022 KMSP 210753Z 20003KT 10SM CLR M01/M05 A3030 RMK AO2 SLP271 T10111050 KMSS 210753Z AUTO 29009KT 10SM SCT036 BKN100 02/M02 A2982 RMK AO2 SLP102 T00171017 KMSV 210756Z AUTO 29006KT 10SM SCT024 BKN037 OVC070 04/03 A2968 RMK AO2 SLP055 T00390028 KMSY 210753Z 03017G25KT 10SM SCT022 OVC060 19/13 A3014 RMK AO2 PK WND 05026/0733 SLP209 T01940133 KMTC 210256Z 32012G18KT 10SM SCT045 SCT090 03/M03 A3002 RMK SLP174 WND DATA ESTMD ALSTG/SLP ESTMD 51046 KMTH 210753Z AUTO 01005KT 10SM FEW020 26/23 A2998 RMK AO2 SLP150 T02610228 KMTJ 210753Z AUTO 15004KT 10SM CLR 04/M01 A3037 RMK AO2 SLP247 T00391011 KMTN 210821Z AUTO 26015G20KT 10SM SCT065 10/03 A2980 RMK AO2 KMTO 210753Z AUTO 31005KT 10SM CLR M02/M07 A3037 RMK AO2 SLP289 T10221072 $ KMTP 210754Z AUTO 34010KT 12/08 A2957 RMK AO1 SLP012 T01170078 KMTV 210837Z AUTO 31011G17KT 10SM SCT050 06/M03 A3009 RMK AO2 KMTW 210756Z AUTO 28005KT 10SM OVC036 01/M05 A3031 RMK AO2 SLP287 T00111050 FZRANO KMUI 210839Z AUTO 28008G15KT 10SM SCT030 SCT037 BKN065 BKN075 07/04 A2978 RMK AO2 RAB0757E18DZB18E21DZB30E39 SLP088 $ KMUO 210758Z AUTO 06006KT 10SM CLR 04/00 A3010 RMK AO2 SLP191 T00410004 $ KMUT 210835Z AUTO 00000KT 10SM CLR M02/M05 A3038 RMK AO2 KMVE 210835Z AUTO 20006KT 10SM CLR M02/M07 A3022 RMK AO2 KMVH 210835Z AUTO 30005KT 10SM CLR 08/M09 A3016 RMK AO2 KMVL 210819Z AUTO 33010G16KT 10SM BKN022 BKN028 03/M02 A2971 RMK AO2 T00281017 KMVN 210756Z AUTO 00000KT 10SM CLR M03/M04 A3039 RMK AO2 SLP294 T10331039 FZRANO KMVY 210753Z AUTO 36003KT 10SM SCT110 05/05 A2954 RMK AO2 SLP003 T00500050 KMWA 210835Z AUTO 00000KT 10SM CLR M01/M03 A3040 RMK AO2 T10151029 KMWC 210835Z AUTO 00000KT 10SM SCT036 M02/M07 A3034 RMK AO2 KMWH 210752Z AUTO 01006KT 10SM CLR 03/M01 A3008 RMK AO2 SLP188 T00331006 401891011 KMWK 210820Z AUTO 33006G16KT 10SM SCT050 07/M04 A3009 RMK AO2 T00661037 KMWL 210753Z AUTO 28003KT 6SM BR CLR 10/08 A3033 RMK AO2 SLP263 T01000083 KMWN 210753Z 30039KT 1/16SM FZFG VV001 M08/M08 RMK VRY LGT ICG KMWO 210835Z AUTO 00000KT 10SM OVC048 01/M01 A3031 RMK AO2 T00081009 KMWT 210653Z AUTO 00000KT 10SM CLR 08/07 A3029 RMK AO2 SLP256 T00780067 KMXF 210756Z AUTO 29004KT 10SM CLR 12/11 A3013 RMK AO2 SLP205 T01220114 $ KMXO 210835Z AUTO 00000KT 10SM CLR M05/M06 A3036 RMK AO2 KMYF 210753Z AUTO 00000KT 10SM CLR 18/08 A2992 RMK AO2 SLP126 T01780083 403000144 $ KMYJ 210835Z AUTO 23004KT 10SM CLR M02/M03 A3041 RMK AO2 KMYL 210751Z AUTO 00000KT 10SM CLR 02/M02 A3017 RMK AO2 SLP205 T00171017 KMYP 210831Z AUTO 24023KT 10SM CLR 00/M09 A3066 RMK AO2 KMYR 210756Z AUTO 33010KT 10SM CLR 17/08 A2994 RMK AO2 SLP137 T01670083 KMYV 210753Z AUTO 11003KT 10SM CLR 12/04 A2994 RMK AO2 SLP143 T01170044 402890067 KMYZ 210835Z AUTO 16004KT 10SM CLR 01/M02 A3036 RMK AO2 KMZG 210835Z AUTO 11025KT 3SM BR SCT010 BKN014 OVC024 22/22 A3010 RMK A01 KMZH 210835Z AUTO 00000KT 10SM CLR M05/M06 A3021 RMK AO2 KMZZ 210835Z AUTO 31003KT 10SM OVC040 00/00 A3031 RMK AO2 T00020000 KN03 210835Z AUTO 01003KT 10SM OVC026 02/00 A2982 RMK AO2 KN38 210835Z AUTO 34009G18KT 4SM -RA FEW003 SCT012 OVC018 01/M00 A2985 RMK AO2 KN60 210752Z AUTO 19007KT 02/M03 A2995 RMK AO1 SLP161 T00171028 KNAK 210754Z AUTO 29009G17KT 10SM FEW049 SCT060 12/03 A2978 RMK AO2 PK WND 29026/0734 SLP087 T01220033 KNBC 210756Z AUTO 31009KT 10SM CLR 17/12 A2998 RMK AO2 SLP153 T01670117 KNBG 210755Z AUTO 03013G18KT 10SM OVC060 22/16 RMK AO2 SLPNO T02220161 $ KNCA 210756Z AUTO 31010KT 10SM FEW070 15/07 A2987 RMK AO2 SLP117 T01500072 KNDZ 210756Z AUTO 01009KT 10SM CLR 15/13 A3012 RMK AO2 SLP186 T01500128 $ KNEL 210800Z AUTO 29011G19KT 10SM SCT033 09/07 A2965 RMK AO2 SLP038 T00940067 $ KNEW 210753Z AUTO 04026G33KT 10SM OVC065 20/13 A3014 RMK AO2 PK WND 04033/0752 SLP199 T02000133 KNFE 210756Z AUTO 35016G24KT 290V020 10SM SCT035 OVC100 14/06 A2983 RMK AO2 PK WND 36026/0745 SLP104 T01390061 KNFG 210755Z AUTO 00000KT 10SM CLR 12/08 A2991 RMK AO2 SLP129 T01170083 403110072 KNFL 210756Z AUTO 18006KT 10SM CLR 04/M03 A3010 RMK AO2 SLP159 T00441028 402330017 KNFW 210752Z AUTO 33006KT 10SM CLR 12/09 A3032 RMK AO2 SLP250 T01170094 TSNO $ KNGP 210756Z AUTO 03017KT 10SM OVC011 20/18 A3014 RMK AO2 SLP206 T02000183 $ KNGU 210759Z 32019G25KT 10SM FEW040 SCT070 BKN090 12/04 A2986 RMK AO2 PK WND 33033/0725 SLP111 T01170039 KNHK 210752Z AUTO 28011KT 10SM OVC110 12/04 A2980 RMK AO2 SLP091 T01220039 KNID 210756Z AUTO A2999 RMK AO2 SLPNO PWINO $ KNIP 210817Z 33015KT 10SM SCT017 BKN250 22/19 A2999 RMK AO2 T02220189 $ KNJK 210756Z AUTO 25008KT 10SM CLR 22/02 A2985 RMK AO2 SLP124 T02170017 403280139 $ KNJM 210757Z AUTO 32009G16KT 10SM CLR 16/09 A2986 RMK AO2 SLP113 T01560089 PNO $ KNKT 210754Z 30010KT 10SM CLR 15/10 A2986 RMK AO2 SLP107 T01500100 KNKX 210755Z 09003KT 10SM CLR 16/03 A2991 RMK AO2 SLP123 T01560033 403220156 KNLC 210756Z AUTO 29005KT 10SM CLR 13/01 A2994 RMK AO2 SLP139 T01280006 403060072 KNMM 210756Z AUTO 35005KT 8SM CLR 09/09 A3020 RMK AO2 VIS 1/4 SOUTH SLP235 T00940089 $ KNOG 210756Z AUTO 03010KT 10SM -RA OVC016 17/16 A3018 RMK AO2 SLP200 P0000 T01720161 $ KNOW 210830Z AUTO 16008KT 10SM CLR 11/08 A3006 RMK AO2 T01050078 KNOZ 210759Z AUTO 12007KT 10SM CLR 20/11 A2987 RMK AO2 SLP064 T02000111 $ KNPA 210756Z AUTO 01012G19KT 10SM FEW120 17/13 A3011 RMK AO2 SLP198 T01670133 $ KNQA 210835Z AUTO 02009G16KT 10SM 07/M02 A3034 RMK A01 KNQI 210756Z AUTO 01007KT 10SM OVC012 19/17 A3016 RMK AO2 SLP209 T01890167 KNQX 210829Z AUTO 01004KT 10SM BKN022 26/22 A2998 RMK AO2 T02610222 KNRB 210752Z AUTO 32008G16KT 10SM FEW014 22/17 A2997 RMK AO2 SLP149 T02220167 KNRS 210756Z AUTO 00000KT 10SM CLR 12/08 A2992 RMK AO2 RAB35E48 SLP132 P0000 T01170078 402780111 $ KNSE 210756Z AUTO VRB06KT 10SM CLR 14/13 A3013 RMK AO2 SLP188 T01440128 $ KNSI 210757Z AUTO 27009KT 10SM CLR 21/ A2991 RMK AO2 SLP120 T0211 403000167 $ KNTD 210757Z AUTO 32004KT 10SM CLR 15/08 A2989 RMK AO2 SLP122 T01500083 403220128 $ KNTU 210756Z 32016G26KT 10SM FEW032 BKN100 11/05 A2982 RMK AO2 PK WND 34038/0731 SLP101 T01110050 KNUC 210756Z AUTO 20007KT CLR 17/17 A2992 RMK AO2 SLP128 T01670167 402610156 $ KNUI 210753Z AUTO 29017G25KT 10SM BKN110 12/03 A2979 RMK AO2 SLP089 T01170033 KNUQ 210756Z 00000KT 10SM OVC009 14/12 A2999 RMK AO2 SLP159 T01390117 402280111 KNUW 210756Z 00000KT 1/2SM FG BKN000 BKN003 06/03 A3010 RMK AO2 TWR VIS 4 SLP191 VIS SW 1 FG BKN000 T00560033 401330056 VISNO $ KNXF 210756Z AUTO 09005KT 10SM -RA CLR 17/09 A2991 RMK AO2 SLP213 T01670089 402670150 PNO KNXP 210756Z AUTO 27006KT 10SM CLR 18/08 A3002 RMK AO2 SLP135 T01830083 402780122 KNY0 210837Z AUTO 03005KT 10SM CLR 02/M03 A2972 RMK AO2 KNYC 210837Z AUTO 10SM FEW017 OVC046 09/05 A2968 RMK AO2 T00940050 $ KNYG 210756Z AUTO 32013G20KT 10SM FEW120 10/01 A2986 RMK AO2 SLP111 T01000011 $ KNYL 210757Z AUTO 14005KT 10SM CLR 21/12 A2985 RMK AO2 SLP105 T02110117 KNZY 210652Z 00000KT 9SM FEW060 17/14 A2991 RMK AO2 SLP129 T01670144 $ KO32 210830Z AUTO 00000KT 2 1/2SM HZ 13/05 A2994 RMK AO2 KO54 210835Z AUTO 00000KT 10SM CLR 05/M04 A3004 RMK AO1 KO69 210835Z AUTO 34003KT 6SM BR OVC005 11/11 A2999 RMK A01 KOAJ 210756Z AUTO 28003KT 10SM FEW070 14/07 A2989 RMK AO2 SLP126 T01390072 KOAK 210753Z 31003KT 9SM BKN009 12/11 A2999 RMK AO2 SLP155 T01170106 402060100 KOBE 210835Z AUTO 00000KT 10SM SCT006 20/20 A2997 RMK AO2 KOCF 210751Z AUTO 33006KT 10SM CLR 22/21 A2999 RMK AO2 SLP157 T02220206 $ KOCH 210756Z AUTO 35005KT 10SM 11/11 A3027 RMK AO2 SLP252 T01110106 $ KOCQ 210835Z AUTO 30003KT 10SM OVC037 01/M05 A3029 RMK AO1 T00091052 KOCW 210820Z AUTO 31011G24KT 10SM CLR 14/05 A2988 RMK AO2 T01380049 KODO 210753Z AUTO 05005KT 10SM OVC100 11/08 A3038 RMK AO2 SLP264 T01110083 KODX 210753Z AUTO 00000KT 10SM CLR 01/M03 A3026 RMK AO2 SLP258 T00111033 $ KOEB 210835Z AUTO 32012G16KT 10SM OVC038 03/M06 A3025 RMK AO2 T00251056 KOEO 210835Z AUTO 15003KT 10SM CLR M04/M06 A3030 RMK AO2 T10381056 KOFF 210756Z 15005KT 10SM CLR 01/M04 A3036 RMK AO2A SLP293 ALSTG/SLP ESTMD T00081039 $ KOFK 210756Z AUTO 16010KT 10SM CLR 02/M04 A3028 RMK AO2 SLP260 T00221039 KOFP 210754Z AUTO 28012G21KT 10SM SCT095 09/01 A2990 RMK AO2 SLP125 T00890006 KOGA 210835Z AUTO 25004KT 10SM CLR 05/00 A3021 RMK AO2 T00470001 KOGB 210753Z AUTO 29005KT 10SM CLR 13/09 A2998 RMK AO2 SLP151 T01330089 KOGD 210753Z AUTO 16007KT 10SM CLR 11/M01 A3020 RMK AO2 SLP195 T01061011 KOGS 210835Z AUTO 31007KT 10SM OVC034 02/M02 A2986 RMK AO2 T00151024 KOIN 210835Z AUTO 18008KT 10SM CLR 07/01 A3030 RMK AO1 T00720010 KOJA 210835Z AUTO 00000KT 10SM CLR 06/06 A3037 RMK AO2 P0001 KOJC 210753Z AUTO 09006KT 10SM CLR 03/M03 A3040 RMK AO2 SLP295 T00281028 KOKB 210752Z AUTO 00000KT 10SM CLR 12/09 A2991 RMK AO2 SLP127 T01220089 403000083 KOKC 210752Z 32003KT 10SM CLR 08/05 A3036 RMK AO2 SLP277 T00830050 $ KOKK 210756Z AUTO 28007KT 10SM CLR M01/M02 A3030 RMK AO2 SLP271 T10111017 FZRANO KOKM 210835Z AUTO 03004KT 10SM CLR 06/04 A3036 RMK AO2 T00610035 KOKV 210835Z AUTO 30025G31KT 10SM SCT032 05/01 A2990 RMK AO2 KOLE 210835Z AUTO 33006KT 300V360 10SM OVC030 M01/M01 A2991 RMK AO2 KOLF 210753Z AUTO 36018KT 10SM CLR 11/M01 A3003 RMK AO2 PK WND 36029/0717 SLP171 T01111006 KOLM 210754Z AUTO 00000KT 1/4SM FG VV001 03/03 A3005 RMK AO2 SLP176 T00330033 401330028 KOLS 210754Z AUTO 09007KT 060V120 10SM BKN080 OVC090 20/09 A3010 RMK AO2 SLP127 T02000089 KOLU 210756Z AUTO 13004KT 10SM CLR M01/M03 A3032 RMK AO2 SLP276 T10111028 FZRANO KOLV 210835Z AUTO 00000KT 10SM CLR 06/M00 A3032 RMK A01 KOLY 210835Z AUTO 00000KT 10SM CLR 00/M08 A3039 RMK AO2 T00001076 KOLZ 210835Z AUTO 13003KT M05/M05 A3034 RMK AO2 PWINO KOMA 210752Z 15009KT 10SM CLR 01/M04 A3036 RMK AO2 SLP284 T00111044 KOMH 210835Z AUTO 26009KT 10SM OVC050 07/00 A2993 RMK AO2 KOMK 210753Z AUTO 01011KT 10SM CLR 08/03 A3011 RMK AO2 SLP198 T00780033 401831011 $ KONA 210835Z AUTO 00000KT 10SM CLR M01/M02 A3033 RMK AO2 KONL 210835Z AUTO 19011KT 10SM CLR 03/M03 A3021 RMK AO2 T00331035 KONM 210835Z AUTO 00000KT 10SM CLR 08/02 A3036 RMK AO2 T00820024 KONO 210753Z AUTO 00000KT 9SM CLR 06/02 A3011 RMK AO2 SLP198 T00610017 KONP 210835Z AUTO 00000KT 3/4SM BR OVC005 05/05 A3000 RMK AO2 KONT 210753Z 00000KT 10SM FEW110 18/06 A2993 RMK AO2 SLP119 T01780056 403220150 KONX 210820Z AUTO 10SM SCT032 12/08 A2984 RMK AO2 T01220082 KONZ 210835Z AUTO 34010G18KT 10SM OVC036 03/M03 A3021 RMK AO2 T00251033 KOOA 210835Z AUTO 21003KT 10SM CLR M04/M06 A3038 RMK AO2 T10361059 KOPF 210753Z AUTO 28005KT 10SM CLR 24/23 A2997 RMK AO2 SLP150 T02440233 KOPL 210835Z AUTO 03007KT 10SM SCT080 15/14 A3019 RMK AO2 T01450135 KOPN 210835Z AUTO 35008G15KT 10SM CLR 11/04 A3009 RMK AO2 KOQN 210835Z AUTO 29007KT 10SM SCT029 BKN034 OVC045 08/05 A2974 RMK AO2 KOQT 210753Z AUTO VRB03KT 10SM CLR 04/M04 A3026 RMK AO2 SLP249 T00441039 $ KORB 210833Z AUTO 15003KT 10SM CLR M03/M08 A3013 RMK AO2 KORC 210835Z AUTO 17006KT 10SM CLR M01/M06 A3027 RMK AO2 KORD 210751Z 29006KT 10SM FEW045 M01/M06 A3033 RMK AO2 SLP279 T10111061 KORE 210752Z AUTO 33010KT 10SM -RA OVC039 09/03 A2961 RMK AO2 RAB30 SLP027 P0000 T00890028 KORF 210751Z 33009G21KT 10SM FEW045 SCT070 OVC095 12/03 A2984 RMK AO2 PK WND 34028/0720 SLP104 T01220033 KORG 210835Z AUTO 03009G14KT 10SM OVC080 18/16 A3020 RMK AO2 T01750160 KORH 210754Z AUTO 30011KT 10SM OVC055 07/04 A2957 RMK AO2 SLP015 T00720039 KORL 210753Z AUTO 31007KT 10SM CLR 25/23 A2997 RMK AO2 SLP150 T02500228 PNO $ KORS 210835Z AUTO 00000KT 1/4SM FG VV002 09/09 A3005 RMK AO2 KOSA 210835Z AUTO 01003KT 10SM CLR 11/08 A3032 RMK AO1 T01070080 KOSC 210835Z AUTO 32008KT 10SM OVC037 01/M04 A3017 RMK AO2 T00061041 KOSH 210753Z AUTO 27004KT 10SM CLR M02/M06 A3031 RMK AO2 SLP277 T10221061 KOSU 210753Z AUTO 33013G23KT 10SM OVC036 02/M05 A3022 RMK AO2 PK WND 32027/0735 SLP236 T00221050 KOTG 210756Z AUTO 17008KT 10SM CLR M02/M06 A3027 RMK AO2 SLP272 T10171061 FZRANO KOTH 210756Z AUTO 17003KT 1/4SM FG OVC002 08/08 A3000 RMK AO2 SLP159 T00830078 401670061 RVRNO PNO / KOTM 210753Z AUTO 00000KT 10SM CLR M02/M06 A3037 RMK AO2 SLP291 T10171056 KOUN 210835Z AUTO 00000KT 10SM CLR 08/06 A3035 RMK AO2 T00790057 KOVE 210753Z AUTO 07005KT 10SM CLR 19/05 A2996 RMK AO2 SLP145 T01890050 402890100 KOVL 210835Z AUTO 16004KT 10SM CLR M04/M06 A3025 RMK AO2 KOVS 210753Z AUTO 00000KT 10SM CLR M04/M06 A3038 RMK AO2 SLP297 T10441061 KOWA 210816Z AUTO 15003KT 10SM CLR M04/M06 A3029 RMK AO2 KOWB 210756Z AUTO 01007KT 10SM CLR 03/M05 A3036 RMK AO2 SLP296 T00331050 KOWD 210753Z AUTO 00000KT 10SM OVC070 08/07 A2956 RMK AO2 SLP009 T00780067 KOWI 210835Z AUTO 17003KT 10SM CLR 00/M01 A3039 RMK AO2 KOWP 210835Z AUTO 00000KT 10SM CLR 09/02 A3037 RMK AO2 T00910021 KOWX 210835Z AUTO 33011G17KT 10SM OVC043 01/M05 A3027 RMK AO1 KOXB 210753Z AUTO 27007KT 10SM OVC100 11/06 A2973 RMK AO2 SLP066 T01060061 KOXC 210751Z AUTO 33007KT BKN042 OVC085 07/04 A2960 RMK AO2 SLP035 T00670039 PWINO $ KOXD 210835Z AUTO 28008KT 10SM SCT016 SCT024 OVC039 03/00 A3028 RMK AO2 T00270004 KOXI 210835Z AUTO 27005KT 10SM OVC040 02/M02 A3031 RMK AO1 KOXR 210751Z AUTO VRB03KT 10SM CLR 18/07 A2988 RMK AO2 SLP119 T01780072 403390133 KOXV 210835Z AUTO 22006KT 10SM CLR M03/M03 A3036 RMK AO2 KOYM 210835Z AUTO 31009KT 10SM BKN016 OVC022 01/00 A2994 RMK AO2 KOZA 210835Z AUTO 00000KT SCT120 12/08 A3037 RMK AO2 PWINO KOZR 210756Z AUTO 34006KT 10SM CLR 15/12 A3011 RMK AO2 SLP196 T01450124 KOZS 210835Z AUTO 00000KT 10SM CLR 02/M05 A3042 RMK AO2 KOZW 210835Z AUTO 30005KT 10SM SCT027 SCT032 BKN045 00/M02 A3021 RMK AO2 T00031018 KP08 210835Z AUTO 09016KT 10SM OVC110 25/08 A2999 RMK AO2 KP28 210756Z AUTO 10003KT 07/04 A3036 RMK AO1 SLP278 T00720044 KP53 210756Z AUTO 33009G18KT 01/M01 A3022 RMK AO1 SLP240 P0001 T00111006 KP58 210751Z AUTO 31016G26KT 03/M03 A3012 RMK AO1 PK WND 31028/0711 SLP206 T00331033 KP59 210751Z AUTO 33007KT 02/M05 A3020 RMK AO1 SLP237 T00221050 KP60 210756Z AUTO 00000KT M03/M04 A3038 RMK AO1 SLP266 T10281044 KP68 210753Z AUTO 20007KT 04/M04 A3020 RMK AO1 SLP181 T00441044 401941056 KP69 210752Z AUTO 00000KT 04/00 A3015 RMK AO1 SLP212 T00390000 402000011 $ KP92 210753Z AUTO VRB06KT A3011 RMK AO1 SLP197 $ KPAE 210840Z AUTO 35003KT 2SM R16R/5500VP6000FT BR CLR 08/07 A3005 RMK AO2 T00780072 KPAH 210753Z AUTO 00000KT 10SM CLR 02/M04 A3037 RMK AO2 SLP285 T00221044 KPAM 210755Z AUTO 36012G18KT 10SM CLR 19/15 A3009 RMK AO2 SLP189 WND DATA ESTMD T01870151 KPAN 210835Z AUTO VRB03KT 10SM SCT085 14/05 A3022 RMK AO2 KPAO 210347Z 31007KT 10SM SKC 14/12 A2997 KPBF 210753Z AUTO 02009KT 10SM CLR 12/04 A3030 RMK AO2 SLP261 T01170039 KPBG 210753Z AUTO 31009KT 10SM CLR 03/M03 A2974 RMK AO2 SLP071 T00281033 KPBH 210835Z AUTO 19003KT 10SM SCT120 M04/M07 A3024 RMK AO2 T10371070 KPBI 210753Z 30004KT 10SM FEW030 23/23 A2996 RMK AO2 SLP146 T02280228 KPBX 210835Z AUTO 33007G17KT 10SM OVC033 03/M02 A3021 RMK AO2 T00311019 KPCD 210835Z AUTO 00000KT 10SM CLR 00/M04 A3040 RMK AO2 T00001037 KPCM 210835Z AUTO 00000KT 10SM CLR 24/23 A3000 RMK AO2 KPCW 210835Z AUTO 33013G20KT 10SM BKN034 OVC042 04/M03 A3020 RMK AO2 KPCZ 210835Z AUTO 27004KT 10SM CLR M02/M06 A3032 RMK AO2 T10221062 KPDC 210835Z AUTO 08003KT 10SM CLR M03/M06 A3035 RMK AO2 T10291056 KPDK 210753Z AUTO 32011G18KT 10SM CLR 11/03 A3008 RMK AO2 SLP181 T01060028 KPDT 210753Z AUTO 14005KT 7SM CLR 07/03 A3006 RMK AO2 SLP172 T00670033 401940022 KPDX 210753Z 31005KT 8SM CLR 09/07 A3000 RMK AO2 SLP157 T00940072 401890072 KPEA 210835Z AUTO 00000KT 10SM CLR M02/M04 A3038 RMK AO2 T10251043 KPEO 210753Z AUTO 32010G18KT 10SM SCT040 OVC049 04/M01 A2985 RMK AO2 SLP114 T00441011 KPEQ 210835Z AUTO 00000KT 10SM -RA SCT050 BKN080 OVC110 13/13 A3036 RMK AO2 T01300125 KPEX 210835Z AUTO 19006KT 10SM CLR M02/M05 A3023 RMK AO2 T10161048 KPEZ 210835Z AUTO 04010G15KT 10SM OVC043 18/13 A3023 RMK AO2 T01800131 KPGA 210753Z AUTO 00000KT 10SM SCT095 12/06 A3020 RMK AO2 SLP188 T01220061 TSNO KPGD 210753Z AUTO 35005KT 10SM CLR 24/22 A3000 RMK AO2 SLP158 T02440222 KPGV 210825Z AUTO 34010G18KT 7SM CLR 14/05 A2991 RMK AO2 KPHD 210753Z AUTO 31009KT 10SM OVC046 03/M03 A3012 RMK AO2 SLP202 T00331028 KPHF 210754Z AUTO 31014G20KT 10SM FEW075 OVC110 11/04 A2985 RMK AO2 PK WND 34031/0701 SLP106 T01110039 $ KPHL 210754Z 30013G20KT 10SM FEW040 OVC130 10/04 A2970 RMK AO2 SLP057 T01000044 $ KPHN 210835Z AUTO 32008G14KT 10SM OVC044 02/M04 A3016 RMK AO2 KPHP 210755Z AUTO 00000KT 10SM CLR 03/M01 A3004 RMK AO2 SLP174 T00331006 KPHT 210835Z AUTO 03006KT 10SM CLR 02/M04 A3035 RMK A01 KPHX 210751Z 15006KT 10SM BKN110 26/10 A2992 RMK AO2 SLP114 T02610100 KPIA 210754Z 32003KT 10SM CLR M01/M06 A3039 RMK AO2 SLP296 T10111056 KPIB 210756Z AUTO 35004KT 10SM CLR 12/11 A3020 RMK AO2 SLP225 T01170111 KPIE 210753Z AUTO 32008KT 10SM CLR 26/22 A2998 RMK AO2 SLP152 T02560222 $ KPIH 210753Z AUTO 14003KT 10SM CLR 02/M02 A3022 RMK AO2 SLP220 T00171017 KPIL 210753Z AUTO 34012KT 4SM -RA BR OVC004 21/19 A3007 RMK AO2 SLP182 P0000 T02060189 KPIM 210835Z AUTO 34007KT 300V010 10SM CLR 11/07 A3010 RMK AO2 T01100072 PWINO KPIR 210753Z AUTO 14009KT 10SM CLR 03/M02 A3005 RMK AO2 SLP186 T00331017 KPIT 210751Z 32015G27KT 10SM SCT017 BKN026 BKN041 03/01 A3002 RMK AO2 PK WND 31027/0742 RAE04SNE04 SLP176 P0000 T00280006 $ KPKB 210753Z AUTO 31011G21KT 10SM OVC034 04/M02 A3019 RMK AO2 SLP224 T00391017 KPKD 210753Z AUTO 16005KT 10SM SCT110 M04/M08 A3018 RMK AO2 SLP239 T10441078 KPLD 210835Z AUTO 00000KT 10SM OVC042 A3027 RMK AO2 KPLN 210754Z AUTO 34008KT 10SM OVC036 01/M05 A3018 RMK AO2 SLP230 T00061050 KPLR 210835Z AUTO 35003KT 10SM CLR 10/07 A3019 RMK A01 KPLU 210835Z AUTO 00000KT 1 1/2SM BR OVC002 03/03 A3004 RMK AO2 KPMD 210753Z AUTO 00000KT 10SM CLR 14/00 A3001 RMK AO2 SLP143 T01390000 402720067 KPMH 210835Z AUTO 31007KT 10SM SCT038 03/M02 A3027 RMK AO2 T00301019 KPMP 210753Z AUTO 31005KT 10SM FEW034 26/24 A2996 RMK AO2 SLP147 T02560239 KPMU 210835Z AUTO 00000KT 10SM CLR 08/04 A3030 RMK AO2 KPMV 210835Z AUTO 15008KT 10SM CLR 02/M03 A3034 RMK AO2 T00201027 KPNA 210830Z AUTO 31007KT 10SM CLR M03/M06 A3034 RMK AO2 KPNC 210753Z AUTO 00000KT 10SM CLR 08/02 A3037 RMK AO2 SLP279 T00780017 KPNE 210754Z AUTO 31010G18KT 10SM CLR 10/05 A2969 RMK AO2 SLP054 T01000050 KPNM 210836Z AUTO 00000KT 10SM CLR M07/M08 A3024 RMK AO2 KPNS 210753Z 36015G21KT 10SM CLR 17/13 A3011 RMK AO2 SLP199 T01670128 KPNT 210835Z AUTO 00000KT 10SM CLR M03/M05 A3039 RMK AO2 T10341055 KPOB 210826Z AUTO 36017G27KT 10SM CLR 13/03 A2997 RMK AO2 PRESRR SLP151 $ KPOC 210347Z 26003KT 10SM CLR 23/02 A2992 RMK LAST KPOE 210758Z AUTO 02005KT 10SM CLR 14/13 A3021 RMK AO2 SLP231 T01400125 KPOF 210753Z AUTO 02004KT 10SM CLR 03/M02 A3039 RMK AO2 SLP292 T00331017 KPOU 210753Z 26004KT 10SM OVC060 07/06 A2964 RMK AO2 SLP033 T00720061 KPOV 210835Z AUTO 32010G14KT 10SM SCT028 BKN032 OVC049 03/M02 A3010 RMK AO2 T00281019 PWINO KPOY 210835Z AUTO 11007KT 10SM CLR 10/M05 A3015 RMK AO2 KPPA 210835Z AUTO 21008KT 10SM CLR 08/04 A3038 RMK AO2 T00820040 KPPF 210752Z AUTO 00000KT 10SM CLR 06/01 A3040 RMK AO2 SLP293 T00610006 KPPO 210835Z AUTO 31004KT 10SM OVC036 03/M02 A3031 RMK AO2 T00311025 KPPQ 210835Z AUTO 00000KT 10SM CLR 00/M04 A3039 RMK AO2 T10011043 KPQI 210756Z AUTO 25003KT 10SM CLR 01/M02 A2954 RMK AO2 SLP048 T00111022 FZRANO KPQL 210753Z AUTO 02009KT 10SM OVC080 17/13 A3014 RMK AO2 SLP207 T01720133 KPQN 210835Z AUTO 19006KT 10SM CLR M02/M05 A3022 RMK AO2 KPRB 210753Z AUTO 00000KT 10SM CLR 09/01 A2997 RMK AO2 SLP144 T00940006 403220050 KPRC 210753Z AUTO 00000KT 10SM CLR 15/07 A3017 RMK AO2 SLP150 T01500067 KPRG 210835Z AUTO 29004KT 10SM CLR M04/M06 A3038 RMK AO2 T10411064 KPRN 210756Z AUTO 33004KT 10SM CLR 13/11 A3013 RMK AO2 SLP199 T01280106 $ KPRO 210835Z AUTO 00000KT 10SM CLR M04/M04 A3035 RMK AO2 T10391045 KPRS 210835Z AUTO 34004KT 10SM SCT027 OVC035 13/12 A3035 RMK AO2 T01280118 KPRX 210756Z AUTO 36007KT 10SM CLR 10/08 A3032 RMK AO2 SLP280 T01000083 KPSC 210753Z AUTO 01004KT 5SM HZ CLR 03/02 A3007 RMK AO2 SLP185 T00330022 401831011 KPSF 210754Z AUTO 30005KT 10SM FEW041 BKN050 OVC100 06/02 A2961 RMK AO2 SLP020 T00560022 KPSK 210830Z AUTO 31014G24KT 10SM OVC034 04/M02 A3006 RMK AO2 T00361020 KPSM 210756Z 33006KT 10SM BKN100 OVC130 07/02 A2955 RMK AO2A SLP009 T00660023 KPSN 210835Z AUTO 00000KT 10SM CLR 10/08 A3029 RMK AO2 T01050091 KPSO 210835Z AUTO 00000KT 10SM CLR 01/M03 A3046 RMK AO2 T00121034 KPSP 210753Z AUTO 33009KT 10SM CLR 25/05 A2988 RMK AO2 SLP116 T02500050 403330189 KPSX 210753Z AUTO 02011KT 10SM OVC025 18/17 A3015 RMK AO2 SLP210 T01830172 KPTB 210835Z AUTO 28012G18KT 10SM CLR 09/00 A2994 RMK AO2 T00890003 KPTD 210835Z AUTO 28006KT 10SM SCT027 SCT031 OVC070 00/M03 A2984 RMK AO2 KPTK 210753Z AUTO 32010KT 10SM OVC039 01/M03 A3016 RMK AO2 SLP220 T00111028 $ KPTN 210756Z AUTO 03014G22KT 10SM OVC055 18/14 A3014 RMK AO2 SLP207 T01830139 KPTS 210835Z AUTO 05003KT 10SM CLR 04/01 A3039 RMK AO2 T00410011 KPTT 210835Z AUTO 16005KT 10SM CLR 09/01 A3035 RMK AO2 T00900010 KPTV 210756Z AUTO 26005KT 10SM CLR 12/04 A2996 RMK AO2 SLP153 T01220039 KPTW 210754Z AUTO 31007G15KT 10SM FEW023 FEW049 07/05 A2973 RMK AO2 SLP065 T00720050 KPUB 210753Z AUTO 00000KT 10SM CLR 02/M04 A3027 RMK AO2 SLP225 T00171039 KPUC 210753Z AUTO 02005KT 10SM BKN080 06/02 A3031 RMK AO2 SLP245 T00610017 KPUJ 210835Z AUTO 34011G17KT 10SM CLR 08/M01 A3012 RMK AO2 KPUW 210753Z AUTO 04005KT 8SM CLR 10/M01 A3008 RMK AO2 SLP181 T01001006 402220050 KPVB 210835Z AUTO 00000KT 10SM CLR M02/M06 A3035 RMK AO1 T10201057 KPVC 210756Z AUTO 33008KT 10SM FEW060 12/06 A2955 RMK AO2 SLP005 T01220061 KPVD 210751Z AUTO 30009KT 5SM RA BR OVC050 09/07 A2956 RMK AO2 RAB41 SLP011 P0002 T00940072 KPVE 210835Z AUTO 02007G12KT 350V050 10SM CLR 05/M04 A3033 RMK A01 KPVF 210815Z AUTO 09006KT 10SM CLR 16/M03 A3005 RMK AO1 KPVG 210756Z AUTO VRB06KT 10SM FEW033 BKN075 OVC085 11/06 A2986 RMK AO2 SLP114 T01110061 KPVJ 210835Z AUTO 00000KT 10SM CLR 07/07 A3035 RMK AO2 T00700070 KPVU 210756Z AUTO 15003KT 10SM CLR 13/01 A3024 RMK AO2 SLP211 T01280006 KPVW 210835Z AUTO 23003KT 10SM CLR 04/02 A3038 RMK AO2 T00390021 KPWA 210753Z AUTO 00000KT 10SM CLR 06/04 A3037 RMK AO2 SLP279 T00560044 KPWC 210835Z AUTO 00000KT 10SM BKN110 M06/M08 A3022 RMK AO2 KPWG 210756Z AUTO 33005KT 10SM CLR 12/11 A3031 RMK AO2 SLP276 T01220106 KPWK 210752Z AUTO 30006KT 10SM CLR M01/M07 A3035 RMK AO2 SLP284 T10061067 TSNO KPWM 210751Z AUTO VRB03KT 10SM OVC120 07/02 A2958 RMK AO2 SLP018 T00670017 KPWT 210842Z AUTO 00000KT 1/4SM FG VV001 02/02 A3004 RMK AO2 RAE14 P0000 FZRANO KPXE 210835Z AUTO 29005KT 10SM CLR 12/09 A3007 RMK AO2 T01170094 KPYM 210752Z AUTO 35005KT 10SM FEW080 SCT095 08/06 A2955 RMK AO2 SLP006 T00830056 KPYX 210835Z AUTO 21005KT 10SM CLR 07/04 A3034 RMK AO2 T00700042 KPZQ 210835Z AUTO 33007G16KT 10SM OVC028 01/M04 A3016 RMK AO2 T00121037 KQAZ 210756Z AUTO 00000KT 9999 CLR 34/02 A2994 RMK AO2 SLP149 WND DATA ESTMD T03440019 KQBD 210805Z AUTO 00000KT 10SM BKN230 10/M01 A3022 RMK AO2 SLP174 WND DATA ESTMD T01011011 57004 KQBF 210756Z AUTO 00000KT 9999 CLR 30/ A2987 RMK AO2 SLP070 WND DATA ESTMD $ KQBL 210756Z AUTO 07007KT 000V090 10SM FEW075 SCT140 17/13 A3012 RMK AO2 SLP201 WND DATA ESTMD T01680132 KQD3 210756Z AUTO 10010G18KT 080V140 9999 FEW006 32/23 A2999 RMK AO2 SLP121 WND DATA ESTMD T03160229 KQDG 210756Z AUTO 30007KT M M M 16/09 A3014 RMK AO2 SLPNO T01550087 PWINO TSNO $ KQEL 210840Z AUTO 32002KT 9999 CLR 14/05 A3025 RMK A02 TSNO KQEN 210840Z AUTO 05001KT 9999 FEW220 10/05 A3019 RMK A02 TSNO KQER 210840Z AUTO 29001KT 9999 FEW230 15/02 A3013 RMK A02 TSNO KQEV 210840Z AUTO 23001KT 9999 CLR 15/07 A3013 RMK A02 TSNO KQEW 210840Z AUTO 27003KT 9999 CLR 14/04 A3016 RMK A02 TSNO KQEY 210840Z AUTO 27003KT 9999 CLR 17/03 A2988 RMK A02 TSNO KQFB 210840Z AUTO 25001KT 9999 CLR 17/06 A3022 RMK A02 TSNO KQFR 210833Z AUTO 00000KT 10SM SCT044 BKN050 OVC075 06/03 A2942 RMK AO1 KQFT 210840Z AUTO 17001KT 9999 CLR 15/05 A3016 RMK A02 TSNO KQFV 210840Z AUTO 31001KT 9999 CLR 14/04 A3020 RMK A02 TSNO KQFW 210840Z AUTO 15002KT 9999 CLR 14/03 A3018 RMK A02 TSNO KQFX 210840Z AUTO 00000KT 9999 CLR 14/07 A3016 RMK A02 TSNO KQGE 210756Z AUTO 36008G16KT 10SM SCT080 SCT140 17/M03 A3010 RMK AO2 SLP197 T01681034 KQHC 210755Z AUTO 35001KT 10SM OVC070 08/06 A2958 RMK AO2 SLP015 WND DATA ESTMD T00760056 KQHY 210756Z AUTO 01009KT 10SM SCT080 SCT140 17/13 A3011 RMK AO2 SLP199 T01670133 $ KQKR 210756Z AUTO 00000KT 9999 CLR 31/20 A2985 RMK AO2 SLP109 WND DATA ESTMD T03140198 KQN3 210756Z AUTO 00000KT 4400 HZ CLR 31/17 A2984 RMK AO2 VIS 4000V5000 SLP097 WND DATA ESTMD T03090174 KQND 210756Z AUTO 00000KT 9999 CLR 33/17 A2991 RMK AO2 SLP106 WND DATA ESTMD T03300168 KQRD 210758Z AUTO 36006KT 10SM SCT080 BKN140 17/13 A3010 RMK AO2 SLP197 KQRH 210756Z AUTO 07009G16KT 010V100 M M FEW020 SCT050 31/24 A2997 RMK AO2 SLP136 WND DATA ESTMD T03130240 $ KQVF 210755Z AUTO 18004KT 10SM SCT025 BKN029 28/28 A2997 RMK AO2 SLP148 WND DATA ESTMD T02770280 KQWX 210755Z AUTO 00000KT 12SM CLR 02/M04 A3041 RMK AO2 SLP303 WND DATA ESTMD T00211039 KRAC 210753Z AUTO 29005KT 10SM CLR M01/M06 A3034 RMK AO2 SLP282 T10111061 KRAL 210753Z AUTO 00000KT 10SM CLR 18/05 A2993 RMK AO2 SLP118 T01830050 403220128 KRAP 210752Z AUTO 10003KT 10SM CLR 04/M01 A3004 RMK AO2 SLP176 T00441006 KRAS 210835Z AUTO 01015KT 10SM OVC011 19/17 A3016 RMK AO2 T01890173 KRAW 210835Z AUTO 00000KT 10SM CLR A3042 RMK AO2 KRBD 210753Z AUTO 34006KT 10SM CLR 11/07 A3030 RMK AO2 SLP257 T01060072 KRBG 210753Z AUTO 00000KT 10SM CLR 10/06 A2999 RMK AO2 SLP154 T01000061 402500050 KRBL 210754Z AUTO 29005KT 10SM CLR 12/04 A2996 RMK AO2 SLP143 T01170039 402940111 KRBO 210835Z AUTO 03008KT 10SM OVC014 18/16 A3016 RMK AO2 T01800158 KRBW 210835Z AUTO 30005KT 10SM CLR 13/11 A3000 RMK AO2 KRCA 210756Z AUTO 24004KT 10SM CLR 07/01 A3003 RMK AO2 SLP172 T00680005 KRCE 210835Z AUTO 00000KT 9SM CLR 08/06 A3037 RMK AO2 KRCM 210835Z AUTO 00000KT 10SM CLR 00/M03 A3043 RMK AO2 KRCR 210835Z AUTO 26006KT 10SM OVC036 02/M02 A3030 RMK AO2 KRCV 210835Z AUTO 27008KT 10SM CLR 03/M07 A3046 RMK AO2 T00301068 KRCX 210835Z AUTO 00000KT 10SM CLR M04/M06 A3028 RMK AO2 T10431061 KRCZ 210820Z AUTO 34007KT 10SM CLR 13/03 A2995 RMK AO2 T01250032 KRDD 210753Z AUTO 00000KT 10SM CLR 13/03 A2996 RMK AO2 SLP142 T01280033 403170072 KRDG 210754Z AUTO 31009KT 10SM BKN034 OVC050 08/06 A2973 RMK AO2 SLP072 T00830056 KRDK 210835Z AUTO 00000KT 10SM CLR M03/M03 A3037 RMK AO2 KRDM 210756Z AUTO 17004KT 10SM CLR 05/M04 A3007 RMK AO2 SLP171 T00501039 402781033 KRDR 210756Z AUTO 19009KT 10SM FEW100 00/M07 A3004 RMK AO2 SLP188 T10031067 $ KRDU 210751Z 32009G19KT 280V040 10SM FEW065 10/01 A2998 RMK AO2 PK WND 35030/0701 SLP149 T01000011 KREG 210835Z AUTO 02006KT 10SM OVC080 18/12 A3015 RMK AO2 T01760122 KREO 210752Z AUTO 11005KT 03/M03 A3012 RMK AO1 SLP190 T00331033 KRFD 210754Z 16003KT 10SM CLR M03/M06 A3038 RMK AO2 SLP297 T10331061 KRFI 210835Z AUTO 10SM CLR 10/09 A3029 RMK AO2 T01040091 KRGA 210835Z AUTO 32005KT 10SM CLR 01/M02 A3030 RMK AO2 KRGK 210835Z AUTO 00000KT 10SM CLR M04/M07 A3029 RMK AO2 KRHI 210753Z AUTO 26005KT 10SM FEW031 M04/M08 A3025 RMK AO2 SLP265 T10391078 $ KRHP 210820Z AUTO 07003KT 10SM CLR 04/M05 A3014 RMK AO2 T00441053 KRHV 210447Z 00000KT 10SM SKC 15/13 A2996 KRIC 210754Z 30022G29KT 10SM FEW090 FEW110 10/00 A2989 RMK AO2 PK WND 28029/0749 SLP126 T01000000 KRID 210835Z AUTO 30006KT 5SM BR SCT013 OVC041 01/01 A3028 RMK AO2 KRIL 210753Z AUTO 00000KT 10SM CLR 03/M01 A3036 RMK AO2 SLP253 T00331011 KRIV 210758Z AUTO 00000KT 10SM CLR 13/05 A2994 RMK AO2 SLP128 T01310045 403000086 PNO $ KRIW 210753Z AUTO 23004KT 10SM CLR 08/M02 A3021 RMK AO2 SLP195 T00781022 KRKD 210756Z AUTO 00000KT 10SM CLR 07/01 A2957 RMK AO2 SLP015 T00720006 KRKP 210819Z AUTO 02013G19KT 8SM OVC016 19/16 A3015 RMK AO2 T01890161 KRKR 210835Z AUTO 00000KT 10SM CLR 05/05 A3035 RMK AO2 KRKS 210754Z AUTO 18004KT 10SM CLR 04/M06 A3031 RMK AO2 SLP218 T00441061 KRKW 210835Z AUTO 35010G20KT 330V040 10SM CLR 01/M04 A3023 RMK A01 KRLD 210835Z AUTO 00000KT 7SM CLR 05/04 A3007 RMK AO2 T00470041 KRME 210827Z AUTO 30010KT 10SM BKN028 02/M02 A2984 RMK AO2 T00171017 KRMG 210753Z AUTO 35011G23KT 10SM CLR 11/M02 A3015 RMK AO2 SLP206 T01061017 KRMN 210835Z AUTO 29008G18KT 10SM SCT050 BKN060 09/01 A2993 RMK AO2 T00900009 KRMY 210835Z AUTO 29004KT 10SM BKN043 02/M03 A3024 RMK AO2 T00191035 KRND 210756Z AUTO 01011KT 10SM FEW120 OVC220 17/11 A3023 RMK AO2 SLP233 T01720112 $ KRNH 210835Z AUTO 00000KT 10SM CLR M05/M08 A3027 RMK AO2 T10501078 KRNM 210753Z AUTO 00000KT 10SM CLR 10/04 A2995 RMK AO2 SLP127 T01000039 403110067 KRNO 210755Z 00000KT 10SM CLR 07/M03 A3013 RMK AO2 SLP172 T00721033 402280017 $ KRNP 210835Z AUTO 31005KT 10SM OVC047 02/M02 A3022 RMK AO2 T00161019 KRNT 210833Z AUTO 00000KT 2 1/2SM OVC002 06/04 A3005 RMK AO2 VIS 1 3/4V4 T00610044 KRNV 210835Z AUTO 03009KT 10SM CLR 11/05 A3028 RMK AO2 T01050045 KROA 210754Z 32019G29KT 10SM -RA FEW050 06/M04 A3004 RMK AO2 PK WND 33031/0701 SLP169 P0000 T00611039 KROC 210754Z 35011G19KT 10SM BKN040 OVC055 04/M02 A2991 RMK AO2 SLP135 T00441022 KROG 210758Z AUTO 09005KT 10SM CLR 05/01 A3038 RMK AO2 SLP286 T00500006 KROS 210836Z AUTO 16003KT 10SM CLR M05/M07 A3026 RMK AO2 T10551068 KROW 210751Z AUTO 19007KT 10SM FEW030 BKN035 OVC100 14/11 A3038 RMK AO2 SLP241 T01390106 KROX 210835Z AUTO 18010KT 10SM BKN100 01/M04 A3005 RMK AO2 KRPD 210835Z AUTO 00000KT 10SM CLR M05/M06 A3028 RMK AO2 T10471059 KRPH 210830Z AUTO 00000KT 10SM CLR 07/07 A3033 RMK AO2 T00680068 KRPJ 210835Z AUTO 00000KT 10SM CLR M06/M07 A3038 RMK AO2 T10601070 KRQB 210835Z AUTO 00000KT 10SM BKN032 OVC039 01/00 A3022 RMK AO2 T00101005 KRQE 210753Z AUTO 11004KT 10SM CLR 08/01 A3036 RMK AO2 SLP197 T00830011 $ KRQO 210835Z AUTO 07005KT 10SM CLR 10/04 A3038 RMK AO2 T00980043 KRRL 210835Z AUTO 00000KT 10SM CLR M04/M07 A3027 RMK AO2 T10381070 TSNO KRRT 210835Z AUTO 18008KT 10SM BKN100 M01/M05 A3006 RMK AO2 KRSL 210753Z AUTO 16009KT 10SM CLR 07/02 A3032 RMK AO2 SLP266 T00670022 KRSN 210835Z AUTO 01006KT 10SM CLR 10/09 A3029 RMK AO2 T01020085 KRSP 210810Z AUTO 32018G32KT 7SM -RA BKN013 OVC020 03/02 A2977 RMK AO2 PK WND 32032/0808 RAB02 P0000 $ KRST 210754Z AUTO 16004KT 10SM CLR M06/M06 A3031 RMK AO2 SLP280 T10561061 KRSV 210835Z AUTO 33004KT 10SM CLR M02/M05 A3039 RMK AO2 T10201055 KRSW 210753Z AUTO 00000KT 10SM CLR 24/23 A2998 RMK AO2 SLP150 T02390228 KRTN 210753Z AUTO 34005KT 10SM CLR 02/M02 A3041 RMK AO2 SLP254 T00221022 KRTS 210835Z AUTO 01003KT 10SM CLR 03/M09 A3014 RMK AO2 KRUE 210753Z AUTO 00000KT 10SM CLR 06/06 A3035 RMK AO2 SLP272 T00610056 KRUG 210835Z AUTO 18005KT 10SM CLR M00/M06 A2992 RMK AO2 KRUQ 210820Z AUTO 33009G16KT 290V350 10SM CLR 10/M03 A3004 RMK AO2 T00951032 KRUT 210756Z AUTO 33011G20KT 10SM FEW045 OVC060 06/M02 A2967 RMK AO2 SLP070 T00561017 / KRVL 210835Z AUTO 34010G21KT 5SM -RA BKN001 BKN006 OVC020 05/02 A2987 RMK AO2 KRVS 210753Z AUTO 02003KT 10SM CLR 06/04 A3037 RMK AO2 SLP292 T00610039 KRWF 210753Z AUTO 19007KT 10SM CLR M03/M07 A3027 RMK AO2 SLP264 T10331067 KRWI 210838Z AUTO 32019G28KT 10SM CLR 11/00 A2996 RMK AO2 PK WND 33043/0808 T01060000 KRWL 210753Z AUTO 21003KT 10SM CLR 03/M04 A3033 RMK AO2 SLP219 T00331039 KRWV 210835Z AUTO 01007KT 10SM CLR 14/11 A3026 RMK AO2 T01390114 KRYM 210756Z AUTO 00000KT 10SM CLR M05/M06 A3024 RMK AO2 SLP258 T10461063 $ KRYV 210835Z AUTO 00000KT 10SM CLR M03/M05 A3034 RMK AO2 T10321053 KRYW 210835Z AUTO 03008KT 10SM CLR 14/11 A3028 RMK AO2 T01360111 KRYY 210748Z AUTO 33007G19KT 280V010 10SM CLR 11/01 A3011 RMK AO2 SLP916 T01060011 KRZL 210835Z AUTO 27007KT 10SM CLR M01/M05 A3034 RMK AO2 KRZN 210835Z AUTO 00000KT 10SM CLR M06/M08 A3026 RMK AO2 T10601077 KRZR 210835Z AUTO 36013G18KT 10SM CLR 05/M03 A3020 RMK A01 KRZT 210835Z AUTO 35010G20KT 10SM OVC036 02/M05 A3025 RMK AO2 KS25 210835Z AUTO 32008KT 10SM CLR 06/M00 A3000 RMK AO2 KS32 210835Z AUTO 18011KT 10SM CLR M00/M05 A3001 RMK AO2 KS33 210835Z AUTO 12004KT 7SM CLR 04/M01 A3008 RMK AO2 KS39 210835Z AUTO 00000KT 10SM CLR 01/M05 A3007 RMK AO2 KS52 210835Z AUTO 00000KT 10SM CLR 00/M01 A3014 RMK AO2 T00041005 KSAA 210835Z AUTO 00000KT 10SM CLR 00/M04 A3036 RMK AO2 KSAC 210753Z AUTO 00000KT 10SM CLR 13/09 A2994 RMK AO2 SLP139 T01330094 402830083 KSAD 210751Z AUTO 10008KT 10SM OVC070 18/06 A3020 RMK AO2 SLP186 T01780056 KSAF 210753Z AUTO 17003KT 10SM CLR 07/M01 A3043 RMK AO2 SLP244 T00721011 KSAN 210751Z 00000KT 10SM CLR 19/13 A2992 RMK AO2 SLP133 T01940133 403000172 KSAR 210835Z AUTO 00000KT 10SM CLR 00/M02 A3041 RMK AO2 T10011021 KSAT 210751Z COR 01009KT 10SM FEW120 OVC200 17/11 A3024 RMK AO2 SLP228 T01720111 KSAV 210753Z AUTO 31009KT 10SM CLR 16/11 A3000 RMK AO2 SLP158 T01610106 KSAW 210838Z AUTO 28005KT 10SM OVC029 00/M05 A3020 RMK AO2 T10051055 KSAZ 210835Z AUTO 15003KT 10SM CLR M05/M08 A3018 RMK AO2 KSBA 210753Z AUTO 00000KT 10SM CLR 14/07 A2986 RMK AO2 SLP111 T01440067 403000100 KSBD 210840Z AUTO 06003KT 10SM SCT090 18/06 A2993 RMK AO2 T01760056 KSBM 210753Z AUTO 29004KT 10SM OVC036 00/M06 A3032 RMK AO2 SLP274 T00001056 KSBN 210754Z AUTO 33006KT 10SM OVC036 03/M03 A3029 RMK AO2 SLP262 T00281028 KSBO 210835Z AUTO 31004KT 10SM CLR 12/10 A3004 RMK AO2 KSBP 210839Z AUTO 00000KT 3SM BR FEW003 10/09 A2992 RMK AO2 T01000094 KSBS 210835Z AUTO 00000KT 10SM CLR 00/M04 A3040 RMK AO1 T00031037 KSBY 210754Z AUTO 26009KT 10SM SCT095 BKN120 11/08 A2975 RMK AO2 SLP077 T01060078 KSCD 210835Z AUTO 36003KT 10SM CLR 12/08 A3016 RMK AO2 T01150077 KSCK 210755Z AUTO 00000KT 8SM CLR 13/07 A2994 RMK AO2 SLP140 T01330072 403000083 KSCR 210820Z AUTO 34009G14KT 310V010 10SM CLR 09/00 A3001 RMK AO2 T00870004 KSCX 210835Z AUTO 01008KT 10SM OVC029 01/M03 A3026 RMK A01 KSDA 210835Z AUTO 15003KT 10SM CLR M00/M04 A3038 RMK AO2 KSDB 210753Z AUTO 02003KT 10SM CLR 16/M02 A3010 RMK AO2 SLP143 T01611022 402330133 $ KSDC 210755Z AUTO 34007KT 10SM OVC037 05/M03 A2989 RMK AO2 KSDF 210756Z 31006KT 10SM SCT043 03/M03 A3034 RMK AO2 SLP276 T00281033 KSDL 210753Z AUTO 09009KT 10SM FEW110 27/07 A2996 RMK AO2 SLP121 T02670072 KSDM 210753Z AUTO 00000KT 10SM CLR 16/06 A2992 RMK AO2 SLP126 T01560061 403060139 KSDY 210756Z AUTO 31012KT 10SM 09/01 A3000 RMK AO2 SLP168 T00940006 / KSEA 210828Z 03004KT 1/8SM FG VV001 08/07 A3004 RMK AO2 T00780067 RVRNO KSEE 210835Z AUTO 00000KT 10SM CLR 14/04 A2992 RMK AO2 KSEF 210835Z AUTO 33003KT 10SM CLR 24/22 A2997 RMK AO2 T02380222 KSEG 210835Z AUTO 32012G25KT 10SM -RA FEW017 OVC032 06/03 A2984 RMK AO2 PK WND 35028/0818 PRESRR P0006 T00560028 KSEM 210835Z AUTO 33005KT 10SM CLR 11/10 A3016 RMK AO2 KSEP 210835Z AUTO 00000KT 10SM CLR 11/07 A3036 RMK AO2 T01090074 KSET 210754Z AUTO 05005KT 10SM CLR 02/M06 A3040 RMK AO2 SLP294 T00171056 KSEZ 210835Z AUTO 08009KT 10SM SCT090 16/05 A3019 RMK AO2 KSFB 210753Z AUTO 29009KT 10SM CLR 23/22 A2996 RMK AO2 SLP145 T02330222 KSFF 210753Z AUTO 04003KT 10SM CLR 04/02 A3010 RMK AO2 SLP192 T00440022 402000011 KSFM 210756Z AUTO 00000KT 10SM OVC110 04/03 A2958 RMK AO2 SLP020 T00390028 KSFO 210756Z 29011KT 10SM FEW004 12/09 A2998 RMK AO2 SLP151 T01170094 401940100 KSFQ 210835Z AUTO 32006KT 10SM SCT085 BKN100 11/06 A2989 RMK AO2 T01100056 KSFY 210837Z AUTO 00000KT 10SM CLR M04/M05 A3039 RMK AO2 KSFZ 210756Z AUTO 30006KT 10SM -RA OVC055 08/06 A2957 RMK AO2 RAB51 SLP959 P0000 T00830056 KSGF 210752Z 05006KT 10SM CLR 05/M02 A3037 RMK AO2 SLP285 T00501022 KSGH 210756Z AUTO 30008KT 10SM CLR 00/M02 A3025 RMK AO2 SLP250 T00001022 FZRANO PNO $ KSGJ 210756Z AUTO 31006KT 10SM CLR 22/20 A2998 RMK AO2 SLP150 T02220200 KSGR 210753Z AUTO 04012KT 10SM OVC060 19/14 A3018 RMK AO2 SLP222 T01940144 KSGS 210835Z AUTO 17003KT 10SM CLR M03/M05 A3027 RMK AO2 T10291047 KSGT 210756Z AUTO 03010KT 10SM CLR 10/04 A3033 RMK AO2 SLP269 T01000039 KSGU 210756Z AUTO 18006KT 10SM CLR 19/06 A3010 RMK AO2 SLP165 T01890056 KSHD 210835Z AUTO 30006KT 10SM OVC048 06/M01 A2999 RMK AO2 T00551007 KSHL 210835Z AUTO 17007KT 10SM CLR M02/M05 A3026 RMK AO2 KSHN 210753Z AUTO 00000KT 1/4SM FG VV001 02/02 A3003 RMK AO2 SLP171 T00220017 401220022 KSHR 210753Z AUTO 00000KT 10SM CLR 06/01 A3010 RMK AO2 SLP178 T00610006 KSHV 210756Z 01006KT 10SM FEW180 FEW260 13/11 A3026 RMK AO2 SLP246 T01280106 KSIF 210830Z AUTO 10SM CLR 07/M03 A3006 RMK AO2 T00701026 KSIK 210835Z AUTO 02004KT 10SM CLR 03/M02 A3039 RMK AO2 KSIY 210753Z AUTO 06004KT 7SM CLR 05/M08 A3005 RMK AO2 SLP179 T00501078 402671011 KSJC 210841Z AUTO 34004KT 8SM BKN009 13/11 A2998 RMK AO2 T01280111 KSJN 210754Z AUTO 13007KT 10SM CLR 11/03 A3027 RMK AO2 SLP183 T01060033 KSJS 210835Z AUTO 34005KT 10SM SCT028 OVC036 04/M01 A3023 RMK AO2 T00401010 KSJT 210751Z AUTO 00000KT 10SM SCT110 09/07 A3035 RMK AO2 SLP270 T00940072 KSJX 210837Z AUTO 32008KT 300V360 10SM OVC030 01/M05 A3021 RMK AO2 T00131046 KSKA 210758Z 05003KT 10SM CLR 06/01 A3008 RMK AO2A SLP191 T00560009 402020015 $ KSKF 210756Z AUTO 03009KT 10SM FEW230 17/12 A3021 RMK AO2 SLP226 T01740119 $ KSKX 210756Z AUTO 22003KT 10SM CLR 00/M05 A3049 RMK AO2 SLP304 T00001050 FZRANO $ KSLB 210835Z AUTO 18009KT 10SM CLR M02/M06 A3030 RMK AO2 KSLC 210754Z 13007KT 10SM CLR 09/03 A3020 RMK AO2 SLP198 T00940028 KSLE 210756Z AUTO 00000KT 10SM CLR 07/06 A2998 RMK AO2 SLP151 T00720056 402220050 KSLG 210756Z AUTO 00000KT 10SM CLR 06/00 A3038 RMK AO2 SLP286 T00610000 KSLH 210835Z AUTO 30008G15KT 10SM SCT034 00/M05 A3017 RMK AO2 T10031055 KSLI 210758Z AUTO 08003KT 10SM CLR 17/14 A2990 RMK AO2 SLP128 T01710144 403100110 KSLK 210751Z AUTO VRB06KT 10SM OVC023 M01/M04 A2971 RMK AO2 SLP070 T10061039 $ KSLN 210753Z AUTO 14005KT 10SM CLR 06/00 A3035 RMK AO2 SLP278 T00560000 KSLO 210835Z AUTO 02004KT 10SM CLR 00/M05 A3038 RMK AO2 T00001050 KSLR 210835Z AUTO 36003KT 10SM CLR 12/09 A3033 RMK AO2 T01230094 KSME 210830Z AUTO 36006KT 10SM CLR 01/M02 A3032 RMK AO2 KSMF 210753Z 15005KT 10SM CLR 14/09 A2993 RMK AO2 SLP134 T01390094 402780056 KSMN 210756Z AUTO 00000KT 10SM CLR 00/M03 A3023 RMK AO2 SLP247 T00001028 FZRANO KSMO 210751Z AUTO 03003KT 10SM CLR 21/09 A2990 RMK AO2 SLP124 T02060089 403170167 KSMP 210756Z AUTO VRB05KT 10SM CLR 07/02 A3009 RMK AO2 SLP183 T00670017 $ KSMQ 210753Z AUTO 32008KT 10SM SCT028 BKN043 OVC060 08/05 A2966 RMK AO2 SLP044 T00830050 KSMS 210835Z AUTO 23004KT 10SM CLR 13/09 A2999 RMK AO2 KSMX 210751Z AUTO 00000KT 10SM CLR 13/07 A2993 RMK AO2 SLP136 T01280072 403330106 $ KSNA 210753Z AUTO 00000KT 10SM CLR 19/12 A2990 RMK AO2 SLP123 T01890117 403000156 KSNC 210835Z AUTO 35010G17KT 10SM SCT044 BKN050 OVC075 09/05 A2958 RMK AO2 KSNH 210835Z AUTO 02006KT 10SM CLR 05/M02 A3031 RMK A01 KSNK 210835Z AUTO 04005KT 10SM CLR 09/05 A3038 RMK AO2 T00900048 KSNL 210835Z AUTO 04004KT 10SM CLR 08/05 A3036 RMK AO2 T00770045 KSNS 210831Z AUTO 00000KT 3SM R31/6000VP6000FT BR OVC004 12/12 A2998 RMK AO2 T01220122 KSNT 210751Z AUTO 00000KT M01/M06 A3029 RMK AO1 SLP208 T10111056 KSNY 210753Z AUTO 22009KT 10SM CLR 06/00 A3021 RMK AO2 SLP211 T00560000 KSOA 210835Z AUTO 03009KT 10SM CLR 13/08 A3036 RMK AO2 KSOP 210756Z AUTO 36010G16KT 320V040 10SM CLR 13/02 A2997 RMK AO2 SLP164 T01280022 KSOW 210835Z AUTO 00000KT 10SM CLR 06/04 A3031 RMK AO2 KSPA 210835Z AUTO 11/M05 RMK AO2 PWINO PNO TSNO KSPB 210753Z AUTO 24003KT 7SM CLR 06/05 A2999 RMK AO2 SLP153 T00560050 401890044 KSPF 210835Z AUTO 25010KT 10SM CLR 16/M01 A3006 RMK AO2 PWINO KSPG 210753Z AUTO 34004KT 10SM FEW027 27/23 A2997 RMK AO2 SLP147 T02670228 KSPI 210752Z AUTO 25003KT 10SM CLR M04/M05 A3040 RMK AO2 SLP296 T10391050 $ KSPR 210835Z AUTO 10SM OVC017 23/19 A3005 RMK A01 KSPS 210752Z AUTO 31004KT 10SM CLR 10/07 A3034 RMK AO2 SLP268 T01000072 KSPW 210753Z AUTO 16007KT 10SM CLR M04/M07 A3030 RMK AO2 SLP276 T10391072 $ KSQI 210756Z AUTO 00000KT 10SM CLR M02/M04 A3038 RMK AO2 SLP312 T10221044 FZRANO PNO $ KSQL 210840Z AUTO 30003KT 10SM CLR 12/09 A2999 RMK AO2 KSRB 210835Z AUTO VRB04KT 10SM CLR 03/M03 A3027 RMK A01 KSRC 210756Z AUTO 03011KT 10SM CLR 09/02 A3035 RMK AO2 SLP288 T00890022 KSRE 210835Z AUTO 06004KT 10SM CLR 09/04 A3035 RMK AO2 KSRQ 210753Z AUTO 00000KT 10SM CLR 23/23 A2997 RMK AO2 SLP147 T02330228 KSRR 210835Z AUTO 16003KT 10SM SCT060 OVC075 07/05 A3046 RMK AO2 KSSC 210756Z AUTO 32004KT 10SM CLR 13/09 A2997 RMK AO2 SLP149 T01330088 $ KSSF 210753Z AUTO 03009G16KT 10SM FEW110 19/11 A3021 RMK AO2 SLP223 T01890111 $ KSSI 210753Z AUTO 31009G20KT 10SM CLR 19/14 A2998 RMK AO2 SLP152 T01890139 KSTC 210753Z AUTO 10SM CLR M06/M07 A3026 RMK AO2 SLP268 T10561072 $ KSTE 210835Z AUTO 00000KT 10SM CLR M08/M08 A3030 RMK AO2 T10791080 KSTF 210835Z AUTO 36004KT 10SM CLR 08/07 A3025 RMK AO2 KSTJ 210753Z AUTO 00000KT 10SM CLR 00/M03 A3042 RMK AO2 SLP302 T00001028 KSTK 210840Z AUTO 00000KT 10SM CLR 02/00 A3020 RMK AO2 KSTL 210751Z 00000KT 10SM CLR 03/M06 A3040 RMK AO2 SLP295 T00281056 KSTP 210753Z AUTO 00000KT 10SM CLR M02/M05 A3032 RMK AO2 SLP273 T10221050 KSTS 210753Z AUTO 00000KT 6SM BR OVC003 10/10 A2998 RMK AO2 SLP147 T01000100 402560078 KSUA 210835Z AUTO 32004KT 10SM CLR 24/22 A2998 RMK AO2 KSUE 210756Z AUTO 30010KT 10SM OVC038 01/M05 A3028 RMK AO2 SLP280 T00111050 FZRANO KSUN 210835Z AUTO 31010KT 10SM CLR 05/M02 A3026 RMK AO2 KSUS 210754Z AUTO 00000KT 10SM CLR M01/M03 A3040 RMK AO2 SLP297 T10061033 KSUT 210825Z AUTO 32005KT 10SM CLR 16/09 A2991 RMK AO2 T01570088 KSUU 210758Z AUTO 22015KT 10SM CLR 13/11 A2993 RMK AO2 SLP142 T01280105 402960064 $ KSUW 210835Z AUTO 23005KT 10SM CLR M03/M06 A3025 RMK AO2 T10341061 KSUX 210752Z AUTO 11007KT 10SM CLR M03/M05 A3031 RMK AO2 SLP274 T10281050 PWINO FZRANO $ KSVC 210835Z AUTO 10009KT 10SM BKN035 OVC041 12/05 A3038 RMK AO2 T01180052 KSVE 210835Z AUTO 28005KT 10SM CLR 03/M06 A3012 RMK AO2 KSVH 210820Z AUTO 34011G19KT 10SM CLR 09/M05 A3004 RMK AO2 T00871055 KSVN 210756Z AUTO 30006KT 10SM CLR 17/11 A2997 RMK AO2 SLP152 T01670112 FZRANO $ KSWF 210745Z 29008KT 10SM SCT070 07/07 A2965 KSWO 210753Z AUTO 06007KT 10SM CLR 07/04 A3036 RMK AO2 SLP278 T00670039 $ KSWW 210835Z AUTO 00000KT 10SM CLR 11/07 A3040 RMK AO2 T01080070 KSXS 210758Z AUTO 34004KT 10SM CLR 14/13 A3011 RMK AO2 SLP196 T01410129 KSXT 210756Z AUTO 31005KT 10SM CLR 17/M01 A3007 RMK AO2 SLP128 T01671006 402500139 KSXU 210835Z AUTO 10006KT 10SM CLR 06/04 A3040 RMK AO2 T00580043 KSYF 210835Z AUTO 20006KT 10SM -SN CLR 03/01 A3023 RMK AO2 T00340010 KSYI 210835Z AUTO 01009KT 10SM CLR 03/M03 A3029 RMK A01 KSYM 210835Z AUTO 32008G16KT 10SM CLR 02/M02 A3029 RMK AO2 KSYN 210835Z AUTO 18004KT 10SM CLR M05/M07 A3027 RMK AO2 T10521069 KSYR 210842Z 34010KT 10SM -SN OVC029 03/M02 A2988 RMK AO2 SNB41 PRESRR P0000 T00281022 KSZL 210756Z AUTO 00000KT 10SM CLR 00/M04 A3038 RMK AO2 SLP293 T10021036 KSZT 210835Z AUTO 27003KT 10SM CLR 00/M01 A3013 RMK AO2 KSZY 210835Z AUTO 03009G15KT 10SM CLR 05/M03 A3031 RMK A01 KT20 210835Z AUTO 02009KT 10SM SCT120 17/15 A3022 RMK AO2 T01650147 KT35 210835Z AUTO 35006KT 10SM CLR 13/10 A3028 RMK AO2 T01310104 KT82 210835Z AUTO 03004KT 10SM OVC120 13/08 A3030 RMK AO2 T01310080 KTAD 210754Z AUTO 25013KT 10SM CLR 09/M02 A3032 RMK AO2 SLP213 T00941022 KTAN 210752Z AUTO 00000KT 9SM BKN060 BKN085 OVC110 08/07 A2955 RMK AO2 SLP007 T00780067 KTAZ 210835Z AUTO 00000KT 10SM CLR M02/M06 A3040 RMK AO2 T10201058 KTBN 210756Z AUTO 05003KT 10SM CLR 03/M04 A3039 RMK AO2 SLP295 T00271045 KTBR 210835Z AUTO 30006KT 10SM CLR 13/10 A3002 RMK AO2 T01310095 KTBX 210835Z AUTO 14012KT 10SM CLR 08/M06 A3033 RMK AO2 KTCC 210753Z AUTO 23004KT 10SM CLR 07/04 A3037 RMK AO2 SLP256 T00720039 KTCL 210753Z AUTO 36006KT 10SM CLR 10/08 A3020 RMK AO2 SLP225 T01000078 KTCM 210808Z 00000KT 1/2SM R34/3000V4000FT FG VV001 04/04 A3005 RMK AO2A VIS 1/8 RWY16 CIG 000 RWY16 SLP181 $ KTCS 210753Z AUTO 29003KT 10SM CLR 11/04 A3036 RMK AO2 SLP222 T01110044 KTCY 210835Z AUTO 00000KT 10SM CLR 17/05 A2995 RMK A01 KTDF 210820Z AUTO 31008G20KT 10SM CLR 07/M02 A3003 RMK AO2 KTDZ 210753Z AUTO 32015G19KT 10SM OVC041 03/M04 A3023 RMK AO2 SLP239 T00331039 KTEB 210751Z 35008G18KT 10SM SCT022 OVC037 09/07 A2963 RMK AO2 SLP033 T00940067 KTEW 210835Z AUTO 30005KT 10SM OVC045 02/M03 A3023 RMK AO2 T00151028 KTEX 210835Z AUTO 02003KT 10SM CLR 06/M04 A3050 RMK AO2 KTFP 210835Z AUTO 05012KT 10SM OVC011 19/17 A3015 RMK AO2 T01920168 PNO KTGI 210839Z AUTO 29027G37KT 10SM OVC100 12/06 A2981 RMK AO1 KTHA 210835Z AUTO 01013G19KT 10SM CLR 03/M05 A3026 RMK A01 KTHV 210753Z AUTO 28008KT 9SM -RA SCT032 BKN043 OVC080 07/04 A2978 RMK AO2 RAB36 SLP086 P0001 T00670044 KTIF 210835Z AUTO 19008KT 10SM CLR 07/00 A3019 RMK AO2 T00700000 KTIK 210756Z COR AUTO 08005KT 10SM CLR 09/04 A3035 RMK AO2 SLP282 T00910035 $ COR 0812 KTIP 210835Z AUTO 32005KT 10SM CLR M01/M05 A3037 RMK AO2 T10151053 KTIW 210801Z AUTO 00000KT 1/4SM FG VV001 07/07 A3004 RMK AO2 T00670067 KTKC 210837Z AUTO 20009KT 10SM CLR 00/M06 A3023 RMK AO2 T00001057 KTKI 210753Z AUTO 35003KT 10SM CLR 10/09 A3032 RMK AO2 SLP271 T01000089 KTKV 210835Z AUTO 00000KT 10SM CLR M05/M08 A3025 RMK AO2 T10541080 KTKX 210835Z AUTO 03008KT 10SM CLR 05/M02 A3037 RMK AO2 KTLH 210753Z AUTO 35013G22KT 10SM CLR 19/14 A3006 RMK AO2 SLP178 T01890139 KTMA 210835Z AUTO 33007KT 10SM CLR 14/11 A3006 RMK AO2 T01430105 KTMB 210753Z AUTO 31007KT 10SM CLR 24/22 A2997 RMK AO2 SLP148 T02440222 KTME 210835Z AUTO 02005KT 10SM CLR 16/15 A3022 RMK AO2 KTMK 210835Z AUTO 00000KT 1/2SM FG OVC001 06/05 A3000 RMK AO2 KTNB 210835Z AUTO 31013G20KT 280V340 10SM CLR 01/M07 A3002 RMK AO2 T00061075 KTNU 210835Z AUTO 22004KT M03/M05 A3037 RMK AO2 PWINO KTOA 210255Z 24015KT 10SM SKC 25/03 A2986 RMK LAST KTOB 210835Z AUTO 00000KT 10SM CLR M04/M07 A3029 RMK AO2 KTOC 210835Z AUTO 06005KT CLR 10/01 A3005 RMK AO2 T00980014 PWINO KTOI 210753Z AUTO 00000KT 10SM CLR 13/12 A3013 RMK AO2 SLP199 T01280122 KTOL 210752Z 32010G17KT 10SM OVC038 03/M04 A3023 RMK AO2 SLP239 T00331044 $ KTOP 210753Z AUTO 20004KT 10SM CLR 02/M02 A3039 RMK AO2 SLP293 T00221017 KTOR 210753Z AUTO 12004KT 10SM CLR 05/M01 A3016 RMK AO2 SLP196 T00501006 $ KTPA 210753Z 31003KT 10SM CLR 24/22 A2999 RMK AO2 SLP154 T02440222 KTPF 210835Z AUTO 00000KT 10SM OVC110 A2998 RMK AO2 KTPH 210756Z AUTO 01012KT 10SM CLR 08/M04 A3017 RMK AO2 SLP178 T00781044 402060039 KTPL 210651Z AUTO 34005KT 10SM CLR 13/11 A3030 RMK AO2 SLP273 T01280111 KTQE 210754Z AUTO 14005KT 10SM CLR M02/M03 A3033 RMK AO2 SLP275 T10221033 KTQH 210835Z AUTO 00000KT 10SM CLR 06/01 A3037 RMK AO2 KTRI 210753Z 34011KT 10SM FEW050 03/M04 A3018 RMK AO2 SLP209 T00331044 KTRK 210835Z AUTO 00000KT 10SM CLR M01/M05 A3020 RMK AO2 LTG DSNT SE KTRL 210753Z AUTO 02003KT 10SM CLR 11/08 A3031 RMK AO2 SLP259 T01110083 KTRM 210752Z AUTO 34003KT 10SM CLR 19/11 A2982 RMK AO2 SLP101 T01890106 403440133 KTSP 210835Z AUTO 00000KT 10SM CLR 07/M05 A3008 RMK AO2 KTTA 210830Z AUTO 34015G26KT 10SM CLR 11/00 A3000 RMK AO2 T01050002 KTTD 210753Z AUTO 26005KT 6SM BR CLR 09/07 A2999 RMK AO2 SLP153 T00890072 402000056 KTTF 210835Z AUTO 31011KT 10SM OVC036 02/M02 A3021 RMK AO2 T00221022 KTTN 210811Z AUTO 32007KT 10SM FEW028 OVC034 08/06 A2967 RMK AO2 T00830056 KTTS 210756Z AUTO 31005KT 10SM CLR 24/22 M RMK AO2 SLPNO T02380220 $ KTUL 210753Z 35005KT 10SM CLR 06/03 A3036 RMK AO2 SLP279 T00560033 KTUP 210753Z AUTO 36011KT 10SM CLR 10/02 A3027 RMK AO2 SLP248 T01000022 KTUS 210753Z 13015G22KT 10SM CLR 22/08 A3006 RMK AO2 PK WND 14030/0712 SLP134 T02220083 KTVC 210753Z AUTO 29008KT 10SM BKN041 OVC048 02/M01 A3021 RMK AO2 SNE0659 SLP235 P0000 T00221006 KTVF 210756Z AUTO 17010KT 10SM BKN100 OVC120 M01/M06 A3011 RMK AO2 SLP212 T10061056 FZRANO KTVI 210835Z AUTO 36008KT 10SM CLR 16/11 A3009 RMK AO2 KTVK 210835Z AUTO 00000KT 10SM CLR M03/M05 A3039 RMK AO2 KTVL 210753Z AUTO 19003KT 10SM CLR M01/M04 A3019 RMK AO2 SLP196 T10061044 401891028 KTVR 210753Z AUTO 00000KT 6SM BR CLR 07/07 A3023 RMK AO2 SLP243 T00720067 KTVY 210835Z AUTO 13005KT 10SM CLR 10/01 A3020 RMK AO2 KTWF 210753Z AUTO 20009KT 10SM CLR 07/M01 A3014 RMK AO2 SLP176 T00671011 KTWM 210835Z AUTO 00000KT 10SM SCT120 M04/M08 A3019 RMK AO2 KTXK 210753Z AUTO 03004KT 10SM CLR 10/09 A3030 RMK AO2 SLP257 T01000089 $ KTXW 210835Z AUTO 36008KT 4SM BR OVC004 18/17 A3011 RMK AO2 T01770168 KTYQ 210835Z AUTO 28004KT 10SM CLR M02/M05 A3032 RMK AO2 T10241055 KTYR 210753Z AUTO 01006KT 10SM CLR 13/09 A3028 RMK AO2 SLP250 T01280089 KTYS 210753Z 01008G18KT 10SM CLR 04/M05 A3022 RMK AO2 SLP233 T00441050 KTZR 210835Z AUTO 33012KT 10SM OVC035 02/M05 A3024 RMK AO2 T00181050 KU42 210835Z AUTO 00000KT 10SM CLR 10/02 A3022 RMK AO1 T00960017 KU68 210835Z AUTO 26005KT 10SM CLR 05/M35 A3013 RMK AO2 KUAO 210753Z AUTO 10003KT 7SM CLR 09/07 A2999 RMK AO2 SLP156 T00890072 402170061 KUBE 210835Z AUTO 00000KT 10SM CLR M06/M07 A3026 RMK AO2 KUCP 210756Z AUTO 29015G19KT 10SM SCT023 BKN039 OVC049 03/00 A3004 RMK AO2 RAE0658 SLP195 T00280000 PNO $ KUCY 210835Z AUTO 02004KT 10SM CLR 03/M04 A3036 RMK A01 KUDG 210756Z AUTO 28005KT 10SM CLR 12/08 A2996 RMK AO2 SLP150 T01170078 KUES 210835Z AUTO 26004KT 10SM CLR M03/M06 A3034 RMK AO2 KUGN 210755Z AUTO 29004KT 10SM CLR M02/M06 A3033 RMK AO2 SLP283 T10221061 KUIL 210807Z AUTO 00000KT 1/4SM FG VV002 06/06 A3003 KUIN 210754Z AUTO 04005KT 10SM CLR M01/M06 A3039 RMK AO2 SLP292 T10061056 KUKF 210820Z AUTO 00000KT 10SM CLR 06/M05 A3011 RMK AO2 KUKI 210756Z AUTO 00000KT 10SM CLR 11/07 A2998 RMK AO2 SLP145 T01060067 402940056 KUKT 210835Z AUTO 00000KT 10SM OVC046 07/04 A2973 RMK A01 KULM 210835Z AUTO 16004KT 10SM CLR M04/M07 A3028 RMK AO2 KULS 210835Z AUTO 20007KT 10SM CLR 03/00 A3029 RMK AO2 KUNI 210835Z AUTO 32006KT 10SM BKN036 02/M03 A3023 RMK AO2 T00211035 KUNO 210753Z AUTO 04003KT 10SM CLR 02/M02 A3038 RMK AO2 SLP289 T00221017 KUNU 210835Z AUTO 00000KT 10SM CLR M05/M07 A3034 RMK AO2 T10461066 KUNV 210835Z AUTO 34011G20KT 10SM -DZ SCT019 BKN026 OVC043 03/01 A2989 RMK AO2 P0001 T00320011 KUOX 210835Z AUTO 04006KT 10SM CLR 07/03 A3031 RMK AO2 KUSE 210830Z AUTO 34008G15KT 10SM OVC036 02/M03 A3024 RMK AO2 KUTA 210835Z AUTO 03008KT 10SM 08/02 A3033 RMK AO2 TSNO KUTS 210753Z AUTO VRB04KT 10SM CLR 15/13 A3024 RMK AO2 SLP237 T01500133 KUUU 210753Z AUTO 34003KT 10SM FEW048 BKN100 OVC120 09/08 A2955 RMK AO2 SLP004 T00940083 KUVA 210835Z AUTO 03004KT 10SM BKN100 17/12 A3026 RMK AO2 T01650115 KUXL 210835Z AUTO 03008G17KT 10SM OVC070 18/14 A3018 RMK AO2 T01830138 KUYF 210835Z AUTO 32009KT 10SM OVC034 01/M02 A3024 RMK AO2 KUZA 210754Z AUTO 31007KT 10SM CLR 10/03 A2999 RMK AO2 SLP152 T01000028 KVAD 210756Z AUTO 35014KT 10SM CLR 17/13 A3004 RMK AO2 SLP173 T01660127 $ KVAF 210835Z AUTO 05019G29KT 7SM SCT019 BKN025 OVC060 26/22 A3001 RMK A01 KVAY 210754Z AUTO 31007G16KT 10SM FEW120 09/06 A2968 RMK AO2 SLP049 T00940056 $ KVBG 210758Z AUTO 06005KT 10SM CLR 10/08 A2992 RMK AO2 SLP134 T00970077 403120090 $ KVBS 210830Z AUTO 10030G38KT 10SM BKN050 OVC070 20/14 A3012 RMK A01 KVBT 210756Z AUTO 00000KT 10SM CLR 05/01 A3039 RMK AO2 SLP295 T00500011 KVBW 210835Z AUTO 31014G24KT 10SM BKN050 BKN065 06/M01 A2996 RMK AO2 T00571011 KVCB 210753Z AUTO 00000KT 10SM CLR 09/03 A2995 RMK AO2 SLP140 T00940028 402940067 KVCT 210751Z AUTO 03011KT 10SM BKN037 OVC060 18/14 A3018 RMK AO2 SLP218 T01830144 KVCV 210247Z 00000KT 10SM SKC A3002 KVDF 210835Z AUTO 00000KT 2SM BR CLR 21/21 A2999 RMK AO2 KVDI 210835Z AUTO 30004KT 10SM CLR 14/09 A3004 RMK AO2 KVEL 210753Z AUTO 29003KT 10SM BKN085 05/00 A3032 RMK AO2 SLP244 T00500000 KVER 210835Z AUTO 00000KT 10SM CLR 00/M03 A3042 RMK AO2 T10031028 KVES 210835Z AUTO 31006KT 10SM OVC039 00/00 A3027 RMK AO2 KVGT 210753Z AUTO 32006KT 10SM CLR 19/06 A2997 RMK AO2 SLP149 T01890061 402720144 KVIH 210753Z AUTO 00000KT 10SM CLR M01/M05 A3040 RMK AO2 SLP297 T10111050 KVIS 210756Z AUTO 18005KT 10SM CLR 12/07 A2995 RMK AO2 SLP149 T01170072 402940089 KVJI 210835Z AUTO 34008KT 10SM OVC031 04/M03 A3016 RMK AO2 T00361027 KVKS 210835Z AUTO 00000KT 3/4SM BR VV005 09/09 A3023 RMK A01 KVKY 210835Z AUTO 05030KT 10SM SCT041 SCT048 OVC060 22/15 A3010 RMK A01 KVLD 210753Z AUTO VRB06KT 10SM CLR 17/13 A3004 RMK AO2 SLP179 T01670133 $ KVLL 210835Z AUTO 30010KT 10SM SCT034 OVC042 03/M03 A3021 RMK AO2 T00331035 KVNC 210835Z AUTO 02003KT 10SM CLR 24/23 A2999 RMK AO2 KVNW 210835Z AUTO 33004KT 10SM OVC043 02/M02 A3028 RMK AO2 KVNY 210751Z AUTO 07003KT 10SM CLR 22/04 A2991 RMK AO2 SLP119 T02170039 403280167 KVOA 210835Z AUTO 02025G31KT 8SM SCT020 BKN024 OVC075 21/16 A3006 RMK A01 KVOK 210756Z AUTO 00000KT 10SM CLR M06/M07 A3034 RMK AO2 SLP289 T10601068 KVPC 210753Z AUTO 34008G18KT 290V030 10SM CLR 10/01 A3013 RMK AO2 SLP196 T01000011 KVPS 210755Z 01012KT 10SM FEW130 FEW200 17/13 A3010 RMK AO2A SLP199 T01650132 $ KVPZ 210756Z AUTO 33004KT 10SM OVC037 04/M04 A3031 RMK AO2 SLP269 T00441039 KVQQ 210835Z AUTO 33013G18KT 10SM SCT016 SCT024 21/17 A3000 RMK AO2 KVQT 210835Z AUTO 07016G26KT 9SM SCT016 OVC023 25/23 A3007 RMK A01 KVRB 210753Z AUTO 29004KT 10SM CLR 23/22 A2996 RMK AO2 SLP145 T02280217 KVSF 210754Z AUTO 03005KT 10SM BKN110 07/M01 A2964 RMK AO2 SLP040 T00671006 KVTA 210754Z AUTO 32007KT 10SM OVC033 02/M04 A3020 RMK AO2 SLP230 T00221039 KVTI 210835Z AUTO 00000KT 10SM CLR M03/M05 A3035 RMK AO2 T10331052 KVTN 210752Z AUTO 20007KT 10SM CLR 07/00 A3014 RMK AO2 SLP212 T00720000 KVUJ 210815Z AUTO 36007KT 10SM CLR 12/01 A3005 RMK AO2 T01150011 KVUO 210753Z AUTO 00000KT 5SM BR CLR 07/06 A2999 RMK AO2 SLP156 T00720061 401890044 KVVV 210835Z AUTO 15004KT 10SM CLR M03/M07 A3018 RMK AO2 KVWU 210835Z AUTO 17004KT 10SM BKN110 M01/M05 A3013 RMK AO2 KVYS 210835Z AUTO 00000KT 10SM CLR M02/M05 A3039 RMK AO2 T10191048 KW13 210835Z AUTO 30004KT 10SM OVC044 05/M01 A2997 RMK AO1 T00491009 KW22 210835Z AUTO 30007G16KT 270V350 9SM -UP SCT010 BKN019 OVC041 02/01 A3009 RMK AO2 KW29 210820Z AUTO 30016G25KT 10SM CLR 10/03 A2979 RMK AO2 KW31 210835Z AUTO 30008KT 270V340 10SM CLR 07/M02 A2997 RMK AO1 T00731025 KW43 210835Z AUTO 23008KT 10SM CLR 11/M01 A3011 RMK AO2 KW63 210835Z AUTO 30007G16KT 10SM CLR 07/M01 A2999 RMK AO1 KW75 210835Z AUTO 28009G17KT 10SM OVC095 10/04 A2985 RMK AO1 T01000044 KW78 210830Z AUTO 32010G21KT 10SM CLR 07/M04 A3001 RMK AO1 T00731037 KW81 210835Z AUTO 30011G17KT 10SM CLR 07/M04 A2995 RMK AO1 T00721038 KW96 210835Z AUTO 29018G25KT 10SM BKN090 BKN110 09/00 A2989 RMK AO1 T00900000 KW99 210835Z AUTO 33005G14KT 10SM SCT070 05/00 A2999 RMK AO2 T00490000 KWAL 210754Z AUTO 31008KT 10SM OVC095 12/04 A2976 RMK AO2 RAB27E49 SLP073 P0000 T01170044 KWBF 210840Z AUTO 00000KT 10SM CLR 30/21 A3002 RMK A01 KWDG 210835Z AUTO 00000KT 10SM CLR 06/05 A3036 RMK AO2 KWDR 210835Z AUTO 31009KT 10SM CLR 11/00 A3009 RMK AO1 KWHP 210255Z 00000KT 10SM SKC 24/00 A2993 KWJF 210756Z AUTO 27007KT 10SM CLR 12/M03 A3000 RMK AO2 SLP150 T01171033 402780028 KWLD 210754Z AUTO 10006KT 10SM CLR 08/00 A3038 RMK AO2 SLP286 T00780000 KWMC 210756Z AUTO 00000KT 10SM CLR 01/M11 A3012 RMK AO2 SLP181 T00061106 402441017 KWRB 210756Z 32004KT 10SM CLR 11/09 A3005 RMK AO2A SLP178 T01100094 KWRI 210756Z AUTO 31012G17KT 10SM SCT033 SCT190 09/05 A2964 RMK AO2 SLP037 T00870051 RVRNO VISNO RWY06 $ KWRL 210753Z AUTO 21006KT 10SM CLR 03/M02 A3013 RMK AO2 SLP193 T00281017 KWST 210753Z AUTO 35006KT 10SM -RA SCT048 BKN055 OVC070 09/08 A2957 RMK AO2 RAB43 SLP011 P0000 T00940078 $ KWVI 210809Z AUTO 00000KT 1/4SM FG VV002 12/12 A2998 RMK AO2 T01220122 KWVL 210756Z AUTO 35005KT 10SM OVC110 03/M01 A2956 RMK AO2 SLP039 T00281011 $ KWWD 210755Z AUTO 30011G20KT 10SM FEW036 OVC110 12/05 A2970 RMK AO2 SLP061 T01170050 KWWR 210835Z AUTO 20007KT 10SM CLR 08/03 A3038 RMK AO2 KWYS 210830Z AUTO 00000KT 10SM CLR M04/M06 A3030 RMK AO2 KX07 210835Z AUTO 00000KT 8SM CLR 23/23 A3000 RMK A01 KXBP 210835Z AUTO 22003KT 10SM CLR 09/09 A3036 RMK AO2 T00860086 PNO KXER 210835Z AUTO 03018KT 7SM FEW025 BKN034 OVC060 25/22 A3004 RMK A01 KXIF 210758Z AUTO 25009KT 10SM BKN027 BKN033 BKN042 OVC055 06/02 A2978 RMK AO2 RAB22E34 SLPNO P0000 T00610024 KXIH 210835Z AUTO 04031KT 10SM 21/15 A3012 RMK A01 KXLL 210835Z AUTO 29005KT 10SM SCT026 BKN055 OVC080 07/05 A2975 RMK AO2 KXMR 210756Z AUTO 29007KT 10SM CLR 24/22 A2995 RMK AO2 SLP145 T02410223 $ KXNA 210753Z AUTO 03004KT 10SM CLR 06/00 A3038 RMK AO2 SLP283 T00610000 KXNX 210835Z AUTO 35006KT 10SM CLR 03/M03 A3036 RMK A01 KXPY 210835Z AUTO 04019G27KT 10SM BKN021 OVC031 21/18 A3010 RMK A01 KXSA 210835Z AUTO 26013G23KT 10SM SCT100 09/03 A2988 RMK AO2 T00900028 KXVG 210838Z AUTO 19005KT 10SM OVC120 M04/M04 A3017 RMK AO2 KY19 210835Z AUTO 18006KT 10SM FEW035 M01/M04 A2998 RMK AO2 KY23 210835Z AUTO 00000KT 10SM CLR M06/M07 A3028 RMK AO2 T10571070 KY31 210835Z AUTO 31003KT 10SM OVC036 00/M03 A3016 RMK AO2 T10021026 KY49 210835Z AUTO 19005KT 10SM OVC110 M02/M06 A3015 RMK AO2 T10201065 KY50 210756Z AUTO 00000KT 10SM CLR M06/M07 A3034 RMK AO2 SLP302 T10561072 KY51 210835Z AUTO 20003KT 10SM CLR M03/M05 A3031 RMK AO1 T10261053 KY63 210837Z AUTO 17010KT 10SM CLR M03/M06 A3017 RMK AO2 T10271060 KY70 210835Z AUTO 29007KT 10SM BKN028 BKN045 01/M03 A3024 RMK AO2 KYIP 210753Z 33011G17KT 10SM OVC037 03/M03 A3020 RMK AO2 SLP229 T00331033 KYKM 210753Z AUTO 28006KT 8SM CLR 03/01 A3008 RMK AO2 SLP191 T00280006 401891011 KYKN 210756Z AUTO 00000KT 10SM CLR M02/M04 A3027 RMK AO2 SLP275 T10171039 FZRANO KYNG 210751Z 30012G19KT 10SM FEW009 SCT022 SCT044 03/M01 A3003 RMK AO2 SLP177 T00281006 KZPH 210835Z AUTO 00000KT 1/2SM FG VV005 21/21 A2999 RMK AO2 T02100208 KZZV 210753Z AUTO 30009KT 10SM OVC035 02/M03 A3016 RMK AO2 SLP217 T00221033 LATI 210820Z VRB02KT 9999 FEW080 19/09 Q1016 NOSIG LBBG 210830Z 31005KT 250V360 7000 FEW048 18/11 Q1018 NOSIG LBGO 210830Z AUTO 09003KT 8000 NCD 14/13 Q1019 NOSIG LBIA 210800Z 24004KT 9999 BKN100 16/12 Q1019 LBPD 210830Z AUTO VRB02KT 9999 NCD 16/12 Q1019 NOSIG LBPG 210800Z 00000KT 8000 BR SCT200 14/10 Q1019 LBPL 210800Z 10002KT 8000 BR SCT040 BKN200 14/12 Q1019 LBSF 210830Z VRB02KT 5000 BR FEW065 12/08 Q1020 NOSIG LBWN 210830Z 27006KT 230V290 6000 FEW018 SCT048 17/11 Q1018 NOSIG LCEN 210820Z 11004KT 9999 FEW025 25/17 Q1012 NOSIG RMK RWY11 14003KT LCLK 210830Z 08004KT 040V120 9999 FEW030 FEW035TCU 27/18 Q1012 NOSIG LCPH 210830Z 21005KT 180V250 8000 SCT015 FEW030TCU 26/20 Q1012 LCRA 210750Z 06006KT 9999 FEW035 26/18 Q1012 NOSIG LDDU 210830Z 03020KT 360V070 CAVOK 18/05 Q1018 WS R12 NOSIG LDLO 210800Z 01008KT CAVOK 16/12 Q1021 LDOS 210830Z 32013KT 9999 FEW027 SCT037 10/04 Q1023 LDPL 210830Z 08015KT 9999 -RA FEW048 15/10 Q1021 NOSIG LDRI 210830Z VRB02KT 9999 SCT050 BKN075 15/09 Q1022 LDSP 210830Z 06010KT 360V110 CAVOK 18/06 Q1019 NOSIG LDZA 210830Z 23004KT CAVOK 09/06 Q1025 TEMPO 02008KT LDZD 210830Z 07010KT 020V120 CAVOK 16/07 Q1021 NOSIG LEAB 210800Z 31002KT 9999 BKN015 15/14 Q1023 NOSIG LEAG 210830Z AUTO 09004KT 060V140 9999 FEW029 SCT037 OVC043 19/17 Q1017 LEAL 210830Z 07015KT 9999 FEW025TCU 23/18 Q1020 NOSIG LEAM 210830Z 04009KT 340V080 9999 FEW030 25/16 Q1018 LEAS 210830Z VRB01KT 1700 BCFG BR FEW002 BKN004 15/14 Q1023 TEMPO 3000 LEBA 210830Z VRB01KT 9999 RA OVC045 16/15 Q1019 LEBB 210830Z 15004KT 120V190 7000 3000SE BCFG NSC 15/15 Q1024 NOSIG LEBG 210830Z VRB02KT 0450 R22/0650N R04/0400D FG VV002 10/10 Q1026 LEBL 210830Z 33008KT 300V010 CAVOK 18/15 Q1022 NOSIG LEBR 210830Z AUTO 20003KT 170V240 0100 R/////// FG VV002 12/11 Q1025 LEBT 210830Z AUTO 00000KT 9999 OVC048 19/16 Q1023 LEBZ 210800Z 10005KT 070V130 8000 FEW030TCU 16/16 Q1018 LECH 210830Z AUTO 03006KT 360V060 9999 NCD 19/13 Q1023 LECO 210830Z VRB01KT 9999 VCFG NSC 14/13 Q1022 NOSIG LECV 210800Z 06008KT 030V090 5000 BR FEW065 15/11 Q1024 LEDA 210842Z 00000KT 0900 R31/1700D FG VV002 15/15 Q1024 LEGA 210800Z VRB03KT 9999 SCT100 15/12 Q1020 LEGE 210830Z VRB02KT 9000 NSC 16/16 Q1022 LEGR 210830Z 00000KT 9999 FEW080 16/13 Q1020 LEGT 210800Z 04010KT 9999 SCT045 16/13 Q1023 LEHC 210830Z 28005KT 250V320 CAVOK 17/14 Q1025 LEIB 210830Z 07010KT 030V100 9999 SCT014 BKN018 23/19 Q1021 NOSIG LEJR 210830Z 04003KT 9999 BKN045 SCT055 17/16 Q1017 LELC 210830Z 07013KT 030V100 9999 FEW016 FEW038CB BKN040 23/19 Q1020 NOSIG LELL 210830Z 00000KT 9000 NSC 18/16 Q1023 LELN 210830Z 03004KT 350V090 CAVOK 14/09 Q1025 LELO 210830Z 26004KT 7000 NSC 12/11 Q1025 LEMD 210830Z 35004KT 310V030 9999 SCT040 BKN070 16/14 Q1023 R88/29//95 NOSIG LEMG 210830Z 28010KT 9999 FEW018 SCT022 20/16 Q1017 NOSIG LEMH 210830Z 06004KT 030V110 9999 SCT015 22/18 Q1021 LEMO 210800Z 09005KT 060V130 1500 +SHRA FEW015CB OVC040 16/15 Q1018 NOSIG LEPA 210830Z 07004KT 040V100 9000 FEW012 21/21 Q1021 NOSIG LEPP 210830Z VRB01KT 0700 R33/0900U R15/1000D BCFG BKN001 11/11 Q1025 LERI 210800Z 36005KT 9999 -SHRA FEW015 SCT019CB 19/17 Q1021 NOSIG LERS 210830Z 04003KT 8000 NSC 20/14 Q1022 LERT 210800Z 06004KT 9999 BKN050 17/16 Q1017 NOSIG LESA 210830Z 09008KT CAVOK 15/12 Q1022 LESO 210830Z VRB01KT 0400 R22/0550N FG VV002 14/14 Q1024 LEST 210830Z 12006KT 080V180 CAVOK 17/12 Q1022 NOSIG LETL 210830Z AUTO 32005KT 9999 FEW023/// 11/09 Q1026 LETO 210800Z 04007KT 010V070 9999 FEW045 15/13 Q1024 NOSIG LETU 210830Z AUTO 28003KT 250V330 9999 NCD 14/12 Q1025 LEVC 210830Z 00000KT 9999 SCT050 20/15 Q1022 NOSIG LEVD 210830Z 06008KT CAVOK 13/11 Q1024 LEVS 210830Z 03006KT 330V100 9999 FEW035 16/12 Q1023 LEVT 210830Z 00000KT 0900 R04/P2000 R22/1300U FG OVC002 13/13 Q1025 LEVX 210830Z VRB02KT CAVOK 19/11 Q1020 NOSIG LEXJ 210830Z 00000KT 4500 BR NSC 15/15 Q1023 LEZG 210830Z VRB02KT 1500 R12L/1000U PRFG SCT001 14/14 Q1024 LEZL 210830Z 10003KT 030V180 9999 SCT035 17/16 Q1018 NOSIG LFAQ 210830Z AUTO 02004KT 4800 BR NSC 09/07 Q1029 NOSIG LFAT 210830Z AUTO 14003KT 7000 NSC 11/09 Q1029 TEMPO 4500 BR LFBA 210830Z AUTO VRB03KT 2400 BR OVC003 13/13 Q1024 NOSIG LFBC 210830Z AUTO VRB01KT 1300 0250 R24/P2000 BCFG VV/// 10/10 Q1024 LFBD 210830Z AUTO VRB01KT 9000 NSC 14/11 Q1024 NOSIG LFBE 210830Z AUTO 05005KT 0450 R27/0650N FG VV/// 11/11 Q1024 BECMG 9999 NSW BKN007 LFBG 210830Z AUTO 03004KT 7000 NSC 12/10 Q1025 LFBH 210830Z AUTO 08010KT 7000 NSC 12/09 Q1025 NOSIG LFBI 210830Z AUTO 36006KT 5000 BR NSC 09/08 Q1026 NOSIG LFBL 210830Z AUTO 05008KT CAVOK 16/07 Q1024 NOSIG LFBM 210830Z AUTO VRB01KT 0250 R27/0275N FG VV/// 12/12 Q1024 NOSIG LFBO 210830Z AUTO 31004KT 280V340 2200 BR OVC002 14/14 Q1024 BECMG 8000 NSW BKN012 LFBP 210830Z AUTO VRB02KT 1400 1100 R31/1200U R13/1000U BR VV/// 13/13 Q1024 BECMG 2000 BR BKN002 LFBT 210830Z AUTO VRB02KT CAVOK 15/13 Q1024 NOSIG LFBU 210830Z AUTO 04004KT 6000 NSC 11/09 Q1025 NOSIG LFBY 210830Z AUTO VRB02KT 0050 // OVC004 14/13 Q1024 LFBZ 210830Z AUTO 00000KT 0200 R09/0225N R27/0325N FG VV/// 14/14 Q1024 BECMG 2000 BR BKN002 LFCK 210830Z AUTO VRB02KT 9999 OVC015 14/13 Q1025 NOSIG LFCR 210830Z AUTO VRB02KT CAVOK 12/09 Q1024 NOSIG LFGA 210830Z AUTO 04005KT CAVOK 09/05 Q1028 LFGJ 210830Z AUTO 05008KT 5000 BR NSC 12/09 Q1025 TEMPO BKN008 LFJL 210830Z AUTO 04007KT 9000 NSC 09/06 Q1028 NOSIG LFJR 210830Z AUTO 08006KT 5000 BR NSC 09/07 Q1027 NOSIG LFKB 210830Z AUTO 22006KT CAVOK 21/13 Q1018 NOSIG LFKC 210830Z AUTO VRB01KT CAVOK 21/15 Q1019 NOSIG LFKF 210830Z AUTO 20006KT CAVOK 21/17 Q1019 NOSIG LFKJ 210830Z AUTO VRB02KT CAVOK 21/15 Q1019 NOSIG LFKS 210830Z AUTO VRB01KT CAVOK 22/14 Q1019 LFLB 210830Z AUTO VRB02KT 4500 BR BKN023 BKN032 10/10 Q1025 BECMG 36012KT 7000 NSW LFLC 210830Z AUTO 36003KT 320V040 9000 NSC 08/06 Q1026 NOSIG LFLL 210830Z 36005KT 340V040 2500 BR OVC004 10/09 Q1025 NOSIG LFLN 210830Z AUTO VRB01KT 0250 R33/0300N FG VV/// 06/06 Q1026 BECMG CAVOK LFLP 210830Z AUTO 00000KT 5000 BR OVC017 10/08 Q1025 TEMPO BKN012 LFLS 210830Z AUTO 31005KT 240V350 4700 BR BKN015 10/09 Q1025 TEMPO BKN003 BECMG 9999 NSW LFLU 210830Z AUTO 35011KT 4000 BR NSC 13/10 Q1023 LFLW 210830Z AUTO 00000KT CAVOK 11/03 Q1024 NOSIG LFLX 210830Z AUTO 09005KT 7000 NSC 10/07 Q1026 NOSIG LFLY 210830Z AUTO 36005KT 4000 BR OVC010 11/09 Q1025 BECMG CAVOK LFMC 210830Z AUTO 00000KT 9999 ////// 18/14 Q1019 LFMD 210830Z AUTO VRB02KT CAVOK 19/12 Q1019 NOSIG LFMH 210830Z AUTO VRB02KT 4400 BR OVC007 08/07 Q1026 BECMG CAVOK LFMI 210830Z AUTO 36007KT 9000 NSC 17/14 Q1020 BECMG 34015G25KT LFMK 210830Z AUTO 27011KT 230V300 9999 OVC012 16/14 Q1023 NOSIG LFML 210830Z AUTO VRB01KT CAVOK 18/14 Q1020 NOSIG LFMN 210830Z 32010KT CAVOK 19/10 Q1019 NOSIG LFMO 210830Z AUTO 35015KT CAVOK 16/10 Q1021 BECMG 35015G25KT LFMP 210830Z AUTO VRB01KT CAVOK 20/13 Q1022 NOSIG LFMT 210830Z AUTO 01009KT CAVOK 18/11 Q1021 NOSIG LFMU 210830Z AUTO 31004KT CAVOK 15/14 Q1022 NOSIG LFMV 210830Z AUTO 36010KT 8000 NSC 17/11 Q1021 BECMG 35015G25KT LFMY 210830Z AUTO 36005KT 320V040 CAVOK 17/12 Q1021 LFOA 210830Z AUTO 08004KT 6000 NSC 10/07 Q1027 LFOB 210830Z AUTO VRB02KT 4600 BR NSC 07/07 Q1029 BECMG 8000 NSW LFOC 210830Z AUTO 03005KT 5000 BR NSC 09/07 Q1028 LFOE 210830Z AUTO VRB02KT 4100 BR NSC 09/09 Q1028 BECMG 6000 NSW LFOH 210830Z AUTO 00000KT 6000 NSC 12/09 Q1029 NOSIG LFOJ 210830Z AUTO 06005KT 4100 BR NSC 08/06 Q1027 LFOK 210830Z AUTO 04006KT 3700 BR NSC 07/06 Q1028 BECMG 9999 NSW LFOP 210830Z AUTO 03006KT 7000 NSC 10/07 Q1029 NOSIG LFOT 210830Z AUTO 04006KT 360V070 5000 BR NSC 10/07 Q1027 NOSIG LFOV 210830Z AUTO 01004KT 5000 BR NSC 08/07 Q1028 LFPB 210830Z AUTO VRB02KT 4200 BR NSC 08/06 Q1028 BECMG 8000 NSW LFPG 210830Z VRB02KT 4000 BR NSC 09/07 Q1028 BECMG 8000 NSC LFPM 210830Z AUTO VRB02KT 3600 BR NSC 08/07 Q1028 LFPN 210830Z AUTO VRB02KT 4800 BR NSC 09/08 Q1028 BECMG 9999 NSW LFPO 210830Z 03004KT 360V060 7000 NSC 10/07 Q1028 NOSIG LFPT 210830Z AUTO 00000KT 3400 BR NSC 08/08 Q1028 LFPV 210830Z AUTO 05004KT 020V090 5000 BR NSC 10/07 Q1028 NOSIG LFQA 210830Z AUTO 00000KT 4800 BR NSC 07/06 Q1028 LFQB 210830Z AUTO VRB02KT 2700 BR VV/// 06/06 Q1028 LFQG 210830Z AUTO 00000KT 4900 BR VV/// 07/07 Q1027 LFQQ 210830Z AUTO VRB02KT 5000 BR NSC 10/08 Q1029 NOSIG LFRB 210830Z AUTO 05003KT 6000 NSC 09/08 Q1028 NOSIG LFRC 210830Z AUTO 00000KT CAVOK 13/08 Q1029 NOSIG LFRD 210830Z AUTO 15001KT CAVOK 11/10 Q1028 NOSIG LFRG 210830Z AUTO VRB02KT 7000 NSC 12/08 Q1029 NOSIG LFRH 210830Z AUTO 07008KT CAVOK 10/08 Q1028 NOSIG LFRI 210830Z AUTO 04005KT 8000 NSC 11/09 Q1026 NOSIG LFRJ 210830Z AUTO 07002KT 8000 NSC 10/08 Q1028 LFRK 210830Z AUTO VRB01KT 7000 NSC 09/09 Q1028 NOSIG LFRL 210830Z AUTO 07005KT 9000 NSC 11/09 Q1028 LFRM 210830Z AUTO 03004KT 7000 NSC 10/07 Q1028 NOSIG LFRN 210830Z AUTO VRB02KT 7000 NSC 07/07 Q1028 NOSIG LFRO 210830Z AUTO 00000KT 7000 NSC 10/10 Q1028 NOSIG LFRQ 210830Z AUTO 05004KT CAVOK 11/09 Q1028 NOSIG LFRS 210830Z AUTO 06008KT 8000 NSC 10/08 Q1026 NOSIG LFRT 210830Z AUTO VRB02KT CAVOK 10/10 Q1028 LFRU 210830Z AUTO 00000KT CAVOK 07/07 Q1028 LFRV 210830Z AUTO 04008KT 9000 NSC 10/08 Q1027 LFRZ 210830Z AUTO 03006KT 6000 NSC 09/08 Q1027 NOSIG LFSB 210830Z 34004KT 0900 0750N R15/1300U R33/1300N FG VV/// 09/09 Q1027 BECMG 2000 BR OVC003 LFSD 210830Z AUTO ///09KT 9000 NSC 11/08 Q1026 LFSG 210830Z AUTO 03006KT CAVOK 08/06 Q1027 LFSI 210830Z AUTO VRB03KT 7000 NSC 08/05 Q1027 LFSL 210830Z AUTO VRB02KT CAVOK 14/09 Q1024 NOSIG LFSN 210830Z AUTO 03008KT 9000 NSC 10/06 Q1028 LFSO 210830Z AUTO 05005KT 9000 4300 NSC 07/07 Q1027 LFST 210830Z AUTO 03006KT 360V060 CAVOK 09/06 Q1028 NOSIG LFSX 210830Z AUTO VRB02KT 2200 0350 R11/0450D BCFG VV/// 08/08 Q1026 LFTH 210830Z AUTO VRB02KT CAVOK 21/16 Q1019 NOSIG LFTW 210830Z AUTO 02010KT 340V050 CAVOK 18/10 Q1021 NOSIG LFVP 210800Z 17028KT 6000 SCT006 BKN033 12/11 Q1006 LFYR 210830Z AUTO 06003KT 020V090 6000 NSC 09/06 Q1027 LGAD 210820Z 17004KT 9999 FEW018 23/14 Q1016 LGAL 210820Z 00000KT CAVOK 18/15 Q1018 LGAV 210820Z 03009KT 9999 FEW030 19/12 Q1018 NOSIG LGBL 210820Z 15004KT 9999 FEW025 BKN080 21/11 Q1018 LGEL 210820Z 00000KT 9999 FEW025 SCT070 22/12 Q1017 LGHI 210750Z 02006KT 9999 FEW020 19/12 Q1015 LGIO 210820Z /////KT 9999 BKN035 SCT070 16/09 Q1017 LGIR 210820Z 34009KT 9999 SCT020 22/16 Q1017 NOSIG LGKC 210750Z 06014KT 9999 FEW010 18/15 Q1018 LGKF 210750Z 00000KT 9999 SCT016 23/18 Q1016 LGKL 210820Z 00000KT 9000 4000S BR SCT025 23/15 Q1016 LGKO 210820Z 34011KT 9999 FEW018 21/12 Q1014 LGKP 210820Z 33018KT 9999 FEW020 24/16 Q1014 LGKR 210820Z 00000KT 9999 FEW018 SCT030 22/17 Q1015 NOSIG LGKV 210820Z 07002KT 9999 FEW025 20/14 Q1018 LGKZ 210750Z 35008KT 9999 SCT025 BKN070 14/09 Q1019 LGLM 210820Z 04008KT 9999 FEW020 19/12 Q1018 LGLR 210750Z 00000KT 9999 SCT030 SCT080 18/11 Q1018 BLU LGMK 210820Z 36014KT 9999 FEW012 20/15 Q1016 LGMT 210820Z 34009KT 310V010 CAVOK 20/12 Q1018 LGNX 210750Z 36011KT 9999 FEW018 20/15 Q1016 LGPA 210750Z 35015KT 9999 FEW016 20/14 Q1016 NOSIG LGPZ 210820Z 06006KT 9999 FEW020 22/15 Q1016 LGRP 210820Z 29011KT CAVOK 24/13 Q1012 NOSIG LGRX 210820Z 04005KT 9999 BKN020 22/15 Q1016 LGSA 210820Z 09005KT 9999 FEW018 BKN025 20/17 Q1016 LGSK 210750Z 00000KT 9999 FEW020 SCT035 18/16 Q1017 LGSM 210820Z 02011KT 330V030 9999 FEW020 23/16 Q1015 LGSO 210820Z AUTO 36012KT //// // ////// 21/14 Q1017 RE// LGSR 210820Z 35011KT 9999 FEW025 20/13 Q1016 LGSY 210750Z 03008KT 9999 FEW030 19/12 Q1018 RMK SCT200 BLU LGTG 210750Z 00000KT 9999 FEW025 19/11 Q1018 RMK BKN180 BLU LGTS 210820Z VRB02KT 9999 FEW025 17/10 Q1018 NOSIG LGZA 210750Z 15005KT 9999 SCT020 22/18 Q1016 LHBC 210545Z 01009KT 9999 -RA NSC 09/05 Q1020 LHBP 210830Z 31006KT 9999 -RA SCT034 BKN046 07/06 Q1023 NOSIG LHDC 210815Z 02010KT 9999 BKN023 09/05 Q1021 NOSIG LHKE 210815Z 29006KT 5000 BR OVC040 08/07 Q1022 TEMPO -RA RMK WHT LHPA 210815Z 35017KT 9999 FEW027 10/03 Q1025 NOSIG RMK BLU LHPP 210815Z 35012KT 9999 FEW023 10/02 Q1024 LHPR 210815Z 33019KT CAVOK 11/04 Q1024 RMK BLU LHSM 210815Z 34010KT CAVOK 10/04 Q1025 NOSIG LHSN 210815Z 31004KT 9999 -RA SCT040 OVC050 08/07 Q1022 NOSIG RMK BLU LHUD 210815Z 34010KT 9999 FEW013 OVC036 10/07 Q1022 LIBC 210750Z 34005KT 300V020 CAVOK 20/10 Q1018 LIBD 210820Z 30010KT CAVOK 19/13 Q1018 LIBF 210750Z 30015KT CAVOK 18/14 Q1019 LIBG 210750Z 34011KT CAVOK 19/14 Q1017 LIBH 210755Z 32004KT CAVOK 20/15 Q1017 RMK SCT SCT200 QUK 1 QUL 0 VIS MAR 10 KM VIS MIN 9999 LIBN 210755Z 33010KT CAVOK 19/16 Q1017 RMK SCT SCT200 VIS MIN 9999 WIND THR14 33010KT WIND THR32 33011KT BLU LIBP 210750Z 24004KT CAVOK 15/11 Q1020 LIBQ 210655Z 29006KT CAVOK 09/05 Q1020 RMK SKC MON LIB VAL FOSCHIA SKC SUP NC VIS MIN 9999 LIBR 210820Z 30016KT 8000 SCT030 19/16 Q1017 LIBV 210755Z 33009KT 7000 NSC 18/12 Q1018 RMK BKN BKN200 VIS MIN 7000 WIND THR32 33010KT WIND THR14 33009KT WHT LIBY 210755Z 36010KT CAVOK 19/15 Q1017 RMK SCT SCT200 QUK 3 QUL 1 N VIS MAR 10 KM VIS MIN 9999 LICA 210750Z 10005KT 8000 SCT020 19/17 Q1018 LICB 210750Z VRB02KT 9999 SCT040 20/17 Q1019 LICC 210820Z 23002KT 8000 SCT030 21/18 Q1018 LICD 210750Z 03003KT 360V090 CAVOK 24/19 Q1020 LICF 210755Z 20003KT 9999 FEW030 21/16 Q1018 RMK SCT SCT200 QUK 1 QUL 0 VIS MAR 20 KM MON LIB NC VIS MIN 9999 LICG 210755Z 30005KT 9999 FEW015 SCT017 21/19 Q1019 LICJ 210820Z 22005KT CAVOK 21/18 Q1018 LICL 210755Z 06003KT 9999 FEW015 21/17 Q1017 RMK BKN BKN100 QUK 1 QUL 0 VIS MAR 15 KM VIS MIN 9999 LICR 210750Z VRB02KT CAVOK 22/15 Q1018 LICT 210755Z VRB02KT 9999 FEW020 19/16 Q1018 LICZ 210755Z /////KT 6000 SCT030 BKN080 23/23 Q1018 RMK BKN VIS MIN 6000 WIND THR28 /////KT WIND THR10 31004KT A3009 WHT LIEA 210820Z VRB02KT 9999 FEW020 19/17 Q1020 LIEB 210755Z 30006KT CAVOK 19/15 Q1018 RMK FEW FEW080 QUK 2 QUL 0 VIS MAR 30 KM MON LIB VIS MIN 9999 LIEC 210755Z 23002KT 9999 FEW025 20/17 Q1019 RMK FEW QUK 1 QUL 0 VIS MAR 12 KM VIS MIN 9999 LIED 210755Z 28002KT 7000 FEW002 16/14 Q1019 RMK FEW VIS MIN 7000 WIND THR35 27002KT WIND THR17 /////KT WHT LIEE 210820Z 31006KT 280V340 8000 NSC 18/17 Q1020 LIEO 210820Z 22008KT CAVOK 20/17 Q1019 LIMA 210750Z 00000KT 9000 NSC 12/10 Q1020 LIMC 210820Z 02003KT CAVOK 15/13 Q1020 NOSIG LIME 210820Z 07003KT 020V110 3000 BR SCT030 SCT070 15/13 Q1020 NOSIG LIMF 210820Z VRB01KT 4000 BR NSC 14/13 Q1020 LIMG 210750Z 00000KT CAVOK 16/12 Q1019 LIMJ 210820Z 02003KT 350V050 CAVOK 21/10 Q1019 LIMK 210755Z 00000KT 5000 BR NSC 15/15 Q1020 RMK BKN BKN190 VAL S NEBBIA VIS MIN 5000 LIML 210820Z VRB02KT 2000 BR SCT035 16/13 Q1020 NOSIG LIMP 210750Z VRB02KT 5000 NSC 13/10 Q1021 LIMS 210755Z 26006KT 9999 FEW030 14/14 Q1019 LIMU 210755Z 03002KT CAVOK 19/10 Q1020 RMK FEW FEW200 QUK 1 QUL 1 SE VIS MAR 25 KM VIS MIN 9999 LIMW 210820Z AUTO VRB01KT 9999 NCD 09/05 Q1022 LIMY 210755Z VRB01KT CAVOK 13/11 Q1020 RMK SCT FEW080 SCT190 VAL FOSCHIA VIS MIN 9999 LIMZ 210750Z VRB02KT CAVOK 12/11 Q1020 LIPB 210750Z VRB02KT CAVOK 10/08 Q1022 LIPC 210755Z 26004KT 6000 NSC 12/10 Q1020 RMK BKN BKN100 VIS MIN 6000 WIND THR11 25003KT WIND THR29 26003KT WHT LIPE 210820Z 28004KT CAVOK 15/11 Q1021 LIPF 210755Z /////KT 1200 BR BKN060 09/08 Q1021 RMK BKN VIS MIN 1200 LIPH 210820Z 03004KT 360V070 CAVOK 17/12 Q1021 LIPL 210755Z 10002KT 3000 BR BKN042 15/14 Q1020 RMK BKN VIS MIN 3000 WIND THR31 13002KT WIND THR13 11002KT YLO LIPO 210750Z 11002KT 5000 BR SCT040 16/13 Q1020 LIPQ 210820Z 11011KT 7000 FEW060 19/09 Q1021 LIPR 210820Z 26004KT 240V300 5000 BR NSC 15/13 Q1020 LIPS 210755Z 07006KT 9999 SCT060 17/13 Q1021 RMK SCT VIS MIN 9999 WIND THR26 03007KT WIND THR08 06007KT BLU LIPU 210600Z VRB02KT 8000 BKN025 12/12 Q1020 LIPX 210820Z VRB01KT 4000 BR SCT040 14/12 Q1021 LIPY 210750Z VRB03KT 8000 FEW070 14/11 Q1020 LIPZ 210820Z 04007KT 9999 SCT070 16/11 Q1020 NOSIG LIQC 210755Z 00000KT 9999 SCT025 SCT030 20/13 Q1019 RMK BKN QUK 1 QUL 0 VIS MAR 20 KM VIS MIN 9999 LIQN 210800Z VRB02KT CAVOK 10/10 Q1019 LIRA 210820Z 01004KT CAVOK 18/14 Q1018 LIRE 210755Z 03006KT 9999 SCT020 18/16 Q1018 RMK SCT VIS MIN 9999 WIND THR13 03004KT WIND THR31 /////KT BLU LIRF 210820Z 06008KT 9999 FEW018 18/12 Q1018 NOSIG LIRI 210750Z 00000KT 9999 SCT035 20/08 Q1018 LIRM 210755Z /////KT 9999 FEW050 SCT070 19/13 Q1018 LIRN 210820Z 31004KT 250V010 9999 SCT070 21/08 Q1018 NOSIG LIRP 210815Z 16004KT CAVOK 16/13 Q1019 NOSIG LIRQ 210820Z VRB01KT CAVOK 16/10 Q1019 LIRS 210755Z 08005KT CAVOK 15/14 Q1018 LIRT 210355Z 02003KT CAVOK 10/05 Q1020 RMK SKC MON INVIS VAL INVIS VIS MIN 9999 LIRU 210750Z VRB02KT 8000 NSC 15/11 Q1019 LIRV 210755Z /////KT CAVOK 16/08 Q1019 LIRX 210755Z 22004KT CAVOK 19/09 Q1018 RMK FEW FEW100 VIS MIN 9999 VIS MAR 20 KM LIRZ 210750Z VRB02KT CAVOK 13/08 Q1020 LIVD 210755Z /////KT CAVOK 05/00 Q1024 RMK SKC VIS MIN 9999 LIVE 210755Z 05009G24KT 9999 FEW025 08/03 Q1024 RMK SCT VIS MIN 9999 LIVF 210755Z 07004KT CAVOK 13/07 Q1020 RMK SKC MON LIB VAL NW NEBBIA NC VIS MIN 9999 LIVO 210755Z 15001KT 9999 FEW050 07/05 Q1022 RMK FEW VIS MIN 9999 LIVP 210755Z 36012KT 9999 FEW050 05/M08 Q1023 RMK FEW MON LIB VAL FOSCHIA SKC SUP VIS MIN 9999 LIVR 210655Z 30010KT CAVOK 06/M18 Q1023 RMK FEW FEW080 MON LIB VIS MIN 9999 LIVT 210755Z 02010G23KT 9999 FEW040 17/10 Q1020 RMK BKN BKN070 QUK 3 QUL 1 NE VIS MAR 10 KM VIS MIN 9999 LJCE 210830Z 16003KT 120V190 9999 FEW023 BKN050 09/06 Q1026 RMK BLU LJLJ 210830Z 12013KT 9999 -RA FEW005 SCT028 BKN045 10/07 Q1024 NOSIG LJMB 210830Z 36007KT CAVOK 10/02 Q1025 LJPZ 210830Z VRB02KT 9999 SCT065 BKN120 16/11 Q1020 LKCV 210800Z 31006KT CAVOK 08/05 Q1028 NOSIG LKKB 210800Z 31004KT 9999 FEW044 BKN050 09/05 Q1028 NOSIG LKKV 210830Z 28004KT 240V330 9999 FEW018 08/04 Q1029 LKLN 210800Z AUTO 00000KT 9999 OVC023 07/05 Q1029 LKMT 210830Z 02011KT 5000 BR OVC007 07/06 Q1027 NOSIG LKNA 210800Z 33010KT 9999 BKN045 07/03 Q1026 NOSIG LKPD 210800Z 31004KT CAVOK 08/04 Q1028 LKPR 210830Z 32007KT 9999 FEW035 BKN048 09/06 Q1029 NOSIG LKTB 210830Z 34010KT 9999 FEW027 BKN043 09/04 Q1027 NOSIG LLBG 210820Z 29006KT 9999 BKN030 26/18 Q1013 NOSIG LLET 210750Z 03008KT CAVOK 27/19 Q1013 LLHA 210810Z 18011KT 9000 -RA FEW010 SCT033 18/18 Q1014 RETSRA RMK BKN055 LLIB 210750Z 03004KT 330V080 9999 VCTS FEW020CB SCT050 21/16 Q1014 RETS RMK RERA LLOV 210750Z 10004KT 9999 FEW050 24/15 Q1015 LLSD 210750Z 22008KT 9999 FEW025 26/19 Q1013 LMML 210815Z 09006KT 9999 FEW016 23/18 Q1019 NOSIG LOAN 210800Z 33010G20KT 15KM -SHRA FEW030CU BKN050SC LOAV 210800Z 30008KT 20KM -RA SCT020SC BKN040SC 08/04 LOWG 210820Z 22003KT 180V280 9999 FEW040 BKN120 10/04 Q1025 BECMG 02008KT LOWI 210820Z VRB02KT 9999 SCT030 OVC100 10/06 Q1027 NOSIG LOWK 210820Z 09005KT 040V130 7000 -SHRA FEW003 SCT012 BKN060 09/07 Q1025 NOSIG LOWL 210820Z 26003KT 210V290 9999 FEW018 BKN070 09/05 Q1028 NOSIG LOWS 210820Z 31006KT 9999 FEW030 BKN038 09/06 Q1028 NOSIG LOWW 210820Z 33013KT 9999 FEW035 BKN055 10/04 Q1026 TEMPO TL0900 SHRA LOXT 210750Z 29005KT 20KM BKN035SC 09/06 Q1027 RMK BKN LOXZ 210750Z 03009KT 30KM VCSH FEW012ST SCT035SC BKN060SC 08/01 Q1026 LPAZ 210830Z 04016KT 9999 FEW022 19/15 Q1023 LPBJ 210800Z 09006KT 9999 FEW020 FEW025TCU SCT035 15/14 Q1017 LPCS 210830Z 07006KT 040V100 9999 FEW016 BKN025 FEW026TCU 17/14 Q1017 LPFL 210830Z 36006KT 340V040 9999 FEW008 SCT016 19/17 Q1031 LPFR 210830Z 14010KT 9999 FEW020 FEW025CB 21/17 Q1016 LPHR 210830Z 07014KT 040V100 9999 SCT012 20/16 Q1028 LPLA 210800Z /////KT 9999 SCT015 BKN030 20/17 Q1028 LPMA 210830Z 00000KT 9999 FEW016CB SCT070 19/14 Q1015 LPMR 210800Z VRB01KT 9999 FEW020 16/15 Q1018 LPMT 210800Z 03004KT 9999 SCT030 SCT040 15/15 Q1016 LPOV 210800Z 09005KT 040V130 9999 SCT030 20/14 Q1017 LPPD 210830Z 03018KT 360V060 8000 -SHRA FEW008 SCT014 19/17 Q1025 LPPR 210830Z 06004KT 360V110 CAVOK 21/14 Q1019 LPPS 210830Z 36007KT 9999 SCT014 FEW018CB 19/17 Q1015 LPPT 210830Z 06006KT 9999 SCT032 FEW036TCU 16/14 Q1017 LQBK 210830Z 32005KT 9999 FEW015 10/08 Q1025 NOSIG LQMO 210830Z VRB03KT 9999 FEW050 19/04 Q1017 LQSA 210830Z 32005KT 300V360 8000 -RA FEW026 SCT045 BKN055 10/09 Q1023 NOSIG LQTZ 210830Z 30009KT 6000 SCT030 11/09 Q1023 LRAR 210830Z 34006KT 310V010 9999 OVC016 10/07 Q1020 LRBC 210830Z 35010KT 6000 BKN016 13/09 Q1021 R16/19//95 LRBM 210830Z AUTO 28007KT 9000 -SHRA FEW002 BKN008 BKN013 09/09 Q1020 LRBO 210800Z 03008KT 6000 SCT100 16/10 Q1020 WHT WHT LRBS 210830Z 13004KT 080V170 6000 SCT008 15/14 Q1020 R07/29//95 TEMPO BKN010 LRCK 210830Z 36006KT 330V030 7000 NSC 17/11 Q1019 NOSIG LRCL 210830Z 34007KT 5000 -RA BR SCT005 BKN016 OVC031 12/11 Q1019 R07/29//95 LRCT 210800Z 11005KT 3000 -RA BR BKN002 OVC018 13/12 Q1019 AMB AMB LRCV 210830Z VRB02KT 2500 BR OVC002 11/11 Q1018 LRIA 210830Z 34009KT 9999 OVC015 12/08 Q1022 LROD 210830Z 03007KT 360V070 9999 SCT007 09/07 Q1020 LROP 210830Z 12005KT 4000 BR BKN008 15/14 Q1020 R88/29//95 NOSIG LRSB 210830Z 32004KT 7000 SCT015 SCT028 13/10 Q1019 LRSM 210830Z AUTO 00000KT 9999 -RA SCT006 BKN017 09/08 Q1020 LRSV 210830Z 01007KT 5000 BR BKN010 10/08 Q1022 LRTC 210830Z 34011KT 4500 BR BKN010 13/10 Q1019 LRTM 210830Z 06004KT 020V090 5000 BR SCT017 15/12 Q1019 R07/29//95 LRTR 210830Z VRB02KT 6000 BKN012 11/09 Q1020 LRTZ 210800Z 01012KT 8000 BKN100 15/10 Q1018 BLU BLU LSGC 210820Z 06005KT CAVOK 11/02 Q1026 LSGG 210820Z VRB02KT 3500 BR OVC013 10/10 Q1026 NOSIG LSGS 210820Z 10004KT 070V140 CAVOK 09/06 Q1026 LSMA 210820Z AUTO VRB01KT 6000NDV OVC014 09/07 Q1027 RMK LSMD 210820Z AUTO 00000KT 2100NDV BR BKN004 BKN009 OVC011 09/08 Q1028 RMK LSME 210820Z AUTO 04003KT 010V070 1700NDV BR FEW003 OVC009 10/09 Q1027 RMK LSMM 210820Z AUTO VRB01KT 9999NDV NCD 09/05 Q1026 RMK LSMP 210820Z 00000KT 1100 R05/1500D BR OVC002 08/08 Q1027 RMK AMB LSMS 210820Z 10004KT 070V140 CAVOK 09/06 Q1026 RMK BLU+ LSZA 210820Z VRB02KT 9999 FEW060 13/10 Q1020 NOSIG LSZB 210820Z 00000KT 0100 R14/0100N FG VV001 06/06 Q1026 NOSIG LSZC 210820Z 21003KT 7000 OVC013 09/08 Q1027 LSZG 210820Z 09003KT 2100 BR SCT007 09/09 Q1027 BECMG 1500 SCT007 LSZH 210820Z VRB02KT 1400 R14/P2000N R16/P2000N R28/P2000N R34/P2000N BR FEW003 OVC005 09/08 Q1028 BECMG 2500 BKN010 LSZL 210820Z AUTO VRB01KT 9999NDV NCD 11/08 Q1020 RMK LSZR 210820Z 09003KT 4000 BR OVC010 10/09 Q1027 NOSIG RMK A LSZS 210820Z VRB02KT CAVOK M00/M03 Q1025 RMK F LTAB 210650Z VRB03KT 9999 -TSRA FEW025CB BKN035 13/11 Q1016 BECMG TL0750 NSW RMK RWY06 20004KT LTAC 210820Z 22006KT 6000 SHRA SCT005 BKN030 11/10 Q1016 BECMG TL0920 NSW LTAD 210816Z 04004KT 350V070 4000 SHRA FEW020CB BKN030 BKN080 12/11 Q1017 RESHRA BECMG TL0916 9999 NSW RMK RWY29 17006KT LTAE 210750Z 21006KT 9999 -SHRA FEW030CB BKN035 12/11 Q1016 NOSIG RMK RWY21 21004KT LTAF 210820Z 04010KT 9999 SCT035 BKN100 23/15 Q1013 NOSIG LTAG 210820Z 02013KT 9999 BKN030 BKN090 22/15 Q1013 TEMPO FM0900 -TSRA LTAI 210820Z 07006KT 040V110 9999 SCT030 25/17 Q1011 NOSIG RMK RWY18C 09006KT 030V140 RWY36R 08005KT 030V120 RWY18L VRB05KT LTAJ 210820Z 12003KT 080V150 9999 SCT025 BKN080 16/13 Q1017 TEMPO -TSRA LTAL 210750Z VRB02KT 4600 BR FEW012 SCT038 BKN080 10/10 Q1016 LTAN 210750Z 34020KT 9999 FEW030CB BKN035 14/10 Q1016 TEMPO -TSRA RMK RWY19 35019KT LTAP 210820Z 11003KT 070V150 9999 FEW009 SCT040 BKN090 15/12 Q1014 NOSIG RMK RWY23 09004KT 060V130 LTAR 210837Z 15009KT 9999 -RA FEW010 BKN030 BKN090 10/08 Q1019 RMK RWY19 12010KT LTAS 210818Z 18004KT 8000 FEW025CB SCT030 BKN100 18/16 Q1015 RMK RWY18 12005KT 090V160 LTAT 210820Z 16004KT 9999 -SHRA FEW020 BKN035 BKN090 13/12 Q1019 NOSIG RMK RWY03 17004KT LTAU 210820Z 09005KT 050V170 9999 SCT040 BKN100 17/08 Q1016 NOSIG LTAY 210750Z 29005KT 250V340 9000 SCT035 BKN100 15/10 Q1017 LTAZ 210820Z 10006KT 070V140 9999 SCT040 19/09 Q1015 LTBA 210820Z 34011KT 320V020 9999 FEW021TCU BKN032 18/13 Q1017 NOSIG RMK RWY17L 36009KT 320V020 RWY05 33010G20KT 300V360 RWY23 02008KT 340V050 LTBF 210750Z VRB03KT 9999 FEW015 SCT035 17/14 Q1018 NOSIG RMK RWY18 36005KT 330V040 LTBG 210750Z 01013KT 9999 SCT035 BKN100 17/13 Q1017 NOSIG RMK RWY18 01013KT LTBH 210750Z 05008KT CAVOK 17/13 Q1018 LTBI 210750Z 27008KT 240V300 9999 SCT030 BKN090 13/10 Q1017 NOSIG RMK RWY09 28011KT LTBJ 210820Z 01014KT 9999 FEW030 20/10 Q1015 NOSIG RMK RWY16 01014KT LTBL 210750Z 01009KT 320V050 9999 FEW040 SCT200 20/10 Q1016 NOSIG RMK RWY17 03008KT 360V070 LTBQ 210750Z VRB03KT 6000 FEW015 BKN030 18/15 Q1017 NOSIG RMK RWY09 VRB02KT LTBR 210820Z 22003KT 6000 BKN027 14/14 Q1017 NOSIG LTBS 210820Z 01004KT 330V040 9999 FEW030 24/12 Q1012 BECMG TL0900 23012KT LTBU 210820Z 33011KT 8000 NSC 18/12 Q1018 LTBY 210750Z 30011KT 7000 SCT035 BKN100 13/10 Q1017 LTBZ 210750Z 35008KT 9999 BKN020 BKN090 11/09 Q1017 LTCA 210750Z 08009KT 050V120 9999 FEW017 SCT035 BKN100 17/10 Q1018 NOSIG RMK RWY07 09008KT 060V130 LTCB 210750Z 01003KT 320V060 9999 SCT035 BKN090 21/16 Q1014 LTCC 210820Z 05004KT 9999 FEW030CB BKN035 15/14 Q1018 NOSIG RMK RWY16 VRB02KT LTCD 210750Z 04003KT 350V080 9999 SCT040 BKN100 15/10 Q1018 NOSIG LTCE 210820Z 34004KT 260V020 9999 FEW030TCU SCT035 BKN080 14/05 Q1021 NOSIG RMK RWY08R 07004KT 350V140 RWY26R 08003KT 010V180 RWY08L VRB02KT LTCF 210750Z 23003KT 160V280 9999 BKN035 13/06 Q1021 LTCG 210820Z 32004KT 270V360 9999 BKN025 22/17 Q1014 NOSIG LTCI 210750Z 29004KT 240V330 9999 SCT035 BKN070 16/06 Q1021 NOSIG RMK RWY21 23004KT 160V280 LTCJ 210820Z 04005KT 010V070 5000 SHRA FEW025CB BKN030 BKN080 16/14 Q1018 LTCK 210750Z 00000KT 7000 -SHRA FEW004 BKN035 OVC070 11/10 Q1021 RMK RWY11 15006KT LTCM 210750Z 32008KT 9999 -SHRA SCT009 BKN025 18/15 Q1015 LTCN 210750Z 00000KT 8000 FEW020 SCT030 BKN090 16/13 Q1016 TEMPO 4000 BR LTCO 210750Z VRB04KT 9999 SCT040 BKN090 14/06 Q1022 LTCP 210750Z 09014KT 9999 BKN035 BKN090 17/12 Q1017 LTCR 210750Z 05009KT 6000 -SHRA FEW025CB BKN030 17/15 Q1016 LTCS 210820Z 10009KT 4000 -SHRA BR SCT003 BKN030 BKN090 14/14 Q1019 RMK RWY22 13010KT LTCT 210750Z 34003KT 260V070 9999 SCT040 20/05 Q1018 LTCU 210750Z 28003KT 240V320 9999 SCT035 BKN100 14/11 Q1020 LTCV 210750Z 10007KT 8000 -SHRA FEW025CB BKN035 16/15 Q1020 LTCW 210750Z VRB01KT 9999 SCT035 BKN090 12/06 Q1023 LTDA 210750Z 04009KT 9999 SCT030 BKN080 19/16 Q1015 RETSRA NOSIG LTFC 210820Z 01007KT 330V060 9999 SCT035 17/08 Q1016 LTFD 210750Z 11010KT 9999 FEW035 19/11 Q1017 LTFE 210820Z VRB05KT 8000 NSC 23/11 Q1013 NOSIG LTFG 210832Z 19004KT 160V250 9999 -TSRA FEW020CB BKN030 21/18 Q1012 RETS RMK RWY26 25003KT 200V300 LTFH 210750Z 28005KT 260V320 9999 FEW036 BKN100 21/13 Q1014 NOSIG LTFJ 210820Z 35005KT 310V030 8000 -SHRA FEW015 SCT035 BKN090 16/13 Q1017 NOSIG LUKK 210830Z 01010KT 340V040 7000 SCT015 BKN032 14/10 Q1020 R08/D NOSIG LWSK 210830Z 31002KT 9999 OVC035 10/09 Q1021 NOSIG LXGB 210750Z 27002KT 9999 VCSH SCT016 BKN030 18/17 Q1016 NOSIG LYBE 210830Z 32014KT 9999 SCT040 12/04 Q1022 NOSIG LYBT 210830Z 29015KT 220V320 9999 BKN030 11/03 Q1022 NOSIG LYKV 210830Z VRB05KT 9999 FEW015 SCT028 12/08 Q1022 NOSIG LYNI 210830Z 32004KT 270V020 6000 -RA FEW010 BKN020 12/09 Q1021 NOSIG LYPG 210830Z 01016KT 280V050 9999 FEW040 SCT050 BKN090 20/04 Q1018 NOSIG LYTV 210830Z VRB09KT CAVOK 20/05 Q1017 NOSIG LYUZ 210800Z 31009KT 270V340 9999 FEW020 08/05 Q1021 LYVR 210830Z 27005KT 220V300 9999 BKN023 12/07 Q1021 NOSIG LZIB 210830Z 35013KT 320V020 9999 FEW030 SCT084 10/03 Q1026 NOSIG LZKZ 210830Z 36021KT 9999 FEW018 SCT050 09/05 Q1022 NOSIG LZPP 210830Z 36017KT 9999 BKN039 11/04 Q1025 LZSL 210830Z 01011KT 340V040 CAVOK 12/02 Q1023 LZTT 210834Z 06013KT 9999 BKN027 05/02 Q1023 LZZI 210830Z 04007KT 010V070 9999 BKN021 08/04 Q1025 MDLR 210300Z 00000KT 9999 FEW016 23/23 Q1013 MDPC 210800Z VRB03KT 9999 SCT016 SCT070 25/23 Q1011 RERA MDPP 210600Z 00000KT 9999 SCT016 24/22 Q1012 MDSD 210800Z 01005KT 9999 FEW018 22/21 Q1011 NOSIG MDST 210800Z 00000KT 9999 FEW016 20/20 Q1012 NOSIG MGGT 210800Z 01010KT 9999 SCT004 BKN012 17/17 Q1024 A3024 MGHT 210800Z 00000KT 9999 OVC015 16/15 MGMM 210800Z 00000KT CAVOK 23/23 Q1014 A2994 MGPB 210800Z 00000KT 9999 -RA SCT016 OVC080 24/24 Q1011 A2985 MHCA 210800Z 08002KT 9999 FEW027 SCT070 22/21 Q1014 HZ MHLC 210600Z 00000KT 9999 FEW026 BKN200 24/23 Q1012 A2989 NOSIG MHLM 210800Z 02003KT 9999 FEW025 SCT080 26/24 Q1011 A2986 NOSIG MHRO 210600Z 14012KT 9999 SCT022 28/24 Q1013 A2992 NOSIG MHTG 210800Z 35004KT 9999 SCT028 BKN080 19/18 Q1017 A3006 NOSIG MKJP 210800Z 33007KT 9999 FEW024 26/22 Q1010 MKJS 210800Z 13003KT 9999 FEW022 26/23 Q1011 MMAA 210652Z 05006KT 5SM -RA BKN015CB OVC090 24/24 A2982 RMK 60405 8/96/ MMAN 210336Z 34006KT 3SM -RA BR OVC010 19/18 A3024 RMK 8/5// -RAB25 MMCP 210549Z 00000KT 7SM FEW020 BKN040 24/23 A2996 RMK 8/800 MMCU 210247Z 03003KT 7SM -DZ SCT006 OVC009 14/14 A3034 RMK SLP206 52007 927 8/5// MMCZ 210838Z RTD 00000KT 7SM FEW080 24/23 A2992 RMK 8/030 SC MMGL 210547Z 11004KT 8SM BKN020 OVC100 18/17 A3018 RMK SLP098 52007 907 60015 8/57/ -RAE29 OCNL DROPS MMHO 210545Z 00000KT 8SM SKC 24/18 A2990 RMK SLP123 52012 954 HZY MMLM 210347Z 30004KT 10SM SCT150 26/19 A2985 RMK 8/030 MMMD 210745Z 05003KT 7SM SCT100 24/23 A2994 RMK 8/030 CI MMML 210449Z 31003KT 10SM SKC 24/06 A2986 MMMM 210645Z 00000KT 7SM BKN025 OVC090 16/16 A3024 RMK 8/46/ CB/S HZY BINOVC MMMT 210452Z 00000KT 8SM OVC080 25/00 A2993 RMK 8/05/ MMMX 210745Z 30004KT 6SM SCT020 OVC080 14/12 A3034 NOSIG RMK 8/57/ HZY LWR SC BINOVC MMMY 210621Z 33008KT 4SM -RA BKN010 OVC015 18/18 A3019 RMK 8/5// HZ DZE18B-RA MMMZ 210545Z 00000KT 10SM BKN090 OVC230 26/24 A2984 RMK SLP101 52010 955 8/077 HZY MMPN 210453Z 21006KT 3SM BR SCT005 OVC010 18/18 A3017 RMK 8/8// OCNL DROPS BINOVC AC MMPR 210345Z 12004KT 12SM SCT020 BKN070 OVC090 27/27 A2984 RMK 8/47/ LTGIC DSNT N MMQT 210831Z RTD 00000KT 5SM BKN015 OVC120 16/12 A3031 RMK 8/57/ MMSD 210445Z 25005KT 12SM SKC 24/20 A2988 MMSL 210445Z 00000KT 7SM SKC 23/21 A2992 RMK AC MMSP 210548Z 08008KT 5SM SCT010 OVC015 15/13 A3032 RMK SLP157 52013 909 8/5// LWR ST MMTC 210345Z 34004KT 8SM BKN012 OVC020 21/17 A3024 RMK 8/5// MMTG 210406Z RTD 10004KT 6SM TSRA SCT020CB BKN080 BKN300 22/21 A3002 RMK 60205 8/963 MMTJ 210445Z 00000KT 8SM SKC 19/10 A2996 MMTM 210345Z E35016KT 8SM SCT010 OVC015 24/22 A3007 RMK 8/5// MMTO 210746Z 00000KT 7SM SCT015 BKN070 12/09 A3036 RMK 8/570 MMTP 210801Z RTD 00000KT 10SM BKN025 OVC200 23/23 A2983 RMK 8/703 MMUN 210545Z 00000KT 7SM SCT015 BKN080 26/24 A2997 RMK SLP148 58010 957 8/570 MMZC 210654Z 09010KT 8SM BKN050 14/12 A3031 RMK 8/400 MNMG 210700Z 00000KT 9999 FEW020 SCT300 23/23 Q1009 A2981 NOSIG MPMG 210300Z 30003KT 9999 FEW018 SCT090 26/25 Q1010 NOSIG MPPA 210300Z 35004KT 9999 FEW018 26/24 Q1010 MPTO 210800Z VRB02KT 9999 FEW018CB 25/24 Q1007 NOSIG MRLB 210600Z 13005KT CAVOK 24/21 A2980 NOSIG MROC 210800Z 03006KT 010V070 CAVOK 20/17 A2994 NOSIG MSLP 210750Z VRB01KT 9999 FEW020 FEW037CB 23/23 Q1009 A2981 NOSIG RMK CB LTG E SE MSSS 210550Z 35003KT CAVOK 22/21 Q1014 A2996 MUCC 210750Z VRB02KT 9000 FEW020 22/21 Q1014 MUCF 210759Z AUTO 06006KT 22/22 Q1015 MUCL 210805Z AUTO 10003KT 26/24 Q1014 MUCM 210750Z 02004KT 9000 SKC 22/21 Q1014 MUCU 210750Z 35007KT 8000 FEW020 24/19 Q1012 MUGM 210756Z 34004KT 9999 CLR 24/22 A2990 RMK SLP124 T02390222 MUHA 210755Z 00000KT 9000 FEW030 20/20 Q1015 MUHG 210750Z 09004KT CAVOK 21/20 Q1013 MUSC 210750Z VRB01KT 8000 FEW020 19/18 Q1015 MUVR 210750Z 16001KT 9000 NSC 20/20 Q1015 MWCR 210300Z 07008KT 9999 FEW018 27/25 Q1014 MYNN 210800Z VRB01KT 9999 FEW020 23/22 A2997 NCAT 210800Z AUTO 13003KT //// ////// Q1009 NCMG 210800Z AUTO 02004KT //// ////// 20/15 Q1012 NCMH 210800Z AUTO 13004KT //// ////// 28/23 Q1011 NCMK 210800Z AUTO 02005KT //// ////// 22/17 Q1014 NCMR 210800Z AUTO 15005KT //// ////// 23/19 Q1015 NCPK 210800Z AUTO 06001KT //// ////// 26/23 Q1010 NCPY 210800Z AUTO 09008KT //// ////// 27/23 Q1011 NCRG 210800Z 13007KT 9999 BKN020 21/17 Q1017 RMK RESHRA NCRK 210800Z AUTO 10003KT //// ////// 28/22 Q1011 NFFN 210800Z 11007KT 9999 SCT028 SCT050 BKN130 25/20 Q1012 NOSIG NFNA 210800Z 11009KT 9999 FEW020 SCT048 OVC110 25/20 Q1014 NFTF 210700Z 12010KT 9999 FEW016 OVC100 22/14 Q1018 RMK DRY AIR 59% NFTL 210600Z 12012KT 9999 SCT017 BKN100 24/18 Q1015 NFTV 210600Z 13010KT 9999 SCT017 BKN290 24/19 Q1015 NGFU 210800Z VRB02KT 9999 -SHRA FEW016CB SCT030 BKN100 29/25 Q1 010 NGTA 210800Z VRB01KT 9999 FEW020 SCT300 27/23 Q1008 NIUE 210800Z AUTO 12014KT //// // ///////// 21/19 Q1016 NSTU 210750Z 14017KT 10SM SCT016 BKN040 OVC100 27/24 A2988 RMK SLP119 T02670239 NTAA 210830Z 19018KT 9999 FEW020 SCT083 BKN220 23/20 Q1015 WS ALL RWY NOSIG NVVA 210600Z 7008KT 9999 BKN020 OVC040 26/21 Q1012 RMK RESH NVVV 210400Z 09012KT 9999 BKN018 OVC110 25/23 Q1011 RMK SPECI CEASED NVVW 210400Z 09015G26KT 9999 BKN020 OVC040 25/23 Q1010 RMK RESH NWWW 210830Z AUTO 04004KT 360V090 CAVOK 26/18 Q1014 NOSIG NZAA 210830Z AUTO 23007KT 9999 FEW014/// 15/13 Q1026 NOSIG NZCH 210830Z AUTO 09008KT 9999 NCD 14/12 Q1024 NOSIG NZCM 210555Z 07013G20KT 9999 BKN055 BKN200 M19/M26 A2911 RMK SLP865 NZSP 210550Z 06008KT 2400 IC BR FEW015 SCT030 BKN100 M46/ A2825 RMK CLN AIR 05008KT ALL WNDS GRID SDG/HDG NZWN 210830Z AUTO 02010KT 9999 NCD 14/11 Q1026 NOSIG OAIX 210758Z 00000KT 9999 FEW120 21/M04 A3021 RMK AO2A SLP163 T02051040 $ OAJL 210755Z 07002KT 9999 FEW150 27/01 A3008 RMK AO2A SLP159 T02700006 OAKB 210750Z VRB02KT 9999 FEW100 20/M05 Q1025 NOSIG RMK A3027 BLU BLU OAKN 210755Z 16003KT 9999 CLR 23/M09 A3020 RMK AO2A SLP194 Q1022 PA3047 DA4707 OAMS 210550Z 08007KT 9000 SKC 18/03 Q1022 BLU+BLU+ OBBI 210830Z 27007KT 250V310 9999 FEW030 31/22 Q1015 NOSIG OEAB 210800Z 18006KT 9999 FEW018 SCT020 23/10 Q1026 NOSIG OEAH 210800Z 20006KT 4000 DU NSC 32/16 Q1016 NOSIG OEAO 210800Z 24002KT CAVOK 29/10 Q1017 OEAR 210800Z 00000KT CAVOK 31/20 Q1014 OEBA 210800Z 33005KT 9999 SCT030 25/15 Q1022 NOSIG OEBH 210800Z 20005KT CAVOK 27/19 Q1019 NOSIG OEDF 210800Z 24003KT CAVOK 32/16 Q1015 NOSIG OEDM 210800Z 06012KT 9999 SCT040 SCT080 24/17 Q1019 OEDR 210800Z 24008KT 9999 FEW040 32/17 Q1014 NOSIG OEGN 210800Z 15010KT 120V180 9999 FEW030 35/23 Q1013 NOSIG OEGS 210809Z 19017KT 5000 BLDU BKN030 29/21 Q1016 OEGT 210800Z 31010KT 9999 FEW040 24/13 Q1014 NOSIG OEHL 210800Z 22012KT CAVOK 26/17 Q1018 OEJN 210800Z 00000KT 9999 FEW040 34/18 Q1013 NOSIG OEKJ 210800Z 08007KT CAVOK 29/18 Q1020 OEKM 210700Z 18006KT 9999 SCT022 20/14 Q1026 NOSIG OEMA 210800Z 22006KT 9999 FEW045 30/11 Q1017 NOSIG OENG 210800Z 14008KT 9999 FEW030 26/16 Q1020 NOSIG OEPA 210800Z 21020KT 1000 BLDU NSC 30/21 Q1016 NOSIG OERF 210800Z 21017KT 2500 BLDU NSC 31/12 Q1013 OERK 210800Z 04003KT CAVOK 28/13 Q1019 NOSIG OERR 210800Z 28010KT 9999 FEW030 29/19 Q1012 NOSIG OESH 210800Z 14004KT 9999 FEW040 34/14 Q1016 NOSIG OESK 210800Z 27010KT CAVOK 28/07 Q1017 OETB 210800Z 00000KT CAVOK 26/08 Q1016 NOSIG OETF 210800Z 00000KT 9999 FEW040 SCT200 25/11 Q1022 NOSIG OETR 210800Z 29009KT CAVOK 23/14 Q1015 OEWD 210800Z 09004KT CAVOK 32/16 Q1016 NOSIG OEWJ 210800Z 25006KT 9999 FEW030 30/23 Q1013 NOSIG OEYN 210800Z 24003KT 9999 SCT040 32/22 Q1011 NOSIG OIAA 210800Z 19010KT 8000 NSC 34/18 Q1014 OIAG 210800Z 21012KT CAVOK 33/19 Q1015 OIAH 210800Z 15004KT 9999 FEW040 SCT200 28/09 Q1020 OIAM 210800Z 23006KT 6000 NSC 31/23 Q1014 OIAW 210830Z 14004KT 5000 HZ NSC 33/19 Q1014 OIBA 210800Z 18008KT CAVOK 32/23 Q1015 OIBB 210800Z 30004KT 7000 NSC 31/21 Q1015 A2998 OIBJ 210800Z 20010KT CAVOK 30/14 Q1020 OIBK 210830Z 12008KT 9999 FEW035 33/21 Q1015 OIBL 210800Z 12008KT 7000 NSC 31/24 Q1015 OIBP 210830Z 20010KT 9999 FEW040CB 35/18 Q1014 A2996 OIBQ 210800Z 11004KT 9999 SCT040 BKN100 31/25 Q1015 OIBS 210800Z 14012KT CAVOK 33/20 Q1015 OIBV 210800Z 15012KT CAVOK 33/21 Q1015 OICC 210830Z 00000KT 9000 FEW090 SCT190 22/07 Q1022 A3019 NOSIG OICI 210830Z 14008KT 9999 FEW045 SCT090 24/08 Q1023 A3021 OICK 210700Z 11004KT 9999 FEW040TCU SCT045 BKN090 18/10 Q1023 OICM 210800Z 13008KT CAVOK 32/08 Q1013 OICS 210800Z 22002KT 6000 SCT035 17/10 Q1023 OIFM 210830Z 27004KT 6000 NSC 21/05 Q1024 A3025 OIFS 210800Z 13006KT 9999 SCT040 18/01 Q1027 OIGG 210830Z 00000KT 9999 FEW020 SCT080 23/16 Q1016 OIHH 210800Z 01004KT 9999 FEW040 FEW040TCU SCT190 17/09 Q1024 OIHR 210830Z 36008KT 6000 SCT035TCU FEW090 18/09 Q1025 OIIE 210800Z VRB03KT 9999 FEW045TCU FEW100 SCT200 24/06 Q1020 OIII 210830Z 21006KT 8000 FEW035TCU FEW040 SCT090 22/03 Q1021 A3016 NOSIG OIIK 210800Z 21004KT 9999 BKN035 20/09 Q1022 OIIP 210800Z 35006KT 9999 FEW040 SCT100 20/02 Q1021 OIKB 210830Z 18010KT CAVOK 32/25 Q1015 A3000 OIKK 210830Z 23010KT 9999 SCT040 24/M05 Q1025 A3027 OIKQ 210800Z 11010KT 6000 FEW030 33/23 Q1015 OIMB 210800Z 31012KT 9999 FEW040 BKN100 23/M03 Q1023 OIMC 210800Z 15020KT 6000 NSC 28/01 Q1017 OIMD 210800Z 05004KT 9999 FEW035 SCT190 23/M02 Q1019 OIMM 210830Z 36006KT CAVOK 23/M05 Q1020 A3013 OIMN 210800Z 30002KT CAVOK 19/00 Q1020 OIMQ 210800Z 15004KT CAVOK 22/M04 Q1022 OIMT 210800Z AUTO 17002KT //// // ////// 26/M00 Q1019 OINE 210800Z 22004KT CAVOK 25/09 Q1015 OING 210800Z 00000KT 9999 FEW045 26/08 Q1017 OINN 210800Z 03004KT 9999 FEW025TCU SCT090 22/13 Q1015 OINR 210800Z 05004KT 9999 FEW030TCU SCT100 21/17 Q1015 OINZ 210800Z 03004KT CAVOK 23/12 Q1015 OISF 210800Z 17004KT 9999 FEW040 SCT200 25/06 Q1021 OISL 210800Z 11006KT CAVOK 29/10 Q1019 OISR 210800Z 06004KT CAVOK 31/15 Q1018 OISS 210830Z 13004KT 9999 FEW040TCU BKN200 24/02 Q1023 A3023 OISY 210800Z 15006KT 9999 SCT040 21/M01 Q1026 OITL 210830Z 18012KT 9999 FEW040TCU FEW100 22/06 Q1019 OITM 210800Z 18006KT 9999 FEW035TCU SCT190 21/06 Q1021 OITP 210800Z 01002KT CAVOK 23/13 Q1016 OITR 210800Z 14004KT 9999 FEW035TCU SCT040 BKN170 19/07 Q1020 OITT 210830Z 27004KT 9999 FEW030 SCT200 20/06 Q1021 A3017 OITZ 210800Z 24004KT 9999 SCT035 19/06 Q1023 OIYY 210800Z 12002KT 9999 FEW040 26/00 Q1023 OIZB 210800Z 02004KT CAVOK 30/M01 Q1018 OIZH 210830Z 24012KT 9999 SCT040TCU 27/01 Q1022 A3021 OIZI 210800Z 27008KT CAVOK 33/08 Q1018 OIZJ 210800Z 10004KT 4000 HZ FEW015 29/25 Q1015 OJAI 210800Z 27008KT 5000 HZ SCT030 22/14 Q1016 NOSIG OJAM 210800Z 32006KT 5000 HZ BKN025 21/13 Q1016 NOSIG OJAQ 210800Z 36005KT CAVOK 25/18 Q1012 NOSIG OKBK 210800Z 22010KT 3500 -DU NSC 33/14 Q1015 NOSIG OLBA 210800Z 16015KT 8000 FEW020CB BKN030 25/14 Q1012 NOSIG OMAA 210800Z 18007KT 150V230 8000 NSC 36/11 Q1015 BECMG 25008KT OMAD 210800Z 21006KT 170V270 CAVOK 35/12 Q1015 TEMPO VRB02KT OMAL 210800Z 18013KT 150V210 9000 NSC 33/12 Q1017 NOSIG OMDB 210800Z 21006KT 130V270 CAVOK 35/11 Q1015 BECMG 32013KT OMDW 210800Z 21010KT CAVOK 36/11 Q1016 NOSIG OMFJ 210800Z 10009KT 8000 FEW030 31/22 Q1016 A3000 OMRK 210800Z 25002KT CAVOK 36/12 Q1015 A3000 OMSJ 210800Z 21005KT 160V250 CAVOK 35/10 Q1015 OODQ 210750Z 06007KT 030V120 9999 FEW030 28/23 Q1016 NOSIG RMK RH72? 02 OOMS 210750Z 03011KT CAVOK 32/23 Q1015 NOSIG OOSA 210750Z 18006KT 150V250 9000 NSC 29/20 Q1016 NOSIG OOSH 210750Z AUTO 06008KT //// 32/23 Q1015 OPIS 210825Z 29004KT 5000 HZ NSC 27/06 Q1017 RH25 OPKC 210825Z 04004KT 6000 NSC 35/05 Q1015 NOSIG OPLA 210825Z 32006KT 5000 HZ NSC 30/15 Q1016 RMK QFE990 RMK A30.01 OPMT 210800Z 18006KT 4000 HZ NSC 31/11 Q1015 NOSIG OPNH 210800Z 04506KT 6000 NSC 34/10 Q1015 NOSIG OPPS 210800Z 05004KT 5000 HZ SKC 26/12 Q1018 OPRN 210800Z 27006KT 9999 FEW040 28/08 Q1018 NOSIG RMK A3007 OPSK 210800Z 00000KT 4000 HZ NSC 34/19 QNH 1014 NOSIG OPST 210800Z 23007KT 5000 HZ NSC 29/10 Q1017 NOSIG RH30 ORBD 210819Z 07011KT 9999 TS FEW035 SCT065CB BKN110 OVC170 24/14 A2990 RMK OCNL LTGICCCCG N-E AND NW TS N-E AND NW MOV ENE WND DATA ALSTG ESTMD ORBI 210800Z 11014KT CAVOK 29/15 Q1012 NOSIG ORER 210800Z 31011KT 7000 FEW035 BKN080 23/13 Q1018 NOSIG ORMM 210800Z 19010KT 8000 NSC 34/15 Q1014 NOSIG ORNI 210800Z 15010KT 7000 NSC 30/16 Q1012 NOSIG ORSU 210800Z 11009KT 9999 FEW045 SCT080 25/10 Q1020 OSDI 210800Z 32002KT 9999 SCT030 BKN100 20/13 Q1017 OSKL 210800Z 07010KT 3000 BR SCT026 OVC100 17/14 Q1018 OSLK 210800Z 21005KT 9999 FEW026 BKN100 26/15 Q1012 OTBD 210830Z 13007KT 070V210 9999 FEW030 FEW035CB 32/24 Q1014 NOSIG OTBH 210756Z 19005KT 6000 HZ FEW060 32/24 A2999 RMK AO2A SLP157 T03220242 $ OTHH 210800Z 16007KT 130V190 9999 FEW035 32/23 Q1015 NOSIG PAAD 210835Z AUTO 08018KT 4SM BR OVC003 M06/M07 A2989 RMK AO2 T10631070 PAAK 210756Z AUTO 30012KT 10SM OVC033 06/03 A2954 RMK AO2 RAE06 SLP006 P0000 T00560028 PAAQ 210753Z AUTO 36007KT 10SM OVC070 09/01 A2948 RMK AO2 SLP984 T00890006 TSNO PABA 210828Z AUTO 09015KT 9SM OVC007 M06/M06 A2993 RMK AO2 CIG 005V010 FZRANO TSNO PABE 210753Z 02012KT 10SM CLR 02/01 A2932 RMK AO2 SLP929 T00170006 $ PABI 210753Z AUTO 12011KT 10SM CLR 01/M01 A2962 PABL 210836Z AUTO 16003KT 3/4SM BR OVC002 M07/M07 A2968 RMK AO2 FZRANO PABR 210753Z AUTO 13011KT 10SM OVC005 M06/M06 A2991 PABT 210653Z 00000KT 10SM OVC050 00/M03 A2971 RMK AO2 SLP075 T00001033 PNO $ PABV 210656Z AUTO 07013KT 10SM OVC085 11/01 A2946 RMK AO2 SLP983 T01060006 PACD 210820Z AUTO 32009KT 8SM -RA BKN022 OVC030 05/04 A2911 PACM 210756Z AUTO 00000KT 10SM OVC005 03/02 A2951 RMK AO2 SLP989 T00280022 PACV 210753Z 10015G28KT 5SM RA OVC035 08/05 A2962 RMK AO2 PK WND 11034/0719 SLP029 P0006 T00780050 PACZ 210805Z AUTO 06020KT 10SM SCT003 03/02 A2942 RMK AO2 SLP969 PADE 210822Z AUTO 00000KT 5SM BR OVC004 01/01 A2965 RMK AO2 T00110006 TSNO $ PADK 210756Z AUTO 32012G22KT 10SM CLR 07/03 A2962 PADL 210756Z AUTO 01022G27KT 10SM OVC042 06/01 A2907 PADM 210802Z AUTO 04020G23KT 10SM CLR 02/00 A2943 RMK AO2 SLP975 T00220000 400220022 FZRANO PADQ 210827Z AUTO 11019G28KT 4SM -RA BR FEW009 BKN026 OVC043 10/08 A2890 PADU 210821Z AUTO 30010KT 10SM FEW028 SCT034 BKN055 06/02 A2930 RMK AO2 PAED 210756Z AUTO 00000KT 10SM OVC060 05/05 A2944 PAEG 210821Z AUTO 02003KT 10SM SCT001 M04/M05 A2971 RMK AO2 T10391050 TSNO $ PAEH 210815Z AUTO 01014KT 10SM -RA OVC029 07/03 A2917 RMK AO2 SLP880 $ PAEI 210829Z AUTO 00000KT 1/2SM R14/2400V4000FT FZFG FEW000 M03/M04 A2961 RMK AO2 SLPNO VISNO RWY32 $ PAEM 210756Z AUTO 02008KT 10SM CLR 02/01 A2951 RMK AO2 SLP052 T00170011 400561006 FZRANO PAEN 210753Z AUTO 03017G26KT 10SM BKN049 BKN070 07/04 A2937 PAFA 210753Z 04006KT 10SM FEW050 SCT090 M02/M02 A2963 PAFB 210758Z AUTO 00000KT 10SM CLR M02/M02 A2965 PAFE 210656Z AUTO 10008KT 10SM OVC030 09/08 A3016 RMK AO2 RAE07 SLP226 P0000 T00940078 PAFM 210756Z AUTO 03009KT 10SM BKN080 M02/M06 A2972 RMK AO2 SLP078 T10171061 400111039 FZRANO PAFR 210818Z AUTO 17003KT 10SM BKN050 OVC070 05/03 A2941 RMK AO2 SLPNO PAFS 210801Z AUTO 06009KT 10SM BKN008 00/00 A2947 PAGA 210756Z AUTO 02006KT 10SM OVC026 M01/M01 A2960 PAGH 210756Z AUTO 00000KT 10SM OVC090 M03/M04 A2970 RMK AO2 SLP064 T10331044 FZRANO PAGK 210753Z AUTO 07006KT 10SM OVC100 05/M03 A2965 RMK AO2 SLP054 T00501033 TSNO PAGM 210756Z AUTO 01020KT 10SM OVC014 04/02 A2969 RMK AO2 SLP061 T00390022 PNO $ PAGN 210756Z AUTO 07003KT 10SM OVC035 09/08 A3011 RMK AO2 SLP186 T00890078 PAGS 210756Z AUTO 14010KT 10SM OVC036 11/07 A3006 RMK AO2 SLP179 T01060067 PAGY 210753Z AUTO 20012G23KT 10SM OVC046 10/06 A3002 RMK AO2 SLP165 T01000061 TSNO PAHL 210756Z AUTO 05007KT 10SM CLR M01/M02 A2964 RMK AO2 SLP047 T10061022 FZRANO PAHN 210754Z AUTO 10009KT 10SM OVC008 09/07 A3003 RMK AO2 RAE0658 SLP172 P0000 T00890072 TSNO PAHO 210753Z AUTO 07012KT 7SM -RA FEW026 BKN047 OVC060 09/06 A2923 RMK AO2 SLP897 P0003 T00890056 TSNO PAHP 210756Z AUTO 03007KT 10SM CLR 03/02 A2946 RMK AO2 SLP014 T00280017 PAHY 210756Z AUTO 14009KT 10SM CLR 11/09 A3017 RMK AO2 SLP318 T01060089 401170078 PNO $ PAIG 210756Z AUTO 03025G33KT 10SM OVC033 09/06 A2906 RMK AO2 PK WND 03033/0756 SLP850 T00890056 $ PAII 210756Z AUTO 03014G23KT 10SM OVC080 07/03 A2890 RMK AO2 PK WND 03026/0731 SLP790 T00670033 400781006 PAIK 210756Z AUTO 02004KT 10SM BKN070 M06/M07 A2971 RMK AO2 SLP067 T10611067 FZRANO PAIL 210753Z AUTO 07012G25KT 10SM BKN060 OVC100 09/03 A2912 RMK AO2 PK WND 07028/0715 SLP864 T00890033 TSNO PAIM 210755Z AUTO 10008KT 10SM CLR 00/M02 A2964 PAIN 210756Z AUTO 00000KT 10SM CLR 02/M02 A2958 RMK AO2 SLP043 T00171022 FZRANO PAIW 210756Z AUTO 06006KT 10SM OVC022 04/02 A2967 RMK AO2 SLP047 T00390017 PAJC 210757Z AUTO 24012KT 10SM -RA FEW038 SCT050 OVC060 08/04 A2887 RMK AO2 SLP775 P0000 T00780044 400780028 PAJN 210753Z 12013KT 10SM SCT027 BKN037 OVC055 10/07 A3008 PAJZ 210756Z AUTO 03014G22KT 9SM BKN055 OVC070 06/00 A2918 RMK AO2 PK WND 02026/0708 SLP890 T00560000 400781011 $ PAKF 210756Z AUTO 31015G21KT 5SM -RA OVC028 06/02 A2916 RMK AO2 PK WND 31027/0734 SLP875 T00560017 PNO $ PAKH 210828Z AUTO 11020G30KT 3SM -RA BR OVC007 10/09 A2870 RMK AO2 PK WND 12031/0809 P0004 $ PAKI 210756Z AUTO 03017KT 10SM CLR 03/02 A2929 RMK AO2 SLP918 T00280017 PNO $ PAKK 210756Z AUTO 35010G16KT 10SM CLR 00/M02 A2956 RMK AO2 SLP023 T00001022 FZRANO PAKN 210754Z 03020G31KT 10SM SCT065 08/03 A2892 PAKP 210836Z AUTO 36004KT 3SM BR BKN001 M13/M15 A2968 RMK AO2 FZRANO PAKT 210753Z AUTO 10006KT 3SM BR SCT002 OVC009 09/08 A3021 PAKV 210753Z AUTO 05007KT 10SM BKN020 OVC038 03/M01 A2959 RMK AO2 SLP024 T00281006 TSNO PAKW 210833Z AUTO 02004KT 10SM BKN030 OVC060 09/08 A3015 RMK AO2 T00890083 TSNO PALG 210756Z AUTO 04010G16KT 10SM CLR 03/M01 A2935 RMK AO2 SLP945 T00331006 $ PALH 210753Z 30008KT 10SM OVC070 06/03 A2945 RMK AO2 SLP974 T00610028 PALU 210755Z AUTO 08008KT 10SM BKN011 01/M01 A2975 PAMB 210756Z AUTO 03030G35KT 10SM OVC042 06/01 A2906 RMK AO2 PK WND 02037/0746 SLP845 P0001 T00610006 $ PAMC 210753Z AUTO 36003KT 10SM CLR 01/00 A2947 RMK AO2 SLP984 T00110000 TSNO $ PAMD 210843Z AUTO 12024KT 6SM -RA BR SCT012 BKN017 OVC029 10/09 A2946 RMK AO2 PK WND 12028/0842 RAB24 P0001 PAMH 210808Z AUTO VRB03KT 10SM OVC007 00/M01 A2956 RMK AO2 CIG 005V009 FZRANO PAMK 210756Z AUTO 05014KT 10SM 04/01 A2953 RMK AO2 SLP003 T00440011 $ PAMM 210756Z AUTO 01006KT 10SM CLR 09/08 A3021 RMK AO2 SLP219 T00890078 401390078 PAMO 210802Z AUTO 02015KT 10SM CLR 02/M01 A2946 RMK AO2 SLP981 T00171011 400170017 FZRANO PAMR 210753Z 29005KT 10SM BKN070 BKN095 06/03 A2944 RMK AO2 SLP969 T00610028 PANA 210756Z AUTO 04013G18KT 10SM FEW080 SCT090 02/01 A2930 RMK AO2 SLP920 T00220006 FZRANO PANC 210753Z 30011KT 10SM BKN070 BKN080 07/03 A2945 PANI 210756Z AUTO 01009KT 10SM BKN120 03/M01 A2936 RMK AO2 SLP910 T00281006 PANN 210753Z AUTO 05009KT 10SM OVC008 02/01 A2961 RMK AO2 SLP034 T00220011 TSNO $ PANT 210753Z AUTO 00000KT 10SM CLR 07/07 A3019 RMK SLP224 T00670067 TSNO $ VIA AUTODIAL PANW 210756Z AUTO 02018G24KT 10SM OVC045 05/00 A2911 RMK AO2 SLP872 T00500000 PAOH 210756Z AUTO 07006KT 10SM -RA FEW043 BKN065 OVC110 10/07 A3006 RMK AO2 RAB51 SLP179 P0001 T01000072 401170072 PAOM 210753Z AUTO 34008KT 10SM CLR M01/M03 A2958 PAOO 210756Z AUTO 33010KT 10SM CLR 02/01 A2939 RMK AO2 SLP962 T00220006 FZRANO PAOR 210753Z 00000KT 10SM SCT120 BKN160 M03/M03 A2967 PAOT 210753Z 05004KT 10SM CLR M02/M03 A2968 PAOU 210830Z AUTO 34022G27KT 9SM -RA BKN015 BKN027 OVC043 08/06 A2900 RMK AO2 PK WND 34027/0828 P0001 PAPB 210753Z AUTO 03008KT 10SM FEW020 04/03 A2937 RMK AO2 SLP934 T00440033 TSNO $ PAPG 210756Z AUTO 00000KT 10SM BKN020 OVC032 09/08 A3018 RMK AO2 RAB25E37 SLP225 P0000 T00890078 PAPH 210756Z AUTO 04010KT 10SM -RA OVC037 07/05 A2890 RMK AO2 SLP788 P0000 T00670050 400720006 PAPN 210756Z AUTO 03016G21KT 10SM -RA OVC044 06/04 A2886 RMK AO2 RAB11 SLP774 P0000 T00560039 400670006 PAPO 210756Z AUTO 07009KT 10SM CLR 00/M02 A2972 RMK AO2 SLP063 T00001022 FZRANO PAQH 210756Z AUTO 36014KT 10SM OVC065 03/00 A2922 RMK AO2 SLP893 T00280000 PAQT 210839Z AUTO 06013KT 10SM OVC005 M06/M07 A2992 PARC 210556Z AUTO 13005KT 8SM -SN OVC027 M03/M06 A2970 RMK AO2 SLP105 P0000 60000 T10281056 10000 21028 53015 FZRANO PARS 210756Z AUTO VRB04KT 10SM CLR 03/00 A2939 RMK AO2 SLP956 T00330000 400561039 $ PARY 210756Z AUTO 08013KT 10SM OVC010 01/M01 A2958 PASA 210756Z AUTO 02011KT 9SM BKN014 OVC021 04/02 A2968 RMK AO2 RAB42E53 SLP053 P0000 T00440022 $ PASC 210817Z 07013KT 2SM R06/5500VP6000FT BR OVC003 M05/M06 A2989 RMK AO2 T10501056 $ PASD 210756Z AUTO 31014G22KT 10SM FEW021 OVC025 07/03 A2898 RMK AO2 SLP815 T00720033 PASH 210756Z AUTO 12006KT 10SM OVC021 03/01 A2966 RMK AO2 SLP045 T00280011 PASI 210753Z 11010KT 10SM -RA BKN038 OVC050 11/08 A3005 PASK 210756Z AUTO 07004KT 10SM CLR M04/M04 A2970 RMK AO2 SLP055 T10391044 FZRANO $ PASL 210756Z AUTO 00000KT 10SM FEW075 OVC100 02/00 A2939 RMK AO2 SLP949 T00220000 FZRANO PASM 210802Z AUTO 03004KT 10SM CLR M01/M02 A2946 RMK AO2 SLP993 T10111022 410111011 FZRANO PASN 210753Z AUTO 03009KT 10SM FEW018 SCT055 06/04 A2939 RMK AO2 SLP953 T00560039 TSNO PASO 210753Z AUTO 00000KT 10SM BKN055 OVC065 07/07 A2919 RMK AO2 RAB00E48 SLP883 P0000 T00720067 TSNO PASV 210755Z AUTO 03012KT 10SM SCT120 BKN150 07/M06 A2923 PASX 210756Z AUTO 08006KT 10SM BKN042 BKN110 06/04 A2938 RMK AO2 RAE35 SLP957 P0000 T00610039 PASY 210804Z AUTO 35008KT 7SM SCT038 BKN045 BKN050 05/02 A2991 RMK AO2 RAE04 SLPNO $ PATA 210752Z AUTO 09004KT 10SM CLR 02/M02 A2966 RMK AO2 SLP047 T00171017 TSNO PATC 210755Z AUTO 05006KT 10SM BKN017 03/01 A2964 PATE 210756Z AUTO 09007KT 10SM BKN012 01/00 A2964 RMK AO2 UPE05 SLP044 P0000 T00060000 FZRANO PATG 210756Z AUTO 01017G23KT 10SM OVC080 07/02 A2912 RMK AO2 SLP955 T00720017 PATK 210753Z AUTO 03005KT OVC110 07/01 A2952 RMK AO2 SLP001 T00670006 TSNO $ PATL 210755Z AUTO 07010G16KT 030V130 10SM BKN140 01/00 A2946 PATO 210753Z AUTO 14017G35KT 2SM +RA BR BKN021 OVC028 05/03 A2950 RMK AO2 PK WND 11037/0709 SLP991 P0035 T00500028 TSNO PAUN 210756Z AUTO 05007KT 10SM CLR 01/M02 A2955 RMK AO2 SLP011 T00061022 FZRANO PAUT 210835Z AUTO 34011G22KT 7SM RA SCT020 BKN029 OVC043 05/02 A2925 RMK AO2 T00510018 PAVA 210756Z AUTO 04012KT 10SM CLR 02/01 A2946 RMK AO2 SLP061 T00170011 400441011 FZRANO PNO $ PAVC 210756Z AUTO 28026G32KT 6SM -RA FEW023 SCT046 OVC080 05/02 A2907 RMK AO2 PK WND 28032/0756 SLP849 P0001 T00500022 PAVD 210756Z AUTO 00000KT 10SM -RA OVC055 05/04 A2961 PAVL 210753Z AUTO 04005KT 9SM CLR M03/M04 A2970 RMK AO2 SLP056 T10281044 TSNO PAWD 210753Z AUTO 35016G22KT 10SM -RA BKN048 BKN055 OVC080 07/05 A2941 RMK AO2 SLP960 P0004 T00670050 TSNO $ PAWG 210756Z AUTO 09008KT 10SM FEW028 OVC039 10/07 A3020 PAWI 210753Z AUTO 08013KT 10SM OVC090 M07/M08 A2985 RMK AO2 SLP110 T10671083 TSNO PAWM 210756Z AUTO 36010KT 10SM CLR M01/M02 A2959 RMK AO2 SLP025 T10111017 FZRANO PAWN 210756Z AUTO 34004KT 10SM CLR M06/M07 A2972 RMK AO2 SLP078 T10561072 400221056 FZRANO PAWS 210756Z AUTO 05010KT 10SM BKN080 OVC090 08/00 A2948 RMK AO2 SLP997 T00830000 PAYA 210753Z AUTO 09014KT 6SM -RA BR OVC013 08/07 A2989 RMK AO2 SLP123 P0006 T00830067 TSNO $ PFCL 210756Z AUTO 02023G34KT 10SM OVC037 06/02 A2904 RMK AO2 PK WND 03035/0735 SLP829 T00610017 TSNO PFEL 210756Z AUTO 35008KT 10SM CLR 02/M02 A2958 RMK AO2 SLP019 T00221017 FZRANO PFKT 210807Z AUTO 00000KT 10SM OVC014 02/01 A2967 RMK AO2 FZRANO PFKW 210756Z AUTO 04013KT 10SM FEW090 03/00 A2930 RMK AO2 SLP922 T00330000 PFNO 210756Z AUTO 08008KT 10SM CLR M04/M05 A2970 RMK AO2 SLP057 T10391050 FZRANO PFWS 210756Z AUTO 04028G36KT 10SM FEW090 07/04 A2896 RMK AO2 PK WND 04039/0741 SLP813 T00720039 PFYU 210756Z AUTO 03007KT 10SM OVC006 M03/M03 A2976 PGRO 210750Z 10004KT 7SM SCT013 27/24 A2977 PGSN 210754Z 11004KT 10SM SCT020 27/26 A2977 RMK AO2 SLP102 T02720256 $ PGUA 210758Z AUTO 07005KT 10SM FEW016 FEW034 27/24 A2979 RMK AO2 DZE58 SLPNO $ PGUM 210754Z 00000KT 10SM CLR 27/27 A2978 RMK AO2 SLP075 T02720267 $ PGWT 210750Z 09003KT 7SM FEW016 28/24 A2976 PHBK 210756Z AUTO 00000KT 10SM CLR 23/18 A2998 RMK AO2 SLP155 T02280178 PHHI 210756Z AUTO 31006KT 10SM CLR 22/21 A3000 RMK AO2 SLPNO T02170205 $ PHJH 210345Z 02010KT 10SM FEW040 27/21 A2989 RMK LAST PHJR 210753Z VRB06KT 10SM CLR 25/19 A2998 RMK AO2 SLP159 T02500194 PHKO 210753Z 08006KT 10SM CLR 26/20 A2994 PHLI 210753Z 34007KT 10SM CLR 23/19 A3001 PHMK 210754Z AUTO 03008KT 10SM SCT015 BKN022 BKN032 25/22 A2999 RMK AO2 RAE0655B29E38 SLP157 P0000 T02500222 TSNO PHNG 210757Z AUTO 04010KT 10SM SCT021 BKN030 BKN046 26/23 A2997 RMK AO2 SLP142 T02610228 $ PHNL 210753Z 03003KT 10SM FEW022 26/20 A2998 PHNY 210756Z AUTO 04017KT 10SM CLR 22/20 A3002 RMK AO2 SLP145 T02220200 PHOG 210754Z 05005KT 10SM FEW023 25/23 A2998 PHSF 210756Z AUTO 00000KT 10SM SCT070 11/11 A3031 RMK AO2 SLPNO WND DATA ESTMD T01140105 PWINO $ PHTO 210819Z AUTO 23004KT 10SM SCT026 BKN060 22/21 A2997 PKMJ 210537Z 08007KT 15SM FEW015 SCT050 BKN300 30/25 A2976 RMK LAST PKMR 210751Z VRB04KT 15SM FEW015 BKN300 28/24 A2979 RMK SLP090 T02830241 PKWA 210840Z AUTO 08007KT 10SM SCT022 28/24 A2983 RMK AO2 T02840243 PLCH 210800Z 14003KT 9999 SCT020 28/22 Q1009 PMDY 210756Z AUTO 00000KT 10SM BKN042 23/20 A3018 RMK AO2 SLP218 T02280200 PPIT 210756Z AUTO 04019G25KT 10SM CLR 03/02 A2933 RMK AO2 SLP932 T00280017 TSNO PPIZ 210756Z AUTO 05014KT 10SM SCT090 M06/M06 A2978 RMK AO2 SLP088 T10561061 410221056 FZRANO PPNU 210830Z AUTO 10014G17KT 9SM OVC004 M06/M07 A2992 RMK AO1 PTKK 210750Z VRB05KT 15SM FEW014 BKN120 OVC280 29/27 A2975 RMK SLP076 T02890274 PTPN 210250Z 24004KT 15SM BKN018TCU OVC120 28/26 A29773 RMK TCU ALQDS LAST PTRO 210750Z 03004KT 11SM -SHRA BKN015TCU BKN120 OVC300 27/25 A2977 RMK TCU ALQDS PTSA 210450Z 23010KT 10SM BKN017CB BKN130 OVC300 29/25 A2975 RMK CB NW-NE MOV NE LAST PTTP 210751Z 21003KT 15SM SCT017 OVC130 26/24 A2977 RMK SLP081 T02590238 PTYA 210750Z VRB05KT 12SM FEW017 BKN300 29/25 A2974 RMK SLP073 T02900246 PWAK 210758Z AUTO 09011KT 9999 CLR 28/22 A2991 RMK AO2 SLPNO RCFN 210830Z 29006KT 240V360 9999 VCSH FEW020 BKN030 BKN045 24/20 Q1016 NOSIG RMK A3003 RCKH 210830Z 28007KT 230V320 9999 FEW018 27/21 Q1015 NOSIG RMK A2999 RCMQ 210830Z 01013KT 9999 FEW012 25/17 Q1015 NOSIG RMK A3000 RCNN 210830Z 31006KT 9999 FEW014 26/19 Q1014 NOSIG RMK A2997 RCSS 210830Z 09012KT 9999 FEW030 SCT120 25/19 Q1015 NOSIG RMK A3000 RCTP 210830Z 04012KT 9999 FEW020 SCT090 24/20 Q1015 NOSIG RMK A3000 RJAA 210830Z 04006KT 010V070 9999 FEW030 17/08 Q1020 NOSIG RJAF 210700Z 35009KT 9999 FEW050 16/04 Q1020 RJAH 210800Z 06005KT 9999 FEW030 16/07 Q1019 RJAW 210800Z 02012KT 9999 FEW020 27/22 Q1011 RMK 2CU020 A2986 RJBB 210830Z 29009KT 9999 FEW040 20/12 Q1020 BECMG 34008KT RJBD 210800Z VRB02KT 9999 FEW035 20/11 Q1019 RJBE 210800Z 31009KT 280V340 9999 FEW035 20/10 Q1019 RJBT 210800Z 36002KT CAVOK 16/10 Q1021 RJCB 210800Z 32004KT 9999 FEW040 13/04 Q1017 RJCC 210830Z 36004KT 9999 FEW030 BKN070 14/07 Q1019 RJCH 210800Z 30009KT 9999 FEW030 SCT060 16/09 Q1019 RJCK 210800Z 13004KT 9999 FEW020 SCT080 11/08 Q1018 RJCM 210800Z 03004KT 9999 FEW015 SCT060 11/08 Q1018 RJCN 210800Z VRB01KT 9999 FEW020 09/06 Q1018 RJCW 210800Z 08005KT 9999 FEW020 SCT060 BKN/// 08/05 Q1020 RJDC 210800Z 25004KT CAVOK 18/10 Q1020 RJDT 210800Z 05005KT 010V080 9999 FEW030 18/10 Q1020 RJEB 210700Z 03006KT 9999 FEW010 SCT015 BKN020 12/09 Q1019 RJEC 210800Z 29005KT 9999 FEW030 12/02 Q1018 RJFF 210830Z 06006KT 020V110 9999 FEW030 20/05 Q1019 BECMG 05006KT RJFG 210800Z 04003KT 340V080 9999 FEW025 19/12 Q1019 RJFK 210800Z 15002KT 9999 FEW030 20/08 Q1019 RJFM 210800Z 03004KT 350V090 9999 FEW030 20/11 Q1019 RJFO 210800Z 05003KT 020V080 9999 FEW035 19/10 Q1020 RJFR 210800Z VRB02KT 9999 FEW030 19/07 Q1020 RJFS 210800Z 36002KT CAVOK 20/11 Q1019 RJFT 210800Z 19004KT CAVOK 19/08 Q1019 RJFU 210800Z 14002KT CAVOK 21/08 Q1018 RJGG 210830Z 24008KT CAVOK 21/11 Q1018 BECMG 28006KT RJKA 210800Z 06011KT 9999 FEW040 25/15 Q1016 RJNK 210800Z 02008KT 9999 FEW030 18/10 Q1021 RJNS 210800Z 23004KT 9999 FEW030 19/10 Q1019 RJNT 210800Z VRB02KT 9999 FEW030 18/09 Q1021 RJNW 210800Z 06002KT 9999 FEW030 14/10 Q1021 RJOA 210800Z VRB02KT CAVOK 17/07 Q1020 RJOB 210800Z 26002KT 9999 FEW040 18/09 Q1020 RJOC 210800Z 04010KT 9999 FEW035 19/10 Q1021 RJOH 210800Z 04008KT 9999 FEW045 18/08 Q1021 RJOI 210755Z 15003KT 9999 SKC 20/09 A3012 RMK SLP199 T02000089 RJOK 210800Z 09003KT 9999 FEW035 SCT/// 19/06 Q1019 RJOM 210800Z 01006KT 9999 FEW030 20/07 Q1019 RJOO 210800Z 34011KT 9999 FEW030 20/06 Q1019 RJOR 210800Z 04007KT 9999 FEW040 18/11 Q1021 RJOT 210800Z 14002KT 9999 FEW030 17/09 Q1020 RJOW 210800Z 05004KT 350V100 9999 FEW030 19/12 Q1020 RJOY 210800Z 33004KT 300V020 9999 FEW040 22/08 Q1019 RJSA 210800Z 27006KT 9999 FEW040 13/06 Q1020 RJSC 210800Z 03010KT 9999 FEW050 16/08 Q1021 RJSF 210800Z 35006KT 9999 FEW045 14/08 Q1020 RJSI 210800Z 28005KT 210V340 9999 FEW040 15/08 Q1020 RJSK 210800Z 27003KT 9999 FEW040 15/06 Q1021 RJSN 210800Z 30004KT 270V330 9999 FEW040 17/10 Q1021 RJSR 210800Z 25006KT 9999 FEW040 13/09 Q1021 RJSS 210800Z 31006KT 9999 FEW040 17/07 Q1019 RJSY 210800Z 30003KT 270V350 9999 FEW030 16/07 Q1021 RJTF 210700Z 03005KT 360V080 CAVOK 21/02 Q1019 RJTI 210700Z 07008KT CAVOK 21/05 Q1018 RJTO 210700Z 04011KT CAVOK 20/09 Q1018 RJTT 210830Z 08013KT CAVOK 20/10 Q1019 NOSIG RJTY 210756Z AUTO 08004KT 10SM CLR 18/02 A3015 RMK AO2 SLPNO T01780021 FZRANO $ RKJB 210800Z 33006KT CAVOK 18/08 Q1021 NOSIG RKJK 210756Z AUTO 34007KT 10SM CLR 18/03 A3017 RMK AO2 SLPNO T01790034 FZRANO $ RKNY 210800Z 15004KT CAVOK 17/09 Q1021 NOSIG RKPC 210800Z 07009KT 9999 FEW050 18/11 Q1021 NOSIG RKPK 210800Z 15006KT CAVOK 19/09 Q1021 NOSIG RKSG 210756Z 31007KT 5SM HZ CLR 18/07 A3017 RMK AO2A SLP224 T01770065 $ RKSI 210830Z 30005KT CAVOK 16/04 Q1022 NOSIG RKSM 210800Z 30003KT 9999 FEW200 18/01 A3018 RKSO 210758Z COR 27006KT 7SM FEW200 18/05 A3016 RMK AO2A SLPNO T01750048 $ COR 0801 RKSS 210800Z 30007KT CAVOK 17/02 Q1022 NOSIG RKTN 210800Z 11002KT CAVOK 22/M03 Q1020 NOSIG RKTU 210800Z 15001KT CAVOK 19/01 Q1021 NOSIG ROAH 210830Z 06007KT 010V090 9999 FEW040 26/16 Q1015 RODN 210756Z 06010KT 10SM FEW035 FEW045 24/17 A3001 RMK AO2A SLPNO T02420167 $ ROIG 210800Z VRB01KT 9999 FEW022 SCT039 BKN060 23/20 Q1016 ROMY 210800Z 06008KT 9999 FEW027 24/18 Q1016 RORS 210800Z 06010KT 9999 SCT029 25/18 Q1016 RORY 210800Z AUTO 08008KT 9999 NCD 24/18 Q1016 ROTM 210756Z 05009KT 9999 FEW030 FEW040 24/18 A3003 RMK SLP153 STNPR29720 T02440178 ROYN 210800Z AUTO 07006KT 9999 NCD 26/18 Q1015 RPLB 210800Z 05009KT 010V080 9999 FEW020 BKN300 32/23 Q1010 NOSIG RMK A2983 RPLC 210800Z 210800ZM 07006KT 9999 FEW020 BKN300 32/23 Q1011 NOSIG RMK A2985 RPLI 210800Z 13004KT 9999 FEW017CB 34/20 Q1010 NOSIG RMK A2983 CB SSW RPLL 210800Z 01006KT 330V050 9999 FEW023 SCT100 OVC250 31/22 Q1010 NOSIG RMK A2983 RPMD 210800Z 18009KT 130V210 9999 SCT015CB BKN290 30/24 Q1008 RMK A2977 CB WNW NNW N-NE SE WSW-W RPMR 210800Z 18010KT 9999 FEW018CB BKN250 29/23 Q1010 NOSIG RMK A2983 CB N RPMZ 210800Z 25008KT 220V280 9000 -SHRA FEW016CB FEW017 BKN090 27/24 Q1009 RMK A2980 CB SW-NW RPVD 210800Z 04008KT 9999 FEW014CB FEW015 SCT080 31/25 Q1006 RMK A2971 CB NW RPVM 210800Z 05009KT 9999 FEW018CB BKN250 31/24 Q1008 RMK A2977 CB NE RPVP 210800Z 18004KT 8000 TSRA SCT017CB OVC080 26/23 Q1011 RMK A2985 CB E-SE-S SW-W N W/ FRQNT TS SAAR 210800Z 07008KT CAVOK 14/12 Q1015 SAAV 210814Z 09009KT 9999 FEW027 SCT100 BKN150 16/12 Q1014 RERA SABE 210800Z 05013KT CAVOK 16/10 Q1019 NOSIG SACO 210800Z 35003KT 8000 SCT030 SCT100 15/15 Q1014 NOSIG SADF 210800Z 05005KT CAVOK 14/09 Q1019 SAEZ 210800Z 06007KT 9999 SCT035 14/11 Q1019 NOSIG SAME 210800Z 00000KT 9999 OVC040 14/13 Q1014 SANT 210800Z 25007KT 3500 -RA BR SCT003 BKN008 OVC030 20/20 Q1011 SAOC 210800Z 36010KT 9999 SCT030 SCT060 13/11 Q1013 SAOU 210530Z 23004KT 5000 -DZ BKN015 OVC035 15/14 Q1015 SARC 210800Z 14005KT CAVOK 17/13 Q1012 SARE 210800Z 10007KT CAVOK 19/13 Q1012 SARF 210800Z 14006KT CAVOK 21/17 Q1011 SARI 210800Z 05007KT CAVOK 18/14 Q1014 SARL 210800Z 09010KT CAVOK 15/11 Q1015 SARP 210800Z 11006KT CAVOK 19/12 Q1014 SASA 210800Z 32002KT 9999 FEW010 SCT020 18/17 Q1014 SASJ 210800Z 02003KT 9000 -RA SCT015 OVC035 20/18 Q1014 SAVC 210800Z 32007KT CAVOK 08/01 Q1012 SAWE 210700Z 11014KT 9999 FEW015 03/M01 Q1013 SAWG 210800Z 11022G32KT 9999 FEW010 BKN015 OVC050 06/03 Q1008 SAWH 210800Z 16011KT 9999 OVC025 02/M01 Q1015 SAZB 210513Z 14005KT 9999 TS FEW045CB OVC056 13/11 Q1018 SAZM 210800Z 02003KT 340V040 CAVOK 10/08 Q1020 SAZN 210800Z 27005KT 9999 FEW035 09/05 Q1017 SAZS 210800Z 31016KT 9999 FEW019 SCT028 BKN080 05/00 Q1016 SBAF 210800Z 13003KT 9999 FEW030 BKN040 18/14 Q1017 SBAN 210800Z 09007KT CAVOK 20/18 Q1014 SBAR 210800Z 07006KT 9999 FEW020 25/21 Q1011 SBBE 210800Z 05005KT CAVOK 24/23 Q1008 SBBH 210800Z 10007KT CAVOK 16/11 Q1016 SBBR 210800Z 07003KT 040V100 9999 BKN006 BKN100 20/19 Q1014 SBBU 210300Z 12017KT CAVOK 16/12 Q1017 SBBV 210800Z 09004KT 9999 FEW020 25/21 Q1007 SBCA 210700Z 07012KT CAVOK 16/13 Q1016 SBCF 210800Z 14005KT CAVOK 15/11 Q1016 SBCG 210800Z 08014KT 9999 FEW045 21/15 Q1012 SBCT 210800Z 08007KT 9999 BKN008 11/11 Q1019 SBCY 210800Z 31004KT CAVOK 24/23 Q1008 SBCZ 210600Z 12002KT 9000 -RA BKN008 OVC100 24/23 Q1009 SBDN 210800Z 13014KT CAVOK 15/10 Q1015 SBEG 210800Z 00000KT 9999 SCT003 24/23 Q1007 SBFI 210800Z 10010KT CAVOK 19/15 Q1014 SBFL 210800Z 22006KT 9999 BKN020 16/15 Q1019 SBFN 210800Z 08009KT 9999 FEW017 26/22 Q1010 SBFZ 210800Z 07005KT 9999 FEW020 BKN025 26/22 Q1009 SBGL 210800Z 11003KT 9999 SCT017 BKN040 18/15 Q1018 SBGO 210800Z 11006KT CAVOK 22/21 Q1012 SBGR 210800Z 08002KT 9999 FEW009 12/11 Q1019 SBIL 210800Z 21007KT 9999 FEW020 BKN070 23/20 Q1013 SBJP 210800Z 17002KT 9999 SCT030 22/21 Q1011 SBKG 210600Z 09007KT 9999 BKN008 21/20 Q1012 SBKP 210800Z 13013KT 9999 SCT045 14/09 Q1017 SBLO 210800Z 13004KT CAVOK 14/11 Q1017 SBMA 210800Z 31002KT 9999 VCTS FEW025CB SCT100 26/25 Q1008 SBME 210300Z 27002KT CAVOK 16/13 Q1017 SBMG 210800Z 10010KT CAVOK 15/12 Q1015 SBMK 210800Z 06005KT 9999 SCT012 BKN035 18/15 Q1015 SBMN 210800Z 01002KT 9999 FEW007 25/23 Q1007 SBMO 210800Z 33002KT 9999 SCT025 22/21 Q1011 SBMQ 210800Z 36004KT 9999 FEW015 25/25 Q1008 SBNF 210300Z 15006KT 9999 -RA BKN030 18/16 Q1020 SBNT 210800Z 10004KT 9999 FEW025 25/21 Q1010 SBPA 210800Z 07005KT 9999 FEW034 13/11 Q1019 SBPL 210800Z 16011KT CAVOK 25/18 Q1011 SBPS 210800Z 15007G19KT 090V210 9999 SCT020 BKN100 24/18 Q1013 SBPV 210828Z 24001KT 9999 FEW008 23/22 Q1007 SBRB 210800Z 25002KT 9999 FEW010 21/21 Q1009 SBRF 210800Z 32004KT 9999 BKN021 24/21 Q1010 SBRJ 210800Z 03005KT 9999 FEW020 BKN040 19/15 Q1017 SBRP 210800Z 13012KT CAVOK 15/12 Q1014 SBSC 210800Z 00000KT CAVOK 16/15 Q1017 SBSG 210800Z 24004KT 9999 FEW016 22/21 Q1010 SBSJ 210800Z 20002KT 8000 BKN020 13/12 Q1019 SBSL 210800Z 05006KT CAVOK 26/23 Q1009 SBSM 210300Z 09011KT CAVOK 14/11 Q1018 SBSN 210800Z 12001KT CAVOK 24/23 Q1006 SBSP 210800Z AUTO 14006KT 9999 SCT013 BKN018 13/10 Q1020 SBSR 210800Z 19008KT CAVOK 16/09 Q1014 SBSV 210800Z 16017KT 9000 VCSH SCT013 FEW022TCU BKN060 25/23 Q1 011 SBTA 210300Z 13004KT 070V170 9999 BKN040 16/11 Q1019 SBTE 210800Z 32005KT 9999 OVC020 26/22 Q1009 SBVT 210800Z 22010KT 9999 FEW020 SCT040 BKN070 21/14 Q1016 SCAP 210800Z AUTO VRB01KT 9999 -DZ NSC 04/04 Q1020 SCAR 210800Z 00000KT 9999 OVC021 18/12 Q1013 SCAT 210800Z AUTO 02010KT 9999 // ///008 12/09 Q1015 SCBA 210800Z AUTO 27003KT 240V300 9999 VV/// 01/M00 Q1011 SCCF 210800Z 12015KT CAVOK 06/M13 Q1023 SCCH 210800Z AUTO 22007KT CAVOK 06/05 Q1021 SCCI 210800Z 08013KT 9999 BKN025 06/02 Q1013 NOSIG SCCY 210800Z AUTO 01005KT 340V040 9999 FEW015 04/02 Q1012 SCDA 210800Z 20004KT 9999 OVC031 17/11 Q1014 SCEL 210800Z 16005KT CAVOK 09/05 Q1018 NOSIG SCFA 210800Z 16005KT 9000 DZ BKN006 OVC010 13/11 Q1014 NOSIG SCFT 210800Z AUTO VRB02KT 8000 ///023 04/03 Q1015 SCIC 210800Z AUTO 19005KT 9999 NCD 08/05 Q1019 SCIE 210800Z 16003KT CAVOK 06/06 Q1022 SCIP 210800Z 30005KT 9999 FEW020 19/16 Q1021 NOSIG SCON 210800Z AUTO 36004KT 320V100 9000 08/07 Q1013 SCPQ 210800Z AUTO 35011KT //// -SHRA SCT010 OVC043 07/06 Q1014 RESHRA SCQP 210700Z 36003KT 9999 FEW034 04/04 Q1021 SCRM 210800Z 21017KT 180V250 9999 BKN010 OVC020 M04/M08 Q0988 SCSE 210800Z 10004KT CAVOK 09/08 Q1014 SCSN 210800Z AUTO 00000KT CAVOK 06/05 Q1018 SCTE 210800Z 02011KT 9999 BKN030 BKN180 07/07 Q1017 NOSIG SCTN 210800Z AUTO 01015KT //// R/////// // OVC024 09/06 Q1015 SCVD 210800Z AUTO 31007KT 9999 -RA SCT026 09/08 Q1020 RESHRA SCVM 210800Z 18002KT CAVOK 08/06 Q1017 SECU 210800Z AUTO 25005KT 220V280 ////NDV NCD 12/10 Q1024 SEGU 210800Z 23007KT 9999 FEW023 BKN100 22/18 Q1011 NOSIG RMK A 2986INCH SELT 210800Z 02002KT 9999 FEW040 SCT100 05/04 Q1027 SEMT 210800Z 21006KT 9999 BKN020 22/20 Q1011 RMK A2987 SEQM 210800Z 01004KT 8000 BCFG SCT005 OVC023 13/13 Q1024 NOSIG RMK A3025 SESA 210300Z 23008KT 9999 BKN012 21/19 Q1013 SGAS 210800Z 00000KT CAVOK 23/19 Q1010 SGES 210800Z 12005KT CAVOK 19/15 Q1013 SKBG 210500Z 33003KT 9999 SCT015 SCT080 19/19 A2996 SKBO 210800Z 10004KT 9999 FEW015 BKN070 11/10 A3021 SKBQ 210800Z 01008KT 9999 SCT010 SCT200 27/24 A2974 SKCC 210500Z 01008KT 9999 RA SCT018 BKN080 23/23 A2989 SKCG 210800Z 03007KT 360V060 CAVOK 27/25 A2974 SKCL 210800Z VRB02KT 9999 FEW040 BKN120 20/19 A2996 SKLT 210800Z 31005KT 9999 BKN010 24/24 A2975 SKMR 210400Z 00000KT 9999 SCT020 SCT100 25/24 A2981 SKPE 210700Z VRB02KT 9999 SCT014 SCT070 17/17 A3001 SKRG 210800Z 03003KT 7000 VCSH SCT012 BKN070 14/14 A3020 REDZ RMK VCSH N/S SKSM 210400Z 05006KT 9999 FEW020 BKN070 27/24 A2983 SKSP 210800Z 05009KT 9999 FEW016 BKN200 28/24 A2981 SLCB 210800Z 00000KT 9999 FEW030 BKN070 15/09 Q1022 SLLP 210827Z 08004KT 020V120 3000E VCFG FEW002 SCT200 04/03 Q1034 SLVR 210800Z VRB02KT 9999 FEW070 SCT200 22/22 Q1009 SMJP 210800Z VRB02KT CAVOK 23/22 Q1008 NOSIG SOCA 210830Z AUTO VRB01KT 9999 SCT022 24/23 Q1008 NOSIG SPCL 210800Z 23003KT 9000 -DZ BKN013 BKN070 23/22 Q1010 RMK PP020 SPHI 210800Z 18012KT CAVOK 17/15 Q1012 RMK PP000 SPJC 210800Z 17006KT 9999 OVC020 17/14 Q1013 NOSIG RMK PP000 SPJL 210300Z 04003KT 9999 SCT010 SCT080 06/03 Q1035 RMK PP000 SPME 210300Z 27005KT 9999 FEW014 SCT025 BKN090 22/19 Q1012 RMK BIRD HAZARD RWY 32/14 PP000 SPQT 210800Z VRB01KT 9999 BKN010 OVC080 24/23 Q1008 NOSIG RMK PP000 SPQU 210800Z 34005KT CAVOK 10/M04 Q1023 RMK PP000 SPRU 210800Z 14006KT 5000 BR NSC 17/15 Q1012 RMK PP000 SPSO 210800Z VRB02KT 6000 NSC 16/14 Q1013 RMK SCT230 PP000 SPTN 210800Z 23003KT 200V270 9999 OVC020 15/11 Q1014 RMK PP000 SPZO 210800Z 10003KT 9999 SCT050 BKN100 07/04 Q1029 RMK BIRD HAZARD RWY 28 PP000 SULS 210800Z 05006KT 010V110 CAVOK 12/10 Q1020 SUMU 210800Z 00000KT CAVOK 12/08 Q1021 NOSIG SVCR 210300Z /////KT 9999 SCT013 25/24 Q1011 REDZ SVMD 210300Z /////KT 1000 -DZBR OVC003 18/18 Q1020 SVMG 210800Z /////KT 9999 SCT010 25/24 Q1010 NOSIG SVMI 210800Z 27004KT 9999 FEW016 24/20 Q1012 SYCJ 210800Z 25002KT 4000 BR FEW013 SCT039 22/22 Q1007 REFG NOSIG TAPA 210800Z 09007KT 9999 FEW018 26/23 Q//// NOSIG TBPB 210800Z 11013KT 9999 -SHRA VCSH BKN018 27/24 Q1008 NOSIG TFFF 210830Z AUTO VRB02KT CAVOK 24/23 Q1009 TEMPO 4000 SHRA SCT018TCU TFFR 210830Z AUTO 04002KT CAVOK 24/22 Q1009 TEMPO 4000 SHRA SCT018TCU TGPY 210800Z 08005KT 9999 SCT018 BKN037 26/24 Q1008 NOSIG TIST 210753Z AUTO 08006KT 10SM CLR 26/22 A2983 TISX 210753Z AUTO 02005KT 10SM CLR 24/23 A2984 TJBQ 210450Z 10004KT 10SM BKN022 BKN032 24/ A2990 TJNR 210753Z AUTO 07004KT 10SM FEW025 26/24 A2986 TJSJ 210756Z 00000KT 10SM FEW028 FEW050 24/23 A2984 TLPL 210800Z 09014KT 9999 -SHRA SCT020 BKN040 26/25 Q1008 NOSIG TNCA 210700Z 07010KT 9999 SCT018 27/23 Q1008 NOSIG TNCB 210755Z AUTO 07008KT 9999 FEW019/// SCT023/// 26/24 Q1007 RERA TNCC 210800Z AUTO 11005KT 080V140 9999 NSC 27/24 Q1008 NOSIG TNCE 210755Z AUTO 07009KT 030V100 //// // ///////// 26/23 Q1010 RE// TNCM 210800Z 07008KT 9999 VCSH FEW017 26/22 Q1010 RMK A2984 ADJ SHWRS SE TTCP 210800Z 11008KT 9999 FEW015 26/23 Q1007 NOSIG TTPP 210800Z 00000KT 9999 FEW016 25/24 Q1007 NOSIG TXKF 210755Z 19009KT 9999 FEW028 SCT300 23/18 Q1012 UAAA 210830Z 05003MPS 360V090 9999 FEW100 15/02 Q1024 R05R/1///60 NOSIG UAAH 210830Z 23006MPS CAVOK 11/00 Q1023 NOSIG RMK QFE730/0973 UAAT 210830Z VRB01MPS 9000 FEW200 17/01 Q1024 R20/CLRD65 NOSIG RMK QFE716/0955 UACC 210830Z 26008G14MPS CAVOK 11/M01 Q1012 R22/0///70 TEMPO 25010G15MPS RMK QFE728/0971 UACK 210830Z 29007MPS 9999 BKN035 09/01 Q1009 R20/290255 NOSIG RMK QFE733/0978 UACP 210830Z 27007MPS 9999 BKN033CB 06/01 Q1008 R23/0/0060 NOSIG RMK QFE744/0992 UADD 210830Z VRB01MPS 9999 NSC 19/M04 Q1022 R31/0///65 NOSIG RMK QFE708/0944 UAII 210830Z 28002MPS 200V350 CAVOK 21/M03 Q1022 R10/0///70 NOSIG RMK QFE731/0975 UAKD 210830Z 24008MPS 9999 SCT050 BKN100 16/M02 Q1020 R22/0///65 NOSIG RMK QFE731/0975 UAKK 210830Z 22010G15MPS 9999 SCT040 10/02 Q1016 R23/0///70 NOSIG RMK QFE715/0954 UAOO 210830Z 25003MPS 200V290 CAVOK 19/M03 Q1023 R23/CLRD70 NOSIG RMK QFE755/1007 UARR 210830Z 03004MPS 350V050 CAVOK 12/02 Q1021 R04/CLRD70 NOSIG RMK QFE763/1017 UASK 210830Z 13006MPS 9999 -SHRA BKN034CB OVC076 06/04 Q1022 R12/290350 NOSIG RMK QFE741/0988 UASP 210830Z 25010MPS 9999 SCT028CB OVC083 12/M01 Q1010 R21/0///70 NOSIG RMK QFE746/0995 UASS 210830Z 21011MPS CAVOK 12/05 Q1016 R26/2///60 NOSIG RMK QFE744/0992 UATE 210830Z 12003MPS 090V160 CAVOK 20/02 Q1017 R12/0///70 NOSIG RMK QFE761/1015 UATG 210830Z 09005MPS CAVOK 19/04 Q1019 R14/CLRD70 NOSIG RMK QFE766/1022 UATT 210830Z 32004MPS CAVOK 11/02 Q1018 R31/70D TEMPO BKN010 RMK QFE744/0992 UAUU 210830Z 30007MPS 9999 SCT036CB 09/M00 Q1014 R33/290145 NOSIG RMK QFE745/0993 UBBB 210830Z VRB02KT 9999 FEW023 20/14 Q1016 R88/D NOSIG UBBG 210830Z VRB02KT 9999 SCT100 21/11 Q1016 R30/CLRD// NOSIG UBBL 210800Z VRB03KT 9000 FEW100 22/15 Q1017 R33/CLRD// NOSIG RMK MT OP UBBN 210830Z 23004KT 9999 FEW050 SCT100 23/06 Q1017 R14R/CLRD// NOSIG RMK MT OP QFE688 UBBQ 210800Z 33004KT 9999 NSC 21/11 Q1017 R16/CLRD// NOSIG RMK MT OP UBBY 210800Z VRB02KT 9999 FEW100 19/10 Q1019 R33/////// NOSIG RMK MT OP UBEE 210800Z 33002KT CAVOK 21/14 Q1016 R30/CLRD// NOSIG UCFL 210800Z 15003MPS 100V180 9999 FEW030 11/01 Q1027 R07/CLRD70 UCFM 210830Z VRB01MPS CAVOK 19/M05 Q1022 R08/CLRD70 NOSIG UCFO 210830Z 30002MPS CAVOK 16/M00 Q1024 R12/CLRD70 NOSIG UDSG 210830Z 22005KT 9999 SCT046TCU 17/03 Q1019 R02/CLRD70 NOSIG UDYZ 210830Z VRB02KT 9999 NSC 22/04 Q1018 R09/010070 NOSIG UEEE 210830Z 00000MPS 9999 -SHSN BKN030CB M03/M04 Q1021 R23L/490150 NOSIG RMK QFE757 UGKO 210830Z 27005KT 230V310 9999 SCT049 23/13 Q1013 NOSIG UGSB 210830Z 32004KT 280V360 9999 FEW150 22/16 Q1014 NOSIG UGTB 210830Z 17004KT 060V230 CAVOK 21/10 Q1018 NOSIG UHBB 210830Z 00000MPS CAVOK 10/M01 Q1015 R18/090060 NOSIG RMK QFE746/0995 UHHH 210830Z 05002MPS CAVOK 08/M04 Q1021 R23L/090060 NOSIG RMK QFE759/1013 UHMA 210800Z 35005MPS 9999 SCT006 BKN038 M05/M05 Q1014 R01/////// NOSIG RMK END R01/35004MPS QFE757/1009 UHMM 210800Z 00000MPS 8000 3800W -SHSN BKN004 OVC017CB 02/02 Q1014 R10/290350 TEMPO 3100 -SHSN BR RMK QBB120 QFE746 UHPP 210800Z 35002MPS 330V090 9999 NSC 04/M00 Q1012 R34L/CLRD70 NOSIG RMK QFE756/1008 UHSS 210830Z 18002MPS 9999 FEW043 04/M00 Q1021 R01/70D NOSIG RMK QFE765/1020 UHWW 210830Z 22004MPS 9999 NSC 13/03 Q1020 R25L/0///70 NOSIG RMK QFE764 UIAA 210830Z 05001MPS 9999 SCT040CB 06/M02 Q1010 R29/CLRD70 NOSIG RMK QFE699/0932 UIBB 210830Z 00000MPS 9999 NSC 01/M06 Q1019 R30/CLRD60 NOSIG RMK QFE721/0962 UIII 210830Z 33004MPS 9999 SCT036CB 03/M03 Q1018 R30/60D NOSIG RMK QFE719/0959 UIUU 210830Z 33006MPS 300V010 9999 BKN033CB 04/M02 Q1014 R26/CLRD60 NOSIG RMK QFE716/0955 UKBB 210830Z 33004MPS 9999 SCT032 12/08 Q1022 R88/D NOSIG UKDD 210830Z 02004MPS 350V050 7000 NSC 15/10 Q1017 R08/090070 NOSIG UKDE 210830Z 06003MPS 020V110 5000 BR NSC 17/12 Q1017 R02R/CLRD70 NOSIG UKDR 210830Z 01006MPS 340V050 CAVOK 13/09 Q1017 R36/09//70 NOSIG UKHH 210830Z 34002MPS 310V020 9999 BKN013 OVC021 13/08 Q1019 R07/0///72 NOSIG UKKK 210830Z 35003MPS 300V050 CAVOK 12/07 Q1022 R26/70D NOSIG UKKM 210830Z AUTO 03003MPS 340V050 9999 // NSC 11/07 Q1022 UKLI 210830Z 00000MPS 3500 BR OVC008 10/10 Q1024 R28/290565 NOSIG UKLL 210830Z 04004MPS CAVOK 07/06 Q1025 R31/290055 NOSIG UKLN 210700Z 00000MPS 4600 BR FEW///CB 10/09 Q1022 R33/290160 NOSIG UKLR 210830Z 36002MPS 310V030 0150 FG VV001 05/05 Q1025 NOSIG UKLU 210830Z 00000MPS 9999 BKN045 12/06 Q1021 R10/090070 NOSIG UKOH 210830Z 36006MPS 330V040 CAVOK 17/09 Q1016 R03/CLRD65 NOSIG UKON 210800Z 36006MPS 340V040 7000 NSC 13/10 Q1017 NOSIG UKOO 210830Z 34007MPS 8000 NSC 15/10 Q1018 R34/090060 NOSIG UKWW 210830Z 36005MPS 9999 SCT017 SCT100 11/06 Q1022 R31/190060 NOSIG ULAA 210830Z 23003MPS 150V270 9999 OVC006 02/02 Q1018 R26/290060 NOSIG RMK QBB180 QFE762/1016 ULLI 210830Z 25003MPS 200V350 CAVOK 10/05 Q1023 R88/090060 NOSIG ULMM 210830Z 17004MPS 9999 -SHRA BKN019CB 04/02 Q1003 R13/290055 NOSIG RMK QFE746 ULOO 210830Z 00000MPS 0200 0150NE R19/M0300N FG VV001 03/03 Q1026 R19/090070 NOSIG RMK QBB030 OBST OBSC QFE765 ULPB 210830Z 23004MPS 9999 BKN019 07/04 Q1021 R19/09//60 NOSIG RMK QFE762/1016 ULWC 210830Z 11001MPS 9999 SCT033 05/02 Q1025 R03/190060 NOSIG RMK QFE758/1011 UMBB 210800Z 35002MPS 4800 BR NSC 05/03 Q1027 NOSIG UMGG 210830Z 04002MPS CAVOK 07/03 Q1024 R28/D NOSIG UMII 210830Z 22001MPS 6000 NSC 06/02 Q1025 R23/D TEMPO 2000 BR SCT005 UMKK 210830Z 28002MPS 230V330 9999 FEW030 12/08 Q1027 R24/19//60 NOSIG RMK QFE769/1026 UMMG 210800Z 32001MPS 5000 BR NSC 05/03 Q1027 NOSIG UMMS 210830Z 02001MPS CAVOK 08/03 Q1026 R31/D NOSIG UMOO 210800Z 04002MPS CAVOK 04/01 Q1024 NOSIG UNAA 210830Z 13003MPS CAVOK 07/M03 Q1017 R20/090065 NOSIG RMK QFE740 UNBB 210830Z 21010G15MPS 9999 BKN019 07/04 Q1009 R24/290150 NOSIG RMK QFE734 UNEE 210830Z 13006MPS 3300 -SHSN OVC002CB 00/00 Q1007 R23/290155 NOSIG RMK QBB060 QFE732 UNKL 210830Z 14005MPS CAVOK 06/M00 Q1015 R11/CLRD65 NOSIG RMK QFE736 UNNT 210830Z 23007MPS 9999 -RA BKN011 OVC021 07/06 Q1003 R25/290255 R16/290255 NOSIG RMK QFE743/0990 UNOO 210830Z 28008MPS 9999 SCT023CB BKN030 07/01 Q1005 R25/220060 NOSIG RMK QFE746 UNTT 210830Z 16005MPS 4900 -SHSN SCT006 BKN018CB 01/M00 Q1004 R21/290050 NOSIG RMK QFE738 URKA 210830Z VRB01MPS CAVOK 19/16 Q1014 R04/010070 NOSIG RMK QFE757/1009 URKK 210830Z 07002MPS 030V100 9000 NSC 18/16 Q1015 R23L/CLRD70 TEMPO 1000 BR BKN003 BKN020CB RMK QFE758 URMG 210830Z 15002MPS 9000 NSC 20/11 Q1016 R26/000070 NOSIG RMK QFE747/0996 URML 210830Z 03005MPS 9999 NSC 20/13 Q1016 R32/01//70 NOSIG RMK QFE761/1015 URMM 210830Z 10006MPS 9999 NSC 21/08 Q1015 R12/090070 NOSIG RMK QFE733/0978 URMN 210830Z 03002MPS 9999 NSC 20/07 Q1015 R24/010070 NOSIG RMK QFE725 URMO 210830Z VRB01MPS 9999 NSC 19/09 Q1016 R09/010070 NOSIG RMK QFE718/0958 URMT 210830Z 11005MPS CAVOK 21/09 Q1016 R07/010070 NOSIG RMK QFE722 URRP 210830Z VRB01MPS 9999 FEW/// 16/12 Q1016 R23/CLRD70 TEMPO 2000 BR SCT002 RMK QFE754/1006 URSS 210830Z 04003MPS 9999 FEW050CB OVC090 19/12 Q1014 R02/090070 R06/090070 NOSIG RMK R06/00000MPS QFE759 URWA 210830Z 10004MPS 080V140 9999 BKN/// 21/03 Q1018 R09/010070 NOSIG RMK QFE765/1020 URWI 210830Z 14004MPS 9999 SCT/// 17/15 Q1017 R09/190060 NOSIG URWW 210830Z 11005MPS 9999 BKN028CB 16/13 Q1018 R06/010070 NOSIG USCC 210830Z 31008MPS 9999 SCT030CB 06/M01 Q1013 R27/290050 TEMPO 31014MPS 1100 SHRASN VV005 RMK QFE740 USCM 210830Z 30008MPS 9999 SCT030CB 07/M03 Q1016 R36/090060 TEMPO 32013MPS RMK QFE724 USHH 210830Z 33003MPS 300V030 2000 R24/2000N SHSN BKN007CB M02/M03 Q1002 R24/290050 TEMPO 0900 +SHSN BKN004CB RMK QFE747 USNN 210830Z 16002MPS 7000 -RA OVC005 01/01 Q0999 R21/250157 NOSIG RMK QFE744 USPP 210830Z 33005MPS 9999 OVC026 02/M04 Q1019 R21/090060 NOSIG RMK QFE753 USRR 210830Z 28002MPS 9999 -SN BKN005 OVC016 01/01 Q0999 R25/290050 TEMPO 3100 -SN RMK OBST OBSC QFE744 USSS 210830Z 27007MPS 9999 OVC023 01/M03 Q1014 R26R/210060 NOSIG RMK QFE739/0986 USTR 210830Z 31007G12MPS 9999 BKN026CB 00/M04 Q1010 R30/290060 TEMPO 31015MPS 0500 +SHSN VV003 RMK QFE748/0997 UTAA 210800Z 11006KT 070V140 9999 NSC 23/05 Q1015 R88/70D NOSIG UTAK 210800Z VRB04KT CAVOK 22/04 Q1017 R16R/CLRD70 NOSIG UTAM 210800Z 13010KT CAVOK 25/03 Q1018 NOSIG UTAT 210800Z 13006KT CAVOK 20/01 Q1020 R08/CLRD70 NOSIG UTAV 210800Z 13010KT CAVOK 24/M00 Q1020 NOSIG UTDD 210830Z VRB02MPS 9999 NSC 22/M02 Q1022 R09/D NOSIG RMK QFE698/0931 UTDK 210830Z VRB02MPS 9999 NSC 22/05 Q1022 R01/09//70 RMK QFE709/0945 UTDL 210830Z 08009MPS 9999 NSC 18/M01 Q1023 R08/CLRD70 NOSIG RMK QFE728/0971 UTDT 210830Z 34003MPS 290V060 9999 NSC 24/03 Q1021 R35/CLRD70 RMK QFE726/0968 UTFF 210830Z 27002KT 9000 NSC 17/M02 Q1024 R18/CLRD70 UTFN 210830Z 11004KT 040V180 9999 NSC 17/M00 Q1024 R28/CLRD70 NOSIG UTNN 210830Z 09002KT CAVOK 20/M02 Q1020 R33/CLRD60 NOSIG UTNU 210830Z 11006KT CAVOK 20/01 Q1020 R31/CLRD70 NOSIG UTSA 210830Z 21004KT 150V260 9999 NSC 23/M02 Q1021 R07/CLRD70 NOSIG UTSB 210830Z 12004KT CAVOK 23/M00 Q1020 R01/CLRD70 NOSIG UTSK 210830Z 31002KT CAVOK 24/M00 Q1021 R16/CLRD70 UTSS 210830Z 30006KT 270V340 9999 NSC 22/M03 Q1021 R09/CLRD70 NOSIG UTST 210830Z 10006KT 070V130 CAVOK 24/M00 Q1020 R88/CLRD70 NOSIG UTTT 210830Z 25004KT CAVOK 21/M01 Q1022 R26R/CLRD70 NOSIG UUBC 210830Z 03002MPS 9999 OVC031 06/00 Q1025 R31/CLRD60 NOSIG RMK QFE752/1003 UUBP 210830Z 02004MPS CAVOK 07/02 Q1023 R34/CLRD70 NOSIG RMK QFE750/1000 UUBW 210830Z VRB01MPS 9999 BKN032 08/01 Q1026 R30/010060 NOSIG UUDD 210830Z VRB01MPS 9999 OVC030 07/M00 Q1026 R88/010095 NOSIG UUDL 210830Z 35001MPS 9999 SCT040 06/01 Q1025 R23/010060 NOSIG RMK QFE761 UUEE 210830Z VRB01MPS 9999 OVC035 07/02 Q1025 R24C/CLRD62 NOSIG UUMO 210830Z VRB01MPS 9999 BKN033 07/03 Q1025 R26/090060 NOSIG RMK QFE754/1005 UUOB 210830Z 04004MPS CAVOK 11/04 Q1020 R11/010060 NOSIG UUOK 210830Z 04003MPS 010V080 9999 BKN041 10/03 Q1022 R12/CLRD65 NOSIG RMK QFE748/0998 UUOL 210830Z 05008MPS CAVOK 08/03 Q1023 R15/090060 NOSIG UUOO 210830Z 04003MPS 350V070 9999 BKN049 09/02 Q1021 R30/090070 NOSIG RMK QFE752 UUWW 210830Z 21002MPS 9999 BKN031 06/01 Q1026 R24/000070 NOSIG UUYY 210830Z 29002MPS 9000 -SHRASN SCT006 BKN019CB 03/02 Q1019 R36/29//51 NOSIG RMK QFE755/1007 UWGG 210830Z 30002MPS 240V330 8000 BKN009 06/04 Q1025 R36R/190060 NOSIG UWKD 210830Z 35003MPS 320V020 9999 BKN030 06/M00 Q1024 R29/70D NOSIG RMK QFE756/1009 UWKE 210830Z 34006MPS 9999 BKN027 05/M01 Q1022 R03/090070 NOSIG RMK QFE749/0999 UWKS 210830Z 33003MPS 9999 BKN030CB 06/02 Q1024 R24/010060 NOSIG RMK QFE753 UWLW 210800Z 01002MPS 330V040 8000 SCT014 BKN030 07/03 Q1024 R02/CLRD60 NOSIG RMK QFE761 UWOO 210830Z 36006MPS 9999 SCT030 09/02 Q1020 R26/CLRD60 NOSIG RMK QFE755/1006 UWOR 210800Z 32005MPS CAVOK 13/02 Q1017 R25/CLRD65 NOSIG RMK QFE739/0985 UWSS 210830Z 06004MPS CAVOK 09/05 Q1022 R12/010095 NOSIG RMK QFE754 UWUU 210830Z 32006MPS 9999 BKN025 07/01 Q1020 R32L/0///60 NOSIG RMK QFE753/1004 UWWW 210830Z 33002MPS 310V020 9999 SCT026 08/M01 Q1023 R33/CLRD60 NOSIG RMK QFE756/1009 VAAH 210830Z 01007KT 8000 NSC 39/03 Q1013 NOSIG VAAU 210800Z 10005KT 5000 HZ FEW020 SCT025 43/16 Q1015 NOSIG VABB 210830Z 28008KT 3000 HZ FEW020 32/26 Q1012 NOSIG VABO 210830Z 02005KT 6000 NSC 36/20 Q1012 NOSIG VABP 210800Z 25008KT 6000 FEW030 34/13 Q1016 NOSIG VAID 210800Z 25004KT 5000 HZ FEW025 33/12 Q1016 NOSIG VAJB 210700Z 25006KT 4000 HZ NSC 32/16 Q1015 VAJJ 210830Z 27010KT 3500 HZ FEW020 33/26 Q1012 BECMG 4000 HZ VANP 210830Z 00000KT 4000 HZ FEW025 35/16 Q1014 NOSIG VAPR 210700Z 08006KT 6000 NSC 38/08 Q1013 VASD 210700Z 10004KT 6000 FEW030 33/16 Q1017 NOSIG VASU 210830Z 06005KT 5000 FU NSC 37/20 Q1012 VAUD 210800Z 36005KT 6000 NSC 34/02 Q1016 NOSIG VCBI 210810Z 27007KT 230V300 9999 SCT017 29/23 Q1011 NOSIG VCRI 210810Z 18009KT 140V210 9999 BKN018TCU 30/26 Q1010 NOSIG VDPP 210830Z 16007KT 090V180 9999 SCT017 33/22 Q1009 VDSR 210830Z 12004KT 090V150 9999 FEW017 31/23 Q1008 VDSV 210830Z 16003KT 9999 FEW015 FEW017CB 31/26 Q1010 CB VEAT 210830Z 33003KT 5000 HZ FEW020 32/22 Q1011 NOSIG VEBI 210830Z 09003KT 5000 HZ FEW020 SCT090 26/16 Q1016 VEBN 210830Z 26004KT 6000 NSC 35/18 Q1012 NOSIG VEBS 210830Z 03004KT 4000 HZ FEW100 33/20 Q1011 NOSIG VECC 210830Z 01007KT 4000 HZ FEW020 34/21 Q1010 NOSIG VEDG 210330Z 00000KT 1800 BR NSC 26/20 Q1015 NOSIG VEGT 210830Z 01010KT 3500 HZ FEW020 SCT100 32/23 Q1011 NOSIG VEGY 210830Z 28010KT 5000 HZ NSC 33/19 Q1013 NOSIG VEIM 210830Z 16003KT 6000 FEW018 SCT025 26/18 Q1014 NOSIG VEJS 210800Z 08002KT 4000 HZ NSC 32/15 Q1012 VEKO 210600Z 23006KT 6000 NSC 35/16 Q1014 VELP 210830Z 03003KT 5000 HZ FEW018 SCT025 28/21 Q1013 NOSIG VELR 210800Z 24002KT 6000 FEW020 31/22 Q1012 VEMN 210830Z 02002KT 5000 HZ FEW025 32/22 Q1012 NOSIG VEMR 210630Z 10003KT 5000 HZ SCT020 BKN100 28/21 Q1014 VEPT 210830Z 00000KT 4500 HZ FEW020 34/20 Q1011 NOSIG VEPY 210800Z 25003KT 2000 HZ SCT018 SCT025 22/15 Q1020 NOSIG VERC 210830Z 04004KT 5000 HZ NSC 31/10 Q1016 NOSIG VERP 210800Z 02002KT 5000 HZ FEW025 33/19 Q1014 NOSIG VGEG 210800Z 33005KT 4000 HZ NSC 31/18 Q1011 NOSIG VGHS 210830Z 34009KT 4000 HZ FEW015 SCT100 32/20 Q1011 NOSIG VHHH 210835Z 10011KT 9999 FEW032 28/20 Q1015 NOSIG VIAR 210830Z 28006KT 5000 HZ NSC 29/15 Q1016 NOSIG VIBR 210300Z 00000KT 6000 NSC 10/06 Q1024 VICG 210830Z 34006KT 6000 SKC 30/09 Q1016 NOSIG VIDD 210830Z 05006KT 3500 HZ FEW040 BKN100 30/14 Q1015 NOSIG VIDN 210830Z 28004KT 6000 FEW030 29/15 Q1015 VIDP 210830Z 33006KT 2800 HZ FEW040 SCT100 30/11 Q1015 NOSIG VIGG 210800Z 20003KT 6000 FEW040 28/12 Q1020 VIGR 210600Z 00000KT 4000 HZ NSC 31/19 Q1015 VIJP 210830Z VRB03KT 3000 HZ NSC 32/09 Q1015 NOSIG VIJU 210830Z VRB02KT 6000 FEW025 30/12 Q1016 VIKO 210600Z 36002KT 6000 NSC 33/8 Q1015 NOSIG VILD 210600Z 36002KT 5000 HZ NSC 29/10 Q1017 VILK 210830Z 31004KT 3000 HZ NSC 35/20 Q1013 NOSIG VIPT 210730Z 32004KT 3500 HZ FEW030 BKN100 27/16 Q1015 VISM 210600Z 27003KT 7000 NSC 21/03 Q1024 VISR 210730Z 31005KT 6000 FEW025 19/02 Q1025 NOSIG VLLB 210800Z 02002KT 9999 SCT018 SCT060 BKN080 31/23 Q1010 NOSIG VLLN 210800Z 27004KT 8000 VCRA SCT020 OVC100 27/23 Q1013 VCRA NW NOSIG VLPS 210800Z 09002KT 9999 FEW020 FEW050 BKN200 33/22 Q1011 NOSIG VLSK 210800Z 16004KT 7000 TS SCT016CB BKN100 32/22 Q1012 CB E NOSIG VLVT 210830Z 14012KT 1000 TSRA FEW027CB BKN040 OVC083 23/23 Q1012 CB OVER AD NOSIG VMMC 210830Z 12012KT 9999 FEW025 25/22 Q1015 NOSIG VNKT 210820Z 26006KT 8000 FEW020 SCT030 24/13 Q1019 NOSIG VOAT 210430Z 00000KT 6000 SCT015 29/26 Q1014 NOSIG VOBG 210830Z 07006KT 6000 SCT012 SCT020 27/18 Q1016 VOBL 210830Z 08006KT 9999 SCT015 SCT080 27/16 Q1016 NOSIG VOBM 210800Z 11008KT CAVOK 31/11 Q1017 VOBZ 210830Z 11003KT 5000 HZ FEW020 33/24 Q1011 NOSIG VOCB 210800Z 03003KT 6000 SCT015 30/19 Q1014 NOSIG VOCI 210830Z 21004KT 6000 HZ FEW015 SCT020 32/24 Q1010 NOSIG VOCL 210830Z 29006KT 7000 FEW012 SCT018 FEW025TCU 31/25 Q1010 NOSIG VOCP 210800Z 09010KT 6000 FEW020 34/20 Q1011 VOGO 210700Z 35006KT 6000 FEW100 32/20 Q1012 NOSIG VOHS 210830Z 12006KT 6000 SCT020 34/18 Q1015 NOSIG VOHY 210830Z 14005KT 6000 SCT020 33/20 Q1016 NOSIG VOMD 210830Z 04004KT 6000 FEW018 33/22 Q1011 NOSIG VOML 210830Z 25010KT 8000 FEW015 31/24 Q1011 NOSIG VOMM 210830Z 08007KT 5000 HZ SCT018 FEW025CB BKN080 30/24 Q1011 NOSIG VOND 210700Z 19005KT 6000 FEW100 35/17 Q1016 NOSIG VOPC 210800Z 34005KT 5000 -DZ BKN010 OVC080 26/25 Q1012 NOSIG VORY 210830Z 12008KT 5000 HZ NSC 34/23 Q1011 NOSIG VOSM 210800Z 01006KT 6000 SCT020 BKN100 30/20 Q1012 NOSIG VOTK 210830Z 05006KT 6000 FEW020 SCT025 FEW030CB 33/23 Q1010 NOSIG VOTP 210830Z 06010KT 5000 HZ SCT020 BKN100 31/21 Q1011 VOTR 210830Z 14004KT 2500 -TSRA SCT015 FEW025CB OVC080 28/23 Q1010 TEMPO 2000 TSRA VOTV 210830Z 30007KT 6000 FEW015 SCT080 FEW025CB 30/24 Q1009 NOSIG VOVZ 210800Z 11008KT 4500 HZ FEW018 34/25 Q1011 NOSIG VQPR 210800Z 15013KT 9999 FEW050 22/01 Q1020 VRMM 210800Z 29004KT 9999 SCT018 FEW019CB BKN290 31/24 Q1012 CB NE NOSIG VTBD 210830Z 18005KT 150V240 9999 FEW020 SCT100 29/26 Q1009 NOSIG VTBO 210800Z 16006KT 9999 FEW020CB SCT100 31/25 Q1009 VTBS 210830Z 18015KT 9999 -RA FEW018CB SCT030 BKN080 26/25 Q1009 TEMPO FM0900 17015G25KT 5000 TSRA VTBU 210830Z 16008KT 6000 SH FEW018CB SCT035 BKN100 28/24 Q1009 NOSIG VTCC 210830Z VRB02KT 9999 -RA FEW010 BKN035 24/23 Q1014 NOSIG VTCH 210800Z 13004KT 9999 FEW020 BKN028 24/21 Q1011 RETS NOSIG VTCL 210800Z VRB02KT 7000 -RA FEW010 BKN070 26/24 Q1012 NOSIG VTCN 210800Z 18007KT 140V210 9999 VCSH FEW018CB BKN030 32/20 Q1010 TEMPO 5000 TSRA VTCP 210800Z VRB02KT 9999 SCT025 BKN080 25/24 Q1011 RETS NOSIG VTCT 210800Z VRB01KT 9999 FEW030 29/23 Q1012 NOSIG VTPB 210800Z 05004KT 350V100 9999 FEW020CB BKN030 28/24 Q1010 RETS NOSIG VTPH 210800Z 15008KT 9999 FEW030 29/24 Q1009 NOSIG VTPM 210800Z 35004KT 310V050 9999 FEW015 SCT020 BKN080 26/26 Q1011 NOSIG VTPO 210800Z 11005KT 7000 -TSRA FEW020CB BKN025 26/25 Q1010 RERA TEMPO 5000 TSRA VTPP 210800Z 17006KT 9999 FEW017CB SCT020 31/23 Q1009 TEMPO FM 0835 3000 TSRA VTSB 210800Z 19004KT 140V260 9999 VCSH FEW018CB SCT020 32/25 Q1009 VTSC 210800Z 03007KT 360V070 9999 FEW022 30/24 Q1009 NOSIG VTSE 210800Z 14006KT 9999 FEW020 30/24 Q1009 NOSIG VTSF 210800Z 07008KT 030V100 9999 SCT020 32/26 Q1009 NOSIG VTSG 210800Z 22009KT 190V250 9999 BKN020 32/24 Q1010 NOSIG VTSH 210800Z 07006KT 9999 FEW018CB SCT020 30/25 Q1008 NOSIG VTSK 210400Z 14006KT 9999 FEW030 SCT100 29/22 Q1014 VTSM 210830Z VRB02KT 9999 FEW020 31/25 Q1010 NOSIG VTSP 210830Z 28009KT 250V330 9999 VCSH FEW018TCU SCT020 29/24 Q1011 NOSIG VTSR 210800Z 23008KT 190V270 9999 SCT030 31/24 Q1009 NOSIG VTSS 210830Z 27006KT 9999 VCSH FEW018CB SCT020 30/23 Q1008 NOSIG VTST 210800Z 23007KT 9999 VCSH FEW020 31/23 Q1008 NOSIG VTUD 210800Z 31007KT 280V340 9999 FEW005 FEW018CB SCT030 BKN100 24/24 Q1012 NOSIG VTUI 210800Z 12005KT 080V160 9999 FEW018CB BKN030 32/23 Q1010 NOSIG VTUK 210800Z 09009KT 060V150 4000 FEW017CB SCT020 BKN100 27/24 Q1011 TEMPO TL0830 7000 TSRA VTUL 210800Z 36003KT 280V070 6000 SCT015 SCT025 BKN080 26/24 Q1012 NOSIG VTUO 210800Z 23006KT 200V270 9000 SSCT020 SCT100 28/25 Q1011 VTUQ 210800Z 14004KT 100V180 9999 SCT025 33/25 Q1010 NOSIG VTUU 210800Z 11007KT 080V170 9999 FEW020 SCT060 32/24 Q1010 NOSIG VTUV 210800Z 12008KT 070V140 9000 BKN025 31/24 Q1010 NOSIG VTUW 210800Z 17005KT 130V220 9999 VCSH FEW020CB BKN035 33/24 Q1010 NOSIG VVCI 210830Z 13010KT 9999 FEW021 29/24 Q1012 NOSIG VVCR 210830Z 08009KT 9999 FEW015 31/25 Q1012 NOSIG VVCT 210830Z VRB03KT 9999 BKN015 FEW017TCU 32/24 Q1010 NOSIG TCU/OVER RWY VVDN 210830Z 08008KT 9999 FEW015 31/24 Q1012 NOSIG VVNB 210830Z 16007KT 130V190 9999 FEW010 32/23 Q1011 NOSIG VVPB 210830Z 05010KT 9999 FEW020 SCT060 32/25 Q1012 NOSIG VVPQ 210830Z 11007KT 9999 FEW015 30/24 Q1009 NOSIG VVTS 210830Z 07007KT 8000 -RA SCT013 FEW015CB BKN050 26/25 Q1010 NOSIG RMK CB OVER RWY VYMD 210830Z 36005KT 7000 BKN020 FEW025CB BKN110 31/24 Q1009 VYNT 210800Z 04006KT 6000 DZ BKN015 FEW018CB BKN100 30/25 Q1010 VYYY 210830Z 08004KT 7000 BKN015 FEW020CB OVC100 28/23 Q1009 WAAA 210600Z 26006KT 210V310 8000 -RA FEW018CB SCT019 29/25 Q1010 NOSIG WABB 210600Z 25005KT 9999 FEW018 SCT100 30/24 Q1006 NOSIG WADD 210600Z 16008KT 9999 FEW017 30/23 Q1011 NOSIG WADL 210830Z 18011KT 8000 BKN016 29/22 Q1011 NOSIG WAJJ 210800Z 28007KT 9999 TS FEW012CB SCT013 29/23 Q1006 NOSIG WAMM 210830Z 26004KT 9000 SCT022 29/22 Q1008 NOSIG WARR 210600Z 09008KT 060V120 9999 FEW020 33/19 Q1010 NOSIG WBGB 210800Z 33005KT 250V050 9999 FEW015CB BKN150 30/25 Q1009 WBGG 210830Z 04006KT 010V100 9999 FEW015CB SCT020 BKN300 32/22 Q1009 NOSIG WBGR 210800Z 07005KT 030V110 9999 SCT014 BKN150 27/25 Q1009 WBGS 210800Z 19004KT 150V250 6000 TSRA FEW015CB SCT018 BKN150 29/25 Q1009 WBGY 210800Z 16004KT 080V220 9999 FEW022 BKN300 32/26 Q1008 WBKK 210830Z 29012KT 250V320 9999 FEW014 SCT130 BKN260 28/26 Q1010 TEMPO 5000 RA WBKL 210800Z 26003KT 200V320 9999 FEW012 FEW014CB BKN140 BKN290 28/25 Q1010 WBKS 210800Z VRB02KT 9999 FEW016 BKN270 28/25 Q1009 WBKT 210800Z 26005KT 230V300 9999 FEW014 SCT140 BKN260 29/25 Q1010 WBKW 210800Z 15004KT 110V180 9999 FEW017 BKN140 29/24 Q1008 WBSB 210830Z 31004KT 9999 SCT015 FEW016CB BKN280 29/24 Q1010 NOSIG WIDD 210600Z 10008KT 6000 -TSRA FEW013CB SCT014 30/24 Q1013 WIHH 210600Z 06012KT 6000 SCT021 35/20 Q1010 NOSIG WIII 210830Z 06016KT 8000 FEW021 33/23 Q1009 NOSIG WIMM 210600Z 03010KT 050V130 9999 BKN017 31/24 Q1011 NOSIG WMAU 210800Z 08010KT 050V130 9999 FEW020 SCT140 BKN270 32/28 Q//// QFF1008 WMBA 210800Z VRB02KT 9000 -RA FEW016CB SCT140 BKN270 26/24 Q1009 WMKA 210800Z 26011KT 230V300 9999 FEW017CB BKN300 33/27 Q1009 WMKB 210800Z 28009KT 220V330 9999 FEW017CB SCT140 BKN280 31/26 Q1009 NOSIG WMKC 210800Z VRB02KT 9999 TS FEW017CB BKN280 29/25 Q1009 WMKD 210800Z VRB03KT 9999 FEW017CB BKN280 32/26 Q1009 NOSIG WMKE 210800Z 15005KT 070V240 9999 FEW013 FEW014CB BKN270 31/25 Q1009 WMKI 210800Z 24007KT 200V260 9999 FEW020 SCT140 BKN260 30/24 Q1009 WMKJ 210800Z VRB02KT 5000 -TSRA FEW007 FEW016CB SCT018 BKN260 24/24 Q1010 RETSRA WMKK 210830Z 22004KT 140V280 9999 FEW018 SCT140 BKN280 30/24 Q1009 NOSIG WMKL 210800Z 22005KT 140V270 9999 FEW022 BKN280 31/25 Q1009 WMKM 210800Z 24007KT 150V320 9999 FEW017CB BKN300 30/23 Q1009 WMKN 210800Z VRB02KT 9999 FEW017CB SCT018 BKN300 30/27 Q1009 WMKP 210830Z 24007KT 200V320 9999 FEW017CB SCT140 BKN280 31/25 Q1008 NOSIG WMSA 210800Z 17005KT 120V240 9999 FEW020 SCT140 BKN270 31/22 Q1010 WSAP 210800Z 16005KT 9999 FEW018TCU SCT170 30/25 Q1009 RETS WSSL 210825Z 13004KT 080V170 8000 SCT018TCU BKN150 29/24 Q1009 RETS WSSS 210830Z 15006KT 020V170 9999 FEW018TCU FEW020CB SCT280 31/21 Q1009 NOSIG YABA 210830Z AUTO 28021G32KT 9999 // SCT058 17/07 Q1011 YAMB 210830Z 34004KT CAVOK 18/16 Q1013 INTER 0900/1000 4000 SHRA BKN015 YARG 210800Z AUTO 04015KT 9999 // NCD 36/20 Q1007 YAYE 210800Z AUTO 35007KT 9999 // NCD 34/M05 Q1012 YBAS 210830Z AUTO 17008KT 9999 // NCD 31/M03 Q1014 RF00.0/000.0 PRESENT WEATHER SENSOR US YBBN 210830Z 22004KT 9999 FEW020TCU 18/17 Q1013 YBCG 210830Z AUTO 19007KT 9999 VCTS -RA SCT072 BKN088 OVC105 18/17 Q1013 RERA YBCS 210830Z 02005KT 9999 FEW040 25/20 Q1011 NOSIG YBCV 210800Z AUTO 18009KT 9999 // NCD 30/05 Q1011 YBDV 210800Z AUTO 14009KT //// // ////// 30/M02 Q1012 YBHI 210800Z AUTO 25004KT 210V290 9999 // NCD 25/M04 Q1015 YBHM 210830Z AUTO 04009KT 9999 // NCD 25/19 Q1012 RF00.0/000.0 YBMA 210830Z AUTO 21009KT 9999 // NCD 33/M01 Q1011 RF00.0/000.0 YBMK 210800Z AUTO 03009KT 9999 // NCD 25/20 Q1012 YBNA 210800Z AUTO 35004KT 9999 // SCT071 19/17 Q1013 YBOK 210800Z AUTO 33005KT 9999 // NCD 18/14 Q1014 YBPN 210800Z AUTO 03007KT 9999 // NCD 26/18 Q1012 YBRK 210830Z AUTO 03008KT 9999 // NCD 26/18 Q1011 RF00.0/000.0 YBRM 210830Z AUTO 26013KT 9999 // NCD 30/20 Q1008 RF00.0/000.0 YBTL 210830Z AUTO 06014KT 9999 // NCD 26/20 Q1011 YBUD 210800Z AUTO 36011KT 9999 // NCD 23/18 Q1011 YBWP 210800Z AUTO 28010KT 9999 // NCD 28/22 Q1008 YBWX 210800Z AUTO 24016KT //// // ////// 28/17 Q1011 YCAR 210800Z AUTO 19016KT 9999 // NCD 23/14 Q1016 YCAS 210800Z AUTO 20010KT //// // ////// 18/17 Q1014 YCBA 210800Z AUTO 17009KT 9999 // NCD 23/00 Q1015 YCBB 210800Z AUTO 22009KT 9999 // NCD 20/05 Q1015 YCBP 210800Z AUTO 01012KT 9999 // NCD 30/M20 Q1012 YCCY 210800Z AUTO 22009KT //// // ////// 36/01 Q1009 YCDU 210800Z AUTO 17011KT 9999 // NCD 25/05 Q1011 YCFS 210830Z AUTO 22012KT 9999 // SCT010 SCT012 OVC105 20/18 Q1015 YCIN 210830Z AUTO 21007KT 180V240 9999 // NCD 41/02 Q1005 RF00.0/000.0 YCNM 210800Z AUTO 20009KT //// // ////// 24/03 Q1014 YCOM 210800Z AUTO 17009KT 9999 // NCD 14/04 Q1016 YDBY 210800Z AUTO 32013KT 9999 // NCD 37/18 Q1006 YEML 210800Z AUTO 04007KT 9999 // SCT100 33/13 Q1008 YESP 210800Z AUTO 22016KT 9999 // BKN075 BKN089 21/13 Q1009 YFRT 210830Z AUTO 28015KT 9999 // NCD 34/M04 Q1007 RF00.0/000.0 YGEL 210830Z AUTO 24011KT 9999 // OVC033 20/12 Q1018 RF00.0/000.0 YGFN 210800Z AUTO 24004KT 180V310 9999 // SCT125 19/18 Q1014 YGLA 210830Z AUTO 01007KT 9999 // NCD 24/17 Q1012 RF00.0/000.0 YGTE 210800Z AUTO 26006KT 9999 // SCT055 32/23 Q1009 YGTH 210800Z AUTO 20008KT 9999 // NCD 21/02 Q1015 YHID 210830Z AUTO 10009KT 9999 // NCD 28/23 Q1009 YHUG 210800Z AUTO 21005KT 9999 // NCD 36/02 Q1009 YKRY 210800Z AUTO 16004KT 9999 // BKN075 OVC085 18/14 Q1014 YLEC 210800Z AUTO 30002KT //// // ////// 27/M07 Q1014 YLHI 210830Z AUTO 07008KT 9000 // SCT008 BKN098 21/19 Q1015 YLIS 210800Z AUTO 00000KT 9999 // OVC110 18/16 Q1012 YLRE 210800Z AUTO 21009KT 9999 // NCD 35/M01 Q1009 YMAV 210830Z AUTO 16009KT 9999 // NCD 14/11 Q1017 RF00.0/000.0 YMAY 210800Z AUTO 26007KT 9999 // NCD 20/05 Q1015 YMDG 210800Z AUTO 29005KT 9999 // NCD 21/07 Q1014 YMEK 210800Z AUTO 26011KT 230V290 9999 // NCD 30/M01 Q1014 YMEN 210800Z AUTO 11006KT 9999 // NCD 17/06 Q1016 YMER 210800Z AUTO 01005KT 9999 // NCD 16/09 Q1017 YMHB 210830Z 14005KT CAVOK 14/08 Q1014 YMIA 210800Z AUTO 00000KT 9999 // NCD 24/M01 Q1015 YMLT 210830Z AUTO 33012KT 9999 // NCD 12/08 Q1014 RF00.0/000.0 YMML 210830Z 10007KT 9999 FEW045 16/04 Q1016 NOSIG YMOR 210800Z AUTO 22006KT 9999 // NCD 23/14 Q1013 YMTG 210800Z AUTO 34005KT 9999 // OVC048 17/11 Q1015 YNAR 210800Z AUTO 22008KT //// // ////// 21/01 Q1015 YNBR 210800Z AUTO 32004KT 9999 // NCD 23/13 Q1013 YNTN 210800Z AUTO 31012KT 9999 // NCD 31/22 Q1008 YNWN 210800Z AUTO 22011KT 9999 // NCD 37/M09 Q1011 YOLD 210800Z AUTO 36010KT 9999 // NCD 29/M06 Q1013 YPAD 210830Z 00000KT CAVOK 22/04 Q1014 NOSIG YPBO 210800Z AUTO 24012KT 210V290 9999 // NCD 36/M09 Q1011 YPCC 210830Z AUTO 13018KT //// // SCT022 BKN056 OVC065 27/21 Q1013 YPDN 210830Z 26010KT 9999 FEW030 BKN350 32/23 Q1009 NOSIG YPEA 210830Z AUTO 25016KT 9999 // SCT026 SCT039 SCT059 19/13 Q1016 YPGV 210830Z AUTO 03007KT 9999 // NCD 29/22 Q1010 RF00.0/000.0 YPJT 210830Z AUTO 23018KT 9999 // SCT024 BKN034 BKN044 18/13 Q1016 YPKG 210830Z AUTO 27013KT 9999 // NCD 25/03 Q1012 RF00.0/000.0 YPKU 210830Z AUTO 35011KT 9999 // NCD 31/20 Q1008 RF00.0/000.0 YPLM 210830Z AUTO 22021KT 9999 // NCD 31/11 Q1012 RF00.0/000.0 YPMQ 210830Z AUTO 25005KT 9999 // BKN014 19/18 Q1015 YPPD 210830Z AUTO 30014KT 9999 // NCD 33/12 Q1009 YPPH 210830Z 25016KT 9999 SCT026 19/12 Q1016 NOSIG YPTN 210830Z AUTO 00000KT 9999 // NCD 36/16 Q1008 YPWR 210830Z AUTO 36010KT 9999 // NCD 28/M05 Q1013 RF00.0/000.0 YPXM 210830Z AUTO 13014KT 9999 // ///// Q1013 YRMD 210800Z AUTO 25011KT 9999 // NCD 36/04 Q1008 YSCB 210830Z AUTO 01008KT 9999 // NCD 18/04 Q1016 YSDU 210830Z AUTO 25008KT 9999 // NCD 19/01 Q1015 RF00.0/000.0 YSNF 210830Z AUTO 08013KT 8000 // OVC003 18/18 Q1021 RF00.0/000.0 YSNW 210800Z AUTO 12006KT 9999 // OVC026 16/10 Q1017 YSRI 210830Z AUTO 13006KT 9999 // OVC031 18/13 Q1017 RF00.0/000.2 PRESENT WEATHER SENSOR US YSSY 210830Z 18012KT 9999 BKN043 17/14 Q1017 YSTW 210830Z AUTO 02004KT 9999 // SCT074 BKN120 21/14 Q1014 YSWG 210800Z AUTO 24010KT 9999 // NCD 21/01 Q1015 YTEF 210800Z AUTO 28014KT 9999 // NCD 40/01 Q1009 YTNK 210800Z AUTO 13004KT 9999 // NCD 35/03 Q1011 YTRE 210830Z AUTO 22007KT //// // BKN014 BKN019 BKN025 19/17 Q1015 YWGT 210800Z AUTO 24006KT 9999 // ////// 19/05 Q1015 YWHA 210800Z AUTO 09007KT 9999 // NCD 25/08 Q1012 YWLM 210830Z AUTO 21007KT 9999 // BKN019 OVC024 OVC037 17/15 Q1016 ZBAA 210830Z 14002MPS 4000 HZ NSC 15/06 Q1019 NOSIG ZBHH 210800Z 23004MPS 190V260 6000 SCT033 11/04 Q1019 NOSIG ZBSJ 210800Z 13002MPS 090V160 5000 HZ NSC 20/05 Q1018 NOSIG ZBTJ 210830Z 19003MPS 5000 HZ NSC 17/05 Q1019 NOSIG ZBYN 210830Z 21002MPS 150V250 CAVOK 15/03 Q1020 NOSIG ZGGG 210830Z 14002MPS 110V170 9999 SCT043 28/20 Q1014 NOSIG ZGHA 210800Z 31004MPS 8000 BKN007 OVC050 15/14 Q1019 NOSIG ZGKL 210800Z 06002MPS 030V090 3500 -RA BR FEW005 SCT013 OVC040 18/17 Q1016 BECMG FM0900 2500 ZGNN 210800Z 14002MPS 110V190 9999 BKN046 27/23 Q1013 NOSIG ZGOW 210800Z VRB01MPS 9999 SCT033 27/19 Q1016 NOSIG ZGSZ 210800Z 20004MPS CAVOK 27/22 Q1015 NOSIG ZHCC 210800Z 31002MPS 5000 HZ NSC 17/06 Q1021 NOSIG ZHHH 210800Z VRB01MPS 1400 R04L/1600U R04R/P2000 -DZ BR SCT005 15/14 Q1019 BECMG TL0840 1800 BR ZJHK 210800Z 11005MPS 9999 FEW023 28/24 Q1013 NOSIG ZJSY 210800Z 10006MPS 9999 SCT020 29/24 Q1013 NOSIG ZLLL 210800Z 15002MPS 030V190 9999 SCT020 13/02 Q1022 BECMG TL0910 05007MPS ZLXY 210800Z 22002MPS 160V260 4000 BR NSC 14/09 Q1023 NOSIG ZMUB 210830Z 36008MPS 9999 SCT033 SCT100 05/M04 Q1005 NOSIG RMK QFE647.4 53 MOP ZPPP 210800Z 20008MPS 170V240 9999 FEW026 22/09 Q1022 NOSIG ZSAM 210800Z 11003MPS 080V140 CAVOK 26/17 Q1016 NOSIG ZSFZ 210800Z 03003MPS 360V060 9999 FEW053 23/16 Q1017 NOSIG ZSHC 210830Z 08002MPS 4000 -RA BR BKN016 18/17 Q1019 NOSIG ZSNB 210800Z VRB01MPS 3000 -RA BR SCT009 BKN020 OVC050 18/16 Q1019 BECMG TL0900 2500 ZSNJ 210800Z 10004MPS 9999 -RA SCT040 20/13 Q1019 NOSIG ZSOF 210800Z 07002MPS 9999 SCT033 19/12 Q1019 NOSIG ZSPD 210830Z 11003MPS 9999 BKN040 20/13 Q1020 NOSIG ZSQD 210800Z 18004MPS 9999 FEW040 19/10 Q1021 NOSIG ZSSS 210830Z 08004MPS 9999 BKN030 20/14 Q1019 NOSIG ZUCK 210800Z 30002MPS 9999 FEW014 BKN020 OVC046 16/14 Q1019 NOSIG ZUGY 210800Z 02004MPS 350V050 9999 SCT016 OVC033 16/12 Q1019 NOSIG ZUUU 210800Z 22002MPS 9999 FEW030 SCT050 20/13 Q1019 NOSIG ZWSH 210800Z 10003MPS 020V150 CAVOK 15/M12 Q1026 NOSIG ZWWW 210830Z 05004MPS 010V080 8000 NSC 13/02 Q1028 NOSIG ZYCC 210800Z 21005MPS CAVOK 17/M06 Q1018 NOSIG ZYHB 210800Z 18002MPS 7000 NSC 15/M02 Q1017 NOSIG ZYTL 210830Z 22003MPS 9999 FEW026 17/11 Q1021 NOSIG ZYTX 210830Z 22005MPS 6000 NSC 17/04 Q1019 NOSIG
Current TAF: AGGH 210500Z 2106/2206 36008KT 9999 -SHDZ FEW017 SCT100 PROB40 INTER 2106/2112 5000 SHRA BKN016 T 30 27 25 24 Q 1007 1009 1010 1008 BGSF 210338Z 2103/2119 07008KT 9999 BKN080 TEMPO 2103/2104 6000 -SN BKN020 TEMPO 2104/2111 BKN035 BECMG 2111/2113 FEW060 BIAR 210737Z 2109/2209 22025G40KT 9999 -RA FEW025 BKN037 BKN050 TX05/2109Z TN01/2119Z TEMPO 2109/2111 24035G50KT BECMG 2111/2113 33017KT PROB40 TEMPO 2110/2115 5000 RASN BKN015 OVC025 BECMG 2116/2119 21013KT NSW BECMG 2121/2124 21018G28KT FEW030 SCT050 BECMG 2206/2209 20015KT BIEG 210737Z 2109/2209 22020G35KT 9999 FEW030 SCT050 TX05/2109Z TN01/2205Z PROB40 TEMPO 2109/2112 22035G45KT BECMG 2112/2115 30028G45KT 5000 SHRASN BKN015 BKN025 BECMG 2117/2120 21012KT 9999 NSW FEW035 SCT055 BIKF 210737Z 2109/2209 24022G32KT 9999 -SHRA SCT017 BKN030 TX07/2209Z TN03/2112Z BECMG 2109/2112 25020KT PROB40 TEMPO 2109/2117 5000 SHRASN BKN013CB BECMG 2201/2204 19016KT 3000 RADZ BKN010 OVC015 BECMG 2206/2209 24015KT 9000 -DZ FEW010 BKN015 BIRK 210737Z 2109/2209 23020G30KT 9999 -SHRA FEW022 BKN033 TX07/2209Z TN03/2112Z BECMG 2109/2112 24017KT PROB40 TEMPO 2109/2118 5000 SHRASN BKN015CB BECMG 2202/2205 18012KT 5000 RADZ BKN015 OVC025 BECMG 2206/2209 23012KT 9999 -DZ FEW015 BKN025 BKPR 210530Z 2106/2206 01008KT 8000 SCT012 BKN040 TEMPO 2106/2108 2000 -RA BR TEMPO 2108/2112 4000 RA TEMPO 2203/2206 3000 BR CBBC 210038Z 2101/2105 32005KT P6SM SCT008 TEMPO 2101/2105 BKN008 RMK FCST BASED ON AUTO OBS. NXT FCST WILL BE ISSUED AT 211245Z CWSA 210738Z 2108/2120 18030G40KT 1SM RA OVC020 TEMPO 2108/2112 21/2SM -RA BR OVC050 BECMG 2108/2110 22015G25KT FM211200 31010KT 1SM RA OVC020 TEMPO 2112/2120 21/2SM -RA BR OVC050 BECMG 2113/2115 36010KT RMK FCST BASED ON AUTO OBS. NXT FCST BY 211400Z CWWU 210600Z 2106/2206 18017G32KT P6SM BKN070 OVC190 FM210900 17025G40KT P6SM BKN050 OVC100 TEMPO 2116/2200 6SM -SHRA OVC050 FM220000 15025G40KT 4SM -RA BR OVC010 RMK FCST BASED ON AUTO OBS. NXT FCST BY 211200Z CYAM 210738Z 2108/2120 34008KT P6SM SCT020 OVC030 TEMPO 2108/2118 5SM -SHSN BKN020 OVC030 BECMG 2110/2112 30008KT FM211800 26008KT P6SM BKN040 OVC120 RMK NXT FCST BY 211400Z CYAT 210838Z 2109/2119 32010KT P6SM SCT030 FM211200 32010KT P6SM BKN040 RMK FCST BASED ON AUTO OBS. WND SENSORS INOP.NXT FCST BY 211500Z CYAY 210738Z 2108/2120 24010KT P6SM -RA SCT005 OVC025 TEMPO 2108/2112 21/2SM -RA BR BKN005 FM211200 22010G20KT P6SM -SHRA BKN030 TEMPO 2112/2117 BKN015 PROB30 2112/2114 1/2SM FG VV002 FM211700 23015KT P6SM SCT250 RMK FCST BASED ON AUTO OBS. NXT FCST BY 211400Z CYBC 210738Z 2108/2120 26012G22KT P6SM OVC060 TEMPO 2108/2112 P6SM -SHRA OVC020 FM211200 26012G22KT P6SM BKN030 RMK FCST BASED ON AUTO OBS. NXT FCST BY 211400Z CYBG 210530Z 2106/2206 27012G22KT P6SM OVC030 TEMPO 2106/2120 5SM -SHSN OVC020 BECMG 2109/2111 29018G28KT FM212000 29012KT P6SM SCT040 RMK NXT FCST BY 211200Z CYBK 210547Z 2106/2118 13015G28KT P6SM -SN SCT015 OVC080 TEMPO 2106/2111 2SM -SHSN VV015 FM211100 13018G30KT 3/4SM -SHSN BLSN VV008 TEMPO 2111/2118 3SM -SN BR OVC012 RMK NXT FCST BY 211200Z CYBL 210038Z 2101/2104 34005KT P6SM BKN250 RMK NXT FCST WILL BE ISSUED AT 211445Z CYBR 210538Z 2106/2118 15007KT P6SM SKC BECMG 2108/2110 30010KT FM211200 31015KT P6SM SKC RMK NXT FCST BY 211200Z CYBX 210738Z 2108/2120 23010KT 3/4SM -RA -DZ BR OVC003 TEMPO 2108/2112 3SM -SHRA BR SCT003 OVC050 FM211200 22012KT P6SM BKN030 PROB30 2112/2115 1/2SM -DZ FG VV002 FM211600 23012KT P6SM SCT250 RMK NXT FCST BY 211400Z CYCA 210738Z 2108/2120 22012KT P6SM SCT025 TEMPO 2108/2120 BKN020 RMK FCST BASED ON AUTO OBS. NXT FCST BY 211400Z CYCB 210638Z 2107/2119 07010KT 1SM BR OVC003 TEMPO 2107/2119 3SM BR SCT003 BKN220 BECMG 2110/2112 04012KT RMK NXT FCST BY 211300Z CYCG 210038Z 2101/2104 01008KT P6SM FEW180 RMK NXT FCST WILL BE ISSUED AT 211445Z CYCO 210638Z 2107/2119 36018KT P6SM OVC010 TEMPO 2107/2119 2SM -SNSG BR OVC007 BECMG 2110/2112 32012KT RMK NXT FCST BY 211300Z CYCY 210638Z 2107/2119 28007KT P6SM BKN040 OVC080 TEMPO 2107/2113 5SM -SN BR SCT020 OVC040 FM211300 28005KT P6SM -SN SCT020 BKN050 TEMPO 2113/2119 BKN020 RMK FCST BASED ON AUTO OBS. NXT FCST BY 211300Z CYDB 210538Z 2106/2118 13015G25KT P6SM BKN210 RMK FCST BASED ON AUTO OBS. NXT FCST BY 211200Z CYDF 210738Z 2108/2120 22012G22KT P6SM -RA SCT015 OVC030 TEMPO 2108/2113 21/2SM RA BR OVC015 BECMG 2110/2112 20012G22KT FM211300 23010G20KT P6SM BKN015 BKN050 TEMPO 2113/2118 SCT015 FM211800 26007KT P6SM BKN025 RMK NXT FCST BY 211400Z CYDN 210538Z 2106/2118 FCST NOT AVBL DUE NO OBS RMK FCST BASED ON AUTO OBS. NXT FCST BY 211200Z CYDQ 210038Z 2101/2105 25020G30KT P6SM FEW120 SCT240 BECMG 2102/2104 26012KT RMK FCST BASED ON AUTO OBS. NXT FCST WILL BE ISSUED AT 211245Z CYEG 210838Z 2109/2206 24005KT P6SM SCT240 BECMG 2110/2112 24010KT BECMG 2116/2118 32012KT FM220200 VRB03KT P6SM SKC RMK NXT FCST BY 211200Z CYEK 210547Z 2106/2118 FCST NOT AVBL DUE NO OBS RMK FCST BASED ON AUTO OBS. NXT FCST BY 211200Z CYER 210838Z 2109/2119 26007KT P6SM BKN025 TEMPO 2109/2117 4SM -SN OVC020 BECMG 2111/2113 12005KT FM211700 15012KT 6SM -SN OVC025 TEMPO 2117/2119 2SM -SN OVC015 RMK FCST BASED ON AUTO OBS. NXT FCST BY 211500Z CYEV 210713Z 2107/2119 VRB03KT 1SM -SN BR OVC003 TEMPO 2107/2119 3SM -SN BR OVC010 RMK NXT FCST BY 211300Z CYFB 210808Z 2108/2206 04007KT P6SM -SN BKN008 OVC060 TEMPO 2108/2111 BKN010 OVC060 FM211100 VRB03KT P6SM SCT012 TEMPO 2111/2116 BKN012 FM211800 VRB03KT P6SM FEW015 BECMG 2123/2201 34007KT RMK NXT FCST BY 211200Z CYFC 210539Z 2106/2118 25006KT P6SM SKC PROB30 2106/2110 3/4SM BR FM211200 29008KT P6SM FEW020 BECMG 2113/2115 31012KT RMK FCST BASED ON AUTO OBS. NXT FCST BY 211200Z CYFS 210538Z 2106/2118 33010KT P6SM SCT090 BECMG 2110/2112 VRB03KT RMK NXT FCST BY 211200Z CYGL 210829Z 2108/2206 33010G20KT P6SM OVC030 TEMPO 2108/2114 5SM -SHSN OVC020 FM211500 33007KT P6SM SCT030 BECMG 2123/2201 VRB03KT RMK NXT FCST BY 211200Z CYGP 210738Z 2108/2120 29008KT P6SM SKC FM211500 28010KT P6SM SCT020 TEMPO 2115/2120 BKN020 RMK NXT FCST BY 211400Z CYGQ 210738Z 2108/2120 31007KT P6SM OVC030 TEMPO 2108/2112 3SM -SHSN OVC020 FM211200 20007KT P6SM OVC025 TEMPO 2112/2114 4SM -SHSN OVC020 FM211400 24010G20KT P6SM BKN040 RMK NXT FCST BY 211400Z CYGR 210051Z 2100/2102 25012G22KT P6SM OVC040 TEMPO 2100/2102 4SM -SHRA BR BKN006 OVC015 RMK NXT FCST WILL BE ISSUED AT 211045Z CYGV 210738Z 2108/2120 26015G25KT P6SM SCT240 TEMPO 2108/2120 OVC020 RMK FCST BASED ON AUTO OBS. NXT FCST BY 211400Z CYGW 210538Z 2106/2118 03005KT P6SM OVC030 TEMPO 2106/2118 4SM -SHSN OVC020 BECMG 2113/2115 05010KT RMK FCST BASED ON AUTO OBS. NXT FCST BY 211200Z CYGX 210719Z 2107/2119 19008KT 1SM -SN VV008 TEMPO 2107/2113 3SM -SN OVC020 FM211300 21008KT P6SM BKN006 OVC012 TEMPO 2113/2117 3SM -SN SCT006 OVC012 FM211700 22008KT P6SM SCT007 BKN030 RMK NXT FCST BY 211300Z CYHD 210738Z 2108/2120 21007KT P6SM BKN100 BECMG 2111/2113 21010G20KT FM211400 22010G20KT P6SM BKN070 FM211800 24010G20KT P6SM SCT060 RMK FCST BASED ON AUTO OBS. NXT FCST BY 211400Z CYHK 210812Z 2108/2118 14010KT P6SM SCT008 OVC070 TEMPO 2108/2112 3SM -SN BR BKN008 PROB30 2108/2112 1SM -SN FM211200 10008KT P6SM FEW015 BKN060 TEMPO 2112/2118 BKN015 RMK FCST BASED ON AUTO OBS. NXT FCST BY 211200Z CYHM 210613Z 2106/2206 35012G22KT P6SM BKN020 BKN040 TEMPO 2106/2107 FEW025 SCT040 FM210700 32010G20KT P6SM BKN040 TEMPO 2107/2116 BKN020 FM211600 29010G20KT P6SM BKN040 TEMPO 2120/2124 P6SM -SHRA BECMG 2122/2124 27010KT FM220000 27010KT P6SM BKN030 BKN120 BECMG 2202/2204 23010KT RMK NXT FCST BY 211200Z CYHU 210540Z 2106/2206 30007KT P6SM SCT030 TEMPO 2106/2112 BKN030 BECMG 2108/2110 28012KT FM211600 28015G25KT P6SM BKN040 BECMG 2123/2201 28012G22KT FM220300 28012G22KT P6SM SCT040 SCT160 RMK FCST BASED ON AUTO OBS. NXT FCST BY 211200Z CYHY 210609Z 2106/2118 32015G25KT P6SM BKN080 TEMPO 2106/2109 P6SM -RA BKN050 FM210900 30012KT P6SM BKN040 TEMPO 2109/2112 P6SM -RASN BKN020 FM211200 31015G25KT P6SM BKN025 TEMPO 2112/2118 5SM -SN OVC015 RMK NXT FCST BY 211200Z CYHZ 210838Z 2109/2206 VRB03KT P6SM SCT020 TEMPO 2109/2112 BKN020 PROB30 2109/2112 1/2SM FG VV001 FM211200 36010KT P6SM SCT040 BECMG 2116/2118 34012KT FM220000 34012KT P6SM SCT020 TEMPO 2200/2206 P6SM -SHRA BKN020 RMK NXT FCST BY 211200Z CYIO 210638Z 2107/2119 16010KT P6SM BKN040 TEMPO 2107/2119 5SM -SN BR BKN020 RMK FCST BASED ON AUTO OBS. NXT FCST BY 211300Z CYIV 210638Z 2107/2119 22012G22KT P6SM SCT020 OVC060 TEMPO 2107/2111 3SM -SN BKN020 OVC050 FM211100 21012G22KT P6SM SCT008 OVC025 TEMPO 2111/2119 3SM -SN BKN008 OVC015 BECMG 2113/2115 24010KT RMK NXT FCST BY 211300Z CYJT 210539Z 2106/2206 24015G30KT 1SM +RA BR OVC006 TEMPO 2106/2109 4SM RA BR OVC012 BECMG 2106/2108 24010G20KT FM210900 25010KT 1SM -SHRA -DZ BR OVC004 TEMPO 2109/2113 6SM BR OVC010 FM211300 25007KT P6SM BKN005 BECMG 2115/2116 BKN030 FM211800 29010KT P6SM BKN080 FM220400 30010G20KT P6SM BKN020 RMK NXT FCST BY 211200Z CYKA 210638Z 2107/2119 VRB03KT P6SM SCT260 PROB30 2112/2116 11/2SM BR SCT003 RMK NXT FCST BY 211300Z CYKF 210738Z 2108/2120 34012G22KT P6SM BKN040 TEMPO 2108/2112 BKN020 FM211900 28010G20KT P6SM BKN050 TEMPO 2119/2120 P6SM -SHRA BKN020 RMK FCST BASED ON AUTO OBS. NXT FCST BY 211400Z CYKL 210738Z 2108/2120 03008G18KT 2SM -SN OVC020 TEMPO 2108/2120 6SM -SN OVC025 RMK FCST BASED ON AUTO OBS. NXT FCST BY 211400Z CYKZ 210542Z 2106/2118 34012G22KT P6SM BKN040 FM210900 34010KT P6SM BKN030 TEMPO 2110/2115 P6SM -SHSN FM211500 33010G20KT P6SM BKN030 RMK NXT FCST BY 211200Z CYLL 210538Z 2106/2118 28010KT P6SM SKC BECMG 2115/2117 27015KT RMK FCST BASED ON AUTO OBS. NXT FCST BY 211200Z CYLW 210638Z 2107/2119 35005KT P6SM SCT240 PROB30 2112/2116 2SM BR RMK FCST BASED ON AUTO OBS. NXT FCST BY 211300Z CYMA 210538Z 2106/2118 VRB03KT P6SM FEW110 FM211400 02008KT P6SM BKN060 RMK NXT FCST BY 211200Z CYMH 210838Z 2109/2121 22008KT P6SM -RA OVC040 TEMPO 2109/2112 OVC020 FM211200 20012KT P6SM BKN090 BECMG 2113/2115 FEW090 RMK FCST BASED ON AUTO OBS. NXT FCST BY 211400Z CYMM 210638Z 2107/2119 24014KT P6SM SCT120 RMK FCST BASED ON AUTO OBS. NXT FCST BY 211300Z CYMO 210826Z 2108/2118 29010KT P6SM SCT020 OVC030 TEMPO 2108/2118 4SM -SHSN OVC020 RMK FCST BASED ON AUTO OBS. NXT FCST BY 211200Z CYMX 210540Z 2106/2206 VRB03KT P6SM SCT030 TEMPO 2106/2112 BKN030 BECMG 2106/2108 29005KT FM211600 28012G22KT P6SM BKN040 BECMG 2122/2124 28010KT FM220300 28008KT P6SM FEW030 SCT160 RMK NXT FCST BY 211200Z CYNA 210738Z 2108/2120 26012KT P6SM OVC025 TEMPO 2108/2120 OVC020 BECMG 2112/2114 25015G25KT RMK FCST BASED ON AUTO OBS. NXT FCST BY 211400Z CYNE 210638Z 2107/2119 20008KT P6SM SCT005 BKN040 TEMPO 2107/2109 3SM -SNRA BKN005 OVC030 FM210900 23008KT P6SM SCT008 BKN040 TEMPO 2109/2111 21/2SM -SN BKN008 OVC030 FM211100 26010KT P6SM FEW040 SCT200 RMK FCST BASED ON AUTO OBS. NXT FCST BY 211300Z CYOC 210008Z 2100/2101 06012G22KT P6SM SCT012 OVC025 TEMPO 2100/2101 3SM -SN BKN009 RMK NXT FCST WILL BE ISSUED AT 211445Z CYOD 210530Z 2106/2206 24008KT P6SM SKC BECMG 2115/2117 28012G22KT BECMG 2201/2203 30005KT RMK NXT FCST BY 211200Z CYOJ 210638Z 2107/2119 30010G20KT P6SM SKC BECMG 2110/2112 32008KT RMK FCST BASED ON AUTO OBS. NXT FCST BY 211300Z CYOW 210839Z 2109/2206 30010KT P6SM FEW030 TEMPO 2109/2112 BKN040 FM211600 29015G25KT P6SM BKN040 BECMG 2122/2124 29012KT RMK NXT FCST BY 211200Z CYPA 210638Z 2107/2119 26005KT P6SM SKC BECMG 2107/2109 28010KT FM211500 28012G22KT P6SM SKC RMK NXT FCST BY 211300Z CYPE 210638Z 2107/2119 27015G25KT P6SM SKC BECMG 2110/2112 26012KT RMK NXT FCST BY 211300Z CYPH 210538Z 2106/2118 03012KT P6SM SKC BECMG 2108/2110 03007KT FM211400 08007KT P6SM SKC RMK FCST BASED ON AUTO OBS. NXT FCST BY 211200Z CYPR 210638Z 2107/2119 VRB03KT P6SM SKC FM210900 09005KT P6SM FEW040 SCT160 RMK FCST BASED ON AUTO OBS. NXT FCST BY 211300Z CYPX 210547Z 2106/2118 06005KT P6SM BKN030 TEMPO 2106/2118 BKN015 RMK FCST BASED ON AUTO OBS. NXT FCST BY 211200Z CYQB 210538Z 2106/2206 26008KT P6SM FEW080 TEMPO 2106/2114 BKN080 FM211400 29010G20KT P6SM SCT040 FM220000 29010KT P6SM -SHSN BKN040 PROB30 2202/2206 2SM -SHSN BKN015 OVC040 RMK NXT FCST BY 211200Z CYQD 210638Z 2107/2119 19006KT P6SM FEW060 SCT120 BECMG 2107/2109 27012KT FM211500 27015G25KT P6SM SCT080 RMK FCST BASED ON AUTO OBS. NXT FCST BY 211300Z CYQF 210538Z 2106/2118 VRB03KT P6SM FEW240 BECMG 2116/2118 32008KT RMK NXT FCST BY 211200Z CYQG 210542Z 2106/2206 34015G30KT P6SM BKN040 BECMG 2107/2109 32010KT FM211600 29010G20KT P6SM BKN025 BECMG 2118/2120 25010G20KT BECMG 2121/2123 24008KT FM220300 23006KT P6SM FEW030 BKN090 RMK FCST BASED ON AUTO OBS. NXT FCST BY 211200Z CYQH 210538Z 2106/2118 VRB03KT P6SM FEW070 FM211400 VRB03KT P6SM BKN070 RMK NXT FCST BY 211200Z CYQI 210539Z 2106/2118 26008KT P6SM FEW070 PROB30 2106/2109 1SM BR BKN004 FM210900 36010KT P6SM FEW020 FEW100 FM211200 36012G22KT P6SM BKN060 BECMG 2116/2118 34015G25KT RMK NXT FCST BY 211200Z CYQK 210738Z 2108/2120 21010KT P6SM BKN120 FM211500 24010G20KT P6SM SCT050 BECMG 2117/2119 27010KT RMK NXT FCST BY 211400Z CYQL 210538Z 2106/2118 VRB03KT P6SM SKC TEMPO 2106/2108 14010G20KT RMK FCST BASED ON AUTO OBS. NXT FCST BY 211200Z CYQM 210539Z 2106/2206 25008KT P6SM FEW010 BKN170 PROB30 2106/2113 1SM BR FM211300 24006KT P6SM FEW030 BECMG 2113/2115 29008KT FM212100 29010KT P6SM SCT030 FM220300 26010KT P6SM FEW020 RMK NXT FCST BY 211200Z CYQQ 210539Z 2106/2206 32006KT P6SM BKN250 PROB30 2109/2116 1/2SM FG VV002 FM211800 VRB03KT P6SM BKN200 RMK NXT FCST BY 211200Z CYQR 210538Z 2106/2206 30010KT P6SM SKC FM211600 29015G25KT P6SM SKC FM212000 30020G30KT P6SM SKC BECMG 2123/2201 31012KT RMK NXT FCST BY 211200Z CYQT 210738Z 2108/2120 23005KT P6SM OVC040 FM211700 24010KT P6SM BKN070 RMK NXT FCST BY 211400Z CYQU 210638Z 2107/2119 24008KT P6SM SKC RMK NXT FCST BY 211300Z CYQW 210538Z 2106/2118 29010KT P6SM SKC FM211400 29015G25KT P6SM SKC RMK FCST BASED ON AUTO OBS. NXT FCST BY 211200Z CYQX 210539Z 2106/2206 18030G40KT P6SM -SHRA SCT012 BKN025 TEMPO 2106/2114 5SM -RA BR OVC012 FM211400 19025G35KT 3SM RA BR SCT007 OVC010 FM212100 18020G30KT 1SM RA BR OVC006 BECMG 2200/2202 26008KT FM220400 30015G25KT 1/4SM -SHRA -DZ FG VV002 RMK NXT FCST BY 211200Z CYQY 210843Z 2108/2118 VRB03KT P6SM OVC070 TEMPO 2108/2115 P6SM -RA SCT008 OVC020 FM211500 03010KT 5SM -RA -DZ BR OVC005 TEMPO 2115/2118 P6SM NSW SCT005 OVC025 RMK NXT FCST BY 211200Z CYQZ 210038Z 2101/2106 VRB03KT P6SM FEW140 SCT240 RMK FCST BASED ON AUTO OBS. NXT FCST WILL BE ISSUED AT 211145Z CYRB 210547Z 2106/2206 36005KT P6SM -SN OVC040 TEMPO 2106/2112 5SM -SN BR SCT008 OVC020 FM211200 01006KT P6SM -SN SCT012 OVC030 TEMPO 2112/2124 3SM -SN BKN008 OVC015 PROB30 2112/2124 2SM -SN BR FM220000 33010KT 3SM -SN BR BKN008 OVC025 TEMPO 2200/2206 P6SM -SN FEW008 BKN030 OVC070 PROB30 2200/2206 11/2SM -SN BR RMK NXT FCST BY 211200Z CYRJ 202312Z 2023/2102 27010G20KT P6SM SCT020 OVC050 TEMPO 2023/2102 2SM -RASN BR OVC015 RMK NXT FCST WILL BE ISSUED AT 211145Z CYRQ 210738Z 2108/2120 24005KT P6SM SCT040 TEMPO 2108/2114 BKN040 BECMG 2110/2112 30008KT FM211400 30010G20KT P6SM FEW040 FM211800 30012G22KT P6SM BKN040 RMK FCST BASED ON AUTO OBS. NXT FCST BY 211400Z CYRT 210547Z 2106/2118 17012KT P6SM -SN BKN010 TEMPO 2106/2108 BKN007 FM210800 16017G27KT P6SM -SN BKN012 OVC120 TEMPO 2108/2118 21/2SM -SN BR OVC009 PROB40 2115/2118 11/2SM -SN BR RMK NXT FCST BY 211200Z CYSB 210738Z 2108/2120 33012G22KT P6SM FEW020 BKN030 TEMPO 2108/2114 5SM -SHSN BKN020 OVC030 BECMG 2110/2112 31010KT FM211400 29008KT P6SM BKN030 RMK NXT FCST BY 211400Z CYSF 210538Z 2106/2118 VRB03KT P6SM FEW070 BKN160 TEMPO 2106/2110 4SM -SHRA BR BKN070 FM211000 27010KT P6SM SCT020 BKN080 TEMPO 2110/2114 2SM -SHRASN BR BKN020 FM211400 28010KT 6SM -RASN OVC025 TEMPO 2114/2118 11/2SM -SHSN OVC012 RMK FCST BASED ON AUTO OBS. NXT FCST BY 211200Z CYSJ 210539Z 2106/2118 VRB03KT P6SM SCT060 PROB30 2106/2109 1SM BR BKN008 FM210900 34008KT P6SM FEW060 RMK NXT FCST BY 211200Z CYSM 210538Z 2106/2118 27010KT P6SM FEW070 SCT130 BKN240 TEMPO 2106/2110 BKN070 FM211000 28010KT P6SM BKN030 TEMPO 2110/2112 P6SM -RASN OVC020 FM211200 30015G25KT P6SM BKN025 TEMPO 2112/2118 5SM -SN OVC015 RMK NXT FCST BY 211200Z CYTE 210638Z 2107/2119 VRB03KT P6SM SKC FM211400 VRB03KT P6SM BKN040 RMK FCST BASED ON AUTO OBS. NXT FCST BY 211300Z CYTH 210638Z 2107/2119 21008KT P6SM SCT015 OVC050 TEMPO 2107/2111 3SM -SN SCT008 OVC015 FM211100 22006KT P6SM SCT060 TEMPO 2111/2119 BKN050 BECMG 2114/2116 28008G18KT RMK NXT FCST BY 211300Z CYTL 210738Z 2108/2120 24005KT P6SM SCT015 TEMPO 2108/2111 BKN015 FM211100 21010KT P6SM BKN150 FM211300 20012KT 6SM -SN OVC030 TEMPO 2113/2118 3SM -SN OVC020 RMK FCST BASED ON AUTO OBS. NXT FCST BY 211400Z CYTR 210530Z 2106/2206 36005KT P6SM SCT040 FM210700 34008KT P6SM BKN040 FM211400 31010KT P6SM SCT040 BECMG 2114/2116 31012G22KT BECMG 2121/2123 28005KT FM220300 VRB03KT P6SM BKN030 OVC120 RMK NXT FCST BY 211200Z CYTS 210738Z 2108/2120 32010G20KT P6SM -SHSN SCT012 OVC025 TEMPO 2108/2109 2SM -FZDZ -SN SCT008 BKN012 OVC025 FM210900 31008KT P6SM -SHSN SCT015 OVC030 TEMPO 2109/2114 2SM -SHSN SCT008 BKN015 OVC030 FM211400 29008KT P6SM FEW020 BKN030 TEMPO 2114/2118 3SM -SHSN BKN020 OVC030 FM211800 27008KT P6SM BKN040 OVC140 TEMPO 2118/2120 5SM -SHSN BKN020 OVC040 RMK NXT FCST BY 211400Z CYTZ 210738Z 2108/2208 35012G22KT P6SM OVC050 TEMPO 2109/2114 P6SM -SHSN BKN020 OVC050 FM211500 32010G20KT P6SM BKN030 FM211700 28010G20KT P6SM BKN040 RMK FCST BASED ON AUTO OBS. NXT FCST BY 211400Z CYUB 210131Z 2101/2105 03008KT 6SM BR SCT004 OVC070 TEMPO 2101/2105 2SM BR OVC004 RMK NXT FCST WILL BE ISSUED AT 211445Z CYUL 210839Z 2109/2206 27006KT P6SM BKN040 TEMPO 2109/2112 BKN020 BECMG 2110/2112 30010G20KT FM211600 28015G25KT P6SM BKN040 BECMG 2123/2201 28012G22KT FM220300 28012G22KT P6SM SCT040 SCT160 RMK NXT FCST BY 211200Z CYUX 210638Z 2107/2119 31012KT P6SM -SN OVC020 TEMPO 2107/2119 OVC025 RMK FCST BASED ON AUTO OBS. NXT FCST BY 211300Z CYUY 210538Z 2106/2118 32010G20KT P6SM -SHSN SCT020 OVC040 TEMPO 2106/2116 3SM -SHSN BKN020 OVC040 FM211600 29010G20KT P6SM FEW020 BKN040 TEMPO 2116/2118 5SM -SHSN BKN020 OVC040 RMK NXT FCST BY 211200Z CYVC 210638Z 2107/2119 24008KT P6SM FEW240 FM210900 26012KT P6SM SCT080 FM211700 28015G25KT P6SM FEW100 RMK NXT FCST BY 211300Z CYVM 210638Z 2107/2119 19008KT P6SM SKC BECMG 2107/2109 SCT040 BKN100 FM211200 VRB03KT P6SM BKN030 OVC100 TEMPO 2115/2119 BKN020 PROB30 2115/2119 4SM -SHSN BKN015 RMK FCST BASED ON AUTO OBS. NXT FCST BY 211300Z CYVO 210538Z 2106/2118 32012G22KT P6SM -SHSN SCT020 OVC040 TEMPO 2106/2118 3SM -SHSN BKN020 OVC040 PROB30 2106/2118 2SM -SHSN RMK FCST BASED ON AUTO OBS. NXT FCST BY 211200Z CYVP 210538Z 2106/2118 04010G20KT P6SM BKN050 FM211100 03015G25KT P6SM -SN OVC040 TEMPO 2111/2118 3SM -SN OVC020 BECMG 2115/2117 03020G30KT RMK NXT FCST BY 211200Z CYVQ 210835Z 2108/2118 VRB03KT P6SM SCT005 BKN030 OVC070 TEMPO 2108/2116 3SM -SN BR BKN005 OVC020 PROB30 2112/2116 2SM BR BKN003 FM211600 12008KT P6SM FEW012 SCT060 RMK NXT FCST BY 211200Z CYVR 210838Z 2109/2212 VRB03KT P6SM FEW005 SCT240 PROB30 2109/2112 1/2SM FG BKN005 FM211200 VRB03KT P6SM VCFG SCT003 BKN240 TEMPO 2112/2118 1/4SM FG BKN003 FM211800 VRB03KT P6SM FEW005 SCT260 TEMPO 2118/2120 2SM BR SCT005 FM212000 27008KT P6SM SCT260 FM220600 VRB03KT P6SM FEW012 RMK NXT FCST BY 211200Z CYVT 210038Z 2101/2104 19006KT P6SM FEW050 SCT090 BKN250 TEMPO 2101/2102 P6SM VCTS SCT050CB SCT090 BKN250 FM210200 28012KT P6SM FEW090 SCT250 RMK NXT FCST WILL BE ISSUED AT 211345Z CYVV 202206Z 2022/2023 33010G20KT P6SM BKN020 TEMPO 2022/2023 BKN030 RMK NXT FCST WILL BE ISSUED AT 211045Z CYWA 210530Z 2106/2118 32008KT P6SM BKN030 TEMPO 2106/2118 5SM -SHSNRA BKN020 OVC030 BECMG 2114/2116 31010G20KT RMK FCST BASED ON AUTO OBS. NXT FCST BY 211200Z CYWE 210030Z 2100/2101 29007KT 6SM -SN SCT006 OVC012 TEMPO 2100/2101 1SM BR OVC006 RMK FCST BASED ON AUTO OBS. NXT FCST WILL BE ISSUED AT 211245Z CYWG 210538Z 2106/2206 19015KT P6SM BKN120 FM211000 20010KT P6SM SCT120 SCT200 BECMG 2113/2115 26012KT FM211800 28012KT P6SM SKC RMK NXT FCST BY 211200Z CYWJ 202225Z 2022/2023 31015G25KT 5SM -DZ -SN SCT015 OVC030 TEMPO 2022/2023 1SM -SN BKN015 OVC025 RMK NXT FCST WILL BE ISSUED AT 221415Z CYWK 210738Z 2108/2120 20008KT 1SM -SN BKN008 OVC015 TEMPO 2108/2113 3SM -SN SCT008 OVC015 FM211300 20005KT 21/2SM -SN OVC015 TEMPO 2113/2118 6SM -SN OVC025 FM211800 30010KT 6SM -SN BKN015 RMK FCST BASED ON AUTO OBS. NXT FCST BY 211400Z CYWL 210638Z 2107/2119 VRB03KT P6SM FEW240 RMK NXT FCST BY 211300Z CYXC 210638Z 2107/2119 VRB03KT P6SM FEW240 RMK NXT FCST BY 211300Z CYXE 210538Z 2106/2206 28006KT P6SM SKC BECMG 2106/2108 28010KT FM211200 28012KT P6SM SKC FM211800 29018G28KT P6SM SKC FM220200 31012KT P6SM SKC RMK NXT FCST BY 211200Z CYXH 210538Z 2106/2118 VRB03KT P6SM SKC RMK FCST BASED ON AUTO OBS. NXT FCST BY 211200Z CYXJ 210638Z 2107/2119 24010KT P6SM FEW220 RMK NXT FCST BY 211300Z CYXL 210738Z 2108/2120 23007KT P6SM BKN150 BECMG 2111/2113 20010G20KT FM211400 20010G20KT P6SM BKN070 BECMG 2116/2118 25010KT RMK NXT FCST BY 211400Z CYXS 210638Z 2107/2119 VRB03KT P6SM SKC RMK FCST BASED ON AUTO OBS. NXT FCST BY 211300Z CYXT 210638Z 2107/2119 35005KT P6SM SCT020 TEMPO 2107/2110 FEW008 BKN020 FM211000 36010KT P6SM BKN020 TEMPO 2110/2118 21/2SM BR BKN008 PROB30 2110/2118 1/2SM FG BKN002 RMK NXT FCST BY 211300Z CYXU 210542Z 2106/2206 32010G20KT P6SM BKN040 TEMPO 2106/2108 SCT060 BECMG 2108/2110 34010KT FM211500 28008KT P6SM BKN030 TEMPO 2115/2116 P6SM -SHSNRA FM211600 28008KT P6SM -SHRA BKN020 TEMPO 2116/2119 P6SM NSW BKN025 FM211900 28010G20KT P6SM BKN030 BECMG 2121/2123 25006KT RMK NXT FCST BY 211200Z CYXX 210829Z 2108/2206 VRB03KT P6SM VCFG SKC TEMPO 2108/2112 1/2SM FG VV002 FM211200 VRB03KT 1/4SM FG VV001 BECMG 2117/2119 P6SM NSW SCT003 FM211900 VRB03KT P6SM FEW005 SCT240 BECMG 2121/2123 22005KT FM220400 VRB03KT P6SM VCFG SKC RMK NXT FCST BY 211200Z CYXY 210538Z 2106/2118 17015KT P6SM FEW070 BKN240 FM211600 16018G28KT P6SM BKN040 RMK NXT FCST BY 211200Z CYYB 210738Z 2108/2120 33012G22KT P6SM SCT020 BKN040 TEMPO 2108/2116 5SM -SHSN BKN020 OVC040 BECMG 2110/2112 32010KT FM211600 29008KT P6SM BKN040 OVC180 RMK FCST BASED ON AUTO OBS. NXT FCST BY 211400Z CYYC 210838Z 2109/2206 VRB03KT P6SM FEW240 BECMG 2118/2120 04008KT RMK NXT FCST BY 211200Z CYYD 210038Z 2101/2106 34005KT P6SM FEW070 RMK NXT FCST WILL BE ISSUED AT 211345Z CYYE 210638Z 2107/2119 24008KT P6SM SKC FM211800 VRB03KT P6SM SCT160 RMK NXT FCST BY 211300Z CYYF 210638Z 2107/2119 35005KT P6SM FEW260 RMK NXT FCST BY 211300Z CYYG 210539Z 2106/2118 25006KT P6SM SCT090 FM210900 VRB03KT P6SM FEW060 BECMG 2113/2115 33008KT RMK NXT FCST BY 211200Z CYYH 210638Z 2106/2118 VRB03KT P6SM -SN OVC010 TEMPO 2106/2110 1SM -SN OVC006 FM211000 06008KT P6SM -SN SCT012 OVC040 TEMPO 2110/2118 3SM -SN BR OVC012 RMK NXT FCST BY 211200Z CYYJ 210538Z 2106/2206 VRB03KT P6SM FEW004 TEMPO 2106/2109 1SM BR SCT004 FM210900 VRB03KT P6SM VCFG FEW002 SCT004 TEMPO 2109/2118 1/2SM FG VV002 FM211800 27005KT P6SM FEW005 SCT012 FM212100 06005KT P6SM SCT250 RMK NXT FCST BY 211200Z CYYL 210638Z 2107/2119 22008KT P6SM SCT060 TEMPO 2107/2112 BKN050 BECMG 2108/2110 28010KT FM211200 28012KT P6SM SCT020 BKN060 TEMPO 2112/2115 4SM -SN BKN020 OVC050 FM211500 29015G25KT P6SM SCT012 OVC030 TEMPO 2115/2119 4SM -SHRASN SCT006 OVC012 RMK FCST BASED ON AUTO OBS. NXT FCST BY 211300Z CYYN 210538Z 2106/2118 28010KT P6SM SKC BECMG 2110/2112 23010KT RMK FCST BASED ON AUTO OBS. NXT FCST BY 211200Z CYYQ 210538Z 2106/2206 16015KT P6SM SCT025 BKN100 TEMPO 2106/2109 5SM -SN BKN020 OVC100 FM210900 16015KT P6SM SCT007 OVC030 TEMPO 2109/2112 3SM -SN OVC006 FM211200 16015KT 2SM -SN BR OVC004 TEMPO 2112/2123 P6SM NSW OVC010 FM212300 15012KT 3/4SM -SN BR OVC004 TEMPO 2123/2206 P6SM NSW OVC008 PROB30 2123/2206 3/4SM -FZDZ BR OVC002 RMK NXT FCST BY 211200Z CYYR 210530Z 2106/2206 18008KT P6SM SCT030 BKN060 TEMPO 2106/2112 FEW030 SCT060 FM211500 23015G25KT P6SM BKN030 TEMPO 2115/2120 P6SM -SHRASN BECMG 2120/2122 27005KT RMK NXT FCST BY 211200Z CYYT 210539Z 2106/2206 19030G45KT 5SM -SHRA BR BKN008 OVC012 TEMPO 2106/2112 P6SM NSW SCT008 BKN015 FM211200 18030G45KT P6SM OVC005 FM211600 19030G45KT P6SM -SHRA SCT020 OVC025 FM220200 18035G50KT 3SM -RA -DZ BR OVC007 RMK NXT FCST BY 211200Z CYYU 210738Z 2108/2120 30010KT P6SM -SHSN SCT015 OVC030 TEMPO 2108/2114 2SM -SHSN BKN008 OVC015 FM211400 29008KT P6SM FEW020 BKN030 TEMPO 2114/2116 5SM -SHSN BKN020 OVC030 FM211600 27008KT P6SM BKN030 OVC140 RMK NXT FCST BY 211400Z CYYY 210738Z 2108/2120 24015G28KT P6SM SCT030 TEMPO 2108/2112 BKN030 BECMG 2110/2112 27015G25KT FM211200 27015G25KT P6SM BKN030 BECMG 2116/2118 28018G28KT RMK NXT FCST BY 211400Z CYYZ 210839Z 2109/2212 34010G20KT P6SM BKN040 TEMPO 2109/2114 P6SM -SHSN BKN020 FM211500 33010G20KT P6SM BKN030 FM211700 32010G20KT P6SM BKN040 FM212200 29010G20KT P6SM BKN030 TEMPO 2122/2124 P6SM -SHRA FM220300 25008KT P6SM BKN030 RMK NXT FCST BY 211200Z CYZF 210538Z 2106/2206 28010G20KT P6SM -RASN FEW008 OVC020 TEMPO 2106/2110 21/2SM -SHSN BKN008 OVC012 FM211000 33014G24KT P6SM -SN FEW006 OVC012 TEMPO 2110/2118 P6SM NSW BKN025 FM211800 35012KT P6SM SCT020 BECMG 2120/2122 36006KT BECMG 2202/2204 09006KT RMK NXT FCST BY 211200Z CYZH 210638Z 2107/2119 27015G25KT P6SM SKC RMK FCST BASED ON AUTO OBS. NXT FCST BY 211300Z CYZP 210638Z 2107/2119 24005KT P6SM SCT150 BKN220 BECMG 2116/2118 14010KT RMK FCST BASED ON AUTO OBS. NXT FCST BY 211300Z CYZR 210738Z 2108/2120 32022G32KT P6SM BKN040 OVC060 FM211200 32015G25KT P6SM BKN040 TEMPO 2112/2118 SCT040 BECMG 2112/2114 30012KT RMK FCST BASED ON AUTO OBS. NXT FCST BY 211400Z CYZS 210638Z 2107/2119 36008KT P6SM -SN OVC020 TEMPO 2107/2119 OVC025 RMK NXT FCST BY 211300Z CYZT 210804Z 2108/2119 VRB03KT P6SM OVC004 TEMPO 2108/2116 1/2SM FG VV002 FM211600 10005KT P6SM SCT003 BKN006 TEMPO 2116/2119 SCT008 BKN015 RMK NXT FCST BY 211300Z CYZV 210539Z 2106/2206 23012G22KT P6SM SCT020 TEMPO 2106/2110 BKN020 BECMG 2106/2108 26012G22KT FM211500 27012G22KT P6SM BKN030 FM220300 28010G20KT P6SM -SHSN OVC030 RMK NXT FCST BY 211200Z CYZW 202124Z 2021/2024 25020G30KT P6SM FEW040 SCT080 TEMPO 2021/2024 SCT040 BKN080 RMK NXT FCST WILL BE ISSUED AT 211745Z CYZX 210835Z 2108/2206 VRB03KT 1/4SM FG VV003 TEMPO 2108/2111 2SM BR VCFG SCT004 FM211100 35005KT P6SM SCT012 FM211400 34010KT P6SM SCT025 BKN060 FM212200 32012G22KT P6SM BKN030 RMK NXT FCST BY 211200Z CYZY 210638Z 2107/2109 VRB03KT P6SM SKC RMK FCST BASED ON AUTO OBS. NXT FCST WILL BE ISSUED AT 211445Z CZBF 210838Z 2109/2121 VRB03KT P6SM SKC FM211800 28012G22KT P6SM BKN030 RMK FCST BASED ON AUTO OBS. NXT FCST BY 211400Z CZUM 210738Z 2108/2120 12005KT 5SM -RA BR BKN015 OVC030 TEMPO 2108/2112 P6SM -SN SCT015 BKN030 BECMG 2108/2110 14010KT FM211200 24010G20KT P6SM -SHSN BKN030 TEMPO 2112/2120 5SM -SN OVC020 RMK FCST BASED ON AUTO OBS. NXT FCST BY 211400Z CZVL 210538Z 2106/2118 30005KT P6SM SKC BECMG 2116/2118 30012KT RMK FCST BASED ON AUTO OBS. NXT FCST BY 211200Z DAAE 210500Z 2106/2206 23009KT 9999 FEW016 SCT020 PROB30 TEMPO 2106/2109 2000 BR BKN010 BECMG 2109/2112 02012KT PROB40 TEMPO 2112/2118 FEW026TCU BECMG 2120/2122 23008KT DAAG 210500Z 2106/2206 VRB02KT 8000 FEW016 TEMPO 2106/2108 3000 BR BECMG 2108/2111 04010KT BECMG 2118/2121 VRB02KT DAAJ 210500Z 2106/2206 04010KT CAVOK DAAS 210500Z 2106/2206 03008KT 9999 FEW026 PROB40 TEMPO 2106/2109 2000 BR BKN010 PROB30 TEMPO 2101/2107 0500 FG BECMG 2112/2115 30011KT PROB40 TEMPO 2112/2118 FEW026CB BECMG 2120/2123 VRB02KT DAAT 210500Z 2106/2206 04010KT 8000 FEW046 SCT100 BECMG 2110/2114 14010KT PROB40 TEMPO 2113/2118 FEW040CB BECMG 2120/2123 04010KT DAAV 210500Z 2106/2206 34008KT 9999 FEW023 PROB40 TEMPO 2106/2109 2000 BR BKN010 BECMG 2109/2112 06012KT PROB40 TEMPO 2112/2118 FEW026TCU BECMG 2120/2123 VRB02KT DABB 210500Z 2106/2206 19008KT 4000 BR FEW010 SCT016 TEMPO 2106/2110 1500 BR BKN010 PROB40 TEMPO 2106/2109 0150 FG BKN003 BECMG 2110/2112 03012KT 9999 FEW020 PROB40 TEMPO 2112/2118 FEW023TCU BECMG 2118/2121 27008KT PROB30 TEMPO 2200/2206 2000 BR BKN010 DABC 210500Z 2106/2206 17008KT 9999 FEW026 PROB40 TEMPO 2106/2109 2000 BR BKN010 PROB30 TEMPO 2106/2108 0500 FG BECMG 2109/2112 30011KT PROB40 TEMPO 2112/2118 FEW023TCU BECMG 2118/2121 05007KT TEMPO 2200/2206 2000 BR BKN010 DABS 210500Z 2106/2206 16008KT 9999 FEW040 SCT100 PROB40 TEMPO 2106/2109 2000 BR BKN010 PROB30 TEMPO 2106/2108 0500 FG BECMG 2109/2111 33011KT PROB40 TEMPO 2112/2118 FEW023TCU BECMG 2118/2121 VRB02KT PROB40 TEMPO 2200/2206 2000 BR BKN010 DABT 210500Z 2106/2206 22008KT 9999 FEW023 TEMPO 2106/2109 1500 BR BKN010 PROB30 TEMPO 2106/2108 0300 FG BECMG 2109/2111 33011KT PROB40 TEMPO 2112/2118 FEW026CB BECMG 2120/2123 VRB02KT PROB40 TEMPO 2200/2206 2000 BR BKN010 DAOB 210500Z 2106/2206 16010KT CAVOK BECMG 2111/2114 24010KT BECMG 2120/2123 VRB02KT DAOI 210500Z 2106/2206 VRB02KT CAVOK BECMG 2109/2112 32010KT 9999 FEW026 BECMG 2118/2120 VRB02KT DAON 210500Z 2106/2206 VRB02KT CAVOK BECMG 2110/2112 32010KT BECMG 2118/2120 VRB02KT DAOO 210500Z 2106/2206 VRB02KT 9999 FEW026 BECMG 2109/2112 36010KT BECMG 2118/2120 VRB02KT DAUA 210500Z 2106/2206 VRB02KT 9999 FEW046 SCT100 PROB30 TEMPO 2106/2112 FEW040TCU BECMG 2110/2113 34010KT DAUB 210500Z 2106/2206 34008KT 9999 SCT040 BECMG 2109/2112 23011KT PROB40 TEMPO 2112/2118 FEW030TCU BECMG 2118/2121 35008KT DAUG 210500Z 2106/2206 06010KT 9999 FEW046 SCT100 PROB30 TEMPO 2106/2112 FEW040CB BECMG 2112/2115 14010KT DAUH 210500Z 2106/2206 06010KT 9999 FEW040 SCT100 PROB30 TEMPO 2106/2112 FEW040TCU PROB30 TEMPO 2112/2115 5000 HZ FEW040TCU DAUI 210500Z 2106/2206 32010KT CAVOK DAUZ 210500Z 2106/2206 04008KT 8000 NSC BECMG 2116/2119 35010KT DBBB 210327Z 2104/2206 22010KT 9999 SCT013 TEMPO 2103/2110 3000 TSRA BKN010 FEW023CB TEMPO 2110/2114 TS BKN012 FEW023CB DFFD 210500Z 2106/2212 20008KT CAVOK PROB30 TEMPO 2116/2124 4000 TSRA SCT020 FEW033CB DFOO 210500Z 2106/2206 18008KT 9999 FEW026 TEMPO 2112/2122 4000 TSRA SCT016 SCT030CB DGAA 210500Z 2106/2212 26008KT 9999 FEW028 PROB40 2106/2109 5000 BR BKN010 BECMG 2111/2113 19015KT DIAP 210500Z 2106/2212 20006KT 9999 SCT012 TEMPO 2118/2124 4000 RA BKN012 TEMPO 2200/2206 4000 RA BKN012 DIBK 210500Z 2106/2206 26004KT 9999 SCT013 TEMPO 2106/2108 4000 BR PROB30 TEMPO 2116/2122 TS BKN013 FEW025CB DIYO 210500Z 2106/2206 26004KT 9999 SCT013 TEMPO 2106/2108 2000 BR PROB30 TEMPO 2116/2122 TS BKN013 FEW025CB DNAA 210340Z 2106/2212 05003KT 5000 BR FEW008 BECMG 2108/2110 23010KT 9999 NSW BKN011 PROB30 TEMPO 2115/2120 08017G30KT 5000 -TSRA BKN008 FEW020CB 2120/2122 15005KT 9999 FEW009 DNCA 210345Z 2106/2212 00000KT 6000 BKN008 TEMPO 2107/2112 22006KT 5000 -TSRA BKN008 FEW018CB BECMG 2113/2115 24005KT BKN011 FEW021CB TEMPO 2115/2119 TS DNEN 210345Z 2106/2212 VRB02KT 8000 SCT009 BECMG 2111/2113 25010KT BKN012 TEMPO 2117/2121 VRB02KT TS SCT009 FEW020CB DNIL 210340Z 2106/2212 12004KT 9999 FEW009 BECMG 2108/2110 21010KT BKN012 PROB30 TEMPO 2115/2120 07017G29KT -TSRA BKN008 FEW020CB BECMG 2120/2122 VRB02KT FEW009 DNIM 210345Z 2106/2212 00000KT 7000 SCT008 TEMPO 2106/2108 5000 -RA BR BECMG 2108/2110 21010KT BKN011 FEW020CB TEMPO 2113/2118 5000 -TSRA BKN008 FEW018CB BECMG 2119/2121 VRB02KT SCT008 DNJO 210340Z 2106/2212 04007KT CAVOK TEMPO 2110/2117 17011KT SCT011 DNKA 210340Z 2106/2212 VRB02KT CAVOK BECMG 2109/2111 25010KT BKN012 PROB30 TEMPO 2115/2120 TS SCT013 FEW021CB BECMG 2120/2122 14005KT CAVOK DNKN 210330Z 2106/2212 28005KT CAV0K TEMPO 2112/2117 07009KT DNMA 210330Z 2106/2212 28008KT CAVOK DNMN 210340Z 2106/2212 VRB02KT CAVOK BECMG 2109/2112 22012KT BKN012 PROB30 TEMPO 2116/2121 06018G32KT 5000 -TSRA BKN009 FEW020CB BECMG 2121/2123 07005KT CAVOK DNPO 210345Z 2106/2212 00000KT 5000 BR BKN008 TEMPO 2108/2111 VRB02KT 5000 -TSRA BKN008 FEW018CB BECMG 2111/2113 23010KT BKN010 FEW020CB TEMPO 2114/2118 TS BECMG 2119/2121 VRB02KT SCT009 DNSO 210330Z 2106/2212 25008KT CAVOK DNYO 210330Z 2106/2212 22006KT CAVOK DRRN 210500Z 2106/2212 06008KT 8000 NSC TEMPO 2108/2112 12020KT 3500 BLDU TEMPO 2117/2120 4000 DU DRZA 210500Z 2106/2206 08012KT 6000 NSC TEMPO 2107/2113 12030KT 2000 BLDU DRZR 210500Z 2106/2206 06010KT 8000 NSC TEMPO 2108/2113 10025KT 2500 BLDU DTMB 210500Z 2106/2206 01004KT 6000 SCT016 PROB30 25P /2108 4000 BR PROB30 TEMPO 2111/2117 -RA FEW023CB BECMG 2201/2203 29010KT PROB40 TEMPO 2201/2206 -TSRA FEW030CB DTNH 210500Z 2106/2206 34004KT 8000 SCT020 PROB30 2106/2108 4000 BR BECMG 2203/2205 DTTA 210500Z 2106/2206 VRB02KT 9999 FEW026 BECMG 2202/2204 25010KT DTTJ 210500Z 2106/2206 06004KT 9999 SCT020 PROB40 TEMPO 2108/2114 -RA FEW023TCU DTTX 210500Z 2106/2206 36010KT 9999 FEW020 PROB30 TEMPO 2108/2114 -RA FEW023TCU BECMG 2115/2117 08008KT DTTZ 210500Z 2106/2206 04005KT 9999 FEW030 BECMG 2115/2117 27010KT DXNG 210500Z 2106/2206 VRB05KT 9999 SCT007 PROB30 TEMPO 2114/2121 TS BKN008 FEW016CB DXXX 210500Z 2106/2212 26005KT 9999 BKN011 FEW020CB TEMPO 2106/2116 TS PROB40 2109/2115 4000 TSRA BECMG 2108/2110 20010KT BECMG 2116/2118 26005KT SCT010 EBBR 210510Z 2106/2212 15003KT 4000 BR NSC PROB30 TEMPO 2106/2108 1200 BCFG BECMG 2108/2110 9999 NSW BECMG 2203/2205 36010KT BKN008 TEMPO 2204/2208 2000 DZ BKN003 BECMG 2208/2210 SCT030 EBCI 210510Z 2106/2212 15003KT 2500 BR NSC PROB30 TEMPO 2106/2108 1200 BCFG BECMG 2108/2110 9999 NSW BECMG 2203/2205 36010KT BKN008 TEMPO 2204/2210 1400 DZ BKN002 BECMG 2210/2212 BKN015 EBLG 210510Z 2106/2212 15003KT 2500 BR NSC PROB30 TEMPO 2106/2108 1200 BCFG BECMG 2108/2110 9999 NSW BECMG 2206/2208 02010KT BKN008 TEMPO 2207/2212 1400 DZ BKN002 EBOS 210510Z 2106/2212 16004KT 4000 BR NSC PROB30 TEMPO 2106/2108 1200 BCFG BECMG 2108/2110 9999 NSW BECMG 2123/2201 01015KT BKN012 TEMPO 2203/2208 3500 -RADZ BKN006 BECMG 2207/2209 SCT030 EDDB 210710Z 2107/2206 21004KT 9999 FEW025= EGKK 210712Z 2107/2212 VRB03KT CAVOK PROB40 2107/2109 0300 FG VV/// BECMG 2117/2120 34010KT BKN025 TEMPO 2120/2201 6000 -RADZ BKN012 PROB30 TEMPO 2122/2201 RA BKN008 BECMG 2201/2203 NSC EDDC 210500Z 2106/2206 18004KT 9999 SCT025 TEMPO 2106/2109 BKN014 EDDE 210500Z 2106/2206 24006KT CAVOK BECMG 2108/2110 36004KT BECMG 2119/2121 21006KT EDDF 210500Z 2106/2212 07005KT CAVOK BECMG 2208/2211 01006KT BKN030 EDDG 210500Z 2106/2206 VRB03KT 4000 BR SCT035 BECMG 2106/2109 9999 TEMPO 2110/2115 21005KT TEMPO 2203/2206 3000 -RA BECMG 2204/2206 BKN011 EDDH 210500Z 2106/2212 VRB03KT 9999 SCT035 TEMPO 2106/2108 4500 BR TEMPO 2106/2110 BKN008 BECMG 2107/2109 22007KT BECMG 2203/2205 34008KT BKN012 TEMPO 2203/2206 3500 -RADZ BKN007 BECMG 2206/2208 SCT030 EDDK 210548Z 2106/2212 VRB03KT 3000 BR NSC BECMG 2106/2108 9999 EDDL 210500Z 2106/2212 VRB03KT CAVOK TEMPO 2108/2115 16006KT BECMG 2205/2207 36006KT PROB30 TEMPO 2207/2209 3500 -RA EDDM 210500Z 2106/2212 36003KT 9999 SCT035 BECMG 2109/2112 06007KT BECMG 2117/2120 06002KT TEMPO 2200/2207 2000 BCFG EDDN 210500Z 2106/2206 VRB02KT CAVOK TEMPO 2110/2116 07005KT EDDP 210500Z 2106/2206 16004KT 9999 FEW035 BECMG 2119/2121 22006KT EDDR 210500Z 2106/2206 06008KT CAVOK EDDS 210741Z 2107/2206 07003KT 2000 BR SCT002 BECMG 2107/2109 07008KT 6000 BECMG 2117/2119 VRB03KT PROB30 TEMPO 2202/2206 1500 BCFG EDDT 210500Z 2106/2206 21004KT 1500 BCFG FEW025 TEMPO 2106/2108 0200 FG BKN001 BECMG 2108/2110 9999 EDDV 210500Z 2106/2206 22004KT 9999 SCT035 TEMPO 2106/2108 4000 BR TEMPO 2106/2109 BKN012 PROB30 TEMPO 2106/2109 BKN008 TEMPO 2205/2206 4500 -RADZ BKN012 EDDW 210500Z 2106/2206 23002KT 9999 SCT035 TEMPO 2106/2108 4000 BR BECMG 2107/2109 22007KT BECMG 2203/2205 36006KT BKN012 TEMPO 2203/2206 3500 -RADZ BKN007 EDFH 210500Z 2106/2206 11007KT CAVOK EDLP 210500Z 2106/2206 VRB03KT CAVOK TEMPO 2106/2108 17007KT EDLV 210500Z 2106/2206 VRB03KT 4000 BR NSC TEMPO 2106/2108 2800 BR BECMG 2108/2111 CAVOK TEMPO 2110/2115 21005KT BECMG 2203/2206 3000 -RA BKN011 EDLW 210500Z 2106/2206 17008KT CAVOK BECMG 2106/2110 23004KT EDNY 210500Z 2106/2206 04004KT 3000 BR BKN005 BECMG 2106/2109 7000 SCT005 TEMPO 2109/2118 02009KT EDSB 210500Z 2106/2206 04007KT CAVOK PROB30 TEMPO 2106/2109 2000 BCFG EEEI 210510Z 2106/2206 21010KT 9999 BKN012 TEMPO 2106/2107 VRB02KT 0300 FG VV001 TEMPO 2111/2118 21010G20KT TEMPO 2120/2206 22014G30KT TEMPO 2202/2206 3000 SHRA BKN006 SCT020CB EETN 210827Z 2108/2206 VRB02KT 2000 BR BCFG BKN003 TEMPO 2108/2110 0500 FG VV001 BECMG 2110/2112 21013KT 9999 NSW SCT012 SCT020 BECMG 2115/2117 BKN015 TEMPO 2115/2206 22018G30KT TEMPO 2200/2206 3000 SHRA BKN006 SCT015CB OVC020 EFHK 210830Z 2109/2209 20013KT 9999 FEW012 BKN200 TEMPO 2115/2203 22016G28KT BECMG 2121/2123 6000 -DZ BKN008 PROB30 TEMPO 2204/2208 4000 -RADZ BKN004 EFJY 210825Z 2109/2209 21012KT CAVOK BECMG 2112/2114 22015G25KT BECMG 2118/2120 4000 BR BKN004 TEMPO 2123/2206 1200 -RADZ BKN002 BECMG 2206/2208 27010KT CAVOK EFKU 210838Z 2109/2209 20011KT 9999 BKN015 BECMG 2121/2123 OVC006 TEMPO 2123/2203 2000 RA BKN004 BECMG 2203/2205 28014KT 2000 RA OVC004 BECMG 2206/2208 9999 NSW SCT007 EFOU 210838Z 2109/2209 20011KT 9999 FEW015 OVC040 TEMPO 2109/2113 20015G25KT 6000 RA BKN008 BECMG 2113/2115 BKN008 TEMPO 2115/2207 4000 RADZ SCT008 BKN030 BECMG 2207/2209 FEW012 BKN040 EFRO 210838Z 2109/2209 21020KT 9999 -RA FEW009 BKN015 TEMPO 2109/2112 21023G33KT 4000 RA BKN008 BECMG 2112/2114 4000 -DZ BKN005 TEMPO 2114/2122 1300 BR BKN002 BECMG 2122/2124 22010KT 9999 NSW FEW004 PROB30 2203/2205 0500 BCFG SCT001 EFTP 210825Z 2109/2209 20010KT CAVOK TEMPO 2113/2203 21014G24KT BECMG 2118/2120 4000 BR BKN004 TEMPO 2121/2206 1200 -RADZ BKN002 BECMG 2206/2208 28010KT FEW010 BKN030 EFTU 210830Z 2109/2209 20012KT 9999 SCT015 BKN200 TEMPO 2112/2203 21016G26KT BECMG 2116/2118 6000 -DZ BKN008 PROB30 TEMPO 2119/2204 4000 RA BKN004 BECMG 2204/2206 9999 FEW012 EFVA 210825Z 2109/2209 18013KT 9999 -RA FEW009 BKN070 TEMPO 2109/2112 RA BKN012 BECMG 2112/2114 24013KT BKN008 TEMPO 2117/2124 4000 RADZ BKN004 BECMG 2200/2202 30010KT SCT010 BKN030 EGAA 210732Z 2107/2206 22010KT 9999 SCT008 BKN045 TEMPO 2107/2111 4000 RADZ BKN005 PROB30 TEMPO 2107/2109 BKN002 BECMG 2108/2111 29010KT PROB40 TEMPO 2111/2114 7000 -RA BKN014 EGBB 210800Z 2108/2206 23005KT CAVOK PROB30 TEMPO 2108/2111 8000 BECMG 2112/2115 BKN020 TEMPO 2115/2118 8000 -RA BKN012 BECMG 2118/2121 33010KT FEW040 EGCC 210456Z 2106/2212 19004KT 9999 SCT020 PROB30 TEMPO 2106/2109 4000 BR BKN005 TEMPO 2109/2116 7000 -RA BKN012 PROB30 TEMPO 2112/2116 4000 RADZ BKN005 BECMG 2113/2116 33010KT BECMG 2200/2203 VRB03KT EGCN 210456Z 2106/2206 20005KT 9999 FEW030 PROB30 TEMPO 2106/2109 4000 BR BKN003 TEMPO 2109/2118 BKN012 PROB30 TEMPO 2109/2116 7000 -RA BKN008 BECMG 2116/2119 31010KT EGFF 210539Z 2106/2206 34004KT 9999 FEW008 SCT022 TEMPO 2106/2110 4000 BR BKN008 BECMG 2110/2112 27010KT TEMPO 2115/2121 6000 RA FEW004 BKN008 BECMG 2118/2121 01008KT EGGD 210706Z 2107/2206 24008KT 9999 FEW045 PROB40 TEMPO 2107/2110 0200 FG BKN001 TEMPO 2115/2121 7000 -RA BKN012 PROB40 TEMPO 2116/2118 BKN004 BECMG 2117/2120 32010KT PROB30 TEMPO 2118/2120 1200 BR BKN001 EGGP 210456Z 2106/2206 18005KT 9999 SCT020 TEMPO 2106/2115 7000 -RA BKN012 PROB30 TEMPO 2111/2115 4000 RADZ BKN007 BECMG 2112/2115 33012KT BECMG 2203/2206 VRB03KT EGGW 210827Z 2108/2206 23006KT 9999 FEW040 TEMPO 2108/2112 6000 PROB30 TEMPO 2108/2110 4000 BR BKN004 BECMG 2116/2119 34012KT TEMPO 2117/2122 7000 -RA BKN010 PROB40 TEMPO 2119/2122 3000 BR BKN005 EGKK 210712Z 2107/2212 VRB03KT CAVOK PROB40 2107/2109 0300 FG VV/// BECMG 2117/2120 34010KT BKN025 TEMPO 2120/2201 6000 -RADZ BKN012 PROB30 TEMPO 2122/2201 RA BKN008 BECMG 2201/2203 NSC EGLL 210739Z 2107/2212 25004KT 0300 FG VV/// BECMG 2107/2110 6000 NSW FEW010 BECMG 2110/2112 9999 TEMPO 2119/2123 7000 -RA BKN012 BECMG 2120/2123 01010KT EGNM 210453Z 2106/2206 26012KT 9999 BKN008 PROB40 TEMPO 2106/2115 7000 -RA SCT008 BECMG 2115/2118 32006KT FEW012 EGNT 210456Z 2106/2206 21005KT 9999 SCT018 TEMPO 2106/2113 7000 -RA FEW008 BKN012 BECMG 2111/2114 28010KT EGNX 210459Z 2106/2206 25007KT CAVOK TEMPO 2106/2109 3000 BR PROB30 2106/2109 0300 FG VV/// BECMG 2112/2115 FEW012 BKN022 TEMPO 2115/2118 8000 -RA BKN012 BECMG 2118/2121 32010KT CAVOK EGPD 210740Z 2107/2206 32008KT 9999 FEW035 TEMPO 2107/2112 25015G25KT 2500 RADZ BKN008 EGPF 210455Z 2106/2206 24009KT 9999 SCT015 TEMPO 2106/2113 23015G25KT 4000 RA BKN008 EGPH 210455Z 2106/2206 24012KT 9999 FEW020 TEMPO 2106/2113 25015G25KT 6000 RA BKN009 EGPK 210455Z 2106/2206 25009KT 9999 SCT025 TEMPO 2106/2113 26015G25KT 7000 RA BKN008 EGQS 210758Z 2107/2124 30015G25KT 9999 FEW020 SCT045 BECMG 2107/2109 24012KT TEMPO 2107/2112 24015G25KT PROB40 TEMPO 2107/2109 4000 RADZ SCT008 TEMPO 2109/2118 SCT023 PROB30 TEMPO 2109/2118 6000 -SHRA BECMG 2112/2114 27017G28KT EGSS 210725Z 2107/2212 23006KT 0300 FG VV/// BECMG 2108/2110 2000 BR BKN003 BECMG 2110/2113 9999 NSW SCT020 BECMG 2116/2119 34012KT TEMPO 2118/2122 7000 -RA BKN012 PROB40 TEMPO 2119/2122 4000 BR BKN006 EGUN 210411Z 2104/2210 VRB06KT 9999 SKC QNH3030INS BECMG 2118/2119 28009KT 8000 -RA BKN015 QNH3034INS BECMG 2122/2123 35009KT 9999 NSW BKN020 QNH3047INS TX16/2113Z TN07/2203Z EGVN 210733Z 2109/2209 27008KT 0200 FG VV/// BECMG 2109/2112 9999 NSW FEW015 PROB30 TEMPO 2112/2115 SCT018 TEMPO 2115/2121 BKN020 PROB30 TEMPO 2117/2120 -RA SCT012 BECMG 2118/2120 35015G25KT BECMG 2122/2201 36012KT EGWU 210743Z 2109/2203 27005KT 6000 HZ FEW015 TEMPO 2109/2110 2000 BR SCT005 BECMG 2109/2112 9999 NSW TEMPO 2115/2117 SCT022 BECMG 2117/2120 SCT012 BKN020 PROB40 TEMPO 2120/2122 -RA SCT006 BECMG 2120/2123 FEW025 EGXC 210746Z 2109/2203 23007KT 6000 BR FEW010 BECMG 2109/2111 9999 NSW PROB30 TEMPO 2109/2112 SCT010 BECMG 2112/2115 BKN020 PROB30 TEMPO 2116/2118 7000 -RADZ BKN014 BECMG 2118/2121 CAVOK EGXW 210738Z 2109/2203 24010KT 9999 FEW045 PROB30 TEMPO 2109/2112 SCT012 BECMG 2112/2115 BKN018 PROB30 TEMPO 2115/2118 7000 -RADZ BKN012 BECMG 2118/2120 CAVOK EGYP 210742Z 2109/2203 21010KT 9999 BKN008 TEMPO 2109/2110 5000 -RADZ BKN005 PROB40 TEMPO 2109/2110 2000 RADZ BKN002 PROB30 TEMPO 2110/2114 6000 -RA BECMG 2111/2114 17015KT BKN015 BECMG 2114/2117 SCT025 BECMG 2121/2124 20015KT BKN020 PROB30 TEMPO 2200/2203 3000 -SHRASN EHAM 210450Z 2106/2212 21008KT 9999 SCT030 PROB30 2106/2108 4000 BR BECMG 2121/2124 31005KT 6000 -RADZ SCT008 BKN012 PROB30 TEMPO 2122/2201 4000 -DZRA BKN008 BECMG 2200/2203 35010KT 9999 NSW BKN025 EHBK 210457Z 2106/2212 VRB03KT 7000 SCT045 PROB30 TEMPO 2106/2108 4500 BR BECMG 2108/2111 CAVOK BECMG 2122/2201 7000 BECMG 2203/2205 4500 -DZRA BKN008 TEMPO 2204/2208 2000 DZRA BKN004 PROB30 TEMPO 2205/2208 1200 DZ BKN002 BECMG 2208/2210 35010KT 9999 NSW SCT025 EHEH 210510Z 2106/2212 VRB03KT 5000 BR BKN040 PROB30 TEMPO 2106/2107 2000 BR MIFG BECMG 2107/2109 18004KT 8000 NSW BECMG 2200/2202 SCT015 OVC020 TEMPO 2202/2205 2000 RADZ FEW003 SCT005 OVC007 BECMG 2205/2207 34008KT FEW020 SCT035 EHGG 210456Z 2106/2212 22008KT 6000 BKN035 PROB30 TEMPO 2106/2110 3500 BR BKN014 BECMG 2107/2109 9999 BECMG 2120/2122 7000 -RADZ BKN012 PROB40 TEMPO 2122/2201 4000 -DZRA BKN008 BECMG 2201/2203 9999 NSW SCT025 BECMG 2208/2210 34012KT EHLW 210032Z 2101/2113 19005KT 3000 BR BKN045 BECMG 2107/2109 6000 NSW BECMG 2110/2112 21010G20KT 9999 FEW012 BKN018 BKN045 EHRD 210450Z 2106/2212 21008KT 9999 SCT030 PROB30 2106/2108 4000 BR BECMG 2121/2124 31005KT 6000 -RADZ SCT008 BKN012 PROB30 TEMPO 2122/2201 4000 -DZRA BKN008 BECMG 2200/2203 35010KT 9999 NSW BKN025 EICK 210500Z 2106/2206 21009KT 3000 -DZ BR BKN002 BECMG 2106/2108 24008KT TEMPO 2106/2108 0300 FG BKN001 BECMG 2108/2110 34013KT 9999 NSW SCT015 BKN030 TEMPO 2110/2116 34016G26KT BECMG 2122/2201 32007KT EIDW 210500Z 2106/2206 23008KT 9999 FEW015 BKN030 TEMPO 2106/2110 BKN013 PROB40 TEMPO 2106/2109 5000 -RADZ BKN007 BECMG 2109/2111 31012KT PROB40 TEMPO 2111/2116 30015G27KT BECMG 2121/2124 27008KT EIKN 210829Z 2108/2206 31012KT 0500 -DZ FG OVC002 BECMG 2108/2110 9999 NSW SCT020 BECMG 2121/2124 28007KT EINN 210500Z 2106/2206 16007KT 9999 FEW007 BKN018 BECMG 2106/2108 31012KT TEMPO 2106/2108 4000 -DZ BR BKN007 PROB40 TEMPO 2108/2111 31015G25KT BKN012 BECMG 2121/2124 VRB03KT EKAH 210631Z 2106/2206 22010KT 9999 BKN008 TEMPO 2106/2119 BKN015 TEMPO 2119/2122 2500 RADZ BR BKN004 BECMG 2122/2124 30010KT BKN020 EKBI 210626Z 2106/2206 23008KT 9999 BKN015 BECMG 2106/2108 BKN006 TEMPO 2108/2118 BKN015 TEMPO 2118/2121 2500 RADZ BR BKN004 BECMG 2121/2123 30010KT BKN020 EKCH 210503Z 2106/2206 23008KT 9999 SCT025 BECMG 2117/2119 BKN012 TEMPO 2119/2203 4000 BR -RADZ BKN008 BECMG 2203/2205 30012KT SCT020 EKKA 210822Z 2109/2206 20008KT 9999 SCT010 BKN025 TEMPO 2109/2117 5000 BR BKN008 TEMPO 2117/2124 3000 -RADZ BR BKN005 BECMG 2121/2124 29008KT EKSP 210822Z 2109/2206 20008KT 9999 SCT015 BKN025 TEMPO 2109/2117 5000 BR BKN010 TEMPO 2117/2201 3000 BR BKN008 BECMG 2123/2201 29008KT EKYT 210823Z 2109/2206 21012KT 9999 SCT010 BKN025 TEMPO 2109/2117 5000 BR BKN008 TEMPO 2117/2123 3000 BR -RADZ BKN005 BECMG 2120/2123 28012KT ELLX 210500Z 2106/2212 05010KT CAVOK PROB40 TEMPO 2106/2108 3000 BR NSC BECMG 2203/2206 9999 BKN040 TEMPO 2209/2212 -RA OVC020 ENAN 2108/2206 21020G32KT 9999 -SHRA FEW012 BKN025 TEMPO 2108/2124 21035G45KT 4000 SHRAGS BKN012CB PROB30 TEMPO 2108/2110 TS ENBO 210500Z 2106/2206 22030G40KT 9999 -SHRA FEW020 BKN040 TEMPO 2106/2112 23040G55KT TEMPO 2106/2206 SHRAGS BKN020CB PROB30 TEMPO 2106/2112 TS ENBR 210500Z 2106/2206 15015KT 5000 -RA SCT002 OVC010 PROB30 2106/2109 0500 DZ FG VV001 TEMPO 2106/2112 1500 RADZ BR OVC002 BECMG 2106/2109 22012KT BECMG 2109/2112 28008KT SCT008 BKN015 TEMPO 2112/2117 4000 RA BR BKN008 TEMPO 2117/2124 28018G28KT SHRA BKN012 SCT020CB ENDU 210500Z 2106/2206 21008KT 9999 -SHRA FEW020 BKN030 PROB40 TEMPO 2106/2118 22018G28KT SHRAGS SCT020CB ENGC 210500Z 2106/2206 26025KT 9999 FEW020 SCT040 TEMPO 2106/2113 RA BKN012 BECMG 2112/2114 27035KT TEMPO 2113/2201 SHRA SCT012 BKN020CB BECMG 2117/2120 27045KT ENGM 210500Z 2106/2206 19008KT 9999 FEW008 SCT100 TEMPO 2106/2119 BKN009 TEMPO 2118/2120 21015G30KT ENNA 210500Z 2106/2206 18015KT 9999 BKN040 TEMPO 2106/2124 20025KT TEMPO 2106/2109 4000 RA BKN005 ENOA 210500Z 2106/2206 26025KT 9999 -RA SCT012 BKN020 TEMPO 2106/2114 4000 RADZ BR BKN008 BECMG 2112/2114 27035KT TEMPO 2114/2201 SHRA SCT012 BKN020CB BECMG 2118/2121 27045KT ENOL 210500Z 2106/2206 24020KT 9999 -RA FEW014 BKN030 TEMPO 2106/2206 25030G40KT TEMPO 2109/2118 4000 RA BKN014 TEMPO 2118/2206 SHRA BKN014CB ENRY 210500Z 2106/2206 19008KT 9999 BKN008 TEMPO 2106/2119 3000 BR BKN004 BECMG 2110/2112 20018KT TEMPO 2114/2119 20020G30KT BECMG 2119/2121 26010KT ENSB 210500Z 2106/2206 12020KT 9999 -RA FEW020 BKN040 TEMPO 2106/2124 12025G40KT ENTC 210500Z 2106/2206 21018KT 9999 -SHRA FEW012 BKN025 TEMPO 2106/2124 21020G30KT TEMPO 2106/2206 SHRA SCT015CB ENTO 210500Z 2106/2206 23008KT 9999 SCT010 PROB40 TEMPO 2106/2118 3000 BR BKN004 BECMG 2109/2111 20018KT TEMPO 2115/2119 20020G30KT BECMG 2118/2120 27010KT ENVA 210500Z 2106/2206 13008KT 9999 -RA FEW020 BKN030 BECMG 2106/2109 25012KT TEMPO 2112/2119 RA BKN012 TEMPO 2119/2206 25018G28KT 4000 SHRA BR BKN008 SCT015CB ENZV 210500Z 2106/2206 17012KT 5000 -RA BR SCT002 OVC008 TEMPO 2106/2115 1500 DZRA BR OVC002 PROB30 2106/2114 0500 DZ FG VV001 BECMG 2110/2113 23015KT BECMG 2115/2117 29015KT SCT012 BKN015 TEMPO 2117/2120 BKN012 TEMPO 2117/2206 29018G28KT EPBY 210530Z 2106/2206 VRB02KT 0100 FG OVC001 TEMPO 2106/2109 0800 FG OVC003 BECMG 2109/2111 9999 SCT025 BECMG 2115/2118 22010KT EPGD 210530Z 2106/2206 27004KT 0150 FG BKN001 PROB40 TEMPO 2106/2108 1500 BR OVC002 BECMG 2108/2110 8000 SCT020 BECMG 2115/2118 20010KT EPKK 210830Z 2109/2209 05010KT 9999 BKN030 TEMPO 2109/2112 3000 RA BR BKN006 BKN013 BECMG 2118/2121 VRB02KT TEMPO 2121/2207 4000 BR EPKT 210530Z 2106/2206 35007KT 9999 BKN006 TEMPO 2106/2112 3000 RA BR BKN004 BECMG 2107/2110 05010KT BECMG 2112/2115 SCT020 TEMPO 2120/2206 3000 BR EPLL 210728Z 2107/2206 VRB04KT 8000 SCT003 BKN007 BECMG 2107/2110 SCT020 TEMPO 2117/2206 3000 BR PROB40 TEMPO 2122/2206 0500 FG BKN002 EPMO 210530Z 2106/2206 VRB04KT 8000 SCT020 PROB40 TEMPO 2106/2109 3000 BR BKN005 PROB30 TEMPO 2106/2108 0500 FG BKN002 TEMPO 2117/2206 3000 BR PROB40 TEMPO 2122/2206 0500 FG BKN002 EPPO 210530Z 2106/2206 VRB02KT 3000 BR OVC005 TEMPO 2106/2110 1200 BR OVC002 PROB40 TEMPO 2106/2109 0100 FG OVC001 BECMG 2110/2113 CAVOK EPRZ 210530Z 2106/2206 35007KT 8000 BKN030 TEMPO 2106/2108 2000 RA BR BKN005 BKN012 BECMG 2121/2123 3000 BR PROB40 TEMPO 2201/2206 0800 FG EPSC 210530Z 2106/2206 VRB02KT 0100 FG BKN001 TEMPO 2106/2109 0800 FG OVC002 BECMG 2109/2111 21010KT CAVOK EPWA 210830Z 2109/2209 VRB03KT 9999 SCT020 TEMPO 2117/2208 3000 BR PROB40 TEMPO 2122/2207 0800 FG BKN002 EPWR 210830Z 2109/2209 VRB02KT 9999 BKN020 PROB40 2109/2111 BKN009 TEMPO 2201/2208 3000 BR BKN004 ESGG 210530Z 2106/2206 20008KT 9999 BKN004 TEMPO 2106/2122 4000 BR -DZ BKN006 BECMG 2119/2122 27018G28KT BECMG 2122/2124 NSC ESKN 210530Z 2106/2206 23002KT CAVOK TEMPO 2106/2107 0300 FG VV002 BECMG 2107/2109 24012KT TEMPO 2118/2201 BKN012 TEMPO 2121/2204 25015G25KT ESMS 210600Z 2106/2206 VRB02KT 0200 BCFG SCT020 BECMG 2106/2108 9999 NSW PROB40 2108/2110 4000 BR BECMG 2117/2119 BKN012 TEMPO 2119/2204 4000 BR -RADZ BKN008 BECMG 2204/2206 31012KT SCT020 ESSA 210701Z 2107/2206 21012KT CAVOK BECMG 2107/2109 BKN008 TEMPO 2109/2122 BKN015 BECMG 2122/2124 23018G30KT NSC BECMG 2202/2204 27005KT ETAD 210407Z 2104/2210 VRB06KT 9000 BR SKC QNH3034INS BECMG 2109/2110 10009KT 9999 NSW FEW100 QNH3028INS BECMG 2206/2207 VRB06KT 9999 BKN035 QNH3028INS TX17/2113Z TN03/2106Z LAST NO AMDS AFT 2104 NEXT 2109 ETAR 210204Z 2102/2208 VRB06KT 9000 BR SKC QNH3034INS BECMG 2109/2110 08009KT 9999 NSW FEW100 QNH3028INS BECMG 2204/2205 VRB06KT 9999 SCT035 BKN070 QNH3028INS TX17/2112Z TN01/2106Z ETEB 210511Z 2105/2211 VRB06KT 9999 SCT070 BKN120 QNH3033INS BECMG 2110/2111 08009KT 9999 BKN035 QNH3030INS BECMG 2120/2121 VRB06KT 9999 SCT020 QNH3027INS BECMG 2209/2210 VRB06KT 9999 BKN030 QNH3000INS TX13/2113Z TN01/2205Z ETIC 210614Z 2106/2212 VRB06KT 9999 SCT030 QNH3037INS BECMG 2110/2111 08009KT 9999 BKN035 QNH3030INS BECMG 2120/2121 VRB06KT 9999 SCT020 QNH3027INS BECMG 2209/2210 VRB06KT 9999 BKN030 QNH3000INS TX13/2113Z TN01/2205Z ETOU 210612Z 2106/2209 02006KT 9000 BR SKC QNH3037INS BECMG 2109/2110 07006KT 9999 NSW FEW035 SCT100 QNH3033INS BECMG 2114/2115 08009KT 9999 SCT035 SCT085 QNH3032INS BECMG 2207/2208 VRB06KT 9999 SCT035 BKN070 QNH3031INS TX17/2113Z TN04/2106Z LAST NO AMDS AFT 2111 NEXT 2203 EVLA 210802Z 2109/2209 18005KT 9999 SCT030 BECMG 2110/2112 24007KT TEMPO 2118/2122 22015G25KT TEMPO 2122/2206 23017G28KT 4000 -RA BR BKN010 PROB40 TEMPO 2200/2206 23020G30KT EVRA 210800Z 2109/2209 16005KT 0500 FG OVC002 BECMG 2110/2112 9000 NSW SCT020 BECMG 2116/2118 24007KT EYPA 210507Z 2106/2206 VRB02KT 3000 BR SCT005 BKN015 TEMPO 2106/2109 0500 FG VV002 BECMG 2110/2112 6000 SCT010 BKN020 BECMG 2115/2117 22012G24KT EYVI 210752Z 2108/2206 VRB04KT 7000 SCT020 BECMG 2112/2113 BKN020 FALA 202355Z 2100/2124 08012KT 9999 BKN020 PROB30 TEMPO 2100/2104 BKN007 FM210600 03010KT 9999 SCT030 BECMG 2107/2109 CAVOK BECMG 2119/2121 SCT025 PROB30 TEMPO 2122/2124 BKN010 TX23/2113Z TN11/2104Z FCBB 210500Z 2106/2212 23004KT 7000 -TSRA BKN020 FEW030CB BECMG 2107/2108 8000 NSW SCT022 PROB30 2115/2119 TS FEW020 FEW030CB FCIN90 VAAH 210500 VAAH 210500Z 2106/2115 36004KT 6000 NSC BECMG 2112/2114 32003KT 4000 FU FCPP 210500Z 2106/2206 19008KT 8000 SCT010 BKN023= FKYS 210500Z 2106/2206 VRB05KT 4000 BR BKN006 BECMG 2106/2108 9999 BKN016 TEMPO 2114/2122 4000 TSRA BKN013 FEW020CB BECMG 2120/2122 BKN006 FEFF 210500Z 2106/2212 26006KT 9999 SCT013 BECMG 2110/2112 BKN023 FEW040CB TEMPO 2113/2116 10015KT 4000 TSRA FGBT 210500Z 2106/2206 22006KT 9999 SCT010 TEMPO 2106/2112 TS BKN012 FEW020CB TEMPO 2122/2206 4000 TSRA BKN008 FEW016CB FGSL 210500Z 2106/2212 24006KT 9999 TS BKN008 FEW018CB TEMPO 2106/2112 4500 TSRA BECMG 2114/2116 NSW SCT010 FEW020CB TEMPO 2122/2206 4000 TSRA BKN008 FEW016CB FIMP 210500Z 2106/2212 02010KT 9999 SCT016 PROB30 TEMPO 2110/2115 VRB05KT 5000 -SHRA/TSRA FEW008 FEW012CB BKN015 FIMR 210505Z 2106/2200 06010KT 9999 SCT018 FJDG 210100Z 2101/2201 12013KT 9999 FEW020 SCT250 QNH2984INS TEMPO 2103/2109 9000 -SHRA SCT020 SCT080 TX29/2109Z TN26/2121Z FKKD 210500Z 2106/2212 VRB03KT 9999 TS BKN013 FEW016CB BECMG 2106/2108 NSW BKN016 FEW020CB TEMPO 2118/2206 TS BKN013 FEW016CB TEMPO 2122/2206 4000 TSRA FKKL 210500Z 2106/2206 04010KT CAVOK PROB30 TEMPO 2115/2119 TS FEW045 FEW050CB FKYS 210500Z 2106/2206 VRB05KT 4000 BR BKN006 BECMG 2106/2108 9999 BKN016 TEMPO 2114/2122 4000 TSRA BKN013 FEW020CB BECMG 2120/2122 BKN006 FMCZ 210555Z 2106/2206 19010KT 9999 SCT025 BECMG 2118/2120 21020G30KT FNLU 210500Z 2106/2212 15005KT 9999 FEW020 SCT050 BECMG 2111/2113 28010KT TEMPO 2114/2118 FEW022 FEW025TCU BECMG 2120/2122 21005KT 8000 BKN020 PROB40 TEMPO 2203/2209 14008KT 3000 SHRA BKN012 FOOG 210500Z 2106/2206 18008KT 9999 SCT008 BKN030 TEMPO 2114/2120 TS BKN014 FEW020CB FOOL 210500Z 2106/2212 14006KT 8000 -TSRA SCT010 FEW020CB BKN028 TEMPO 2106/2109 4000 TSRA BKN008 FEW016CB BECMG 2109/2111 NSW BECMG 2113/2120 TS FSIA 210500Z 2106/2206 VRB05KT 9999 FEW015CB SCT020 TEMPO 2106/2114 8000 -SHRA FEW012 FEW014CB BKN018 FTTJ 210500Z 2106/2212 08006KT CAVOK= LIBD 210500Z 2106/2206 28008KT 9999 FEW030 BECMG 2108/2110 01012KT TEMPO 2118/2206 TSRA FWKI 210400Z 2106/2212 18013KT 9999 FEW020 BKN090 TEMPO 2109/2111 VRB03KT 8000 RA FEW035CB BKN080 BECMG 2114/2116 16008KT 9999 FEW025CB SCT100 GABS 210525Z 2106/2212 06010KT 8000 FEW030 PROB40 TEMPO 2106/2112 4000 HZ PROB40 TEMPO 2114/2123 VRB15G25KT 4000 BLDU TSRA SCT030 FEW033CB BECMG 2117/2119 20006KT PROB40 TEMPO 2206/2211 4000 HZ GAGO 210525Z 2106/2206 10012G22KT 6000 NSC PROB40 TEMPO 2107/2115 3000 BLDU GBYD 210530Z 2106/2212 VRB03KT 9999 SCT013 GCFV 210800Z 2109/2209 14010KT 9999 FEW030 TX26/2114Z TN19/2205Z PROB40 TEMPO 2109/2110 26004KT BECMG 2119/2121 31005KT GCGM 210800Z 2109/2209 23008KT 9999 SCT040 TX24/2114Z TN19/2205Z GCHI 210800Z 2109/2209 25006KT 9999 SCT030 TX25/2114Z TN20/2205Z GCLA 210800Z 2109/2209 15005KT 9999 SCT040 TX24/2114Z TN19/2205Z PROB30 TEMPO 2113/2118 RA GCLP 210800Z 2109/2209 16010KT 9999 SCT035 TX25/2114Z TN19/2205Z PROB40 TEMPO 2109/2111 25005KT PROB30 TEMPO 2113/2118 RA BECMG 2119/2120 28005KT GCRR 210800Z 2109/2209 18010KT 9999 FEW025 TX26/2114Z TN19/2205Z PROB40 TEMPO 2109/2110 28004KT BECMG 2119/2121 33006KT GCTS 210800Z 2109/2209 05005KT 9999 FEW030 TX26/2114Z TN19/2205Z BECMG 2110/2112 23012KT BECMG 2119/2121 30006KT GCXO 210800Z 2109/2209 29006KT 9999 SCT010 TX19/2114Z TN14/2205Z TEMPO 2110/2115 12010KT PROB40 TEMPO 2113/2120 RA BKN010 GEML 210800Z 2109/2209 26006KT 9999 SCT012 SCT020 TX24/2114Z TN19/2206Z GFLL 210500Z 2106/2212 18006KT 9999 BKN011 FEW027CB TEMPO 2112/2116 24006KT SCT014 TEMPO 27008KT FEW015 TEMPO 2202/2206 03006KT 9999 TS BKN011 FEW027CB GLRB 210400Z 2106/2212 23010KT 9999 BKN018 FEW026CB TEMPO 2106/2110 03005KT 8000 BKN011 FEW023CB TEMPO 2112/2116 22012KT 9999 BKN017 FEW025CB GMAD 210500Z 2106/2212 06005KT 8000 SCT020 BECMG 2112/2114 28012KT BECMG 2119/2122 16006KT GMFF 210500Z 2106/2212 30006KT CAVOK BECMG 2110/2114 SCT030 SCT200 BECMG 2119/2123 CAVOK GMFM 210500Z 2106/2212 12004KT CAVOK TEMPO 2114/2118 FEW023 SCT200 GMFO 210500Z 2106/2212 VRB03KT CAVOK BECMG 2114/2118 35014KT 9999 FEW026 PROB30 TEMPO 2122/2206 VRB03KT 3000 BR BKN006 GMME 210500Z 2106/2212 14004KT 8000 NSC TEMPO 2112/2118 36010KT CAVOK TEMPO 2118/2124 06004KT 5000 SCT020 SCT080 GMMH 210500Z 2106/2212 02010KT 8000 SCT010 SCT100 PROB40 2106/2108 VRB02KT 2000 BR BKN008 TEMPO 2112/2212 5000 -TSRA SCT013TCU FEW030CB GMMI 210500Z 2106/2212 12005KT 8000 SCT013 GMML 210500Z 2106/2212 02008KT CAVOK BECMG 2120/2123 BKN016 GMMN 210500Z 2106/2212 17002KT 4000 BR FEW010 BECMG 2110/2113 19012KT 9999 SCT016 BECMG 2115/2118 30013KT BKN016 SCT100 GMMW 210500Z 2106/2212 22006KT 9999 FEW010 SCT013 GMMX 210500Z 2106/2212 06006KT 9999 SCT026 BECMG 2109/2111 CAVOK TEMPO 2116/2121 32012KT GMMZ 210500Z 2106/2212 VRB02KT CAVOK TEMPO 2115/2121 12014KT GMTA 210500Z 2106/2212 32006KT 9999 SCT030 PROB30 TEMPO 2106/2112 -RA SCT010TCU BKN020 PROB30 2200/2206 VRB01KT 3000 BR BKN008 GMTT 210500Z 2106/2212 10003KT 8000 SCT016 BECMG 2122/2124 10014KT GOBD 210530Z 2106/2212 05008KT 9999 SCT012 GOGS 210530Z 2106/2206 25008KT 9999 SCT013 PROB30 TEMPO 2116/2120 4000 TSRA BKN012 FEW030CB GOOY 210530Z 2106/2212 03008KT 9999 SCT010= GOBD 210530Z 2106/2212 05008KT 9999 SCT012 GOSS 210530Z 2106/2206 04008KT CAVOK GQNO 210500Z 2106/2212 08012KT 7000 NSC PROB30 TEMPO 2114/2118 3000 BLDU BECMG 2116/2118 34012KT BECMG 2208/2210 08015KT 2000 BLSA GQPP 210500Z 2106/2206 36014KT 7000 NSC TEMPO 2110/2114 06015KT TEMPO 2114/2120 4000 DRSA GVAC 210500Z 2106/2212 04012KT 9999 SCT014 BECMG 2114/2116 BKN014 GVNP 210500Z 2106/2212 03014KT 9999 SCT014 PROB30 TEMPO 2202/2210 -RA FEW013 BKN017 GVSV 210500Z 2106/2212 06018KT 9999 FEW023 BECMG 2115/2117 FEW018 BKN026 PROB30 TEMPO 2208/2212 -RA HBBA 210500Z 2106/2212 36002KT 9999 FEW025 SCT100 BECMG 2107/2109 18010G20KT 9999 FEW025 FEW030CB BKN100 PROB 30 TEMPO 2112/2118 08015G25KT 6000 TSRA OR SHRA SCT025CB BKN100 BECMG 2118/2120 00000KT CAVOK BECMG 2202/2204 36003KT 9999 FEW025 SCT100 BECMG 2207/2209 18010G20KT 9999 FEW025 SCT100 HDAM 210500Z 2106/2206 10010KT 9999 SCT023 SCT030 BECMG 2115/2118 VRB05KT SCT020 BECMG 2200/2206 00000KT SCT020 HEAX 210500Z 2106/2212 08006KT CAVOK BECMG 2112/2114 02011KT 9999 FEW020 HECA 210500Z 2106/2212 36006KT CAVOK TEMPO 2106/2108 VRB03KT 3000 BR NSC HELX 210500Z 2106/2212 32008KT CAVOK HKEL 210500Z 2106/2206 12010KT 9999 FEW022CB SCT023 BKN080 TEMPO 2112/2118 VRB10KT -TSRA FEW018CB BKN019 BKN080 BECMG 2120/2123 13005KT FEW019 HKJK 210500Z 2106/2212 08010KT 9999 SCT023 BECMG 2108/2111 BKN027 TEMPO 2112/2118 -SHRA FEW025CB BKN026 BECMG 2120/2123 04005KT BKN020 TEMPO 2200/2206 SCT008 BKN016 HKKI 210500Z 2106/2206 22010KT 9999 FEW024CB SCT025 BKN080 TEMPO 2112/2118 VRB10KT -TSRA FEW018CB SCT019 BKN080 BECMG 2120/2123 06005KT FEW018CB BKN080 HRYR 210500Z 2106/2206 18003KT 9999 FEW026 SCT100 FM 210800 16005KT SCT025 TEMPO 2112/2116 17010G20KT TSRA FEW023CB BKN025 FM212000 33004KT BKN025 SCT100 BECMG 2203/2206 VRB03KT SCT025 FM220900 18005KT SCT025 SCT100 HSKA 210500Z 2106/2212 VRB03KT CAVOK PROB30 TEMPO 2112/2118 VRB03KT 9999 SCT040 TEMPO 2118/2209 04007G17KT CAVOK PROB30 TEMPO 2209/2212 VRB03KT 9999 SCT040 HSOB 210500Z 2106/2212 04007G17KT CAVOK TEMPO 2118/2209 04007G17KT CAVOK PROB30 TEMPO 2111/2115 VRB03KT 9999 SCT040 PROB30 TEMPO 2209/2212 VRB03KT 9999 SCT040 HSPN 210500Z 2106/2212 27006G15KT 6000 SCT030 SCT130 TEMPO 2106/2112 3000 HZ FM211200 06008G20KT PROB30 TEMPO 2112/2118 04010G20KT SHRA SCT030 BKN130 FM212000 31007G17KT FM221100 06006G16KT HSSJ 210500Z 2106/2212 17005KT CAVOK BECMG 2110/2113 12004KT 9999 FEW040 SCT040 PROB30 TEMPO 2114/2120 18005G20KT 9999 SCT040 BKN090 HSSS 210500Z 2106/2212 16006G16KT CAVOK PROB30 TEMPO 2112/2118 VRB03KT 9999 SCT040 TEMPO 2118/2209 04007G17KT CAVOK PROB30 TEMPO 2209/2212 VRB03KT 9999 SCT040 HTAR 202300 2100/2200 10010KT 9999 SCT024 TEMPO 2102/2106 RA BKN022 HTDA 202300Z 2100/2206 00000KT 9999 SCT014 TEMPO 2106/2111 13010KT RA BKN018 BECMG 2113/2116 SKC HTDO 202300Z 2100/2124 09012KT 9999 FEW023 HTGW 202300Z 2100/2124 12010KT 9999 FEW027 HTKJ 202300Z 2100/2124 09010KT 9999 BKN024 BECMG 2110/2112 FEW032CB SCT034 BECMG 2116/2118 FEW034 HTMW 202300Z 2100/2124 12010KT 9999 SCT019 FEW020 BKN080 BECMG 2110/2112 34010KT BECMG 2118/2120 00000KT HTZA 202300Z 2100/2124 00000KT 9999 FEW018 BECMG 2103/2105 BKN018 BECMG 2110/2112 14015KT SCT022 BECMG 2119/2121 00000KT HUEN 210500Z 2106/2212 01010KT 9000 TS SCT018 FEW020CB BECMG 2107/2112 17012KT 9999 TS SCT022 FEW024CB FM 211600 20006KT FEW020 FEW022CB BECMG 2120/2124 35005KT FEW019 FEW021CB TEMPO 2201/2206 VRB10KT 9000 -TSRA SCT018 FEW020CB BKN090 BECMG 2207/2212 16009KT 9999 FEW021 FEW023CB KABE 210529Z 2106/2206 28008KT P6SM SCT035 BKN100 FM210700 31010G18KT P6SM -SHRA OVC035 FM211000 32012G20KT P6SM BKN035 FM211300 31016G28KT P6SM SCT045 FM212200 31010G18KT P6SM FEW045 FM220000 31006KT P6SM SKC FM220300 VRB03KT P6SM SKC KABI 210520Z 2106/2206 VRB06KT P6SM SCT150 FM211600 12010KT P6SM BKN250 KABQ 210532Z 2106/2206 10013G18KT P6SM FEW080 FM211000 06008KT P6SM FEW070 BKN250 FM211800 17007KT P6SM BKN250 FM220000 15006KT P6SM BKN250 KABR 210520Z 2106/2206 17010KT P6SM FEW250 FM210900 18013G19KT P6SM SKC WS020/20045KT FM211200 21013G19KT P6SM SKC WS020/24035KT FM211300 21012KT P6SM SKC FM211500 26011KT P6SM SKC FM211700 32013KT P6SM SKC FM212300 VRB04KT P6SM FEW250 KABY 210520Z 2106/2206 33008KT P6SM SCT100 FM211500 04010G15KT P6SM SKC FM220100 VRB03KT P6SM SKC KACK 210530Z 2106/2206 29007KT P6SM SCT070 BKN150 FM210900 33006KT P6SM -SHRA BKN070 FM211200 33011KT 5SM -SHRA OVC050 FM211400 33025G40KT 5SM -SHRA OVC040 FM211700 33025G38KT P6SM BKN030 FM211900 33023G35KT P6SM FEW030 FM220000 32014G28KT P6SM SKC FM220400 32013G24KT P6SM FEW200 KACT 210520Z 2106/2206 36007KT P6SM SCT200 FM211500 04007KT P6SM BKN200 KACV 210522Z 2106/2206 30004KT 1/4SM FG VV002 FM211600 VRB03KT 6SM BR OVC003 FM212000 VRB05KT 6SM BR BKN003 FM220000 VRB03KT 3SM BR OVC002 KACY 210529Z 2106/2206 29010KT P6SM SCT035 BKN100 FM211000 30012G20KT P6SM -SHRA OVC035 FM211200 32016G24KT P6SM BKN035 FM211400 31020G32KT P6SM SCT045 FM212200 31010G18KT P6SM FEW045 FM220100 31006KT P6SM SKC FM220400 VRB03KT P6SM SKC KADF 210520Z 2106/2206 VRB02KT P6SM SCT250 FM211400 08006KT P6SM SKC KADW 210535Z 2105/2207 30010G18KT 9999 SCT095 QNH2974INS TEMPO 2105/2109 32025G35KT 510003 BECMG 2108/2109 33020G35KT 9999 FEW045 510003 QNH2978INS BECMG 2116/2117 33010G20KT 9999 SKC QNH3010INS BECMG 2123/2124 31009KT 9999 SKC QNH3018INS WND 29006KT AFT 2206 TX11/2105Z TN06/2112Z KAEG 210532Z 2106/2206 11010KT P6SM FEW080 FM211000 03006KT P6SM BKN080 BKN250 FM211800 15008KT P6SM BKN250 FM220000 18010KT P6SM BKN250 KAEX 210633Z 2107/2206 35003KT 3SM BR SKC TEMPO 2107/2111 1/2SM FG FM211200 02010KT P6SM SCT250 FM211500 05012G20KT P6SM SKC KAFW 210520Z 2106/2206 01006KT P6SM SCT200 FM211500 08007KT P6SM SCT250 FM220300 14004KT P6SM BKN250 KAGC 210804Z 2108/2206 31015G25KT P6SM -SHRASN SCT015 OVC025 TEMPO 2108/2109 BKN015 FM211200 30012G22KT P6SM VCSH OVC020 FM211800 29010G20KT P6SM BKN035 FM212200 27005KT P6SM SCT035 KAGS 210534Z 2106/2206 30012KT P6SM SCT250 WS015/33034KT FM211400 36010G18KT P6SM SKC FM211800 35008KT P6SM SKC FM212300 VRB03KT P6SM SKC KAHN 210520Z 2106/2206 29009KT P6SM SCT250 FM211200 03008KT P6SM SKC FM211800 02005KT P6SM SKC FM220000 00000KT P6SM FEW250 KAIA 210520Z 2106/2206 17010KT P6SM SKC FM210800 21010KT P6SM SKC FM211600 31010KT P6SM SKC FM212100 01010KT P6SM SKC KALB 210534Z 2106/2206 28005KT P6SM OVC100 FM211000 33010KT P6SM SCT050 BKN080 FM211400 31016G27KT P6SM SCT050 FM220000 31007KT P6SM SCT050 KALI 210528Z 2106/2206 01013KT P6SM OVC015 FM211000 02016G23KT P6SM OVC020 FM211300 03016G23KT P6SM -DZ OVC030 FM220000 02010KT P6SM OVC035 KALO 210520Z 2106/2206 VRB03KT P6SM SKC FM211300 20008KT P6SM SKC FM211600 21015G22KT P6SM SKC FM220000 19006KT P6SM FEW250 KALS 210526Z 2106/2206 VRB05KT P6SM FEW250 KALW 210520Z 2106/2206 13005KT P6SM SKC FM211600 32005KT P6SM BKN250 KAMA 210530Z 2106/2206 19007KT P6SM SKC FM211500 21014G24KT P6SM FEW250 FM220000 19012KT P6SM FEW250 KANB 210520Z 2106/2206 32005KT P6SM SCT250 FM210900 36010KT P6SM SCT250 KAND 210535Z 2106/2206 30010KT P6SM SKC FM210800 35010KT P6SM SKC FM211500 03005KT P6SM SKC KAOO 210559Z 2106/2206 28012KT P6SM -SHRA SCT025 BKN035 FM210630 30015G23KT 4SM -RA BKN025 OVC040 FM210800 31018G28KT P6SM VCSH BKN040 FM211400 31017G25KT P6SM BKN050 FM212300 29008KT P6SM SCT050 KAPA 210530Z 2106/2206 18009KT P6SM SKC FM211400 25007KT P6SM FEW250 FM211700 VRB04KT P6SM FEW250 FM212100 05007KT P6SM FEW150 SCT250 FM220100 12008KT P6SM FEW150 SCT220 KAPF 210529Z 2106/2206 VRB04KT P6SM SCT025 FM211400 02007KT P6SM SCT030 BKN050 FM211800 34010KT P6SM SCT030 SCT050 FM220000 03010KT P6SM SCT025 KAPN 210525Z 2106/2206 33012G23KT P6SM VCSH OVC035 FM210800 33009KT P6SM BKN035 FM211400 28008KT P6SM BKN035 FM212000 24008KT P6SM SCT045 BKN120 FM220000 21004KT P6SM BKN070 KARA 210520Z 2106/2206 02011KT P6SM BKN050 FM211200 04010KT P6SM BKN250 KART 210530Z 2106/2206 36005KT P6SM FEW060 FM211400 32011G17KT P6SM SCT200 FM212000 29011KT P6SM SCT060 FM220300 27004KT P6SM SCT070 KASD 210520Z 2106/2206 02010KT P6SM BKN100 FM210900 02009KT P6SM SCT110 FM212300 02005KT P6SM SKC KASE 210536Z 2106/2206 20007KT P6SM SKC FM211600 34007KT P6SM FEW080 FEW250 FM220100 21006KT P6SM FEW070 SCT250 KASN 210520Z 2106/2206 27004KT P6SM SCT250 FM210900 36008KT P6SM SCT250 KAST 210708Z 2107/2206 VRB03KT P6SM SKC TEMPO 2107/2111 2SM BR OVC003 FM211100 12004KT 2SM BR OVC002 FM211800 34006KT P6SM BKN006 FM212000 30006KT P6SM SKC KATL 210730Z 2108/2212 33013G23KT P6SM SKC FM211400 01010G18KT P6SM SKC FM212000 35006KT P6SM SKC FM220000 34004KT P6SM FEW250 FM220500 05003KT P6SM SCT250 KATW 210520Z 2106/2206 32009KT P6SM SCT040 TEMPO 2106/2107 BKN040 FM210900 28005KT P6SM SCT040 SCT150 FM211100 25006KT P6SM SCT150 FM211700 22012G18KT P6SM SCT100 FM220000 22008KT P6SM SCT050 FM220300 23007KT P6SM SKC KATY 210520Z 2106/2206 17008KT P6SM FEW250 FM211000 19014G20KT P6SM SKC WS020/22040KT FM211300 20013G21KT P6SM SKC WS020/24045KT FM211500 22013G24KT P6SM SKC FM211700 27013G19KT P6SM SKC FM212100 33009KT P6SM SKC FM220100 VRB03KT P6SM FEW250 KAUG 210520Z 2106/2206 30004KT P6SM SCT150 FM211000 33009KT P6SM BKN100 FM211500 32012G23KT P6SM SCT120 FM220000 29005KT P6SM SCT250 KAUS 210522Z 2106/2212 02008KT P6SM FEW050 BKN150 FM220200 01005KT P6SM BKN050 KAUW 210520Z 2106/2206 29005KT P6SM SCT040 FM210800 24005KT P6SM SCT150 FM211600 22010G18KT P6SM SCT100 FM212100 22010G17KT P6SM SCT045 FM212300 23007KT P6SM SCT035 FM220100 25004KT P6SM SKC KAVL 210535Z 2106/2206 33025G40KT P6SM FEW250 FM211300 34019G30KT P6SM FEW250 FM211800 35012G18KT P6SM SKC FM212200 34007KT P6SM SKC KAVP 210534Z 2106/2206 34008KT P6SM SCT025 OVC040 TEMPO 2106/2108 -SHRA OVC025 FM211000 33012G22KT P6SM SCT025 BKN045 TEMPO 2112/2115 -SHSN OVC025 FM211500 32015G25KT P6SM BKN050 FM220000 30008KT P6SM SCT050 KAXN 210520Z 2106/2206 18005KT P6SM FEW150 FEW250 FM211200 18012KT P6SM SKC WS020/22040KT FM211500 21014G22KT P6SM SKC FM211700 26012KT P6SM SKC FM220000 32006KT P6SM SKC KAZO 210540Z 2106/2206 33012KT P6SM BKN040 FM211300 25008KT P6SM BKN035 KBAB 202038Z 2020/2201 VRB06KT 9999 SKC QNH2987INS TX28/2021Z TN10/2113Z LAST NO AMDS AFT 2021 NEXT 2213 KBAD 210117Z 2101/2124 01006KT 9999 FEW010 SCT025 QNH3011INS BECMG 2102/2103 VRB06KT 9999 SKC QNH3023INS BECMG 2114/2115 06012G18KT 9999 FEW210 QNH3038INS BECMG 2117/2118 05010KT 9999 FEW240 QNH3025INS TX20/2118Z TN11/2114Z LAST NO AMDS AFT 2101 NEXT 2110 KBAF 210530Z 2106/2206 VRB03KT P6SM OVC050 FM210800 34006KT P6SM -SHRA OVC040 FM211000 34008KT P6SM OVC050 FM211300 33012KT P6SM BKN090 FM211400 33014G27KT P6SM SCT080 FM220000 31007KT P6SM SKC KBAM 210520Z 2106/2206 VRB05KT P6SM FEW080 FM210900 VRB03KT P6SM SCT070 BKN200 FM211600 VRB05KT P6SM VCSH SCT040 BKN070 FM212000 VRB06KT P6SM -RA BKN040 KBBD 210520Z 2106/2206 VRB06KT P6SM BKN150 FM211500 05011KT P6SM BKN250 KBBG 210520Z 2106/2206 VRB03KT P6SM SKC FM211500 13006KT P6SM SKC FM212300 VRB03KT P6SM SKC KBCB 210524Z 2106/2206 30020G35KT P6SM VCSH BKN050 FM210700 30016G30KT P6SM SCT045 FM211100 31012G20KT P6SM SCT250 FM212300 30006KT P6SM SKC KBCE 210727Z 2107/2206 26005KT P6SM -SHRA SCT060 OVC080 FM210900 26005KT P6SM VCSH BKN070 FM211400 VRB05KT P6SM -SHRA SCT040 OVC060 FM211800 12012KT P6SM VCSH SCT040 BKN070 FM220300 27006KT P6SM SCT060 BKN100 KBDL 210802Z 2108/2212 35010KT P6SM -RA BKN050 FM211000 34012KT P6SM OVC050 FM211400 33014G27KT P6SM SCT070 FM220000 31007KT P6SM FEW250 FM220800 25004KT P6SM FEW120 KBDN 210520Z 2106/2206 VRB04KT P6SM SKC FM211700 33005KT P6SM BKN250 KBDR 210843Z 2109/2206 33011G17KT P6SM VCSH SCT025 BKN060 FM211100 32015G24KT P6SM BKN040 FM211400 33020G31KT P6SM FEW050 SCT150 FM212200 31015G25KT P6SM FEW050 FM220200 32010KT P6SM FEW050 KBED 210530Z 2106/2206 VRB03KT P6SM BKN060 FM210900 34007KT P6SM -SHRA OVC025 FM211300 33011G20KT P6SM OVC025 FM211500 32013G29KT P6SM SCT050 FM212000 31014G29KT P6SM SKC FM212300 31009KT P6SM SKC FM220100 30005KT P6SM SKC KBFD 210636Z 2107/2206 34012G20KT 2SM -SN BKN007 OVC013 FM210730 34012G20KT 4SM -SN BKN005 OVC015 FM211200 33016G25KT 5SM -SHSN OVC015 FM211500 33015G22KT P6SM VCSH OVC025 FM212200 29008KT P6SM BKN025 KBFF 210520Z 2106/2206 09008KT P6SM SKC FM211300 32007KT P6SM SKC FM212100 03008KT P6SM SKC KBFI 210813Z 2108/2206 00000KT 1/4SM FG VV001 FM211700 00000KT 1SM BR BKN003 FM211900 VRB03KT 5SM BR BKN006 FM212100 31004KT 6SM HZ SCT012 FM212300 31004KT P6SM SKC KBFL 210520Z 2106/2206 VRB04KT P6SM SKC= KSCK 210520Z 2106/2206 VRB04KT P6SM SKC FM211900 30005KT P6SM SKC KBFM 210520Z 2106/2206 35015G20KT P6SM BKN120 FM210900 01009KT P6SM SKC FM211500 03015KT P6SM SKC FM220300 02004KT P6SM SKC KBGM 210534Z 2106/2206 33008KT P6SM SCT005 OVC025 TEMPO 2106/2108 -SHRASN OVC005 FM211000 32012G22KT P6SM SCT008 OVC015 TEMPO 2110/2114 2SM -SHSN OVC008 FM211600 32015G25KT P6SM SCT025 BKN035 TEMPO 2116/2118 2SM -SHSN OVC025 FM220000 30010KT P6SM BKN040 KBGR 210532Z 2106/2206 29003KT P6SM FEW120 FM211000 32009KT P6SM SCT050 BKN100 FM211400 34012G20KT P6SM BKN045 OVC090 FM211800 33013G22KT P6SM SCT050 BKN100 FM212100 32009G17KT P6SM FEW070 SCT120 FM220200 30007KT P6SM FEW120 KBHB 210532Z 2106/2206 32005KT P6SM FEW120 FM211000 34009KT P6SM SCT050 BKN100 FM211400 35012G20KT P6SM BKN040 OVC080 FM211830 34014G23KT P6SM SCT045 BKN090 FM212200 33012G20KT P6SM FEW060 SCT120 FM220300 31009G17KT P6SM FEW120 KBHM 210520Z 2106/2206 30003KT P6SM SCT250 FM210900 36012KT P6SM SCT250 KBIF 210600Z 2106/2212 11012KT 9999 BKN050 QNH3033INS BECMG 2114/2115 09012G18KT 9999 BKN070 QNH3017INS TEMPO 2118/2122 8000 -SHRA BKN040 BECMG 2202/2203 09009KT 9999 SCT070 QNH3018INS BECMG 2205/2206 VRB06KT 9999 FEW070 QNH3018INS TX21/2122Z TN10/2112Z KBIH 210520Z 2106/2206 17007KT P6SM SCT100 FM210900 33006KT P6SM SCT100 FM212100 17010KT P6SM SCT100 KBIL 210520Z 2106/2206 25011KT P6SM SKC FM210800 03010KT P6SM SKC FM211800 15008KT P6SM SCT200 KBIS 210520Z 2106/2206 16007KT P6SM SKC WS015/21040KT FM211000 20004KT P6SM SKC FM211200 30005KT P6SM SKC FM211700 33010KT P6SM SKC KBIX 210537Z 2105/2208 01010G15KT 9999 FEW018 BKN050 QNH3003INS TEMPO 2106/2115 05015G25KT BECMG 2119/2120 03012KT 9999 FEW280 QNH3017INS BECMG 2204/2205 06009KT 9999 SCT280 QNH3016INS TX23/2202Z TN14/2113Z KBJC 210530Z 2106/2206 32005KT P6SM SKC FM211200 VRB04KT P6SM FEW250 FM211800 06007KT P6SM FEW150 SCT250 FM220100 12007KT P6SM FEW150 SCT220 KBJI 210520Z 2106/2206 VRB04KT P6SM SCT200 FM211200 19008KT P6SM FEW200 WS020/23040KT FM211700 27008KT P6SM SKC KBKE 210520Z 2106/2206 12003KT P6SM SKC KBKF 210100Z 2101/2207 21009KT 9999 SKC QNH3022INS TEMPO 2102/2108 18012G18KT BECMG 2117/2118 36009KT 9999 SKC QNH3012INS BECMG 2201/2202 17009KT 9999 SKC QNH3014INS TX23/2121Z TN06/2112Z KBKW 210520Z 2106/2206 31022G35KT P6SM BKN017 TEMPO 2106/2109 4SM -SHSN OVC009 FM210900 32017G27KT P6SM BKN010 FM211100 32015G22KT P6SM BKN025 FM211400 32012G18KT P6SM SCT120 FM212200 30005KT P6SM SKC KBLF 210524Z 2106/2206 30015G30KT P6SM -SHSN SCT015 OVC030 FM211300 31012G22KT P6SM SCT035 FM212200 30006KT P6SM FEW250 KBLH 210520Z 2106/2206 31006KT P6SM SCT090 FM211700 VRB04KT P6SM FEW080 FM212100 16007KT P6SM FEW090 FM220400 31006KT P6SM SCT070 KBLI 210547Z 2106/2206 VRB03KT 3SM BR BKN003 TEMPO 2106/2110 1/2SM FG VV003 FM211300 01004KT 1/4SM FG VV002 FM212000 01005KT 2SM BR BKN006 FM212200 35006KT P6SM FEW010 FM220100 VRB03KT P6SM SCT010 KBLV 210800Z 2108/2214 VRB06KT 9999 FEW150 QNH3021INS BECMG 2205/2206 19006KT 9999 SKC QNH3016INS TX10/2120Z TN00/2111Z KBMG 210520Z 2106/2206 32008KT P6SM SKC FM211200 VRB06KT P6SM SKC LTD TO CLD VIS AND WIND TIL 211300 KBMI 210527Z 2106/2206 VRB05KT P6SM SKC FM211600 22010KT P6SM SKC FM220000 20009KT P6SM SKC KBNA 210535Z 2106/2206 35013G22KT P6SM SKC FM211000 02006KT P6SM SKC KBNO 210520Z 2106/2206 VRB05KT P6SM SKC KBOI 210520Z 2106/2206 14005KT 6SM HZ SKC FM212000 VRB03KT P6SM SKC KBOS 210800Z 2108/2212 33012KT P6SM BKN110 FM211000 34011KT P6SM -SHRA OVC035 FM211200 33014G26KT 5SM -SHRA OVC020 FM211400 33016G30KT P6SM OVC100 FM211700 32017G30KT P6SM FEW045 FM220000 31009KT P6SM SKC FM220900 28005KT P6SM FEW100 KBPI 210527Z 2106/2206 VRB05KT P6SM SKC FM212200 05006KT P6SM FEW070 SCT150 KBPK 210520Z 2106/2206 36003KT P6SM SKC FM211500 13005KT P6SM SKC KBPT 210520Z 2106/2206 03013G19KT P6SM BKN050 FM211200 04012KT P6SM BKN250 FM220000 04006KT P6SM SCT250 KBRD 210520Z 2106/2206 VRB04KT P6SM SCT150 FM211400 20011KT P6SM SKC FM211700 24011KT P6SM SKC FM212000 29007KT P6SM SKC KBRL 210526Z 2106/2206 VRB03KT P6SM SKC FM211500 19007KT P6SM SKC FM211800 21011KT P6SM SKC FM220300 20007KT P6SM SKC WS020/24040KT KBRO 210529Z 2106/2206 34009KT P6SM VCSH OVC009 FM211200 34012G18KT P6SM -SHRA OVC009 TEMPO 2114/2118 4SM TSRA BR BKN007CB FM212000 35013KT 5SM -SHRA OVC012 FM220000 35010G16KT 4SM -RA BR OVC015 FM220100 34011G17KT 6SM -RA BR OVC015 KBTL 210540Z 2106/2206 33010KT P6SM BKN035 FM211400 26008KT P6SM BKN035 KBTM 210520Z 2106/2206 VRB02KT P6SM SKC KBTR 210520Z 2106/2206 03008KT P6SM BKN070 FM211000 04006KT P6SM SCT200 FM211400 05010KT P6SM FEW250 FM212100 03006KT P6SM SKC KBTV 210807Z 2108/2206 33008G22KT P6SM BKN030 BKN070 FM211300 32011G18KT P6SM BKN060 FM220200 30006KT P6SM FEW110 KBUF 210530Z 2106/2206 34009KT P6SM FEW035 OVC050 FM210700 33014G22KT P6SM BKN035 FM211800 28013G20KT P6SM BKN035 FM212100 28012G20KT P6SM BKN050 FM220000 28009KT P6SM BKN070 KBUR 210533Z 2106/2206 VRB03KT P6SM SKC FM212100 17009KT P6SM SKC FM220300 VRB03KT P6SM SKC KBVI 210524Z 2106/2206 31015G25KT P6SM -SHRASN OVC015 FM211200 30010G20KT P6SM VCSH BKN020 FM211800 29010G20KT P6SM BKN035 FM212200 27005KT P6SM SCT035 NOT SKED KBVO 210520Z 2106/2206 VRB03KT P6SM SKC WS002/02027KT FM211800 17007KT P6SM SKC KBWG 210524Z 2106/2206 35006KT P6SM SKC FM211500 04006KT P6SM FEW030 KBWI 210541Z 2106/2212 28015G32KT P6SM OVC090 FM210900 29015G30KT P6SM SCT100 FM211500 31017G37KT P6SM FEW050 FM212100 30015G29KT P6SM SKC FM220000 33010G20KT P6SM SKC FM220500 31005KT P6SM SKC KBYI 210520Z 2106/2206 VRB06KT P6SM SKC FM211500 16005KT P6SM FEW070 SCT130 FM220300 VRB06KT P6SM VCSH SCT070 BKN110 KBZN 210540Z 2106/2212 15005KT P6SM SKC FM211600 33005KT P6SM SKC KCAE 210534Z 2106/2206 30012KT P6SM SCT250 WS015/33034KT FM211200 34010G20KT P6SM SKC FM211800 35008KT P6SM SKC FM212300 VRB03KT P6SM SKC KCAK 210520Z 2106/2206 33014G22KT P6SM VCSH SCT015 OVC035 TEMPO 2106/2110 4SM -RASN OVC015 FM211200 31012KT P6SM OVC035 FM211900 30010KT P6SM BKN035 FM212200 28008KT P6SM SCT040 KCAR 210532Z 2106/2206 25005KT P6SM FEW050 FM211200 29010G17KT P6SM SCT040 FM211400 31013G23KT P6SM BKN035 FM212100 31011G19KT P6SM SCT045 FM220300 30009KT P6SM FEW060 SCT110 KCDC 210623Z 2106/2206 20007KT P6SM -SHRA SCT060 OVC080 FM210800 22005KT P6SM VCSH SCT080 BKN120 FM211700 22008KT P6SM -SHRA SCT050 OVC070 FM212000 21008KT P6SM VCSH BKN070 FM220100 18006KT P6SM SCT070 BKN120 KCDR 210520Z 2106/2206 20009KT P6SM SKC FM211600 30007KT P6SM SKC FM212100 03009KT P6SM SKC KCDS 210522Z 2106/2206 21006KT P6SM SCT250 KCEC 210522Z 2106/2206 16005KT 1/2SM FG VV002 FM211400 18004KT 1SM BR OVC002 FM211600 19005KT 6SM BR OVC002 FM212000 19007KT 6SM BR BKN003 FM220200 18006KT 3SM BR OVC002 KCEF 210200Z 2102/2208 VRB06KT 9999 FEW050 BKN090 QNH2956INS BECMG 2105/2106 32006KT 9999 SCT030 BKN050 620505 QNH2956INS TEMPO 2106/2112 35010G15KT 8000 -SHRA BKN025 BKN050 610505 BECMG 2111/2112 33012G18KT 9999 SCT030 BKN130 QNH2972INS TEMPO 2112/2123 33015G30KT BKN030 520004 BECMG 2122/2123 31009KT 9999 FEW040 SCT180 QNH2999INS BECMG 2202/2203 VRB06KT 9999 SCT160 QNH3006INS TX08/2119Z TN02/2202Z LAST NO AMDS AFT 2103 NEXT 2110 KCGI 210520Z 2106/2206 02004KT P6SM SKC FM211400 VRB03KT P6SM SKC KCHA 210521Z 2106/2206 35012G20KT P6SM SKC FM211700 01009KT P6SM SKC FM220100 VRB03KT P6SM SCT250 KCHO 210541Z 2106/2206 30012G26KT P6SM BKN090 FM210900 31014G30KT P6SM SCT250 FM212100 32010G18KT P6SM SKC FM220000 31006KT P6SM SKC FM220400 00000KT P6SM SKC KCHS 210527Z 2106/2206 31011G17KT P6SM SCT250 FM211200 36015G22KT P6SM SKC FM211900 36009KT P6SM SKC FM220000 03004KT P6SM SKC KCID 210526Z 2106/2206 VRB04KT P6SM SKC FM211700 20015G20KT P6SM SKC FM220200 19007KT P6SM SKC WS020/24035KT KCKB 210520Z 2106/2206 27013G26KT P6SM OVC035 FM210700 30018G27KT P6SM OVC013 FM210900 30015G25KT P6SM OVC021 FM211400 29011G17KT P6SM BKN040 FM211900 29009KT P6SM SCT060 FM212300 26005KT P6SM FEW180 KCKV 210535Z 2106/2206 36010G20KT P6SM SKC FM211000 03006KT P6SM SKC KCLE 210520Z 2106/2212 32018G28KT P6SM VCSH OVC035 TEMPO 2107/2111 -RA BKN025 FM211100 31014G22KT P6SM OVC035 FM211800 29012KT P6SM BKN040 FM212300 23008KT P6SM SCT040 KCLL 210520Z 2106/2206 02007KT P6SM BKN250 FM211500 05011KT P6SM SCT250 FM212300 03005KT P6SM SCT150 BKN250 KCLM 210520Z 2106/2206 VRB03KT P6SM SKC TEMPO 2113/2117 4SM BR BKN003 FM211900 08005KT P6SM SKC FM220200 23003KT P6SM SKC KCLT 210831Z 2109/2212 34011G18KT P6SM SKC FM211900 36007KT P6SM SKC FM220000 03003KT P6SM SKC KCMA 210533Z 2106/2206 06007KT P6SM SKC FM212000 24009KT P6SM SKC FM220300 VRB03KT P6SM SKC KCMH 210539Z 2106/2206 32015G25KT P6SM SCT025 BKN035 FM210800 30012KT P6SM SCT025 FM212300 26005KT P6SM SKC FM220100 19003KT P6SM SKC KCMI 210527Z 2106/2206 VRB05KT P6SM SKC FM211600 23010KT P6SM SKC FM220000 18008KT P6SM SKC KCMX 210520Z 2106/2206 32008KT P6SM BKN035 FM210800 29006KT P6SM BKN040 FM211100 25006KT P6SM BKN050 FM212000 22008KT P6SM SCT140 FM220000 25008KT P6SM FEW250 KCNM 210520Z 2106/2206 25006KT P6SM BKN090 TEMPO 2106/2110 -SHRA FM211200 11007KT P6SM OVC090 FM220000 18006KT P6SM SCT170 KCNU 210520Z 2106/2206 04005KT P6SM SKC FM210900 09005KT P6SM SKC FM211400 15006KT P6SM SKC FM211700 19010KT P6SM SKC KCNY 210536Z 2106/2206 VRB03KT P6SM FEW090 FEW250 FM211400 10005KT P6SM FEW090 SCT250 FM212100 34007KT P6SM FEW090 FEW250 FM220200 VRB04KT P6SM FEW090 SCT250 KCOD 210527Z 2106/2206 22006KT P6SM SKC FM211800 06007KT P6SM SCT250 FM220200 23006KT P6SM SCT250 LTD TO CLD VIS AND WIND KCOE 210522Z 2106/2206 04006KT P6SM FEW250 FM211400 03010KT P6SM FEW250 FM211900 03005KT P6SM FEW250 KCOF 202139Z 2021/2124 VRB06KT 9999 FEW035 QNH2996INS TEMPO 2022/2102 28012KT 9000 -SHRA BKN030 BECMG 2114/2115 01010G15KT 8000 -SHRA FEW015 BKN025 QNH3001INS TX29/2021Z TN23/2111Z LAST NO AMDS AFT 2021 NEXT 2110 KCON 210520Z 2106/2206 00000KT P6SM BKN100 FM210900 31006KT P6SM SCT050 BKN080 FM211600 31018G27KT P6SM SCT120 FM220000 30005KT P6SM SCT250 KCOS 210526Z 2106/2206 04006KT P6SM SKC FM211000 01007KT P6SM SKC FM211900 11008KT P6SM SKC FM220400 02006KT P6SM FEW250 KCOU 210520Z 2106/2206 VRB04KT P6SM SKC FM211600 19008KT P6SM SKC KCPR 210527Z 2106/2206 23011KT P6SM SKC FM212100 VRB06KT P6SM SKC KCPS 210520Z 2106/2206 36006KT P6SM SKC FM210800 VRB03KT P6SM SKC FM211800 20006KT P6SM SKC KCRE 210522Z 2106/2206 28008KT P6SM SKC FM211200 33015G25KT P6SM SKC FM211800 36014KT P6SM SKC FM212000 02008KT P6SM SKC KCRG 210728Z 2107/2206 32010G20KT P6SM SCT012 SCT090 TEMPO 2107/2109 BKN012 FM211200 35010KT P6SM FEW250 FM211500 03012G18KT P6SM SKC FM212300 03008KT P6SM SKC FM220200 03004KT P6SM SKC KCRP 210528Z 2106/2206 01014G20KT P6SM OVC015 FM211000 02019G29KT P6SM OVC020 FM211500 03016G23KT P6SM -DZ OVC030 FM220000 03012KT P6SM OVC035 KCRQ 210520Z 2106/2206 VRB03KT P6SM SKC TEMPO 2111/2115 2SM BR BKN003 FM211600 VRB03KT 6SM BR FEW005 SCT070 FM211930 25008KT P6SM SCT070 FM220100 VRB04KT P6SM SCT004 SCT070 KCRW 210520Z 2106/2206 30017G27KT P6SM BKN035 TEMPO 2106/2110 BKN025 FM211000 30013G20KT P6SM BKN045 FM211300 30008G14KT P6SM SCT100 FM212100 28004KT P6SM FEW250 FM220000 00000KT P6SM SKC KCSG 210520Z 2106/2206 34008KT P6SM FEW250 FM211400 04010KT P6SM SKC FM211900 06008KT P6SM SKC FM220000 00000KT P6SM FEW250 KCSM 210520Z 2106/2206 15004KT P6SM SKC FM211400 18012G17KT P6SM BKN250 KCSV 210535Z 2106/2206 36009G15KT P6SM SKC FM211400 03006KT P6SM SKC KCTB 210540Z 2106/2206 33009KT P6SM SKC FM211600 05005KT P6SM SKC KCUB 210534Z 2106/2206 30010KT P6SM SCT250 WS015/33034KT FM211200 35008G15KT P6SM SKC FM211800 35006KT P6SM SKC FM212300 VRB03KT P6SM SKC KCVG 210539Z 2106/2212 32010KT P6SM SCT025 FM211800 28006KT P6SM FEW035 FM212300 20004KT P6SM SKC KCVS 210200Z 2102/2208 12006KT 9999 SKC QNH3040INS BECMG 2107/2108 15005KT 9999 SKC QNH3035INS BECMG 2117/2118 20012G18KT 9999 BKN060 QHN3022INS BECMG 2123/2124 20006KT 9999 BKN040 QNH3016INS TX16/2121Z TN04/2111Z KCWA 210520Z 2106/2206 29005KT P6SM SCT040 FM210800 24005KT P6SM SCT150 FM211600 22010G18KT P6SM SCT100 FM212100 22010G17KT P6SM SCT045 FM212300 23007KT P6SM SCT035 FM220100 25004KT P6SM SKC LTD TO CLD VIS AND WIND TIL 211100 KCXO 210520Z 2106/2206 01006KT P6SM SCT150 BKN250 FM211500 04010KT P6SM SCT250 FM212300 36003KT P6SM BKN250 KCXP 210522Z 2106/2206 VRB03KT P6SM SKC FM212100 07008KT P6SM SKC FM220200 VRB03KT P6SM SKC KCYS 210520Z 2106/2206 25008KT P6SM SKC FM211600 31012G22KT P6SM SKC FM212300 36010KT P6SM SKC KDAB 210535Z 2106/2206 27005KT P6SM SKC FM211400 02012G20KT P6SM FEW040 SCT120 FM220000 03010KT P6SM FEW120 SCT250 FM220400 03005KT P6SM SKC KDAG 210746Z 2108/2206 26007KT P6SM VCTS BKN100CB FM211000 26007KT P6SM BKN100 FM211900 08006KT P6SM BKN100 FM220300 25009KT P6SM SCT100 KDAL 210520Z 2106/2206 01006KT P6SM SCT200 FM211500 08007KT P6SM SCT250 FM220300 14004KT P6SM BKN250 KDAN 210524Z 2106/2206 30010KT P6SM BKN100 FM210700 31015G30KT P6SM SCT060 FM211800 31012G22KT P6SM SCT250 FM212300 30006KT P6SM SKC KDAY 210539Z 2106/2206 32012G20KT P6SM FEW025 FM210700 30008KT P6SM SCT025 FM212100 27008KT P6SM FEW035 FM212300 20006KT P6SM SKC KDBQ 210526Z 2106/2206 28005KT P6SM SKC FM211300 20007KT P6SM SKC FM211700 20014G19KT P6SM SKC FM220300 20009KT P6SM SKC WS020/24037KT KDCA 210541Z 2106/2212 29013G23KT P6SM OVC100 FM210900 31021G31KT P6SM BKN090 FM211500 32021G37KT P6SM FEW050 FM212100 32016G30KT P6SM FEW050 FM220000 31010G22KT P6SM SKC FM220300 30006KT P6SM SKC KDDC 210520Z 2106/2206 17008KT P6SM SKC FM211500 20020G30KT P6SM SKC FM220000 18012G22KT P6SM SKC KDEC 210527Z 2106/2206 VRB05KT P6SM SKC FM211600 22009KT P6SM SKC FM220000 19008KT P6SM SKC KDEN 210530Z 2106/2212 21011KT P6SM SKC FM211500 25007KT P6SM FEW250 FM211700 VRB05KT P6SM FEW250 FM212100 05007KT P6SM FEW150 SCT250 FM220100 12010KT P6SM FEW150 SCT220 FM220600 21008KT P6SM FEW150 SCT220 KDET 210524Z 2106/2206 32011KT P6SM BKN035 TEMPO 2106/2107 32012G24KT FM211200 30008KT P6SM SCT025 FM211800 26010KT P6SM SCT035 FM220000 23008KT P6SM SCT100 KDFW 210520Z 2106/2212 01006KT P6SM SCT200 FM211500 08007KT P6SM SCT250 FM220300 14004KT P6SM BKN250 KDHN 210520Z 2106/2206 33010KT P6SM SCT100 FM211500 03010G15KT P6SM SKC FM220100 04004KT P6SM SKC KDHT 210530Z 2106/2206 21006KT P6SM SKC FM211600 22018G28KT P6SM SKC FM220200 21012KT P6SM SKC KDIJ 210520Z 2106/2206 11006KT P6SM SKC FM211800 VRB06KT P6SM FEW060 SCT180 FM220300 10006KT P6SM BKN120 LTD TO CLD VIS AND WIND KDIK 210520Z 2106/2206 20012G19KT P6SM SKC WS015/26035KT FM210800 25009KT P6SM SKC FM211000 32010KT P6SM SKC FM220400 27005KT P6SM FEW250 KDLH 210520Z 2106/2206 VRB03KT P6SM BKN150 FM211400 21011KT P6SM SCT100 FM211800 24011KT P6SM SCT120 FM212200 27008KT P6SM SKC KDLS 210520Z 2106/2206 09004KT P6SM SKC FM211700 VRB04KT P6SM BKN250 KDMA 210600Z 2106/2212 12015G25KT 9999 BKN090 510009 QNH3002INS TEMPO 2106/2107 12025G35KT BECMG 2111/2112 10012G20KT 9999 SCT090 QNH2995INS TEMPO 2116/2120 12015G25KT 8000 -SHRA 510009 BECMG 2121/2122 11010G15KT 9999 FEW050 QNH2993INS BECMG 2123/2124 10009KT 9999 SKC QNH2995INS TX29/2121Z TN14/2112Z KDMN 210528Z 2106/2206 09009KT P6SM BKN080 FM211400 09012G15KT P6SM BKN060 FM212100 11008KT P6SM SCT080 KDNL 210534Z 2106/2206 30012KT P6SM SCT250 WS015/33034KT FM211400 36010G18KT P6SM SKC FM211800 35009KT P6SM SKC FM212300 02004KT P6SM SKC KDOV 210800Z 2108/2214 27010G18KT 9999 FEW055 BKN100 QNH2971INS TEMPO 2109/2115 30020G35KT 510003 BECMG 2114/2115 34015G25KT 9999 FEW050 QNH3011INS BECMG 2123/2124 33012KT 9999 SKC QNH3018INS WND 30006KT AFT 2206 TX13/2117Z TN03/2208Z KDPA 210520Z 2106/2206 30007KT P6SM SKC FM211000 27005KT P6SM SCT200 FM211600 23012KT P6SM SKC FM212000 22012G18KT P6SM SKC FM220100 22008KT P6SM FEW250 WS020/25045KT KDRO 210536Z 2106/2206 03004KT P6SM FEW120 FEW250 FM211900 16007KT P6SM FEW090 SCT250 FM220000 03005KT P6SM SCT070 BKN200 KDRT 210522Z 2106/2206 32006KT P6SM OVC070 FM212200 14005KT P6SM OVC050 KDSM 210520Z 2106/2206 VRB03KT P6SM SKC FM211500 21014G21KT P6SM SKC FM220000 20007KT P6SM FEW250 KDTW 210524Z 2106/2212 32011KT P6SM BKN035 TEMPO 2106/2107 32012G24KT FM211200 30008KT P6SM SCT025 FM211800 26010KT P6SM SCT035 FM220000 23008KT P6SM SCT100 KDUG 210536Z 2106/2206 09014G22KT P6SM SCT070 FM211600 11013KT P6SM SCT060 BKN200 KDUJ 210524Z 2106/2206 31015G25KT P6SM -SHRA OVC010 FM210900 31012G22KT P6SM -SHSN OVC020 FM211700 29012G22KT P6SM VCSH BKN035 FM212200 28010KT P6SM BKN035 FM220300 26005KT P6SM SCT035 KDVL 210520Z 2106/2206 18012KT P6SM FEW200 FM210800 19012KT P6SM SKC WS020/23040KT FM211500 22009KT P6SM SKC KDYS 210800Z 2108/2214 36006KT 9999 FEW250 QNH3020INS BECMG 2118/2119 17006KT 9999 SCT150 QNH3021INS TX15/2120Z TN07/2111Z KEAR 210532Z 2106/2206 15006KT P6SM SKC FM210900 17008KT P6SM SKC WS008/21045KT FM211400 20015G23KT P6SM SKC FM212000 22012G18KT P6SM FEW250 FM220000 VRB06KT P6SM FEW250 KEAT 210522Z 2106/2206 30005KT P6SM SKC FM212100 13004KT P6SM FEW250 FM220400 32004KT P6SM FEW250 KEAU 210520Z 2106/2206 VRB03KT P6SM SKC FM211400 20008KT P6SM SKC FM212000 22014G22KT P6SM SKC FM212300 23006KT P6SM SKC KECG 210520Z 2106/2206 28012KT P6SM SCT100 FM210800 30015G25KT P6SM BKN150 FM211100 32020G30KT P6SM SKC FM220000 33010KT P6SM SKC KECP 210520Z 2106/2206 33008KT P6SM SCT100 FM211500 36010G18KT P6SM SKC FM220100 01004KT P6SM SKC NOT SKED KEED 210619Z 2106/2206 32006KT P6SM VCTS BKN080CB FM211500 32006KT P6SM VCSH BKN080 FM211900 15008KT P6SM VCSH BKN080 FM220300 VRB05KT P6SM SCT080 KEET 210520Z 2106/2206 33006KT P6SM SCT250 FM210900 36012KT P6SM SCT250 KEFD 210400Z 2104/2210 02012KT 9999 FEW015 FEW080 SCT200 520104 QNH3017INS BECMG 2112/2113 06015G25KT 9999 FEW250 QNH3027INS BECMG 2121/2122 04010KT 9999 SCT150 BKN250 QNH3018INS TX24/2121Z TN17/2202Z KEGE 210536Z 2106/2206 10005KT P6SM SKC FM212000 24007KT P6SM FEW090 SCT250 FM220200 12005KT P6SM FEW080 FEW250 KEGI 210105Z 2101/2207 35010KT 9999 SCT040 SCT090 QNH3003INS BECMG 2111/2112 03012G18KT 9999 FEW250 QNH3016INS BECMG 2200/2201 04008KT 9999 SKC QNH3019INS TX22/2101Z TN15/2112Z LAST NO AMDS AFT 2103 NEXT 2213 KEKN 210520Z 2106/2206 30019G31KT 6SM -SHRASN OVC025 FM210900 30015G27KT P6SM OVC010 FM211400 30012G18KT P6SM BKN018 FM211800 29009G15KT P6SM SCT060 FM212100 30008KT P6SM SCT150 KEKO 210520Z 2106/2206 VRB05KT P6SM FEW080 FM210900 VRB03KT P6SM SCT070 BKN200 FM211600 VRB05KT P6SM SCT050 BKN070 FM212000 VRB06KT P6SM VCSH SCT040 BKN070 FM220000 VRB06KT P6SM -RA BKN040 KEKS 210540Z 2106/2206 17009KT P6SM SKC FM211800 19009KT P6SM SKC KELD 210540Z 2106/2206 33005KT P6SM SCT250 FM211500 05010KT P6SM SCT250 FM212000 03007KT P6SM SCT250 FM220000 00000KT P6SM SCT250 KELM 210534Z 2106/2206 32008KT P6SM SCT025 OVC040 TEMPO 2106/2108 -SHRASN OVC025 FM211000 32012G22KT P6SM SCT025 OVC040 TEMPO 2110/2114 2SM -SHSN OVC025 FM211500 31015G25KT P6SM BKN045 FM220000 30008KT P6SM BKN045 KELP 210528Z 2106/2206 11008KT P6SM FEW060 BKN070 BKN160 FM211600 09011KT P6SM OVC060 FM220300 11006KT P6SM FEW060 BKN100 KELY 210520Z 2106/2206 18009KT P6SM FEW050 BKN070 FM211500 VRB06KT P6SM VCSH SCT040 BKN060 FM212200 16006KT P6SM VCTS SCT035 BKN050CB FM220400 16006KT P6SM -RA SCT025 BKN040 KENV 210540Z 2106/2206 VRB05KT P6SM SCT080 FM211600 11005KT P6SM VCSH BKN080 FM220300 VRB04KT P6SM SCT080 BKN120 KENW 210552Z 2106/2206 31006KT P6SM FEW200 FM211400 26007KT P6SM FEW250 FM211900 23012G20KT P6SM FEW250 FM220000 23010KT P6SM FEW250 WS020/25040KT KERI 210520Z 2106/2206 34015G25KT P6SM VCSH SCT025 OVC035 TEMPO 2107/2111 4SM -RASN BKN025 FM211200 33014KT P6SM OVC035 FM212300 28010KT P6SM BKN035 KEUG 210520Z 2106/2206 VRB03KT P6SM SKC FM211400 00000KT 2SM BR BKN002 FM211700 35005KT P6SM SKC KEUL 210520Z 2106/2206 VRB04KT 6SM HZ SKC FM211800 VRB03KT P6SM SKC KEVV 210520Z 2106/2206 36006KT P6SM SKC FM211800 VRB04KT P6SM SKC KEVW 210540Z 2106/2206 17005KT P6SM SKC FM211700 23009KT P6SM SCT070 BKN200 FM220100 21008KT P6SM VCSH BKN070 FM220400 15005KT P6SM VCSH BKN060 KEWN 210529Z 2106/2206 30009G17KT P6SM FEW050 FM210900 32013G24KT P6SM FEW250 FM212000 34008KT P6SM SKC FM220000 VRB03KT P6SM SKC KEWR 210843Z 2109/2212 32018G25KT P6SM SCT030 BKN060 TEMPO 2109/2113 BKN030 FM211400 33022G33KT P6SM SCT050 FM212200 31015G25KT P6SM FEW050 FM220100 31013G20KT P6SM FEW050 FM220300 31010KT P6SM SCT150 FM220800 27006KT P6SM FEW150 KEYW 210523Z 2106/2206 01004KT P6SM FEW025 SCT050 FM211400 01004KT P6SM SCT025 KFAR 210520Z 2106/2206 17007KT P6SM FEW200 FM211100 17010KT P6SM SKC WS020/21040KT FM211400 24008KT P6SM SKC KFAT 210520Z 2106/2206 VRB03KT P6SM SKC KFAY 210530Z 2106/2206 31011G19KT P6SM SKC FM210800 33012G26KT P6SM SKC FM211900 35010G19KT P6SM SKC FM212200 35008KT P6SM SKC KFBG 210559Z 2105/2207 32012KT 9999 SKC 520052 QNH2985INS TEMPO 2113/2116 35015G25KT 520204 BECMG 2119/2120 33010G15KT 9999 SKC QNH3005INS BECMG 2123/2124 35004KT 9999 SKC QNH3020INS TX16/2105Z TN06/2111Z KFCS 202100Z 2021/2203 16009KT 9999 SKC QNH3036INS BECMG 2104/2105 31009KT 9999 SKC QNH3016INS BECMG 2120/2121 04009KT 9999 SKC QNH3014INS TX21/2021Z TN00/2113Z KFDY 210520Z 2106/2206 32012KT P6SM BKN035 FM211800 28008KT P6SM SCT035 KFFO 210300Z 2103/2209 32015G25KT 9999 OVC025 QNH3004INS TEMPO 2103/2105 BKN018 BECMG 2105/2106 33012KT 9999 SCT030 QNH3017INS BECMG 2114/2115 33012KT 9999 SKC QNH3034INS WND VRB06KT AFT 2121 TX09/2121Z TNM03/2112Z KFKL 210807Z 2108/2206 31010KT P6SM -SHRASN BKN025 FM211800 29010G20KT P6SM VCSH BKN035 FM212200 26008KT P6SM BKN035 FM220300 23003KT P6SM SCT035 KFLG 210520Z 2106/2206 09008KT P6SM FEW020 FM211800 17010G16KT P6SM BKN040 TEMPO 2118/2122 VRB15G25KT TSRA BKN040CB FM220100 20006KT P6SM SCT040 KFLL 210529Z 2106/2212 VRB05KT P6SM SCT035 FM211400 34007KT P6SM SCT030 SCT050 FM211800 03012KT P6SM SCT030 BKN070 FM220100 05012KT P6SM SCT025 SCT050 KFLO 210522Z 2106/2206 30009KT P6SM SKC FM210800 33011G18KT P6SM SKC FM211800 36008KT P6SM SKC KFMH 210530Z 2106/2206 30004KT P6SM BKN150 FM210800 34004KT P6SM BKN080 FM211000 34005KT P6SM -SHRA BKN050 FM211200 34009KT 5SM -SHRA OVC020 FM211600 34014G30KT P6SM SCT150 FM220000 32011G21KT P6SM SKC KFMN 210532Z 2106/2206 09012KT P6SM BKN080 FM211800 14009KT P6SM SCT080 BKN250 KFMY 210528Z 2106/2206 34006KT P6SM FEW020 FEW250 FM211000 01006KT P6SM SCT025 SCT250 FM211400 03009KT P6SM FEW035 SCT250 FM220100 05010KT P6SM SCT250 KFNT 210524Z 2106/2206 32011KT P6SM BKN035 FM211200 30008KT P6SM SCT025 FM211800 26011KT P6SM SCT035 FM212300 23008KT P6SM SCT100 KFOD 210520Z 2106/2206 VRB03KT P6SM SKC FM211200 19007KT P6SM SKC FM211500 21015G22KT P6SM SKC FM220000 21005KT P6SM SCT250 KFOE 210520Z 2106/2206 03004KT P6SM SKC FM211600 19012KT P6SM SKC KFPR 210607Z 2106/2206 VRB02KT 3SM BR SKC TEMPO 2106/2109 1SM BR FM211400 01012G20KT P6SM SCT040 SCT120 FM212300 02011KT P6SM SCT040 BKN080 FM220400 04008KT P6SM SCT030 BKN060 KFSD 210524Z 2106/2206 18009KT P6SM SKC FM211100 18011G19KT P6SM SKC WS020/22040KT FM211500 22015G25KT P6SM SKC FM212200 33005KT P6SM FEW200 KFSM 210520Z 2106/2206 05004KT P6SM SCT250 FM211500 08005KT P6SM SKC KFST 210520Z 2106/2206 06005KT P6SM OVC090 FM211200 11008KT P6SM OVC170 FM220000 15008KT P6SM FEW200 KFTK 210315Z 2103/2207 30020G25KT 9999 SKC 510003 QNH2997INS TEMPO 2103/2105 32020G35KT 520003 BECMG 2104/2105 33012KT 9999 SKC QNH3025INS WND VRB06KT AFT 2118 TX11/2118Z TN00/2111Z KFTW 210520Z 2106/2206 01006KT P6SM SCT200 FM211500 08007KT P6SM SCT250 FM220300 14004KT P6SM BKN250 KFTY 210520Z 2106/2206 31010G18KT P6SM SCT250 FM211400 36008KT P6SM SKC FM212000 33005KT P6SM SKC FM220000 00000KT P6SM FEW250 KFVE 210532Z 2106/2206 28007KT P6SM FEW045 FM211100 30010G17KT P6SM SCT035 FM211300 31014G24KT P6SM BKN028 FM212000 30012G20KT P6SM BKN035 FM220200 30010G17KT P6SM SCT045 KFWA 210520Z 2106/2206 31007KT P6SM BKN050 FM211300 27007KT P6SM BKN050 FM212200 22006KT P6SM FEW250 KFXE 210529Z 2106/2206 VRB02KT P6SM SCT020 FM211400 33007KT P6SM SCT030 SCT050 FM211800 02012KT P6SM SCT030 BKN070 FM220100 05010KT P6SM SCT025 SCT050 KFYV 210520Z 2106/2206 VRB03KT P6SM SKC WS002/02027KT FM211800 19005KT P6SM SKC KGBD 210520Z 2106/2206 12005KT P6SM SKC FM211300 18013KT P6SM SKC FM211600 20018G26KT P6SM SKC FM220000 18012KT P6SM SKC LTD TO CLD VIS AND WIND KGCC 210520Z 2106/2206 22009KT P6SM FEW250 FM211200 29006KT P6SM FEW250 FM211800 04008KT P6SM FEW250 KGCK 210520Z 2106/2206 17008KT P6SM SKC FM211500 20020G30KT P6SM SKC FM220000 18010G20KT P6SM SKC KGCN 210520Z 2106/2206 07009KT P6SM SCT040 FM211800 13010G16KT P6SM BKN040 TEMPO 2118/2122 VRB15G25KT TSRA BKN040CB FM220100 VRB06KT P6SM BKN060 KGDV 210520Z 2106/2206 26007KT P6SM SKC FM210900 33008KT P6SM SKC FM220500 VRB03KT P6SM SKC KGEG 210522Z 2106/2206 06004KT P6SM FEW250 FM211400 04004KT 6SM BR VCFG FEW001 FEW250 FM211600 VRB04KT P6SM FEW250 KGFA 210305Z 2103/2209 23009KT 9999 SKC QNH3003INS BECMG 2114/2115 35009KT 9999 SKC QNH3005INS BECMG 2120/2121 02006KT 9999 SKC QNH2998INS TX24/2121Z TN00/2112Z KGFK 210520Z 2106/2206 17007KT P6SM FEW200 FM210900 18012KT P6SM SKC WS020/22040KT FM211400 24008KT P6SM SKC KGFL 210534Z 2106/2206 31009KT P6SM SCT050 BKN100 FM211000 36008KT P6SM SCT050 BKN100 FM211400 34013G22KT P6SM SCT050 FM220000 29006KT P6SM SCT050 KGGG 210540Z 2106/2206 36006KT P6SM SKC FM210900 03005KT P6SM SCT250 FM211500 07013KT P6SM SCT250 FM212000 04006KT P6SM SCT250 FM220000 04003KT P6SM SCT250 KGGW 210520Z 2106/2206 33010KT P6SM SKC FM210900 VRB06KT P6SM SKC KGJT 210536Z 2106/2206 09006KT P6SM SKC FM211500 13009KT P6SM FEW110 FEW250 FM212000 27005KT P6SM FEW090 FEW250 FM220200 06006KT P6SM FEW090 FEW250 KGKY 210520Z 2106/2206 01006KT P6SM SCT200 FM211500 08007KT P6SM SCT250 FM220300 14004KT P6SM BKN250 KGLD 210520Z 2106/2206 17013KT P6SM SKC WS020/16040KT FM210900 19012G20KT P6SM SKC FM211400 22015KT P6SM SKC FM220000 VRB05KT P6SM SKC KGLH 210525Z 2106/2206 36010KT P6SM SCT250 KGLS 210557Z 2106/2206 01018G28KT P6SM SCT015 BKN050 FM210800 02019G29KT P6SM SCT050 BKN150 FM211800 03016KT P6SM BKN180 BKN250 FM220000 02013KT P6SM BKN140 BKN250 KGMU 210535Z 2106/2206 34011KT P6SM SKC FM212300 03004KT P6SM SKC KGNV 210729Z 2107/2206 30005KT P6SM SCT090 FM210900 32010G17KT P6SM SCT015 TEMPO 2109/2111 BKN015 FM211200 34006KT P6SM FEW250 FM211500 02010KT P6SM SKC FM212300 05007KT P6SM SKC FM220200 02003KT P6SM SKC KGON 210843Z 2109/2206 35009G17KT P6SM -SHRA SCT025 BKN040 FM211300 34015G24KT P6SM VCSH BKN040 FM211500 33020G31KT P6SM FEW050 SCT150 FM212200 32015G25KT P6SM FEW050 FM220100 32011KT P6SM FEW050 KGPI 210520Z 2106/2206 00000KT P6SM SKC FM211100 00000KT 4SM BR SCT002 FM211200 00000KT 2SM BR SCT002 FM211400 00000KT 4SM BR SCT002 FM211500 VRB03KT P6SM SKC KGPT 210520Z 2106/2206 02015G28KT P6SM BKN110 FM211000 02014G28KT P6SM SCT150 FM212000 02011G20KT P6SM SKC KGRB 210520Z 2106/2206 32008KT P6SM SCT040 TEMPO 2106/2108 BKN040 FM210900 28005KT P6SM SCT040 SCT150 FM211100 25006KT P6SM SCT150 FM211700 23011G17KT P6SM SCT120 FM212300 22007KT P6SM SCT050 FM220300 23006KT P6SM SKC KGRF 202212Z 2022/2203 03009KT 9999 SCT010 QNH3004INS BECMG 2022/2023 02009KT 9999 SKC QNH3004INS BECMG 2105/2106 15006KT 4800 BR FEW002 QNH3004INS BECMG 2107/2108 15006KT 1600 BR FEW002 QNH3003INS BECMG 2108/2109 15006KT 0400 FG VV002 QNH3001INS TEMPO 2117/2118 1600 BR BECMG 2119/2120 15006KT 4800 BR FEW002 QNH3000INS TX14/2022Z TN03/2113Z KGRI 210532Z 2106/2206 15006KT P6SM SKC FM211000 17008KT P6SM SKC WS008/21045KT FM211400 20016G25KT P6SM SKC FM212000 22013G21KT P6SM FEW250 FM220000 VRB06KT P6SM FEW250 KGRK 210800Z 2108/2214 01009KT 9999 SCT190 QNH3027INS BECMG 2114/2115 04010G15KT 9999 FEW180 QNH3025INS BECMG 2121/2122 04006KT 9999 FEW140 QNH3022INS TX17/2120Z TN09/2111Z KGRR 210540Z 2106/2206 31011KT P6SM BKN050 FM211400 26008KT P6SM BKN050 KGSO 210530Z 2106/2206 32012G29KT P6SM FEW250 FM211100 33009G20KT P6SM SKC FM212100 34008KT P6SM SKC KGSP 210535Z 2106/2206 35010KT P6SM SKC FM212300 03003KT P6SM SKC KGTB 210100Z 2101/2207 26009KT 9999 SCT030 QNH2958INS BECMG 2103/2104 30009KT 9999 BKN030 620304 QNH2964INS BECMG 2115/2116 32012G18KT 9999 BKN045 620453 QNH2996INS BECMG 2121/2122 29009KT 9999 BKN045 620453 QNH3001INS TX07/2101Z TNM02/2108Z KGTF 210540Z 2106/2206 23006KT P6SM SKC FM211600 05005KT P6SM SKC KGTR 210525Z 2106/2206 35010KT P6SM SCT250 KGUC 210536Z 2106/2206 VRB04KT P6SM SKC FM212000 24007KT P6SM FEW100 FEW250 FM220200 VRB04KT P6SM FEW100 FEW250 KGUP 210532Z 2106/2206 12006KT P6SM OVC080 FM211800 16008KT P6SM BKN070 FM212300 17008KT P6SM VCSH OVC060 KGUS 210300Z 2103/2209 33009KT 9999 OVC030 620305 QNH3019INS TEMPO 2103/2104 31015G25KT BECMG 2109/2110 29009KT 9999 BKN030 620305 QNH3029INS BECMG 2115/2116 25006KT 9999 SCT030 QNH3024INS BECMG 2121/2122 24010G15KT 9999 FEW050 QNH3011INS TX07/2121Z TN00/2112Z KGUY 210530Z 2106/2206 20006KT P6SM SKC FM211400 21018G28KT P6SM SKC FM220200 21012KT P6SM SKC KGWO 210732Z 2108/2206 01004KT 4SM BR FEW002 FM210900 01010KT P6SM SCT250 KGYY 210520Z 2106/2206 30010KT P6SM SCT045 FM211100 27007KT P6SM FEW045 SCT200 FM211700 22012KT P6SM SKC FM220100 22008KT P6SM FEW250 WS020/25045KT KHBG 210525Z 2106/2206 01005KT P6SM FEW250 FM211500 03011KT P6SM SKC KHCR 210540Z 2106/2206 VRB03KT P6SM FEW080 FM211700 23005KT P6SM SCT070 BKN200 FM220000 VRB05KT P6SM VCSH BKN070 KHDC 210520Z 2106/2206 02008KT P6SM BKN110 FM211000 03005KT P6SM SCT140 FM211400 04009KT P6SM SKC FM212300 03004KT P6SM SKC KHDN 210536Z 2106/2206 10007KT P6SM SKC FM211900 29008KT P6SM FEW090 SCT250 FM220200 15005KT P6SM FEW080 SCT250 KHIB 210520Z 2106/2206 VRB03KT P6SM BKN150 FM211300 19006KT P6SM SCT100 FM211600 22010KT P6SM SCT150 FM211800 26010KT P6SM SKC FM212100 29007KT P6SM SKC KHIE 210520Z 2106/2206 VRB03KT P6SM SCT045 TEMPO 2106/2110 BKN040 BKN070 FM211000 30006KT P6SM BKN045 BKN070 FM211300 30012G18KT P6SM OVC035 FM212300 VRB03KT P6SM SCT040 BKN070 KHIF 202100Z 2021/2203 26009KT 9999 FEW150 QNH3025INS BECMG 2103/2104 11009KT 9999 SKC QNH3026INS BECMG 2105/2106 11012G18KT 9999 SKC QNH3025INS BECMG 2117/2118 11009KT 9999 SKC QNH3014INS TX19/2021Z TN07/2112Z KHIO 210742Z 2108/2206 VRB03KT P6SM SKC TEMPO 2108/2110 2SM BR SKC FM211000 00000KT 1SM BR OVC002 FM211700 VRB03KT P6SM SKC KHKS 210739Z 2108/2206 00000KT P6SM FEW002 FM211000 01009KT P6SM FEW250 KHKY 210535Z 2106/2206 32013G22KT P6SM FEW070 FEW250 FM211800 33010KT P6SM SKC FM220300 00000KT P6SM SKC KHLG 210806Z 2108/2206 30010G20KT P6SM VCSH BKN025 FM211500 29010G20KT P6SM BKN035 FM212100 26005KT P6SM SCT040 KHLN 210540Z 2106/2206 25005KT P6SM SKC FM211600 33005KT P6SM SKC KHNB 210524Z 2106/2206 33007KT P6SM SKC FM211500 VRB04KT P6SM SKC KHND 210545Z 2106/2206 VRB05KT P6SM VCTS BKN080CB BKN150 TEMPO 2110/2114 -TSRA OVC070CB FM211900 04005KT P6SM VCSH BKN080 FM220300 VRB05KT P6SM BKN080 KHOB 210520Z 2106/2206 VRB03KT P6SM BKN130 FM211200 12007KT P6SM OVC090 FM220000 17004KT P6SM FEW170 KHON 210524Z 2106/2206 16007KT P6SM SKC FM210900 17010G17KT P6SM SKC WS020/20040KT FM211400 22011G18KT P6SM SKC FM211900 33010KT P6SM SKC KHOP 210800Z 2108/2214 01006KT 9999 SKC QNH3025INS WND 18006KT AFT 2203 TX10/2121Z TN01/2112Z KHOT 210520Z 2106/2206 01005KT P6SM SCT250 FM211400 08008KT P6SM SKC KHOU 210520Z 2106/2206 02014KT P6SM SCT025 BKN050 BKN250 FM210800 03012KT P6SM SCT150 BKN250 FM211500 04014KT P6SM BKN250 FM220300 03007KT P6SM BKN180 BKN250 KHPN 210843Z 2109/2206 32015G24KT P6SM SCT025 BKN040 FM211200 33020G32KT P6SM SCT040 FM212300 31014G22KT P6SM FEW050 FM220200 32010KT P6SM FEW050 KHQM 210520Z 2106/2206 04005KT 5SM BR SCT006 FM210700 09006KT 2SM BR OVC002 TEMPO 2112/2116 1SM BR VV002 FM211800 12006KT 4SM BR BKN008 FM212200 23006KT P6SM SKC FM220300 10005KT 5SM BR SCT005 KHRL 210804Z 2108/2206 35012KT 4SM BR VCSH OVC005 FM211200 35016G22KT P6SM -SHRA OVC009 TEMPO 2114/2118 4SM TSRA BR BKN007CB FM212000 36019G25KT 5SM -SHRA OVC012 FM220000 36015KT 4SM -RA BR OVC015 FM220100 36014KT P6SM -RA OVC015 FM220300 36013G19KT P6SM -RA OVC015 KHRO 210520Z 2106/2206 34004KT P6SM SKC FM211500 13007KT P6SM SKC KHRT 210100Z 2101/2207 24009KT 8000 -SHRA BKN080 QNH2999INS BECMG 2102/2103 34015KT 9999 NSW SCT080 QNH3001INS BECMG 2105/2106 36010G18KT 9999 SCT080 QNH3004INS BECMG 2114/2115 03020G25KT 9999 SKC QNH3017INS BECMG 2117/2118 03015KT 9999 SKC QNH3016INS TX23/2101Z TN12/2112Z KHST 210800Z 2108/2214 09006KT 9999 FEW030 QNH2994INS BECMG 2114/2115 34009KT 9999 SCT025 QNH2996INS BECMG 2120/2121 06012G18KT 8000 -SHRA BKN020 QNH2995INS TX30/2118Z TN23/2109Z KHSV 210533Z 2106/2206 35012G17KT P6SM SKC FM211200 03012G17KT P6SM SKC FM211900 04009KT P6SM SKC FM220100 VRB04KT P6SM SKC KHTS 210520Z 2106/2206 32013G24KT P6SM BKN040 TEMPO 2106/2108 BKN030 FM210800 31013G23KT P6SM SCT090 FM211700 32006KT P6SM SKC FM212100 29005KT P6SM SKC FM220000 00000KT P6SM SKC KHUF 210520Z 2106/2206 31008KT P6SM SKC FM211200 VRB06KT P6SM SKC KHUL 210532Z 2106/2206 26004KT P6SM FEW070 FM211200 31012G20KT P6SM SCT045 FM211500 32013G23KT P6SM BKN040 FM212100 32011G20KT P6SM SCT050 FM220200 30007KT P6SM FEW060 SCT110 KHUM 210520Z 2106/2206 02009KT P6SM OVC050 FM211500 04013KT P6SM BKN140 FM212000 04009KT P6SM SCT250 KHUT 210520Z 2106/2206 10005KT P6SM SKC FM211300 16007KT P6SM SKC FM211600 18014KT P6SM SKC FM211800 19017G25KT P6SM SKC KHVR 210540Z 2106/2206 15005KT P6SM SKC FM211600 09010G15KT P6SM SKC KHYA 210530Z 2106/2206 29005KT P6SM BKN150 FM210800 33006KT P6SM BKN090 FM211000 34007KT P6SM -SHRA BKN050 FM211200 33011KT 5SM -SHRA BKN025 FM211600 33020G35KT P6SM SCT070 FM220000 32010G26KT P6SM SKC FM220500 31009KT P6SM FEW150 KHYR 210520Z 2106/2206 VRB04KT P6SM SCT200 FM211600 21010KT P6SM SCT150 FM212200 24008KT P6SM SKC FM220000 VRB04KT P6SM SKC KHYS 210520Z 2106/2206 16007KT P6SM SKC FM211500 20018G28KT P6SM SKC FM220000 18010G20KT P6SM SKC KIAB 210200Z 2102/2208 02009KT 9999 SKC QNH3032INS BECMG 2119/2120 19010G18KT 9999 SKC QNH3013INS BECMG 2123/2124 18009KT 9999 SKC QNH3008INS TX22/2120Z TN04/2111Z KIAD 210541Z 2106/2212 29014G24KT P6SM OVC100 FM210900 31021G31KT P6SM BKN090 FM211500 32021G37KT P6SM FEW050 FM212100 32016G30KT P6SM FEW050 FM220000 31010G22KT P6SM SKC FM220300 30006KT P6SM SKC KIAG 210530Z 2106/2206 34014G22KT P6SM BKN050 BKN060 FM210800 33014G20KT P6SM BKN040 FM211400 31011G20KT P6SM BKN035 FM211900 29013G19KT P6SM BKN050 FM220000 28009KT P6SM BKN045 KIAH 210520Z 2106/2212 02009KT P6SM SCT060 SCT150 BKN250 FM211500 04013KT P6SM BKN250 FM220300 03007KT P6SM BKN180 BKN250 FM220900 04005KT P6SM OVC140 KICT 210520Z 2106/2206 10005KT P6SM SKC FM211300 15007KT P6SM SKC FM211600 17010KT P6SM SKC FM211900 19014G20KT P6SM SKC KIDA 210520Z 2106/2206 VRB03KT P6SM SKC FM211900 25006KT P6SM FEW070 SCT120 FM220200 VRB06KT P6SM BKN110 KIFP 210619Z 2106/2206 01006KT P6SM VCTS BKN080CB FM211500 01007KT P6SM VCSH BKN080 FM212000 18009KT P6SM VCSH BKN080 FM220300 VRB05KT P6SM SCT080 KILG 210529Z 2106/2206 29010KT P6SM SCT035 BKN100 FM210900 30012G20KT P6SM -SHRA OVC035 FM211100 33016G24KT P6SM BKN035 FM211300 32018G30KT P6SM SCT045 FM212200 32010G18KT P6SM FEW045 FM220100 31006KT P6SM SKC FM220500 27004KT P6SM SKC KILM 210559Z 2106/2206 33015G24KT P6SM SKC TEMPO 2106/2109 BKN030 FM212000 35012KT P6SM SKC KILN 210539Z 2106/2206 32012G22KT P6SM SCT025 FM210700 30008KT P6SM FEW025 FM212100 27007KT P6SM FEW035 FM212300 22005KT P6SM SKC KIND 210805Z 2108/2212 32008KT P6SM SKC FM211500 VRB06KT P6SM SKC KINK 210520Z 2106/2206 07005KT P6SM OVC100 FM211200 11008KT P6SM OVC090 FM220000 12006KT P6SM FEW170 KINL 210520Z 2106/2206 VRB04KT P6SM BKN150 FM211200 19006KT P6SM BKN080 FM211500 22008KT P6SM SCT120 FM211700 27007KT P6SM FEW150 KINS 2107/2213 03009KT 9999 -SHRA BKN050 BKN100 QNH3004INS BECMG 2114/2115 08009KT 9000 -SHRA BKN050 BKN080 QNH3001INS BECMG 2120/2121 10009KT 9999 NSW SCT050 BKN100 QNH2999INS BECMG 2202/2203 VRB06KT 9999 SCT060 QNH2998INS TX26/2122Z TN09/2113Z KINT 210530Z 2106/2206 32012G29KT P6SM FEW200 FM211000 33009G23KT P6SM SKC FM211200 33008G16KT P6SM SKC FM212300 VRB04KT P6SM SKC KINW 210520Z 2106/2206 13007KT P6SM FEW030 SCT070 PROB30 2117/2121 VRB15G25KT TSRA BKN050CB FM212200 18009KT P6SM SCT070 KIPL 210520Z 2106/2206 28006KT P6SM SKC FM211500 VRB03KT P6SM SKC FM220300 28006KT P6SM SKC KIPT 210559Z 2106/2206 30006KT P6SM SCT040 BKN060 TEMPO 2107/2108 30013G23KT BKN035 FM210800 30013G23KT P6SM VCSH BKN045 FM211400 30015G25KT P6SM BKN050 FM212200 29008KT P6SM SCT050 KISM 210535Z 2106/2206 30004KT P6SM SKC FM211400 02012G18KT P6SM FEW040 SCT120 FM220000 03010KT P6SM FEW120 SCT250 FM220400 01004KT P6SM SKC KISN 210520Z 2106/2206 VRB04KT P6SM SKC FM210800 34007KT P6SM SKC WS015/36045KT FM211100 30004KT P6SM SKC FM211700 30008KT P6SM SKC KISO 210831Z 2109/2206 33013G24KT P6SM SKC FM212000 34007KT P6SM SKC FM220000 00000KT P6SM SKC LTD TO CLD VIS AND WIND KISP 210843Z 2109/2206 31011G17KT P6SM VCSH SCT025 BKN040 TEMPO 2110/2112 BKN025 FM211200 32018G27KT P6SM BKN040 FM211300 33022G33KT P6SM FEW050 SCT150 FM212200 31015G25KT P6SM FEW050 FM220200 32010KT P6SM FEW050 KITH 210534Z 2106/2206 33008KT P6SM SCT008 OVC025 TEMPO 2106/2108 -SHRASN OVC008 FM210900 32012G22KT P6SM SCT008 OVC015 TEMPO 2110/2114 1SM -SHSN OVC008 FM211600 32015G25KT P6SM SCT025 BKN035 TEMPO 2116/2118 2SM -SHSN OVC025 FM220000 30010KT P6SM BKN040 KIWA 210520Z 2106/2206 10008KT P6SM SCT090 WS020/11035KT FM211500 11013G20KT P6SM VCSH BKN080 FM212200 10010KT P6SM BKN070 LTD TO CLD VIS AND WIND TIL 211300 KIWD 210520Z 2106/2206 VRB04KT P6SM SCT035 FM211400 21009KT P6SM SCT150 FM220300 26005KT P6SM SKC KIXD 210520Z 2106/2206 VRB05KT P6SM SKC FM211400 19011KT P6SM SKC KJAC 210527Z 2106/2206 01006KT P6SM SKC FM211800 20006KT P6SM FEW060 FM220200 02006KT P6SM FEW060 SCT150 LTD TO CLD VIS AND WIND KJAN 210734Z 2108/2206 01003KT 4SM BR FEW002 FM211000 02008KT P6SM FEW250 KJAX 210727Z 2107/2206 33010G20KT P6SM SCT012 SCT090 TEMPO 2107/2109 BKN012 FM211200 34007KT P6SM FEW250 FM211500 02012G18KT P6SM SKC FM212200 03007KT P6SM SKC FM220200 02003KT P6SM SKC KJBR 210527Z 2106/2206 01008KT P6SM FEW250 FM211300 07007KT P6SM SKC KJCT 210520Z 2106/2206 VRB06KT P6SM OVC150 FM211600 08011KT P6SM OVC250 NOT SKED KJER 210520Z 2106/2206 07010KT P6SM SCT250 KJFK 210844Z 2109/2212 32018G25KT P6SM VCSH SCT025 BKN060 TEMPO 2109/2112 BKN025 FM211200 33023G34KT P6SM SCT050 FM212300 31017G28KT P6SM FEW050 FM220100 31015G21KT P6SM FEW050 FM220300 31012KT P6SM SCT150 FM221100 28008KT P6SM FEW150 KJHW 210706Z 2107/2206 32008KT P6SM SCT025 BKN040 OVC050 FM210800 34013G25KT 5SM -SN OVC007 TEMPO 2108/2112 2SM -SHSN OVC003 FM211400 31013G20KT 5SM -SN BKN025 FM211700 30013G22KT P6SM BKN025 FM220000 28009KT P6SM BKN025 FM220300 25007KT P6SM OVC035 KJKL 210808Z 2108/2206 32009KT P6SM OVC035 FM210900 32006KT P6SM BKN035 FM211100 32003KT P6SM SKC KJLN 210520Z 2106/2206 04006KT P6SM SKC FM211000 10005KT P6SM SKC FM211400 15007KT P6SM SKC FM211800 19007KT P6SM SKC KJMS 210520Z 2106/2206 17009KT P6SM SKC FM210800 18010G18KT P6SM SKC WS015/21040KT FM211200 22006KT P6SM SKC FM211400 29008KT P6SM SKC FM211600 32011G22KT P6SM SKC KJST 210637Z 2107/2206 30017G25KT 1SM -SN OVC002 FM210715 30018G28KT 4SM -SHSN OVC008 FM211300 30017G25KT P6SM VCSH OVC015 FM212300 29010KT P6SM BKN025 KJXN 210540Z 2106/2206 30010KT P6SM BKN040 FM211400 27008KT P6SM SCT035 KLAF 210520Z 2106/2206 31015KT P6SM SKC FM211100 VRB06KT P6SM SKC LTD TO CLD VIS AND WIND TIL 211300 KLAL 210528Z 2106/2206 30005KT P6SM FEW020 FEW250 FM210800 VRB03KT 6SM BR SCT015 SCT250 FM211400 03009KT P6SM FEW025 SCT250 FM220500 05009KT P6SM FEW250 NOT SKED TIL 211100 KLAN 210540Z 2106/2206 30010KT P6SM BKN035 FM211400 24008KT P6SM SCT035 KLAR 210520Z 2106/2206 16007KT P6SM SKC FM211000 22008KT P6SM SKC FM212000 30010G20KT P6SM SKC FM220000 30010KT P6SM SKC KLAS 210543Z 2106/2212 VRB05KT P6SM VCTS BKN080CB BKN150 TEMPO 2110/2114 -TSRA OVC070CB FM211900 12006KT P6SM VCSH BKN080 FM220300 21007KT P6SM BKN080 KLAW 210520Z 2106/2206 00000KT P6SM SCT250 FM211600 17008KT P6SM BKN250 KLAX 210533Z 2106/2212 12005KT P6SM SKC FM211900 26012KT P6SM SKC FM220300 25006KT P6SM SKC FM220900 VRB03KT P6SM SKC KLBB 210522Z 2106/2206 14005KT P6SM SCT250 FM211400 19008KT P6SM BKN080 KLBE 210524Z 2106/2206 30015G25KT 3SM -SHRA OVC015 FM210800 30012G22KT P6SM -SHRASN OVC020 FM211400 29012G22KT P6SM VCSH OVC025 FM211900 29010G20KT P6SM BKN035 FM212300 27005KT P6SM SCT040 KLBF 210704Z 2107/2206 19012KT P6SM SKC WS015/20040KT FM211100 16005KT P6SM SKC FM211500 22008KT P6SM SKC FM212200 30006KT P6SM SKC FM220000 04009KT P6SM FEW250 KLBL 210520Z 2106/2206 18007KT P6SM SKC FM211500 21022G32KT P6SM SKC FM220000 18013G23KT P6SM SKC KLBT 210522Z 2106/2206 31008KT P6SM SKC FM210800 32012G20KT P6SM SKC FM211800 36008KT P6SM SKC KLBX 210801Z 2108/2206 02013KT P6SM BKN030 BKN050 FM210900 03012KT P6SM SCT035 OVC250 FM211300 03012G22KT P6SM BKN250 FM220000 03006KT P6SM BKN180 BKN250 KLCH 210520Z 2106/2206 03013G19KT P6SM BKN050 FM211200 04012KT P6SM BKN250 FM220000 05006KT P6SM SCT250 KLCK 210539Z 2106/2206 32015G22KT P6SM SCT025 BKN035 FM210800 30012KT P6SM SCT025 FM212300 26005KT P6SM SKC FM220100 19003KT P6SM SKC KLEB 210520Z 2106/2206 00000KT P6SM SCT090 BKN120 FM211100 33008KT P6SM BKN080 BKN120 FM211700 32015G23KT P6SM SCT040 SCT120 FM220000 00000KT P6SM SCT250 KLEE 210535Z 2106/2206 28004KT P6SM SKC FM211400 03012KT P6SM FEW040 SCT120 FM220000 05010KT P6SM FEW120 SCT250 FM220400 02005KT P6SM SKC KLEX 210524Z 2106/2206 32009KT P6SM SCT040 FM211500 VRB05KT P6SM SKC KLFI 210815Z 2108/2207 30010G20KT 9999 SCT080 BKN110 QNH2984INS TEMPO 2108/2113 32015G35KT 510003 BECMG 2112/2113 31020G25KT 9999 SKC QNH2986INS BECMG 2123/2124 33012KT 9999 SKC QNH3020INS TX13/2117Z TN08/2111Z KLFK 210703Z 2107/2206 36005KT P6SM SKC TEMPO 2107/2110 4SM BR OVC002 FM211400 05013G19KT P6SM SCT250 FM212000 03007KT P6SM SCT250 FM220000 02003KT P6SM SCT250 KLFT 210520Z 2106/2206 02011KT P6SM BKN050 FM211200 04010KT P6SM BKN250 KLGA 210843Z 2109/2212 32018G25KT P6SM SCT025 BKN060 TEMPO 2109/2113 BKN025 FM211300 33022G33KT P6SM SCT050 FM212300 31017G27KT P6SM FEW050 FM220100 31014G20KT P6SM FEW050 FM220300 31012KT P6SM SCT150 FM221100 28007KT P6SM FEW150 KLGB 210533Z 2106/2206 16005KT P6SM SKC FM211300 VRB03KT P6SM SKC FM211900 18008KT P6SM SKC FM212300 29008KT P6SM SKC FM220400 VRB03KT P6SM SKC KLGU 210540Z 2106/2206 VRB05KT P6SM FEW080 FM211900 31005KT P6SM SCT080 BKN200 FM220500 VRB03KT P6SM BKN080 KLIT 210520Z 2106/2206 36005KT P6SM FEW250 FM211400 06007KT P6SM SKC KLLQ 210520Z 2106/2206 35004KT P6SM FEW250 FM211500 05009KT P6SM SKC KLMT 210535Z 2106/2206 VRB03KT P6SM SKC KLND 210527Z 2106/2206 VRB05KT P6SM SKC FM220100 25007KT P6SM SCT200 KLNK 210520Z 2106/2206 VRB03KT P6SM SKC FM211300 18006KT P6SM SKC FM211700 20013G24KT P6SM SKC KLNS 210559Z 2106/2206 30010KT P6SM SCT050 BKN100 FM210900 31018G26KT P6SM BKN050 FM211300 32018G28KT P6SM SCT060 FM212330 30008KT P6SM SKC KLOZ 210809Z 2108/2206 33006KT P6SM BKN035 FM211000 34005KT P6SM SKC KLRD 210528Z 2106/2206 02011KT P6SM OVC035 FM210900 36013G18KT P6SM -DZ BKN017 OVC060 FM211600 35009KT P6SM OVC025 FM220100 34005KT P6SM OVC035 KLRF 210700Z 2107/2213 05006KT 9999 SKC QNH3025INS BECMG 2202/2203 12006KT 9999 SKC QNH3024INS TX13/2121Z TN05/2112Z KLRU 210528Z 2106/2206 12012G16KT P6SM SCT110 FM210800 12006KT P6SM BKN070 BKN110 KLSE 210520Z 2106/2206 19005KT P6SM FEW250 FM211900 21011G20KT P6SM SKC FM212300 16005KT P6SM FEW250 KLSF 210100Z 2101/2207 32009KT 9999 FEW080 SCT100 QNH3002INS BECMG 2102/2103 34009KT 9999 SKC QNH3007INS BECMG 2114/2115 03010G15KT 9999 SKC QNH3021INS BECMG 2122/2123 01006KT 9999 SKC QNH3022INS TX18/2120Z TN08/2108Z KLSV 2107/2213 VRB06KT 9999 SCT050 BKN080 QNH2999INS TEMPO 2107/2112 03012KT 8000 -TSRA BKN050CB OVC080 BECMG 2111/2112 VRB06KT 9999 BKN060 QNH3004INS BECMG 2120/2121 07010G15KT 9999 BKN060 QNH2994INS BECMG 2202/2203 13009KT 9999 SCT050 QNH2996INS TX28/2122Z TN16/2113Z KLUF 210052Z 2100/2202 05009KT 9999 SCT080 QNH2990INS BECMG 2102/2103 03015G25KT 9999 SCT080 QNH2990INS BECMG 2107/2108 02012G18KT 9999 FEW060 QNH2992INS BECMG 2112/2113 03012KT 9999 FEW060 QNH2986INS BECMG 2119/2120 05009KT 9999 SCT060 QNH2986INS TX31/2100Z TN21/2114Z LAST NO AMDS AFT 2100 NEXT 2204 KLUK 210825Z 2108/2206 29005KT P6SM SCT035 FM211900 26005KT P6SM FEW035 FM212300 00000KT P6SM SKC KLVK 210524Z 2106/2206 00000KT P6SM SKC FM211800 VRB03KT P6SM SKC FM212300 28007KT P6SM SKC FM220200 00000KT P6SM SKC KLVM 210520Z 2106/2206 32010KT P6SM SKC FM211800 25010KT P6SM SCT200 KLVS 210532Z 2106/2206 18006KT P6SM FEW240 FM211800 20012G18KT P6SM SCT200 FM220000 18010KT P6SM SCT250 KLWB 210524Z 2106/2206 32015G30KT P6SM BKN040 FM211000 31012G20KT P6SM SCT025 FM211300 31011KT P6SM SCT035 FM212100 31004KT P6SM SKC KLWS 210522Z 2106/2206 VRB04KT P6SM SKC KLWT 210540Z 2106/2206 18005KT P6SM SKC FM211600 12010G15KT P6SM SKC KLYH 210524Z 2106/2206 31020G34KT P6SM VCSH BKN050 FM210800 30016G30KT P6SM SCT045 FM211400 31012G22KT P6SM SCT250 FM212300 30006KT P6SM SKC KMAF 210520Z 2106/2206 05005KT P6SM OVC110 FM211200 12008KT P6SM OVC170 FM220000 16005KT P6SM FEW170 KMBG 210520Z 2106/2206 16012KT P6SM FEW250 WS020/20040KT FM210900 17012KT P6SM SKC WS020/24035KT FM211030 19008KT P6SM SKC WS020/29025KT FM211200 25007KT P6SM SKC FM211400 30010KT P6SM SKC FM220000 VRB04KT P6SM SKC KMBL 210525Z 2106/2206 33010G18KT P6SM VCSH BKN035 FM210800 31007KT P6SM VCSH BKN035 FM211400 28008KT P6SM SCT035 BKN050 FM211900 23011G22KT P6SM FEW050 SCT120 FM220000 22005KT P6SM SCT050 KMBS 210524Z 2106/2206 32011KT P6SM BKN035 FM211200 30008KT P6SM SCT025 FM211800 26011KT P6SM BKN035 FM212300 23008KT P6SM SCT100 KMCB 210520Z 2106/2206 02008KT P6SM SKC FM211500 05010KT P6SM SKC FM212000 02008KT P6SM SKC KMCC 210520Z 2106/2206 VRB04KT P6SM SKC KMCE 210520Z 2106/2206 VRB04KT P6SM SKC KMCF 210800Z 2108/2214 31006KT 9999 SCT050 QNH2998INS BECMG 2112/2113 03009KT 9999 SCT030 QNH3004INS BECMG 2119/2120 06012G18KT 9999 SCT020 BKN040 QNH3003INS TX28/2116Z TN22/2200Z KMCI 210520Z 2106/2206 VRB05KT P6SM SKC FM212000 20013KT P6SM SKC KMCK 210520Z 2106/2206 13011KT P6SM SKC WS020/20040KT FM211000 17010G18KT P6SM SKC FM211400 21015KT P6SM SKC FM220000 VRB04KT P6SM SKC KMCN 210520Z 2106/2206 31008KT P6SM FEW250 FM211400 04010KT P6SM SKC FM212000 04006KT P6SM SKC FM220000 00000KT P6SM FEW250 KMCO 210535Z 2106/2212 30005KT P6SM SKC FM211400 02012G18KT P6SM FEW040 SCT120 FM220000 01010KT P6SM FEW120 SCT250 FM220400 01005KT P6SM SKC KMCW 210520Z 2106/2206 21005KT P6SM SKC FM211500 21018G26KT P6SM SKC FM220000 22006KT P6SM FEW250 KMDT 210559Z 2106/2206 30010KT P6SM SCT050 BKN100 FM210900 31018G26KT P6SM BKN050 FM211300 32018G28KT P6SM SCT060 FM212330 30008KT P6SM SKC KMDW 210520Z 2106/2212 31007KT P6SM FEW045 FM211000 27005KT P6SM SCT200 FM211600 23012KT P6SM SKC FM212000 22012G18KT P6SM SKC FM220100 22011KT P6SM FEW250 WS020/25045KT KMEI 210525Z 2106/2206 00000KT 5SM BR FEW002 FM210900 03010KT P6SM SKC KMEM 210527Z 2106/2212 01010G16KT P6SM FEW250 FM211000 03010KT P6SM SKC FM211600 04007KT P6SM SKC FM220000 00000KT P6SM SKC KMER 210520Z 2106/2206 VRB04KT P6SM SKC NOT SKED KMFD 210520Z 2106/2206 30012G18KT P6SM SCT015 OVC035 TEMPO 2106/2110 BKN015 FM211200 30012KT P6SM BKN035 FM212000 27010KT P6SM SCT040 KMFE 210628Z 2106/2206 35013KT 5SM -RA BR BKN007 BKN013 OVC024 FM211500 34012G18KT 5SM -SHRA OVC009 TEMPO 2115/2118 5SM SHRA BR BKN007 FM212100 34013KT 5SM -SHRA OVC012 FM220000 34011KT 4SM -RA HZ OVC015 FM220100 33010KT P6SM -RA OVC015 KMFR 210535Z 2106/2206 VRB03KT P6SM SKC KMGE 210500Z 2105/2211 31012G18KT 9999 SKC QNH3010INS TEMPO 2105/2113 31015G25KT BECMG 2112/2113 35012KT 9999 SKC QNH3022INS BECMG 2117/2118 32009KT 9999 SKC QNH3024INS BECMG 2205/2206 05006KT 9999 SKC QNH3025INS TX15/2121Z TN04/2112Z KMGM 210520Z 2106/2206 31007KT P6SM SKC FM211100 01010KT P6SM SCT250 KMGW 210808Z 2108/2206 31010KT P6SM VCSH OVC015 FM211000 30010G20KT P6SM VCSH OVC020 FM211500 29010KT P6SM BKN035 FM212100 27005KT P6SM SCT040 KMHK 210520Z 2106/2206 02005KT P6SM SKC FM211600 19010KT P6SM SKC FM211800 20012G20KT P6SM SKC FM220000 20009KT P6SM SKC KMHR 210520Z 2106/2206 VRB04KT P6SM SKC NOT SKED KMHT 210520Z 2106/2206 VRB04KT P6SM BKN100 FM211200 34010KT P6SM SCT050 BKN080 FM211600 32018G26KT P6SM SCT120 FM220000 30006KT P6SM SCT250 KMIA 210529Z 2106/2212 VRB04KT P6SM SCT030 FM211400 34007KT P6SM SCT030 SCT050 FM211800 03012KT P6SM SCT030 BKN070 FM220200 05010KT P6SM SCT025 SCT050 KMIB 210100Z 2101/2207 14009KT 9999 SKC QNH3006INS WND 32012KT AFT 2112 BECMG 2117/2118 32012G18KT 9999 SKC QNH3015INS BECMG 2122/2123 30009KT 9999 SKC QNH3020INS TX13/2117Z TNM01/2110Z KMIV 210529Z 2106/2206 29010KT P6SM SCT035 BKN100 FM211000 31012G20KT P6SM -SHRA OVC035 FM211200 32014G22KT P6SM BKN035 FM211400 31016G28KT P6SM SCT045 FM212200 31010G18KT P6SM FEW045 FM220000 31006KT P6SM SKC FM220300 VRB03KT P6SM SKC KMKC 210520Z 2106/2206 VRB05KT P6SM SKC FM211400 20010KT P6SM SKC KMKE 210552Z 2106/2212 34009KT P6SM BKN040 FM210800 31008KT P6SM FEW150 FM211200 28006KT P6SM FEW250 FM211500 25007KT P6SM FEW250 FM211900 23012G20KT P6SM FEW250 FM220000 23010KT P6SM FEW250 WS020/26040KT FM220600 25009KT P6SM FEW250 KMKG 210540Z 2106/2206 34012G20KT P6SM VCSH OVC035 FM211300 27010KT P6SM BKN035 KMKL 210527Z 2106/2206 01007KT P6SM FEW250 FM211500 04008KT P6SM SKC KMKT 210520Z 2106/2206 17004KT P6SM SKC FM211400 19013G23KT P6SM SKC FM211800 22017G26KT P6SM SKC FM212100 25012KT P6SM SKC FM220000 29008KT P6SM FEW250 KMLB 210535Z 2106/2206 27004KT P6SM SCT060 FM211400 01012G20KT P6SM SCT040 SCT120 FM212200 03011KT P6SM SCT040 BKN080 FM220400 03006KT P6SM FEW100 SCT250 KMLC 210520Z 2106/2206 VRB03KT P6SM SCT250 WS002/02027KT FM211800 17005KT P6SM SKC KMLI 210526Z 2106/2206 VRB03KT P6SM SKC FM211400 20005KT P6SM SKC FM211700 20012G18KT P6SM SKC FM220300 21006KT P6SM SKC WS020/24040KT KMLS 210520Z 2106/2206 VRB05KT P6SM SKC FM210800 35010KT P6SM SKC WS020/04035KT FM211800 09007KT P6SM SCT250 KMLU 210540Z 2106/2206 01006KT P6SM SCT250 FM211500 04010KT P6SM SCT250 FM220000 04003KT P6SM SCT250 KMMH 210522Z 2106/2206 VRB04KT P6SM SKC FM211900 12008KT P6SM FEW100 FM220100 VRB03KT P6SM FEW100 KMMT 210700Z 2107/2213 32010G15KT 9999 SKC WS020/34030KT QNH2989INS BECMG 2109/2110 34010G15KT 9999 SKC QNH3007INS BECMG 2112/2113 35012G20KT 9999 SKC QNH3013INS BECMG 2119/2120 36012KT 9999 SKC QNH3015INS BECMG 2123/2124 35006KT 9999 SKC QNH3019INS TX17/2120Z TN09/2111Z KMOB 210520Z 2106/2206 36014KT P6SM BKN120 FM210900 01009KT P6SM SKC FM211500 03015KT P6SM SKC FM220300 02004KT P6SM SKC KMOD 210520Z 2106/2206 VRB04KT P6SM SKC FM212000 31005KT P6SM SKC KMOT 210801Z 2108/2206 22012G19KT P6SM SKC WS010/27040KT FM210900 26009KT P6SM SKC WS015/33035KT FM211100 30009KT P6SM SKC FM220100 27007KT P6SM FEW250 KMPV 210807Z 2108/2206 32007KT P6SM BKN025 FM210900 32010KT P6SM BKN070 FM212100 31011KT P6SM SCT090 KMQY 210535Z 2106/2206 36014G22KT P6SM SKC FM211100 03007KT P6SM SKC KMRB 210541Z 2106/2206 28018G23KT P6SM SCT040 FM211000 30018G32KT P6SM BKN040 FM211200 31016G35KT P6SM SCT250 FM211500 32017G36KT P6SM SCT050 FM212200 31013G22KT P6SM FEW250 FM220000 30009KT P6SM FEW250 FM220400 28005KT P6SM FEW250 KMRY 210524Z 2106/2206 00000KT P6SM OVC006 FM210900 11003KT 1/4SM FG VV001 FM211600 VRB03KT 2SM BR OVC004 FM211700 VRB03KT P6SM SKC FM212000 31005KT P6SM SKC FM220200 00000KT P6SM SKC FM220430 00000KT P6SM BKN006 KMSL 210533Z 2106/2206 36010G15KT P6SM SKC FM211100 04010G15KT P6SM SKC FM211800 05008KT P6SM SKC FM220100 VRB03KT P6SM SKC KMSN 210552Z 2106/2206 VRB03KT P6SM SKC FM211400 22006KT P6SM FEW250 FM211900 21012G20KT P6SM SKC FM212300 22008KT P6SM FEW250 WS020/26040KT KMSO 210520Z 2106/2206 VRB02KT P6SM SKC FM211200 00000KT P6SM VCFG SKC FM211400 VRB02KT P6SM SKC KMSP 210520Z 2106/2212 18004KT P6SM SKC FM211600 21013G22KT P6SM SKC FM212100 25011KT P6SM SKC FM212300 29008KT P6SM SKC KMSS 210543Z 2106/2206 30009KT P6SM OVC035 FM211400 29011KT P6SM SCT060 FM212300 28008KT P6SM SCT090 FM220000 26006KT P6SM FEW100 KMSY 210520Z 2106/2212 03014G25KT P6SM OVC090 FM211300 05014G25KT P6SM SCT100 FM212000 03010KT P6SM FEW250 FM220500 06010G21KT P6SM FEW200 KMTC 210100Z 2101/2207 34012G18KT 9999 SCT030 BKN080 620803 QNH2990INS TEMPO 2101/2106 34025G35KT 510003 BECMG 2105/2106 32012KT 9999 BKN030 620303 QNH3002INS BECMG 2114/2115 31012KT 9999 FEW030 QNH3007INS WND 22009KT AFT 2200 TX06/2120Z TN00/2111Z LAST NO AMDS AFT 2103 NEXT 2109 KMTH 210523Z 2106/2206 01003KT P6SM FEW025 SCT050 FM211400 01004KT P6SM SCT025 KMTJ 210536Z 2106/2206 15008KT P6SM SKC FM211800 34007KT P6SM FEW120 FEW250 FM220200 14006KT P6SM FEW110 SCT250 KMTW 210520Z 2106/2206 32008KT P6SM SCT040 TEMPO 2106/2108 BKN040 FM211100 27006KT P6SM SCT150 FM211700 23010G16KT P6SM SCT120 FM220000 23009KT P6SM SCT050 FM220300 24008KT P6SM SCT250 KMUI 202215Z 2022/2201 25009KT 9999 BKN040 QNH2960INS BECMG 2108/2109 30009KT 9999 BKN010 OVC030 QNH2974INS BECMG 2114/2115 30012G18KT 9999 SCT040 QNH3004INS TEMPO 2115/2121 32015G25KT BECMG 2123/2124 31009KT 9999 FEW100 QNH3002INS TX20/2022Z TN04/2111Z LAST NO AMDS AFT 2104 NEXT 2111 KMWH 210522Z 2106/2206 VRB05KT P6SM SKC KMXF 202040Z 2020/2201 VRB06KT 9999 BKN030 BKN075 QNH2998INS BECMG 2020/2021 30006KT 9999 OVC020 QNH2998INS BECMG 2102/2103 34006KT 9999 SCT020 BKN030 QNH3013INS BECMG 2105/2106 34006KT 9999 SKC QNH3014INS BECMG 2114/2115 03010G15KT 9999 SKC QNH3024INS BECMG 2123/2124 VRB06KT 9999 SKC QNH3025INS TX23/2020Z TN08/2111Z LAST NO AMDS AFT 2023 NEXT 2411 KMYL 210520Z 2106/2206 VRB03KT P6SM SKC KMYR 210522Z 2106/2206 28008KT P6SM SKC FM211200 33015G25KT P6SM SKC FM211800 35014KT P6SM SKC FM212000 02008KT P6SM SKC KNBG 2107/2207 03010KT 8000 BR FEW050 SCT060 BKN070 QNH3010INS BECMG 2113/2115 05014G19KT 9999 NSW SKC QNH3012INS BECMG 2119/2221 04010KT FEW250 QNH3008INS BECMG 2204/2206 VRB05KT FEW050 SCT250 QNH3013INS AUTOMATED SENSOR METWATCH 2107 TIL 2113 T17/2112Z T21/2121Z FN00170 KNCA 2021/2121 27010KT 9999 FEW022 BKN030 OVC041 QNH2978INS TEMPO 2022/2100 28015KT 6000 -SHRA BR SCT015 BKN030 OVC050 BECMG 2100/2102 33006KT 9999 FEW040 SCT100 QNH2983INS FM210600 33010G25KT 9999 SKC QNH2990INS T24/2021Z T09/2112Z KNEW 210520Z 2106/2206 03018G28KT P6SM OVC090 FM211200 04018G28KT P6SM SCT100 FM211800 04013KT P6SM FEW250 KNFG 2103/2203 VRB05KT 9999 SKC QNH2988INS TEMPO 2109/2115 3200 BR BKN005 BECMG 2119/2121 22008KT 9999 SKC QNH2984INS AUTOMATED SENSOR METWATCH 2103 TIL 2214 T11/2113Z T25/2121Z KNFL 2023/2123 VRB06KT 9999 SKC QNH3007INS LAST NO AMDS AFT 2101 NEXT 2207 T02/2112Z T23/2122Z FS30112 KNFW 2107/2207 VRB06KT 9999 FEW250 QNH3020INS AUTOMATED SENSOR METWATCH 2107 TIL 2111 T10/2112Z T21/2121Z FN00170 KNGP 2107/2207 02020G30KT 6000 -SHRA BR SCT005 BKN010 OVC020 510003 QNH3010INS BECMG 2118/2120 04020G30KT 9999 NSW SCT020 BKN030 OVC040 510003 QNH3011INS BECMG 2123/2201 03015G20KT SCT030 BKN040 OVC050 500000 QNH3012INS AUTOMATED SENSOR METWATCH 2107 TIL 2210 T19/2112Z T22/2121Z FN00170 KNGU 2107/2207 30020G30KT 9999 FEW035 510003 QNH2979INS BECMG 2112/2114 33020G30KT FEW050 510003 QNH3000INS BECMG 2119/2121 32015G25KT SKC 510003 QNH3014INS BECMG 2123/2201 35010KT FEW030 500000 QNH3018INS BECMG 2204/2206 VRB06KT SKC QNH3022INS T10/2112Z T15/2120Z FN00170 KNHK 2107/2207 31020G30KT SCT030 SCT250 510003 QNH2977INS BECMG 2115/2117 32018G25KT SKC 510003 QNH2998INS BECMG 2121/2123 32015G20KT SCT030 510003 QNH3007INS BECMG 2201/2203 31010KT FEW030 500000 QNH3016INS AUTOMATED SENSOR METWATCH 2107 TIL 2111 T08/2112Z T16/2120Z FN00170 KNIP 2107/2207 31015KT 9999 SCT030 SCT250 QNH2996INS BECMG 2110/2112 02013KT FEW035 SCT250 QNH3005INS BECMG 2120/2121 05010KT FEW030 SCT050 BKN250 QNH3012INS BECMG 2201/2203 03008KT SCT030 SCT250 QNH3015INS T21/2110Z T23/2119Z FN00170 KNJK 2107/2207 VRB06KT 9999 SKC QNH2976INS AUTOMATED SENSOR METWATCH 2107 TIL 2113 T16/2114Z T31/2123Z FS30134 KNKT 2103/2203 27010KT 9999 BKN035 QNH2984INS TEMPO 2110/2112 31015G32KT 9999 SKC BECMG 2112/2114 34010KT 9999 SKC QNH3008INS T19/2103Z T08/2203Z KNKX 2103/2203 VRB05KT 9999 SKC QNH2990INS TEMPO 2109/2115 3200 BR BKN005 BECMG 2119/2121 29008KT 9999 SKC QNH2987INS T17/2113Z T27/2121Z KNLC 2107/2207 VRB06KT 9999 SKC QNH2985INS FM220600 28008KT 9999 SKC QNH2982INS AUTOMATED SENSOR METWATCH 2107 TIL 2118 T11/2114Z T29/2123Z FS30138 KNMM 2107/2207 VRB05KT 9999 SKC QNH3017INS BECMG 2113/2115 03015KT QNH3024INS BECMG 2118/2120 05010KT FEW250 QNH3022INS BECMG 2200/2202 VRB05KT SKC QNH3020INS AUTOMATED SENSOR METWATCH 2107 TIL 2120 T04/2112Z T16/2121Z FN00170 KNPA 2107/2207 36008KT 9999 SCT050 BKN080 QNH3008INS BECMG 2112/2114 03015G20KT SKC QNH3011INS BECMG 2200/2202 VRB05KT QNH3014INS AUTOMATED SENSOR METWATCH 2107 TIL 2209 T13/2112Z T22/2121Z FN00170 KNQI 2107/2207 01010KT 8000 BR SCT005 BKN010 OVC020 QNH3012INS BECMG 2118/2120 02015G20KT 9999 NSW SCT020 BKN030 OVC050 QNH3009INS BECMG 2200/2202 01009KT SCT025 BKN030 QNH3010INS AUTOMATED SENSOR METWATCH 2107 TIL 2120 T18/2112Z T22/2121Z 0702 FN00170 KNQX 2107/2207 VRB05KT 9999 SCT035 QNH2991INS BECMG 2112/2114 02008KT SCT025 SCT080 QNH2996INS BECMG 2119/2120 36010KT 9999 VCSH SCT025 SCT050 QNH2998INS BECMG 2201/2203 04008KT 9999 NSW FEW050 SCT250 QNH3000INS AUTOMATED SENSOR METWATCH 2107 TIL 2110 T26/2110Z T31/2119Z FN00170 KNRB 2107/2207 29010KT 9999 SCT030 BKN070 QNH2994INS BECMG 2110/2112 02013KT FEW035 SCT250 QNH3005INS BECMG 2120/2121 05010KT FEW030 SCT050 BKN250 QNH3012INS BECMG 2201/2203 03008KT SCT030 SCT250 QNH3015INS AUTOMATED SENSOR METWATCH 2107 TIL 2209 T21/2110Z T23/2119Z FN00170 KNSE 2107/2207 36005KT 9999 FEW050 BKN080 QNH3010INS BECMG 2112/2114 03011KT SKC QNH3012INS BECMG 2200/2202 VRB05KT QNH3013INS AUTOMATED SENSOR METWATCH 2107 TIL 2209 T11/2112Z T20/2121Z FN00170 KNTD 2107/2207 VRB06KT 9999 SKC QNH2984INS BECMG 2205/2206 BKN012 AUTOMATED SENSOR METWATCH 2107 TIL 2113 T14/2112Z T25/2122Z FS30134 KNTU 2107/2207 30020G30KT 9999 FEW035 510003 QNH2976INS BECMG 2112/2114 33020G30KT FEW050 510003 QNH3000INS BECMG 2119/2121 32015G25KT SKC 510003 QNH3014INS BECMG 2123/2201 35010KT FEW030 500000 QNH3018INS BECMG 2204/2206 VRB06KT SKC QNH3022INS T10/2112Z T15/2120Z FN00170 KNUW 2107/2207 VRB06KT 4800 BR BCFG BKN004 QNH3005INS TEMPO 2107/2112 0800 FG VV002 FM211800 VRB06KT 9999 SCT005 SCT150 QNH2996INS FM220300 VRB06KT 1600 BR BKN005 QNH2991INS TEMPO 2203/2207 0800 FG BKN004 T07/2110Z T13/2221Z 0711 FS30138 KNXP 2103/2203 VRB05KT 9999 SCT100 QNH3001INS BECMG 2108/2110 30007KT 9999 BKN100 QNH3000INS BECMG 2118/2120 VRB05KT 9999 BKN100 QNH2997INS T16/2111Z T26/2121Z KNYL 2103/2203 VRB06KT 9999 SKC QNH2983INS AUTOMATED SENSOR METWATCH 2103 TIL 2214 T20/2113Z T31/2122Z KNZY 2107/2207 VRB06KT 9999 FEW005 FEW060 QNH2987INS TEMPO 2109/2115 3200 BR BKN005 BECMG 2119/2120 28008KT 9999 SCT011 SCT080 QNH2985INS FM220400 VRB06KT 4800 BR BKN005 QNH2984INS T17/2113Z T25/2120Z FS30111 KOAJ 210529Z 2106/2206 28009KT P6SM FEW050 FM211000 32013G24KT P6SM FEW250 FM212000 33008KT P6SM SKC FM220000 VRB03KT P6SM SKC LTD TO CLD VIS AND WIND KOAK 210524Z 2106/2212 32004KT P6SM FEW007 FM211100 VRB03KT P6SM SCT006 FM211400 00000KT 4SM BR OVC006 FM211800 28008KT P6SM FEW007 FM220600 VRB03KT P6SM SCT006 KOFF 210200Z 2102/2208 VRB06KT 9999 SKC QNH3025INS WND 16006KT AFT 2106 BECMG 2115/2116 19012G18KT 9999 SKC QNH3004INS BECMG 2123/2124 21006KT 9999 SKC QNH3003INS WND VRB06KT AFT 2205 TX17/2120Z TN00/2111Z KOFK 210520Z 2106/2206 02005KT P6SM SKC FM211200 19010G19KT P6SM SKC WS020/22040KT FM211600 20015G25KT P6SM SKC FM212200 26009KT P6SM SKC KOGB 210534Z 2106/2206 30012KT P6SM SCT250 WS015/33034KT FM211400 02010G20KT P6SM SKC FM211800 36010KT P6SM SKC FM212300 VRB03KT P6SM SKC KOGD 210540Z 2106/2206 17008KT P6SM FEW080 FM211900 25006KT P6SM SCT080 BKN200 FM220300 16006KT P6SM VCSH BKN080 KOKC 210520Z 2106/2206 VRB04KT P6SM FEW250 FM211400 16010KT P6SM SCT250 KOLF 210520Z 2106/2206 30007KT P6SM SKC FM210700 VRB06KT P6SM SKC WS020/00035KT FM211000 VRB04KT P6SM SKC KOLM 210520Z 2106/2206 VRB03KT 1/4SM FG VV001 FM212100 VRB04KT 1SM BR OVC002 FM212200 03004KT 5SM BR SCT006 FM212300 03005KT P6SM SKC FM220200 VRB03KT 3SM BR SKC KOLS 210536Z 2106/2206 10017G25KT P6SM SCT080 FM211100 08011KT P6SM VCSH BKN070 FM212000 14007KT P6SM BKN060 KOMA 210520Z 2106/2206 VRB03KT P6SM SKC FM211000 16006KT P6SM SKC FM211400 18010KT P6SM SKC FM211800 20015KT P6SM SKC KONP 210706Z 2107/2206 VRB03KT 4SM BR SCT003 TEMPO 2107/2111 1/4SM FG OVC003 FM211800 30008KT P6SM SCT005 FM220300 VRB03KT 3SM BR SCT003 KONT 210520Z 2106/2212 VRB05KT P6SM SCT110 FM212000 28010KT P6SM FEW080 FM220400 VRB05KT P6SM FEW080 KOPF 210529Z 2106/2206 VRB04KT P6SM SCT030 FM211400 33007KT P6SM SCT030 SCT050 FM211800 03012KT P6SM SCT030 BKN070 FM220200 05010KT P6SM SCT025 SCT050 KORD 210520Z 2106/2212 31007KT P6SM FEW045 FM211000 27005KT P6SM SCT200 FM211600 23012KT P6SM SKC FM212000 22012G18KT P6SM SKC FM220100 22011KT P6SM FEW250 WS020/25045KT KORF 210520Z 2106/2206 26010KT P6SM SCT100 FM210700 30018G28KT P6SM BKN120 FM211200 32023G38KT P6SM SKC FM220000 33011KT P6SM SKC KORH 210530Z 2106/2206 31008KT P6SM BKN050 FM210800 33008KT P6SM -SHRA OVC035 FM211100 33010KT P6SM -SHRASN OVC045 FM211300 32013G27KT P6SM SCT050 FM212300 31009KT P6SM SKC FM220000 31005KT P6SM SKC KOTH 210813Z 2108/2206 VRB03KT 1/2SM FG OVC002 FM211600 VRB03KT 4SM BR OVC004 FM211800 VRB03KT P6SM SCT008 FM212000 32008KT P6SM SKC FM220200 VRB03KT P6SM SKC FM220400 VRB03KT 2SM BR BKN004 KOTM 210520Z 2106/2206 VRB03KT P6SM SKC FM211300 21007KT P6SM SKC FM211600 20014G21KT P6SM SKC FM220000 19008KT P6SM FEW250 KOUN 210520Z 2106/2206 VRB03KT P6SM FEW250 FM211400 16008KT P6SM SCT250 KOWB 210520Z 2106/2206 36006KT P6SM SKC FM211800 VRB04KT P6SM SKC KOXR 210533Z 2106/2206 VRB03KT P6SM SKC FM210900 06006KT P6SM SKC FM212000 26010KT P6SM SKC FM220300 VRB03KT P6SM SKC KOZR 210800Z 2108/2214 02012KT 9999 SCT250 QNH3009INS BECMG 2117/2118 03010G15KT 9999 SKC QNH3017INS BECMG 2202/2203 07009KT 9999 FEW250 QNH3019INS TX16/2108Z TN09/2112Z KPAE 210520Z 2106/2206 01003KT 1/4SM FG VV001 FM212000 34004KT 2SM BR BKN004 FM212200 VRB03KT 6SM HZ BR SCT006 FM220100 VRB03KT 4SM BR SCT004 KPAH 210520Z 2106/2206 02005KT P6SM SKC FM211400 VRB03KT P6SM SKC KPAM 210535Z 2105/2208 25012KT 9999 SCT015 BKN180 QNH2998INS TEMPO 2105/2115 01020G30KT BECMG 2114/2115 03012G18KT 9999 SKC QNH3022INS TX23/2105Z TN14/2111Z KPBF 210520Z 2106/2206 36005KT P6SM SCT250 FM211400 05008KT P6SM SKC KPBG 210543Z 2106/2206 34007KT P6SM BKN070 FM211300 32010G20KT P6SM SCT130 FM220000 30007KT P6SM FEW120 FM220300 VRB04KT P6SM FEW150 KPBI 210529Z 2106/2206 VRB03KT P6SM SCT025 FM211400 34007KT P6SM SCT030 SCT050 FM211700 02012KT P6SM SCT030 BKN070 FM220100 05010KT P6SM SCT025 SCT050 KPDK 210520Z 2106/2206 32012G20KT P6SM SCT250 FM211400 36008KT P6SM SKC FM212000 32005KT P6SM SKC FM220000 00000KT P6SM FEW250 KPDT 210520Z 2106/2206 15004KT 6SM BR SKC FM211600 34005KT P6SM BKN250 KPDX 210520Z 2106/2206 30006KT P6SM SKC FM210700 VRB03KT P6SM SKC FM211000 VRB03KT 1/2SM FG OVC002 FM211900 29004KT P6SM SKC KPEQ 210520Z 2106/2206 02004KT P6SM OVC100 FM211200 07006KT P6SM OVC090 FM220000 08005KT P6SM SCT170 KPGA 210520Z 2106/2206 VRB04KT P6SM BKN080 FM211900 04010KT P6SM SCT050 FM212300 VRB04KT P6SM BKN035 PROB30 2200/2206 VRB10G20KT -TSRA BKN035CB KPGD 210528Z 2106/2206 33006KT P6SM FEW020 FEW250 FM210800 VRB03KT 6SM BR FEW015 SCT250 FM211400 03008KT P6SM FEW025 SCT250 FM220300 05011KT P6SM SCT250 KPGV 210809Z 2108/2206 32013G24KT P6SM SKC FM212000 34007KT P6SM SKC FM220000 00000KT P6SM SKC LTD TO CLD VIS AND WIND KPHF 210520Z 2106/2206 30015G25KT P6SM BKN100 FM211100 32022G33KT P6SM SKC FM220000 33010KT P6SM SKC KPHL 210836Z 2109/2212 30012G20KT P6SM VCSH SCT035 OVC150 TEMPO 2109/2112 30020G30KT 6SM -SHRA BKN035 FM211300 32020G30KT P6SM SCT045 FM212200 31010G18KT P6SM FEW045 FM220100 31006KT P6SM SKC FM220500 27004KT P6SM SKC KPHX 210841Z 2109/2212 13010KT P6SM BKN090 WS020/11035KT FM211500 10011G20KT P6SM VCSH BKN080 FM212200 10011KT P6SM BKN070 KPIA 210527Z 2106/2206 VRB04KT P6SM SKC FM211600 22010KT P6SM SKC FM220000 18006KT P6SM SKC KPIB 210525Z 2106/2206 35005KT P6SM FEW250 FM211500 03011KT P6SM SKC KPIE 210528Z 2106/2206 30007KT P6SM FEW020 FEW250 FM211000 36007KT P6SM SCT025 SCT250 FM211500 03010KT P6SM FEW035 SCT250 FM220300 06011KT P6SM FEW250 KPIH 210520Z 2106/2206 16006KT P6SM SKC FM211400 VRB04KT P6SM SCT120 FM212000 26007KT P6SM FEW070 BKN120 FM220400 06006KT P6SM SCT070 BKN110 KPIR 210520Z 2106/2206 15009KT P6SM SKC WS020/23040KT FM211100 17009KT P6SM SKC WS020/27030KT FM211200 22008KT P6SM SKC FM211500 28011KT P6SM SKC FM211700 35012KT P6SM FEW250 FM220200 VRB03KT P6SM SKC KPIT 210524Z 2106/2212 31015G25KT P6SM -SHRASN SCT015 OVC025 TEMPO 2106/2108 BKN015 FM211200 31012G22KT P6SM VCSH OVC020 FM211800 29012G22KT P6SM BKN035 FM212200 27005KT P6SM SCT035 KPKB 210520Z 2106/2206 31017G29KT P6SM BKN023 FM210900 31015G24KT P6SM BKN035 FM211200 29009G17KT P6SM SCT060 FM211900 29008KT P6SM FEW150 FM212300 26004KT P6SM FEW250 KPLN 210525Z 2106/2206 33009G18KT P6SM VCSH BKN035 FM210700 33006KT P6SM BKN035 FM211500 27008KT P6SM VCSH BKN025 FM212000 24011G19KT P6SM BKN030 FM212300 23010KT P6SM SCT040 BKN100 FM220100 21004KT P6SM BKN070 KPMD 210533Z 2106/2206 VRB03KT P6SM SKC FM211900 05006KT P6SM SCT100 FM220000 27008KT P6SM SCT100 KPNA 210527Z 2106/2206 30006KT P6SM SKC FM212200 VRB05KT P6SM FEW070 SCT150 LTD TO CLD VIS AND WIND KPNC 210520Z 2106/2206 04005KT P6SM SKC FM211400 17008KT P6SM SCT250 KPNE 210529Z 2106/2206 29010KT P6SM SCT035 BKN100 FM210900 31012G20KT P6SM -SHRA OVC035 FM211100 33014G22KT P6SM BKN035 FM211300 32018G30KT P6SM SCT045 FM212200 32010G18KT P6SM FEW045 FM220100 32006KT P6SM SKC FM220500 28004KT P6SM SKC KPNS 210520Z 2106/2206 35012KT P6SM FEW110 FM210900 01009KT P6SM SKC FM211500 03015KT P6SM SKC FM220300 02004KT P6SM SKC KPOB 210100Z 2101/2207 31008KT 9999 SCT250 510102 QNH2978INS BECMG 2105/2106 32012G18KT 9999 SKC 520052 QNH3000INS TEMPO 2113/2116 35015G25KT 520204 BECMG 2119/2120 33010G15KT 9999 SKC QNH3015INS BECMG 2123/2124 35004KT 9999 SKC QNH3020INS TX17/2101Z TN06/2111Z KPOE 210800Z 2108/2214 03006KT 9999 FEW240 WS020/05036KT QNH3018INS BECMG 2114/2115 06015G20KT 9999 FEW120 SCT150 BKN200 QNH3024INS BECMG 2120/2121 03009KT 9999 SCT200 QNH3020INS BECMG 2205/2206 03006KT 9999 FEW200 SCT280 QNH3016INS TX19/2120Z TN11/2110Z KPOU 210534Z 2106/2206 34007KT P6SM VCSH FEW009 BKN025 OVC050 TEMPO 2106/2109 5SM -SHRA BR SCT025 OVC050 FM210900 34009KT P6SM SCT025 BKN050 FM211400 33015G25KT P6SM SCT050 FM220000 28006KT P6SM SCT050 KPQI 210532Z 2106/2206 24005KT P6SM FEW050 FM211200 29010G17KT P6SM SCT040 FM211400 31013G23KT P6SM BKN035 FM212100 31011G19KT P6SM SCT045 FM220300 30007KT P6SM FEW060 SCT110 KPRB 210533Z 2106/2206 VRB03KT P6SM SKC FM212200 15007KT P6SM SKC FM220300 VRB03KT P6SM SKC KPRC 210520Z 2106/2206 VRB04KT P6SM SCT050 SCT070 FM211300 15009KT P6SM BKN035 PROB30 2115/2119 VRB10G20KT 6SM TSRA BKN035CB FM211900 16010G18KT P6SM SCT050 KPSC 210520Z 2106/2206 35004KT 4SM BR SKC FM211700 34005KT P6SM BKN250 KPSF 210534Z 2106/2206 30005KT P6SM VCSH OVC080 FM211000 31010KT P6SM SCT025 BKN050 FM211400 30016G27KT P6SM SCT050 FM220000 29008KT P6SM SCT050 KPSM 210520Z 2106/2206 25005KT P6SM BKN100 FM210900 28009KT P6SM SCT050 BKN080 FM211700 31015G25KT P6SM SCT120 FM220000 29007KT P6SM SCT250 KPSP 210520Z 2106/2206 VRB06KT P6SM FEW100 FM220200 33010KT P6SM SCT100 KPTK 210524Z 2106/2206 32011KT P6SM BKN035 TEMPO 2106/2107 32012G24KT FM211200 30008KT P6SM SCT025 FM211800 25010KT P6SM SCT035 FM220000 23008KT P6SM SCT100 KPUB 210526Z 2106/2206 30005KT P6SM SKC FM212100 09007KT P6SM SKC FM220400 30005KT P6SM SKC KPUW 210522Z 2106/2206 VRB04KT P6SM SKC FM211500 10009KT P6SM FEW250 FM211900 24005KT P6SM FEW250 FM220000 VRB03KT P6SM FEW250 KPVD 210806Z 2108/2206 30009KT 6SM -SHRA OVC040 TEMPO 2108/2111 5SM SHRA FM211100 34011G18KT P6SM -SHRA OVC025 FM211400 34015G29KT P6SM BKN100 FM211600 33016G30KT P6SM SCT150 FM212100 32015G28KT P6SM FEW045 FM212300 32013KT P6SM SKC FM220200 31008KT P6SM SKC KPVU 210540Z 2106/2206 VRB04KT P6SM FEW080 FM211900 22008KT P6SM SCT080 BKN200 FM220000 16008KT P6SM VCSH BKN080 KPVW 210522Z 2106/2206 20004KT P6SM SCT250 FM211500 21007KT P6SM BKN080 KPWM 210630Z 2107/2206 25004KT P6SM BKN100 FM211200 34010KT P6SM SCT070 BKN090 FM211700 32015G24KT P6SM SCT120 FM220000 30008KT P6SM SCT250 KPWT 210817Z 2108/2206 00000KT 1/2SM FG VV001 FM211900 03003KT 2SM BR BKN004 FM212100 03006KT P6SM SCT010 FM212300 03005KT P6SM SKC FM220200 VRB03KT 3SM BR SCT005 KQD3 210306Z 2103/2209 11006KT 9999 FEW020 BKN035 QNH2990INS BECMG 2104/2105 10006KT 9999 BKN030 QNH2984INS TS OMTNS BECMG 2108/2109 09010G15KT 9999 SCT030 QNH2983INS BECMG 2118/2119 09006KT 9999 BKN030 QNH2991INS TX33/2112Z TN24/2104Z KQN3 202117Z 2021/2203 VRB06KT 9999 FEW200 QNH2979INS BECMG 2102/2103 VRB06KT 9999 SKC QNH2975INS TX41/2114Z TN27/2105Z KQNA 210300Z 2103/2203 03012KT 9999 FEW030 QNH3009INS BECMG 2112/2113 33008KT 9999 FEW030 QNH3012INS TX23/2203Z TN12/2121Z KQRH 210308Z 2103/2209 VRB06KT 9999 FEW020 BKN040 QNH2990INS BECMG 2104/2105 10006KT 9999 BKN030 QNH2984INS TS OMTNS BECMG 2108/2109 09010G15KT 9999 SCT030 QNH2983INS BECMG 2118/2119 09006KT 9999 BKN030 QNH2991INS TX32/2112Z TN24/2104Z KRAP 210520Z 2106/2206 18008KT P6SM SKC FM211000 25006KT P6SM FEW250 FM211300 31011KT P6SM FEW250 KRBG 210535Z 2106/2206 VRB03KT P6SM SKC KRBL 210520Z 2106/2206 32005KT P6SM SKC FM212000 VRB04KT P6SM SKC KRDD 210520Z 2106/2206 VRB04KT P6SM SKC KRDG 210529Z 2106/2206 29010KT P6SM SCT035 BKN100 FM210700 31010G18KT P6SM -SHRA OVC035 FM211000 32014G22KT P6SM BKN035 FM211300 31016G28KT P6SM SCT045 FM212200 31010G18KT P6SM FEW045 FM220000 30006KT P6SM SKC FM220300 VRB03KT P6SM SKC KRDM 210520Z 2106/2206 VRB04KT P6SM SKC FM211700 33005KT P6SM BKN250 KRDR 210200Z 2102/2208 19009KT 9999 SCT200 QNH3017INS BECMG 2105/2106 19009KT 9999 FEW150 WS020/21042KT QNH2996INS BECMG 2110/2111 20009KT 9999 FEW100 QNH2991INS BECMG 2115/2116 28009KT 9999 SKC QNH2995INS TX13/2121Z TNM06/2111Z KRDU 210530Z 2106/2206 30009G17KT P6SM FEW250 FM210800 32011G27KT P6SM SKC FM211600 33010G21KT P6SM SKC FM212000 34008KT P6SM SKC KRFD 210520Z 2106/2206 27005KT P6SM SCT200 FM211400 23010KT P6SM FEW120 FM211800 22012G18KT P6SM SKC FM220100 22008KT P6SM FEW250 WS020/25045KT KRHI 210520Z 2106/2206 29004KT P6SM SCT035 TEMPO 2106/2108 BKN035 FM210800 24005KT P6SM BKN150 FM211600 23009G16KT P6SM SCT090 FM212300 24006KT P6SM SCT040 FM220100 26004KT P6SM SKC KRIC 210520Z 2106/2206 32015G25KT P6SM SCT050 BKN090 FM211000 31012G22KT P6SM SCT120 FM211500 32015G28KT P6SM SKC FM212300 33006KT P6SM SKC KRIL 210536Z 2106/2206 VRB04KT P6SM SKC FM212000 27008KT P6SM FEW090 SCT250 FM220200 VRB03KT P6SM FEW090 FEW250 KRIV 210401Z 2104/2210 VRB05KT 9999 FEW100 QNH2993INS BECMG 2121/2122 31012KT 9999 FEW080 QNH2984INS BECMG 2202/2203 VRB05KT 9999 SKC QNH2990INS TX29/2122Z TN09/2114Z KRIW 210527Z 2106/2206 31008KT P6SM SKC FM211500 VRB05KT P6SM SKC FM220500 31008KT P6SM SCT200 KRKD 210520Z 2106/2206 VRB03KT P6SM SCT120 FM211200 32010KT P6SM BKN100 FM211500 30012G21KT P6SM SCT120 FM220000 29005KT P6SM SCT250 KRKS 210527Z 2106/2206 22006KT P6SM SKC FM220500 13006KT P6SM SCT150 KRME 210534Z 2106/2206 34010KT P6SM SCT035 BKN080 FM210900 33012G22KT P6SM BKN035 FM211500 32015G25KT P6SM BKN045 FM220000 30010KT P6SM BKN045 KRNH 210520Z 2106/2206 17003KT P6SM SKC FM211400 20010KT P6SM SKC FM211700 22015G23KT P6SM SKC FM212100 25011KT P6SM SKC FM220000 VRB04KT P6SM SKC KRNO 210522Z 2106/2206 VRB03KT P6SM SKC KROA 210524Z 2106/2206 30020G35KT P6SM VCSH BKN050 FM210700 30016G30KT P6SM SCT045 FM211400 31012G24KT P6SM SCT250 FM212300 30006KT P6SM SKC KROC 210530Z 2106/2206 36011KT P6SM FEW035 BKN060 OVC090 FM210900 33016G22KT P6SM OVC025 TEMPO 2109/2111 4SM -SHSNRA OVC015 FM211100 32016KT P6SM OVC025 TEMPO 2111/2113 1SM -SHSN OVC015 FM211300 31015G21KT P6SM BKN035 FM212300 29009KT P6SM BKN045 FM220400 27008KT P6SM BKN050 KROG 210520Z 2106/2206 01005KT P6SM SKC FM211800 19006KT P6SM SKC KROW 210532Z 2106/2206 VRB06KT P6SM OVC110 FM211800 18010KT P6SM BKN080 FM220200 19005KT P6SM SCT080 KRSL 210520Z 2106/2206 14008KT P6SM SKC FM211300 18013KT P6SM SKC FM211600 20020G28KT P6SM SKC FM220000 18012KT P6SM SKC KRST 210520Z 2106/2206 VRB04KT P6SM FEW250 FM211500 21015G27KT P6SM SKC FM212300 22006KT P6SM FEW250 KRSW 210528Z 2106/2206 32004KT P6SM FEW020 FEW250 FM211000 01004KT P6SM SCT025 SCT250 FM211400 04006KT P6SM FEW035 SCT250 FM220000 06012KT P6SM SCT250 KRUT 210806Z 2108/2206 33010G20KT P6SM BKN060 FM211700 31011KT P6SM SCT060 FM220500 28005KT P6SM FEW140 KRVS 210520Z 2106/2206 VRB03KT P6SM SKC WS002/02027KT FM211800 17006KT P6SM SKC KRWF 210520Z 2106/2206 VRB04KT P6SM SKC FM211200 18012KT P6SM SKC WS020/22035KT FM211600 22016G25KT P6SM SKC FM211800 25014KT P6SM SKC FM212100 30011KT P6SM SKC KRWI 210825Z 2108/2206 30011G22KT P6SM FEW250 FM211400 33013G25KT P6SM SKC FM211900 34010G19KT P6SM SKC FM212200 33007KT P6SM SKC KRWL 210520Z 2106/2206 23007KT P6SM SKC FM211800 24014G24KT P6SM SKC FM212300 24010KT P6SM SKC KRYY 210737Z 2108/2206 34010G20KT P6SM SKC FM211400 01008KT P6SM SKC FM212000 34006KT P6SM SKC FM220000 00000KT P6SM FEW250 KSAC 210520Z 2106/2206 VRB04KT P6SM SKC KSAF 210532Z 2106/2206 13010KT P6SM SKC FM210800 09007KT P6SM SKC FM211000 04006KT P6SM SCT250 FM211800 21007KT P6SM SCT220 FM220000 VRB05KT P6SM BKN250 KSAN 210520Z 2106/2212 VRB04KT P6SM SKC TEMPO 2111/2115 2SM BR BKN004 FM212000 27008KT P6SM SCT080 FM220200 VRB05KT P6SM FEW007 SCT080 FM220500 VRB05KT 3SM BR BKN005 KSAT 210522Z 2106/2212 02010KT P6SM OVC120 FM220200 02004KT P6SM BKN050 KSAV 210527Z 2106/2206 31011G17KT P6SM SCT250 FM211300 35013G20KT P6SM SKC FM211900 36008KT P6SM SKC FM220000 04003KT P6SM SKC KSAW 210520Z 2106/2206 32007KT P6SM BKN035 FM210700 31006KT P6SM BKN040 FM211000 27005KT P6SM SCT070 FM211400 23006KT P6SM BKN110 FM212200 21007KT P6SM SCT140 KSBA 210533Z 2106/2206 VRB03KT P6SM SKC FM212000 24009KT P6SM SKC FM220300 VRB03KT P6SM SKC KSBD 210520Z 2106/2206 VRB05KT P6SM SCT070 FM212100 25009KT P6SM SCT070 FM220300 VRB05KT P6SM SCT070 KSBN 210520Z 2106/2206 32007KT P6SM BKN050 FM211200 25007KT P6SM BKN050 FM212100 21008KT P6SM SKC KSBP 210533Z 2106/2206 VRB03KT P6SM SKC FM212000 30012KT P6SM SKC FM220300 VRB03KT P6SM SKC KSBY 210520Z 2106/2206 30015G25KT P6SM VCSH SCT050 BKN090 FM211000 31018G28KT P6SM BKN120 FM211500 32025G35KT P6SM SKC FM220000 33011KT P6SM SKC KSCK 210520Z 2106/2206 VRB04KT P6SM SKC FM211900 30005KT P6SM SKC KSDF 210524Z 2106/2212 33008KT P6SM SCT040 FM211500 VRB04KT P6SM SKC KSDL 210520Z 2106/2206 09007KT P6SM BKN090 WS020/11035KT FM211600 08011KT P6SM VCSH BKN070 FM212200 12008KT P6SM BKN070 KSDY 210520Z 2106/2206 26008KT P6SM SKC FM210900 33009KT P6SM SKC WS020/00040KT FM211000 33008KT P6SM SKC KSEA 210808Z 2108/2212 04005KT 1/4SM FG VV001 FM211800 02005KT 1 1/2SM BR BKN003 FM212000 35006KT 2SM BR BKN008 FM212100 35007KT P6SM FEW010 FM220300 03006KT P6SM SKC KSEZ 210732Z 2108/2206 11014G24KT P6SM FEW060 FM211800 16011KT P6SM BKN040 TEMPO 2118/2122 VRB15G25KT TSRA BKN040CB FM220200 08010KT P6SM SCT040 KSFB 210535Z 2106/2206 29005KT P6SM SKC FM211400 03012G18KT P6SM FEW040 SCT120 FM220000 02009KT P6SM FEW120 SCT250 FM220400 01004KT P6SM SKC KSFF 210522Z 2106/2206 VRB03KT P6SM FEW250 FM211100 00000KT 4SM BR MIFG SCT002 FM211600 VRB02KT P6SM FEW250 KSFO 210524Z 2106/2212 29011KT P6SM FEW005 FM210900 29005KT P6SM FEW003 TEMPO 2112/2116 6SM BR BKN003 FM211900 31010KT P6SM FEW008 FM212100 30015KT P6SM FEW008 FM220400 29011KT P6SM FEW006 FM220900 29005KT P6SM FEW006 KSGF 210520Z 2106/2206 04008KT P6SM SKC FM210900 10005KT P6SM SKC FM211400 15009KT P6SM SKC FM211800 18007KT P6SM SKC KSGJ 210737Z 2108/2206 28007KT P6SM SCT080 FM210900 32010G18KT P6SM SCT012 TEMPO 2109/2111 BKN012 FM211200 35010KT P6SM FEW250 FM211600 02014G22KT P6SM SKC FM212300 03010KT P6SM SKC KSGR 210520Z 2106/2206 02013KT P6SM SCT015 BKN045 BKN250 FM210700 03011KT P6SM SCT150 BKN250 FM211400 03013KT P6SM BKN250 FM220200 03005KT P6SM BKN180 BKN250 KSGU 210540Z 2106/2206 09008KT P6SM VCSH SCT080 BKN120 FM211300 05008KT P6SM -SHRA SCT060 OVC090 FM211600 21008KT P6SM VCSH BKN080 FM220100 VRB05KT P6SM SCT080 BKN120 KSHR 210520Z 2106/2206 VRB05KT P6SM SKC FM210900 32010KT P6SM SKC FM211900 09008KT P6SM FEW080 SCT200 KSHV 210540Z 2106/2206 02006KT P6SM SCT160 FM211500 06013KT P6SM SCT250 FM212000 03008KT P6SM SCT250 FM220000 03003KT P6SM SCT250 KSJC 210524Z 2106/2206 32005KT P6SM SKC FM210900 00000KT P6SM FEW008 FM211500 00000KT 2SM BR BKN007 TEMPO 2115/2119 1/2SM FG VV002 FM211900 VRB03KT P6SM FEW008 FM212100 31009KT P6SM FEW008 FM220300 32005KT P6SM SKC KSJS 210810Z 2108/2206 35006KT P6SM OVC035 FM211000 35006KT P6SM BKN035 FM211200 32003KT P6SM SKC KSJT 210520Z 2106/2206 VRB06KT P6SM SCT150 FM211600 09011KT P6SM BKN250 KSKA 210301Z 2103/2209 VRB06KT 9999 SKC QNH3011INS TEMPO 2113/2116 9000 BR FEW001 TX19/2121Z TN02/2113Z KSKF 210200Z 2102/2208 04009KT 9999 SCT100 BKN200 QNH3019INS BECMG 2113/2114 05012G18KT 9999 BKN100 BKN200 QNH3017INS TX21/2120Z TN15/2113Z KSLC 210540Z 2106/2212 15006KT P6SM FEW080 FM211900 32008KT P6SM SCT080 BKN200 FM220200 16008KT P6SM VCSH BKN080 FM220600 15006KT P6SM SCT080 BKN120 KSLE 210520Z 2106/2206 33005KT P6SM SKC FM210700 VRB03KT P6SM SKC FM211400 00000KT 2SM BR BKN003 FM211700 VRB03KT P6SM SKC KSLI 210508Z 2105/2211 VRB06KT 9999 FEW050 QNH2989INS BECMG 2117/2118 24009KT 9999 SKC QNH2992INS TX25/2122Z TN15/2114Z KSLK 210543Z 2106/2206 31005KT P6SM BKN025 BKN050 FM211400 30010G18KT P6SM BKN045 FM220100 28006KT P6SM SCT090 KSLN 210520Z 2106/2206 10005KT P6SM SKC FM211300 16007KT P6SM SKC FM211600 18014KT P6SM SKC FM211800 19017G25KT P6SM SKC KSME 210828Z 2108/2206 35005KT P6SM FEW035 FM210900 34005KT P6SM SKC KSMF 210520Z 2106/2206 VRB04KT P6SM SKC KSMN 210520Z 2106/2206 00000KT P6SM SKC KSMO 210533Z 2106/2206 04005KT P6SM SKC FM211900 23008KT P6SM SKC FM220300 VRB03KT P6SM SKC KSMX 210533Z 2106/2206 VRB03KT P6SM SKC FM212000 30012KT P6SM SKC FM220300 VRB03KT P6SM SKC KSNA 210520Z 2106/2206 VRB04KT P6SM SCT100 TEMPO 2112/2116 3SM BR BKN006 FM212000 22009KT P6SM SCT090 FM220100 VRB04KT P6SM FEW007 SCT100 KSNS 210829Z 2108/2206 33004KT 3SM BR BKN004 FM211400 11005KT 2SM BR OVC004 FM211600 13005KT P6SM SKC FM212000 29011KT P6SM SKC FM220400 31004KT 6SM BR SCT006 KSNY 210520Z 2106/2206 19009KT P6SM SKC FM210800 22010KT P6SM SKC FM211600 31010KT P6SM SKC FM212300 03010KT P6SM SKC KSOA 210520Z 2106/2206 VRB06KT P6SM OVC150 FM211500 05011KT P6SM OVC250 KSPI 210527Z 2106/2206 VRB04KT P6SM SKC FM211600 22009KT P6SM SKC FM220000 28008KT P6SM SKC KSPS 210520Z 2106/2206 VRB05KT P6SM SCT250 FM211600 16007KT P6SM BKN250 KSRQ 210528Z 2106/2206 32007KT P6SM FEW020 FEW250 FM211000 36007KT P6SM SCT025 SCT250 FM211400 04010KT P6SM FEW025 SCT250 FM220200 06011KT P6SM FEW250 KSSC 210700Z 2107/2213 32010G15KT 9999 SKC WS020/34030KT QNH2989INS BECMG 2109/2110 34010G15KT 9999 SKC QNH3007INS BECMG 2112/2113 35012G20KT 9999 SKC QNH3013INS BECMG 2119/2120 36012KT 9999 SKC QNH3015INS BECMG 2123/2124 35006KT 9999 SKC QNH3019INS TX17/2120Z TN09/2111Z KSSF 210522Z 2106/2206 02008KT P6SM OVC120 FM220200 03003KT P6SM BKN050 KSSI 210624Z 2106/2206 32011KT P6SM SCT015 SCT080 TEMPO 2106/2108 BKN015 FM211100 34010KT P6SM FEW250 FM211400 02013G21KT P6SM SKC FM212200 04010KT P6SM SKC FM220100 04005KT P6SM SKC KSTC 210520Z 2106/2206 16004KT P6SM SKC FM211400 19013G22KT P6SM SKC FM211800 25011KT P6SM SKC FM212100 30010KT P6SM SKC KSTJ 210520Z 2106/2206 VRB05KT P6SM SKC FM211400 19010KT P6SM SKC KSTL 210520Z 2106/2212 01006KT P6SM SKC FM210900 VRB04KT P6SM SKC FM211800 19007KT P6SM SKC KSTS 210829Z 2108/2206 VRB03KT 3SM BR OVC003 FM210900 00000KT 1/4SM FG VV002 FM211700 00000KT 1/2SM FG VV003 FM211800 00000KT P6SM SKC FM212200 19004KT P6SM SKC KSUA 210535Z 2106/2206 26003KT P6SM SCT030 FM211500 36012G20KT P6SM SCT040 SCT120 FM220000 02011KT P6SM SCT040 BKN080 FM220400 04008KT P6SM SCT030 BKN060 KSUN 210520Z 2106/2212 32009KT P6SM SKC FM211900 18007KT P6SM FEW070 SCT110 FM220300 33008KT P6SM FEW050 SCT070 BKN110 FM221000 32006KT P6SM VCSH SCT050 BKN070 OVC100 LTD TO CLD VIS AND WIND TIL 211300 KSUS 210520Z 2106/2206 VRB03KT P6SM SKC FM211800 20006KT P6SM SKC KSUU 210309Z 2103/2209 23012KT 9999 SKC QNH2988INS BECMG 2118/2119 VRB06KT 9999 SKC QNH2988INS BECMG 2122/2123 23012KT 9999 SKC QNH2983INS TX28/2122Z TN09/2113Z KSUX 210524Z 2106/2206 14005KT P6SM SKC FM210900 15010KT P6SM SKC FM211200 17012G18KT P6SM SKC WS020/21040KT FM211500 21016G26KT P6SM SKC FM220000 VRB04KT P6SM FEW250 KSVN 210400Z 2104/2210 30012KT 9999 SCT050 BKN220 QNH2990INS BECMG 2107/2108 31015G25KT 9999 SCT050 BKN220 510004 QNH2995INS BECMG 2110/2111 34010G15KT 9999 SKC 510004 QNH3005INS BECMG 2113/2114 36012G20KT 9999 SKC QNH3016INS BECMG 2118/2119 02012KT 9999 SKC QNH3018INS BECMG 2201/2202 03006KT 9999 SKC QNH3022INS TX21/2104Z TN12/2111Z KSWF 210843Z 2109/2212 33010KT P6SM VCSH BKN040 FM211000 32012G21KT P6SM BKN040 BKN200 FM211300 32014G25KT P6SM SCT040 SCT130 BKN200 FM211500 32021G32KT P6SM SCT050 FM212300 31014G22KT P6SM SCT050 FM220200 29007KT P6SM SCT050 FM220800 26004KT P6SM FEW050 NOT SKED KSYM 210520Z 2106/2206 32012G15KT P6SM OVC035 FM210900 33009KT P6SM SCT035 FM211000 34007KT P6SM SKC KSYR 210534Z 2106/2206 33008KT P6SM SCT035 BKN080 FM210900 32012G22KT P6SM SCT025 OVC035 TEMPO 2110/2114 2SM -SHSN OVC025 FM211500 30015G25KT P6SM BKN040 FM220000 30010KT P6SM BKN040 TEMPO 2204/2206 2SM -SHSN OVC025 KSZL 210300Z 2103/2209 02009KT 9999 SKC QNH3030INS BECMG 2119/2120 20010G15KT 9999 SKC QNH3019INS BECMG 2123/2124 19009KT 9999 SKC QNH3017INS TX15/2120Z TN01/2111Z KTCC 210532Z 2106/2206 VRB06KT P6SM SKC FM211500 22012KT P6SM FEW080 FM211800 22017G24KT P6SM FEW080 SCT220 FM220000 21010KT P6SM SCT220 KTCL 210520Z 2106/2206 30003KT P6SM SCT250 TEMPO 2106/2109 00000KT 1/2SM FG BKN002 FM210900 36010KT P6SM SCT250 KTCM 202209Z 2022/2203 03009KT 9999 SCT010 QNH3004INS BECMG 2022/2023 02009KT 9999 SKC QNH3004INS BECMG 2105/2106 15006KT 4800 BR FEW002 QNH3004INS BECMG 2107/2108 15006KT 1600 BR FEW002 QNH3003INS BECMG 2108/2109 15006KT 0400 FG VV002 QNH3001INS TEMPO 2117/2118 1600 BR BECMG 2119/2120 15006KT 4800 BR FEW002 QNH3000INS TX14/2022Z TN03/2113Z KTCS 210528Z 2106/2206 20004KT P6SM SKC FM211000 25007KT P6SM SCT110 FM212200 17010KT P6SM BKN060 KTEB 210843Z 2109/2212 32013G23KT P6SM SCT025 BKN035 OVC050 FM211400 33018G32KT P6SM SCT050 FM212200 31013G25KT P6SM FEW050 FM220000 30012G19KT P6SM FEW050 FM220200 31008KT P6SM SCT150 FM220800 27003KT P6SM FEW150 KTEX 210536Z 2106/2206 14007KT P6SM SKC FM212000 24008KT P6SM FEW060 SCT250 FM220100 13005KT P6SM FEW060 SCT250 KTIK 210100Z 2101/2207 36006KT 9999 SKC QNH3029INS BECMG 2115/2116 16009KT 9999 FEW200 QNH3019INS TX18/2120Z TN05/2111Z KTIX 210535Z 2106/2206 VRB02KT P6SM SKC FM211400 02012G20KT P6SM FEW040 SCT120 FM212200 03011KT P6SM SCT040 BKN080 FM220400 04005KT P6SM FEW100 SCT250 NOT SKED TIL 211100 KTLH 210520Z 2106/2206 34007KT P6SM SCT100 FM211500 03010G15KT P6SM SKC FM220100 05004KT P6SM SKC KTMB 210529Z 2106/2206 VRB03KT P6SM SCT025 FM211400 34007KT P6SM SCT030 SCT050 FM211800 02012KT P6SM SCT030 BKN070 FM220100 05010KT P6SM SCT025 SCT050 KTOI 210520Z 2106/2206 33006KT P6SM SCT250 FM211100 36010KT P6SM SCT250 KTOL 210520Z 2106/2206 31011KT P6SM OVC035 FM211800 27008KT P6SM SCT035 KTOP 210520Z 2106/2206 03005KT P6SM SKC FM211600 18011KT P6SM SKC KTPA 210528Z 2106/2212 31005KT P6SM FEW020 FEW250 FM211000 36007KT P6SM SCT025 SCT250 FM211400 03010KT P6SM FEW035 SCT250 FM220400 05007KT P6SM FEW250 KTPH 210520Z 2106/2206 35006KT P6SM FEW050 BKN070 FM211600 VRB06KT P6SM VCSH SCT040 BKN060 FM212200 16006KT P6SM VCTS SCT035 BKN050CB FM220400 36006KT P6SM VCSH SCT025 BKN040 KTRI 210521Z 2106/2206 30012G22KT P6SM SCT040 TEMPO 2109/2113 BKN035 FM211400 32008KT P6SM SKC FM220100 00000KT P6SM SKC KTRK 210522Z 2106/2206 VRB03KT P6SM SKC FM212100 25006KT P6SM SKC FM220100 VRB03KT P6SM SKC KTRM 210520Z 2106/2206 VRB06KT P6SM SCT100 KTTD 210520Z 2106/2206 VRB04KT P6SM SKC FM211000 VRB03KT 2SM BR OVC002 FM211900 VRB04KT P6SM SKC KTTN 210529Z 2106/2206 29008KT P6SM SCT035 BKN100 FM210900 32010G18KT P6SM -SHRA OVC035 FM211100 34012G20KT P6SM BKN035 FM211300 33014G26KT P6SM SCT045 FM212200 33010G18KT P6SM FEW045 FM220000 32006KT P6SM SKC FM220300 VRB03KT P6SM SKC KTUL 210520Z 2106/2206 VRB05KT P6SM SKC WS002/02027KT FM211800 17007KT P6SM SKC KTUP 210527Z 2106/2206 29005KT P6SM BKN250 FM210900 02010KT P6SM SCT250 FM211500 06012KT P6SM SKC KTUS 210536Z 2106/2206 11017G27KT P6SM SCT090 FM211300 12015G25KT P6SM VCSH BKN080 FM212000 12012KT P6SM BKN070 KTVC 210525Z 2106/2206 34010G20KT P6SM -SHSN OVC040 TEMPO 2106/2107 2SM -SHSN BKN024 FM210700 33009KT P6SM VCSH BKN045 FM211300 28006KT P6SM VCSH BKN030 FM211700 25009KT P6SM BKN040 FM211900 24011G19KT P6SM SCT050 BKN120 FM220000 20004KT P6SM BKN070 KTVF 210520Z 2106/2206 17007KT P6SM SCT200 FM211100 20010KT P6SM SKC WS020/22040KT FM211600 28008KT P6SM SKC KTVL 210522Z 2106/2206 VRB03KT P6SM SKC KTWF 210520Z 2106/2206 13007KT P6SM SCT250 FM220300 18007KT P6SM OVC100 KTXK 210540Z 2106/2206 35005KT P6SM SKC FM211500 06009G15KT P6SM SCT250 FM211900 05006KT P6SM SKC FM220000 07003KT P6SM SKC KTYR 210540Z 2106/2206 01006KT P6SM SKC FM210900 03007KT P6SM SCT250 FM211500 07013KT P6SM SCT250 FM220000 06003KT P6SM SCT250 KTYS 210521Z 2106/2206 34010G17KT P6SM FEW050 FM211400 03007KT P6SM SKC FM220100 VRB03KT P6SM SKC KUAO 210520Z 2106/2206 05006KT P6SM SKC FM210700 01003KT P6SM SKC FM211200 VRB03KT 2SM BR BKN004 FM211700 VRB03KT P6SM SKC KUES 210552Z 2106/2206 31005KT P6SM SCT200 FM211400 25005KT P6SM FEW250 FM211900 22012G20KT P6SM FEW250 FM212300 23008KT P6SM FEW250 WS020/25040KT KUIN 210520Z 2106/2206 VRB04KT P6SM SKC FM211500 22010KT P6SM SKC KUKI 210522Z 2106/2206 00000KT P6SM SKC FM212000 16008KT P6SM SKC KUNV 210638Z 2107/2206 28010KT P6SM -RA BKN025 TEMPO 2107/2108 30015G25KT 4SM RA BKN018 FM210800 30016G26KT P6SM VCSH SCT025 BKN040 FM211400 31016G26KT P6SM BKN050 FM212200 29008KT P6SM SCT050 KUTS 210806Z 2108/2206 02005KT P6SM BKN250 WS003/35028KT FM211200 05005KT P6SM SKC KVAD 210500Z 2105/2211 29009KT 9999 BKN025 QNH3002INS BECMG 2107/2108 35009KT 9999 FEW050 SCT100 QNH3010INS BECMG 2114/2115 03012G18KT 9999 SKC QNH3021INS BECMG 2119/2120 04009KT 9999 SKC QNH3020INS TX23/2200Z TN13/2112Z LAST NO AMDS AFT 2105 NEXT 2208 KVCT 210528Z 2106/2206 02012KT P6SM OVC019 FM211200 03015G21KT P6SM SCT020 BKN050 FM212200 02009KT P6SM SCT050 BKN150 KVEL 210536Z 2106/2206 VRB03KT P6SM FEW090 FEW250 FM211800 16007KT P6SM SCT090 BKN250 FM220000 30005KT P6SM FEW090 SCT250 KVGT 210543Z 2106/2206 VRB05KT P6SM VCTS BKN080CB BKN150 TEMPO 2110/2114 -TSRA OVC070CB FM211900 08006KT P6SM VCSH BKN080 FM220400 34007KT P6SM BKN080 KVIS 210520Z 2106/2206 VRB03KT P6SM SKC KVLD 210520Z 2106/2206 36004KT P6SM SCT100 FM211500 04010KT P6SM SKC FM220100 VRB03KT P6SM SKC KVNY 210533Z 2106/2206 VRB03KT P6SM SKC FM212100 15007KT P6SM SKC FM220300 VRB03KT P6SM SKC KVPS 210100Z 2101/2207 36010KT 9999 SCT040 SCT090 QNH3003INS BECMG 2111/2112 03012G18KT 9999 FEW250 QNH3016INS BECMG 2200/2201 04008KT 9999 SKC QNH3019INS TX23/2101Z TN15/2112Z KVQQ 210727Z 2107/2206 30008G16KT P6SM SCT012 SCT090 TEMPO 2107/2109 BKN012 FM211200 34007KT P6SM FEW250 FM211500 02012G18KT P6SM SKC FM212200 03007KT P6SM SKC FM220200 02003KT P6SM SKC KVRB 210535Z 2106/2206 27004KT P6SM SKC FM211400 36012G20KT P6SM SCT040 SCT120 FM212300 02011KT P6SM SCT040 BKN080 FM220400 04008KT P6SM SCT030 BKN060 KVTN 210520Z 2106/2206 19012KT P6SM SKC WS015/21050KT FM211200 22010KT P6SM SKC FM211500 25008KT P6SM SKC FM211800 34010KT P6SM FEW250 FM220000 02006KT P6SM SCT250 KWJF 210533Z 2106/2206 VRB03KT P6SM SKC FM211900 05006KT P6SM SCT100 FM220000 27008KT P6SM SCT100 KWMC 210520Z 2106/2206 VRB06KT P6SM FEW080 KWRB 202100Z 2021/2203 30009KT 9999 FEW010 BKN030 OVC160 QNH2990INS TEMPO 2021/2101 31012G20KT 6000 -SHRA BECMG 2100/2101 32009KT 9999 SCT030 QNH2994INS BECMG 2114/2115 01010G20KT 9999 SKC QNH3000INS BECMG 2122/2123 03006KT 9999 SKC QNH3016INS TX28/2021Z TN08/2111Z KWRI 210200Z 2102/2208 29009KT 9999 BKN040 QNH2958INS TEMPO 2104/2105 30015G25KT 8000 -DZ BECMG 2109/2110 32012G25KT 9999 SCT100 QNH2968INS TEMPO 2112/2115 33020G30KT 510003 BECMG 2122/2123 27009KT 9999 SCT100 QNH3009INS TX10/2102Z TN04/2202Z KWRL 210527Z 2106/2206 VRB05KT P6SM SKC FM212000 04006KT P6SM SCT250 FM220400 16005KT P6SM SCT250 KWWR 210520Z 2106/2206 VRB05KT P6SM SKC FM211400 19013G20KT P6SM SCT250 KXNA 210520Z 2106/2206 01006KT P6SM SKC FM211800 19005KT P6SM SKC KYIP 210524Z 2106/2206 32011KT P6SM BKN035 TEMPO 2106/2107 32012G24KT FM211200 30008KT P6SM SCT025 FM211800 26011KT P6SM SCT035 FM220000 23008KT P6SM SCT100 KYKM 210520Z 2106/2206 28006KT 5SM BR SKC FM211600 VRB04KT P6SM BKN250 KYNG 210520Z 2106/2206 32014G22KT P6SM VCSH SCT018 OVC035 TEMPO 2106/2110 5SM -RASN BKN015 FM211000 31012KT P6SM VCSH OVC025 FM212000 28010KT P6SM BKN035 KZZV 210806Z 2108/2206 30010KT P6SM BKN035 FM211500 30010KT P6SM SCT035 FM220000 24003KT P6SM SKC LATI 210500Z 2106/2206 VRB04KT 9999 BKN100 TEMPO 2111/2206 35012KT SCT030TCU BKN050 TEMPO 2118/2202 -SHRA SCT020CB LBBG 210500Z 2106/2206 34012KT 9999 SCT040 BECMG 2109/2111 10010KT TEMPO 2113/2118 5000 SHRA FEW020CB BKN040 BECMG 2118/2120 03008KT SCT020 LBGO 210500Z 2106/2206 VRB04KT 4000 BR SCT035 BKN050 BECMG 2107/2109 05010KT 9999 PROB30 TEMPO 2112/2116 5000 SHRA FEW030CB BKN040 BECMG 2118/2120 VRB04KT BECMG 2123/2201 5000 BR TEMPO 2202/2206 2000 BR LBPD 210500Z 2106/2206 VRB04KT 5000 BR NSC BECMG 2107/2110 07010KT 9999 SCT050 PROB40 TEMPO 2114/2119 4000 SHRA FEW030CB BKN050 TEMPO 2118/2124 5000 RA BKN015 OVC040 BECMG 2200/2202 VRB04KT 5000 BR TEMPO 2202/2206 2000 BR LBSF 210500Z 2106/2206 VRB04KT 9999 SCT060 BECMG 2110/2112 02010KT TEMPO 2112/2118 SHRA FEW030CB SCT050 PROB40 2114/2116 5000 TSRA SCT025CB SCT040 BECMG 2118/2120 VRB04KT LBWN 210500Z 2106/2206 32010KT 9999 SCT040 BECMG 2108/2110 03012KT PROB30 TEMPO 2112/2116 SHRA FEW030CB BKN040 LCLK 210530Z 2106/2206 02007KT 8000 FEW025 BECMG 2110/2114 20013KT PROB30 TEMPO 2111/2116 FEW030CB BECMG 2116/2118 33007KT LCPH 210530Z 2106/2206 02008KT 8000 FEW020 BECMG 2109/2112 28013KT BECMG 2118/2121 02008KT LCRA 210719Z 2109/2203 VRB05KT 9999 FEW040 BECMG 2109/2112 27012KT LDDU 210537Z 2106/2206 02016KT 9999 FEW050 TX21/2111Z TN15/2205Z PROB40 TEMPO 2110/2113 26009KT PROB30 TEMPO 2112/2116 02018G28KT LDLO 210604Z 2107/2206 02008KT 9999 SCT035 TX16/2107Z TN11/2203Z PROB30 TEMPO 2109/2113 SHRA FEW030TCU BKN035 BECMG 2110/2112 02015KT PROB30 TEMPO 2112/2206 02015G25KT LDOS 210525Z 2106/2206 34015KT 9999 SCT030 TX12/2113Z TN06/2203Z PROB30 TEMPO 2106/2108 34015G25KT BECMG 2108/2110 01007KT PROB30 TEMPO 2113/2117 SHRA FEW025TCU BKN030 BECMG 2200/2202 BKN010 BKN030 LDPL 210525Z 2106/2206 06008KT 9999 SCT035 TX15/2106Z TN09/2203Z BECMG 2107/2109 06015KT PROB30 TEMPO 2107/2111 SHRA FEW030TCU SCT035 PROB40 TEMPO 2114/2206 06020G30KT LDRI 210828Z 2108/2206 04010KT CAVOK TX15/2108Z TN08/2201Z TEMPO 2108/2116 VRB10KT PROB30 TEMPO 2112/2116 04015G30KT BECMG 2116/2118 04020G40KT LDSP 210537Z 2106/2206 05012KT 9999 FEW060 TX18/2110Z TN12/2205Z TEMPO 2106/2206 04007KT PROB30 TEMPO 2109/2111 05015G25KT PROB40 TEMPO 2118/2206 05015G25KT LDZA 210525Z 2106/2206 03006KT 9999 BKN030 TX12/2113Z TN05/2205Z BECMG 2106/2108 03012KT PROB30 TEMPO 2106/2109 RA PROB30 TEMPO 2111/2116 SHRA FEW025TCU BKN030 PROB30 TEMPO 2200/2206 BKN010 BKN030 LDZD 210537Z 2106/2206 06012KT 9999 FEW060 TX17/2112Z TN11/2205Z PROB30 TEMPO 2107/2111 06015G25KT TEMPO 2121/2206 06015G25KT LEAL 210500Z 2106/2206 07020KT 9999 FEW040 TX25/2112Z TN17/2106Z TEMPO 2106/2115 FEW025TCU BECMG 2114/2116 08012KT BECMG 2120/2122 30007KT LEAM 210800Z 2109/2209 05010KT 9999 FEW025 TX26/2113Z TN18/2205Z PROB30 TEMPO 2109/2116 05020G30KT BECMG 2121/2124 34007KT LEAS 210800Z 2109/2209 VRB05KT 8000 SCT010 TX20/2114Z TN13/2206Z PROB30 TEMPO 2109/2110 3000 BR BKN010 TEMPO 2112/2117 05010KT TEMPO 2121/2207 3000 -RA BR BKN010 PROB40 TEMPO 2203/2207 0800 BCFG BKN002 LEBB 210500Z 2106/2206 11005KT 9000 FEW010 BKN030 TX23/2114Z TN13/2107Z TEMPO 2106/2108 3000 BR BKN010 TEMPO 2106/2108 0800 FG VV001 PROB30 TEMPO 2106/2108 0350 FG VV001 TEMPO 2112/2118 36010KT PROB40 TEMPO 2200/2206 1500 BCFG LEBL 210500Z 2106/2206 34008KT 9999 FEW040 TX25/2112Z TN15/2106Z BECMG 2110/2113 23010KT BECMG 2120/2122 34008KT LEBZ 210500Z 2106/2206 09007KT 9999 SCT030 TX23/2115Z TN14/2106Z PROB40 TEMPO 2106/2118 4000 SHRA SCT025 SCT030CB PROB30 TEMPO 2108/2117 3000 TSRA BKN025CB PROB40 TEMPO 2201/2206 1500 BR BKN003 LECH 210500Z 2106/2206 03010KT 9999 BKN015 TX23/2112Z TN13/2106Z BECMG 2114/2116 VRB03KT LECO 210800Z 2109/2209 09004KT CAVOK TX22/2114Z TN13/2207Z PROB40 TEMPO 2114/2118 03010KT PROB40 TEMPO 2203/2207 1500 BR BCFG BKN010 LEDA 210800Z 2109/2209 VRB03KT 9999 FEW030 TX23/2113Z TN11/2206Z TEMPO 2109/2110 0100 FG VV002 BECMG 2110/2112 26007KT BECMG 2200/2202 08005KT TEMPO 2202/2209 0100 FG VV002 LEGE 210638Z 2106/2206 VRB03KT 9999 SCT040 TX26/2113Z TN13/2106Z TEMPO 2106/2107 3000 BCFG TEMPO 2113/2117 17008KT BECMG 2120/2122 33005KT LEGR 210800Z 2109/2209 VRB03KT 9999 FEW030 SCT080 TX24/2115Z TN10/2205Z PROB30 TEMPO 2112/2118 SHRA SCT025TCU SCT040 LEHC 210800Z 2109/2209 VRB03KT 9999 FEW030 TX23/2116Z TN11/2206Z BECMG 2109/2110 27007KT TEMPO 2120/2203 2000 BR BKN010 BECMG 2120/2122 VRB03KT LEIB 210800Z 2109/2209 07010KT 9999 SCT012 TX25/2112Z TN16/2206Z BECMG 2118/2120 01005KT LEJR 210500Z 2106/2206 11004KT 9999 SCT030 TX24/2114Z TN14/2206Z PROB40 TEMPO 2107/2120 4000 SHRA SCT020 SCT030CB PROB30 TEMPO 2109/2118 3000 TSRA SCT020CB BKN030 LELC 210500Z 2106/2206 05018KT 9999 SCT020 TX24/2114Z TN20/2206Z PROB40 TEMPO 2106/2108 BKN014 PROB30 TEMPO 2106/2110 06020G30KT SHRA SCT020TCU BKN040 BECMG 2119/2122 35006KT LELL 210800Z 2109/2209 VRB03KT 9999 FEW030 TX25/2113Z TN13/2206Z BECMG 2109/2110 24005KT BECMG 2122/2124 VRB03KT LEMD 210500Z 2106/2212 02005KT 9999 FEW040 TX22/2115Z TN11/2206Z PROB30 TEMPO 2106/2116 RA FEW040TCU LEMG 210500Z 2106/2206 29007KT 9999 SCT025 TX24/2113Z TN17/2106Z PROB40 TEMPO 2106/2112 4000 SHRA BKN020 SCT030TCU PROB30 TEMPO 2106/2109 3000 TSRA BKN020CB BECMG 2110/2113 17007KT BECMG 2116/2119 28007KT LEMH 210800Z 2109/2209 04006KT 9999 BKN015 TX25/2112Z TN16/2206Z BECMG 2110/2112 34007KT LEPA 210500Z 2106/2206 05005KT 9999 SCT030 TX26/2112Z TN15/2106Z BECMG 2118/2120 VRB03KT LEPP 210800Z 2109/2209 VRB05KT 8000 SCT020 TX24/2114Z TN10/2206Z PROB30 TEMPO 2109/2110 3000 BR BKN010 TEMPO 2112/2118 34010KT PROB40 TEMPO 2203/2207 3000 BR BKN010 PROB30 TEMPO 2203/2207 1500 BCFG BKN005 LERS 210800Z 2109/2209 VRB03KT 7000 SCT030 TX25/2113Z TN13/2206Z TEMPO 2110/2116 22007KT LESA 210500Z 2106/2206 08005KT 9999 FEW025 TX22/2115Z TN08/2206Z BECMG 2108/2110 08015KT LESO 210834Z 2108/2206 20004KT 8000 FEW005 BKN020 TX21/2114Z TN14/2206Z TEMPO 2108/2110 3000 BR BKN005 TEMPO 2108/2110 0350 BCFG BKN002 TEMPO 2112/2118 01010KT TEMPO 2121/2206 1500 BCFG BKN005 LEST 210500Z 2106/2206 09005KT 8000 FEW015 TX23/2115Z TN12/2206Z PROB40 TEMPO 2203/2206 3000 BR BKN010 LESU 210800Z 2109/2209 VRB04KT 9999 BKN050 TX24/2113Z TN09/2206Z LETO 210500Z 2106/2206 04006KT 9999 FEW040 TX21/2115Z TN11/2206Z PROB30 TEMPO 2106/2116 RA FEW040TCU LEVC 210500Z 2106/2206 03007KT 9999 FEW020 SCT030 TX23/2112Z TN15/2106Z TEMPO 2106/2109 FEW025TCU PROB30 TEMPO 2106/2108 4000 TSRA BKN015 SCT020CB BECMG 2116/2118 VRB03KT LEVD 210500Z 2106/2206 08008KT 9999 FEW040 TX24/2115Z TN12/2106Z PROB30 TEMPO 2106/2108 3000 BR LEVT 210500Z 2106/2206 VRB04KT 8000 BKN015 TX23/2115Z TN07/2206Z TEMPO 2106/2109 3000 BR BKN005 PROB30 TEMPO 2106/2109 0800 FG TEMPO 2113/2119 03011KT TEMPO 2121/2206 1500 BCFG LEVX 210500Z 2106/2206 08006KT CAVOK TX24/2115Z TN13/2206Z LEXJ 210800Z 2109/2209 VRB05KT 8000 SCT010 TX22/2114Z TN14/2206Z PROB30 TEMPO 2109/2110 3000 BR BKN010 TEMPO 2111/2118 04010KT TEMPO 2121/2207 3000 BR BKN005 PROB40 TEMPO 2200/2207 0800 BCFG LEZG 210559Z 2106/2206 VRB03KT 9999 FEW030 SCT050 TX23/2114Z TN12/2106Z TEMPO 2106/2109 2000 BR BKN008 PROB40 TEMPO 2106/2109 0300 FG OVC005 BECMG 2118/2121 27009KT LEZL 210800Z 2109/2209 04007KT 9999 SCT035 TX22/2115Z TN15/2206Z TEMPO 2109/2118 4000 SHRA SCT030CB BKN040 PROB30 TEMPO 2109/2118 3000 TSRA SCT020 BKN030CB LFBD 210650Z 2106/2212 03005KT 6000 NSC TX22/2113Z TN10/2106Z PROB30 TEMPO 2107/2109 BKN005 BECMG 2109/2110 CAVOK LFBE 210500Z 2106/2206 09003KT 1200 BR BKN004 PROB40 2106/2109 0500 FG VV/// BECMG 2109/2111 9999 NSW BKN007 BECMG 2111/2113 28005KT CAVOK LFBH 210707Z 2107/2206 06010KT 5000 BR NSC BECMG 2107/2109 7000 NSW NSC BECMG 2112/2114 CAVOK LFBI 210500Z 2106/2206 03008KT 5000 BR NSC PROB30 TEMPO 2106/2108 1200 BCFG BKN005 BECMG 2108/2110 CAVOK LFBL 210500Z 2106/2206 05010KT CAVOK LFBM 210805Z 2109/2209 VRB02KT 0300 FG VV/// BECMG 2111/2113 9999 NSW SCT020 BECMG 2201/2203 0500 FG VV/// PROB30 TEMPO 2205/2208 OVC002 BECMG 2208/2209 9999 NSW NSC LFBO 210829Z 2108/2212 31004KT 2000 BR OVC002 BECMG 2109/2111 8000 NSW BKN012 BECMG 2111/2113 CAVOK BECMG 2122/2201 0300 FG VV/// BECMG 2209/2211 CAVOK LFBP 210816Z 2108/2206 12005KT 0300 FG VV/// BECMG 2110/2112 2000 BR BKN002 BECMG 2112/2114 CAVOK BECMG 2120/2122 2000 BR BKN002 TEMPO 2200/2206 0300 FG VV/// LFBT 210500Z 2106/2206 15005KT CAVOK TEMPO 2106/2109 3000 BR NSC BECMG 2200/2202 2000 BR BKN002 PROB30 TEMPO 2203/2206 0300 FG VV/// LFBU 210500Z 2106/2206 03005KT 5000 BR NSC PROB40 TEMPO 2106/2108 0800 BCFG BKN005 BECMG 2108/2110 CAVOK LFBZ 210811Z 2108/2206 VRB02KT 0300 FG VV/// BECMG 2110/2112 2000 BR BKN002 BECMG 2112/2114 09005KT CAVOK BECMG 2114/2115 34005KT BECMG 2116/2118 6000 BKN005 TEMPO 2121/2206 1500 BR BKN002 LFCR 210500Z 2106/2206 VRB03KT 4000 BR NSC TEMPO 2106/2107 0500 BCFG BECMG 2107/2109 CAVOK BECMG 2111/2114 30008KT LFJL 210637Z 2106/2206 06008KT CAVOK TEMPO 2106/2109 3000 BR LFKB 210800Z 2109/2209 23005KT CAVOK TX24/2113Z TN11/2204Z BECMG 2109/2112 33008KT BECMG 2119/2120 03015G30KT FEW030 SCT050 PROB40 TEMPO 2120/2124 SHRA SCT020TCU BKN040 PROB30 TEMPO 2120/2123 TSRA SCT015CB LFKC 210800Z 2109/2209 VRB03KT CAVOK TX25/2113Z TN12/2204Z TEMPO 2112/2116 33008KT TEMPO 2117/2121 VRB03KT BECMG 2121/2124 03015G25KT PROB30 TEMPO 2121/2201 SHRA SCT020TCU LFKF 210800Z 2109/2209 VRB03KT CAVOK BECMG 2109/2111 23010KT BECMG 2119/2120 03015G30KT PROB30 TEMPO 2122/2203 SHRA SCT020TCU LFKJ 210800Z 2109/2209 05005KT CAVOK BECMG 2109/2111 23010KT BECMG 2117/2120 VRB03KT FEW040 SCT060 BECMG 2120/2123 04010KT LFLB 210639Z 2106/2206 VRB02KT 3000 BR BKN025 BECMG 2110/2112 36012KT 7000 NSW NSC PROB40 TEMPO 2120/2206 BKN025 LFLC 210800Z 2109/2209 35005KT CAVOK= LFLS 210800Z 2109/2209 VRB02KT 3000 BR NSC PROB30 TEMPO 2109/2110 0600 BCFG BKN003 BECMG 2110/2112 36008KT CAVOK BECMG 2116/2118 VRB02KT PROB40 TEMPO 2121/2209 4000 BR LFLL 210500Z 2106/2212 VRB02KT 3000 BR BKN006 PROB30 TEMPO 2106/2109 0400 FG VV/// BECMG 2109/2112 7000 NSW FEW009 BECMG 2112/2114 36010KT CAVOK PROB40 TEMPO 2202/2208 VRB02KT 3000 BR LFLP 210548Z 2105/2203 VRB03KT 4000 BR BKN012 BECMG 2110/2112 CAVOK LFLS 210800Z 2109/2209 VRB02KT 3000 BR NSC PROB30 TEMPO 2109/2110 0600 BCFG BKN003 BECMG 2110/2112 36008KT CAVOK BECMG 2116/2118 VRB02KT PROB40 TEMPO 2121/2209 4000 BR LFLX 210500Z 2106/2212 03007KT 7000 NSC PROB40 TEMPO 2106/2108 3000 BR PROB30 TEMPO 2106/2107 0800 BCFG BECMG 2108/2110 CAVOK LFLY 210717Z 2107/2206 VRB02KT 3000 BR BKN012 PROB40 TEMPO 2107/2109 OVC009 BECMG 2109/2111 36008KT CAVOK PROB40 TEMPO 2200/2206 4000 BR LFMD 210800Z 2109/2209 18010KT CAVOK BECMG 2120/2122 09020G30KT PROB40 TEMPO 2121/2203 14010KT BKN014 BECMG 2206/2208 20005KT LFMH 210800Z 2109/2209 VRB03KT 3000 BR OVC010 BECMG 2109/2111 35007KT CAVOK LFMI 210800Z 2109/2209 35010KT CAVOK BECMG 2110/2112 34015G25KT BECMG 2121/2123 02010KT LFMK 210800Z 2109/2209 27007KT 8000 OVC010 BECMG 2109/2111 9999 NSW BKN010 BECMG 2111/2113 CAVOK TEMPO 2200/2209 4000 BR OVC006 LFML 210800Z 2109/2215 34010KT CAVOK TX22/2114Z TN14/2205Z TEMPO 2114/2118 34015G25KT BECMG 2121/2123 VRB05KT BECMG 2210/2213 32015G25KT LFMN 210800Z 2109/2215 18010KT CAVOK BECMG 2115/2118 09015KT BECMG 2121/2123 09025G35KT PROB40 TEMPO 2121/2203 BKN014 BECMG 2206/2208 25010KT LFMO 210800Z 2109/2209 35015G25KT CAVOK TEMPO 2115/2121 35025G40KT BECMG 2200/2202 34015KT BECMG 2208/2209 35015G25KT LFMP 210800Z 2109/2209 VRB02KT CAVOK BECMG 2111/2113 32010KT TEMPO 2117/2202 31020G30KT BECMG 2204/2206 VRB02KT LFMT 210800Z 2109/2209 VRB02KT CAVOK BECMG 2122/2124 36010KT BECMG 2201/2203 VRB02KT BKN040 LFMU 210800Z 2109/2209 32005KT 8000 NSC BECMG 2109/2111 28010KT CAVOK BECMG 2201/2203 VRB02KT BKN040 LFMV 210800Z 2109/2209 35010KT CAVOK BECMG 2110/2114 35015G25KT BECMG 2121/2123 36010KT LFOA 210757Z 2107/2203 CNL LFOB 210826Z 2108/2206 VRB02KT 8000 NSC TEMPO 2108/2111 2000 BR BECMG 2122/2124 OVC005 TEMPO 2202/2206 36015G25KT 3000 RA OVC002 LFOE 210800Z 2109/2209 36003KT 6000 NSC BECMG 2201/2204 BKN005 TEMPO 2204/2208 2000 DZRA OVC003 LFOH 210500Z 2106/2206 05003KT 2000 BR NSC BECMG 2107/2109 8000 NSW BECMG 2117/2119 OVC005 BECMG 2200/2203 02020G30KT RA LFOJ 210709Z 2107/2203 CNL LFOK 210827Z 2108/2206 03007KT 3000 BR NSC BECMG 2108/2111 CAVOK TEMPO 2203/2206 1500 BCFG LFOP 210826Z 2108/2206 VRB02KT 8000 NSC TEMPO 2108/2111 3000 BR BECMG 2120/2122 36012KT OVC005 TEMPO 2202/2204 3000 RA OVC002 LFOT 210500Z 2106/2206 05008KT CAVOK PROB30 TEMPO 2106/2108 4000 BR LFPB 210500Z 2106/2206 02005KT 4000 BR NSC PROB30 TEMPO 2106/2108 2000 BR BECMG 2108/2110 8000 NSW NSC BECMG 2203/2205 4000 BR BKN006 BKN009 LFPG 210500Z 2106/2212 02005KT 4000 BR NSC TX19/2114Z TN06/2106Z TEMPO 2106/2108 2500 BR PROB30 TEMPO 2106/2108 1200 BR BECMG 2108/2110 8000 NSW NSC BECMG 2203/2205 4000 BR BKN004 BKN007 PROB40 TEMPO 2206/2209 1500 -DZ BR OVC002 BECMG 2209/2212 02015G25KT 8000 NSW BKN020 LFPO 210500Z 2106/2212 01005KT 7000 NSC PROB30 TEMPO 2106/2107 4000 BR BECMG 2107/2109 CAVOK BECMG 2205/2207 01012KT 7000 BKN012 BKN040 PROB40 TEMPO 2207/2212 3000 BR BKN006 PROB30 TEMPO 2207/2212 2000 -DZ BKN004 LFPV 210800Z 2109/2209 04006KT 5000 NSC FM211300 04008KT CAVOK BECMG 2202/2204 BKN007 TEMPO 2204/2209 3000 BR PROB40 TEMPO 2204/2208 1500 DZRA BKN003 LFQQ 210825Z 2108/2212 VRB02KT 8000 NSC TEMPO 2108/2111 4500 BR BECMG 2200/2202 36013KT OVC008 TEMPO 2202/2205 3000 RA BECMG 2205/2207 BKN020 LFRB 210803Z 2108/2212 07003KT 6000 NSC TEMPO 2108/2109 4000 BR FEW004 BECMG 2108/2110 CAVOK BECMG 2117/2119 05013KT SCT005 BKN008 TEMPO 2203/2206 03015G25KT 4000 -RADZ OVC003 BECMG 2208/2210 SCT025 LFRD 210500Z 2106/2206 VRB03KT 0300 FG VV/// BECMG 2108/2110 CAVOK BECMG 2112/2114 01010KT TEMPO 2121/2202 3000 BR BKN005 BECMG 2200/2202 BKN013 TEMPO 2202/2206 4000 RADZ BKN005 BECMG 2202/2204 02015G25KT LFRH 210500Z 2106/2206 04010KT 7000 NSC BECMG 2108/2110 CAVOK BECMG 2122/2124 04010G20KT PROB30 TEMPO 2122/2203 5000 BR BKN005 BECMG 2204/2206 OVC012 LFRI 210647Z 2106/2206 05005KT CAVOK TEMPO 2106/2107 0500 FG TEMPO 2107/2108 3000 BR BECMG 2203/2205 BKN004 LFRM 210500Z 2106/2206 04006KT CAVOK BECMG 2202/2204 BKN008 PROB40 TEMPO 2203/2206 BKN004 PROB30 2203/2206 2000 -DZ LFRN 210500Z 2106/2206 VRB03KT 3000 BR NSC TEMPO 2106/2107 0500 FG VV/// BECMG 2107/2109 CAVOK BECMG 2112/2114 01010KT TEMPO 2122/2204 3000 BR BKN005 BECMG 2202/2204 BKN013 TEMPO 2204/2206 4000 RADZ BKN008 LFRO 210500Z 2106/2206 VRB02KT 0200 FG VV/// BECMG 2106/2109 4000 BR NSC BECMG 2109/2112 04006KT 9999 NSW BECMG 2116/2118 SCT005 BKN008 TEMPO 2203/2206 04018G28KT 3000 -RADZ OVC003 LFRQ 210500Z 2106/2206 05003KT CAVOK BECMG 2120/2122 05014KT BKN010 TEMPO 2203/2206 05015G25KT OVC003 LFRS 210641Z 2106/2212 05006KT CAVOK TEMPO 2106/2108 4000 BR BECMG 2202/2204 BKN004 BECMG 2209/2212 BKN010 LFRZ 210641Z 2106/2206 05007KT CAVOK TEMPO 2106/2108 3000 BR BECMG 2201/2203 BKN004 LFSB 210815Z 2108/2206 VRB04KT 0800 FG VV/// PROB40 TEMPO 2108/2109 0500 BECMG 2108/2110 3000 BR BKN004 BECMG 2110/2112 35006KT 6000 NSW NSC TEMPO 2112/2117 8000 BECMG 2118/2120 VRB03KT 4000 BR TEMPO 2120/2202 MIFG TEMPO 2202/2206 BCFG PROB40 TEMPO 2202/2206 1000 BKN003 LFSI 210800Z 2109/2209 02006KT CAVOK TEMPO 2204/2208 3000 BR LFST 210500Z 2106/2206 33005KT CAVOK PROB40 TEMPO 2106/2109 4500 BR TEMPO 2110/2118 03010KT LFTH 210800Z 2109/2209 VRB05KT CAVOK BECMG 2110/2113 26010KT BECMG 2117/2121 08015G25KT LFTW 210800Z 2109/2209 02007KT CAVOK BECMG 2119/2121 36020G30KT BECMG 2201/2203 36010KT BKN040 LFVP 210203Z 2102/2103 CNL LGAV 210500Z 2106/2206 01012KT 9999 FEW030 SCT070 LGEL 210500Z 2106/2206 33010KT 9999 FEW025 SCT070 PROB30 TEMPO 2112/2121 5000 RA SCT018 BKN070 LGIR 210500Z 2106/2206 33010KT 9999 FEW018 SCT025 LGKO 210500Z 2106/2206 33015KT 9999 FEW018 LGKR 210500Z 2106/2206 VRB05KT 9999 SCT018 BKN030 PROB40 TEMPO 2109/2206 5000 RA SCT012 BKN025 BKN070 PROB30 TEMPO 2203/2206 5000 TSRA SCT010 FEW018CB BKN020 BKN070 BECMG 2121/2123 12012KT LGPZ 210500Z 2106/2206 08010KT 9999 FEW020 SCT080 PROB40 TEMPO 2112/2206 5000 RA SCT018 BKN070 PROB30 TEMPO 2115/2206 5000 TSRA SCT010 FEW018CB BKN020 BKN070 LGRP 210500Z 2106/2206 28012KT 9999 FEW010 BECMG 2200/2202 VRB05KT LGSA 210500Z 2106/2206 VRB05KT 9999 SCT018 BECMG 2107/2109 07010KT LGSR 210500Z 2106/2206 35015KT 9999 FEW025 LGTS 210500Z 2106/2206 VRB03KT 9999 FEW025 TEMPO 2106/2108 8000 FEW010 SCT025 PROB40 TEMPO 2109/2121 8000 RA SCT025 PROB30 TEMPO 2111/2116 5000 TSRA FEW018CB SCT025 LHBP 210515Z 2106/2206 33009KT 9999 BKN030 TEMPO 2106/2109 4000 RA SHRA BKN007 OVC015 TEMPO 2109/2111 -RA BKN020 OVC030 BECMG 2110/2113 03009KT BECMG 2117/2119 VRB03KT LHPA 210515Z 2106/2206 35009KT CAVOK TEMPO 2106/2117 35014G24KT 9999 SCT040 BECMG 2118/2120 9999 BKN030 BECMG 2122/2124 34005KT LIBC 210500Z 2106/2206 05012KT 9999 SCT025 TEMPO 2115/2124 TSRA BECMG 2115/2117 VRB05KT LIBD 210500Z 2106/2206 28008KT 9999 FEW030 BECMG 2108/2110 01012KT TEMPO 2118/2206 TSRA LIBP 210500Z 2106/2206 VRB05KT 4000 BR NSC BECMG 2107/2110 36012KT 9999 TEMPO 2115/2206 TSRA LIBR 210500Z 2106/2206 35012KT 9999 SCT020 TEMPO 2203/2206 TSRA LICA 210500Z 2106/2206 VRB05KT 9999 FEW020 TEMPO 2110/2206 TSRA BECMG 2115/2118 08012KT LICC 210500Z 2106/2206 VRB05KT 4000 BR SCT030 BECMG 2108/2110 08010KT 8000 TEMPO 2112/2124 4000 TSRA BECMG 2117/2119 VRB05KT LICD 210500Z 2106/2206 VRB05KT 9999 SCT020 TEMPO 2115/2120 TSRA BECMG 2122/2124 34013KT LICJ 210500Z 2106/2206 VRB05KT 9999 SCT020 BECMG 2109/2111 35010KT BECMG 2118/2120 VRB05KT LICR 210500Z 2106/2206 16010KT 9999 SCT030 TEMPO 2112/2206 TSRA LIEA 210550Z 2106/2206 VRB03KT 7000 NSC TEMPO 2106/2108 0100 FG BKN002 BECMG 2109/2111 32010KT BECMG 2122/2124 06015KT LIEE 210500Z 2106/2206 VRB05KT 4000 BR SCT040 BECMG 2107/2109 8000 BECMG 2110/2112 34012KT LIEO 210500Z 2106/2206 VRB05KT CAVOK BECMG 2110/2112 04012KT TEMPO 2200/2206 RA LIMC 210500Z 2106/2212 VRB05KT CAVOK TEMPO 2106/2108 3000 BCFG LIME 210500Z 2106/2206 02005KT 7000 NSC TEMPO 2106/2108 3000 BR LIMF 210500Z 2106/2206 VRB05KT CAVOK LIMJ 210500Z 2106/2206 03007KT CAVOK LIML 210500Z 2106/2206 VRB05KT 7000 NSC PROB40 TEMPO 2106/2108 0800 BCFG TEMPO 2115/2118 11012KT LIMP 210500Z 2106/2206 221005KT 8000 NSC TEMPO 2106/2108 3000 BR LIMZ 210500Z 2106/2206 VRB05KT 9999 SCT070 LIPB 210500Z 2106/2206 VRB05KT CAVOK BECMG 2112/2114 36012G23KT BECMG 2116/2118 VRB05KT LIPE 210500Z 2106/2206 VRB05KT 8000 NSC BECMG 2110/2112 08010KT TEMPO 2114/2118 SHRA BECMG 2117/2119 VRB05KT BECMG 2202/2204 30010KT LIPH 210500Z 2106/2206 VRB05KT CAVOK BECMG 2110/2112 06010KT TEMPO 2114/2118 SHRA LIPO 210500Z 2106/2206 VRB05KT CAVOK TEMPO 2106/2108 3000 BR TEMPO 2115/2118 11012KT LIPQ 210500Z 2106/2206 VRB05KT CAVOK BECMG 2108/2110 09015KT LIPY 210500Z 2106/2206 VRB05KT 8000 FEW030 BECMG 2110/2112 03015G25KT TEMPO 2111/2118 TSRA LIPZ 210500Z 2106/2212 04005KT 8000 NSC BECMG 2110/2112 06015KT TEMPO 2114/2118 SHRA LIRA 210500Z 2106/2206 VRB05KT CAVOK TEMPO 2118/2206 4000 TSRA LIRF 210500Z 2106/2212 VRB05KT CAVOK BECMG 2109/2111 22010KT TEMPO 2115/2206 4000 SHRA BECMG 2117/2119 04008KT LIRN 210500Z 2106/2206 VRB06KT CAVOK BECMG 2110/2112 04010KT TEMPO 2120/2206 3000 SHRA LIRP 210500Z 2106/2206 12004KT CAVOK TEMPO 2112/2117 30008KT 9999 SCT030 BECMG 2116/2118 09015KT CAVOK BECMG 2202/2204 04005KT LIRQ 210500Z 2106/2206 VRB04KT CAVOK BECMG 2110/2112 04012KT LIRZ 210500Z 2106/2206 VRB05KT CAVOK BECMG 2109/2111 02012KT TEMPO 2116/2124 RA LJLJ 210800Z 2109/2209 12005KT 9999 BKN033 TEMPO 2109/2117 12010KT -RA BKN020 OVC040 BECMG 2117/2120 30003KT FEW040 TEMPO 2200/2206 BKN045 PROB40 TEMPO 2200/2207 0500 FG VV001 LJMB 210800Z 2109/2209 01005KT 9999 SCT040 BKN060 TEMPO 2109/2209 02010KT BKN030 OVC055 TEMPO 2109/2114 -RA PROB30 TEMPO 2120/2209 -RA LKCV 210500Z 2106/2206 28004KT CAVOK BECMG 2106/2108 9999 SCT030 BECMG 2110/2112 36004KT BECMG 2117/2118 VRB02KT CAVOK LKKB 210500Z 2106/2206 30004KT CAVOK TEMPO 2106/2109 SCT025 BECMG 2109/2111 35006KT SCT028 BECMG 2115/2117 VRB02KT CAVOK BECMG 2203/2205 6000 NSC LKKV 210500Z 2106/2212 VRB02KT 9999 SCT017 BKN040 TEMPO 2202/2208 4000 BR BKN005 LKMT 210500Z 2106/2212 03010KT 7000 -RA BKN006 TEMPO 2106/2116 03014G25KT 9999 BKN017 BECMG 2122/2200 04004KT 3000 BR SCT006 TEMPO 2200/2208 0600 FG BKN003 BECMG 2208/2210 CAVOK LKNA 210500Z 2106/2206 31008KT 9999 BKN040 TEMPO 2106/2109 7000 -RA BKN025 BKN040 BECMG 2109/2111 03006KT BECMG 2115/2117 VRB02KT CAVOK BECMG 2204/2206 4000 BR LKPR 210500Z 2106/2212 32006KT 9999 SCT035 TEMPO 2106/2108 6000 -RA BKN020 BECMG 2110/2112 01006KT BECMG 2118/2120 VRB02KT CAVOK BECMG 2201/2203 3000 BR SCT004 BECMG 2203/2205 0500 FG BKN002 BECMG 2207/2209 24004KT CAVOK LKTB 210500Z 2106/2212 35008KT 9999 BKN035 TEMPO 2106/2110 5000 BR BKN020 BECMG 2118/2120 01006KT CAVOK TEMPO 2203/2207 5000 BR SCT008 BECMG 2207/2209 31006KT LLHA 210613Z 2106/2206 17005KT 9999 SCT030 TEMPO 2106/2109 5000 TSRA FEW020CB BKN025 FM210900 29010KT 9999 SCT030 PROB40 2109/2115 5000 TSRA FEW020CB BKN025 BECMG 2115/2117 VRB03KT FEW025 TX28/2111Z TN21/2203Z LLIB 210616Z 2106/2206 VRB03KT 9999 FEW020 TEMPO 2106/2109 5000 TSRA FEW015 FEW018CB BKN020 FM210900 16005KT 9999 SCT030 PROB40 2109/2112 5000 TSRA FEW015 FEW020CB BKN020 BECMG 2112/2114 35008KT FEW025 BECMG 2117/2119 VRB03KT CAVOK TX27/2112Z TN17/2203Z LLOV 210324Z 2103/2124 21007KT CAVOK BECMG 2107/2109 02011KT BECMG 2118/2120 VRB04KT TX29/2112Z TN18/2104Z LOWG 210515Z 2106/2206 34006KT 9999 FEW020 BKN070 TX14/2113Z TN05/2203Z TEMPO 2106/2114 04008KT -SHRA FEW040TCU BKN050 LOWI 210515Z 2106/2206 VRB02KT 7000 BKN025 TX14/2114Z TN02/2206Z BECMG 2109/2111 08007KT 9999 FEW050 SCT120 TEMPO 2111/2118 04010G20KT BECMG 2118/2120 09005KT 8000 SCT030 LOWK 210733Z 2107/2206 VRB02KT 9999 FEW050 SCT080 TX14/2114Z TN03/2204Z TEMPO 2107/2109 FEW003 BKN010 TEMPO 2109/2116 03010KT -SHRA FEW040TCU BKN060 PROB30 TEMPO 2202/2206 1200 BCFG SCT002 LOWL 210515Z 2106/2206 33003KT 9999 BKN050 TX12/2113Z TN04/2205Z TEMPO 2110/2116 03010KT SCT060 PROB40 2202/2206 VRB02KT 2500 BR SCT050 LOWS 210515Z 2106/2206 34005KT 9999 FEW020 BKN045 TX13/2114Z TN03/2204Z BECMG 2108/2110 SCT045 BKN090 TEMPO 2111/2116 02010KT BECMG 2116/2118 15005KT FEW045 SCT090 PROB30 TEMPO 2120/2206 VRB02KT 3500 BR NSC LOWW 210815Z 2109/2215 33012KT 9999 FEW045 SCT060 TX16/2211Z TN06/2205Z TEMPO 2109/2114 35017G27KT BKN045 LPAZ 210500Z 2106/2212 04015KT 9999 FEW020 SCT030 TEMPO 2106/2212 04020G30KT SCT008 BKN015 PROB30 TEMPO 2106/2122 5000 -RA FEW005 BKN010 LPBJ 210505Z 2106/2206 16010KT 9999 FEW030 TEMPO 2106/2117 7000 -SHRA SCT012 BKN020 SCT035 PROB30 2106/2110 VRB02KT SCT003 BKN006 TEMPO 2110/2116 15012G22KT BECMG 2116/2119 VRB02KT PROB30 2202/2206 1500 BCFG BKN003 LPFR 210500Z 2106/2206 06010KT 9999 SCT025 TEMPO 2106/2112 8000 SHRA BKN015 FEW022CB PROB40 TEMPO 2106/2110 VRB10G25KT 3000 TSRA BKN012 SCT018CB BECMG 2110/2112 15012KT FEW030 BECMG 2117/2119 VRB03KT BECMG 2122/2124 07007KT SCT015 TEMPO 2200/2206 5000 BR SCT005 BKN010 LPLA 210505Z 2106/2206 02012KT 9999 SCT014 BKN025 TEMPO 2106/2206 02015G25KT 4000 -RADZ SCT007 BKN014 PROB40 TEMPO 2106/2115 2000 -RADZ BR SCT003 BKN008 LPMA 210500Z 2106/2206 VRB05KT 9999 SCT015 TEMPO 2106/2206 8000 SHRA BKN013 FEW018TCU PROB30 TEMPO 2108/2120 VRB10G20KT 3000 TSRA SCT016CB PROB40 2112/2118 18010KT LPMR 210504Z 2106/2206 11010KT 9999 SCT030 TEMPO 2106/2120 7000 -SHRA SCT025 BKN028 TEMPO 2109/2114 12012G22KT PROB30 TEMPO 2114/2119 VRB12G22KT 2500 TSRA SCT020 BKN028 SCT035CB LPMT 210505Z 2106/2206 VRB02KT 9999 SCT020 TEMPO 2106/2120 7000 -SHRA SCT012 BKN020 BECMG 2109/2112 15012KT BECMG 2115/2117 VRB02KT LPOV 210504Z 2106/2206 VRB02KT 9999 SCT030 TEMPO 2106/2120 7000 -SHRA SCT025 BKN028 PROB30 TEMPO 2114/2117 VRB12G22KT 2500 TSRA SCT020 BKN028 SCT035CB LPPD 210500Z 2106/2206 03015KT 9999 FEW015 SCT030 TEMPO 2106/2206 03018G28KT SCT008 BKN015 PROB30 TEMPO 2106/2202 3000 RADZ BR FEW003 BKN006 LPPR 210500Z 2106/2206 VRB03KT CAVOK BECMG 2112/2114 33008KT 9999 FEW030 PROB30 TEMPO 2114/2119 7000 SHRA BKN020 FEW025CB BECMG 2118/2120 VRB03KT FEW012 LPPS 210500Z 2106/2212 VRB05KT 9999 SCT015 TEMPO 2106/2212 8000 SHRA BKN013 FEW018TCU PROB30 TEMPO 2106/2120 VRB10G20KT 3000 TSRA BKN010 SCT016CB BECMG 2203/2206 09007KT LPPT 210500Z 2106/2212 06007KT 9999 FEW018 SCT030 TEMPO 2106/2112 5000 SHRA FEW008 BKN015 FEW025TCU PROB30 TEMPO 2106/2110 VRB10G25KT 3000 TSRA BKN012 FEW020CB BECMG 2112/2114 13007KT FEW030 BECMG 2118/2120 VRB03KT FEW010 TEMPO 2202/2209 04007KT 3000 BR SCT002 BKN004 BECMG 2209/2211 CAVOK LQTZ 202201Z 2022/2118 CNL LRBO 210500Z 2106/2206 02012KT 5000 BR SCT040 BKN100 TEMPO 2106/2108 3000 BR FEW010 SCT100 BECMG 2110/2112 7000 BECMG 2117/2119 02010KT SCT100 LRBS 210500Z 2106/2206 VRB04KT 5000 -SHRA BR SCT040CB TEMPO 2106/2109 1500 SHRA BR BKN003 BKN030CB BECMG 2112/2114 9999 NSW SCT040 BECMG 2117/2119 06012KT LRCK 210500Z 2106/2206 30008KT 3000 BR SCT025 BECMG 2106/2108 36010KT 9999 NSW LRCT 210500Z 2106/2206 VRB03KT 5000 BR SCT015 BKN030 TEMPO 2106/2110 09006KT 2000 -RA BR BKN002 OVC025 TEMPO 2111/2115 3000 RA BR BKN010 OVC050 BECMG 2120/2123 03005KT 9999 FEW025 BKN060 LROP 210500Z 2106/2206 VRB04KT 5000 -SHRA BR SCT040CB TEMPO 2106/2109 1500 SHRA BR BKN003 BKN030CB BECMG 2112/2114 9999 NSW SCT040 BECMG 2117/2119 06012KT LRSB 210500Z 2106/2206 VRB04KT 9999 SCT015 SCT040 TEMPO 2106/2109 3000 BR BKN010 BKN030 TEMPO 2109/2115 3000 -SHRA BR BKN015 SCT030CB BKN040 TEMPO 2200/2206 3000 BR BKN005 LRTR 210500Z 2106/2206 VRB04KT 3000 BR SCT040 BECMG 2107/2109 9999 NSW TEMPO 2112/2117 33010KT BECMG 2122/2124 5000 BR TEMPO 2200/2205 1500 BR BKN005 LRTZ 210500Z 2106/2206 30014KT 9999 BKN060 BKN100 TEMPO 2108/2113 05012KT SCT035 BECMG 2116/2118 BKN070 BECMG 2201/2203 36016G26KT LSGG 210825Z 2109/2215 VRB03KT 4000 BR BKN014 TX17/2115Z TN07/2206Z TX15/2215Z BECMG 2109/2111 04010KT 7000 FEW020 TEMPO 2203/2209 2500 BR BKN010 BECMG 2209/2211 04015KT LSMD 210548Z 2105/2123 VRB02KT 0300 FG VV001 BECMG 2107/2109 2200 BR BKN008 BECMG 2109/2111 3000 BKN016 BECMG 2111/2113 6000 NSC BECMG 2116/2119 4000 BR LSME 210533Z 2105/2123 VRB03KT 2000 BR BKN004 BECMG 2105/2108 3500 BR BKN008 BECMG 2108/2111 BKN016 BECMG 2110/2113 6000 NSC BECMG 2116/2119 4000 BR LSMM 210202Z 2102/2123 07004KT CAVOK PROB40 2102/2108 4000 MIFG SCT012 BECMG 2108/2111 CAVOK TEMPO 2111/2118 9999 FEW100 PROB40 TEMPO 2114/2119 10010KT LSMP 210704Z 2107/2212 VRB02KT 0300 FG VV002 BECMG 2107/2109 3000 BR NSC BECMG 2110/2113 05010KT 6000 BECMG 2120/2122 VRB03KT TEMPO 2203/2209 2500 BR BKN008 BECMG 2210/2212 05010KT LSZH 210825Z 2109/2215 VRB03KT 1500 BR FEW004 OVC006 TX16/2114Z TN02/2206Z TX14/2214Z BECMG 2109/2111 3500 BKN010 BECMG 2111/2113 05008KT 6000 NSC BECMG 2120/2123 VRB03KT 4000 MIFG PROB30 2200/2209 BKN012 BECMG 2208/2210 04008KT 6000 BECMG 2210/2212 CAVOK LTAJ 210007Z 2100/2124 01007KT 9999 SCT030 BKN090 TEMPO 2100/2103 -TSRA FEW020CB BKN030 PROB40 TEMPO 2103/2107 4000 -SHRA BR BKN020 BKN080 TEMPO 2108/2112 12012KT -TSRA FEW020CB BKN030 TEMPO 2112/2116 12012KT 4000 TSRA SCT020CB BKN030 TEMPO 2116/2120 -SHRA FEW020CB BKN030= LTAP 202108Z 2021/2118 27015KT 9999 -TSRA SCT033CB BKN035 BECMG 2022/2102 VRB02KT NSW SCT035 BKN100 PROB30 TEMPO 2103/2107 4000 -SHRA BR BKN035 BKN090 TEMPO 2108/2112 -SHRA FEW030CB BKN035 LTBJ 210453Z 2104/2124 VRB02KT CAVOK BECMG 2106/2108 36012KT FEW030 BKN200 BECMG 2116/2118 VRB02KT CAVOK LTCS 210008Z 2100/2124 02007KT 9999 SCT030 BKN090 TEMPO 2100/2103 -TSRA FEW020CB BKN030 PROB40 TEMPO 2103/2107 4000 -SHRA BR BKN020 BKN080 TEMPO 2108/2112 12012KT -TSRA FEW020CB BKN030 TEMPO 2112/2116 12012KT 4000 TSRA SCT020CB BKN030 PROB30 TEMPO 2116/2120 -SHRA FEW020CB BKN030= LTFC 210322Z 2103/2124 VRB02KT 9999 -TSRA FEW020CB BKN030 BECMG 2108/2112 NSW SCT035 PROB40 TEMPO 2114/2118 -TSRA FEW020CB BKN035= LUKK 210520Z 2106/2206 36009KT 3800 BR FU BKN008 TEMPO 2106/2108 1800 BKN005 BECMG 2108/2109 9999 NSW BKN020 LWOH 210830Z 2109/2209 34006KT 9999 SCT040 BKN070 TEMPO 2112/2203 6000 RA SCT020 OVC040 LWSK 210830Z 2109/2209 VRB02KT 9999 OVC033 TEMPO 2112/2205 5000 RA SCT020 BKN040 OVC070 LYBE 210500Z 2106/2206 27008KT 7000 SCT033 TX13/2112Z TN07/2205Z TEMPO 2108/2114 33012KT BECMG 2202/2204 3000 BR LYBT 210500Z 2106/2206 28006KT 9999 SCT033 TX12/2112Z TN05/2205Z TEMPO 2109/2115 34012KT BECMG 2201/2203 3000 BR TEMPO 2204/2206 1500 LYKV 210500Z 2106/2206 30005KT 8000 SCT015 BKN030 TX13/2112Z TN09/2124Z TEMPO 2106/2109 5000 -RA BKN013 BKN027 TEMPO 2203/2206 3000 BR BKN007 BKN025 LYNI 210500Z 2106/2206 33005KT 6000 SCT020 BKN033 TX13/2107Z TN07/2205Z TEMPO 2106/2109 3000 -RA BR BKN010 OVC030 LYPG 210840Z 2108/2206 36007KT 9999 FEW040 SCT090 TX21/2113Z TN12/2205Z TEMPO 2108/2110 36018KT TEMPO 2116/2206 02015G25KT LYTV 210500Z 2106/2206 02012KT CAVOK TX24/2113Z TN15/2204Z TEMPO 2112/2206 02015G25KT LYUZ 210500Z 2106/2206 32007KT 6000 SCT005 OVC013 TX08/2112Z TN02/2205Z TEMPO 2106/2110 0500 FG VV002 TEMPO 2118/2124 2000 -RA BR BKN003 OVC010 BECMG 2200/2202 0400 FG VV001 LYVR 210500Z 2106/2206 VRB02KT 8000 BKN033 TX13/2112Z TN06/2205Z TEMPO 2109/2113 32010KT BECMG 2201/2203 2000 BR MBGT 210445Z 2106/2206 04004KT 9999 SCT016 FM211300 05010KT 9999 VCSH FEW016 SCT018 MBPV 210445Z 2106/2206 04004KT 9999 SCT016 FM211300 05010KT 9999 VCSH FEW016 SCT018 MGGT 210500Z 2106/2206 36010KT 9999 SCT014 TX26/2120Z TN15/2112Z BECMG 2115/2117 36014KT SCT018 TEMPO 2121/2124 8000 VCTSRA FEW025CB BECMG 2202/2204 36016KT SCT014 MGPB 210500Z 2106/2206 00000KT 9999 SCT016 TX30/2120Z TN20/2112Z TEMPO 2108/2114 8000 TSRA FEW025CB BECMG 2115/2117 05008KT SCT018 TEMPO 2120/2124 TSRA SCT020TCU FEW025CB BECMG 2200/2202 00000KT SCT016 BECMG 2205/2207 FEW016 MGSJ 210500Z 2106/2206 00000KT CAVOK TX28/2120Z TN22/2112Z BECMG 2115/2117 18008KT FEW018 TEMPO 2120/2124 22010KT 8000 TSRA FEW025CB BECMG 2200/2202 00000KT SCT016 BECMG 2204/2206 CAVOK MKJP 210515Z 2106/2206 VRB02KT 9999 FEW024 BECMG 2114/2116 14013KT BECMG 2123/2201 VRB02KT MKJS 210515Z 2106/2206 14005KT 9999 FEW024 BECMG 2113/2115 07018KT BECMG 2200/2202 15004KT MMAA 210126Z 2101/2206 17005KT 5SM -RA BKN010CB OVC100 TX30/2118Z TN24/2112Z TEMPO 2102/2106 3SM TSRA FM210600 00000KT P6SM SCT015 BKN120 BKN300 FM211500 24006KT P6SM SCT120 SCT300 FM211900 24010KT P6SM SCT015 BKN300 TEMPO 2200/2204 5SM RA VC TS SCT015CB BKN100 BKN300 MMAN 202146Z 2022/2118 34010KT 2 1/2SM -DZ BKN015 OVC020 FM210000 34005KT 5SM DZ BKN015 OVC020 TEMPO 2110/2114 3SM DZ BR OVC010 MMAS 210522Z 2106/2206 06005KT P6SM SCT030 SCT100 FM211600 08010KT P6SM SCT020 BKN080 PROB40 2120/2124 3SM RA BKN020 FM220200 06005KT P6SM SCT020 BKN080 MMCE 210016Z 2100/2118 09017KT 4SM -RA BKN010CB OVC060 TEMPO 2101/2105 3SM TSRA FM210500 07005KT 5SM RA BKN015 OVC060 FM211600 13005KT 5SM HZ SCT020 BKN050 MMCP 202331Z 2023/2118 16015G25KT 3SM RA SCT008 BKN015CB BECMG 2100/2101 4SM -RA SCT015CB BKN050 OVC080 TEMPO 2101/2105 4SM TSRA BKN015CB FM210500 09005KT 5SM HZ SCT015 BKN060 OVC090 FM211700 33005KT P6SM SCT020 BKN080 MMCU 202118Z 2021/2118 02009KT 3SM -DZ SCT003 OVC006 FM210300 04005KT 5SM DZ BKN006 OVC015 FM210600 04005KT 5SM HZ BKN015 OVC040 TEMPO 2110/2114 3SM DZ OVC008 MMCV 210539Z 2106/2206 33008KT 5SM HZ SCT005 BKN015 TEMPO 2110/2114 3SM RA BKN008 FM211500 33012KT P6SM BKN020 BKN080 TEMPO 2122/2202 3SM RA BKN010 MMEP 210522Z 2106/2206 36005KT P6SM SCT020 BKN120 TEMPO 2110/2114 3SM RA BKN010 FM211800 36010KT P6SM SCT020 BKN080 TEMPO 2120/2124 3SM RA BKN020 FM220300 36012KT 5SM RA BKN020 OVC080 MMIA 210522Z 2106/2206 22005KT 4SM HZ BKN020 OVC080 TEMPO 2106/2110 2SM TSRA BKN015CB FM211000 36005KT 3SM HZ BKN010 OVC080 TEMPO 2110/2114 2SM RA FM211600 22010KT P6SM BKN020 OVC080 FM212200 23012KT 5SM RA BKN015CB OVC080 TEMPO 2122/2202 2SM TSRA MMIO 202327Z 2023/2118 36005KT 1/2SM -DZ FG OVC002 FM211700 33005KT 3SM DZ BR BKN010 OVC050 MMLO 210522Z 2106/2206 06008KT P6SM SCT020 BKN080 TEMPO 2110/2114 BKN020 FM211700 08010KT P6SM BKN020 OVC080 PROB40 2121/2201 3SM RA MMMA 210539Z 2106/2206 36010KT P6SM BKN015 OVC080 TEMPO 2106/2110 3SM RA BKN010 FM211000 36008KT 3SM RA BKN010 OVC020 TEMPO 2110/2114 1SM -RA BR BKN008 FM211500 36010KT 5SM -RA BKN015 OVC080 TEMPO 2120/2124 2SM RA BKN008 MMMM 210328Z 2103/2206 00000KT 6SM -RA BKN025 OVC080 TEMPO 2103/2107 4SM RA FM210800 00000KT 6SM HZ BKN020 BKN080 TEMPO 2109/2113 2SM BR -RA BKN010 FM211400 00000KT 5SM HZ BKN020 BKN080 FM211800 22010KT P6SM BKN030 MMMT 210557Z 2106/2206 36008KT 5SM RA BKN020 OVC080 TEMPO 2106/2110 2SM TSRA BKN015CB FM211000 36010KT 5SM HZ BKN020 OVC080 TEMPO 2111/2115 3SM RA FM211500 36010KT 5SM RA BKN020 OVC080 TEMPO 2120/2124 3SM TSRA BKN015CB MMMX 210842Z 2109/2212 33005KT 6SM -RA BKN020CB OVC080 TX22/2121Z TN14/2112Z FM211000 33005KT 6SM HZ SCT020 BKN080 TEMPO 2112/2115 3SM BR BKN010 FM211800 08015KT 6SM HZ BKN025 BKN100 TEMPO 2122/2202 6SM -RA BKN020 FM220600 03005KT 5SM HZ SCT020 BKN080 MMMY 210843Z 2109/2212 30010KT 4SM -RA BKN010 OVC015 TX17/2121Z TN16/2112Z TEMPO 2109/2111 3SM DZ BR OVC010 FM211200 33005KT 4SM HZ BKN010 OVC020 TEMPO 2112/2115 3SM BR DZ BKN005 OVC010 FM211800 33010KT 5SM -RA BKN015 OVC030 TEMPO 2122/2202 3SM RA BR OVC010 MMNL 210539Z 2106/2206 33005KT P6SM BKN020 OVC030 TEMPO 2111/2115 2SM -RA BR BKN010 FM211500 36010KT 5SM HZ BKN020 OVC070 TEMPO 2122/2202 3SM RA BKN010 MMPA 210539Z 2106/2206 33005KT 4SM HZ BKN010 OVC020 TEMPO 2106/2110 2SM -RA OVC010 FM211000 00000KT 2SM BR -DZ OVC010 TEMPO 2110/2114 1/2SM FG -DZ VV005 FM211400 03005KT 4SM -DZ HZ BKN010 OVC080 TEMPO 2120/2124 1SM -DZ BR OVC008 MMPB 202134Z 2022/2118 23010KT 5SM -RA OVC015CB TEMPO 2022/2102 4SM TSRA FM210200 00000KT 5SM HZ BKN020 BKN090 TEMPO 2110/2114 4SM BR HZ FM211400 00000KT 5SM HZ SCT020 BKN040 OVC090 MMPG 210539Z 2106/2206 33008KT 4SM BR HZ BKN010 OVC070 FM211500 33010KT 5SM HZ BKN015 FM212200 13010KT P6SM BKN020 BKN070 FM220200 13005KT P6SM SCT020 BKN070 MMPN 210522Z 2106/2206 20005KT 3SM BR HZ SCT005 OVC010 TEMPO 2106/2110 2SM BR BKN005 FM211000 00000KT 5SM HZ BKN010 BKN080 TEMPO 2110/2114 2SM BR BKN005 FM211500 18005KT P6SM SCT020 BKN080 FM212000 18010KT 5SM HZ BKN020 BKN080 TEMPO 2121/2201 3SM RA BKN010 MMPQ 210558Z 2106/2206 08005KT 5SM HZ SCT020 BKN080 TEMPO 2111/2115 BKN015 FM211600 08010KT P6SM SCT020 SCT080 FM212200 08010KT P6SM BKN020 BKN080 TEMPO 2122/2202 3SM TSRA BKN015CB MMQT 210522Z 2106/2206 08005KT P6SM BKN020 BKN080 TEMPO 2110/2114 3SM RA FM211500 08005KT 5SM HZ SCT020 BKN080 FM212200 08010KT P6SM BKN020 OVC080 TEMPO 2122/2202 3SM RA MMRX 210539Z 2106/2206 33008KT 5SM HZ BKN010 OVC070 TEMPO 2107/2111 2SM BR -DZ BKN006 FM211100 33005KT 3SM BR HZ BKN010 TEMPO 2111/2115 1SM -DZ BR BKN006 FM211500 36010KT 4SM -DZ BKN010 OVC080 TEMPO 2120/2124 2SM SHRA MMTC 210226Z 2102/2118 32005KT 6SM HZ BKN012 OVC020 PROB40 2104/2108 6SM -RA FM210900 04005KT 5SM HZ BKN030 BKN080 MMTG 210220Z 2102/2118 16010G20KT 6SM TSRA BKN020CB BKN080 OVC300 TEMPO 2102/2104 5SM TSRA FM210400 34005KT 6SM -RA BKN015 OVC080 FM211000 00000KT 3SM BR HZ BKN005 OVC015 TEMPO 2111/2115 1/2SM FG VV003 FM211600 32005KT 5SM HZ BKN015 BKN080 MMVR 202322Z 2023/2118 35005KT 4SM -RA SCT010 SCT025 OVC080 TX24/2118Z TN23/2112Z TEMPO 2100/2104 3SM DZ BR OVC010 FM210400 00000KT 4SM -RA BKN010 OVC060 TEMPO 2110/2114 2SM DZ BR VV005 FM211400 00000KT 3SM DZ BR OVC015 MMZO 210048Z 2101/2118 12015KT 3/4SM TS RA VV015 FM210130 12005KT 4SM -RA SCT015 BKN020CB OVC080 TEMPO 2102/2106 4SM TSRA BKN015CB FM210600 13015KT 4SM RA BKN015 OVC070 TEMPO 2110/2114 3SM TSRA OVC015CB FM211400 13010KT 5SM RA BKN015 OVC070 MPDA 210300Z 2100/2112 CNL MPMG 210300Z 2100/2112 CNL MPPA 210300Z 2100/2206 CNL= MPSM 210300Z 2100/2206 CNL MUGM 2107/2207 32008KT 9999 FEW025 FEW280 QNH2988INS BECMG 2115/2117 12015KT FEW030 FEW280 QNH2990INS BECMG 2122/2200 02010KT FEW030 SCT050 BKN280 QNH2987INS BECMG 2202/2204 35008KT SCT035 SCT250 BKN280 QNH2989INS T23/2110Z T32/2118Z FN00170 MWCR 210300Z 2100/2124 CNL MYGF 210445Z 2106/2206 VRB02KT 9999 FEW018 SCT030 BECMG 2113/2115 23005KT PROB30 TEMPO 2116/2220 31008KT 7000 SHRA FEW015CB SCT018 BKN040 MYNN 210445Z 2106/2206 VRB02KT 9999 FEW020 FM211500 03005KT 9999 VCSH FEW020 SCT030 NCRG 210515Z 2106/2206 13008KT 9999 BKN020 NFFN 210505Z 2106/2206 09006KT 9999 SCT020 BKN040 BECMG 2122/2124 25010KT PROB40 TEMPO 2200/2206 3000 TSRA BKN015 FEW018CB NFNA 210508Z 2106/2206 11010KT 9999 -SHRA BKN018 OVC045 PROB30 TEMPO 2106/2115 5000 SHRA BKN015 PROB40 TEMPO 2115/2206 3000 SHRA BKN015 NFTF 210516Z 2106/2206 11012KT 9999 FEW016 BKN030 NFTV 210519Z 2106/2206 11012KT 9999 FEW009 SCT018 PROB30 TEMPO 2012/2021 5000 SHRA SCT008 BKN015 NGFU 210530Z 2106/2206 08005KT 9999 FEW018 SCT030 NGTA 210526Z 2106/2206 07005KT 9999 FEW020 SCT300= PAFA 210528Z 2106/2212 35005KT P6SM FEW015 SCT080 SCT090 FM211200 03006KT P6SM VCFG SCT004 SCT015 BKN070 FM211900 04003KT P6SM BKN250 NIUE 210529Z 2106/2206 12015KT 9999 SCT018 SCT030 BKN100 PROB30 TEMPO 2106/2206 11020G30KT NLWF 210500Z 2106/2206 11020KT 9999 SCT020 BKN035 TEMPO 2112/2203 4000 SHRA BKN012 FEW020CB= NLWW 210500Z 2106/2206 11010KT 9999 SCT020 SCT030 TEMPO 2112/2206 2500 SHRA BKN010 FEW020CB PROB40 TEMPO 2112/2124 VRB15G25KT 1000 TSRA BKN008 SCT018CB NLWW 210500Z 2106/2206 11010KT 9999 SCT020 SCT030 TEMPO 2112/2206 2500 SHRA BKN010 FEW020CB PROB40 TEMPO 2112/2124 VRB15G25KT 1000 TSRA BKN008 SCT018CB NSFA 210524Z 2106/2206 11008KT 9999 SCT018 SCT060 PROB30 TEMPO 2106/2115 3000 TSRA BKN015 FEW017CB NSTU 210520Z 2106/2206 13015KT P6SM VCSH SCT015 BKN040 OVC100 FM212000 10015KT P6SM VCSH SCT018 BKN040 BKN100 NTAA 210757Z 2107/2212 17015G30KT 9999 SCT020 SCT250 BECMG 2118/2120 05015KT BECMG 2204/2206 VRB03KT NVSS 210153Z 2100/2124 13510KT 9999 BKN020 OVC040 INTER 2101/2106 8000 SHRA BKN018 OVC040 PROB40 INTER 2103/2106 4000 -TSRA FEW010 BKN016 FEW025CB OVC035 NVVW 210153Z 2100/2124 09015KT 9999 FEW015 BKN020 OVC090 INTER 2101/2106 7000 -RA FEW008 BKN018 OVC035 NWWD 210500Z 2106/2206 08010KT 9999 SCT040 TEMPO 2106/2108 4000 SHRA BKN014 FEW030TCU NWWE 210829Z 2108/2206 CNL NWWK 210500Z 2106/2206 20010KT 9999 FEW030 SCT040 BECMG 2106/2109 VRB02KT NWWV 210830Z 2108/2206 CNL NWWW 210500Z 2106/2206 VRB02KT 9999 FEW045 TEMPO 2106/2108 4000 SHRA FEW030TCU NZFX 2103/2203 09015KT 9999 FEW030 SCT070 BKN200 QNH2910INS GRID26015KT BECMG 2115/2117 08010G25KT 9999 SCT030 BKN070 OVC200 QNH2908INS GRID25010G25KT NZQN 210822Z 2108/2111 23012KT 9999 FEW060 BECMG 2110/2111 02005KT OAHR 202330Z 2102/2124 VRB03KT CAVOK BECMG 2107/2109 25012KT BECMG 2113/2115 VRB03KT OAIX 210700Z 2107/2213 VRB06KT 9999 FEW120 QNH3016INS BECMG 2114/2115 10009KT 9999 SCT120 QNH3014INS BECMG 2121/2122 VRB06KT 9999 SKC QNH3018INS BECMG 2209/2210 35010G15KT 9999 SKC QNH2999INS TX22/2108Z TN06/2123Z OAJL 210800Z 2108/2214 11006KT 8000 HZ FEW150 QNH3004INS BECMG 2112/2113 VRB06KT 6000 HZ SKC QNH3006INS BECMG 2114/2115 VRB06KT 9000 HZ SKC QNH3008INS BECMG 2212/2213 VRB06KT 6000 HZ SKC QNH3003INS TX28/2110Z TN12/2201Z OAKN 210700Z 2107/2213 07006KT 9999 FEW250 QNH3015INS BECMG 2109/2110 26010G15KT 9999 FEW140 SCT190 QNH3017INS BECMG 2113/2114 26006KT 9999 SKC QNH3018INS BECMG 2209/2210 28010G15KT 9999 SKC QNH3017INS TX25/2110Z TN05/2202Z OBBI 210500Z 2106/2212 11008KT 8000 FEW030 PROB30 TEMPO 2107/2115 34017G27KT 5000 TSRA SCT040CB BKN100 OIAA 210540Z 2106/2212 18004MPS 7000 NSC TEMPO 2111/2116 16009MPS 3000 TSRA SA SCT030CB SCT035 OVC090 BECMG 2200/2202 FEW035CB FEW040 SCT100 TEMPO 2202/2212 08009MPS 3000 TSRA SCT030CB SCT035 BKN090 OIAW 210540Z 2106/2212 18004MPS 7000 NSC TEMPO 2111/2116 16009MPS 5000 TSRA SA SCT030CB SCT035 BKN090 BECMG 2200/2202 FEW035CB FEW040 SCT100 TEMPO 2204/2212 16009MPS TSRA SCT030CB SCT035 BKN090 OIBK 210540Z 2106/2212 06003MPS 7000 NSC OICI 210540Z 2106/2212 12004MPS 8000 FEW040 SCT100 TEMPO 2111/2118 12009MPS 5000 TSRA SA SCT035CB SCT040 OVC100 TEMPO 2123/2208 12009MPS TSRA SCT035CB SCT040 OVC100 OIFM 210540Z 2106/2212 30004MPS 6000 NSC TEMPO 2106/2109 5000 HZ BECMG 2110/2112 FEW035CB SCT040 BKN100 PROB40 TEMPO 2113/2117 30009MPS 4000 TSRA SCT030CB SCT035 BKN090 BECMG 2117/2119 NSC BECMG 2123/2201 33003MPS 4000 BR HZ PROBE40 2201/2204 2000 BR BECMG 2206/2208 7000 OIIE 210540Z 2106/2212 31004MPS 8000 NSC OIII 210540Z 2106/2212 15004MPS 8000 SCT035 BKN090 TEMPO 2109/2113 FEW035TCU SCT040 TEMPO 2205/2208 5000 HZ TEMPO 2210/2212 22006MPS FEW035CB SCT040 BKN090 OIKB 210540Z 2106/2212 04003MPS 8000 NSC TEMPO 2110/2115 21006MPS OIKK 210540Z 2106/2212 08004MPS 8000 FEW040 TEMPO 2110/2115 FEW030CB SCT035 SCT090 TEMPO 2209/2212 FEW030CB SCT035 SCT090 OIMM 210540Z 2106/2212 32004MPS CAVOK OISL 210540Z 2106/2212 20004MPS 8000 NSC TEMPO 2111/2116 14007MPS FEW030CB SCT035 SCT100 OISS 210540Z 2106/2212 28004MPS 8000 NSC TEMPO 2110/2115 21006MPS FEW035TCU SCT040 TEMPO 2210/2212 21006MPS FEW035CB SCT040 BKN100 OITR 210540Z 2106/2212 22004MPS 7000 FEW035 BKN170 BECMG 2108/2110 FEW035CB SCT040 BKN100 BECMG 2111/2019 07003G08MPS 5000 TSRA SCT035CB BKN040 OVC100 TEMPO 2121/2205 3000 TSRA SCT035CB BKN040 OVC100 OITT 210540Z 2106/2212 08004MPS 8000 FEW035 SCT190 BECMG 2108/2110 FEW035CB SCT040 BKN100 TEMPO 2111/2118 5000 TSRA SCT035CB BKN040 OVC100 TEMPO 2206/2212 5000 TSRA SCT035CB BKN040 OVC100 OIZC 210540Z 2106/2212 11004MPS 8000 NSC PROBE40 TRMPO 2112/2116 23006MPS OIZH 210540Z 2106/2212 18004MPS CAVOK TEMPO 2209/2212 22007MPS OJAI 210546Z 2106/2212 29006KT 4000 HZ FEW035 TEMPO 2110/2118 4000 DU OJAM 210546Z 2106/2212 25007KT 5000 HZ FEW030 TEMPO 2110/2118 4000 DU OJAQ 210546Z 2106/2212 01010KT 5000 HZ NSC TEMPO 2110/2118 5000 HZ OKBK 210445Z 2106/2212 16010G25KT 7000 FEW030 SCT080 BKN100 TEMPO 2106/2121 3000 -TSRA/BLDU FEW025CB PROB30 TEMPO 2106/2113 0800 OMAA 210500Z 2106/2212 19008KT 8000 NSC BECMG 2109/2111 33012KT BECMG 2117/2119 08005KT BECMG 2202/2204 17010KT BECMG 2209/2211 33012KT OMAD 210500Z 2106/2212 19008KT 8000 NSC BECMG 2109/2111 33012KT BECMG 2117/2119 08005KT BECMG 2202/2204 16010KT BECMG 2209/2211 33012KT OMDB 210459Z 2106/2212 19008KT CAVOK BECMG 2108/2110 32013KT BECMG 2115/2117 09005KT BECMG 2204/2206 20010KT BECMG 2208/2210 31012KT OMRK 210459Z 2106/2212 20007KT CAVOK BECMG 2108/2110 33013KT PROB30 TEMPO 2110/2115 VRB20G30KT 1500 BLDU FEW040TCU BECMG 2114/2116 VRB02KT BECMG 2208/2210 33013KT OMSJ 210459Z 2106/2212 19008KT CAVOK BECMG 2109/2111 32013KT BECMG 2115/2117 11005KT BECMG 2204/2206 20010KT BECMG 2208/2210 31013KT OODQ 210500Z 2106/2206 09012KT 8000 NSC PROB30 TEMPO 2122/2202 4000 BR BKN010 OOMS 210500Z 2106/2212 06012KT 8000 NSC PROB30 TEMPO 2111/2116 4000 -TSRA FEW030CB BKN035 BECMG 2117/2119 21006KT BECMG 2206/2208 02010KT OOSA 210500Z 2106/2212 19010KT 8000 NSC BECMG 2114/2116 VRB03KT BECMG 2118/2120 35005KT BECMG 2206/2208 16010KT OOSH 210500Z 2106/2212 07010KT 8000 NSC PROB30 TEMPO 2109/2115 4000 -SHRA FEW025TCU BKN035 BECMG 2116/2118 VRB02KT BECMG 2206/2208 07012KT ORBD 210230Z 2103/2209 09012KT 6000 BLDU VCSH SCT080 BKN120 OVC150 QNH2983INS TEMPO 2103/2116 VRB25G35KT 2400 -TSRA BLDU SCT000 BKN055CB OVC100 DU SCT000 BECMG 2115/2116 15021G33KT 5000 BLDU VCTS SCT000 BKN075CB OVC100 QNH2981INS WND 100V210 DU SCT000 LLWS TEMPO 2116/2206 VRB32G46KT 1600 TSRA BLDU BKN000 BKN050CB OVC100 DU BKN000 BECMG 2205/2206 14013G23KT 4000 BLDU VCSH SCT000 BKN120 BKN240 QNH2995INS WND 100V170 TX28/2111Z TN19/2104Z ORBI 210200Z 2100/2124 12010KT 6000 SCT030 SCT060 TEMPO 2102/2118 TSSHRA FEW025CB BKN030 OSLK 2106/2206 12010KT 7000 FEW026 TCU SCT030 BKN100 PROB30 TEMPO 2107/2116 24015KT 4000 TSRA OTBD 210514Z 2106/2212 11007KT 9000 FEW030 SCT080 TEMPO 2106/2116 VRB24G35KT 3000 TSRA FEW030CB BKN090 BECMG 2117/2119 05006KT OTBH 210700Z 2107/2213 16012KT 6000 HZ VCTS FEW030 SCT070CB QNH2993INS TEMPO 2109/2114 31025G35KT 0800 -TSRA DS BKN060CB BECMG 2116/2117 09009KT 8000 HZ SCT100 QNH2943INS BECMG 2205/2206 16012KT 6000 HZ VCTS FEW030 SCT100CB QNH2995INS TEMPO 2209/2213 VRB25G35KT 1600 -TSRA BLDU BKN100CB TX34/2109Z TN24/2122Z OTHH 210513Z 2106/2212 12008KT 8000 FEW030 SCT080 TEMPO 2106/2116 VRB25G40KT 2000 TSRA FEW030CB BKN090 BECMG 2117/2119 06007KT PAAQ 210528Z 2106/2206 07011KT P6SM SCT060 OVC100 FM210900 05018G30KT P6SM VCSH SCT050 OVC080 FM220000 13012G20KT P6SM VCSH SCT040 OVC060 PABE 210536Z 2106/2206 02011KT P6SM OVC150 FM211200 36015G25KT P6SM BKN080 FM220300 04015G25KT P6SM VCSH OVC050 PABR 210532Z 2106/2206 12017KT 3SM BR OVC005 FM211800 09010KT P6SM OVC009 NOT SKED PABT 210528Z 2106/2206 00000KT P6SM OVC050 FM212200 02008G14KT P6SM OVC050 FM220300 04003KT P6SM -SN OVC025 PACD 210536Z 2106/2206 33015KT P6SM -SHRA SCT020 OVC035 FM211200 31013KT P6SM -RA SCT010 OVC020 PACV 210528Z 2106/2206 09015G25KT 5SM -RA OVC025 TEMPO 2106/2110 6SM -RA OVC035 FM211200 11011KT 5SM -SHRA BR OVC020 FM220000 09005KT P6SM -SHRA SCT025 OVC040 PADL 210536Z 2106/2206 36020G30KT P6SM VCSH SCT025 BKN050 FM211400 35020G30KT P6SM -SHRA SCT015 OVC025 FM211800 02015G25KT 4SM -RA BR SCT007 OVC015 FM212200 08012G20KT 3SM -RA BR OVC007 PADQ 210702Z 2107/2206 08025G40KT 2SM -SHRA BR BKN005 OVC015 TEMPO 2107/2111 5SM -RA BR SCT008 BKN025 FM211100 10020G28KT 5SM -SHRA BR OVC020 FM211800 13015G23KT 6SM -SHRA BR SCT015 OVC025 FM220000 12011KT P6SM -SHRA SCT025 BKN040 PADU 210536Z 2106/2206 35006KT P6SM VCSH SCT025 OVC050 FM211400 32012G20KT P6SM VCSH SCT025 BKN035 FM220200 31015G25KT P6SM VCSH SCT025 OVC050 PAED 210745Z 2107/2209 01009KT 9999 SCT050 BKN100 QNH2930INS TEMPO 2107/2110 01025G35KT 530009 BECMG 2113/2115 09012G18KT 9999 VCSH SCT040 BKN100 QNH2929INS BECMG 2123/2124 06009KT 9999 NSW BKN030 BKN070 620307 QNH2940INS TX10/2200Z TN04/2113Z PAEI 210748Z 2107/2210 VRB06KT 8000 BR SCT015 BKN060 BKN200 620604 QNH2940INS TEMPO 2107/2111 0800 FZFG BECMG 2120/2121 13012G18KT 9999 NSW SCT080 SCT120 QNH2938INS TX05/2200Z TNM05/2109Z PAEN 210528Z 2106/2206 03020G28KT P6SM VCSH OVC050 FM211800 07011KT P6SM -SHRA SCT025 OVC040 PAFA 210528Z 2106/2212 35005KT P6SM FEW015 SCT080 SCT090 FM211200 03006KT P6SM VCFG SCT004 SCT015 BKN070 FM211900 04003KT P6SM BKN250 PAGA 210528Z 2106/2206 03004KT P6SM SCT070 FM211900 03007G14KT P6SM SCT025 OVC050 PAGK 210528Z 2106/2206 16011KT P6SM VCSH SCT040 OVC070 PAGS 210529Z 2106/2206 13008KT P6SM -RA SCT025 OVC040 TEMPO 2106/2110 BKN025 FM211000 14012KT 5SM -RA BR BKN025 OVC040 FM212100 14012KT P6SM SCT035 OVC100 LTD TO CLD VIS AND WIND PAGY 210529Z 2106/2206 21012G22KT P6SM VCSH OVC050 FM211200 21011KT P6SM -RA SCT025 OVC050 LTD TO CLD VIS AND WIND PAHN 210801Z 2108/2206 08009KT P6SM VCSH BKN009 OVC070 FM211200 09012KT 5SM -RA OVC015 FM211500 11010G17KT 6SM -RA BR SCT015 OVC040 LTD TO CLD VIS AND WIND PAHO 210528Z 2106/2206 07018G25KT P6SM -RA OVC035 TEMPO 2106/2110 5SM -RA BR BKN025 FM211600 12013G22KT P6SM -SHRA SCT025 OVC040 FM220000 13008KT P6SM -SHRA SCT030 OVC050 PAIL 210536Z 2106/2206 07012G20KT P6SM -SHRA SCT025 OVC050 FM211400 09025G35KT P6SM -SHRA SCT025 OVC035 FM220200 10015G25KT P6SM VCSH OVC050 PAJN 210529Z 2106/2206 10012KT P6SM -RA SCT030 OVC050 FM210900 11013KT P6SM -RA SCT020 BKN040 OVC060 FM211500 10015G22KT P6SM SCT040 OVC100 FM220000 09008KT P6SM OVC100 PAKN 210536Z 2106/2206 03020G30KT P6SM -SHRA BKN040 OVC060 FM212200 14020G30KT P6SM -RA SCT015 OVC025 PAKT 210800Z 2108/2206 12004KT 3SM BR BCFG FEW002 BKN009 TEMPO 2108/2112 2SM BR OVC006 FM211800 12007KT P6SM BKN100 FM220400 15009KT P6SM VCSH BKN050 LTD TO CLD VIS AND WIND 2106/2115 PAKW 210530Z 2106/2206 14006KT P6SM VCSH BKN040 BKN050 TEMPO 2106/2109 5SM -SHRA BR SCT025 BKN030 OVC040 FM210900 06003KT 6SM BR BKN070 FM211200 06003KT 4SM BR BKN100 FM211700 05005KT P6SM SCT050 BKN100 FM220200 10005KT P6SM VCSH SCT025 BKN040 OVC060 LTD TO CLD VIS AND WIND PAMC 210528Z 2106/2206 00000KT P6SM OVC010 FM212100 01003KT P6SM -SHRA OVC015 PANC 210528Z 2106/2212 36011KT P6SM VCSH SCT040 OVC070 WS020/13040KT FM211800 14012G22KT P6SM VCSH SCT040 OVC060 FM220600 15005KT P6SM -SHRA SCT040 OVC060 PAOM 210528Z 2106/2206 34008KT P6SM SKC PAOR 210528Z 2106/2206 00000KT P6SM FEW150 SCT180 FM211400 00000KT P6SM VCFG SCT004 FM212100 00000KT P6SM OVC250 PAOT 210528Z 2106/2206 11006KT P6SM SKC PAPG 210530Z 2106/2206 VRB02KT P6SM VCSH SCT008 BKN020 BKN040 FM211200 14002KT P6SM SCT010 BKN025 TEMPO 2112/2116 1SM BR BCFG BKN002 FM212000 06004KT P6SM BKN100 LTD TO CLD VIS AND WIND 2106/2115 PAQT 210528Z 2106/2206 08008KT P6SM OVC006 FM210800 08010KT 6SM -SN BR BKN003 OVC007 FM211500 08012KT 6SM -SN BR OVC007 FM212200 07012KT 4SM -SN BR OVC015 PASC 210528Z 2106/2206 07013KT 1 1/2SM -SN BR OVC005 FM211000 08011KT 6SM -SN BR OVC003 FM212000 08014KT 1 1/2SM BR OVC007 PASD 210536Z 2106/2206 32015G22KT P6SM -RA SCT025 OVC035 TEMPO 2106/2110 OVC025 FM211200 32012G20KT P6SM -SHRA SCT025 OVC035 FM211600 31011KT P6SM VCSH SCT025 OVC050 LTD TO CLD VIS AND WIND PASI 210530Z 2106/2206 11012KT P6SM -RA BKN050 OVC070 WS020/17025KT FM210900 13013G23KT P6SM -RA SCT025 BKN050 OVC100 WS020/16035KT FM211600 13017G23KT P6SM VCSH SCT025 BKN050 OVC100 PASN 210536Z 2106/2206 05011KT P6SM VCSH SCT025 BKN035 TEMPO 2106/2110 BKN025 FM211000 02013KT P6SM OVC025 FM211600 35015G25KT P6SM -SHRA SCT025 BKN035 PASY 210600Z 2106/2212 34012KT 9999 SCT025 BKN050 600503 QNH2985INS BECMG 2118/2120 34009KT 9999 BKN025 BKN050 600305 QNH2990INS TX08/2123Z TN05/2114Z PATA 210528Z 2106/2206 09003KT P6SM VCSH FEW022 BKN028 OVC090 PATK 210528Z 2106/2206 02008KT P6SM SCT070 OVC100 FM212200 02006KT P6SM VCSH SCT040 OVC060 NOT SKED PAUN 210528Z 2106/2206 06007KT P6SM SKC FM212200 06015G21KT P6SM SKC PAVD 210528Z 2106/2206 VRB03KT P6SM -RA SCT040 OVC060 FM211000 VRB03KT 5SM -RA BR OVC030 FM211800 VRB03KT P6SM -SHRA SCT030 OVC045 LTD TO CLD VIS AND WIND PAWG 210530Z 2106/2206 10004KT P6SM -SHRA BKN040 BKN060 OVC080 FM210900 11007KT 6SM BR FEW007 BKN070 FM211400 10005KT 2SM BR BCFG SCT003 BKN070 FM211900 11006KT P6SM BKN100 LTD TO CLD VIS AND WIND 2106/2115 PAYA 210529Z 2106/2206 09010KT P6SM -RA SCT012 BKN025 OVC040 FM210800 11015G25KT 4SM RA BKN012 OVC020 WS020/14040KT FM211200 12025G35KT 2SM RA BR OVC007 WS020/13045KT FM220300 10011KT 5SM -RA BR FEW007 SCT015 OVC025 LTD TO CLD VIS AND WIND PGRO 210520Z 2106/2206 VRB05KT P6SM VCSH FEW014 FEW050 TEMPO 2106/2109 -SHRA BKN015 PGSN 210520Z 2106/2206 07006KT P6SM VCSH FEW018 FEW050 PGUA 210200Z 2102/2208 02009KT 9999 SCT015 QNH2970INS TEMPO 2104/2110 8000 -SHRA BKN015 TEMPO 2204/2208 8000 -SHRA BKN015 TX31/2104Z TN25/2116Z PGUM 210520Z 2106/2212 VRB05KT P6SM VCSH FEW018 SCT050 TEMPO 2106/2109 3SM SHRA FEW015 BKN025 OVC050 PGWT 210520Z 2106/2206 VRB05KT P6SM VCSH FEW015 FEW050 PHJH 210304Z 2103/2124 36010KT P6SM VCSH SCT025 SCT050 FM212100 03012G18KT P6SM VCSH SCT020 BKN050 NOT SKED AFT 210400 PHJR 210520Z 2106/2206 VRB05KT P6SM SKC FM212100 09007G15KT P6SM SCT035 FM220500 05004KT P6SM SKC PHKO 210520Z 2106/2206 VRB06KT P6SM VCSH SCT025 BKN050 FM210700 10006KT P6SM FEW045 FM212000 25008KT P6SM FEW025 SCT050 FM220400 VRB06KT P6SM VCSH SCT025 BKN050 PHLI 210520Z 2106/2206 04012KT P6SM VCSH SCT020 BKN050= PHNL 210520Z 2106/2212 04008KT P6SM FEW025 SCT050 FM212100 06012G17KT P6SM FEW025 SCT050 FM220600 05008KT P6SM FEW025 SCT050 PHMK 210620Z 2106/2206 03009KT P6SM VCSH SCT015 SCT025 TEMPO 2106/2108 5SM -SHRA BKN020 FM212100 03014G20KT P6SM FEW020 SCT050 FM220500 04007KT P6SM FEW045 PHNG 2103/2203 03008KT 9999 SCT025 SCT050 QNH2989INS TEMPO 2103/2109 04010KT BKN025 BKN050 T24/2113Z T29/2123Z PHNL 210520Z 2106/2212 04008KT P6SM FEW025 SCT050 FM212100 06012G17KT P6SM FEW025 SCT050 FM220600 05008KT P6SM FEW025 SCT050 PHNY 210520Z 2106/2206 04013KT P6SM FEW030 FM210900 04008KT P6SM SKC FM212100 04010KT P6SM SCT030 FM220500 04008KT P6SM FEW030 PHOG 210520Z 2106/2206 04007KT P6SM VCSH SCT025 SCT045 FM212100 04013G19KT P6SM SCT030 SCT050 FM220500 05009KT P6SM SCT025 SCT045 LTD TO VIS AND WIND 2109/2116 PHTO 210520Z 2106/2206 25005KT P6SM VCSH SCT020 BKN050 FM211900 01008KT P6SM VCSH SCT025 BKN050 FM220500 VRB05KT P6SM VCSH BKN025 BKN050 PKMJ 210520Z 2106/2206 12007KT P6SM FEW014 SCT050 SCT120 FM210800 09008KT P6SM VCSH SCT014 SCT050 BKN120 PKWA 210520Z 2106/2206 12010KT P6SM VCSH FEW020 FEW050 OVC130 PLCH 210526Z 2106/2206 12008KT 9999 FEW020 PMDY 210520Z 2106/2206 VRB05KT P6SM SCT025 PTKK 210520Z 2106/2206 VRB05KT P6SM FEW014 SCT030 PTRO 210520Z 2106/2206 34003KT P6SM VCSH SCT016 SCT120 TEMPO 2106/2110 -SHRA BKN016 PTSA 210520Z 2106/2206 19009KT P6SM VCSH SCT014 SCT040 BKN130 TEMPO 2106/2110 5SM -SHRA BKN017 BKN120 PTYA 210520Z 2106/2206 VRB05KT P6SM VCSH FEW016 FEW130 PWAK 210600Z 2106/2212 09015G20KT 9999 SCT030 QNH2980INS TEMPO 2120/2202 9000 -SHRA TX31/2200Z TN26/2116Z RCFN 210500Z 2106/2206 02005KT 9999 FEW020 BKN040 TEMPO 2106/2109 07008KT BECMG 2201/2203 06005KT RCKH 210500Z 2106/2212 26010KT 9999 FEW015 BECMG 2109/2111 34005KT TEMPO 2120/2202 4500 BR FEW012 BKN026 BECMG 2201/2203 28005KT TEMPO 2203/2209 27011KT RCMQ 210500Z 2106/2206 01005KT 9999 FEW012 TX29/2204Z TN18/2120Z BECMG 2110/2113 01004KT FEW012 SCT060 BECMG 2116/2119 7000 FEW012 BECMG 2120/2123 5000 BR BECMG 2201/2204 01005KT 9999 FEW012 SCT060 RCNN 210500Z 2106/2206 27008KT 9999 FEW014 TX20/2106Z TN20/2120Z BECMG 2109/2112 34004KT TEMPO 2121/2202 8000 FEW012 BKN100 BECMG 2102/2105 27008KT 9999 FEW012 SCT060 RCSS 210500Z 2106/2206 09008KT 9999 FEW020 SCT050 RCTP 210500Z 2106/2212 06010KT 9999 FEW025 TEMPO 2106/2111 03017KT TEMPO 2120/2202 10005KT TEMPO 2202/2207 35008KT RJAA 210505Z 2106/2212 02008KT 9999 FEW030 BECMG 2203/2206 08008KT BECMG 2209/2212 03007KT RJAH 210505Z 2106/2212 08010KT 9999 FEW030 BECMG 2109/2111 36006KT RJBB 210505Z 2106/2212 02008KT 9999 FEW030 RJCB 210506Z 2106/2212 34005KT 9999 FEW008 SCT020 TEMPO 2113/2118 FEW005 BKN008 TEMPO 2118/2200 1500 BR FEW002 BKN005 BECMG 2200/2203 15005KT RJCC 210505Z 2106/2212 36010KT 9999 FEW020 SCT040 BECMG 2200/2203 17007KT RJCH 210512Z 2106/2212 28012KT 9999 FEW020 BECMG 2109/2111 36005KT BECMG 2200/2203 17005KT BECMG 2206/2209 21005KT RJCK 210510Z 2106/2212 18010KT 9999 FEW015 BECMG 2107/2109 02006KT BECMG 2200/2203 14005KT BECMG 2209/2212 01004KT RJCM 210514Z 2106/2212 01005KT 9999 FEW010 BKN015 BECMG 2209/2212 17004KT RJEC 210508Z 2106/2212 31006KT 9999 FEW015 SCT030 TEMPO 2116/2200 0700 FG VV001 BECMG 2209/2212 18007KT RJFF 210507Z 2106/2212 03006KT 9999 FEW040 BECMG 2110/2112 15006KT BECMG 2203/2206 33009KT BECMG 2209/2212 14006KT RJFK 210510Z 2106/2212 19005KT 9999 FEW030 BECMG 2112/2114 04005KT BECMG 2200/2203 13008KT BECMG 2206/2209 05004KT RJFM 210507Z 2106/2212 04006KT 9999 FEW030 BECMG 2109/2111 28007KT BECMG 2200/2203 03007KT BECMG 2206/2209 28007KT RJFO 210505Z 2106/2212 03006KT 9999 FEW030 BECMG 2112/2114 25005KT RJFR 210506Z 2106/2212 13005KT 9999 FEW030 BECMG 2107/2109 04005KT BECMG 2114/2116 13008KT RJFS 210508Z 2106/2212 03008KT 9999 FEW040 RJFT 210506Z 2106/2212 25008KT 9999 FEW040 BECMG 2107/2109 08006KT BECMG 2121/2200 30005KT BECMG 2206/2209 06005KT RJFU 210510Z 2106/2212 25006KT 9999 FEW035 BECMG 2109/2111 13005KT BECMG 2203/2206 30005KT BECMG 2209/2212 13005KT RJGG 210505Z 2106/2212 25004KT CAVOK BECMG 2108/2110 32010KT BECMG 2200/2203 18008KT RJNK 210505Z 2106/2212 36012KT 9999 FEW030 BECMG 2108/2110 14004KT BECMG 2121/2200 30006KT BECMG 2206/2209 04004KT RJNS 210505Z 2106/2212 16006KT 9999 FEW030 BECMG 2106/2108 27006KT BECMG 2200/2203 12008KT BECMG 2209/2212 36004KT RJNT 210505Z 2106/2212 02006KT 9999 FEW040 BECMG 2108/2110 22004KT BECMG 2200/2203 36008KT BECMG 2209/2212 20006KT RJOA 210505Z 2106/2212 04005KT 9999 FEW030 BECMG 2203/2206 20004KT BECMG 2209/2212 04005KT RJOB 210507Z 2106/2212 02005KT 9999 FEW030 RJOC 210505Z 2106/2212 06008KT 9999 FEW035 BECMG 2111/2113 17005KT BECMG 2200/2203 02007KT RJOH 210506Z 2106/2212 05008KT 9999 FEW040 BECMG 2112/2114 17006KT BECMG 2200/2203 05007KT RJOI 2021/2121 33006KT 9999 FEW030 QNH3018INS BECMG 2101/2103 VRB04KT 9999 FEW030 QNH3013INS T11/2021Z T21/2106Z RJOK 210507Z 2106/2212 18006KT 9999 FEW030 BECMG 2108/2110 35007KT BECMG 2200/2203 18006KT BECMG 2209/2212 36006KT RJOM 210508Z 2106/2212 36013KT 9999 FEW035 BECMG 2108/2110 12007KT BECMG 2200/2203 36008KT BECMG 2209/2212 12004KT RJOO 210506Z 2106/2212 32005KT 9999 FEW035 BECMG 2121/2200 22005KT BECMG 2206/2209 01005KT RJOT 210507Z 2106/2212 15005KT 9999 FEW030 RJSA 210505Z 2106/2212 26008KT 9999 FEW030 RJSF 210505Z 2106/2212 36008KT 9999 FEW030 TEMPO 2118/2200 3000 BR FEW003 BKN005 BECMG 2200/2203 20005KT RJSK 210505Z 2106/2212 30008KT 9999 FEW030 BECMG 2110/2112 14004KT TEMPO 2118/2200 1500 BR FEW001 BKN003 BECMG 2200/2203 30005KT BECMG 2209/2212 14004KT RJSN 210506Z 2106/2212 34006KT 9999 FEW030 BECMG 2109/2111 16004KT BECMG 2200/2203 36006KT BECMG 2209/2212 16004KT RJSS 210505Z 2106/2212 03007KT 9999 FEW030 BECMG 2107/2109 34004KT BECMG 2200/2203 12007KT BECMG 2209/2212 34004KT RJTT 210505Z 2106/2212 05010KT 9999 FEW030 BECMG 2106/2108 08014KT BECMG 2112/2114 02008KT BECMG 2203/2206 07008KT BECMG 2206/2209 13014KT RJTY 202100Z 2021/2203 01009KT 9999 SKC QNH3012INS BECMG 2111/2112 32009KT 9999 FEW030 QNH3019INS TX21/2104Z TN11/2021Z RKJK 210700Z 2107/2213 VRB06KT 9999 SKC QNH3016INS BECMG 2121/2122 11006KT 4800 BR SCT150 QNH3017INS BECMG 2201/2202 17006KT 9999 NSW BKN100 QNH3009INS BECMG 2211/2212 15006KT 9999 BKN020 QNH3008INS TX20/2206Z TN05/2118Z RKPC 210500Z 2106/2212 06010KT CAVOK TN13/2120Z TX19/2205Z BECMG 2110/2111 14006KT BECMG 2201/2202 07010KT 9999 SCT030 BKN150 BECMG 2210/2211 17005KT BKN030 OVC120 RKPK 210500Z 2106/2212 18006KT CAVOK TN10/2121Z TX22/2206Z BECMG 2109/2110 33006KT RKSG 210400Z 2104/2210 VRB06KT 6000 HZ SKC QNH3016INS BECMG 2121/2122 10006KT 4800 BR SCT150 QNH3017INS BECMG 2201/2202 17006KT 9999 NSW BKN100 QNH3012INS TX20/2106Z TN05/2118Z RKSI 210500Z 2106/2212 30006KT CAVOK TN09/2121Z TX17/2206Z BECMG 2111/2112 07006KT BECMG 2123/2124 25006KT TEMPO 2201/2205 17006KT RKSM 210500Z 2106/2212 03006KT 9999 FEW200 TN07/2121Z TX20/2206Z RKSO 210300Z 2103/2209 VRB06KT 9999 SKC QNH3016INS BECMG 2121/2122 10006KT 4800 BR SCT150 QNH3017INS BECMG 2201/2202 17006KT 9999 NSW BKN100 QNH3012INS TX20/2106Z TN05/2118Z RKSS 210500Z 2106/2212 30006KT CAVOK TN06/2121Z TX19/2205Z BECMG 2114/2115 16005KT TEMPO 2119/2122 4200 BR NSC BECMG 2202/2203 26006KT BECMG 2211/2212 16005KT RKTN 210500Z 2106/2212 13006KT 9999 SCT020 TN05/2121Z TX20/2207Z RKTU 210500Z 2106/2212 30006KT 9999 SCT030 SCT200 TN03/2121Z TX19/2206Z ROAH 210506Z 2106/2212 06008KT 9999 FEW025 BECMG 2121/2200 10010KT BECMG 2206/2209 06009KT RODN 210800Z 2108/2214 04012KT 9999 SCT030 QNH3000INS TEMPO 2109/2115 8000 -SHRA BKN025 TX28/2108Z TN16/2121Z ROIG 210511Z 2106/2212 06008KT 9999 FEW025 BKN045 ROTM 2021/2121 03008KT FEW030 SCT080 QNH3000INS T19/2021Z T26/2104Z RPLB 210500Z 2106/2206 07008KT 9999 FEW020 SCT080 BKN300 TX32/2106Z TN24/2122Z TEMPO 2106/2112 33012KT 6000 TS -SHRA FEW018CB SCT020 BKN080 RPLI 210500Z 2106/2206 07008KT 9999 FEW018 TEMPO 2106/2112 04012G22KT FEW017CB FEW018 RPLL 210500Z 2106/2212 07006KT 9999 FEW023 BKN100 TX31/2106Z TN25/2122Z TEMPO 2106/2112 04010KT 7000 -TSRA SCT022CB OVC080 TEMPO 2112/2118 10005KT 8000 -SHRA SCT022 BKN100 RPMD 210500Z 2106/2206 18006KT 9999 FEW016 BKN290 TEMPO 2106/2112 27008KT 9000 -SHRA SCT015CB BKN080 BKN290 RPMZ 210500Z 2106/2206 29005KT 9999 FEW018 BKN300 TEMPO 2106/2112 25008KT 8000 -SHRA SCT016 BKN090 RPVK 210500Z 2106/2206 02006KT 9999 FEW016 SCT070 BKN240 TEMPO 2106/2112 35012KT 9000 -SHRA FEW015CB BKN070 RPVM 210500Z 2106/2212 06006KT 9999 FEW020 SCT300 TEMPO 2106/2112 35010KT FEW018CB BKN100 TEMPO 2112/2118 VRB03KT 9000 TS -SHRA FEW018CB BKN090 SAAR 210500Z 2106/2206 09010KT 9999 SCT030 TX24/2118Z TN13/2109Z BECMG 2116/2118 VRB03KT 5000 -TSRA SCT010 FEW040CB OVC050 BECMG 2123/2201 12005KT 9999 NSW SCT020 SABE 210500Z 2106/2206 07010KT CAVOK TX22/2118Z TN15/2109Z BECMG 2118/2121 09010KT 9999 SCT020 BKN035 BECMG 2200/2202 VRB03KT SCT010 PROB30 TEMPO 2200/2202 6000 BKN008 SACO 210500Z 2106/2206 03005KT 9999 SCT015 BKN020 TX25/2119Z TN12/2110Z BECMG 2109/2111 05010KT 8000 SCT020 BKN025 SADF 210500Z 2106/2206 05005KT CAVOK TX24/2118Z TN15/2109Z BECMG 2110/2112 07010KT BECMG 2118/2121 VRB03KT 9999 SCT010 BKN020 BECMG 2200/2202 25005KT CAVOK SAEZ 210500Z 2106/2206 09005KT 9999 SCT030 BKN100 TX23/2118Z TN13/2109Z TEMPO 2108/2111 5000 BR SCT020 BKN035 BECMG 2112/2115 03010KT 9999 SCT030 SCT100 BECMG 2118/2120 VRB03KT SAME 210500Z 2106/2206 05005KT 9999 SCT040 TX20/2120Z TN10/2110Z SANR 210500Z 2106/2206 09010KT 9999 SCT020 TX25/2118Z TN19/2110Z TEMPO 2109/2111 18010KT 3000 DZ SCT010 OVC015 SANT 210500Z 2106/2206 07005KT 8000 SCT015 BKN020 TX28/2118Z TN16/2110Z TEMPO 2107/2111 21010KT 4000 DZ BR SCT008 BKN010 BECMG 2113/2115 VRB03KT 3000 TSRA BKN010 FEW030CB OVC035 SARE 210500Z 2106/2206 11010KT CAVOK TX34/2118Z TN16/2109Z PROB30 2107/2111 5000 BR SARF 210500Z 2106/2206 14010KT CAVOK TX34/2118Z TN17/2109Z SARI 210500Z 2106/2206 05005KT CAVOK TX33/2118Z TN16/2109Z PROB40 2107/2111 5000 BR SARP 210500Z 2106/2206 11010KT CAVOK TX33/2118Z TN16/2109Z PROB30 2107/2111 5000 BR SASA 210500Z 2106/2206 VRB03KT 9999 SCT020 BKN020 TX26/2118Z TN15/2110Z BECMG 2112/2114 VRB03KT 3000 RADZ SCT008 OVC010 SASJ 210500Z 2106/2206 VRB03KT 3000 RADZ SCT008 OVC020 TX26/2118Z TN16/2110Z BECMG 2116/2118 02010KT 2000 TSRA BKN010 FEW030CB OVC040 SAVC 210500Z 2106/2206 27010KT CAVOK TX17/2118Z TN08/2109Z BECMG 2117/2119 25020G30KT 9999 SCT030 BKN060 TEMPO 2118/2123 8000 SHRA BECMG 2200/2202 5000 RADZ OVC015 SAWE 210500Z 2106/2206 10010KT 9999 SCT020 TX09/2117Z TN02/2110Z TEMPO 2106/2110 5000 BR SCT010 BECMG 2108/2111 16010KT BECMG 2118/2120 36010KT BECMG 2200/2202 16005KT SAWG 210500Z 2106/2206 18010KT 9999 SCT015 OVC050 TX09/2118Z TN04/2206Z TEMPO 2106/2112 6000 RA BKN015 OVC025 BECMG 2109/2112 14015G25KT SCT030 PARTE 1/2 SAWH 210500Z 2106/2206 15010KT 9999 SCT020 OVC035 TX07/2118Z TN02/2109Z TEMPO 2106/2111 3000 -DZRA OVC020 BECMG 2107/2109 27015KT BECMG 2118/2120 27020G30KT CAVOK SAZM 210500Z 2106/2206 04005KT CAVOK TX19/2119Z TN10/2109Z TEMPO 2106/2110 7000 NSC BECMG 2106/2110 36010KT BECMG 2118/2121 VRB03KT 9999 SCT020 OVC050 SAZN 210500Z 2106/2206 VRB03KT 9999 SCT030 TX19/2119Z TN08/2109Z BECMG 2107/2109 25010KT CAVOK BECMG 2109/2111 23015KT BECMG 2200/2202 25010KT SAZS 210500Z 2106/2206 29010KT 9999 SCT035 TX11/2118Z TN01/2206Z BECMG 2107/2109 27020KT 9999 SCT015 TEMPO 2111/2118 27025G35KT 8000 -SHRA BKN020 BECMG 2219/2222 27010KT SBAF 210130Z 2106/2118 16008KT 9999 FEW015 BKN030 TN20/2109Z TX24/2117Z BECMG 2106/2108 35005KT PROB30 2108/2112 5000 DZ BR BKN012 BECMG 2112/2115 14013KT SCT025 RMK PEB SBAN 210400Z 2106/2118 09007KT 9999 FEW025 TN18/2108Z TX27/2116Z PROB30 2108/2113 4000 BKN006 BECMG 2110/2112 10003KT SCT030 BECMG 2112/2114 02006KT SCT035 FEW045TCU PROB40 TEMPO 2114/2118 8000 TSRA SCT030 FEW045CB RMK PDS SBAR 210200Z 2106/2118 08010KT 9999 SCT017 TN25/2107Z TX29/2114Z BECMG 2113/2114 09015KT RMK PCH SBAT 210400Z 2106/2118 00000KT 9999 FEW015 TN24/2111Z TX35/2118Z BECMG 2111/2113 33005KT BECMG 2115/2117 30005KT SCT035 FEW040TCU RMK PEH SBBE 210400Z 2106/2206 05005KT CAVOK TN24/2106Z TX31/2116Z BECMG 2111/2113 08008KT SCT020 BECMG 2116/2118 36010KT SCT030 FEW035TCU BECMG 2122/2124 06008KT CAVOK RMK PEH SBBI 210130Z 2106/2118 11010KT 9999 BKN010 TN09/2108Z TX19/2117Z PROB40 TEMPO 2106/2111 BKN006 OVC010 BECMG 2111/2113 BKN018 BECMG 2113/2115 BKN025 RMK PEB SBBR 210400Z 2106/2206 09006KT 9999 FEW025 TN18/2108Z TX26/2116Z BECMG 2110/2112 24004KT FEW025 PROB40 2108/2113 8000 RA BKN010 BECMG 2112/2114 SCT030 FEW040TCU PROB40 TEMPO 2115/2124 TSRA SCT030 FEW045CB BECMG 2200/2202 FEW012 RMK PDS SBBU 210130Z 2106/2118 12014KT CAVOK TN13/2109Z TX28/2117Z RMK PEB SBBV 210400Z 2106/2206 09005KT CAVOK TN27/2107Z TX36/2117Z BECMG 2115/2117 12008KT SCT040 BECMG 2122/2124 09005KT CAVOK RMK PEH SBBW 210400Z 2106/2118 00000KT 9999 SCT020 FEW030TCU TN22/2109Z TX31/2118Z PROB30 2106/2108 SHRA BECMG 2110/2112 08004KT 9999 SCT020 BECMG 2113/2115 SCT020 FEW030TCU PROB30 TEMPO 2117/2118 8000 TSRA SCT020 FEW025CB RMK PDS SBCF 210400Z 2106/2206 09008KT 9999 SCT025 TN15/2108Z TX24/2118Z PROB30 2101/2112 3000 BR BKN008 BECMG 2113/2115 SCT030 BECMG 2200/2202 10005KT CAVOK RMK PDS SBCG 210130Z 2106/2206 11008KT CAVOK TN18/2109Z TX30/2117Z BECMG 2108/2110 10016KT BECMG 2114/2116 09010KT 9999 FEW040 RMK PEB SBCJ 210400Z 2106/2118 00000KT CAVOK TN24/2111Z TX28/2117Z BECMG 2111/2113 03003KT SCT010 BECMG 2115/2117 06005KT SCT025 FEW030TCU RMK PEH SBCO 210130Z 2106/2118 12006KT CAVOK TN12/2109Z TX24/2117Z RMK PEB SBCP 210420Z 2106/2118 20005KT 9999 SCT020TN16/2109Z TX23/2118Z BECMG 2111/2113 17007KT BECMG 2117/2118 14010KT RMK PFV SBCR 210130Z 2106/2206 20008KT CAVOK TN20/2109Z TX32/2117Z BECMG 2108/2110 10013KT BECMG 2114/2116 09010KT 9999 FEW040 RMK PEB SBCT 210130Z 2106/2206 11010KT 9999 BKN010 TN09/2108Z TX19/2117Z PROB40 TEMPO 2106/2111 BKN006 OVC010 BECMG 2111/2113 BKN018 BECMG 2113/2115 BKN025 BECMG 2121/2123 BKN011 RMK PEB SBCY 210400Z 2106/2206 33003KT CAVOK TN23/2107Z TX34/2118Z BECMG 2110/2112 36005KT BECMG 2116/2118 33008KT SCT020 FEW025TCU PROB30 2119/2121 TS SCT020 FEW025CB BECMG 2122/2124 36003KT CAVOK RMK PEH SBDN 210130Z 2106/2118 12014KT CAVOK TN13/2109Z TX29/2117Z RMK PEB SBEG 210400Z 2106/2206 00000KT 9999 FEW010 TN24/2107Z TX35/2118Z BECMG 2110/2112 03005KT BECMG 2116/2118 07008KT SCT025 FEW030TCU BECMG 2122/2124 00000KT CAVOK RMK PEH SBFI 210130Z 2106/2206 12008KT CAVOK TN16/2109Z TX30/2118Z BECMG 2114/2116 06006KT 9999 FEW030 BECMG 2120/2122 12006KT CAVOK RMK PEB SBFL 210130Z 2106/2206 21006KT 9999 BKN025 TN16/2106Z TX23/2115Z BECMG 2112/2114 35007KT SCT040 RMK PEB SBFN 210200Z 2106/2118 12012KT 9999 SCT020 TN25/2108Z TX31/2115Z RMK PCH SBFZ 210200Z 2106/2206 11008KT 9999 SCT022 TN25/2108Z TX30/2116Z BECMG 2110/2112 08016KT BECMG 2120/2122 08010KT RMK PCH SBGL 210420Z 2106/2212 05003KT 9999 FEW030TN17/2108Z TX23/2117Z BECMG 2108/2110 35003KT 5000 BR BKN012 BECMG 2112/2115 08005KT 9999 NSW SCT025 BECMG 2115/2117 11007KT BECMG 2120/2122 13010KT FEW025 BECMG 2123/2201 07005KT BECMG 2209/2211 05002KT SCT025 RMK PFV SBGO 210400Z 2106/2206 09004KT 9999 FEW030 TN21/2108Z TX27/2116Z PROB40 TEMPO 2108/2113 8000 TS VCSH BKN014 SCT030 FEW045CB BECMG 2110/2112 12007KT SCT030 BECMG 2112/2114 SCT030 FEW045TCU PROB40 TEMPO 2114/2206 09007KT 8000 TSRA SCT030 FEW045CB RMK PDS SBGR 210200Z 2106/2212 10004KT 9999 BKN015TX22/2118Z TN11/2209Z PROB30 2108/2111 BKN007 BECMG 2111/2113 FEW033 BECMG 2113/2115 FEW040 BECMG 2115/2117 14010KT PROB30 2119/2122 BKN015 BECMG 2122/2124 12005KT CAVOK BECMG 2201/2203 09004KT 9999 FEW015 BECMG 2203/2205 BKN013 PROB30 2207/2210 BKN007 BECMG 2210/2212 FEW020 RMK PGE SBGW 210130Z 2106/2118 16008KT 9999 FEW015 BKN030 TN20/2109Z TX25/2117Z BECMG 2106/2107 7000 SCT016 BECMG 2108/2110 06005KT 5000 BR BKN013 BECMG 2111/2114 14012KT 9999 NSW SCT030 RMK PEB SBIH 210400Z 2106/2118 00000KT CAVOK TN27/2111Z TX37/2118Z BECMG 2111/2113 07005KT BECMG 2115/2117 10008KT SCT025 RMK PEH SBIL 210200Z 2106/2118 26005KT 8000 SCT017 SCT030 TN25/2107Z TX29/2115Z TEMPO 2106/2110 6000 SHRA BKN017 BECMG 2110/2112 06005KT RMK PCH SBIZ 210400Z 2106/2118 00000KT CAVOK TN25/2107Z TX35/2118Z BECMG 2109/2111 07005KT BECMG 2115/2117 04008KT SCT025 RMK PEH SBJP 210200Z 2106/2206 08005KT 9999 SCT018 TN23/2108Z TX30/2115Z BECMG 2110/2112 05010KT BKN020 BECMG 2114/2115 SCT030 BECMG2120/2122 08005KT RMK PCH SBJV 210130Z 2106/2118 27006KT 8000 BKN020 TN15/2106Z TX21/2117Z BECMG 2110/2112 13005KT 9999 NSW BKN030 RMK PEB SBKG 210200Z 2106/2118 08011KT 9999 BKN009 TN21/2108Z TX32/2117Z BECMG 2109/2111 BKN015 BECMG 2112/2114 SCT030 RMK PCH SBKP 210200Z 2106/2206 14015KT CAVOK TN13/2109Z TX26/2118Z PROB30 2109/2112 6000 NSC PROB40 2112/2115 12020KT PROB40 2121/2124 14020KT BECMG 2203/2205 12010KT RMK PGE SBLO 210130Z 2106/2118 11010KT CAVOK TN12/2109Z TX28/2117Z RMK PEB SBLP 210200Z 2106/2118 03005KT 8000 SCT025 TN31/2111Z TX38/2117Z RMK PCH SBME 210420Z 2106/2118 20005KT 9999 SCT020TN16/2109Z TX23/2118Z BECMG 2111/2113 17007KT BECMG 2117/2118 14010KT RMK PFV SBMN 210400Z 2106/2206 06003KT 9999 FEW010 TN26/2108Z TX35/2118Z BECMG 2110/2112 03005KT BECMG 2116/2118 09008KT SCT020 FEW025TCU BECMG 2122/2124 06003KT CAVOK RMK PEH SBMO 210200Z 2106/2206 05005KT 9999 SCT018 TN22/2107Z TX31/2115Z BECMG 2110/2112 07014KT BECMG 2120/2122 05007KT RMK PCH SBMQ 210400Z 2106/2206 34003KT 9999 FEW015 TN25/2107Z TX34/2117Z BECMG 2111/2113 04008KT BECMG 2116/2118 08010KT SCT025 BECMG 2122/2124 04008KT CAVOK BECMG 2203/2205 36005KT RMK PEH SBNF 210130Z 2106/2206 23008KT 9999 BKN025 TN16/2106Z TX23/2115Z BECMG 2112/2114 08008KT SCT030 RMK PEB SBNT 210200Z 2106/2206 12007KT 9999 SCT020 TN25/2108Z TX30/2115Z BECMG 2110/2112 10015KT BKN020 BECMG 2114/2115 SCT025 BECMG2121/2123 13007KT RMK PCH SBPJ 210400Z 2106/2118 30003KT 9999 FEW010 TN23/2108Z TX30/2118Z PROB30 TEMPO 2106/2108 FEW035TCU BECMG 2110/2112 08004KT SCT020 BECMG 2112/2114 25006KT SCT030 FEW035TCU PROB40 TEMPO 2112/2118 7000 TSRA SCT030 FEW035CB RMK PDS SBPL 210200Z 2106/2206 09007KT 9999 SCT030 TN24/2109Z TX36/2118Z RMK PCH SBPS 210200Z 2106/2206 30005KT 8000 SCT017 SCT030 TN23/2109Z TX28/2115Z PROB30 2111/2114 6000 SHRA BKN017 SCT030 BECMG 2114/211516008KT RMK PCH SBRB 210400Z 2106/2206 33003KT CAVOK TN23/2107Z TX34/2118Z BECMG 2111/2113 36005KT BECMG 2116/2118 33008KT SCT030 FEW035TCU BECMG 2122/2124 36003KT CAVOK RMK PEH SBRF 210200Z 2106/2206 07008KT 8000 SCT020 TN25/2108Z TX28/2115Z RMK PCH SBRJ 210420Z 2106/2118 05003KT 9999 FEW030TN19/2108Z TX23/2117Z BECMG 2108/2110 35003KT 5000 BR BKN012 BECMG 2112/2115 08005KT 9999 NSW SCT025 BECMG 2115/2117 11007KT BECMG 2117/2118 13010KT FEW030 RMK PFV SBRP 210200Z 2106/2206 13012KT CAVOK TN15/2109Z TX31/2118Z BECMG 2112/2114 11009KT 9999 FEW040 BECMG 2116/2118 15010KT FEW045 BECMG 2118/2120 CAVOK BECMG 2121/2123 13008KT RMK PGE SBSC 210130Z 2106/2118 16008KT 9999 FEW015 BKN030 TN20/2109Z TX24/2117Z BECMG 2106/2108 35005KT PROB30 2108/2112 5000 DZ BR BKN012 BECMG 2112/2115 14013KT SCT025 RMK PEB SBSJ 210420Z 2106/2206 12003KT 9999 SCT025TN11/2108Z TX22/2117Z BECMG 2107/2110 08003KT 5000 BR BKN013 BECMG 2111/2114 9999 NSW FEW030 BECMG 2115/2117 10005KT BECMG 2118/2120 14010KT BECMG 2123/2201 10005KT BECMG 2204/2206 08003KT RMK PFV SBSL 210400Z 2106/2206 04005KT CAVOK TN26/2108Z TX31/2116Z BECMG 2110/2112 07010KT SCT020 BECMG 2115/2117 03015KT BECMG 2121/2123 06008KT CAVOK RMK PEH SBSM 210130Z 2106/2118 11008KT CAVOK TN12/2109Z TX25/2117Z RMK PEB SBSN 210400Z 2106/2206 10005KT CAVOK TN24/2106Z TX34/2118Z BECMG 2108/2110 06008KT BECMG 2116/2118 09010KT SCT023 FEW025TCU BECMG 2121/2123 12003KT CAVOK RMK PEH SBSP 210200Z 2106/2206 00000KT 9999 BKN007TX21/2117Z TN12/2205Z PROB30 2111/2112 SCT009 BECMG 2112/2114 13005KT FEW033 BECMG 2115/2117 15013KT PROB30 2119/2121 BKN017 PROB30 2121/2123 12006KT BKN013 BECMG 2123/2201 CAVOK RMK PGE SBSV 210200Z 2106/2206 08008KT 8000 SCT020 TN25/2107Z TX29/2116Z BECMG 2110/2112 08014KT BECMG 2121/2123 07008KT RMK PCH SBTE 210200Z 2106/2118 33005KT 9999 FEW020 TN25/2109Z TX37/2117Z BECMG 2110/2112 10005KT RMK PCH SBTT 210400Z 2106/2206 00000KT CAVOK TN23/2111Z TX32/2118Z BECMG 2110/2112 36005KT BECMG 2115/2117 09005KT SCT020 BECMG 2122/2124 00000KT CAVOK RMK PEH SBUG 210130Z 2106/2118 11008KT CAVOK TN15/2109Z TX28/2117Z RMK PEB SBUL 210200Z 2106/2118 11010KT CAVOK TN19/2109Z TX29/2118Z BECMG 2110/2112 06012KT BECMG 2113/2115 FEW027 BECMG 2116/2118 02008KT FEW047 RMK PGE SBUR 210200Z 2106/2118 09010KT CAVOK TN18/2109Z TX31/2117Z PROB30 2109/2112 07014KT BECMG 2112/2114 05008KT BECMG 2115/2117 FEW040 RMK PGE SBVH 210400Z 2106/2118 30005KT CAVOK TN22/2111Z TX34/2118Z BECMG 2111/2113 36005KT BECMG 2115/2117 33008KT SCT035 FEW040TCU RMK PEH SBVT 210200Z 2106/2206 18010KT 7000 SCT010 BKN017 TN22/2108Z TX28/2115Z PROB40 2106/2110 5000 RA BR BKN015 BECMG 2110/2112 16014KT RMK PCH SBYS 210400Z 2106/2118 18008KT CAVOK TN14/2109Z TX28/2118Z BECMG 2110/2112 10003KT 9999 FEW020 BECMG 2116/2118 16010KT RMK PDS SCAR 210440Z 2106/2206 19004KT 9999 OVC023 TN11/2106Z TX20/2117Z BECMG 2116/2118 22012KT CAVOK BECMG 2121/2123 19004KT BKN027 BECMG 2200/2202 OVC025 SCAT 210443Z 2106/2206 33004KT 9999 OVC007 TN12/2106Z TX20/2117Z BECMG 2115/2117 27010KT CAVOK BECMG 2122/2200 22010KT BKN013 BECMG 2202/2204 19004KT OVC010 SCBA 210412Z 2106/2206 29010KT CAVOK TN00/2110Z TX11/2118Z BECMG 2110/2112 SCT035 BECMG 2116/2118 25012KT BKN030 TEMPO 2119/2122 30017KT 8000 -SHRA BKN020 BECMG 2200/2202 29007KT SCT030 SCCF 210442Z 2106/2206 12015KT CAVOK TN05/2106Z TX25/2118Z BECMG 2114/2115 09010KT BECMG 2117/2119 27025KT BECMG 2200/2202 27010KT BECMG 2203/2205 11015KT SCCI 210443Z 2106/2206 11020KT CAVOK TN04/2109Z TX09/2119Z BECMG 2106/2108 16012KT 9999 FEW015 SCT028 PROB40 TEMPO 2109/2116 8000 FEW005 BKN015 TEMPO 2111/2121 VRB04KT BECMG 2118/2120 13007KT SCT035 BECMG 2200/2202 22007KT FEW040 SCDA 210441Z 2106/2206 22004KT 9999 OVC030 TN17/2106Z TX19/2117Z BECMG 2116/2118 25014KT SCT033 BECMG 2122/2200 20010KT BKN030 BECMG 2201/2203 23004KT OVC025 SCEL 210400Z 2106/2206 16004KT CAVOK TX26/2119Z TN06/2111Z TEMPO 2108/2113 VRB02KT 7000 NSC BECMG 2115/2117 19008KT BECMG 2119/2121 20015KT BECMG 2203/2205 16005KT SCFA 210802Z 2108/2206 16004KT 9000 DZ BKN006 OVC010 TN14/ 2106Z TX17/2117Z BECMG 2113/2114 9999 OVC015 BECMG 2115/2117 22014KT SCT020 BECMG 2122/2200 19010KT BKN015 BECMG 2202/2204 22004KT OVC015 SCIE 210400Z 2106/2206 22004KT CAVOK TX17/2118Z TN05/2111Z TEMPO 2106/2112 17004KT SCT030 BECMG 2113/2115 22008KT BECMG 2118/2120 23015KT BECMG 2203/2205 23005KT SCIP 210420Z 2106/2206 30005KT 9999 FEW020 SCT040 TN17/2110Z TX24/2120Z TEMPO 2112/2115 VRB02KT 7000 -SHRA SCT015 BKN030 BECMG 2114/2116 30010KT SCT020 TEMPO 2118/2200 24005KT 7000 -SHRA BKN020 BECMG 2201/2203 27005KT SCQP 210410Z 2106/2206 VRB03KT CAVOK TN03/2109Z TX15/2119Z BECMG 2108/2110 BKN020 TEMPO 2111/2113 30005KT 8000 -SHRA SCT015 BKN030 BECMG 2114/2116 30008KT SCT040 TEMPO 2118/2122 BKN035 BECMG 2122/2200 VRB03KT CAVOK SCSE 210400Z 2106/2206 00000KT CAVOK TX19/2118Z TN10/2111Z TEMPO 2110/2112 08004KT 5000 BR SCT008 BECMG 2113/2115 28008KT BECMG 2118/2120 28013KT BECMG 2202/2204 14004KT SCTE 210407Z 2106/2206 01005KT 9999 SCT020 BKN030 TN07/2111Z TX13/2118Z TEMPO 2110/2112 33010KT 8000 -SHRA SCT012 BKN025 BECMG 2113/2115 30010KT SCT030 BKN040 PROPB40 TEMPO 2117/2121 6000 SHRA/TS SCT020TCU BKN030 BECMG 2122/2200 25005KT SCT030 BECMG 2202/2204 VRB03KT CAVOK SOCA 210400Z 2106/2206 VRB02KT 9999 FEW020 FM211200 14006KT 9999 SCT023 FM211500 07012KT 9999 SCT035 FM220000 VRB02KT 9999 FEW020 SPCL 210500Z 2106/2206 01003KT 8000 BKN010 OVC070 TX31/2120Z TN22/2111Z TEMPO 2110/2113 05008KT 5000 DZRA BKN010 OVC060 BECMG 2113/2115 VRB03KT 9999 BKN020 BKN080 BECMG 2123/2201 VRB02KT SCT020 SCT080 SPHI 210500Z 2106/2206 18010KT 9999 BKN120 TX25/2119Z TN17/2111Z TEMPO 2109/2113 BKN014 BKN120 FM211500 20008KT CAVOK BECMG 2119/2121 18020KT BECMG 2202/2204 17010KT SPJC 210500Z 2106/2206 17010KT 9999 OVC020 TX22/2119Z TN17/2110Z BECMG 2114/2116 25006KT BECMG 2118/2120 18010KT BECMG 2203/2205 OVC014 SPQT 210500Z 2106/2206 00000KT 9999 SCT012 BKN100 TX33/2119Z TN23/2111Z TEMPO 2110/2112 00000KT 6000 BCFG BKN005 BKN070 BECMG 2113/2115 01004KT BKN015 SCT100 TEMPO 2123/2202 18005KT 5000 TSRA BKN012 BKN090 SPQU 210500Z 2106/2206 02005KT CAVOK TX23/2118Z TN10/2110Z BECMG 2113/2115 24010KT BECMG 2200/2202 03005KT SPRU 210500Z 2106/2206 14006KT 5000 BR BKN120 TX22/2119Z TN16/2110Z TEMPO 2110/2112 4000 FM211500 17010KT 8000 NSW FEW030 FM220100 14010KT 6000 BKN130 SPSO 210500Z 2106/2206 VRB02KT 7000 NSC TX21/2119Z TN13/2110Z BECMG 2109/2111 4000 BR OVC014 BECMG 2113/2115 27010KT 7000 NSW SCT015 BECMG 2117/2119 22012KT BECMG 2203/2205 VRB02KT SPTN 210500Z 2106/2206 21004KT 9999 OVC018 TX23/2119Z TN14/2110Z FM211500 21010KT CAVOK FM210000 22006KT 9999 OVC020 SPZO 210500Z 2106/2206 00000KT 9999 SCT050 BKN100 TX18/2119Z TN08/2111Z TEMPO 2109/2112 DZ FEW025 SCT040 BKN080 BECMG 2115/2117 36010KT SCT043 BKN100 FM220100 VRB02KT 9999 SCT050 SUAA 210530Z 2106/2206 07010KT CAVOK TX22/2118Z TN11/2110Z BECMG 2114/2116 9999 BKN030 BKN200 SUCA 210530Z 2106/2206 10010KT 9999 SCT030 TX22/2118Z TN11/2110Z BECMG 2114/2116 9999 BKN030 BKN200 SUDU 210530Z 2106/2206 09012KT 9999 FEW026 SCT080 TX24/2118Z TN08/2110Z BECMG 2114/2116 9999 BKN030 BKN200 SULS 210530Z 2106/2206 06010KT 9999 FEW030 SCT080 TX21/2118Z TN08/2110Z BECMG 2114/2116 9999 BKN030 BKN200 SUMU 210530Z 2106/2206 07010KT CAVOK TX22/2118Z TN09/2110Z BECMG 2114/2116 9999 BKN030 BKN200 SURV 210530Z 2106/2206 09010KT CAVOK TX23/2118Z TN09/2110Z PROB30 TEMPO 2106/2112 10010G20KT 5000 RABR BKN010 OVC050 SUSO 210530Z 2106/2206 11010KT 9999 SCT020 BKN060 TX26/2118Z TN10/2110Z PROB40 TEMPO 2106/2112 10010G20KT 6000 RA BKN017 OVC060 TBPB 210545Z 2106/2206 11017KT 9999 SCT018 TEMPO 2115/2121 5000 SHRA BKN014 TFFF 210400Z 2106/2206 09008KT 9999 SCT030 PROB30 TEMPO 2106/2206 4000 SHRA SCT018TCU PROB30 TEMPO 2114/2204 2000 SHRA SCT015CB TFFR 210400Z 2106/2206 12008KT 9999 SCT030 TEMPO 2106/2206 4000 SHRA SCT018TCU PROB30 TEMPO 2116/2122 2000 SHRA SCT015CB TIST 210541Z 2106/2206 06003KT P6SM VCSH SCT030 FM211430 08012KT P6SM FEW026 FM211700 05009KT P6SM FEW028 SCT040 FM220100 05008KT P6SM VCSH SCT026 TISX 210541Z 2106/2206 36003KT P6SM VCSH SKC FM211430 05012KT P6SM FEW027 SCT060 FM211800 04011KT P6SM VCSH SCT027 SCT050 FM220400 01004KT P6SM FEW025 TJBQ 210807Z 2108/2206 10004KT P6SM VCSH SCT022 SCT030 TEMPO 2108/2110 SHRA SCT019 BKN022 BKN030 FM211520 07014KT P6SM FEW024 SCT035 FM220100 08008KT P6SM VCSH SCT025 BKN030 NOT SKED TIL 211100 TJMZ 210541Z 2106/2206 06003KT P6SM FEW070 FM211450 05007KT P6SM SCT025 SCT040 FM211600 24010KT P6SM VCSH SCT025 BKN040 FM212200 08009KT P6SM SCT030 SCT060 FM220200 07006KT P6SM VCSH SCT030 SCT060 NOT SKED TJPS 210541Z 2106/2206 03002KT P6SM FEW060 FM211400 13011KT P6SM VCSH SCT030 SCT060 FM212300 07003KT P6SM SCT030 FM220400 00000KT P6SM FEW030 TJSJ 210541Z 2106/2206 09003KT P6SM VCSH SCT028 SCT060 FM211400 06012KT P6SM VCSH SCT028 SCT070 FM211700 05014KT P6SM SCT030 FM220400 08007KT P6SM SCT026 TKPK 210541Z 2106/2206 05010KT P6SM VCSH SCT018 FM211430 07011KT P6SM VCSH SCT022 NOT SKED TIL 211100 TKPN 210200Z 2100/2124 CNL TLPC 210500Z 2106/2206 10007KT 9999 SCT024 TEMPO 2106/2206 5000 SHRA FEW018TCU BKN020 BKN038 TLPL 210500Z 2106/2206 09015KT 9999 SCT024 TEMPO 2106/2206 5000 SHRA FEW018TCU BKN020 BKN038 TNCA 210000Z 2100/2206 06015KT 9999 SCT020 TEMPO 2104/2116 7000 SHRA BKN015 TNCB 210431Z 2106/2212 06013KT 9999 SCT018 TEMPO 2106/2212 6000 SHRA SCT018CB BKN020 PROB30 TEMPO 2106/2212 07015G25KT 4000 TSRA BKN014 SCT016CB TNCM 210541Z 2106/2206 07007KT P6SM VCSH FEW017 FM211430 09011KT P6SM VCSH SCT022 FM220100 07008KT P6SM VCSH SCT018 TQPF 210200Z 2100/2124 CNL TRPG 210200Z 2100/2124 CNL TUPJ 210200Z 2100/2124 CNL TVSA 210545Z 2106/2206 08008KT 9999 SCT018 TEMPO 2115/2121 5000 SHRA BKN014 TXKF 210541Z 2106/2206 20010KT 9999 SCT030 BKN060 BECMG 2121/2124 30015KT PROB40 TEMPO 2121/2202 4800 SHRA BKN014 PROB30 TEMPO 2121/2201 32020G30KT 1600 TSRA BKN009CB UAAA 210500Z 2106/2206 06005MPS 9999 SCT050CB BKN100 TX15/2109Z TN01/2201Z BECMG 2112/2114 16005MPS 3000 BR FU TEMPO 2113/2124 1000 UACC 210500Z 2106/2206 24010MPS 9999 SCT020CB BKN100 TX10/2110Z TNM01/2124Z TEMPO 2106/2110 25011G16MPS BECMG 2110/2112 28006MPS TEMPO 2110/2116 5000 -SHRA SCT007 BKN020CB UAII 210500Z 2106/2206 33005MPS 6000 BKN100 TX20/2109Z TN03/2201Z TEMPO 2106/2112 28004MPS TEMPO 2112/2118 30006MPS 3000 FU TEMPO 2118/2203 10004MPS 1500 BR UAKK 210500Z 2106/2206 23010MPS 9999 SCT030 BKN100 TX08/2109Z TN01/2123Z TEMPO 2106/2112 22016MPS BECMG 2118/2120 26006MPS TEMPO 2118/2121 3000 SHRA SCT005 BKN010CB TEMPO 2121/2203 1500 -SHRA BR SCT003 BKN010CB BECMG 2203/2205 29006MPS UATE 210502Z 2106/2206 VRB02MPS CAVOK TX20/2109Z TN05/2202Z UATG 210501Z 2106/2206 09006MPS 9999 SCT033 TX19/2110Z TN04/2203Z UATT 210500Z 2106/2206 28005MPS 9999 BKN030 TX13/2112Z TNM02/2201Z FM211600 36005MPS 3000 BR SCT010 UBBB 210519Z 2106/2206 28006KT 3000 BR BKN006 TX22/2110Z TN14/2204Z TEMPO 2106/2107 0800 FG BKN003 FM210700 18006KT 9999 NSW SCT010 BKN020 TEMPO 2107/2115 13012KT BECMG 2115/2117 33008KT TEMPO 2117/2204 3000 BR BKN005 UBBL 210525Z 2106/2206 08008KT 8000 SCT080 TX22/2110Z TN10/2202Z TEMPO 2106/2115 13012KT SCT030 TEMPO 2115/2124 16006KT UBBQ 210523Z 2106/2206 28006KT 9999 SCT080 TX21/2110Z TN09/2202Z TEMPO 2106/2112 33006KT SCT040 BECMG 2112/2114 08008KT TEMPO 2114/2124 SCT020 UCFM 210442Z 2106/2206 32003G08MPS 9999 SCT100 BECMG 2112/2114 12003G08MPS 6000 TEMPO 2114/2204 1500 BR FU FEW005 UCFO 210446Z 2106/2206 27003G08MPS 8000 NSC TEMPO 2106/2112 09005MPS 2000 BR FU FEW050CB BECMG 2112/2114 17005MPS UDSG 210503Z 2106/2206 22006KT 9999 SCT050 TEMPO 2106/2109 VRB16KT SCT040CB TEMPO 2109/2118 VRB22KT -TSRA BKN040CB UDYZ 210509Z 2106/2206 19006KT 9999 FEW040 TEMPO 2108/2116 VRB16KT SCT040CB TEMPO 2116/2124 VRB16KT 3500 -SHRA BR BKN030CB UEEE 210800Z 2109/2215 16003MPS 9999 -SHSN SCT010 BKN020CB OVC070 TEMPO 2109/2118 2100 -SHSNRA TEMPO 2118/2202 1000 SHSN BR VV005 UHBB 210740Z 2109/2209 15003MPS CAVOK FM212200 18003MPS 9999 BKN020CB BECMG 2202/2204 16004G09MPS UHHH 210750Z 2109/2215 VRB01MPS CAVOK TEMPO 2109/2124 12003MPS FM220100 15003MPS 9999 SCT025 UHMA 210740Z 2109/2209 35007MPS 9999 SCT003 BKN017 TEMPO 2109/2209 30003MPS 1000 BR VV001 UHMM 210746Z 2109/2215 05003MPS 3100 -SHSN BKN006 OVC020CB TEMPO 2109/2123 29003MPS 0500 FZFG VV004 FM220000 27003MPS 9999 BKN030 UHPP 210735Z 2109/2215 15003G10MPS 9999 BKN030CB FM212100 31003G12MPS 9999 NSC UHSS 210800Z 2109/2215 36003MPS 9999 SCT040CB BECMG 2122/2201 17003MPS UHWW 210800Z 2109/2209 VRB01MPS 9999 NSC BECMG 2201/2203 20003MPS SCT030 UIAA 210800Z 2109/2209 29003G09MPS 9999 BKN030CB TEMPO 2112/2203 3100 -SHSN OVC014CB UIBB 210800Z 2109/2209 27003G08MPS 9999 -SHRASN BKN016CB BECMG 2115/2117 17005MPS UIII 210800Z 2109/2209 32005MPS 9999 SCT020CB BECMG 2112/2114 06003MPS BECMG 2114/2116 NSC TEMPO 2116/2202 0300 FG VV001 BECMG 2202/2204 14005MPS UIUU 210800Z 2109/2209 32005G10MPS 9999 OVC025CB BECMG 2112/2114 26003MPS 3500 BR FU UKBB 210502Z 2106/2206 36004G09MPS 9999 BKN030 TEMPO 2116/2206 2000 BR FU SCT007 UKDD 210505Z 2106/2206 02006G11MPS 4000 BR FU SCT020CB BKN030 TEMPO 2106/2108 1100 BR FU SCT003 TEMPO 2118/2206 2100 -SHRA BR SCT004 BKN015CB UKKK 210503Z 2106/2206 36003G08MPS 9999 BKN020 TX14/2112Z TN04/2203Z TEMPO 2118/2206 2000 BR SCT006 UKKM 210602Z 2106/2206 35005MPS 9999 BKN030 TX14/2112Z TN04/2203Z TEMPO 2118/2206 2100 BR FU SCT005 UKLL 210506Z 2106/2206 04005MPS 5000 BR BKN007 TX12/2112Z TN03/2203Z TEMPO 2106/2110 2100 -SHRA SCT004 BKN017CB BECMG 2110/2112 02004MPS 9999 NSW BKN015 BECMG 2115/2117 VRB01MPS 2100 BR BKN007 TEMPO 2117/2206 0400 FG VV002 ULAA 210800Z 2109/2209 20005MPS 6000 BKN005 BKN012 TEMPO 2109/2114 25003G09MPS 3100 -RA BR SCT004 BKN011 TEMPO 2114/2124 22004G12MPS 1000 SHRA BR BKN003 BKN011CB TEMPO 2200/2206 27003G09MPS 3100 -SHRA BR BKN004 BKN011CB ULLI 210759Z 2109/2209 22003G08MPS 9999 SCT020 TEMPO 2109/2116 23005G10MPS BECMG 2116/2118 22007G13MPS BKN015 TEMPO 2118/2203 23009G15MPS BECMG 2203/2205 4000 -RA BR BKN011 OVC020 TEMPO 2203/2209 22009G16MPS 3100 -SHRA BR BKN004 BKN015CB ULMM 210750Z 2109/2209 19005G10MPS 5000 -SHRA BKN011CB TEMPO 2109/2118 23006G13MPS 3100 -SHRASN BKN006 BKN011CB FM211900 21003MPS 9999 BKN011 TEMPO 2119/2206 17002MPS 3100 BR TEMPO 2206/2209 25003G08MPS 5000 -SHRASN BKN011CB UMGG 210500Z 2106/2206 01006MPS 9999 SCT013 TEMPO 2115/2206 VRB02MPS 1200 BR BKN004 UMKK 210800Z 2109/2209 26003G08MPS 9999 SCT030 BECMG 2115/2116 20003G08MPS SCT011 BKN030 BECMG 2201/2203 22006G11MPS BKN011 TEMPO 2203/2209 SCT005 UMMS 210506Z 2106/2206 03005MPS 9999 BKN030 TEMPO 2106/2108 1200 BCFG BR BKN003 TEMPO 2118/2206 1200 BCFG BR BKN003 UNAA 210752Z 2109/2209 13003MPS CAVOK FM211200 18003G10MPS 9999 SCT020CB TEMPO 2112/2203 19008G14MPS 4000 -SHRASN UNBB 210800Z 2109/2209 20007G12MPS 9999 BKN020CB TEMPO 2109/2115 25011G16MPS 3100 -SHRA SCT002 BKN011CB TEMPO 2115/2209 26006G12MPS 1500 SHRASN BR SCT002 BKN011CB UNEE 210800Z 2109/2209 16008G17MPS 9999 -SHRASN BKN020CB TEMPO 2109/2115 0800 +SHSNRA BKN003 BKN011CB BECMG 2114/2115 24006G12MPS TEMPO 2115/2209 3100 -SHRASN BKN011CB UNKL 210800Z 2109/2209 17003G10MPS 9999 SCT020CB TEMPO 2112/2118 21008G14MPS 3100 -SHRASN BKN013CB FM211800 21007G14MPS 3100 -SHSN BKN011 BKN020CB TEMPO 2118/2203 1500 SHSN BKN003 BKN020CB FM220400 25006G13MPS 5000 -SHSNRA SCT011 SCT017CB TEMPO 2204/2209 3100 -SHSNRA UNNT 210800Z 2109/2209 23008G16MPS 3100 -SHRA BR BKN005 BKN011CB TEMPO 2109/2115 1500 SHRA BKN002 BKN011CB BECMG 2114/2115 23003G08MPS TEMPO 2115/2204 0600 FG BKN002 BKN011CB FM220400 26008G14MPS 9999 BKN015CB TEMPO 2205/2209 3100 -SHRASN BKN011CB UNOO 210746Z 2109/2209 28007MPS 9999 BKN011 BKN030CB TEMPO 2109/2114 29013MPS URKA 210757Z 2109/2209 04003G08MPS 9999 BKN020CB TEMPO 2109/2209 3100 -TSRA BR BKN011 BKN020CB URKK 210757Z 2109/2209 04003G08MPS 9999 SCT011 BKN030CB TEMPO 2109/2118 3100 -TSRA BR BKN011 BKN020CB URMM 210800Z 2109/2209 09003G08MPS 9999 BKN030 TX21/2112Z TN06/2203Z TEMPO 2118/2206 3100 BR BKN011 TEMPO 2206/2209 5000 -SHRA BKN011 BKN030CB URRP 210757Z 2109/2209 13003G08MPS 9999 SCT015 SCT020CB TEMPO 2112/2209 08003G08MPS 3100 -SHRA BR BKN011 BKN020CB URSS 210755Z 2109/2209 29006G11MPS 9999 SCT030CB BKN100 TEMPO 2109/2116 VRB08G13MPS -TSRA BECMG 2116/2117 04007MPS TEMPO 2117/2206 VRB07G12MPS -TSRA FM220600 14007G12MPS 9999 -SHRA BKN030CB OVC100 TEMPO 2206/2209 VRB09G16MPS 0800 +TSRA BKN006 BKN020CB OVC100 USCC 210800Z 2109/2209 32006G12MPS 9999 BKN030CB TEMPO 2109/2115 29007G17MPS -SHRASN BKN020CB TEMPO 2115/2209 35003G08MPS -SHRASN BKN020CB USHH 210759Z 2109/2209 34005G12MPS 4000 -SHSN BKN011CB TEMPO 2109/2117 1200 SHSN BKN005 OVC011CB TEMPO 2117/2203 3100 -SHSN SCT004 BKN011CB USNN 210800Z 2109/2209 13003MPS 4000 -SN BKN005 OVC040 TEMPO 2109/2118 10003MPS 2000 SN BR BKN003 FM211800 02003MPS 5000 -SHSN BKN010 BKN017CB TEMPO 2118/2124 0800 +SHSN BKN002 BKN015CB USPP 210759Z 2109/2209 32006MPS 9999 BKN020 TEMPO 2109/2115 33012MPS 3100 -SHSN BKN011CB BECMG 2115/2117 26003MPS BECMG 2118/2120 3100 BR OVC011 USRR 210755Z 2109/2209 29003MPS 3100 -SHSN BKN005 BKN015CB TEMPO 2109/2121 0900 +SHSN VV003 BECMG 2116/2118 35006G13MPS USSS 210757Z 2109/2209 30006G17MPS 9999 BKN015CB TEMPO 2109/2115 -SHSNRA BECMG 2115/2117 30003G10MPS USTR 210757Z 2109/2209 31007G15MPS 9999 BKN020CB TEMPO 2109/2113 0400 +SHSNRA VV002 TEMPO 2113/2121 2100 -SHSN VV006 UTDD 210600Z 2107/2119 VRB02MPS 6000 FEW066 SCT150 UTFN 210500Z 2106/2206 34010KT 7000 NSC TEMPO 2106/2112 14008KT= UTNN 210500Z 2106/2206 VRB04KT CAVOK TEMPO 2106/2112 12008G18KT UTNU 210500Z 2106/2206 12010G20KT 8000 NSC UTSA 210501Z 2106/2206 VRB03KT 7000 NSC TEMPO 2106/2117 09010KT UTSB 210500Z 2106/2206 VRB03KT 7000 NSC TEMPO 2106/2117 07010KT UTSS 210457Z 2106/2206 08010G20KT 9999 NSC TEMPO 2106/2114 32010G20KT UTST 210500Z 2106/2206 VRB06KT 6000 NSC TEMPO 2106/2116 26010G20KT SCT030 UTTT 210500Z 2106/2206 15008KT 7000 NSC TEMPO 2108/2115 30012KT UUBW 210755Z 2109/2209 VRB01MPS 9999 BKN020 TX09/2112Z TN02/2203Z TEMPO 2120/2206 3100 BR SCT011 BECMG 2206/2208 21005MPS UUDD 210755Z 2109/2215 VRB01MPS 9999 BKN030 TX08/2112Z TN02/2201Z BECMG 2118/2120 5000 BR BKN011 PROB40 TEMPO 2120/2206 0200 FG SCT002 BECMG 2206/2208 21005MPS 9999 NSW UUDL 210800Z 2109/2209 VRB01MPS 8000 BKN013 TEMPO 2205/2209 21006MPS UUEE 210757Z 2109/2209 VRB01MPS 9999 BKN020 TX08/2112Z TN03/2203Z BECMG 2118/2120 5000 BR PROB40 TEMPO 2120/2205 0200 FG SCT002 BECMG 2205/2207 22005G10MPS 9999 NSW UUWW 210800Z 2109/2209 04002MPS 9999 BKN020 TX08/2112Z TN02/2203Z PROB40 TEMPO 2121/2205 0300 FG FEW002 BECMG 2206/2208 21005MPS UUYY 210800Z 2109/2209 29003MPS 6000 -SHRA BKN011 BKN017CB TEMPO 2109/2112 1000 SHRASN BR BKN004 BKN015CB TEMPO 2112/2118 0300 -SHRASN FG FEW003 BKN015CB BECMG 2118/2119 24003G08MPS TEMPO 2119/2209 20005G12MPS 2100 -SHRASN BR SCT005 BKN015CB UWGG 210750Z 2109/2209 30003MPS 9999 BKN016 TX08/2112Z TN01/2202Z TEMPO 2109/2111 BKN007 UWKD 210758Z 2109/2209 36003MPS 9999 BKN020 TX08/2111Z TN01/2201Z TEMPO 2118/2206 3100 BR BKN005 BECMG 2121/2123 20003MPS UWKE 210745Z 2109/2209 34003G09MPS 9999 BKN020 TEMPO 2109/2115 34005G11MPS 3100 -SHRASN BKN011CB TEMPO 2118/2203 VRB01MPS 3100 BR BKN011 BECMG 2203/2205 22003G09MPS UWLW 210745Z 2109/2209 32003MPS 8000 BKN015 TEMPO 2109/2116 35006MPS BKN011 UWOO 210754Z 2109/2209 34006G12MPS 9999 SCT030 TX12/2111Z TN00/2201Z FM211500 02003G08MPS 3100 BR BKN011 UWUU 210759Z 2109/2209 31006G11MPS 9999 BKN020 TEMPO 2109/2118 34007G12MPS 5000 -SHRA BKN011CB TEMPO 2118/2209 27003G08MPS 3100 BR BKN011 UWWW 210758Z 2109/2209 33003G08MPS 9999 BKN015 OVC100 TX09/2111Z TNM00/2202Z TEMPO 2109/2118 01005G11MPS TEMPO 2118/2208 VRB01MPS 3100 BR BKN011 VAAH 210500Z 2106/2212 36004KT 6000 NSC HZ BECMG 2112/2114 31003KT 4000 FU BECMG 2201/2203 05003KT 2500 HZ BECMG 2204/2206 04004KT 6000 VABJ 210500Z 2106/2115 00000KT 6000 NSC BECMG 2112/2114 25005KT 5000 FU VABO 210500Z 2106/2115 05003KT 6000 NSC BECMG 2112/2114 36004KT 4000 FU VABV 210500Z 2106/2115 29003KT 6000 NSC BECMG 2112/2114 36004KT 4000 FU VADU 210500Z 2106/2115 02003KT 6000 NSC BECMG 2112/2114 04005KT 4000 FU VAJM 210500Z 2106/2115 34004KT 6000 NSC BECMG 2112/2114 32004KT 4000 FU VAKE 210500Z 2106/2115 34003KT 6000 NSC BECMG 2112/2114 32004KT 4000 FU VANP 210500Z 2106/2212 05005KT 5000 HZ FEW025 BECMG 2112/2114 34003KT 3000 HZ NSC BECMG 2204/2206 05005KT 5000 HZ FEW025 TEMPO 2200/2204 1500 BR HZ VAPR 210500Z 2106/2115 00000KT 6000 NSC BECMG 2112/2114 32006KT 4000 FU VARK 210500Z 2106/2115 09004KT 6000 NSC BECMG 2112/2114 27004KT 4000 FU VASU 210500Z 2106/2115 00000KT 6000 NSC BECMG 2112/2114 05003KT 4000 FU VCBI 210500Z 2106/2212 26007KT 9999 SCT018 TX30/2107Z TN24/2200Z PROB40 TEMPO 2116/2120 6000 -TSRA/SHRA SCT016 BKN016 FEW020CB BECMG 2113/2115 VRB05KT VCRI 210500Z 2106/2212 VRB05KT 9999 FEW018 TX31/2107Z TN24/2200Z PROB40 TEMPO 2108/2114 VRB10G20KT 6000 -TSRA/SHRA BKN016 FEW020CB PROB40 TEMPO 2209/2212 VRB10G20KT 6000 -TSRA/SHRA BKN016 FEW020CB VDPP 210500Z 2106/2124 16006KT 9999 SCT017 TEMPO 2108/2112 5000 SHRA SCT015 FEW017CB SCT040 VDSR 210500Z 2106/2124 13006KT 9999 SCT017 TEMPO 2108/2112 5000 TSRA SCT015 FEW017CB SCT040 VDSV 210500Z 2106/2124 17006KT 9999 SCT015 TEMPO 2108/2112 5000 TSRA SCT015 FEW017CB SCT040 VEBN 210500Z 2106/2212 VRB02KT 4000 HZ NSC BECMG 2108/2110 15004KT 5000 HZ BECMG 2113/2115 00000KT 3500 HZ BECMG 2122/2124 2000 HZ BR BECMG 2202/2204 VRB02KT 1500BR BECMG 2204/2206 3000 HZ NSC BECMG 2208/2210 25004KT 5000 HZ VECC 210500Z 2106/2212 35005KT 3500 HZ NSC BECMG 2118/2120 00000KT 2000 BR BECMG 2203/2205 35005KT 3500 HZ VEPT 210500Z 2106/2212 00000KT 3500 HZ NSC BECMG 2108/2112 27004KT 5000 HZ FEW020 BECMG 2113/2115 00000KT 4000 HZ NSC BECMG 2116/2201 2000 HZ BR BECMG 2202/2204 2500 HZ BR BECMG 2207/2212 23005KT 5000 HZ FEW020 VGHS 210500Z 2106/2212 36006KT 3500 HZ NSC BECMG 2118/2120 VRB03KT 2500 HZ SCT025 BECMG 2123/2201 00000KT 1200 BR SCT012 BECMG 2204/2206 33006KT 3000 HZ NSC BECMG 2207/2209 4000 HZ VHHH 210707Z 2107/2212 09010KT 9999 FEW030 TX29/2206Z TN24/2122Z TEMPO 2107/2110 26010KT TEMPO 2203/2209 29010KT VIAR 210500Z 2106/2212 25003KT 4000 HZ FEW090 BECMG 2113/2115 00000KT 3500 HZ BR BECMG 2200/2202 VRB02KT 2000 BR NSC BECMG 2205/2207 32006KT 5000 HZ SCT090 VIDP 210500Z 2106/2212 26003KT 2000 FU SCT100 BECMG 2108/2110 32006KT 3500 HZ SCT100 BECMG 2115/2117 24005KT 2500 HZ BR BECMG 2200/2202 00000KT 1500 BR FEW100 BECMG 2205/2207 29006KT 3500 HZ FEW100 VIJP 210500Z 2106/2212 05005KT 4000 HZ FEW100 BECMG 2113/2114 VRB03KT 2000 HZ BECMG 2200/2202 00000KT 1500 FU HZ BECMG 2204/2206 29005KT 4000 HZ FEW035 VILK 210500Z 2106/2212 VRB02KT 3000 HZ NSC BECMG 2108/2110 29004KT 4000 HZ BECMG 2113/2115 00000KT 3000 HZ BECMG 2122/2124 2000 BR BECMG 2202/2204 VRB02KT 2500 HZ BR NSC BECMG 2206/2208 29004KT 3500 HZ VLLB 210500Z 2106/2206 27004KT 9999 SCT016 SCT060 BKN080 TEMPO 2114/2120 3000 BR SCT016 BKN060 VLLN 210500Z 2106/2206 24004KT 7000 SCT020 BKN100 TEMPO 2114/2120 2000 BR SCT016 BKN090 VLPS 210500Z 2106/2206 16004KT 9999 SCT020 SCT050 BKN200 VLSK 210500Z 2106/2206 14004KT 8000 SCT020 SCT050 BKN100 TEMPO 2114/2120 3000 BR FEW020 SCT100 VLVT 210500Z 2106/2206 09006KT 5000 RA SCT013 BKN040 BKN083 TEMPO 2114/2120 3000 RA SCT016 SCT040 SCT100 VMMC 210502Z 2106/2212 11010KT 9999 FEW025 VNKT 210500Z 2106/2206 19004KT 6000 FEW015 BECMG 2107/2108 26008KT 8000 FEW020 BECMG 2113/2114 11003KT 6000 FEW015 BECMG 2200/2202 00000KT 4000 BR FEW010 PROB30 2201/2203 2500 BR BECMG 2204/2205 16004KT 6000 FEW015 VOBL 210500Z 2106/2212 09005KT 6000 SCT015 BECMG 2118/2119 VRB02KT BECMG 2121/2122 3000 BR FEW008 TEMPO 2200/2203 1500 BR SCT008 BECMG 2203/2204 07010KT 6000 FEW015 VOCB 210500Z 2106/2212 05005KT 6000 SCT015 BKN080 TEMPO 2106/2112 3000 -TSRA/RA SCT015 FEW025CB BKN080 BECMG 2118/2120 3000 BR BECMG 2205/2206 5000 HZ VOCI 210500Z 2106/2212 28010KT 5000 HZ SCT015 FEW025CB BKN090 TEMPO 2109/2112 2000 TSRA RA SCT010 FEW025CB BKN090 BECMG 2117/2118 00000KT 4000 HZ TEMPO 2123/2202 2000 TSRA RA SCT010 FEW025CB BKN090 BECMG 2205/2206 28010KT 5000 HZ TEMPO 2209/2212 2000 TSRA RA SCT010 FEW025CB BKN090 VOCL 210500Z 2106/2212 34010KT 5000 HZ SCT015 FEW025CB BKN090 TEMPO 2109/2112 2000 TSRA RA SCT010 FEW025CB BKN090 BECMG 2117/2118 14005KT 4000 HZ TEMPO 2123/2202 2000 TSRA RA SCT010 FEW025CB BKN090 BECMG 2205/2206 34010KT 5000 HZ TEMPO 2209/2212 2000 TSRA RA SCT010 FEW025CB BKN090 VOHS 210500Z 2106/2212 06008KT 6000 SCT020 BECMG 2110/2112 05005KT 5000 HZ SCT015 SCT100 BECMG 2200/2203 00000KT 3000 BR BECMG 2206/2208 07008KT 6000 SCT020 VOMD 210500Z 2106/2212 05005KT 6000 SCT018 BKN090 TEMPO 2106/2112 3000 -TSRA/RA SCT016 FEW025CB BKN080 BECMG 2118/2122 3000 BR BECMG 2205/2206 5000 HZ VOML 210500Z 2106/2212 25010KT 6000 SCT012 BECMG 2118/2119 VRB02KT BECMG 2121/2122 3000 BR FEW008 TEMPO 2200/2203 1500 BR SCT005 BECMG 2206/2207 09005KT 6000 SCT012 VOMM 210500Z 2106/2212 04010KT 4000 HZ SCT020 BKN080 TEMPO 2106/2112 3000 -TSRA/RA SCT018 FEW025CB BKN080 TEMPO 2118/2124 SCT018 FEW025CB BKN080 BECMG 2200/2202 2000 BR BECMG 2205/2206 4000 HZ VOTR 210500Z 2106/2212 05005KT 4000 HZ SCT016 BKN080 TEMPO 2106/2112 SCT016 FEW025CB BKN080 BECMG 2200/2202 2000 BR BECMG 2205/2206 4000 HZ VOTV 210500Z 2106/2212 33010KT 5000 HZ SCT015 FEW025CB BKN090 TEMPO 2109/2112 2000 TSRA RA SCT010 FEW025CB BKN090 BECMG 2117/2118 07005KT 4000 HZ TEMPO 2123/2203 2000 TSRA RA SCT010 FEW025CB BKN090 BECMG 2205/2206 34010KT 5000 HZ TEMPO 2209/2212 2000 TSRA RA SCT010 FEW025CB BKN090 VRMG 210500Z 2106/2212 19006KT 9999 FEW017TCU TEMPO 2106/2112 5000 -TSRA FEW017CB VRMM 210500Z 2106/2212 29005KT 9999 FEW019 TEMPO 2108/2114 FEW020CB VTBD 210500Z 2106/2212 16010KT 9999 FEW020 SCT035 TEMPO 2109/2114 16010G20KT 5000 TSRA FEW018CB SCT030 BECMG 2118/2120 10005KT BECMG 2205/2207 16010KT VTBO 210500Z 2106/2206 16010KT 9999 SCT020 TEMPO 2109/2115 VRB15KT 5000 TSRA FEW018CB SCT030 BECMG 2116/2118 08005KT 6000 BECMG 2203/2205 14008KT 9999 VTBS 210500Z 2106/2212 16010KT 9999 SCT020 TEMPO 2110/2114 16010G20KT 5000 TSRA FEW018CB SCT030 BECMG 2118/2120 10005KT BECMG 2205/2207 16010KT VTBU 210500Z 2106/2206 18010KT 8000 FEW020 SCT100 TEMPO 2106/2112 VRB10G20KT 4000 TSRA FEW018CB SCT030 BKN100 BECMG 2112/2114 11006KT 6000 VTCC 210500Z 2106/2212 24005KT 9999 SCT035 TEMPO 2108/2113 VRB15G30KT 4000 TSRA FEW020CB BKN030 TEMPO 2208/2212 VRB15G30KT 4000 TSRA FEW020CB BKN030 VTCH 210500Z 2106/2206 20005KT 9999 SCT025 TEMPO 2107/2113 VRB15G30KT 4000 TSRA FEW020CB BKN030 VTCL 210500Z 2106/2206 24005KT 9999 BKN025 TEMPO 2108/2112 VRB15G30KT 4000 TSRA FEW020CB BKN030 VTCN 210500Z 2106/2206 14005KT 9999 SCT025 TEMPO 2107/2112 VRB15G30KT 4000 TSRA FEW020CB BKN030 VTCP 210500Z 2106/2206 22005KT 9999 BKN025 TEMPO 2107/2113 VRB15G30KT 4000 TSRA FEW020CB BKN030 VTCT 210500Z 2106/2212 09005KT 9999 SCT025 TEMPO 2108/2113 VRB15G30KT 4000 TSRA FEW020CB BKN030 TEMPO 2208/2212 VRB15G30KT 4000 TSRA FEW020CB BKN030 VTPB 210500Z 2106/2206 12005KT 9999 SCT025 TEMPO 2108/2112 VRB15G30KT 4000 TSRA FEW020CB BKN030 VTPH 210500Z 2106/2206 16005KT 9999 FEW020 BKN080 BECMG 2115/2117 VRB02KT SCT025 VTPM 210500Z 2106/2206 30005KT 9999 BKN025 TEMPO 2108/2113 VRB15G30KT 4000 TSRA FEW020CB BKN030 VTPO 210500Z 2106/2206 06005KT 9999 SCT025 TEMPO 2107/2113 VRB15G30KT 4000 TSRA FEW020CB BKN030 VTPP 210500Z 2106/2206 06005KT 9999 SCT025 TEMPO 2108/2113 VRB15G30KT 4000 TSRA FEW020CB BKN030 VTPT 210500Z 2106/2206 01005KT 9999 BKN025 TEMPO 2107/2112 VRB15G30KT 4000 TSRA FEW020CB BKN030 VTSB 210500Z 2106/2206 24008KT 9999 SCT020 TEMPO 2107/2113 VRB15KT 5000 TSRA FEW016CB SCT018 BKN100 VTSC 210500Z 2106/2206 21008KT 9999 SCT020 TEMPO 2108/2114 VRB15KT 5000 TSRA FEW016CB SCT018 BKN100 VTSE 210500Z 2106/2206 21008KT 9999 FEW020 BKN100 TEMPO 2106/2112 5000 RA SCT015 BKN100 VTSF 210500Z 2106/2206 14006KT 9999 SCT020 TEMPO 2107/2113 VRB15KT 5000 TSRA FEW016CB SCT018 BKN100 VTSG 210500Z 2106/2206 24006KT 9999 SCT020 TEMPO 2106/2010 VRB15G30KT 5000 TSRA FEW018CB SCT020 BKN100 BECMG 2112/2114 VRB02KT 8000 BECMG 2120/2122 5000 BR BECMG 2201/2203 24006KT 9999 NSW VTSH 210500Z 2106/2206 26008KT 9999 SCT020 TEMPO 2107/2113 VRB15KT 5000 TSRA FEW016CB SCT018 BKN100 VTSK 210500Z 2106/2206 15006KT 9999 SCT020 TEMPO 2107/2113 VRB15KT 5000 TSRA FEW016CB SCT018 BKN100 VTSM 210500Z 2106/2206 15010KT 9999 FEW020 TEMPO 2108/2114 5000 RA SCT015 BKN100 BECMG 2114/2116 00000KT TEMPO 2120/2202 5000 RA SCT015 BKN100 VTSP 210730Z 2107/2212 26008KT 9999 SCT020 SCT100 TEMPO 2108/2112 VRB10G20KT 5000 TSRA FEW018CB SCT020 BKN100 BECMG 2112/2114 VRB02KT 8000 BECMG 2122/2124 10006KT 9999 FEW020 BECMG 2204/2206 26010KT SCT020 SCT100 TEMPO 2204/2210 VRB10G20KT 5000 TSRA FEW018CB SCT020 BKN100 VTSR 210500Z 2106/2206 18006KT 9999 SCT020 BECMG 2110/2112 00000KT 8000 TEMPO 2116/2120 VRB15G30KT 5000 TSRA FEW018CB SCT020 BKN100 BECMG 2201/2203 22006KT 9999 VTSS 210500Z 2106/2206 18008KT 9999 SCT020 TEMPO 2107/2113 VRB15KT 5000 TSRA FEW016CB SCT018 BKN100 VTST 210500Z 2106/2206 24006KT 9999 SCT020 TEMPO 2106/2010 VRB15G30KT 5000 TSRA FEW018CB SCT020 BKN100 BECMG 2112/2114 00000KT 8000 BECMG 2120/2122 3000 BR BECMG 2201/2203 24006KT 9999 NSW VTUD 210500Z 2106/2206 12005KT 9999 BKN025 BKN080 TEMPO 2106/2113 VRB10G20KT 5000 TSRA FEW018CB BKN020 BKN080 TEMPO 2120/2203 VRB10G20KT 5000 TSRA FEW018CB BKN020 BKN080 VTUI 210500Z 2106/2206 12005KT 9999 SCT030 SCT080 TEMPO 2108/2115 VRB10G20KT 5000 TSRA FEW018CB BKN020 BKN080 TEMPO 2121/2204 VRB10G20KT 5000 TSRA FEW018CB BKN020 BKN080 VTUJ 210500Z 2106/2206 07004KT 9000 SCT025 TEMPO 2109/2112 VRB15KT 5000 TSRA FEW018CB BKN025 BKN100 VTUK 210500Z 2106/2206 14005KT 9999 BKN025 BKN080 TEMPO 2108/2115 VRB10G20KT 5000 TSRA FEW018CB BKN020 BKN080 TEMPO 2120/2203 VRB10G20KT 5000 TSRA FEW018CB BKN020 BKN080 VTUL 210500Z 2106/2206 06004KT 9999 BKN025 BKN080 TEMPO 2106/2113 VRB10G20KT 5000 TSRA FEW018CB BKN020 BKN080 TEMPO 2120/2203 VRB10G20KT 5000 TSRA FEW018CB BKN020 BKN080 VTUO 210500Z 2106/2206 07004KT 9000 SCT025 TEMPO 2108/2111 VRB15KT 5000 TSRA FEW018CB BKN025 BKN100 BECMG 2121/2124 5000 BR BECMG 2201/2103 9000 NSW VTUQ 210500Z 2106/2206 06005KT 9000 SCT025 TEMPO 2108/2111 VRB15KT 5000 TSRA FEW018CB BKN025 BKN100 BECMG 2121/2124 5000 BR BECMG 2201/2103 9000 NSW VTUU 210500Z 2106/2206 06005KT 9000 SCT025 TEMPO 2108/2111 VRB15KT 5000 TSRA FEW018CB BKN025 BKN100 BECMG 2122/2124 5000 BR BECMG 2201/2203 9000 NSW VTUV 210500Z 2106/2206 05005KT 9000 SCT025 TEMPO 2118/2121 VRB15KT 5000 TSRA FEW018CB BKN025 BKN100 BECMG 2122/2124 5000 BR BECMG 2201/2203 9000 NSW VTUW 210500Z 2106/2206 14005KT 9999 SCT030 SCT080 TEMPO 2108/2115 VRB10G20KT 5000 TSRA FEW018CB BKN020 BKN080 TEMPO 2121/2204 VRB10G20KT 5000 TSRA FEW018CB BKN020 BKN080 VVCI 210500Z 2106/2206 14010KT 9999 SCT017 TEMPO 2110/2114 3500 -RA BR SCT010 BKN040 TEMPO 2121/2201 3500 -RA BR SCT010 BKN040 VVCR 210500Z 2106/2206 05008KT 9999 SCT015 VVCT 210500Z 2106/2206 VRB03KT 9999 SCT013 BECMG 2109/2111 12010KT VVDN 210500Z 2106/2206 07008KT 9999 FEW015 PROB40 TEMPO 2109/2112 4000 TSRA SCT013 FEW015CB BKN050 VVNB 210500Z 2106/2206 11008KT 9999 FEW025 BECMG 2116/2117 4000 BR BECMG 2121/2122 1500 BR BECMG 2202/2203 6000 NSW VVPB 210500Z 2106/2206 09008KT 9999 FEW017 SCT060 PROB40 TEMPO 2109/2113 4000 SHRA SCT015 FEW017CB BKN060 BECMG 2121/2122 3500 BR BECMG 2200/2201 8000 NSW VVPQ 210500Z 2106/2206 12010KT 9999 SCT015 TEMPO 2107/2111 5000 SHRA SCT013 FEW015CB TEMPO 2114/2116 5000 SHRA SCT013 FEW015CB VVTS 210500Z 2106/2212 14008KT 9999 SCT017 TEMPO 2107/2111 5000 TSRA SCT013 FEW015CB TEMPO 2206/2210 TS SCT015 FEW017CB VYNT 210500Z 2106/2206 04007KT 7000 SCT018 FEW025TCU TEMPO 2106/2112 14008KT 6000 SCT016 FEW020CB VYYY 210500Z 2106/2206 05005KT 7000 BKN013 FEW020CB OVC100 TEMPO 2106/2112 03010G20KT 3000 +TSRA BKN008 FEW018CB OVC080 TEMPO 2112/2118 09008G18KT 3000 WABB 210500Z 2106/2212 25007KT 9999 SCT018 WATT 210500Z 2106/2206 28011KT 9000 SCT018 TEMPO 2106/2107 5000 -RA BECMG 2110/2112 19007KT WBGG 210500Z 2106/2206 12005KT 9999 SCT020 TEMPO 2107/2111 4000 TSRA FEW015CB WBKK 210500Z 2106/2206 29008KT 9999 FEW014 FEW017CB TEMPO 2107/2111 11008KT 4000 TSRA FEW013 FEW016CB SCT035 WBKS 210322Z 2103/2200 34008KT 9999 FEW015 TEMPO 2103/2107 2000 +TSRA FEW009 FEW015CB SCT030 WBSB 210500Z 2106/2212 31008KT 9999 SCT014 FEW015CB BKN150 TEMPO 2107/2109 6000 -SHRA TEMPO 2109/2113 8000 -RA BECMG 2112/2114 14002KT WIDD 210500Z 2106/2206 11006KT 9999 SCT014 TEMPO 2106/2110 5000 -TSRA FEW014CB WIEE 210500Z 2106/2206 27006KT 9999 FEW020 TEMPO 2106/2108 2000 RA BKN018 WIPB 210500Z 2106/2118 10005KT 7000 BKN010 PROB30 TEMPO 2108/2112 3000 RA FEW010CB WMKJ 210712Z 2107/2206 26005KT 9999 FEW017CB TEMPO 2107/2111 5000 TSRA FEW017CB SCT018 BECMG 2112/2113 VRB03KT FEW020 BECMG 2122/2200 3000 BR FEW010 BECMG 2201/2202 9000 NSW FEW018 WMKK 210500Z 2106/2212 16005KT 9999 FEW017CB BECMG 2106/2107 22005KT BECMG 2110/2111 VRB02KT FEW030 BECMG 2114/2115 30005KT FEW017CB BECMG 2118/2120 VRB02KT 8000 WMKM 202125Z 2021/2118 VRB03KT 9999 FEW017CB TEMPO 2021/2101 02008KT 3000 TSRA FEW015CB SCT018 WMSA 210219Z 2102/2200 15010KT 3000 TSRA FEW005 FEW016CB BECMG 2104/2106 9000 NSW FEW017CB PROB30 TEMPO 2108/2112 29008KT 4000 TSRA FEW015CB SCT018 BECMG 2112/2114 30005KT FEW020 BECMG 2118/2120 VRB02KT FEW017CB WPDL 210717Z 2108/2120 30008KT CAVOK FM211200 14005KT CAVOK WSAP 210800Z 2108/2212 16008KT 9999 FEW018CB SCT020 WSSL 210800Z 2108/2212 16008KT 9999 FEW018CB SCT020 WSSS 210800Z 2108/2212 16008KT 9999 FEW018CB SCT020 YAMB 210649Z 2106/2124 36008KT 9999 -SHRA SCT030 BKN070 FM211000 VRB04KT 9999 MIFG SCT005 FM212100 17008KT 9999 -SHRA FEW005 SCT015 SCT030 INTER 2106/2110 4000 SHRA BKN015 PROB30 2112/2120 0500 FG YBAS 210516Z 2106/2206 10009KT CAVOK FM211300 04006KT CAVOK FM220200 28010KT CAVOK YBBN 210637Z 2107/2212 03010KT 9999 -SHRA FEW010 SCT030 BKN050 FM211000 21006KT 9999 FEW005 BKN015 FM212100 14009KT 9999 -SHRA BKN025 FM220400 11010KT 9999 SCT030 FM221000 14005KT 9999 FEW020 TEMPO 2107/2112 4000 SHRA FEW005 BKN013 TEMPO 2112/2122 9999 NSW FEW005 BKN012 YBCG 210825Z 2108/2206 18008KT 9999 -SHRA FEW010 SCT030 SCT100 FM211200 21004KT 9999 FEW008 BKN015 FM212100 18008KT 9999 -SHRA FEW015 BKN025 FM220000 14013KT 9999 -SHRA SCT025 SCT040 INTER 2108/2113 3000 SHRA FEW005 BKN014 INTER 2200/2205 4000 SHRA BKN014 PROB30 TEMPO 2108/2112 VRB20G30KT 2000 TSRA FEW008 BKN012 SCT040CB YBCS 210534Z 2106/2206 03010KT 9999 FEW035 FM210900 VRB05KT 9999 FEW025 SCT040 YBHM 210517Z 2106/2118 10014KT 9999 FEW030 FM210900 07012KT 9999 SCT022 YBMA 210500Z 2106/2118 18008KT CAVOK YBRK 210524Z 2106/2206 05012KT 9999 FEW025 FM211100 09004KT 9999 FEW020 FM211800 15004KT 9999 SCT020 FM212300 05006KT 9999 FEW030 FM220500 06012KT 9999 SCT080 YBRM 210438Z 2106/2206 27014KT CAVOK FM211200 23008KT CAVOK FM220500 28014KT CAVOK YBTL 210531Z 2106/2206 04013KT 9999 FEW035 FM211000 36008KT 9999 SCT020 YCFS 210541Z 2106/2206 20008KT 9999 -SHRA SCT020 SCT080 BECMG 2106/2108 18012KT 9999 -SHRA BKN015 BECMG 2122/2124 16010KT 9999 BKN020 FM220200 15014KT 9999 SCT030 TEMPO 2106/2120 4000 SHRA BKN010 PROB30 TEMPO 2106/2109 VRB20G30KT 2000 TSRA BKN010 FEW040CB YCIN 210553Z 2108/2120 30010KT CAVOK FM211300 26010KT CAVOK YFRT 210638Z 2106/2120 28016KT CAVOK FM211000 18012KT CAVOK YGEL 210511Z 2105/2124 25014KT 9999 BKN040 FM210800 22014KT 9999 -SHRA BKN030 FM211100 19008KT 9999 -SHRA BKN020 FM212100 15008KT 9999 SCT025 INTER 2112/2118 4000 SHRA BKN010 YGLA 210525Z 2106/2118 05012KT 9999 FEW030 FM210900 07006KT 9999 FEW020 FM211500 20005KT 9999 SCT020 YHID 210533Z 2106/2206 09013KT 9999 FEW035 FM211000 13007KT 9999 SCT018 YLHI 210524Z 2106/2206 06014KT 8000 -SHRA SCT010 BKN025 TEMPO 2106/2206 4000 SHRA BKN008 YMAV 210513Z 2106/2206 VRB05KT 9999 SCT045 FM211400 01010KT CAVOK FM220000 34015G25KT CAVOK YMHB 210536Z 2106/2206 14008KT 9999 SCT040 FM211000 VRB03KT 9999 SCT020 BKN040 FM211600 31006KT 9999 FEW020 FM220000 31012KT CAVOK YMLT 210540Z 2106/2206 32012KT 9999 FEW025 SCT040 FM211000 35006KT 9999 SCT010 FM212100 33012KT 9999 SCT010 BKN025 FM220100 33015KT 9999 SCT025 PROB30 2117/2121 0500 FG YMML 210507Z 2106/2212 14008KT 9999 FEW040 BECMG 2112/2114 36007KT CAVOK FM212100 36020G32KT CAVOK FM220700 36014KT CAVOK YPAD 210511Z 2106/2212 33010KT CAVOK FM210900 04008KT CAVOK FM212300 33016KT CAVOK FM220400 24016KT CAVOK FM220900 23010KT 9999 FEW020 YPCC 210503Z 2106/2206 13018KT 9999 -SHRA SCT020 FM211200 12014KT 9999 -SHRA SCT020 INTER 2106/2112 4000 SHRA BKN010 YPDN 210744Z 2107/2212 30012KT 9999 SCT035 FM211200 33005KT 9999 FEW020 FM220300 29012KT 9999 FEW040 PROB30 TEMPO 2206/2212 VRB20G40KT 1000 TSRA BKN010 SCT020CB YPEA 210434Z 2104/2124 25018KT 9999 -SHRA BKN020 FM210900 24014KT 9999 BKN030 FM211200 22010KT 9999 BKN045 INTER 2104/2108 27020G30KT 4000 SHRA BKN014 YPGV 210706Z 2108/2120 01008KT 9999 FEW025 FM211200 VRB03KT 9999 SCT015 YPJT 210025Z 2100/2118 28018KT 9999 -SHRA SCT020 BKN025 BECMG 2105/2107 24016KT 9999 BKN035 FM211100 22010KT 9999 BKN045 INTER 2100/2108 27020G30KT 3000 SHRA BKN010 YPKG 210438Z 2104/2206 28014KT CAVOK FM210900 24014KT CAVOK YPKU 210819Z 2108/2120 35008KT CAVOK PROB30 TEMPO 2108/2114 VRB20G40KT 3000 TSRA SCT030 FEW080CB YPLM 210436Z 2104/2206 17014KT CAVOK FM210600 20014KT CAVOK FM210900 22018KT CAVOK FM211400 18014KT CAVOK YPPD 210438Z 2104/2206 31014KT CAVOK FM211600 25008KT CAVOK FM212300 18010KT CAVOK FM220400 30014KT CAVOK YPPH 210507Z 2106/2212 26018KT 9999 -SHRA BKN025 FM210900 24014KT 9999 BKN035 FM211500 21010KT 9999 BKN045 INTER 2106/2107 27020G30KT 4000 SHRA BKN015 YPTN 210532Z 2106/2206 10006KT CAVOK FM211300 33010KT CAVOK YPWR 210451Z 2105/2124 35010KT CAVOK FM211000 02010KT CAVOK FM212300 01018G28KT CAVOK YPXM 210509Z 2106/2206 12012KT 9999 BKN013 YSCB 210548Z 2106/2206 33010KT 9999 FEW045 BECMG 2109/2110 09010KT 9999 SCT030 BECMG 2114/2115 09004KT 9999 BKN016 BECMG 2122/2123 33012KT CAVOK YSDU 210501Z 2106/2124 19012KT CAVOK FM211200 12010KT 9999 SCT010 BKN020 YSNF 210723Z 2107/2206 07014KT 8000 -SHRA BKN003 BKN015 BECMG 2121/2123 08015G25KT 8000 -SHRA BKN008 BKN015 YSRI 210541Z 2106/2206 12010KT 9999 BKN035 FM210900 VRB03KT 9999 BKN025 FM220000 03010KT 9999 BKN030 YSSY 210518Z 2106/2212 17018KT 9999 FEW025 FM210900 14013KT 9999 FEW030 FM211400 29008KT 9999 FEW030 FM220100 04015KT CAVOK FM221000 01008KT CAVOK YSTW 210609Z 2106/2124 26010KT 9999 -SHRA SCT020 BECMG 2106/2107 15008KT 9999 SCT040 FM211200 12010KT 9999 SCT020 YTNK 210706Z 2108/2120 08006KT CAVOK FM211600 09010KT CAVOK YTRE 210709Z 2108/2120 20012KT 9999 -SHRA BKN016 BECMG 2109/2111 20005KT 9999 BKN012 YWGT 210114Z 2102/2114 VRB05KT CAVOK YWLM 210520Z 2105/2206 17010KT 9999 BKN012 BECMG 2118/2120 15005KT 9999 SCT025 FM220000 11012KT 9999 SCT030 ZGNN 210206Z 2100/2124 06003MPS 2500 BR SCT010 BKN033 TX25/2107Z TN22/2122Z BECMG 2103/2104 5000 TEMPO 2100/2103 RA ZHHH 210312Z 2100/2124 02003MPS 2000 -RA BR SCT015 TX18/2107Z TN13/2122Z BECMG 2106/2107 3000 BR TEMPO 2102/2106 1400 -RA BR ZKPY 210530Z 2106/2206 02003MPS 7000 NSC TX19/2106Z TN06/2121Z TEMPO 2118/2201 0500 FG ZKWS 210530Z 2106/2206 04003MPS CAVOK TX18/2106Z TN08/2121Z ZMUB 210450Z 2106/2212 17006MPS 9999 SCT033 SCT100 TX08/2107Z TNM04/2122Z BECMG 2107/2109 34007MPS BKN033 BKN100 TEMPO 2107/2122 6000 -SNRA BKN030 BKN080 BECMG 2123/2201 30006MPS SCT033 SCT100 BECMG 2209/2211 VRB02MPS

Map